Weather

Current METAR: AGGH 220600Z 09008KT 9999 HZ FEW020 SCT100 31/25 Q1008 AYMH 220600Z 33010/15KT 9999 SCT040 24/15 Q1016 AYNZ 220600Z 11010KT 9999 HZ FEW045 32/20 Q1008 AYPY 220600Z 13025KT 9999 HZ FEW025 SCT100 29/24 Q1009 BGBW 220550Z AUTO 05004KT 9999NDV BKN012/// OVC019/// 06/04 Q1007 BGGH 220550Z AUTO 31006KT 280V340 0400NDV FG BKN002/// 03/03 Q1014 BGJN 220550Z AUTO 20006KT 9999NDV FEW001/// BKN005/// OVC007/// 03/03 Q1014 BGKK 220350Z AUTO 07003KT 9999NDV OVC047/// 06/03 Q1003 BGSF 220550Z AUTO VRB04KT 9999NDV SCT028/// BKN032/// 06/05 Q1013 BGTL 220634Z AUTO 28004KT 9000 -SN BKN004 OVC011 01/01 M RMK AO2 SNB14 CIG 004V006 SLPNO TSNO $ BIAR 220600Z 30006KT 3500 DZ BR BKN013 OVC018 10/09 Q0998 BIEG 220600Z 36002KT 9999 -RA SCT004 BKN010 OVC019 09/08 Q0996 BIKF 220630Z 23009KT 9999 VCSH FEW008 OVC014 08/08 Q0999 BIRK 220610Z 21010KT 8000 -DZ BR OVC005 08/07 Q0999 BKPR 220630Z VRB03KT 9999 FEW040 SCT200 21/14 Q1013 NOSIG CAHR 220600Z AUTO 20003KT 18/18 RMK AO1 SLP222 T01750176 51006 CBBC 220600Z AUTO 16003KT 080V160 9SM OVC024 14/12 A3026 RMK SLP249 CERM 220600Z AUTO 33001KT 12/11 RMK AO1 SLP215 T01200107 53007 CMFM 220600Z AUTO 29001KT 11/10 RMK AO1 SLP224 T01080097 51003 CMGB 220630Z AUTO 14002KT 19/14 RMK AO1 SLP179 T01890140 53001 CPBT 220600Z AUTO 27004KT 07/04 RMK AO1 T00700036 CPEH 220600Z AUTO 34010KT 14/08 RMK AO1 T01350075 CPFI 220600Z AUTO 31006KT 12/08 RMK AO1 T01150078 CPIR 220600Z AUTO 33008KT 12/07 RMK AO1 T01190070 CPRO 220600Z AUTO 32013KT 14/07 RMK AO1 PK WND 32019/0544 T01410074 CPRY 220600Z AUTO 24004KT 09/06 RMK AO1 T00930061 CPST 220600Z AUTO 34009KT 10/06 RMK AO1 T01020055 CPSV 220600Z AUTO 36009KT 16/07 RMK AO1 PK WND 34027/0506 T01550068 CPXL 220600Z AUTO 35003KT 14/07 RMK AO1 T01400068 CTCK 220600Z AUTO 00000KT 15/13 RMK AO1 SLP150 T01500134 58004 CTNK 220600Z AUTO 08001KT 17/12 RMK AO1 SLP153 T01660120 56006 CTRA 220600Z AUTO 13004KT 16/14 RMK AO1 SLP203 T01600135 56009 CWAE 220100Z 00000KT 15SM FEW060 BKN090 21/08 A3018 RMK CU2AC4 LAST OBS/NEXT 221300UTC WND ESTD SLP221 DENSITY ALT 3100FT CWAF 220600Z AUTO 00000KT 11/10 RMK AO1 T01090100 CWAJ 220600Z AUTO RMK AO1 CWAQ 220600Z AUTO 13005KT 18/16 RMK AO1 SLP118 T01810159 53005 CWAV 220600Z AUTO 27005KT 10/07 RMK AO1 SLP195 T00950069 51017 CWBA 220600Z AUTO 33004KT 19/15 RMK AO1 T01910152 CWBE 220600Z AUTO 07004KT 21/15 RMK AO1 SLP156 T02050151 55002 CWBK 220600Z AUTO 22007KT 19/18 RMK AO1 SLP226 T01910177 52008 CWBO 220600Z AUTO 34011KT 16/08 RMK AO1 SLP165 T01570077 53029 CWBS 220600Z AUTO 14011KT 23/14 RMK AO1 PK WND 13017/0515 T02270142 CWBT 220600Z AUTO 06003KT 16/14 RMK AO1 SLP228 T01580143 58004 CWBU 220600Z AUTO 17007KT 19/14 RMK AO1 SLP127 T01940140 56012 CWBV 220600Z AUTO 25007KT 14/14 RMK AO1 SLP247 T01400138 50005 CWBY 220600Z AUTO 09008KT 15/15 RMK AO1 SLP222 T01450147 58002 CWBZ 220600Z AUTO 05004KT 15/13 RMK AO1 SLP158 T01540127 58003 CWCA 220600Z 00000KT 15SM BKN020 12/10 A3020 RMK SC6 SLP230 CWCF 220600Z AUTO 10009KT 19/10 RMK AO1 SLP196 T01870103 56006 CWCI 220600Z AUTO 05017KT 15/14 RMK AO1 PK WND 06024/0528 SLP160 T01480139 58010 CWCJ 220500Z AUTO 04006KT 16/13 RMK AO1 SLP197 T01570130 51004 CWCO 220600Z AUTO 15005KT 20/14 RMK AO1 PK WND 17017/0528 SLP126 T01950139 53002 CWCT 220600Z AUTO 28005KT 10/08 RMK AO1 SLP168 T01040075 51019 CWDA 220600Z AUTO 11006KT 13/12 RMK AO1 SLP249 T01300115 58012 CWDC 220100Z AUTO 08009G15KT 16/12 RMK AO1 PK WND 07018/0029 SLP158 T01600123 56015 CWDJ 220600Z AUTO 13012KT 17/14 RMK AO1 PK WND 12017/0510 SLP122 T01710135 56018 CWDK 220600Z AUTO 33003KT 09/05 RMK AO1 SLP196 T00850048 51027 CWDM 220600Z AUTO 15003KT 15/14 RMK AO1 6010 SLP250 T01500143 50009 CWDO 220600Z AUTO 23010KT 17/12 RMK AO1 SLP269 T01660122 51004 CWDQ 220600Z AUTO 21001KT 14/14 RMK AO1 SLP197 T01430135 52004 CWDT 220600Z AUTO 32005KT 18/14 RMK AO1 SLP207 T01840137 51004 CWDV 220600Z AUTO 05002KT 12/12 RMK AO1 SLP235 T01240123 51007 CWDZ 220600Z AUTO 33008KT 14/06 RMK AO1 PK WND 32017/0522 T01420060 CWEB 220600Z AUTO 31005KT 12/11 RMK AO1 T01230109 CWEF 220500Z AUTO 16011G18KT 16/16 RMK AO1 PK WND 16018/0459 SLP239 T01640158 58001 CWEH 220600Z AUTO 01008KT 20/03 RMK AO1 SLP117 T01950034 53017 CWEK 220600Z AUTO 17012KT 13/11 RMK AO1 SLP249 T01270114 53006 CWEL 220600Z AUTO 19004KT 18/12 RMK AO1 SLP222 T01780118 51011 CWEQ 220600Z AUTO 08006KT 18/13 RMK AO1 SLP170 T01820127 53001 CWER 220600Z AUTO 04005KT RMK AO1 CWEU 220600Z 15006KT 15SM -RA SCT015 BKN050 OVC240 02/01 A2958 RMK SC4SC1CI3 VIA CYWG SLP020 CWEW 220600Z AUTO 09001KT 20/15 RMK AO1 2006 SLP183 T01950146 50004 CWEZ 220600Z AUTO 22007KT 16/11 RMK AO1 SLP221 T01640107 53007 CWFF 220600Z AUTO 16015G22KT 19/14 RMK AO1 PK WND 17025/0536 SLP116 T01890141 58015 CWFJ 220600Z AUTO 25004KT 12/05 RMK AO1 T01160051 CWFQ 220600Z AUTO 14004KT 18/11 RMK AO1 SLP180 T01790113 56001 CWGB 220600Z AUTO 13005KT 20/11 RMK AO1 SLP220 T01990107 52014 CWGD 220600Z AUTO 10009KT 21/16 RMK AO1 SLP103 T02120163 57006 CWGL 220600Z AUTO 14009KT 18/15 RMK AO1 PK WND 15018/0537 SLP141 T01760148 50000 CWGM 220600Z AUTO 01002KT 12/03 RMK AO1 T01200031 CWGR 220600Z AUTO 19007KT 19/17 RMK AO1 SLP220 T01880173 56004 CWGT 220600Z AUTO 07002KT 20/07 RMK AO1 SLP223 T02000074 53015 CWGW 220600Z AUTO 02003KT 11/02 RMK AO1 SLP194 T01120024 51029 CWGX 220600Z AUTO 13004KT 12/07 RMK AO1 SLP244 T01210071 58001 CWGY 220600Z AUTO 25008KT 10/08 RMK AO1 SLP166 T01000080 51028 CWHI 220600Z AUTO 28010KT 11/07 RMK AO1 T01110071 CWHO 220600Z AUTO 36013G19KT 10/06 RMK AO1 PK WND 35022/0545 SLP237 T01040064 52008 CWHP 220600Z AUTO 07003KT 15/15 RMK AO1 SLP224 T01480148 58005 CWHT 220600Z AUTO 32003KT 20/05 RMK AO1 SLP261 T02010050 53010 CWHV 220600Z AUTO 18003KT 14/12 RMK AO1 SLP206 T01370116 51002 CWID 220600Z AUTO 34003KT 13/11 RMK AO1 SLP230 T01320113 52009 CWIG 220600Z AUTO 02004KT RMK AO1 CWII 220600Z AUTO 13007KT 20/16 RMK AO1 T02000162 CWIJ 220600Z AUTO 26003KT 08/04 RMK AO1 SLP263 T00770038 51006 CWIK 220600Z AUTO 13010G15KT 17/14 RMK AO1 SLP150 T01700135 58005 CWIL 220600Z AUTO 28013KT ////SM FEW200 SCT230 04/01 A3010 CWIP 220600Z AUTO 07005KT 17/ RMK AO1 T0166 CWIS 220600Z AUTO 18004KT 13/11 RMK AO1 SLP221 T01250110 51002 CWIT 220600Z AUTO 13004KT 18/12 RMK AO1 SLP171 T01750120 50000 CWIW 220600Z AUTO 15011KT 17/15 RMK AO1 SLP127 T01710146 58006 CWIX 220600Z AUTO 12006KT 21/15 RMK AO1 SLP186 T02100146 51011 CWIZ 220600Z AUTO 17008KT 19/13 RMK AO1 T01850129 CWJB 220600Z AUTO 08002KT 20/ RMK AO1 T0197 CWJC 220600Z AUTO 15006KT 14/10 RMK AO1 SLP213 T01430096 58007 CWJD 220600Z AUTO 15004KT 19/16 RMK AO1 SLP186 T01940157 58003 CWJH 220600Z AUTO 18004KT 21/14 RMK AO1 SLP143 T02060136 56004 CWJI 220600Z AUTO 16005KT 18/15 RMK AO1 SLP123 T01760147 51004 CWJO 220600Z AUTO 13002KT 20/15 RMK AO1 SLP203 T01960152 51006 CWJR 220600Z AUTO 34008G15KT 19/04 RMK AO1 SLP194 T01850041 52025 CWJT 220600Z AUTO 05001KT 17/15 RMK AO1 SLP170 T01690151 55001 CWJV 220600Z AUTO 00000KT 15/09 RMK AO1 SLP226 T01480088 51016 CWJW 220600Z AUTO 15002KT 09/08 RMK AO1 6PAST HR 2015 SLP243 P0002 T00930081 50033 CWJX 220600Z AUTO 33010KT 14/08 RMK AO1 PK WND 34021/0509 SLP144 T01410079 CWKG 220600Z AUTO 16001KT 16/15 RMK AO1 SLP237 T01580147 51002 CWKH 220600Z AUTO 17/08 RMK AO1 SLP218 T01690075 53007 CWKK 220600Z AUTO 03010KT 16/14 RMK AO1 SLP226 T01610142 53005 CWKO 220600Z AUTO 16012G20KT 18/16 RMK AO1 PK WND 19020/0548 SLP119 T01760157 58003 CWKX 220600Z AUTO 00000KT 14/08 RMK AO1 SLP266 T01400081 51030 CWLB 220600Z AUTO 27008KT 14/10 RMK AO1 SLP135 T01440099 51003 CWLE 220600Z AUTO 12004KT 17/14 RMK AO1 SLP114 T01670138 56003 CWLI 220600Z AUTO 31009KT ////SM //// ////// 08/08 A3022 CWLM 220600Z AUTO 25007KT 14/10 RMK AO1 SLP224 T01360095 53006 CWLS 220600Z AUTO 10007KT 19/13 RMK AO1 SLP121 T01890133 56006 CWLY 220600Z AUTO 17003KT 130V200 9SM CLR 17/12 A3021 RMK SLP231 CWME 220600Z AUTO 22008KT 17/13 RMK AO1 SLP245 T01670128 53013 CWMJ 220600Z AUTO 00000KT 15/12 RMK AO1 SLP168 T01530115 56003 CWMM 220600Z AUTO 13001KT 16/12 RMK AO1 SLP224 T01620122 53009 CWMQ 220600Z AUTO 32014G22KT 16/07 RMK AO1 PK WND 31022/0549 SLP143 T01630072 53030 CWMT 220600Z AUTO 01008KT 13/06 RMK AO1 SLP251 T01340064 53012 CWMZ 220600Z AUTO 12016KT 22/14 RMK AO1 PK WND 12019/0558 SLP133 T02190135 53001 CWNC 220600Z AUTO 02002KT 19/17 RMK AO1 8016 SLP126 T01850172 50009 CWND 220600Z AUTO 06006KT 10/09 RMK AO1 SLP210 T00950090 56009 CWNE 220600Z AUTO 27006KT 20/19 RMK AO1 SLP213 T01950190 51005 CWNH 220600Z AUTO 19003KT 18/13 RMK AO1 SLP205 T01760127 53007 CWNK 220600Z AUTO 12005KT 16/15 RMK AO1 T01620149 CWNL 220600Z AUTO 05004KT 21/17 RMK AO1 SLP132 T02060168 58006 CWNM 220600Z AUTO 20003KT 17/06 RMK AO1 SLP203 T01660057 51026 CWNP 220600Z AUTO 03002KT 11/07 RMK AO1 SLP222 T01100067 51019 CWNQ 220600Z AUTO 12004KT 20/13 RMK AO1 SLP179 T02020130 50000 CWNZ 220600Z AUTO 04005KT 15/08 RMK AO1 SLP220 T01480084 51006 CWOB 220600Z AUTO 31009KT ////SM //// NCD 10/03 A3009 CWOC 220600Z AUTO 00000KT 19/17 RMK AO1 SLP224 T01870173 51001 CWOD 220600Z AUTO 30003KT 18/16 RMK AO1 SLP167 T01760160 51004 CWOE 220600Z AUTO 31014KT 17/04 RMK AO1 PK WND 32020/0539 SLP139 T01710036 53025 CWOY 220600Z AUTO 14011KT 17/14 RMK AO1 8007 SLP141 T01740136 50010 CWPC 220600Z AUTO 06011KT 16/14 RMK AO1 SLP114 T01570142 58012 CWPD 220600Z AUTO 21004KT 11/10 RMK AO1 SLP188 T01080098 52001 CWPE 220600Z AUTO 02001KT 13/13 RMK AO1 SLP226 T01320131 50005 CWPF 220630Z AUTO 02001KT 15/11 RMK AO1 T01520110 CWPK 220600Z AUTO 00000KT 16/15 RMK AO1 SLP193 T01580149 51001 CWPO 220600Z AUTO 13008KT 16/15 RMK AO1 SLP193 T01630150 58007 CWPR 220600Z AUTO 28003KT 15/06 RMK AO1 SLP226 T01540064 51013 CWPS 220600Z AUTO 03016KT 19/16 RMK AO1 PK WND 06022/0501 SLP093 T01910160 58010 CWPX 220600Z AUTO ///// ////SM //// BKN034 BKN130 06/01 A3005 CWPZ 220600Z AUTO 32003KT 14/11 RMK AO1 1011 SLP227 T01420114 50001 CWQH 220600Z AUTO 05003KT 14/11 RMK AO1 T01360110 CWQK 220600Z AUTO 26024KT 12/11 RMK AO1 PK WND 26025/0555 SLP223 T01190114 53004 CWQO 220600Z AUTO 34004KT 12/11 RMK AO1 T01170107 CWQP 220600Z AUTO 11014KT 22/18 RMK AO1 SLP127 T02240176 58016 CWQR 220600Z AUTO 07013KT 11/ RMK AO1 T0106 CWQS 220600Z AUTO 32021KT 12/ RMK AO1 PK WND 32026/0502 SLP266 T0123 53007 CWQV 220600Z AUTO 09002KT 18/ RMK AO1 T0175 CWRA 220600Z AUTO 26007KT RMK AO1 7006 50013 CWRF 220600Z AUTO 23007KT 08/ A3011 RMK SLP221 CWRJ 220600Z AUTO 30006KT 16/12 RMK AO1 SLP115 T01580123 51012 CWRK 220600Z AUTO 00000KT 14/11 RMK AO1 SLP152 T01440108 58008 CWRM 220600Z AUTO 31012G17KT 12/07 RMK AO1 PK WND 34018/0511 SLP186 T01150067 51013 CWRN 220600Z AUTO 20010KT 18/18 RMK AO1 SLP243 T01780178 58008 CWRO 220200Z AUTO 27021G26KT 13/11 RMK AO1 PK WND 28027/0149 SLP251 T01320110 58002 CWRT 220600Z AUTO 33001KT 09/02 RMK AO1 T00860021 CWRU 220600Z AUTO 34027KT 12/11 RMK AO1 PK WND 34033/0525 SLP231 T01240110 53011 CWRX 220600Z AUTO 22012KT ////SM //// NCD 02/M00 A3016 CWRY 220600Z AUTO 34012KT 14/07 RMK AO1 SLP171 T01360071 51037 CWRZ 220600Z AUTO 18001KT 17/16 RMK AO1 SLP216 T01730163 56002 CWSA 220600Z AUTO 17016KT 1/4SM -RA FG VV002 17/17 A3029 RMK LTNG DIST E SE SLP258 CWSD 220600Z AUTO 22004KT 20/19 RMK AO1 SLP222 T02010190 51006 CWSF 220600Z AUTO 29005KT 19/14 RMK AO1 SLP207 T01860138 53007 CWSG 220600Z AUTO 20003KT 14/13 RMK AO1 SLP214 T01410133 51011 CWSK 220600Z AUTO 04001KT 15/12 RMK AO1 SLP223 T01450115 51024 CWSL 220600Z AUTO 19002KT 13/11 RMK AO1 SLP233 T01340109 51017 CWSR 220600Z AUTO 36011G18KT 14/12 RMK AO1 9PAST HR PRESFR 0005 PK WND 00028/0539 SLP101 P0023 T01420118 50452 CWSS 220600Z AUTO 10001KT 12/12 RMK AO1 SLP227 T01230116 53006 CWST 220600Z AUTO 13007KT 18/14 RMK AO1 SLP198 T01760139 50009 CWSW 220100Z 19007G16KT 120V250 20SM SCT099 BKN120 24/M00 A3005 RMK AC4AC3 LAST STFD OBS/NEXT 221300Z SLP171 DENSITY ALT 5600FT CWTA 220600Z AUTO 19003KT 22/12 RMK AO1 SLP175 T02210121 51002 CWTG 220600Z AUTO 03007KT 17/13 RMK AO1 SLP209 T01660130 50003 CWTN 220600Z AUTO 35002KT 14/14 RMK AO1 SLP199 T01350142 50007 CWTT 220600Z AUTO 14003KT 19/11 RMK AO1 T01880114 CWTU 220600Z AUTO ///// A3027 CWTY 220600Z AUTO 12002KT 22/13 RMK AO1 SLP179 T02170127 53005 CWUS 220600Z AUTO 29006KT 17/07 RMK AO1 SLP219 T01690073 51018 CWUW 220600Z AUTO 28004KT ////SM //// NCD 03/02 A3003 CWUX 220600Z AUTO 11001KT 16/13 RMK AO1 SLP193 T01620131 51004 CWVF 220600Z AUTO 00000KT 19/12 RMK AO1 T01920116 CWVI 220600Z AUTO 27006KT 12/10 RMK AO1 SLP144 T01170100 51004 CWVN 220600Z AUTO 35006KT 19/14 RMK AO1 SLP107 T01910144 50014 CWVP 220600Z AUTO 36004KT 18/M01 RMK AO1 SLP131 T01761010 51015 CWVQ 220600Z AUTO 13006KT 22/14 RMK AO1 SLP171 T02150135 55000 CWVT 220600Z AUTO 29002KT 14/13 RMK AO1 SLP123 T01420132 58006 CWVU 220600Z AUTO 15005KT 12/12 RMK AO1 SLP241 T01170116 50000 CWWA 220600Z AUTO 02002KT 17/10 RMK AO1 SLP230 T01700098 52011 CWWB 220600Z AUTO 07017KT 18/16 RMK AO1 PK WND 09022/0502 SLP116 T01830162 50004 CWWE 220600Z AUTO 02002KT 14/14 RMK AO1 SLP236 T01370137 50002 CWWF 220600Z AUTO 15015G22KT 17/14 RMK AO1 7010 PK WND 15022/0551 SLP131 T01740135 50010 CWWK 220600Z AUTO 00000KT 16/13 RMK AO1 SLP227 T01590126 53008 CWWL 220600Z AUTO 02016KT 11/ RMK AO1 PK WND 01022/0508 SLP255 T0105 53009 CWWS 220600Z AUTO 12006KT 20/14 RMK AO1 SLP197 T02020140 55003 CWWX 220600Z AUTO 10006KT 18/17 RMK AO1 SLP129 T01750170 50000 CWWZ 220600Z AUTO 09005KT 16/14 RMK AO1 3PAST HR 8009 PK WND 11021/0505 SLP117 P0001 T01620144 50003 CWXA 220600Z AUTO 26005KT 11/M00 RMK AO1 SLP179 T01131002 51012 CWXC 220600Z AUTO 00000KT 16/14 RMK AO1 SLP194 T01610139 53004 CWXI 220600Z AUTO 21013KT 15/14 RMK AO1 PK WND 21017/0515 SLP239 T01520137 58015 CWXL 220600Z AUTO 36003KT 14/07 RMK AO1 T01380071 CWYJ 220600Z AUTO 00000KT 13/09 RMK AO1 SLP223 T01330091 53006 CWYL 220600Z AUTO 25008KT 07/06 RMK AO1 1016 SLP216 T00710062 50003 CWYM 220600Z AUTO ///// 07/ A3002 RMK SLP197 CWYY 220600Z AUTO 30002KT 22/08 RMK AO1 SLP207 T02160084 51022 CWZA 220600Z AUTO 00000KT 16/12 RMK AO1 SLP224 T01610123 52015 CWZG 220600Z AUTO 25002KT 10/02 RMK AO1 SLP203 T01040019 51014 CWZL 220600Z AUTO 14008KT 14/13 RMK AO1 SLP261 T01430129 53007 CWZO 220600Z AUTO 17010KT RMK AO1 CWZQ 220640Z AUTO 18011G16KT 18/18 RMK AO1 T01830180 CWZS 220600Z AUTO 15002KT 16/13 RMK AO1 SLP216 T01640134 50000 CWZV 220600Z AUTO 31025KT 12/11 RMK AO1 1PAST HR 3006 PK WND 31029/0528 SLP255 P0000 T01170106 50005 CWZW 220600Z AUTO 03003KT 16/07 RMK AO1 SLP266 T01550074 53016 CWZZ 220600Z AUTO ///// ////SM //// NCD 08/M01 A3022 CXAF 220600Z AUTO 28006KT 11/10 RMK AO1 T01120098 CXAG 220600Z AUTO 27006KT 12/11 RMK AO1 T01210112 CXAJ 220600Z AUTO 20003KT 12/10 RMK AO1 T01220095 CXAK 220600Z AUTO 27008KT 12/08 RMK AO1 T01210075 CXAT 220600Z AUTO 30006KT 03/01 RMK AO1 SLP108 T00300006 51006 CXBA 220600Z AUTO 26008KT 09/09 RMK AO1 T00850092 CXBI 220600Z AUTO 13007KT 17/14 RMK AO1 PK WND 12017/0505 SLP143 T01720143 55000 CXBK 220600Z AUTO 13010KT 16/15 RMK AO1 SLP115 T01630147 56015 CXBO 220500Z AUTO 07002KT RMK AO1 CXBR 220600Z AUTO 34007KT 12/04 RMK AO1 T01160036 CXCA 220600Z AUTO 35003KT 15/13 RMK AO1 SLP212 T01530129 53004 CXCD 220600Z AUTO 34003KT 14/12 RMK AO1 1PAST HR M P0004 T01360120 50027 CXCH 220600Z AUTO 19/16 RMK AO1 T01930160 CXCK 220600Z AUTO 01004KT 18/07 RMK AO1 SLP267 T01790074 53008 CXCP 220600Z AUTO 35010KT 11/05 RMK AO1 T01140054 CXCS 220600Z AUTO 30003KT 12/10 RMK AO1 T01170098 CXDB 220600Z AUTO 35010KT 11/03 RMK AO1 T01080033 CXDE 220600Z AUTO 07002KT 07/04 RMK AO1 SLP294 T00740035 53004 CXDI 220600Z AUTO 07001KT 18/17 RMK AO1 8PAST HR 8005 SLP100 P0003 T01800170 50008 CXDK 220600Z AUTO 12/10 RMK AO1 1027 SLP285 T01230095 50001 CXDP 220600Z AUTO 24006KT 12/11 RMK AO1 T01220108 CXDW 220600Z AUTO 15005KT 16/16 RMK AO1 8009 SLP191 T01600155 50004 CXEA 220600Z AUTO 12001KT 15/14 RMK AO1 SLP231 T01480137 55005 CXEC 220600Z AUTO 29007KT 14/09 RMK AO1 SLP157 T01370093 51005 CXEG 220600Z AUTO 11/11 RMK AO1 T01080107 CXET 220600Z AUTO 11006KT 18/14 RMK AO1 SLP136 T01760143 54000 CXFM 220600Z AUTO 33008KT 15/07 RMK AO1 PK WND 33017/0510 T01450066 CXFR 220600Z AUTO 31005KT 13/11 RMK AO1 T01320111 50037 CXGH 220600Z AUTO 16015KT 22/17 RMK AO1 PK WND 17019/0533 T02220167 CXHA 220600Z AUTO 06003KT 22/19 RMK AO1 SLP069 T02160186 56003 CXHD 220600Z AUTO 23005KT 10/10 RMK AO1 T01030097 CXHF 220600Z AUTO 17/14 RMK AO1 T01720142 CXHM 220600Z AUTO 08005KT 18/16 RMK AO1 3PAST HR 0002 SLP112 P0001 T01780162 50003 CXHR 220600Z AUTO 31011KT 11/06 RMK AO1 PK WND 33018/0532 T01120055 CXIB 220600Z AUTO 00000KT 17/16 RMK AO1 2PAST HR 8009 SLP238 P0001 T01710157 50002 CXKA 220600Z AUTO 02005KT 15/10 RMK AO1 SLP188 T01530096 51003 CXKE 220600Z AUTO 00000KT 16/12 RMK AO1 SLP154 T01630120 58004 CXKI 220600Z AUTO 19/16 RMK AO1 SLP173 T01850164 52001 CXKM 220600Z AUTO 24004KT 09/09 RMK AO1 T00930088 CXKT 220600Z AUTO 23001KT 19/18 RMK AO1 SLP233 T01900179 51011 CXLB 220500Z AUTO 00000KT 15/15 RMK AO1 SLP234 T01540152 52011 CXLL 220600Z AUTO 02004KT 14/07 RMK AO1 SLP283 T01440074 53028 CXMD 220600Z AUTO 13005KT 17/16 RMK AO1 SLP187 T01700156 58009 CXMG 220600Z AUTO 30007KT 14/13 RMK AO1 T01350133 CXMI 220600Z AUTO 15005KT 15/ RMK AO1 SLP246 T0151 50006 CXMM 220600Z AUTO 22013KT 14/12 RMK AO1 9PAST HR 6016 PK WND 22022/0520 SLP084 P0015 T01380122 50178 CXMO 220600Z AUTO 32010KT 11/06 RMK AO1 PK WND 31017/0526 T01080061 CXMY 220600Z AUTO 16/16 RMK AO1 T01580158 50194 CXNM 220600Z AUTO 18010G17KT 17/14 RMK AO1 PK WND 17019/0500 T01660143 CXNP 220600Z AUTO 17005KT 20/19 RMK AO1 SLP233 T02020190 52007 CXOL 220600Z AUTO 29009KT 10/08 RMK AO1 T00950082 CXOX 220600Z AUTO 33003KT 17/15 RMK AO1 1PAST HR 8011 SLP118 P0012 T01690153 50077 CXOY 220600Z AUTO 33007KT 11/09 RMK AO1 T01090086 CXPA 220600Z AUTO 31005KT 11/11 RMK AO1 T01140109 50021 CXPC 220600Z AUTO 22/10 RMK AO1 SLP133 T02160103 53001 CXPL 220600Z AUTO 32012KT 14/08 RMK AO1 PK WND 33023/0500 T01390083 CXRB 220600Z AUTO 25017KT M00/M01 RMK AO1 PK WND 24022/0531 SLP064 T10031007 53009 CXRH 220600Z AUTO 13002KT 18/ RMK AO1 T0183 CXRL 220600Z AUTO 23005KT 12/11 RMK AO1 T01220107 CXSC 220600Z AUTO 34011KT 15/08 RMK AO1 PK WND 33017/0503 T01490077 CXSE 220600Z AUTO 27018KT M00/M02 RMK AO1 PK WND 28026/0504 SLP119 T10031019 53013 CXSH 220600Z AUTO 06003KT 18/15 RMK AO1 SLP188 T01840148 52006 CXSL 220600Z AUTO 25003KT 11/10 RMK AO1 T01060095 CXSP 220600Z AUTO 23005KT 13/11 RMK AO1 T01260113 CXTD 220600Z AUTO 19015G20KT 18/17 RMK AO1 5000 PK WND 18020/0559 SLP237 T01750172 50039 CXTH 220600Z AUTO 26008KT 11/10 RMK AO1 T01120102 50015 CXTN 220300Z AUTO 30011KT RMK AO1 50001 CXTO 220600Z AUTO 19/14 RMK AO1 SLP128 T01890136 58004 CXTP 220600Z AUTO 24007KT 17/09 RMK AO1 SLP279 T01700093 53003 CXTV 220600Z AUTO 11003KT 12/08 RMK AO1 SLP246 T01200084 56006 CXVM 220600Z AUTO 26004KT 10/09 RMK AO1 T00960086 CXVN 220600Z AUTO 08005KT 16/14 RMK AO1 9PAST HR 8007 SLP107 P0007 T01560135 50019 CXVW 220600Z AUTO 29009KT 13/12 RMK AO1 T01330122 50005 CXWB 220600Z AUTO 15013KT M73/ RMK AO1 PK WND 14017/0536 T1728 58004 CXWM 220600Z AUTO 32008KT 11/08 RMK AO1 T01060076 CXWN 220600Z AUTO 10003KT 20/15 RMK AO1 SLP191 T01950151 58007 CXYH 220600Z AUTO 15/06 RMK AO1 SLP268 T01500059 51030 CXZC 220600Z AUTO 33004KT 10/07 RMK AO1 SLP221 T01020072 54000 CXZV 220600Z AUTO 07006KT 18/16 RMK AO1 SLP219 T01790158 52004 CYAH 220600Z AUTO 00000KT 9SM BKN190 16/14 A3012 RMK SLP206 CYAM 220600Z 05010KT 10SM FEW060 BKN120 OVC170 20/18 A2996 RMK SC1AC7AS1 SC TR SLP148 DENSITY ALT 1300FT CYAT 220600Z AUTO /////KT 9SM CLR 06/ A3025 RMK WND MISG TD MISG SLP244 CYAY 220600Z AUTO 22009KT 9SM OVC200 17/14 A3023 RMK SLP240 CYAZ 220100Z 27006KT 230V290 15SM FEW230 20/11 A3019 RMK CI1 LAST STFD OBS/NEXT 221300UTC SLP226 DENSITY ALT 400FT CYBC 220600Z AUTO 04004KT 020V090 9SM CLR 15/13 A3013 RMK SLP205 CYBD 220100Z 28013G22KT 15SM FEW080 FEW270 23/14 A3013 RMK AC1CI1 LAST STFD OBS/NEXT 221300 UTC SLP206 DENSITY ALT 800FT CYBG 220600Z 12004KT 25SM SKC 21/15 A3012 RMK SLP198 CYBK 220600Z 06003KT 15SM VCSH FEW025TCU FEW092 BKN230 12/09 A3015 RMK TCU2AC1CI4 AC TR CB E SLP214 CYBL 220400Z 34004KT 290V350 30SM FEW230 20/11 A3016 RMK CI1 LAST STFD OBS/NEXT 221300UTC SLP213 DENSITY ALT 700FT CYBN 220600Z AUTO 10006KT 9SM -RA SCT027 OVC068 18/15 A2994 RMK SLP137 CYBQ 220600Z AUTO 16008KT 9SM BKN110 17/09 A3014 RMK SLP216 DENSITY ALT 1100FT CYBR 220600Z 12008KT 15SM SKC 18/15 A3006 RMK SLP181 DENSITY ALT 1900FT CYBU 220600Z AUTO 14006KT 9SM OVC055 19/15 A2991 RMK SLP130 DENSITY ALT 2000FT CYBW 220600Z AUTO 35005KT 290V360 9SM SCT200 SCT220 07/04 A3012 RMK SLP206 CYBX 220600Z 00000KT 15SM BCFG FEW220 12/11 A3025 RMK CI2 SLP248 CYCB 220600Z 25005KT 15SM BKN030 BKN160 03/02 A3011 RMK SC6AC1 SLP201 CYCD 220400Z 18003KT 30SM FEW250 21/10 A3016 RMK CI2 LAST STFD OBS/NEXT 221300Z SLP216 DENSITY ALT 600FT CYCG 220400Z 36009KT 340V050 15SM FEW120 FEW220 21/06 A3009 RMK AC1CI1 AC TR CI TR LAST STFD OBS/NEXT 221300Z SLP185 DENSITY ALT 2600FT CYCK 220600Z AUTO 11009KT 9SM FEW070 OVC130 22/18 A2978 RMK SLP084 DENSITY ALT 1700FT CYCO 220600Z 19005KT 15SM FEW050 BKN083 08/02 A3027 RMK SC1AC6 SLP255 CYCP 220100Z 05002KT 15SM FEW035 SCT060TCU BKN120 15/10 A3016 RMK CF1TCU4AC2 CF TR DEER ON RWY LAST STFD OBS/NEXT 221300Z SLP224 DENSITY ALT 2600FT CYCQ 220100Z CCA 30010G18KT 15SM -SHRA BKN040TCU 16/12 A3010 RMK TCU7 LAST STFD OBS/ NEXT 221300Z SLP204 DENSITY ALT 2500FT CYCX 220600Z 15002KT 15SM SKC 16/15 A3019 RMK DA226FT SLP224 CYCY 220600Z AUTO VRB04KT 9SM FEW003 BKN060 03/03 A2996 RMK SLP150 CYDA 220300Z 00000KT 20SM FEW090 FEW190 OVC230 25/09 A3025 RMK AC1AC1CI8 AC TR AC TR CLIMAT 26.3/8.2/0.0 MM LAST STFD OBS/NXT 221300Z SLP253 DENSITY ALT 2400FT CYDB 220600Z AUTO VRB02KT 9SM CLR 16/09 A3030 RMK SLP275 DENSITY ALT 2900FT CYDC 220100Z 01005KT 340V040 25SM FEW055 BKN075 21/06 A3015 RMK CU1AC5 LAST STFD OBS/NEXT 22 13OOUTC SLP209 DENSITY ALT 3300FT CYDF 220600Z 19006KT 5SM -RA SCT018 BKN030 19/15 A3031 RMK SC3SC4 SLP265 DENSITY ALT 100FT CYDL 220600Z AUTO VRB02KT 9SM SCT200 14/09 A3029 RMK SLP253 CYDN 220600Z AUTO 14005KT 9SM CLR 15/ A3004 RMK TD MISG SLP177 DENSITY ALT 1100FT CYDQ 220600Z AUTO 28009KT 9SM CLR 14/11 A3015 RMK SLP224 DENSITY ALT 2300FT CYEG 220600Z 27008KT 15SM FEW044 SCT070 BKN190 11/10 A3000 RMK SC1ACC3AC3 SLP168 DENSITY ALT 2400FT CYEK 220600Z AUTO 18011KT 9SM CLR 10/09 A3026 RMK SLP250 CYEN 220600Z 10009KT 15SM FEW030 FEW240 16/16 A2995 RMK SC1CI1 SC TR SLP145 DENSITY ALT 2500FT CYER 220634Z AUTO VRB02KT 2 1/4SM BR BKN005 04/04 A3035 RMK SLP280 CYET 220626Z AUTO 27009KT 9SM -RA SCT022 BKN030 OVC050 12/11 A3010 RMK SLP206 DENSITY ALT 3100FT CYEV 220600Z 11003KT 060V180 15SM FEW120 BKN260 18/09 A3025 RMK AC1CI6 FU ALFT SLP247 CYFB 220600Z 32006KT 30SM FEW250 09/05 A3018 RMK CI1 CI TR SLP225 CYFC 220600Z AUTO VRB02KT 9SM CLR 16/16 A3019 RMK SLP223 CYFS 220600Z 33008KT 15SM FEW065 FEW130 FEW160 FEW170 SCT210 12/06 A3031 RMK SC1AC1AC1AC1CI2 SC TR AC TR SLP274 CYGK 220300Z 11005KT 15SM FEW090 BKN250 23/14 A2997 RMK AC2CI5 LAST STFD OBS/NEXT 221000 UTC SLP150 DENSITY ALT 1200FT CYGL 220600Z 02003KT 15SM SCT150 BKN240 16/11 A3013 RMK AC3CI2 SLP207 DENSITY ALT 700FT CYGP 220600Z 28003KT 15SM OVC012 19/17 A3018 RMK SC8 SLP222 DENSITY ALT 400FT CYGQ 220600Z 02006KT 15SM BKN080 OVC110 16/11 A3020 RMK AC7AC1 SLP232 DENSITY ALT 1200FT CYGR 220200Z 14013G18KT 15SM BKN014 17/16 A3020 RMK SC7 LAST STFD OBS/NEXT 220900 UTC SLP229 DENSITY ALT 100FT CYGV 220624Z AUTO 10008KT 1SM -RA BR VV002 15/15 A3021 RMK SLP233 CYGW 220600Z AUTO 00000KT 9SM CLR 06/06 A3016 RMK SLP214 CYGX 220600Z 14004KT 15SM FEW120 12/07 A3024 RMK AC1 AC TR SLP247 CYHD 220600Z AUTO 11006KT 9SM OVC038 18/14 A3019 RMK SLP230 DENSITY ALT 1600FT CYHE 220600Z AUTO VRB02KT 9SM CLR 14/12 A3020 RMK SLP229 CYHK 220600Z 24011KT 15SM FEW013 FEW035 SCT063 BKN100 BKN220 05/03 A3008 RMK SC1SC1SC2AC2CI1 SLP190 CYHM 220633Z 04010KT 6SM -RA BR BKN006 OVC020 16/16 A2986 RMK SF6SC2 SLP111 DENSITY ALT 1200FT CYHU 220600Z AUTO 14004KT 9SM CLR 20/13 A3005 RMK SLP175 DENSITY ALT 500FT CYHY 220600Z 34009G16KT 310V020 15SM FEW045 SCT090 SCT120 SCT230 15/13 A3012 RMK SC2ACC1AC1CI1 CI TR CVCTV CLD EMBD WNW-NW SLP205 CYHZ 220600Z 17006KT 1/4SM R23/1800FT/N R14/1600V2000FT/N FG VV001 16/16 A3025 RMK FG8 SLP245 CYIN 220600Z AUTO 25003KT 9SM CLR 06/05 A3026 RMK SLP261 CYIO 220600Z AUTO 22019G24KT 9SM -RA OVC030 06/03 A2984 RMK SLP110 CYIV 220600Z 08005KT 15SM FEW120 FEW250 16/11 A3020 RMK AC1CI1 AC TR SLP233 DENSITY ALT 800FT CYJT 220600Z 09011KT 15SM -RA SCT032 BKN080 BKN110 18/16 A3028 RMK SC4NS1AS2 SLP256 CYKA 220600Z 24006KT 40SM FEW095 16/12 A3020 RMK AC2 SLP230 DENSITY ALT 1200FT CYKF 220625Z AUTO 09013G19KT 9SM -RA FEW042 SCT055 SCT086 OVC120 18/14 A2988 RMK SLP117 DENSITY ALT 1600FT CYKJ 220609Z AUTO VRB04KT 9SM SCT090 BKN120 OVC140 15/14 A2984 RMK LTNG DIST NE PRESFR SLP117 DENSITY ALT 2100FT CYKL 220600Z AUTO VRB02KT 9SM OVC055 13/10 A3026 RMK SLP258 CYKP 220600Z AUTO 01007KT 9SM CLR 15/10 A3023 RMK SLP236 CYKY 220600Z 31006KT 15SM SCT130 12/10 A2995 RMK AC4 SLP143 DENSITY ALT 2500FT CYKZ 220600Z 08005KT 13SM -SHRA FEW014 FEW020 SCT100 BKN110 BKN230 18/17 A2992 RMK CF1SC1ACC2AC4CS1 CF TR CS TR SLP133 DENSITY ALT 1200FT CYLD 220100Z 36005KT 320V020 12SM -RA SCT004 OVC050 18/17 A3006 RMK SC4SC4 BR LAST STFD OBS/NEXT 22 1000UTC SLP185 DENSITY ALT 2000FT CYLH 220600Z AUTO 07003KT 9SM CLR 15/12 A3026 RMK SLP255 CYLL 220600Z AUTO 29008KT 9SM SCT150 11/09 A2994 RMK PRESRR SLP146 CYLW 220600Z AUTO 05004KT 9SM CLR 15/08 A3020 RMK SLP226 CYMA 220600Z VRB02KT 20SM BKN230 17/11 A3029 RMK CI6 CLIMAT 24.8/16.9/0.0 SLP269 DENSITY ALT 1900FT CYMH 220600Z AUTO 21005KT 9SM SCT130 SCT210 BKN230 18/16 A3021 RMK SLP233 CYMM 220634Z AUTO 26010G20KT 7SM -RA FEW007 BKN013 OVC019 14/13 A2978 RMK SLP092 DENSITY ALT 1500FT CYMO 220600Z AUTO 32003KT 290V020 9SM SCT160 10/07 A3018 RMK SLP223 CYMT 220600Z AUTO 05004KT 9SM FEW210 BKN240 20/14 A3009 RMK SLP190 DENSITY ALT 1800FT CYMX 220600Z 14004KT 25SM BKN250 20/14 A3005 RMK CI5 SLP177 DENSITY ALT 800FT CYNA 220602Z AUTO 13007KT 3SM BR OVC003 16/16 A3024 RMK SLP242 CYND 220100Z 06006KT 15SM SCT100 BKN230 24/14 A2999 RMK AC3CI2 LAST STFD OBS/NEXT 221100 UTC SLP157 DENSITY ALT 1300FT CYNE 220600Z AUTO 11007KT 9SM CLR 18/11 A3013 RMK SLP206 DENSITY ALT 1000FT CYNM 220600Z AUTO 34006KT 9SM BKN090 20/16 A3007 RMK SLP183 DENSITY ALT 1500FT CYOC 220100Z 25009KT 35SM FEW035 FEW220 23/09 A3023 RMK CF1CI2 CF TR CLIMAT 23.2/9.60Z/0.0 MM/LAST STFD OBS/NEXT 22130 SLP248 DENSITY ALT 1600FT CYOD 220600Z 29008KT 15SM FEW030 OVC160 14/10 A2990 RMK SC2AC6 SLP133 CYOJ 220600Z AUTO 35010G15KT 9SM CLR 16/11 A3007 RMK SLP191 DENSITY ALT 1300FT CYOO 220630Z AUTO 01006KT 9SM -RA BKN055 BKN091 BKN110 17/16 A2990 RMK SLP127 DENSITY ALT 800FT CYOW 220600Z 09007KT 15SM BKN250 19/13 A2999 RMK CI5 SLP157 DENSITY ALT 900FT CYOY 220600Z AUTO 00000KT 9SM CLR 16/15 A3013 RMK SLP203 CYPA 220607Z 22012KT 170V240 15SM -TSRA SCT030CB BKN210 20/16 A2993 RMK CB3CI3 FRQ LTG SW-N PRESRR SLP138 DENSITY ALT 2300FT CYPD 220600Z AUTO 20005KT 160V220 9SM OVC048 17/16 A3023 RMK SLP240 CYPE 220600Z 32006KT 15SM FEW085 FEW120 FEW200 13/12 A3007 RMK AC1AC2CI1 AC TR CI TR SLP197 DENSITY ALT 1900FT CYPH 220600Z AUTO 03008KT 9SM CLR 08/06 A3029 RMK SLP259 CYPL 220200Z 09006KT 15SM FEW055 FEW260 19/09 A3022 RMK CU1CI1 LAST STFD OBS/NEXT 221100Z SLP239 DENSITY ALT 1700FT CYPQ 220641Z AUTO 29003KT 230V320 9SM -RA BKN130 17/17 A2992 RMK SLP132 DENSITY ALT 1000FT CYPR 220600Z AUTO 24004KT 180V260 9SM OVC007 12/11 A3029 RMK SLP258 CYPW 220200Z 28007KT 30SM FEW250 23/10 A3015 RMK CI1 CI TR LAST STFD OBS NEXT OBS 221300 UTC SLP211 DENSITY ALT 1200FT CYPX 220600Z AUTO 32011KT 9SM FEW250 05/04 A3031 RMK SLP268 CYPY 220639Z AUTO 03013G18KT 9SM OVC009 15/15 A2986 RMK SLP119 DENSITY ALT 900FT CYQA 220600Z AUTO 17005KT 9SM -RA FEW060 OVC099 18/15 A2996 RMK SLP146 DENSITY ALT 1400FT CYQB 220600Z 04005KT 15SM SKC 20/16 A3012 RMK SLP199 DENSITY ALT 700FT CYQD 220600Z AUTO 12010G17KT 9SM SCT120 BKN140 BKN160 OVC200 21/14 A3002 RMK SLP168 DENSITY ALT 1600FT CYQF 220600Z 29008KT 12SM -RA FEW030 OVC050 10/09 A3007 RMK SC2SC6 SLP193 DENSITY ALT 3000FT CYQG 220600Z 08005KT 15SM BKN130 21/19 A2977 RMK AC5 SLP080 DENSITY ALT 1600FT CYQH 220600Z 10007KT 090V160 20SM SCT050 BKN120 17/07 A3032 RMK CU3AC3 CLIMAT 22.8/16.4/0.5 MM/0.0 CM/0.0 MM MWE SLP274 DENSITY ALT 2600FT CYQI 220635Z 09006KT 4SM -DZ BR SCT007 OVC021 14/14 A3020 RMK FG1SF2ST5 SLP228 CYQK 220600Z 09006KT 20SM SCT280 16/14 A3018 RMK CI4 SLP223 DENSITY ALT 1500FT CYQL 220600Z AUTO 19003KT 180V290 9SM CLR 11/05 A3008 RMK SLP183 DENSITY ALT 3100FT CYQM 220600Z 21005KT 15SM BKN032 BKN240 19/18 A3020 RMK SC5CI1 SLP228 DENSITY ALT 500FT CYQQ 220600Z 34005KT 20SM FEW200 19/12 A3020 RMK CI1 SLP227 CYQR 220600Z 13013KT 15SM FEW120 17/15 A2991 RMK AC2 SLP131 DENSITY ALT 2600FT CYQT 220600Z 24003KT 15SM FEW100 SCT250 13/13 A3015 RMK AC2CI1 SLP214 CYQU 220600Z 29005KT 25SM BKN083 14/12 A3013 RMK AC6 SLP215 DENSITY ALT 2400FT CYQW 220600Z AUTO VRB03KT 9SM CLR 12/11 A2991 RMK SLP135 DENSITY ALT 1900FT CYQX 220637Z 24011KT 15SM -SHRA SCT100 BKN130 OVC170 18/10 A3034 RMK AC3AC4AC1 CVCTV CLD EMBD SLP277 DENSITY ALT 600FT CYQY 220600Z 18003KT 1 1/2SM BR OVC002 17/17 A3025 RMK ST8 SLP247 CYQZ 220600Z AUTO 30002KT 9SM FEW085 14/13 A3018 RMK SLP232 CYRB 220623Z 26016KT 15SM OVC003 M00/M01 A2973 RMK ST8 OVC TPG HILLS E SLP074 CYRJ 220600Z VRB02KT 25SM SCT082 22/15 A3008 RMK AC3 SLP186 DENSITY ALT 1400FT CYRL 220200Z 13004KT 15SM FEW080 19/13 A3018 RMK AC1 LAST STFD OBS/NEXT 220900 UTC SLP226 DENSITY ALT 1800FT CYRQ 220600Z AUTO 14003KT 9SM CLR 20/13 A3007 RMK SLP183 DENSITY ALT 600FT CYRT 220600Z 21007KT 15SM FEW035 SCT270 11/09 A3024 RMK SC1CI3 SLP243 CYRV 220600Z AUTO 28004KT 230V310 9SM BKN085 15/10 A3018 RMK SLP222 CYSB 220600Z 06007KT 15SM FEW200 18/11 A3000 RMK CI2 SLP159 DENSITY ALT 1700FT CYSC 220600Z AUTO 00000KT 9SM CLR 14/12 A3012 RMK SLP201 CYSF 220617Z AUTO 08009G17KT BKN024 BKN033 OVC041 15/14 A2990 RMK WX MISG VIS MISG PCPN MISG SLP132 DENSITY ALT 900FT CYSJ 220600Z 18004KT 1/2SM R05/3500FT/U FG VV001 14/14 A3022 RMK FG8 SLP234 CYSM 220600Z VRB02KT 15SM FEW070 BKN120 BKN170 17/11 A2998 RMK AC1AC4AC2 SLP157 DENSITY ALT 1000FT CYSN 220100Z 13008G17KT 15SM FEW140 OVC250 24/15 A2988 RMK AC2CI6 LAST STFD OBS/NEXT 221100 UTC SLP117 DENSITY ALT 1600FT CYTE 220600Z AUTO 26003KT 9SM FEW050 SCT065 BKN110 07/04 A3021 RMK SLP236 CYTH 220600Z 10003KT 050V150 15SM SCT050 BKN210 16/10 A3016 RMK SC3CI2 SLP219 DENSITY ALT 800FT CYTL 220600Z AUTO 10005KT 050V140 9SM CLR 15/10 A3027 RMK SLP259 CYTR 220600Z 05004KT 15SM FEW021 OVC075 19/15 A2991 RMK SC2AC6 SLP129 CYTS 220600Z 01007KT 15SM SCT079 BKN190 BKN230 18/15 A3005 RMK AC3AC2CI2 SLP179 DENSITY ALT 1400FT CYTZ 220600Z AUTO 09009KT 9SM -RA BKN050 OVC060 19/14 A2990 RMK PCPN 0.5MM PAST HR SLP126 DENSITY ALT 800FT CYUB 220500Z 18002KT 15SM FEW030 SCT100 BKN210 12/10 A3025 RMK SC1AS3CS2 SC TR LAST OBS/NEXT 221300UTC SLP246 CYUL 220600Z 14009KT 15SM BKN250 22/12 A3004 RMK CI6 SLP173 DENSITY ALT 800FT CYUS 220600Z AUTO 23011KT ////SM //// NCD 06/02 A3006 CYUX 220600Z AUTO 24013KT 9SM CLR 06/03 A3015 RMK SLP213 CYUY 220600Z 00000KT 15SM SCT190 17/14 A3005 RMK AC4 SLP176 DENSITY ALT 1300FT CYVC 220600Z 31004KT 6SM -TSRA OVC042CB 17/16 A2988 RMK CB8 SLP123 DENSITY ALT 1900FT CYVL 220600Z AUTO 26004KT 9SM OVC230 12/07 A3033 RMK SLP284 CYVM 220600Z AUTO 21006KT 9SM OVC065 11/04 A2995 RMK SLP143 CYVO 220600Z AUTO 00000KT 9SM BKN180 OVC210 18/15 A3005 RMK SLP178 DENSITY ALT 1500FT CYVP 220600Z 15002KT 15SM FEW040 FEW240 09/06 A3028 RMK SC1CI2 SC TR SLP256 CYVQ 220600Z 00000KT 30SM FEW060 OVC270 12/10 A3037 RMK SC1CS8 SC TR SLP288 CYVR 220600Z 01003KT 30SM SKC 16/12 A3019 RMK SLP224 CYVT 220400Z 00000KT 15SM FEW029 FEW100 FEW250 17/15 A2987 RMK CU1AC1CI1 CU TR AC TR CI TR CB TOP DIST W TCU TOP DIST E LAST STFD OBS/NXT 221200 UTC SLP122 DENSITY ALT 2100FT CYVV 220600Z 09008KT 15SM BKN070 21/13 A2991 RMK AC7 SLP128 DENSITY ALT 1600FT CYWA 220600Z AUTO 00000KT 9SM FEW099 18/14 A2997 RMK SLP150 CYWE 220600Z AUTO 01006KT 9SM CLR 10/06 A3025 RMK SLP260 CYWG 220600Z 14009KT 15SM FEW055 FEW240 19/16 A3010 RMK SC1CI1 SC TR SLP194 DENSITY ALT 1300FT CYWH 220400Z 25004KT 140V290 15SM SCT250 15/11 A3017 RMK CI3 LAST STFD OBS/NEXT 221300 UTC SLP218 CYWK 220600Z AUTO VRB02KT 9SM OVC230 16/14 A3019 RMK SLP228 DENSITY ALT 1900FT CYWL 220600Z 12003KT 15SM FEW090 11/10 A3024 RMK AC1 SLP255 CYXC 220600Z 35008KT 25SM FEW100 16/02 A3013 RMK AC1 SLP192 DENSITY ALT 3700FT CYXE 220600Z 32006KT 210V350 15SM SCT050CB 19/16 A2989 RMK CB3 CB DIST NE PRESRR SLP126 DENSITY ALT 2500FT CYXH 220600Z AUTO 34009G15KT 9SM BKN130 18/08 A2998 RMK SLP149 DENSITY ALT 3100FT CYXJ 220600Z 33011G19KT 35SM SCT110 15/10 A3018 RMK AC4 SLP229 DENSITY ALT 2500FT CYXL 220600Z 06004KT 040V120 15SM SCT050 15/13 A3020 RMK SC4 SLP234 DENSITY ALT 1300FT CYXR 220600Z AUTO 33005KT 9SM FEW130 BKN230 16/15 A3002 RMK SLP166 DENSITY ALT 1000FT CYXS 220600Z AUTO 28004KT 9SM BKN075 BKN090 OVC110 16/12 A3018 RMK SLP225 DENSITY ALT 2500FT CYXT 220600Z 17009G18KT 15SM FEW120 19/13 A3019 RMK AC1 SLP228 DENSITY ALT 1100FT CYXU 220635Z 08012G19KT 15SM -SHRA OVC110 19/16 A2984 RMK AC8 CVCTV CLD ASOCTD SLP103 DENSITY ALT 1700FT CYXX 220600Z 00000KT 15SM SKC 16/11 A3019 RMK SLP226 CYXY 220600Z 26004KT 40SM FEW100 SCT240 19/10 A3029 RMK AC1CI3 SLP268 DENSITY ALT 2900FT CYYB 220600Z AUTO 04005KT 9SM BKN120 OVC140 22/08 A3000 RMK SLP157 DENSITY ALT 2100FT CYYC 220600Z 33006KT 15SM FEW091 FEW160 11/06 A3010 RMK AC1AC1 AC TR SLP197 DENSITY ALT 3800FT CYYD 220600Z AUTO 13003KT 9SM FEW130 16/13 A3016 RMK SLP218 DENSITY ALT 2000FT CYYE 220600Z 34006KT 15SM SCT036 BKN130 16/11 A3026 RMK SC3AC4 SLP254 DENSITY ALT 1300FT CYYF 220600Z 36005KT 12SM FEW090 17/08 A3017 RMK AC1 FU WND ESTD SLP216 DENSITY ALT 1300FT CYYG 220629Z 20006KT 15SM BKN005 OVC024 19/19 A3020 RMK SF6SC2 SLP227 DENSITY ALT 400FT CYYH 220600Z 25013KT 15SM VCSH SCT043 SCT047 BKN050 BKN065 BKN069 08/03 A3002 RMK SC3SC1SC1SC1AC1 SC TR VIRGA CIG RAG SLP169 CYYJ 220600Z 00000KT 30SM FEW250 15/11 A3019 RMK CI1 SLP224 CYYN 220600Z AUTO 13006KT 9SM CLR 19/15 A2986 RMK LTNG DIST SE SLP106 DENSITY ALT 3800FT CYYQ 220600Z 16009KT 15SM FEW150 SCT240 11/09 A3023 RMK AC1CI3 AC TR SLP241 CYYR 220600Z 04004KT 15SM FEW100 FEW260 16/13 A3021 RMK AC1CI2 LTNG DTCTRS REP STRIKES 96 NM W SLP230 CYYT 220617Z 26011G16KT 15SM -RA OVC055 17/12 A3038 RMK SC8 SLP291 CYYU 220600Z 03005KT 15SM SCT077 OVC210 15/10 A3012 RMK AC3CI5 SLP205 CYYW 220600Z AUTO 00000KT 9SM OVC039 16/13 A3022 RMK SLP230 DENSITY ALT 1100FT CYYY 220600Z 00000KT 15SM SKC 22/14 A3011 RMK SLP199 DENSITY ALT 800FT CYYZ 220600Z 10006KT 15SM -RA FEW020 SCT040 OVC140 18/15 A2991 RMK CF1SC4AC4 CF TR SLP129 DENSITY ALT 1100FT CYZE 220600Z AUTO 06006KT 9SM CLR 21/17 A2994 RMK SLP138 DENSITY ALT 1400FT CYZF 220600Z 02017G25KT 15SM FEW042 SCT230 16/11 A3014 RMK CU2CI2 SLP214 DENSITY ALT 800FT CYZH 220634Z AUTO 31012G20KT 280V350 9SM BKN018 BKN027 BKN033 OVC044 15/13 A2997 RMK SLP157 DENSITY ALT 2300FT CYZP 220600Z AUTO 13003KT 100V190 9SM CLR 14/12 A3029 RMK SLP257 CYZR 220600Z AUTO 10009KT 9SM OVC120 21/19 A2981 RMK SLP094 DENSITY ALT 1600FT CYZS 220600Z CCA 09005KT 15SM FEW030 FEW070 SCT210 09/08 A3026 RMK SC1AC1CI2 SC TR WND ESTD SLP251 CYZT 220600Z 29004KT 250V330 15SM OVC013 13/11 A3029 RMK SC8 SLP259 CYZU 220400Z 28007KT 15SM FEW048 FEW085 BKN200 13/11 A3002 RMK SC1AC1CI5 LAST STFD OBS/NEXT 221200Z SLP181 DENSITY ALT 2800FT CYZV 220600Z 07010G16KT 15SM BKN008 BKN260 18/15 A3018 RMK ST5CI1 CI TR SLP222 DENSITY ALT 300FT CYZW 220100Z 30014G21KT 280V340 40SM BKN080 26/06 A3022 RMK AC6 CLIMAT 25.6/7.1/0.0 MM/LAST STFD OBS/NXT 221300 UTC SLP245 DENSITY ALT 3800FT CYZX 220600Z 00000KT 15SM SKC 18/18 A3023 RMK SLP238 CYZY 220600Z AUTO VRB02KT 9SM OVC080 14/12 A3020 RMK SLP237 DENSITY ALT 2300FT CZBF 220600Z 00000KT 3/8SM FG VV002 18/18 A3019 RMK FG8 SLP225 DENSITY ALT 300FT CZCP 220600Z AUTO 26017G23KT ////SM //// FEW016 OVC055 05/03 A3019 CZCR 220600Z AUTO 09005KT 18/17 RMK AO1 SLP223 T01790172 50001 CZDB 220600Z AUTO 17003KT 19/18 RMK AO1 SLP240 T01890182 53008 CZEL 220600Z AUTO 10013G19KT 18/13 RMK AO1 PK WND 09019/0555 SLP123 T01830134 57004 CZEV 220600Z AUTO 16003KT 17/09 RMK AO1 SLP250 T01650088 56005 CZFA 220100Z 31008KT 270V340 30SM SCT093 BKN240 23/08 A3026 RMK CU4CS1 CLIMAT 23.7/10.1/TRMM LAST STFD OBS/NXT 221300UTC SLP262 DENSITY ALT 3400FT CZFS 220600Z AUTO 32008KT 12/06 RMK AO1 SLP275 T01150063 51020 CZHY 220600Z AUTO 34008KT 15/13 RMK AO1 SLP199 T01540128 52008 CZKD 220600Z AUTO 12007KT 14/09 RMK AO1 SLP222 T01400086 58001 CZMJ 220600Z AUTO 15004KT 14/13 RMK AO1 SLP123 T01440126 56008 CZMU 220600Z AUTO 26007KT 12/10 RMK AO1 T01180097 CZOL 220600Z AUTO 29005KT 12/10 RMK AO1 T01210097 CZPC 220600Z AUTO 12007KT 9SM FEW100 12/04 A3012 RMK SLP187 DENSITY ALT 4200FT CZPS 220600Z AUTO 29006KT 11/09 RMK AO1 T01070092 CZRP 220600Z AUTO 28014KT 01/01 RMK AO1 3017 PK WND 29024/0500 SLP084 T00050005 50170 CZSJ 220600Z AUTO 08004KT 9SM CLR 14/11 A3019 RMK SLP231 CZSM 220600Z AUTO 05001KT 16/11 RMK AO1 SLP155 T01550111 56003 CZSP 220600Z AUTO 20006KT 18/17 RMK AO1 SLP227 T01760167 53002 CZST 220100Z 24004KT 190V280 15SM FEW065 22/13 A3013 RMK CF1 CF TR LAST STFD OBS/NEXT 221300Z/ SLP204 DENSITY ALT 700FT CZTB 220600Z AUTO 24004KT 14/13 RMK AO1 SLP213 T01410130 50003 CZUM 220600Z AUTO 04006KT 9SM BKN090 BKN110 16/12 A3022 RMK SLP240 DENSITY ALT 1500FT CZVL 220600Z AUTO 28006KT 9SM BKN065 OVC230 13/10 A2999 RMK SLP160 DENSITY ALT 2400FT CZZJ 220600Z AUTO 26006KT 11/10 RMK AO1 4PAST HR 1008 SLP208 P0002 T01110097 50008 DAAD 220600Z 27002KT 8000 SCT040 29/14 Q1013 DAAE 220600Z 23003KT 9999 FEW040 BKN090 24/20 Q1012 DAAG 220630Z 08004KT 030V100 9999 FEW023 FEW026CB BKN090 25/20 Q1011 DAAJ 220600Z 10002KT CAVOK 27/04 Q1018 DAAP 220600Z 10004KT CAVOK 28/04 Q1016 DAAS 220600Z 36003KT 9999 FEW030 SCT100 23/09 Q1018 DAAT 220630Z 05003KT 360V100 CAVOK 26/M07 Q1022 DAAV 220600Z 16005KT 9999 SCT020 SCT090 24/19 Q1012 DAAY 220600Z 36012KT 7000 SCT030 25/13 Q1020 DABB 220630Z 19003KT 160V220 4000 BR FEW010 SCT100 24/22 Q1012 DABC 220630Z 00000KT 9999 FEW040 SCT100 23/10 Q1016 DABS 220600Z 28008KT 8000 SCT040 29/10 Q1018 DABT 220600Z 10002KT 9999 FEW023 SCT100 22/11 Q1017 DAFH 220600Z 24010KT 9999 BKN030 33/03 Q1016 DAOB 220600Z 18004KT 9999 FEW030 SCT220 22/09 Q1017 DAOF 220600Z 28010KT 9000 NSC 29/07 Q1009 DAOI 220600Z 34004KT 9999 FEW026 SCT100 26/13 Q1011 DAOL 220600Z 27012KT 7000 SCT026 SCT100 25/17 Q1014 DAON 220630Z 00000KT 9999 SCT026 SCT100 24/12 Q1014 DAOO 220630Z 04004KT 020V080 9999 SCT026 SCT100 25/19 Q1013 DAOR 220600Z 05003KT CAVOK 29/M02 Q1014 DAOV 220600Z 12004KT 9999 FEW030 SCT100 24/10 Q1013 DAOY 220600Z 32005KT CAVOK 26/01 Q1020 DATM 220600Z 17012KT 6000 NSC 30/14 Q1012 DAUA 220600Z 11008KT 9000 NSC 30/M06 Q1009 DAUB 220600Z 10018KT 8000 FEW040 SCT100 38/11 Q1008 DAUE 220600Z 00000KT 9999 SCT040 SCT120 31/10 Q1013 DAUG 220600Z 21011KT 8000 SCT040 BKN100 36/// Q1012 DAUH 220630Z 14009KT 7000 NSC 37/05 Q1010 DAUI 220600Z 07012KT 8000 NSC 32/M01 Q1010 DAUK 220600Z 25006KT CAVOK 36/M00 Q1010 DAUL 220600Z 00000KT 8000 SCT030 26/05 Q1014 DAUO 220600Z 21004KT 8000 NSC 36/08 Q1009 DAUT 220600Z 16008KT 8000 NSC 35/M02 Q1009 DAUU 220600Z 16006KT 7000 FEW040 33/M02 Q1010 DAUZ 220600Z 03003KT CAVOK 26/M02 Q1017 DBBB 220600Z 20004KT 170V250 6000 -RADZ SCT006 SCT010 24/24 Q1014 TEMPO 3500 RADZ SCT006 BKN010 DFFD 220600Z 23002KT 9999 FEW020 25/23 Q1013 TEMPO 09025G40KT 2500 BLDU SQ TSRA SCT020 SCT033CB DFOO 220600Z 17004KT CAVOK 23/22 Q1014 DGAA 220500Z 26003KT 240V300 9999 BKN009 BKN015 25/24 Q1013 NOSIG DIAP 220639Z VRB01KT 3300 BR FEW011 24/23 Q1013 NOSIG DIBK 220600Z 20008KT 8000 BKN010 BKN100 22/22 Q1016 NOSIG DIYO 220600Z 22004KT 9999 BKN010 23/22 Q1014 NOSIG DNAA 220600Z 03002KT 0800 FG SCT006 22/20 Q1016 TEMPO 0300 DNEN 220500Z 00000KT 5000 BR SCT009 24/23 Q1014 DNIL 220400Z 18007KT 9999 SCT009 23/22 Q1014 DNKN 220600Z 23007KT CAVOK 24/23 Q1016 NOSIG DNMM 220600Z VRB02KT 1000 R18R/0800D R18L/0800D FG FEW007 23/23 Q1016 TEMPO 0500 FG DNMN 220500Z 06005KT CAVOK 23/22 Q1011 DNPO 220500Z 00000KT 8000 BKN008 24/24 Q1013 NOSIG DRRM 220600Z 24004KT CAVOK 26/24 Q1015 DRRN 220600Z 23002KT CAVOK 26/21 Q1013 NOSIG DRRT 220600Z 24002KT CAVOK 27/23 Q1013 DRZA 220600Z 34004KT CAVOK 28/21 Q1014 DRZR 220600Z 22004KT CAVOK 26/23 Q1014 DTKA 220600Z 23003KT 9999 FEW020 25/22 Q1014 NOSIG DTMB 220630Z 01012KT 5000 BKN013 27/24 Q1013 DTNH 220630Z 04009KT CAVOK 27/22 Q1013 DTTA 220630Z 31003KT 230V350 9999 FEW026 27/21 Q1013 NOSIG DTTB 220600Z 30007KT 6000 FEW020 26/22 Q1013 DTTD 220600Z 24010KT 190V300 CAVOK 36/01 Q1013 RMK SIROCCO DTTF 220600Z 02009KT 7000 NSC 29/16 Q1011 NOSIG DTTG 220600Z VRB02KT 9999 FEW030 29/21 Q1013 DTTJ 220630Z 04010KT 8000 NSC 30/25 Q1012 NOSIG DTTK 220600Z AUTO 04005KT 350V090 NCD 28/23 Q1013 DTTL 220600Z 32004KT 260V060 CAVOK 26/25 Q1013 DTTN 220600Z 11001KT 9999 FEW020 25/14 Q1014 DTTR 220600Z 14013KT CAVOK 32/01 Q1014 DTTX 220600Z 01004KT 330V040 CAVOK 29/21 Q1011 NOSIG DXNG 220600Z 20003KT 8000 BKN005 22/21 Q1016 NOSIG DXSK 220600Z 00000KT 3000 BR FEW003 BKN006 23/22 Q//// DXXX 220600Z 24004KT 6000 SCT010 BKN030 25/24 Q1014 NOSIG EBAW 220620Z 24003KT 210V280 9000 NSC 19/14 Q1015 NOSIG EBBE 220625Z AUTO 27004KT 9999 NCD 17/12 Q1016 BLU EBBL 220625Z AUTO 25003KT 9999 NCD 19/13 Q1016 BLU EBBR 220620Z VRB02KT CAVOK 18/12 Q1016 NOSIG EBCI 220620Z 24003KT 200V280 CAVOK 17/10 Q1016 NOSIG EBDT 220625Z AUTO 24003KT 9999 NCD 18/13 Q1016 BLU EBFN 220625Z AUTO 23004KT 4400 BR FEW063/// BKN083/// 16/14 Q1016 GRN EBFS 220625Z AUTO //////KT 9999 NCD 17/10 Q1017 BLU EBLB 220625Z AUTO 01003KT 9999 NCD 15/10 Q1016 BLU EBLG 220620Z VRB02KT CAVOK 17/11 Q1016 NOSIG EBOS 220620Z 22006KT 7000 NSC 16/13 Q1016 NOSIG EDAC 220620Z AUTO 27004KT 240V320 9999 // SCT075/// BKN120/// 19/16 Q1013 EDDB 220620Z 08005KT 060V120 9999 -RA NSC 21/13 Q1013 NOSIG EDDC 220620Z 33003KT 290V010 CAVOK 19/14 Q1013 NOSIG EDDE 220620Z 23006KT 8000 -RA FEW033 BKN090 BKN100 16/16 Q1014 NOSIG EDDF 220620Z VRB01KT 9999 FEW008 SCT085 18/16 Q1014 NOSIG EDDG 220620Z 27006KT 240V330 CAVOK 19/14 Q1013 NOSIG EDDH 220620Z 31005KT CAVOK 22/14 Q1011 NOSIG EDDK 220620Z 31007KT 280V340 CAVOK 18/13 Q1015 NOSIG EDDL 220620Z 26005KT 220V280 CAVOK 18/14 Q1014 NOSIG EDDM 220620Z 27004KT 6000 -RA SCT006 SCT016 BKN040 16/15 Q1014 RERA TEMPO BKN006 EDDN 220620Z 35005KT 320V020 9000 -RADZ BKN007 BKN023 17/16 Q1014 TEMPO 4000 RADZ EDDP 220620Z 26007KT 9999 VCSH NSC 20/16 Q1013 NOSIG EDDR 220620Z 29003KT 250V310 9999 FEW043 SCT070 18/15 Q1015 NOSIG EDDS 220620Z 24003KT 190V310 9999 FEW006 BKN100 18/16 Q1015 NOSIG EDDT 220620Z VRB02KT CAVOK 21/12 Q1013 NOSIG EDDV 220620Z 23005KT 200V260 CAVOK 22/15 Q1012 NOSIG EDDW 220620Z 31007KT CAVOK 20/15 Q1012 NOSIG EDFH 220620Z 29005KT 6000 NSC 16/15 Q1015 EDFM 220620Z VRB02KT 9999 FEW011 BKN100 20/18 Q1014 EDGS 220620Z 31007KT 6000 FEW042 BKN062 17/16 Q1015 EDHI 220620Z AUTO 26004KT 230V290 9999 // BKN095/// 20/14 Q1011 EDHK 220620Z VRB03KT CAVOK 21/16 Q1011 EDHL 220620Z 19003KT CAVOK 22/14 Q1011 EDJA 220620Z 22007KT 9000 -RA FEW004 BKN017 BKN052 16/15 Q1015 EDLN 220620Z 31006KT CAVOK 18/14 Q1015 EDLP 220620Z 27004KT 160V330 7000 NSC 18/15 Q1014 EDLV 220620Z 28005KT 250V330 CAVOK 18/16 Q1015 EDLW 220620Z 25007KT 220V280 9999 FEW011 18/16 Q1014 EDMA 220620Z 27004KT 140V300 3800 DZ BKN006 OVC038 17/16 Q1014 EDNY 220620Z 24004KT 9999 FEW014 BKN025 19/16 Q1015 EDSB 220620Z 21007KT CAVOK 20/16 Q1014 EDTL 220620Z 19005KT CAVOK 19/16 Q1015 EDTY 220620Z 28004KT 8000 FEW006 OVC011 18/18 Q1014 EDVE 220620Z 23007KT CAVOK 22/13 Q1012 EDVK 220620Z VRB02KT CAVOK 19/15 Q1014 EEEI 220550Z 16004KT 9999 SCT004 20/18 Q1008 NOSIG EEKE 220550Z AUTO 22005KT 180V250 9999NDV BKN004 21/19 Q1009 EETN 220620Z 19006KT 150V220 9999 FEW006 21/18 Q1009 NOSIG EETU 220550Z AUTO 29005KT 250V360 9999 NCD 21/16 Q1009 EFET 220620Z AUTO 36004KT 320V040 9999 FEW037 20/16 Q1004 EFHA 220620Z AUTO 22009KT 9999 FEW011 SCT014 21/17 Q1006 EFHK 220620Z 22007KT 180V250 9999 FEW015 22/16 Q1008 NOSIG EFIV 220620Z AUTO 13003KT 100V170 9999 SHRA OVC017 19/19 Q1004 EFJO 220620Z AUTO 17006KT 130V210 9999 OVC006 21/20 Q1007 EFJY 220620Z AUTO 20004KT 160V240 9999 SCT008 BKN031 20/18 Q1005 EFKE 220620Z AUTO 11005KT 020V180 //// FEW004 BKN037 BKN102 21/20 Q1002 EFKI 220620Z AUTO 17003KT 9999 BKN011 21/19 Q1004 EFKK 220620Z AUTO 15006KT 120V180 9999 FEW005 SCT009 BKN014 BKN017 21/20 Q1003 EFKS 220620Z AUTO 12009KT 9999 -RA BKN010 19/17 Q1005 EFKT 220620Z 24001KT 9999 FEW007 SCT025 BKN045 20/18 Q1003 EFKU 220620Z AUTO 18009KT 9999 SCT010 BKN039 BKN057 22/20 Q1005 EFLP 220620Z AUTO 21004KT 180V240 9999 FEW006 BKN021 21/19 Q1007 EFMA 220620Z AUTO 23010KT 200V270 CAVOK 19/15 Q1007 EFMI 220620Z AUTO 19004KT 140V240 9999 OVC011 21/19 Q1007 EFOU 220620Z AUTO 21005KT 170V240 9999 2300 -RA FEW010 BKN015 BKN030 22/19 Q1003 EFPO 220620Z AUTO 22006KT 190V270 9999 BKN010/// BKN012/// 21/18 Q1005 EFRO 220620Z AUTO 12004KT 090V160 5000 -SHRA FEW001 BKN029 BKN041CB 19/19 Q1003 RESHRA EFSA 220620Z AUTO 17005KT 130V210 9999 OVC009 20/18 Q1007 EFSI 220620Z AUTO 19003KT 9999 FEW010 SCT013 BKN017 BKN024 19/17 Q1004 EFTP 220620Z AUTO 19009KT 9999 FEW012 20/16 Q1006 EFTU 220620Z AUTO 19006KT 160V220 9999 FEW009 23/18 Q1006 EFUT 220620Z AUTO 20005KT 170V230 7000 OVC004 19/18 Q1008 EFVA 220620Z AUTO 19011KT 9999 FEW013 22/18 Q1003 EGAA 220620Z 23006KT 9999 BKN006 17/16 Q1015 EGAC 220620Z AUTO 21007KT 9999 OVC040/// 17/16 Q1014 EGBB 220620Z 31004KT 270V330 9999 BKN037 17/13 Q1016 EGCC 220620Z VRB02KT 2500 -DZ FEW004 SCT008 OVC012 15/15 Q1016 EGCK 220620Z AUTO 23006KT 9999 OVC002/// 16/15 Q1016 EGCN 220620Z 25006KT 9999 BKN016 OVC028 18/15 Q1016 EGDM 220550Z AUTO 27004KT 9999 OVC090/// 16/14 Q1016 EGDR 220550Z AUTO 29003KT 9999 // NCD 16/15 Q1017 EGDX 220550Z AUTO 31007KT 9999 FEW050/// BKN070/// 18/12 Q1016 EGDY 220550Z AUTO 17001KT 9999 BKN080/// 16/14 Q1016 EGFF 220620Z AUTO 34006KT 300V360 9999 NCD 18/12 Q1017 EGGD 220620Z AUTO 02005KT 340V050 9999 NCD 18/15 Q1017 EGGP 220620Z 26006KT 230V300 9999 SCT014 BKN022 17/15 Q1016 EGGW 220620Z AUTO 33006KT 9999 NCD 17/13 Q1016 EGHH 220620Z 30003KT CAVOK 17/15 Q1016 EGHI 220620Z VRB01KT 9999 FEW045 17/14 Q1016 EGHQ 220620Z 33003KT 9999 FEW010 17/15 Q1017 EGJA 220620Z 26008KT 9999 SCT004 16/16 Q1017 EGJB 220620Z 26005KT CAVOK 17/15 Q1017 EGJJ 220620Z 31004KT CAVOK 18/14 Q1017 EGKK 220620Z VRB03KT CAVOK 18/15 Q1016 EGLC 220620Z AUTO 24004KT 9999 NCD 20/14 Q1015 EGLL 220620Z AUTO 29004KT 260V330 9999 NCD 18/15 Q1016 NOSIG EGMC 220620Z 28004KT 250V320 CAVOK 20/14 Q1015 EGMD 220620Z AUTO VRB03KT 9999 NCD 19/16 Q1016 EGNH 220620Z 27010KT 7000 BKN004 17/16 Q1015 EGNJ 220620Z 27008KT 9999 FEW037 18/13 Q1015 EGNM 220620Z 27016KT 9999 SCT008 SCT022 15/13 Q1015 EGNS 220620Z 25004KT 210V290 9999 4000S FEW002 BKN004 16/16 Q1015 NOSIG EGNT 220620Z 27014KT 9999 SCT010 17/14 Q1013 EGNV 220620Z 25007KT 9999 FEW014 17/13 Q1013 EGNX 220620Z 24008KT 9999 FEW027 BKN030 16/13 Q1016 EGOM 220550Z AUTO 26016KT 3300 OVC001/// 14/14 Q1013 EGOP 220550Z AUTO 09004KT 9999 // OVC042/// 16/13 Q1017 EGOS 220550Z AUTO 25006KT 9999 SCT022/// BKN036/// 16/13 Q1016 EGOV 220550Z AUTO 26006KT 1400 BR BKN002/// SCT015/// 16/15 Q1016 EGPA 220620Z AUTO 26016KT 3500 HZ SCT009/// BKN018/// 15/14 Q1008 EGPB 220620Z AUTO 22014KT 3500 BR OVC002/// 13/13 Q1006 RERA EGPC 220620Z AUTO 27009KT 9999 FEW016/// BKN023/// 18/16 Q1008 EGPD 220620Z AUTO VRB03KT 9999 NCD 18/14 Q1010 NOSIG EGPE 220620Z 23015KT 9999 FEW018 BKN035 18/15 Q1009 EGPF 220620Z AUTO 23008KT 6000 OVC010 16/15 Q1014 EGPH 220620Z 25009KT 9999 FEW011 17/15 Q1013 EGPI 220620Z AUTO 24007KT 0400 // VV/// 15/15 Q1014 EGPK 220620Z 23007KT 6000 SCT009 BKN020 16/15 Q1015 EGPL 220620Z AUTO 26012KT 6000 OVC002/// 14/14 Q1011 REDZ EGPM 220620Z AUTO 22018KT 3300 DZ OVC002/// 14/12 Q1005 RERA EGPO 220620Z AUTO 26009KT 9999 BKN008/// OVC033/// 15/14 Q1009 EGPU 220620Z AUTO 24012KT 210V270 2500 BKN002/// 15/15 Q1012 EGQK 220550Z AUTO 24007KT 9999 OVC038/// 18/15 Q1009 EGQL 220550Z 27011KT CAVOK 16/14 Q1011 BLU EGQM 220550Z AUTO 23008KT 9999 NCD 17/14 Q1012 EGQS 220550Z 23009KT 9999 FEW020 BKN041 18/15 Q1008 BLU EGSH 220620Z 29007KT CAVOK 18/14 Q1015 NOSIG EGSS 220620Z AUTO 33004KT 9999 NCD 18/14 Q1016 EGTE 220620Z 33004KT 290V350 CAVOK 16/14 Q1017 EGTK 220620Z VRB01KT CAVOK 17/14 Q1016 EGUB 220550Z AUTO 34001KT 9999 // OVC080/// 16/15 Q1016 EGUL 220556Z AUTO 30003KT 9999 BKN036 17/13 A2996 RMK AO2 SLP148 T01700133 10170 20137 52007 $ EGUN 220556Z 00000KT 9999 SCT038 17/17 A2997 RMK AO2A SLP152 T01710171 10171 20145 52006 . EGUW 220550Z AUTO 31005KT 9999 FEW048/// BKN110/// 17/14 Q1015 EGVA 220616Z AUTO 31003KT 6000 HZ BKN085 17/14 A3001 RMK AO2 VIS 0200 RWY09 SLP163 EGVN 220550Z 31003KT CAVOK 17/14 Q1016 NOSIG EGVO 220550Z AUTO 24003KT 9999 BKN110/// 17/15 Q1016 EGVP 220550Z AUTO 25002KT 9999 // OVC090/// 17/14 Q1016 EGWU 220550Z 29004KT CAVOK 17/14 Q1015 NOSIG EGXC 220550Z 28007KT CAVOK 17/12 Q1015 BLU EGXE 220550Z AUTO 27007KT 9999 SCT036/// 16/13 Q1014 EGXP 220550Z AUTO 25006KT 9999 // FEW022/// BKN048/// 16/12 Q1014 EGXS 220550Z AUTO 27005KT 9999 // OVC080/// 16/13 Q1014 EGXT 220550Z AUTO 29009KT 9999 OVC060/// 17/12 Q1015 EGXU 220550Z AUTO 24003KT 9999 // BKN032/// SCT050/// 17/14 Q1014 EGXV 220550Z AUTO 27007KT 9999 BKN042/// BKN050/// 16/13 Q1014 EGXW 220550Z 26005KT CAVOK 16/12 Q1015 BLU EGXZ 220550Z AUTO 29003KT 9999 FEW018/// BKN037/// 17/14 Q1014 EGYD 220550Z AUTO 27009KT 9999 // OVC050/// 16/13 Q1015 EGYM 220550Z AUTO 29005KT 9999 SCT032/// OVC090/// 17/13 Q1015 EGYP 220550Z 27008KT 8000 -RA FEW004 SCT006 OVC020 02/01 Q0992 RERA YLO1 EHAK 220625Z AUTO 23012KT 9999 FEW010/// 17/15 Q1012 W///H/// EHAM 220625Z 29005KT 240V350 CAVOK 20/16 Q1014 NOSIG EHBK 220625Z AUTO 23003KT 190V280 9999 NSC 18/12 Q1015 NOSIG EHDL 220625Z AUTO 29003KT 280V020 9999 NCD 18/15 Q1014 BLU EHDV 220625Z AUTO VRB09KT 9999 BKN045/// 18/15 Q1013 W///H/// EHEH 220625Z AUTO VRB02KT 8000 BR FEW330 18/14 Q1015 BLU 30004KT CAVOK EHFD 220625Z AUTO 28009KT //// // FEW023/// SCT026/// BKN030/// 18/15 Q1013 RE// W///H/// EHFS 220625Z AUTO 24007KT 9000 NSC 19/15 Q1015 W///H/// EHFZ 220625Z AUTO 27006KT 9999 FEW038 BKN044 BKN048 18/15 Q1013 W///H/// EHGG 220625Z AUTO 32008KT 290V350 9999 NCD 19/16 Q1013 NOSIG EHGR 220625Z AUTO VRB02KT 7000 BR NCD 19/15 Q1015 WHT EHHW 220625Z AUTO 33009KT 300V360 //// // FEW023/// BKN026/// BKN030/// 18/15 Q1013 RE// W///H/// EHJA 220625Z AUTO 22008KT 9999 FEW040/// 17/15 Q//// W///H/// EHJR 220625Z AUTO 23005KT //// // ///////// 17/15 Q1014 RE// W16/H3 EHKD 220625Z AUTO 28005KT 250V310 9999 OVC054 19/16 Q1014 BLU 29004KT CAVOK EHKV 220625Z AUTO 22006KT 9999 BKN039 17/16 Q1014 W///H/// EHLW 220625Z AUTO 32009KT 270V350 9999 OVC170 19/15 Q1014 BLU EHMA 220625Z AUTO 30014KT 9999 NSC 18/15 Q1013 W///H/// EHMG 220625Z AUTO 30009KT 250V340 9999 NCD 18/15 Q1014 W///H/// EHPG 220625Z AUTO 18008KT 9999 NCD 18/16 Q1014 W///H/// EHQE 220625Z AUTO 27002KT 9999 NSC 18/16 Q1014 W///H/// EHRD 220625Z AUTO VRB02KT 9000 NSC 19/16 Q1014 BECMG CAVOK EHSA 220625Z AUTO 18005KT //// // ///////// 19/16 Q1015 RE// W18/H3 EHSC 220625Z AUTO 22005KT 9999 ///////// 19/17 Q1014 W19/H4 EHVK 220625Z AUTO 29003KT 240V330 9000 BR NCD 19/15 Q1014 BLU EHWO 220625Z AUTO 25003KT 220V300 9999 OVC088 20/16 Q1015 BLU EICK 220630Z 19002KT 150V230 9999 FEW005 16/15 Q1018 NOSIG EIDW 220630Z 27010KT 9999 BKN003 BKN005 16/16 Q1016 NOSIG EIKN 220630Z 24008KT 190V270 0400 R26/0450 BKN002 BKN007 16/16 Q1016 TEMPO BKN001 EIME 220600Z 24009KT 8000 OVC007 16/15 Q1016 EINN 220630Z 25006KT 2500 -DZ FEW002 OVC003 17/17 Q1017 NOSIG EKAH 220620Z AUTO 27007KT 230V290 9999NDV SCT160/// 19/14 Q1012 EKBI 220620Z AUTO 29003KT 9999NDV NCD 17/14 Q1012 EKCH 220620Z 28003KT CAVOK 20/15 Q1011 NOSIG EKEB 220620Z AUTO 29004KT 9999NDV NCD 18/14 Q1012 EKKA 220620Z AUTO 27006KT 9999NDV BKN150/// 17/15 Q1012 EKOD 220620Z 30005KT 270V350 CAVOK 20/13 Q1012 EKRK 220620Z AUTO 31004KT 9999NDV BKN065/// 19/14 Q1012 EKRN 220620Z AUTO 21002KT 9999NDV NCD 21/18 Q1012 EKSB 220620Z AUTO 32004KT 300V360 9999NDV NCD 21/15 Q1011 EKSP 220620Z 32003KT CAVOK 19/14 Q1012 RMK FEW200 EKVD 220620Z AUTO 32005KT 280V350 //// ///////// 18/13 Q1012 EKVG 220620Z 29006KT 0200 R12/0700N R30/P2000D FG -DZ VV002 10/10 Q1003 RMK WIND 850FT 29016KT EKYT 220620Z AUTO 27014KT 9999NDV FEW019/// SCT022/// 18/13 Q1010 ELLX 220620Z 32004KT 270V350 CAVOK 17/13 Q1016 NOSIG ENAL 220620Z 24005KT 9999 SCT011 BKN017 14/14 Q1007 ENAN 220620Z AUTO 30006KT 9999 OVC005/// 12/10 Q1007 ENAT 220550Z AUTO 35007KT 9999 FEW023/// 21/15 Q1004 RMK WIND 700FT 36014KT ENBN 220620Z 14003KT 9999 FEW008 BKN012 14/14 Q1008 ENBO 220620Z 30003KT 9999 FEW005 SCT010 BKN015 14/12 Q1008 ENBR 220620Z 21003KT 9999 FEW007 BKN033 14/13 Q1009 NOSIG RMK WIND 1200FT 17004KT ENCN 220620Z 27011KT 240V320 CAVOK 18/10 Q1008 ENDR 220610Z 19009KT 9999 SCT059 BKN200 14/14 Q1007 ENDU 220620Z AUTO 28006KT 9999 OVC006/// 15/14 Q1006 RMK WIND 1100FT 32005KT WIND 2200FT 28007KT ENEV 220620Z AUTO VRB02KT 9999 FEW013/// BKN032/// OVC070/// 14/13 Q1007 RMK WIND 1400FT 22004KT ENFB 220620Z AUTO 19023KT //// OVC009/// 14/13 Q1006 W///S3 ENFL 220620Z AUTO 19011KT 9999NDV FEW015/// OVC022/// 14/12 Q1008 ENGC 220620Z 22020KT 9999 6000NE VCSH FEW010 SCT015 BKN025 13/12 Q1007 W13/S3 ENGM 220620Z VRB02KT 9999 SCT009 BKN012 16/15 Q1007 TEMPO BKN025 ENHD 220620Z VRB02KT 9999 VCSH FEW009TCU SCT030 15/12 Q1010 ENHE 220620Z 18016KT 9999 SCT015 16/13 Q1006 W///S3 ENHF 220620Z 17004KT 130V210 CAVOK 14/11 Q1005 RMK WIND 1254FT 27010KT ENHM 220620Z 20014KT 9999 FEW025 BKN030 15/12 Q1009 W16/S3 ENKB 220620Z AUTO 23004KT 180V290 9999 FEW066/// 17/11 Q1007 RMK WIND 745FT 28007KT ENKR 220620Z 15008KT 9999 FEW004 SCT009 BKN059 19/18 Q1005 RERA RMK WIND 731FT 16011KT ENLA 220620Z AUTO 22014KT 9999NDV FEW007/// BKN065/// 17/16 Q1010 W///S2 ENLE 220620Z 21014KT 9999 FEW010 BKN070 17/15 Q1011 W17/S3 ENML 220620Z AUTO 09003KT 9999NDV BKN068/// 16/13 Q1007 ENNA 220620Z 15003KT 050V210 9999 FEW035 17/13 Q1004 RMK WIND 1800FT 16005KT ENNE 220620Z 17013KT 9999 VCSH BKN010 14/12 Q1005 W///S3 ENOA 220620Z 20015KT 9999 FEW015 BKN035 BKN070 14/11 Q1008 W///S3 ENOL 220620Z 14006KT 9999 FEW045 BKN060 14/12 Q1007 NOSIG ENQA 220620Z AUTO 19014KT 9999NDV OVC087/// 14/10 Q1008 W14/S3 ENQC 220620Z AUTO 19013KT 9999NDV BKN092/// 15/10 Q1008 W///S3 ENQR 220620Z AUTO 19022KT 9999NDV OVC012/// 14/12 Q1006 W///S3 ENRA 220220Z 28004KT 9999 FEW014 BKN016 15/13 Q1007 ENRO 220620Z AUTO VRB02KT 9999NDV NCD 15/10 Q1008 ENRY 220620Z AUTO 18005KT 140V200 9999NDV BKN018/// 18/13 Q1007 ENSB 220550Z 02011KT 9999 FEW040 BKN080 07/04 Q1009 RMK WIND 1400FT 09006KT ENSD 220620Z 36005KT 9999 FEW020 SCT030 BKN038 16/13 Q1007 RMK WIND 1138FT 27004KT ENSE 220620Z AUTO 20022KT 9999NDV FEW006/// BKN012/// OVC017/// 13/12 Q1006 W///S3 ENSF 220620Z AUTO 19023KT 9999NDV BKN008/// ///// Q//// W///S3 ENSL 220620Z 17017KT 130V210 9999 SCT006 BKN040 16/15 Q1009 W15/S2 ENST 220620Z 23004KT 190V270 9999 FEW010 SCT013 15/12 Q1007 RMK WIND 300FT 26004KT ENTC 220620Z 26002KT 9999 5000N BKN002 OVC003 12/11 Q1007 RMK WIND 2600FT 24006KT ENTO 220620Z 11003KT 050V150 9999 BKN014 18/14 Q1006 ENUG 220620Z AUTO 26017KT 0050NDV NCD 10/09 Q1003 W///S3 ENVA 220620Z 11006KT CAVOK 15/12 Q1007 NOSIG RMK WIND 670FT VRB03KT ENWV 220620Z AUTO 21013KT 9999NDV OVC088/// 17/15 Q1012 W///S2 ENZV 220620Z VRB01KT 9999 FEW015 SCT030 16/12 Q1010 NOSIG EPBY 220630Z 04006KT CAVOK 20/14 Q1011 EPGD 220630Z 35004KT 320V030 CAVOK 22/15 Q1011 EPKK 220630Z VRB01KT CAVOK 20/14 Q1010 EPKT 220630Z 09006KT CAVOK 23/11 Q1011 EPLB 220630Z VRB02KT CAVOK 24/15 Q1010 EPLL 220630Z VRB02KT CAVOK 23/16 Q1011 EPMO 220630Z VRB02KT CAVOK 23/14 Q1011 EPPO 220630Z 34004KT 320V040 CAVOK 20/14 Q1012 EPRA 220630Z VRB01KT CAVOK 23/16 Q1011 EPRZ 220630Z VRB01KT CAVOK 22/16 Q1010 EPSC 220630Z VRB02KT CAVOK 20/13 Q1012 EPSY 220630Z VRB02KT CAVOK 21/17 Q1011 EPWA 220630Z VRB02KT CAVOK 24/16 Q1011 NOSIG EPWR 220630Z 32006KT CAVOK 19/14 Q1011 EPZG 220630Z 34004KT 320V020 CAVOK 18/13 Q1013 ESCF 220620Z AUTO 24010KT 9999 SCT024/// 18/13 Q1009 ESCM 220620Z AUTO 24007KT 210V270 9999 NCD 19/14 Q1007 ESDF 220620Z AUTO 25004KT 9999 NCD 20/15 Q1011 ESGG 220620Z 23014KT 9999 BKN016 16/12 Q1009 ESGJ 220620Z AUTO 23011KT 9999 OVC022/// 17/13 Q1010 ESGR 220620Z AUTO 22007KT 9999 BKN028/// 18/10 Q1008 ESIA 220620Z AUTO 24008KT 210V270 9999 OVC031/// 18/12 Q1009 ESIB 220620Z AUTO 22010KT 9999 OVC026/// 18/14 Q1008 ESKM 220620Z AUTO VRB02KT 9999 NCD 19/14 Q1006 ESKN 220620Z 29009KT CAVOK 19/13 Q1008 ESMK 220620Z AUTO VRB03KT 9999 NCD 22/// Q1011 ESMQ 220620Z AUTO 24003KT 210V270 9999 NCD 21/13 Q1011 ESMS 220620Z 23008KT CAVOK 21/16 Q1011 ESMT 220620Z AUTO 28010KT 9999 NCD 20/14 Q1011 ESMX 220620Z 23008KT 180V260 CAVOK 20/13 Q1011 ESND 220620Z AUTO 27003KT 220V310 9999 FEW190/// 16/14 Q1007 ESNG 220620Z AUTO 00000KT 9999 FEW051/// OVC120/// 20/15 Q1004 ESNK 220620Z AUTO VRB01KT 9999 OVC092/// 20/15 Q1003 ESNL 220620Z AUTO 32005KT 9999 FEW033/// SCT038/// 21/14 Q1004 ESNN 220620Z 00000KT 6000 -RA FEW053 OVC086 18/17 Q1004 ESNO 220620Z AUTO 33004KT 310V030 9999 -RA BKN070/// OVC098/// 19/18 Q1003 ESNQ 220620Z AUTO 01007KT 9999 NCD 17/14 Q1005 ESNS 220620Z AUTO 36006KT 9999 SCT006/// BKN011/// BKN094/// 20/19 Q1003 ESNU 220620Z 00000KT 9999 TS SCT012 BKN015CB 22/19 Q1002 ESNV 220620Z AUTO VRB02KT 9999 OVC120/// 19/14 Q1005 ESNX 220620Z AUTO VRB02KT 9999 FEW043/// BKN050/// 20/15 Q1004 ESNZ 220620Z AUTO 30011KT 9999 SCT098/// 14/12 Q1006 ESOE 220620Z AUTO 22010KT 9999 FEW019/// SCT023/// 19/15 Q1007 ESOK 220620Z AUTO 24006KT 9999 OVC024/// 18/13 Q1007 ESOW 220620Z 24009KT 190V290 9999 SCT017 19/13 Q1007 ESPA 220620Z 36003KT 330V030 9999 BKN006 20/19 Q1002 ESPE 220620Z AUTO VRB01KT 9999 FEW052/// OVC130/// 19/17 Q1004 ESSA 220620Z 24009KT CAVOK 19/14 Q1007 NOSIG ESSB 220620Z AUTO 26009KT 9999 FEW019/// 20/14 Q1008 ESSD 220620Z AUTO 25009KT 9999 NCD 17/14 Q1007 ESSL 220620Z AUTO 25009KT 220V290 9999 FEW200/// 19/13 Q1009 ESSP 220620Z AUTO 24010KT 9999 NCD 18/13 Q1008 ESST 220620Z AUTO VRB03KT 9999 OVC022/// 18/14 Q1007 ESSV 220620Z AUTO 29009KT 9999 NCD 20/14 Q1010 ESTA 220620Z AUTO 26003KT 210V290 9999 NCD 19/13 Q1011 ESTL 220620Z AUTO VRB02KT 9999 NCD 22/14 Q1011 ESUP 220620Z AUTO VRB02KT 3200 -RA BKN001/// 17/17 Q1004 ESUT 220620Z AUTO 30007KT 9999 FEW023/// 16/13 Q1006 ETAD 220556Z AUTO 26003KT 9999 SCT080 17/14 A2997 RMK AO2 SLP130 60000 T01660141 10175 20155 52007 $ ETAR 220556Z AUTO 00000KT 9999 FEW080 16/16 A2996 RMK AO2 SLP143 T01620162 10162 20139 52009 $ ETEB 220630Z AUTO 04004KT 9999 SCT007 BKN017 17/17 A2996 RMK AO2 DZB06E15 CIG 006V022 SLP147 $ ETEK 220556Z AUTO 34004KT 9999 BKN055 16/14 A3002 RMK AO2 SLP038 T01640142 10165 20153 52009 $ ETGG 220620Z 02002KT 9999 FEW080 20/12 Q1011 BLU+ ETHA 220620Z AUTO 27010KT //// // ////// 15/14 Q1015 /// ETHB 220620Z AUTO 23006KT 9999 // ////// 21/15 Q1012 /// ETHC 220620Z 22004KT 9999 BKN100 BKN130 21/14 Q1012 BLACKBLU ETHF 220620Z 31002KT 9999 FEW013 SCT070 BKN140 19/15 Q1014 BLU ETHL 220638Z 24005KT 8000 -RA FEW006 BKN033 OVC100 17/16 Q1015 BLU ETHN 220620Z 31003KT 0700 FG VV001 16/16 Q1014 RED ETHS 220620Z 25009KT 9999 SCT140 21/14 Q1012 BLU+ ETIC 220629Z AUTO 31003KT 9000 -DZ BR SCT050 BKN070 17/17 A2993 RMK AO2 DZB02E21DZB29 SLP127 TSNO $ ETIH 220631Z AUTO 00000KT 9999 -RA BKN007 BKN013 OVC024 17/17 A2995 RMK AO2 DZE21RAB21 CIG 007V019 BKN007 V FEW SLP132 $ ETIK 220626Z AUTO 05004KT 9000 BR SCT005 BKN024 OVC033 18/18 A2996 RMK AO2 CIG 005V024 BKN V OVC SLP139 $ ETMN 220620Z 35007KT 9999 FEW090 21/12 Q1012 BLU+ ETNH 220620Z AUTO 09003KT 9999 // ////// 22/14 Q1011 /// ETNL 220620Z 19004KT 9999 BKN130 21/13 Q1012 BLU ETNN 220620Z 29008KT 9999 SCT120 BKN300 17/12 Q1015 BLU+ ETNS 220620Z AUTO 03004KT 9999 // ////// 21/13 Q1011 /// ETNT 220620Z 31007KT 9999 FEW070 20/15 Q1013 BLU+ ETNW 220620Z 25007KT 9999 BKN110 BKN300 22/15 Q1012 BLU ETOU 220556Z AUTO 18003KT 9999 SCT085 18/16 M RMK AO2 SLPNO T01830157 10184 20155 $ ETSB 220620Z AUTO 34003KT 6000 // ////// 17/12 Q1015 /// ETSH 220620Z 06001KT 9999 BKN110 BKN190 21/11 Q1012 BLU ETSI 220620Z AUTO 31005KT //// // ////// 17/16 Q1014 /// ETSL 220620Z AUTO 24006KT 9999 // ////// 16/16 Q1015 /// ETSN 220620Z 28004KT 8000 FEW005 SCT025 BKN036 18/17 Q1014 BLU ETWM 220620Z AUTO 30004KT 9999 // ////// 20/15 Q1013 /// EVLA 220620Z AUTO 16004KT 140V210 9999 BKN003 BKN006 21/21 Q1010 EVRA 220620Z VRB03KT 9999 SCT010 23/19 Q1010 NOSIG EVVA 220620Z AUTO 19006KT 150V220 9999 FEW010 22/20 Q1009 EYKA 220620Z 34003KT 250V040 CAVOK 22/18 Q1010 EYPA 220620Z 24005KT 180V260 9999 FEW008 SCT010 22/19 Q1010 EYSA 220620Z 34003KT 270V060 9999 FEW017 20/17 Q1011 BLU NOSIG EYVI 220620Z 01008KT CAVOK 22/16 Q1010 NOSIG FABL 220600Z AUTO 15001KT //// // ////// 01/M01 Q1033 FACT 220600Z 02016KT CAVOK 19/05 Q1017 NOSIG FAEL 220600Z 34010KT CAVOK 18/02 Q1027 FAGG 220600Z 34008KT 310V010 CAVOK 22/02 Q1021 FAHS 220600Z AUTO 24003KT //// // ////// 15/12 Q1032 FAIR 220552Z 15003KT CAVOK 09/04 Q1035 FAJB 220600Z AUTO 04002KT //// // ////// 08/03 Q1034 FAKM 220634Z 02004KT CAVOK 10/00 Q1033 FAKN 220600Z AUTO 23002KT //// // ////// 11/10 Q1033 FALA 220639Z 00000KT CAVOK 08/02 Q1035 NOSIG FALE 220640Z VRB02KT CAVOK 15/10 Q1030 NOSIG FALW 220600Z AUTO 03010KT //// // ////// 18/05 Q1017 FAMM 220632Z 06007KT CAVOK 10/01 Q1033 NOSIG FAOB 220600Z AUTO 05007KT //// // ////// 15/08 Q1018 FAOR 220630Z 01011KT CAVOK 09/04 Q1034 NOSIG FAPE 220614Z VRB02KT CAVOK 11/07 Q1025 NOSIG FAPN 220400Z AUTO 25003KT //// // ////// ///// Q1032 FAPP 220630Z 09004KT CAVOK 13/07 Q1033 NOSIG FAUP 220600Z 01010KT CAVOK 13/02 Q1029 NOSIG FAUT 220617Z 00000KT 6000 NSC 09/03 Q1031 FAVV 220500Z AUTO /////KT //// // ////// 01/M00 Q1032 FAWB 220600Z AUTO 05001KT //// // ////// ///// Q1033 FAWK 220600Z AUTO 06003KT //// // ////// ///// Q1035 FCBB 220639Z 23006KT 4800 BR FEW010 BKN020 21/19 Q1017 NOSIG FCPP 220600Z 12005KT 6000 SCT009 OVC023 22/20 Q1015 TEMPO 4000 BR FDBB 220400Z AUTO 31003KT //// // ////// 09/08 Q1030 FDJR 220200Z AUTO 33011KT //// // ////// 10/06 Q1032 FDLB 220200Z AUTO /////KT //// // ////// ///// Q1033 FDMY 220500Z AUTO 00000KT //// // ////// 10/10 Q1041 FDSK 220600Z VRB02KT CAVOK 14/10 Q1032 NOSIG FDST 220400Z AUTO 28008KT //// // ////// 12/12 Q1030 FDUS 220400Z AUTO 27004KT //// // ////// 03/03 Q0992 FEFF 220600Z 00000KT 8000 NSC 21/21 Q1013 NOSIG FGBT 220600Z 16005KT 9999 SCT010 24/23 Q1013 FGSL 220600Z 16005KT 9999 FEW010 24/23 Q1013 NOSIG FIMP 220600Z 15008KT 6000 VCSH FEW010 BKN016 22/19 Q1025 FJDG 220555Z 13018KT 9999 FEW023 SCT250 28/25 A2992 RMK SLP129 8/101 T02790245 10279 20255 50003 FKKD 220600Z 00000KT 8000 BKN013 FEW016CB 24/24 Q1013 NOSIG FKKN 220600Z 00000KT 9999 FEW016 18/17 Q1019 FKKR 220600Z 24004KT CAVOK 24/23 Q1014 FKYS 220600Z /////KT 3000 BR BKN006 21/21 Q1018 NOSIG FMCH 220600Z 27009KT 220V290 9999 FEW020TCU SCT030 27/20 Q1021 NOSIG FMCZ 220630Z 15014KT 9999 FEW026 28/20 Q1020 FMEE 220630Z AUTO 12024KT 9999 FEW094 24/16 Q1024 BECMG 11018G28KT FMEP 220630Z AUTO 13021KT CAVOK 24/15 Q1024 TEMPO 15020G30KT FMMI 220630Z 16008KT 120V190 9999 FEW020 15/10 Q1028 NOSIG FMMS 220600Z 21012KT 9999 VCSH FEW017 BKN040 23/19 Q1024 FMMT 220600Z 22011KT 9999 FEW007 SCT017 BKN 3300FT 22/18 Q1025 NOSIG FMNA 220600Z 14021G31KT 9999 FEW020 BKN040 25/14 Q1019 FMNM 220600Z 14008KT 9999 FEW040 25/13 Q1021 NOSIG FMNN 220600Z 00000KT 9999 BKN020 25/// Q1020 FMSD 220600Z 06012KT 5000 -RA FEW010 SCT016 BKN033 19/18 Q1028 FNBG 220600Z 00000KT 9999 BKN015 16/14 Q1016 FNHU 220600Z 05006KT CAVOK 12/05 Q1026 FNLU 220600Z 00000KT 7000 BKN020 18/17 Q1015 NOSIG FNSU 220600Z 00000KT 6000 OVC006 14/// Q1018 FOGM 220600Z /////KY 8000 FEW003 SCT006 OVC023 22/21 Q//// FOOG 220600Z 16004KT 8000 SCT008 BKN040 21/21 Q1015 FOOL 220630Z 14006KT 6000 FEW010 23/20 Q1014 NOSIG FOON 220600Z 20004KT 170V230 8000 FEW002 20/20 Q1015 FPST 220600Z 16006KT 9999 FEW025 BKN040 23/21 Q1015 NOSIG FQBR 220600Z /////KT 9999 SCT018 21/20 Q1027 FQCH 220600Z 17010KT 9999 SCT007 BKN015 16/16 Q1030 FQIN 220600Z 00000KT 9999 SCT020 19/18 Q1030 FQLC 220600Z 12009KT 5000 BR SCT002 SCT010 BKN060 12/12 Q1028 FQMA 220600Z 00000KT 6000 BCFG BKN025 16/15 Q1031 BECMG NSW FQNP 220600Z 23009KT 9999 SCT010 BKN020 19/16 Q1026 FQPB 220600Z 25008KT 9999 FEW020 21/17 Q1023 FQVL 220600Z 20006KT 9999 FEW020 17/14 Q1029 FSIA 220605Z 12014G24KT 090V150 //// R13///// // FEW014 27/23 Q1015 TEMPO 13015G27KT FTTA 220600Z 00000KT 9999 -TS FEW050CB 25/23 Q//// FTTD 220600Z 22004KT 9999 FEW030 FEW040 25/22 Q1014 FTTJ 220600Z 21003KT 9999 FEW030 25/23 Q1012 NOSIG FWCL 220600Z 02002KT 9999 FEW015 18/12 Q1029 NOSIG FWKI 220100Z 19005KT CAVOK 09/08 Q1026 NOSIG FYGF 220600Z 00000KT CAVOK 08/03 Q1029 FYWH 220600Z 29005KT CAVOK 04/M00 Q1028 NOSIG FYWW 220600Z 07005KT CAVOK 10/01 Q1028 FZAA 220600Z /////KT 3000 BR BKN014 21/18 Q1016 BECMG 1500 FZNA 220600Z 09006KT 4000 HZ FEW016 BKN300 19/11 Q1024 NOSIG FZQA 220600Z 09006KT 9000 SKC 12/08 Q1023 NOSIG FZWA 220600Z 18008KT 1500 BR NSC 20/09 Q1017 BECMG 3000 GABS 220630Z 22003KT 9999 FEW020 23/22 Q1014 NOSIG GAMB 220600Z 24004KT CAVOK 28/23 Q1012 GANR 220600Z VRB02KT CAVOK 28/24 Q1012 GBYD 220600Z VRB02KT 9999 FEW010 BKN100 25/23 Q1010 GCFV 220630Z 36013KT 9999 FEW020 20/16 Q1016 GCGM 220630Z VRB01KT CAVOK 19/16 Q1016 RMK R09/VRB01KT ARP/VRB02KT GCHI 220630Z 35020KT 9999 FEW025 21/16 Q1017 GCLA 220630Z 36013KT 9999 FEW035 21/14 Q1018 GCLP 220630Z 01024KT 9999 FEW020 21/15 Q1015 NOSIG GCRR 220630Z 02017KT 9999 BKN022 21/16 Q1015 GCTS 220630Z 06005KT 020V090 CAVOK 20/15 Q1016 NOSIG GCXO 220636Z 30019KT 9999 3000NW BCFG FEW000 BKN004 16/15 Q1019 NOSIG GEML 220630Z 34005KT 280V360 CAVOK 26/15 Q1012 GGOV 220300Z 36003KT 9999 TS FEW014 FEW020CB 25/24 Q1010 NOSIG GLRB 220630Z 04006KT 6000 BR FEW006 BKN011 24/23 Q1012 GMAD 220630Z 20003KT 150V260 5000 SCT006 BKN016 19/16 Q1012 NOSIG GMAG 220600Z 24004KT 4000 BR OVC006 17/16 Q1013 NOSIG GMAT 220600Z 36014KT 5000 OVC016 18/17 Q1013 NOSIG GMFF 220630Z 18006KT 9999 FEW033 SCT100 23/14 Q1016 NOSIG GMFK 220600Z VRB02KT CAVOK 32/M02 Q1016 NOSIG GMFM 220600Z 27002KT 8000 FEW016 SCT100 19/16 Q1016 NOSIG GMFO 220600Z 31007KT 260V320 9999 FEW026 BKN130 BKN200 23/13 Q1014 NOSIG GMMB 220600Z AUTO VRB01KT //// R32/P2000N NCD 16/16 Q1015 NOSIG GMME 220630Z 18003KT 140V200 8000 FEW011 18/16 Q1014 NOSIG GMMH 220600Z 02020KT 6000 SCT010 18/17 Q1012 NOSIG GMMI 220600Z 02012KT 6000 NSC 18/16 Q1013 NOSIG GMML 220600Z 03019KT 8000 OVC017 20/17 Q1014 NOSIG GMMN 220630Z 32004KT 9999 SCT010 19/18 Q1015 NOSIG GMMW 220600Z 31013KT CAVOK 24/13 Q1012 NOSIG GMMX 220630Z 24006KT CAVOK 18/16 Q1015 NOSIG GMMZ 220600Z VRB02KT 6000 NSC 27/M01 Q1016 NOSIG GMTA 220600Z 08002KT 9999 FEW026 BKN100 24/16 Q1012 NOSIG GMTN 220600Z 21010KT CAVOK 22/06 Q1011 NOSIG GMTT 220630Z 21005KT 180V240 8000 FEW016 19/17 Q1014 NOSIG GOBD 220630Z 29008KT 8000 NSC 24/21 Q1010 NOSIG GOGG 220600Z 00000KT CAVOK 25/24 Q1011 GOGK 220600Z 00000KT 8000 SCT016 BKN130 26/25 Q1010 GOGS 220600Z 32004KT 9999 SCT015 26/24 Q1010 GOOD 220600Z 34004KT 8000 NSC 25/23 Q1011 GOOG 220600Z 28004KT 8000 NSC 26/23 Q//// GOOK 220600Z 28004KT 8000 NSC 26/24 Q1010 GOOY 220600Z 00000KT 8000 FEW013 25/22 Q1011 GOSM 220600Z 00000KT CAVOK 28/25 Q1010 GOSP 220600Z 24004KT CAVOK 25/24 Q1009 GOSS 220600Z 00000KT 9999 FEW010 24/23 Q1010 GOTK 220600Z 18008KT 9999 TS FEW013 FEW030CB BKN130 24/19 Q1011 GOTT 220600Z VRB02KT CAVOK 25/24 Q1010 GQNO 220630Z 27006KT 7000 NSC 24/22 Q1009 NOSIG GQPP 220600Z 02016KT 7000 NSC 21/18 Q1010 NOSIG GQPZ 220600Z 26012KT 8000 NSC 27/16 Q1010 GUCY 220600Z 10004KT 9999 BKN015 BKN110 24/24 Q1012 NOSIG GVAC 220600Z 02014KT 9999 BKN014 23/20 Q1013 NOSIG GVNP 220600Z 02012KT 9999 FEW018 24/19 Q1013 NOSIG GVSV 220600Z 06017G27KT 9999 FEW016 24/20 Q1013 NOSIG HAAB 220600Z 15003KT 7000 FEW008 BKN020 BKN070 15/13 Q1028 HAMK 220600Z 36002KT 9000 HZ FEW020 FEW058 18/14 Q1028 NOSIG HCMF 220600Z 18023G36KT CAVOK 33/18 Q1006 HCMH 220600Z 20031KT CAVOK 21/14 Q10120 HCMM 220600Z 22016KT 9999 SCT022 27/23 Q1017 HDAM 220500Z 00000KT 6000 HZ FEW150 37/22 Q1009 HEAR 220200Z 20001KT CAVOK 23/18 Q1008 NOSIG HEAT 220600Z 34010KT CAVOK 28/15 Q1011 NOSIG HEAX 220600Z 32010KT 9999 SCT025 28/22 Q1009 NOSIG HEBA 220600Z 33015KT 9999 SCT020 SCT022 28/22 Q1009 NOSIG HECA 220600Z 32009KT 9999 SCT025 27/21 Q1009 NOSIG HEGN 220600Z 34014KT CAVOK 32/16 Q1006 NOSIG HEIS 220600Z 26006KT 3000 BR SCT025 26/21 Q1009 HELX 220600Z 33002KT CAVOK 32/17 Q1008 NOSIG HEMA 220600Z 34019KT CAVOK 32/17 Q1006 NOSIG HEMM 220600Z 31012KT 9999 SCT025 27/23 Q1012 NOSIG HEPS 220600Z 24008KT 9999 FEW025 27/22 Q1008 NOSIG HESC 220600Z 00000KT CAVOK 24/09 Q1017 NOSIG HESG 220600Z 35006KT CAVOK 32/13 Q1007 NOSIG HESH 220600Z 01013KT CAVOK 31/17 Q1006 NOSIG HESN 220600Z 01005KT CAVOK 32/06 Q1008 NOSIG HETR 220600Z 30018KT CAVOK 29/22 Q1006 HKEL 220600Z 13010KT 9999 FEW018 SCT250 17/12 Q1028 HKJK 220630Z 17006KT 9999 SCT009 OVC018 15/12 Q1028 HKKI 220600Z 07006KT 9999 FEW021 SCT090 21/15 Q1021 HKML 220600Z 18008KT 9999 FEW020 BKN080 26/21 Q1020 HKMO 220600Z 25007KT 9999 BKN018 BKN080 23/21 Q1021 NOSIG HKNW 220600Z 15009KT 9999 OVC080 BKN015 14/11 Q1026 HKWJ 220600Z 18008KT 9999 FEW024 SCT090 26/17 Q1018 HLLB 220630Z 07003KT 9999 BKN020 27/20 Q1016 HLLM 220550Z 20004KT 7000 SKC 31/10 Q1013 HRYR 220630Z 18003KT 150V210 9999 FEW025 SCT100 20/12 Q1025 NOSIG HSNN 220500Z 23004KT 9999 FEW040 26/22 Q1012 HSOB 220500Z 17006KT CAVOK 25/21 Q1012 HSPN 220500Z 36005KT 8000 35/21 Q1006 HSSS 220600Z 18010KT CAVOK 30/21 Q1011 NOSIG HTAR 220600Z 09014KT 9999 BKN014 BKN080 14/12 Q1024 NOSIG HTBU 220600Z 12006KT 9999 FEW019 FEW021CB BKN090 23/17 Q1021 HTDA 220600Z 18007KT 9999 FEW012 SCT070 24/21 Q1021 NOSIG HTDO 220600Z 11012KT CAVOK 17/12 Q1024 NOSIG HTIR 220600Z 18010KT 9999 FEW017 18/10 Q1027 HTKA 220600Z 09008KT 9999 FEW018 21/14 Q1023 HTKJ 220600Z 00000KT 9999 BKN022 BKN080 18/15 Q1024 NOSIG HTMG 220600Z 00000KT 9999 BKN020 17/16 Q1024 HTMT 220600Z 18018KT 9999 FEW021 23/20 Q1021 HTMU 220600Z 12012KT 9999 FEW020CB SCT090 20/12 Q1021 HTMW 220600Z 12015KT CAVOK 21/12 Q1020 NOSIG HTSO 220600Z 17008KT 9999 FEW016 SCT070 18/09 Q1027 HTSU 220600Z 12004KT 9999 SKC 13/08 Q1024 HTTB 220600Z 17015KT CAVOK 19/11 Q1024 HTZA 220600Z 21010KT 9999 FEW018 26/22 Q1021 NOSIG HUEN 220630Z 18012KT 9999 FEW020 FEW022CB 24/18 Q1021 K04V 220630Z AUTO 30007KT 10SM CLR 17/06 A3042 RMK AO2 PWINO K04W 220635Z AUTO 36003KT 10SM CLR 16/16 A3013 RMK AO2 K05U 220635Z AUTO 11004KT 6SM BR FEW006 SCT030 BKN049 16/14 A3037 RMK A01 K06C 220635Z AUTO 36005KT 7SM OVC010 20/19 A2983 RMK AO2 T01950185 K06D 220635Z AUTO 16008KT 10SM OVC030 16/16 A3007 RMK AO2 K0A9 220635Z AUTO 00000KT 10SM BKN034 OVC041 19/18 A2981 RMK AO2 K0CO 220630Z AUTO 29014G19KT 10SM CLR 10/01 A3079 RMK AO2 K0E0 220635Z AUTO 13006KT 10SM CLR 20/03 A3029 RMK AO2 T01990026 K0F2 220635Z AUTO 19006KT 10SM CLR 28/14 A2991 RMK AO2 T02800139 K0J4 220558Z AUTO 22004KT 10SM SCT055 28/24 A2988 RMK AO2 SLP114 T02780244 10317 20278 58005 K0R0 220635Z AUTO VRB06KT 10SM CLR 27/23 A2993 RMK AO2 PWINO TSNO K0R4 220635Z AUTO 19004KT 10SM CLR 25/25 A2988 RMK AO2 T02530245 K0S9 220635Z AUTO 00000KT 10SM CLR 12/09 A3021 RMK AO2 K0V4 220635Z AUTO 00000KT 10SM SCT029 SCT070 SCT110 20/20 A2977 RMK AO1 T01970197 K0VG 220635Z AUTO 00000KT 10SM OVC005 19/19 A2981 RMK AO2 K11R 220635Z AUTO 21006KT 10SM CLR 28/24 A2997 RMK AO2 T02750240 K12N 220554Z AUTO VRB06KT 18/18 A2981 RMK AO1 SLP087 P0014 60045 T01830183 10183 20161 58039 K14Y 220635Z AUTO 00000KT 7SM SCT044 17/16 A3013 RMK AO2 K17J 220635Z AUTO 23004KT 10SM CLR 24/23 A2983 RMK AO2 T02440229 K18A 220635Z AUTO 00000KT 7SM CLR 20/20 A2980 RMK AO2 T02020202 K18H 220635Z AUTO 24006KT 10SM CLR 30/23 A3000 RMK A01 K19S 220635Z AUTO 14012KT 10SM CLR 25/19 A3004 RMK AO2 T02470185 K1A5 220635Z AUTO 00000KT 7SM BKN035 BKN050 18/18 A2984 RMK AO2 T01820176 K1A6 220635Z AUTO 00000KT 5SM +RA BKN003 OVC025 20/20 A2979 RMK AO2 T01950195 K1A9 220635Z AUTO 00000KT 10SM CLR 26/24 A2983 RMK AO2 T02560241 K1AM 220558Z AUTO 21003KT 10SM BKN130 BKN180 19/M01 A3005 RMK AO2 SLP098 T01861013 10312 20186 52027 $ K1AN 220556Z AUTO 15010KT 10SM CLR 18/16 A2995 RMK AO2 SLP157 T01780159 10232 20178 402560111 55041 $ K1AW 220558Z AUTO 24003KT 10SM CLR 18/14 A3017 RMK AO2 SLP150 T01800138 10264 20176 52010 $ K1BM 220558Z AUTO 29007KT 10SM SCT120 21/M02 A3004 RMK AO2 SLP136 T02091018 10310 20174 52028 $ K1BN 220556Z AUTO 18016G23KT 10SM CLR 18/16 A2997 RMK AO2 SLP147 60007 T01790163 10224 20178 402510143 55045 $ K1BW 220558Z AUTO 21012KT 10SM SCT170 19/14 A3017 RMK AO2 SLP145 T01930141 10294 20188 51008 $ K1CM 220558Z AUTO 30010KT 10SM CLR 17/00 A3006 RMK AO2 SLP146 T01720004 10283 20172 52021 $ K1CN 220556Z AUTO 18015G22KT 10SM CLR 18/17 A2999 RMK AO2 PK WND 17026/00 SLP154 60009 T01770168 10226 20176 402530104 57050 $ K1DM 220558Z AUTO 32011KT 10SM CLR 22/M02 A2995 RMK AO2 SLP115 T02181020 10346 20218 52020 $ K1DN 220556Z AUTO 19015G22KT 10SM CLR 17/17 A3000 RMK AO2 SLP157 60011 T01740170 10218 20172 402480140 55042 PWINO $ K1DW 220558Z AUTO 22006KT 10SM CLR 19/15 A3018 RMK AO2 SLP153 T01860153 10271 20182 53006 $ K1EM 220558Z AUTO 28009KT 10SM BKN110 22/M01 A2997 RMK AO2 SLP120 T02171011 10316 20209 52016 $ K1EN 220556Z AUTO 16016G24KT 10SM SCT008 18/17 A2996 RMK AO2 PK WND 17026/0456 SLP148 60010 T01820170 10222 20182 402560129 55044 $ K1F0 220630Z AUTO 00000KT 10SM CLR 27/18 A2991 RMK AO2 TSNO K1FM 220558Z AUTO 27010KT 10SM CLR 17/M04 A3007 RMK AO2 SLP149 T01721038 10294 20165 52025 $ K1FN 220556Z AUTO 18016G22KT 10SM FEW008 18/17 A2988 RMK AO2 PK WND 17026/29 SLP149 60004 T01770165 10219 20177 402580116 58002 $ K1FW 220558Z AUTO 21004KT 10SM OVC160 20/16 A3013 RMK AO2 SLP142 T01950162 10267 20190 50007 $ K1GM 220558Z AUTO 30015KT 10SM CLR 19/M04 A3006 RMK AO2 SLP138 T01911043 10290 20179 52024 $ K1GN 220556Z AUTO 18011KT 10SM CLR 18/16 A2997 RMK AO2 SLP153 60001 T01790158 10216 20179 402520124 55003 $ K1H2 220635Z AUTO 29006KT 10SM SCT039 20/20 A2983 RMK AO2 T02020198 K1HM 220558Z AUTO 00000KT 10SM FEW160 16/M02 A3004 RMK AO2 SLP143 T01611024 10315 20157 52027 $ K1IM 220558Z AUTO 04006KT 10SM BKN130 22/M01 A3003 RMK AO2 SLP143 T02241015 10321 20216 52030 $ K1IN 220556Z AUTO 18010KT 10SM CLR 17/15 A2999 RMK AO2 SLP154 60002 T01690146 10217 20167 402650128 53001 $ K1IW 220558Z AUTO 17012KT 10SM M 22/18 A3008 RMK AO2 RAB30E33SHRAB33E45 SLP138 T02230177 10273 20206 50003 $ K1JN 220556Z AUTO 19011KT 10SM CLR 17/16 A2998 RMK AO2 SLP151 60001 T01730163 10202 20173 402460136 50004 $ K1JW 220558Z AUTO 19009KT 10SM M 20/17 A3011 RMK AO2 RAB01E07SHRAB07E19 SLP146 T02020170 10282 20196 50003 $ K1K1 220635Z AUTO 06003KT 10SM CLR 23/18 A3001 RMK AO2 T02280178 K1KM 220558Z AUTO 31007KT 10SM CLR 16/11 A3003 RMK AO2 SLP131 60001 T01560111 10301 20154 52011 $ K1KN 220556Z AUTO 18010G18KT 10SM CLR 17/16 A2998 RMK AO2 SLP149 60002 T01740156 10200 20174 402350149 51008 $ K1LM 220558Z AUTO 36007KT 10SM CLR 14/09 A3006 RMK AO2 SLP150 T01440094 10296 20141 50014 $ K1LN 220556Z AUTO 14007KT 10SM CLR 16/16 A2998 RMK AO2 SLP149 T01560158 10206 20155 402430110 50003 $ K1LW 220558Z AUTO 22004KT 10SM CLR 19/17 A3016 RMK AO2 SLP150 60033 T01870173 10269 20187 50001 $ K1M4 220556Z AUTO 00000KT 10SM SCT070 22/21 A2989 RMK AO2 SLP124 T02170206 10294 20211 58006 K1M5 220635Z AUTO 00000KT 10SM CLR 21/18 A2981 RMK A01 K1MM 220558Z AUTO 27008KT 10SM CLR 19/04 A3003 RMK AO2 SLP135 T01870043 10316 20178 52021 $ K1MN 220556Z AUTO 11006KT 9SM CLR 15/14 A3000 RMK AO2 SLP160 60002 T01500141 10203 20149 402550098 50009 $ K1NM 220558Z AUTO 25010KT 10SM CLR 19/09 A2994 RMK AO2 SLP112 T01900087 10307 20181 52007 $ K1NN 220556Z AUTO 13006KT 10SM CLR 17/15 A3001 RMK AO2 SLP160 60004 T01670148 10207 20167 402530107 50006 PWINO $ K1OM 220558Z AUTO 28020G24KT 10SM FEW110 24/09 A2993 RMK AO2 SLP095 T02380094 10344 20238 51008 $ K1ON 220556Z AUTO 07007KT 10SM CLR 17/16 A3000 RMK AO2 SLP161 60004 T01720157 10211 20170 402540110 50008 $ K1OW 220558Z AUTO 20009KT 10SM M 18/15 A3016 RMK AO2 SLP146 60276 T01840151 10204 20149 58001 $ K1P1 220635Z AUTO 00000KT 10SM CLR 11/10 A3013 RMK AO2 T01100102 K1S5 220635Z AUTO 00000KT 10SM CLR 15/10 A3009 RMK AO2 T01460095 K1V4 220554Z AUTO 14/13 A3011 RMK AO1 SLP186 T01390128 10244 20139 58002 K1YT 220558Z AUTO 10006KT 10SM M 18/01 A3011 RMK AO2 SLPNO T01830009 10294 20182 52024 $ K20U 220635Z AUTO 14020G26KT 10SM CLR 19/17 A3001 RMK AO2 K20V 220630Z AUTO 00000KT 10SM CLR 16/10 A3038 RMK AO2 K21D 220635Z AUTO 01005KT 10SM CLR 18/16 A3010 RMK AO2 K22N 220635Z AUTO 07011G16KT 008V108 5SM RA BKN008 OVC014 18/17 A2969 RMK AO2 K24A 220635Z AUTO 00000KT 10SM SCT003 BKN024 OVC035 18/17 A2989 RMK AO2 LTG DSNT SE T01780173 K24J 220635Z AUTO 00000KT 3SM BR BKN017 BKN022 26/26 A2986 RMK A01 K28J 220635Z AUTO 27005KT 10SM BKN026 BKN034 25/24 A2987 RMK AO2 K2A0 220635Z AUTO 00000KT 10SM CLR 21/21 A2980 RMK A01 K2C8 220635Z AUTO 15006KT 10SM CLR 17/18 A3009 RMK AO2 K2D5 220635Z AUTO 10006KT 10SM OVC043 18/18 A3009 RMK AO2 PWINO K2DP 220556Z AUTO 22006KT 10SM CLR 24/23 A2980 RMK AO2 LTG DSNT S SLPNO 60001 T02420231 10255 20230 53001 $ K2F5 220635Z AUTO 18005KT 10SM OVC110 26/06 A3008 RMK AO2 K2G4 220640Z AUTO 16003KT 1/2SM OVC002 12/12 A2981 RMK AO1 K2G9 220635Z AUTO 00000KT 10SM BKN009 OVC023 13/13 A2979 RMK AO2 K2I0 220635Z AUTO 30007KT 10SM BKN075 22/19 A2981 RMK AO2 T02150191 K2J3 220635Z AUTO 00000KT 10SM SCT100 24/23 A2980 RMK AO2 T02380233 K2J9 220635Z AUTO 26004KT 10SM SCT012 BKN026 BKN034 24/23 A2985 RMK AO2 K2LS 220635Z AUTO 25011G16KT 10SM CLR 29/26 A2995 RMK AO2 K2M2 220635Z AUTO 00000KT 10SM FEW035 SCT055 SCT065 20/19 A2986 RMK A01 K2P2 220635Z AUTO 01010G15KT 5SM -RA OVC004 17/17 A2995 RMK AO2 T01680165 K2V5 220635Z AUTO 00000KT 10SM CLR 22/16 A3010 RMK AO2 K2V6 220629Z AUTO 20005KT 10SM CLR 19/08 A3011 RMK AO2 K2W6 220637Z AUTO 25008KT OVC004 18/18 A2972 RMK AO1 K2WX 220556Z AUTO 07020G25KT 23/16 A2995 RMK AO1 WSHFT 0450 SLP113 60017 T02280156 10294 20228 50010 K33V 220615Z AUTO 11005KT 10SM CLR 12/07 A3042 RMK AO1 K3AU 220635Z AUTO 05007KT 10SM CLR 23/16 A3001 RMK AO2 K3D2 220635Z AUTO 01009G14KT 7SM -DZ OVC003 17/16 A2995 RMK AO2 T01680164 K3F3 220635Z AUTO 21007KT 10SM CLR 28/23 A2991 RMK AO2 T02840228 K3I2 220635Z AUTO 00000KT 10SM OVC010 20/20 A2972 RMK AO2 T02000196 K3J7 220635Z AUTO 28003KT 10SM CLR 23/22 A2978 RMK AO2 K3K3 220635Z AUTO 06008KT 10SM CLR 25/18 A3011 RMK AO2 K3L4 220635Z AUTO 24010KT 10SM CLR 29/26 A2993 RMK A01 K3LF 220635Z AUTO 31006KT 10SM CLR 20/19 A2987 RMK AO2 T01960186 K3N8 220635Z AUTO 09003KT 10SM CLR 17/16 A3012 RMK AO2 T01650161 K3R7 220635Z AUTO 21003KT 10SM CLR 26/25 A2993 RMK AO2 T02600250 K3S8 220635Z AUTO 00000KT 10SM OVC042 19/02 A3009 RMK AO2 K3T5 220635Z AUTO 20005KT 10SM SCT010 27/26 A2996 RMK AO2 T02670255 K40B 220616Z AUTO 00000KT 11/11 A3017 RMK AO1 SLP208 T01120110 10222 20110 52005 K40J 220635Z AUTO 28003KT 10SM CLR 27/24 A2985 RMK AO2 T02710241 K42J 220635Z AUTO RMK AO1 TSNO K46D 220635Z AUTO 14011KT 10SM CLR 18/17 A3007 RMK AO2 K46U 220620Z AUTO VRB05KT 10SM CLR 21/11 A3022 RMK A01 K4A6 220635Z AUTO 00000KT 10SM CLR 21/21 A2984 RMK AO2 K4A9 220635Z AUTO 00000KT 10SM CLR 19/18 A2984 RMK AO2 K4BM 220630Z AUTO 24004KT 10SM CLR 13/03 A3072 RMK AO2 K4I3 220623Z AUTO 07005KT 10SM SCT007 BKN018 OVC041 19/19 A2976 RMK AO2 K4M9 220635Z AUTO 31005KT 10SM FEW022 22/21 A2988 RMK AO2 PWINO K4MR 220558Z AUTO 19011KT 10SM CLR 26/07 A3015 RMK AO2 SLP135 T02630067 10367 20263 52009 $ K4O4 220635Z AUTO 00000KT 10SM CLR 28/19 A2987 RMK AO2 K4R5 220635Z AUTO 00000KT 10SM BKN025 16/14 A3011 RMK AO2 T01550140 K4S2 220635Z AUTO 00000KT 10SM CLR 17/10 A3013 RMK AO2 K4V0 220635Z AUTO 00000KT 10SM CLR 24/10 A3022 RMK AO2 T02360101 K54J 220615Z AUTO 23003KT 7SM SCT120 26/26 A2988 RMK AO2 T02630257 K57C 220635Z AUTO 35009KT 310V020 10SM OVC008 20/19 A2987 RMK AO2 T01980187 K5A6 220635Z AUTO 00000KT 5SM BR SCT003 BKN055 24/24 A2985 RMK AO2 T02380238 K5C1 220635Z AUTO 17006KT 10SM CLR 25/22 A3004 RMK AO1 K5H4 220635Z AUTO 13012KT 10SM CLR 17/17 A3003 RMK AO2 K5M9 220635Z AUTO 31006KT 10SM CLR 21/18 A2983 RMK AO2 T02100180 K5R8 220635Z AUTO 00000KT 10SM CLR 26/24 A2994 RMK AO2 T02560240 K5SM 220629Z AUTO 25008G19KT 220V310 10SM -RA SCT070 BKN100 BKN120 13/03 A3068 RMK AO2 K5T9 220635Z AUTO 13009G15KT 10SM CLR 31/21 A2996 RMK A01 K65S 220635Z AUTO 01007KT 10SM CLR 18/04 A3011 RMK AO2 K66R 220635Z AUTO 22003KT 10SM CLR 25/24 A2999 RMK AO2 T02510240 K6A1 220635Z AUTO 28005KT 10SM 22/20 A2985 RMK AO2 T02220195 K6A2 220635Z AUTO 28006KT 10SM SCT110 22/20 A2985 RMK AO2 K6B0 220635Z AUTO 14006G18KT 110V190 10SM CLR 18/12 A3004 RMK AO2 T01760117 K6B9 220635Z AUTO VRB03KT 10SM BKN036 OVC065 18/15 A2989 RMK AO2 K6I2 220635Z AUTO 25007KT 10SM SCT110 20/19 A2976 RMK AO2 K6L4 220635Z AUTO 00000KT 9SM FEW025 FEW049 OVC080 19/18 A2976 RMK AO2 K6P9 220550Z AUTO 21006KT 10SM CLR 27/11 A2997 RMK AO2 6//// T02740110 K6R3 220635Z AUTO 23004KT 7SM CLR 26/23 A2995 RMK AO2 T02620226 K6R6 220553Z AUTO 05005KT 28/13 A3001 RMK AO1 SLP119 T02830128 10378 20278 403890228 51009 K6S0 220635Z AUTO 28006KT 10SM CLR 16/13 A3005 RMK A01 K6S2 220635Z AUTO 00000KT 7SM CLR 12/09 A3014 RMK AO2 K74V 220635Z AUTO 25016G24KT 10SM SCT110 24/09 A3021 RMK AO2 LTG DSNT N K79J 220605Z AUTO 00000KT 9SM SCT045 SCT060 29/26 A2988 RMK AO2 TSE0559 T02890261 K7BM 220630Z AUTO 00000KT 10SM CLR 21/05 A3059 RMK AO2 K7L2 220635Z AUTO 11011KT 6SM -DZ FEW038 OVC047 19/19 A3007 RMK AO2 K7N0 220556Z AUTO 21007KT 10SM CLR 29/26 A2993 RMK AO2 SLP136 T02890256 10350 20289 57003 K7W4 220635Z AUTO 00000KT 5SM CLR 17/17 A2974 RMK AO1 T01740166 K7W6 220635Z AUTO 19004KT 10SM CLR 24/24 A2980 RMK AO2 T02430241 K82C 220635Z AUTO 33003KT 7SM CLR 17/16 A2997 RMK AO2 T01720160 K82V 220635Z AUTO 22006KT 10SM CLR 17/14 A3016 RMK AO2 PWINO K8A0 220635Z AUTO 28005KT 10SM CLR 23/21 A2985 RMK AO2 K8A3 220635Z AUTO 27005KT 10SM CLR 20/18 A2981 RMK A01 K8B0 220635Z AUTO 00000KT 10SM CLR 12/10 A3019 RMK AO2 K8D3 220556Z AUTO 30003KT 19/18 A3011 RMK AO1 SLP180 T01890178 10250 20183 402610172 51010 K8W2 220635Z AUTO 00000KT 10SM OVC024 18/17 A2975 RMK AO1 T01780172 K96D 220635Z AUTO 13004KT 10SM CLR 17/17 A3009 RMK AO2 K9A5 220635Z AUTO 00000KT 10SM CLR 20/20 A2984 RMK AO2 T02020195 K9D7 220635Z AUTO 11005KT 10SM BKN037 17/17 A3008 RMK AO2 K9L2 220558Z AUTO 24007KT 10SM CLR 29/13 A3003 RMK AO2 SLP138 T02890127 10367 20289 52020 K9MN 220619Z AUTO 31004KT 10SM CLR 18/16 A3007 RMK AO1 K9V9 220635Z AUTO 13010KT 10SM -DZ CLR 22/21 A3004 RMK AO2 T02160209 KA08 220635Z AUTO 35004KT 10SM CLR 25/25 A2984 RMK AO2 T02490246 KA39 220635Z AUTO 00000KT 10SM CLR 30/17 A3000 RMK AO2 KAAA 220635Z AUTO 00000KT 10SM SCT014 20/19 A2985 RMK AO2 T01980194 KAAF 220553Z AUTO 26010KT 10SM CLR 29/28 A2989 RMK AO2 SLP122 T02890283 10300 20289 58003 $ KAAO 220554Z AUTO 04005KT 10SM CLR 23/19 A3001 RMK AO2 SLP146 T02330194 10328 20233 403390200 53009 KAAS 220635Z AUTO 26003KT 10SM CLR 20/20 A2982 RMK AO1 KAAT 220555Z AUTO 26005KT 10SM CLR 18/01 A3016 RMK AO2 SLP166 T01830011 10333 20183 51019 KABE 220642Z 06015KT 4SM -RA BR BKN006 OVC012 19/18 A2968 RMK AO2 P0010 T01940178 KABH 220556Z AUTO 35004KT A3026 RMK AO2 SLPNO 6//// 51012 PNO $ KABI 220552Z 17008KT 10SM CLR 29/09 A2999 RMK AO2 SLP124 T02890094 10394 20283 404110256 51009 KABQ 220552Z 13006KT 10SM FEW200 27/03 A3017 RMK AO2 SLP111 T02720033 10361 20272 51012 KABR 220553Z AUTO 09006KT 10SM CLR 20/19 A3009 RMK AO2 SLP183 T02000189 10267 20200 402720150 50008 KABY 220553Z AUTO 24007KT 10SM CLR 23/21 A2985 RMK AO2 SLP105 60000 T02330211 10289 20228 51002 KACB 220635Z AUTO 04005KT 10SM RA SCT028 BKN038 OVC065 19/18 A2991 RMK AO2 T01920182 KACJ 220635Z AUTO 27006KT 10SM CLR 24/18 A2984 RMK AO2 KACK 220622Z AUTO 09012KT 1SM R24/5000VP6000FT BR VV003 17/17 A3006 RMK AO2 T01720172 KACP 220635Z AUTO 22003KT 10SM CLR 26/25 A2992 RMK AO2 T02600245 KACQ 220635Z AUTO 04005KT 10SM CLR 17/15 A3009 RMK AO2 KACT 220551Z AUTO 19008KT 10SM CLR 31/19 A2993 RMK AO2 SLP125 T03060194 10406 20306 404220244 50002 $ KACV 220553Z AUTO 11004KT 8SM OVC035 11/09 A3002 RMK AO2 SLP172 T01060094 10161 20106 50004 KACY 220632Z 16016G25KT 7SM SCT010 BKN013 OVC019 23/22 A2971 RMK AO2 PK WND 17028/0620 RAB06E15 P0000 T02330222 KADC 220555Z AUTO 00000KT 10SM CLR 16/16 A3012 RMK AO2 KADF 220556Z AUTO 03005KT 10SM BKN090 28/26 A2987 RMK AO2 SLP116 T02780256 10361 20256 403670244 51002 TSNO KADG 220631Z AUTO 10006KT 3SM -RA BR SCT014 BKN043 OVC110 20/19 A2977 RMK AO2 P0017 T02000189 TSNO KADH 220635Z AUTO 00000KT 10SM CLR 27/20 A2993 RMK AO2 KADM 220635Z AUTO 08003KT 10SM CLR 29/21 A2991 RMK AO2 T02900210 KADS 220635Z AUTO 21008KT 10SM CLR 33/17 A2990 RMK AO2 T03270172 KADU 220635Z AUTO 00000KT 10SM CLR 18/17 A3007 RMK AO2 KADW 220606Z AUTO 27013KT 10SM BKN006 OVC017 18/18 A2966 RMK AO2 CIG 006V017 BKN V FEW CIG 005 RWY19L SLP049 $ KAEG 220635Z AUTO 20009KT 10SM CLR 25/02 A3023 RMK AO2 T02450020 KAEJ 220635Z AUTO 36003KT 10SM CLR 13/09 A3044 RMK AO2 T01310093 KAEL 220635Z AUTO 04006KT 10SM CLR 18/15 A3007 RMK AO2 KAEX 220553Z 23005KT 7SM CLR 27/24 A2989 RMK AO2 SLP121 60000 T02670244 10333 20261 403780244 58002 KAFF 220558Z AUTO 01003KT 10SM FEW170 18/13 A3031 RMK AO2 SLP159 60000 T01770132 10253 20177 50010 KAFJ 220556Z AUTO 05005KT 10SM CLR 17/16 A2980 RMK AO2 SLP082 T01720156 10228 20172 56015 KAFK 220635Z AUTO 05004KT 10SM CLR 20/20 A3004 RMK AO2 T02000198 KAFN 220637Z AUTO 00000KT 10SM BKN009 OVC070 17/15 A3011 RMK AO2 CIG 008V013 T01720150 KAFO 220635Z AUTO 07013G17KT 10SM -TSRA BKN100 16/12 A3025 RMK AO2 LTG DSNT W AND NW KAFP 220635Z AUTO 00000KT 10SM SCT026 SCT055 BKN090 23/20 A2974 RMK AO2 T02330199 KAFW 220553Z 21013KT 10SM FEW300 34/14 A2989 RMK AO2 SLP098 T03390144 10422 20339 404390261 51002 KAGC 220553Z 06004KT 10SM CLR 17/14 A2978 RMK AO2 SLP079 T01670144 10217 20167 58016 KAGS 220553Z AUTO 14005KT 10SM -RA SCT035 BKN085 OVC110 22/20 A2979 RMK AO2 PK WND 01028/0508 LTG DSNT NE AND E RAB31 PRESFR SLP086 P0000 60000 T02170200 10261 20217 50005 KAHN 220551Z AUTO 00000KT 8SM CLR 22/21 A2980 RMK AO2 SLP084 60024 T02170211 10289 20206 58007 KAHQ 220635Z AUTO 35004KT 7SM CLR 19/18 A3007 RMK AO2 T01850181 KAIA 220553Z AUTO 15004KT 10SM CLR 21/19 A3007 RMK AO2 SLP132 T02110189 10294 20211 51007 KAIB 220635Z AUTO 00000KT 10SM CLR 26/07 A3029 RMK AO2 KAID 220635Z AUTO 36003KT 10SM BKN004 OVC009 20/20 A2973 RMK AO2 T02000200 KAIG 220635Z AUTO 02009KT 10SM SCT012 SCT025 BKN050 16/15 A3003 RMK AO2 T01560147 KAIK 220635Z AUTO 00000KT 10SM CLR 19/19 A2981 RMK AO2 LTG DSNT E AND SE KAIO 220635Z AUTO 00000KT 10SM CLR 17/17 A3006 RMK AO2 KAIT 220635Z AUTO 00000KT 10SM BKN034 16/14 A3013 RMK AO2 KAIZ 220456Z AUTO 30003KT 10SM CLR 19/19 A2996 RMK AO2 SLP136 T01940189 KAJG 220635Z AUTO 30004KT 10SM SCT075 20/20 A2979 RMK AO2 T02010195 KAJO 220556Z AUTO 10SM CLR 22/16 A3004 RMK AO2 SLP175 6//// T02220156 10322 20222 51033 $ KAJR 220635Z AUTO 00000KT 7SM CLR 20/20 A2982 RMK AO2 T02020202 KAJZ 220635Z AUTO 10SM CLR 26/12 A3020 RMK AO2 T02610117 KAKH 220554Z AUTO 23003KT 10SM FEW024 21/20 A2976 RMK AO2 LTG DSNT SE RAE00 SLP069 P0000 60003 T02110200 10261 20211 56006 KAKO 220553Z AUTO 16010KT 10SM CLR 22/17 A3014 RMK AO2 SLP135 60002 T02170172 10306 20211 51005 KAKQ 220554Z AUTO 19003KT 10SM CLR 19/18 A2978 RMK AO2 SLP083 T01890178 10217 20189 53010 KAKR 220554Z AUTO 08005KT 10SM CLR 20/16 A2977 RMK AO2 SLP074 T02000156 10261 20200 58009 KALB 220551Z 05006KT 10SM SCT037 OVC050 22/12 A2999 RMK AO2 SLP152 T02170122 10250 20211 56015 KALI 220553Z AUTO 15008KT 10SM CLR 27/24 A2998 RMK AO2 SLP149 T02670244 10328 20261 403670233 51007 KALK 220556Z AUTO 24006KT 10SM CLR 24/16 A3023 RMK AO2 SLP139 60000 T02390161 10317 20239 51012 KALM 220635Z AUTO 18006KT 10SM CLR 26/03 A3010 RMK AO2 KALN 220635Z AUTO 31007KT 10SM CLR 22/20 A2987 RMK AO2 T02160197 KALO 220554Z 34007KT 10SM CLR 17/17 A3000 RMK AO2 SLP155 T01720167 10250 20172 402670167 51005 KALS 220552Z AUTO 19004KT 10SM FEW120 16/13 A3037 RMK AO2 SLP174 60003 T01610128 10222 20161 51004 KALW 220553Z AUTO 10009KT 10SM CLR 21/02 A3009 RMK AO2 SLP183 T02110017 10300 20206 51015 KALX 220635Z AUTO 00000KT 7SM CLR 22/22 A2986 RMK AO2 T02190219 KAMA 220553Z AUTO 17006KT 10SM CLR 24/07 A3010 RMK AO2 SLP125 T02440072 10378 20244 404000206 50007 KAMG 220626Z AUTO 19003KT 9SM SCT011 24/23 A2983 RMK AO2 T02440228 TSNO KAMN 220635Z AUTO 03006KT 5SM BR SCT007 OVC011 20/20 A2983 RMK AO2 T02010201 KAMW 220553Z AUTO 35007KT 10SM CLR 20/17 A3003 RMK AO2 SLP158 T02000172 10267 20200 402830183 53003 KANB 220553Z AUTO 23005KT 10SM CLR 23/21 A2985 RMK AO2 SLP098 T02280206 10294 20222 403330217 50002 KAND 220556Z AUTO A2977 RMK AO2 SLPNO 6//// 56020 PWINO $ KANE 220635Z AUTO 03004KT 10SM CLR 19/16 A3010 RMK AO2 KANJ 220555Z AUTO 06004KT 8SM BKN120 21/18 A2997 RMK AO2 RAB07E16 SLP143 P0000 60006 T02060183 10217 20206 58003 $ KANK 220635Z AUTO 34004KT 10SM CLR 18/13 A3047 RMK AO1 T01820125 KANQ 220635Z AUTO 03003KT 7SM BKN006 OVC009 20/19 A2976 RMK AO2 TSNO KANW 220635Z AUTO 15007KT 10SM CLR 22/20 A3009 RMK AO2 LTG DSNT NW T02200198 KAOH 220553Z AUTO 00000KT 4SM BR SCT004 18/18 A2973 RMK AO2 SLP060 T01830183 10222 20183 58003 $ KAOO 220609Z AUTO 02010KT 4SM RA BR FEW004 BKN037 OVC075 16/14 A2976 RMK AO2 P0006 T01560144 KAPA 220553Z 24004KT 10SM BKN140 BKN200 23/12 A3022 RMK AO2 SLP144 T02280122 10294 20222 51009 KAPC 220554Z AUTO 26011KT 10SM CLR 17/13 A3002 RMK AO2 SLP158 T01720133 10261 20172 51020 KAPF 220553Z AUTO 28009KT 10SM SCT024 SCT030 30/27 A2996 RMK AO2 SLP143 T03000267 10300 20283 55000 KAPN 220554Z AUTO 01005KT 10SM FEW050 OVC070 19/19 A2992 RMK AO2 SLP129 60017 T01940194 10200 20194 58002 KAPS 220635Z AUTO 28007KT 10SM 28/26 A2992 RMK AO2 T02770255 KAPY 220635Z AUTO 14008KT 7SM CLR 27/22 A2997 RMK AO2 T02800222 KAQO 220630Z AUTO 19009KT 10SM CLR 30/20 A3001 RMK AO2 KAQP 220631Z AUTO 00000KT 10SM CLR 19/16 A3010 RMK AO2 KAQR 220635Z AUTO 00000KT 10SM CLR 26/20 A2990 RMK AO2 KAQV 220356Z AUTO VRB03KT 10SM CLR 27/23 A2991 RMK AO2 SLP124 T02720233 $ KAQW 220552Z AUTO 10014G24KT 10SM FEW047 18/12 A3002 RMK AO2 SLP163 T01830122 10228 20178 56019 KAQX 220635Z AUTO 00000KT 9SM FEW026 BKN050 OVC065 24/19 A2980 RMK AO2 LTG DSNT NE KARA 220553Z AUTO 23005KT 10SM CLR 26/24 A2995 RMK AO2 SLP140 T02610244 10317 20261 403440250 58002 $ KARB 220553Z AUTO 05005KT 8SM FEW048 SCT060 BKN080 21/20 A2978 RMK AO2 LTG DSNT S RAB33E48 SLP078 P0000 60000 T02060200 10222 20200 55005 KARG 220556Z AUTO 34005KT 10SM 24/19 A2988 RMK AO2 SLP117 T02390189 10328 20239 56000 $ KARM 220635Z AUTO 00000KT 7SM CLR 25/24 A2998 RMK AO2 T02500235 KARR 220552Z AUTO 34009KT 9SM BKN019 OVC025 21/19 A2983 RMK AO2 SLP097 60000 T02110189 10250 20206 402720200 56004 KART 220556Z AUTO 08007KT 10SM CLR 18/13 A2995 RMK AO2 SLP136 T01780133 10256 20167 58012 KARV 220635Z AUTO 03008KT 10SM OVC008 17/16 A3009 RMK AO2 T01660155 KARW 220635Z AUTO 23008KT 10SM CLR 25/22 A2979 RMK AO2 KASD 220553Z AUTO VRB03KT 10SM CLR 29/25 A2990 RMK AO2 SLP126 T02890250 10328 20289 403390267 55001 TSNO KASE 220553Z AUTO 21006KT 10SM CLR 18/06 A3039 RMK AO2 SLP139 T01780061 10256 20178 51013 KASG 220148Z 01004KT 10SM SKC 29/17 A2998 KASH 220556Z AUTO VRB04KT 10SM OVC017 18/16 A3011 RMK AO2 SLP205 T01780161 10206 20178 56012 KASJ 220635Z AUTO 10SM BKN022 BKN055 19/19 A2978 RMK AO2 T01910191 KASL 220635Z AUTO 10SM CLR 24/19 A2989 RMK AO1 T02430191 KASN 220635Z AUTO 00000KT 10SM CLR 23/22 A2985 RMK AO2 T02250215 KAST 220555Z AUTO 20003KT 10SM CLR 12/12 A3020 RMK AO2 SLP225 T01220117 10189 20122 50004 KASW 220635Z AUTO 02003KT 5SM BR SCT007 BKN013 OVC035 20/20 A2975 RMK AO2 KASX 220609Z AUTO 04006KT 10SM FEW010 BKN021 16/15 A3013 RMK AO2 T01560150 KATL 220552Z 28008KT 10SM FEW120 FEW200 FEW250 22/19 A2984 RMK AO2 SLP093 T02220194 10272 20222 50001 KATP 220635Z AUTO 25007G13KT 210V270 10SM CLR 30/25 A2999 RMK A01 KATS 220635Z AUTO 16007KT 10SM CLR 27/08 A3009 RMK AO2 KATT 220551Z AUTO 18007KT 10SM CLR 29/23 A2999 RMK AO2 SLP138 T02890228 10372 20289 404000239 51006 KATW 220635Z AUTO 01012G15KT 10SM OVC009 18/17 A2994 RMK AO2 KATY 220553Z AUTO 10004KT 10SM CLR 19/18 A3011 RMK AO2 SLP189 T01890178 10244 20189 402610144 53005 KAUG 220553Z AUTO 00000KT 10SM CLR 14/12 A3017 RMK AO2 SLP215 T01390122 10217 20139 55002 KAUH 220635Z AUTO 09007KT 10SM CLR 20/20 A3008 RMK AO2 T02000195 KAUM 220635Z AUTO 33004KT 10SM CLR 17/15 A3006 RMK AO2 KAUN 220635Z AUTO 11008KT 10SM FEW120 26/13 A3003 RMK AO1 KAUS 220553Z 18010KT 10SM FEW250 28/24 A2998 RMK AO2 SLP136 T02830239 10383 20283 403940206 51006 VISNO RWY17R $ KAUW 220554Z AUTO 36007KT 9SM CLR 17/14 A3001 RMK AO2 SLP163 T01670144 10211 20167 402390161 53001 KAVC 220635Z AUTO 27004KT 7SM SCT021 OVC030 19/19 A2987 RMK AO2 LTG DSNT NW P0002 T01890189 KAVK 220635Z AUTO 09007KT 10SM FEW033 SCT048 BKN055 26/20 A2998 RMK AO2 KAVL 220554Z AUTO 00000KT 10SM SCT050 BKN110 19/18 A2984 RMK AO2 RAB21E31 SLP074 P0000 60011 T01940183 10239 20194 58015 $ KAVP 220642Z 06013G18KT 2 1/2SM R04/5500VP6000FT RA BR BKN016 BKN021 OVC025 17/16 A2973 RMK AO2 RAB0556 P0008 T01720161 KAVQ 220635Z AUTO 34003KT 10SM CLR 28/14 A3002 RMK AO2 T02800137 KAVX 220551Z AUTO 23005KT 10SM CLR 19/13 A3007 RMK AO2 SLP161 T01890133 10211 20161 51016 TSNO $ KAWG 220635Z AUTO 34007KT 10SM CLR 19/18 A2996 RMK AO2 KAWM 220553Z AUTO 36003KT 10SM CLR 24/22 A2985 RMK AO2 SLP102 T02390217 10322 20239 403390239 $ KAWO 220556Z AUTO 31011KT 10SM CLR 16/11 A3020 RMK AO2 SLP231 T01560111 10239 20156 53013 KAXA 220635Z AUTO 02006KT 10SM CLR 19/18 A3007 RMK AO2 PWINO KAXH 220635Z AUTO 00000KT 7SM CLR 24/24 A2997 RMK AO2 T02420240 KAXN 220553Z AUTO 06003KT 10SM CLR 20/18 A3014 RMK AO2 SLP203 T02000178 10261 20194 402720178 53006 KAXS 220635Z AUTO 11009KT 10SM CLR 30/20 A2996 RMK AO2 T03010195 KAXV 220635Z AUTO 08003KT 3/4SM BR OVC002 20/20 A2972 RMK AO2 KAXX 220635Z AUTO 00000KT 10SM CLR 08/05 A3048 RMK AO2 T00830046 KAYS 220635Z AUTO 23004KT 10SM OVC008 24/23 A2983 RMK AO2 T02430227 KAZC 220635Z AUTO 10004KT 10SM CLR 20/17 A3024 RMK AO2 KAZE 220635Z AUTO 19003KT 10SM CLR 25/23 A2982 RMK AO2 T02470226 KAZO 220553Z AUTO 04005KT 6SM BR OVC007 21/19 A2979 RMK AO2 CIG 005V010 SLP084 60001 T02060189 10217 20206 55002 KBAB 220558Z AUTO 14011KT 10SM BKN120 28/13 A2992 RMK AO2 SLP134 T02830134 10359 20278 52022 $ KBAC 220635Z AUTO 12006KT 10SM CLR 18/18 A3010 RMK AO2 KBAD 220556Z AUTO 21008KT 10SM CLR 31/21 A2985 RMK AO2 SLP109 T03050210 10384 20305 404030271 57007 KBAF 220553Z AUTO 03008KT 10SM BKN026 OVC034 19/14 A3003 RMK AO2 RAB20E34 SLP166 P0000 60000 T01890144 10233 20183 58012 KBAK 220145Z 27007KT 10SM BKN029 OVC050 22/18 A2974 RMK LAST KBAM 220635Z AUTO 27005KT 10SM SCT050 SCT070 OVC110 23/12 A3020 RMK AO1 KBAN 220552Z AUTO 00000KT 9SM CLR 16/11 A3034 RMK AO2 RAE0453 SLP167 P0000 60000 T01560106 10211 20150 51008 $ KBAX 220635Z AUTO 08004KT 10SM OVC090 20/18 A2985 RMK AO2 T01990180 KBAZ 220551Z AUTO 20009KT 10SM CLR 27/24 A2999 RMK AO2 SLP146 T02670239 10361 20267 403890222 51012 KBBB 220635Z AUTO 00000KT 1 1/2SM BR CLR 17/16 A3012 RMK AO2 KBBD 220635Z AUTO 18006KT 10SM CLR 28/15 A3002 RMK AO2 KBBF 220635Z AUTO 21014KT 9SM FEW020 29/25 A2996 RMK A01 KBBG 220615Z AUTO 00000KT 10SM CLR 20/18 A2998 RMK AO2 TSNO KBBP 220635Z AUTO 17003KT 10SM CLR 24/22 A2972 RMK AO2 LTG DSNT SW AND W KBBW 220553Z AUTO 13005KT 10SM CLR 22/20 A3009 RMK AO2 SLP165 T02220200 10278 20222 402940161 51008 KBCB 220635Z AUTO 16003KT 1/2SM FG OVC002 18/18 A2983 RMK AO2 T01750175 KBCE 220353Z AUTO 00000KT 10SM BKN100 BKN120 17/13 A3043 RMK AO2 SLP168 T01670133 KBCK 220635Z AUTO 36006KT 10SM SCT014 17/16 A3002 RMK AO2 T01740158 KBCT 220153Z 25009KT 10SM CLR 27/21 A2996 KBDE 220553Z AUTO 09005KT 10SM CLR 15/15 A3016 RMK AO2 SLP214 T01500150 10222 20150 402330150 50001 KBDG 220635Z AUTO 35007KT 10SM 23/09 A3031 RMK AO1 T02310086 KBDH 220635Z AUTO 00000KT 10SM CLR 18/17 A3013 RMK AO2 KBDL 220551Z 04009KT 10SM OVC021 20/14 A3001 RMK AO2 SLP161 T02000139 10233 20200 58013 KBDN 220635Z AUTO 30007KT 10SM CLR 17/00 A3019 RMK AO2 KBDR 220639Z AUTO 09023G30KT 6SM RA BR OVC005 21/19 A2991 KBDU 220636Z AUTO 17003KT 10SM CLR 25/10 A3016 RMK AO2 KBEA 220635Z AUTO 16007KT 10SM SCT008 26/25 A2998 RMK AO2 T02600253 KBEC 220635Z AUTO 06006KT 10SM CLR 25/17 A3001 RMK AO2 T02490170 KBED 220556Z AUTO 08008KT 10SM SCT014 OVC085 19/16 A3008 RMK AO2 SLP197 T01890156 10200 20178 56012 KBEH 220604Z AUTO 00000KT 8SM BKN006 BKN047 OVC120 20/19 A2979 RMK AO2 T02000189 $ KBFD 220638Z AUTO 07004KT 5SM RA BR BKN008 OVC011 13/13 A2983 RMK AO2 P0016 T01330128 KBFF 220553Z AUTO 09003KT 10SM CLR 22/20 A3007 RMK AO2 SLP129 T02170200 10294 20217 51010 KBFI 220553Z 00000KT 10SM CLR 19/09 A3019 RMK AO2 SLP224 T01890089 10256 20183 53013 KBFL 220554Z 33009KT 10SM CLR 29/13 A2994 RMK AO2 SLP131 T02940133 10372 20294 51023 KBFM 220553Z AUTO 26004KT 10SM CLR 29/24 A2989 RMK AO2 SLP122 T02940244 10333 20294 403670278 58001 KBFW 220624Z AUTO 00000KT 10SM OVC024 17/15 A3013 RMK AO2 KBGD 220551Z AUTO 18011KT 10SM CLR 32/08 A3004 RMK AO2 SLP115 T03170078 10406 20317 404170256 50009 KBGE 220635Z AUTO 22005KT 10SM CLR 26/22 A2983 RMK AO2 KBGF 220635Z AUTO 13003KT 9SM CLR 20/19 A2984 RMK A01 KBGM 220553Z AUTO 07011KT 8SM -RA OVC020 15/13 A2988 RMK AO2 SLP110 P0002 60009 T01500133 10194 20150 56028 KBGR 220553Z 00000KT 10SM CLR 13/11 A3018 RMK AO2 SLP215 T01330111 10222 20122 53001 $ KBHB 220635Z AUTO 00000KT 10SM BKN005 BKN010 12/11 A3018 RMK AO2 CIG 005V009 $ KBHC 220635Z AUTO 00000KT 10SM SCT012 22/22 A2983 RMK AO2 KBHK 220551Z AUTO 10016G25KT 10SM CLR 21/16 A3001 RMK AO2 PK WND 11030/0452 SLP132 60000 T02060161 10300 20206 51015 KBHM 220553Z 00000KT 10SM CLR 24/21 A2988 RMK AO2 SLP110 60000 T02440211 10317 20239 403440239 50003 KBID 220556Z AUTO 09012G21KT 4SM BR OVC002 18/18 A3002 RMK AO2 RAE22 SLP170 P0000 60003 T01830183 10183 20178 56016 KBIE 220635Z AUTO 00000KT 10SM CLR 21/19 A3006 RMK AO2 T02090194 KBIF 220558Z AUTO 12005KT 10SM CLR 32/05 A3006 RMK AO2 SLP100 T03180045 10381 20318 52014 $ KBIH 220556Z AUTO 32005KT 10SM CLR 24/11 A3013 RMK AO2 SLP148 T02390111 10322 20239 51019 KBIJ 220635Z AUTO 24003KT 10SM CLR 23/21 A2984 RMK AO2 LTG DSNT W KBIL 220553Z 20007KT 10SM SCT210 23/12 A2995 RMK AO2 SLP108 T02280122 10328 20211 51002 $ KBIS 220552Z AUTO 14012KT 10SM -RA SCT110 19/18 A3006 RMK AO2 PRESFR SLP172 P0002 60009 T01890183 10278 20189 402890122 50008 KBIV 220553Z AUTO 03004KT 9SM OVC009 21/19 A2981 RMK AO2 CIG 006V012 SLP092 60022 T02060194 10206 20206 51002 KBIX 220556Z AUTO 27005KT 10SM CLR 28/26 M RMK AO2 SLPNO T02810255 10326 20281 403370272 $ KBJC 220630Z AUTO 16003KT 10SM CLR 23/11 A3020 RMK AO2 KBJI 220635Z AUTO 08006KT 10SM CLR 18/17 A3015 RMK AO2 T01750166 KBJJ 220556Z AUTO 08005KT 10SM BKN120 18/17 A2977 RMK AO2 SLP076 60001 T01830167 10211 20183 57008 $ KBKB 220554Z AUTO VRB04KT 10SM CLR 27/26 A2990 RMK AO2 SLP150 T02670261 10328 20267 403670250 56001 KBKD 220635Z AUTO 19007KT 7SM CLR 30/10 A2994 RMK AO2 T03000096 KBKE 220553Z AUTO 28005KT 10SM CLR 16/02 A3018 RMK AO2 SLP197 T01560017 10294 20144 51025 KBKF 220558Z 24004KT 10SM FEW150 BKN220 23/12 A3021 RMK AO2A SLP141 T02260116 10291 20214 50006 KBKL 220553Z AUTO 11008KT 10SM CLR 21/15 A2976 RMK AO2 SLP072 T02110150 10267 20211 58005 KBKS 220635Z AUTO 15005KT 7SM CLR 27/24 A2997 RMK AO1 T02690241 KBKT 220635Z AUTO 00000KT 10SM SCT041 OVC055 A2979 RMK AO1 KBKV 220553Z AUTO 00000KT 10SM FEW015 24/24 A2993 RMK AO2 SLP133 T02440239 10272 20244 58013 KBKW 220551Z AUTO 16004KT 10SM FEW055 SCT095 OVC110 17/16 A2981 RMK AO2 SLP063 60003 T01720156 10233 20172 58015 TSNO KBKX 220556Z AUTO 05003KT 10SM CLR 18/17 A3012 RMK AO2 SLP208 T01830172 10244 20178 402500161 51009 KBLF 220552Z AUTO 00000KT 10SM BKN110 16/16 A2984 RMK AO2 SLP069 60000 T01560156 10206 20156 58015 KBLH 220552Z AUTO 35005KT 10SM CLR 33/17 A2989 RMK AO2 SLP115 T03280167 10378 20322 51015 KBLI 220553Z AUTO 00000KT 10SM CLR 14/09 A3019 RMK AO2 SLP229 T01440089 10228 20144 53007 KBLM 220556Z AUTO 11019G27KT 5SM -RA BR OVC007 23/22 A2976 RMK AO2 PK WND 09032/0515 CIG 005V009 SLP078 P0004 60057 T02280222 10228 20206 57034 KBLU 220552Z AUTO 29004KT 10SM CLR 21/12 A3027 RMK AO2 SLP144 T02060122 10261 20200 51006 KBLV 220556Z AUTO 30008KT 10SM CLR 22/19 A2985 RMK AO2 SLP108 T02190191 10259 20216 402820205 57008 $ KBMC 220635Z AUTO 18023G29KT 10SM CLR 28/08 A3010 RMK AO1 T02760076 KBMG 220623Z AUTO 29006KT 6SM BR FEW006 SCT075 19/19 A2975 RMK AO2 T01940194 $ KBMI 220556Z AUTO 34014KT 10SM BKN009 BKN022 OVC048 20/19 A2985 RMK AO2 CIG 007V012 SLP120 60026 T02000189 10256 20200 402670200 50000 KBML 220552Z AUTO 33003KT 10SM CLR 10/09 A3016 RMK AO2 SLP210 T01000094 10217 20094 56006 KBMQ 220553Z AUTO 19005KT 10SM CLR 29/19 A3003 RMK AO2 SLP144 T02890189 10389 20289 404000233 52006 KBMT 220635Z AUTO 22006KT 10SM CLR 27/25 A2994 RMK AO2 T02710248 KBNA 220553Z VRB04KT 10SM CLR 24/18 A2984 RMK AO2 SLP095 T02440178 10294 20244 403280200 56003 KBNL 220635Z AUTO 23004KT 10SM FEW006 SCT017 SCT026 20/20 A2979 RMK AO2 LTG DSNT NE AND E KBNO 220553Z AUTO 18004KT 10SM CLR 14/M08 A3015 RMK AO2 SLP177 T01441083 10317 20144 51017 KBNW 220635Z AUTO 35007KT 10SM CLR 19/17 A3003 RMK AO2 KBOI 220553Z 29007KT 10SM CLR 26/01 A3002 RMK AO2 SLP133 T02610006 10361 20261 51028 $ KBOK 220556Z AUTO 00000KT 10SM OVC050 14/11 A3004 RMK AO2 SLP184 T01390106 10200 20139 51011 KBOS 220554Z 08010KT 10SM BKN013 OVC085 19/17 A3010 RMK AO2 SLP190 T01940167 10200 20189 56011 KBOW 220635Z AUTO RMK AO2 PNO PWINO TSNO KBPC 220635Z AUTO 14007KT 10SM CLR 25/08 A3003 RMK AO2 KBPG 220635Z AUTO 16007KT 10SM CLR 27/08 A3007 RMK AO2 T02720080 KBPI 220641Z AUTO 33009KT 8SM -RA FEW065 BKN090 BKN110 17/11 A3032 RMK AO2 LTG DSNT N AND E RAB03E14B33 P0000 T01720106 KBPK 220553Z AUTO 00000KT 10SM CLR 22/17 A2994 RMK AO2 SLP127 T02220172 10322 20222 403440211 57000 $ KBPT 220553Z AUTO 22007KT 10SM CLR 27/25 A2995 RMK AO2 SLP141 T02720250 10311 20272 403500256 56005 $ KBQK 220635Z AUTO 22003KT 10SM SCT038 23/21 A2984 RMK AO2 KBQP 220635Z AUTO 25004KT 10SM CLR 29/21 A2987 RMK AO2 T02930212 KBQX 220635Z AUTO 20015KT 9SM CLR 29/25 A2997 RMK A01 KBRD 220553Z AUTO 08003KT 10SM BKN043 19/17 A3013 RMK AO2 SLP201 T01940167 10256 20183 402610172 53008 $ KBRL 220553Z AUTO 36009KT 10SM CLR 21/18 A2992 RMK AO2 SLP128 T02110178 10261 20211 402720189 50002 KBRO 220553Z AUTO 15005KT 10SM CLR 27/25 A3000 RMK AO2 SLP156 T02670250 10328 20267 403670256 51004 KBRY 220635Z AUTO 28004KT 10SM CLR 20/18 A2974 RMK AO1 KBTA 220635Z AUTO 04006KT 10SM CLR 20/18 A3006 RMK AO2 T02010178 KBTL 220619Z AUTO 03005KT 5SM BR SCT007 SCT038 OVC049 20/19 A2979 RMK AO2 T02000189 KBTM 220553Z AUTO 32008KT 10SM CLR 19/M06 A3018 RMK AO2 SLP155 T01941056 10294 20194 53031 KBTP 220633Z AUTO 07007KT 10SM -RA BKN015 16/14 A2979 RMK AO2 RAB08 P0000 KBTR 220553Z AUTO 24012G17KT 8SM 27/24 A2991 RMK AO2 SLP127 T02670244 10328 20267 403440256 58003 $ KBTV 220554Z 15006KT 10SM CLR 19/10 A3005 RMK AO2 SLP175 T01940100 10272 20194 58006 KBUF 220554Z 08007KT 10SM SCT048 BKN060 OVC110 16/14 A2987 RMK AO2 RAE27 SLP113 P0001 60016 T01610139 10239 20150 58019 KBUR 220553Z 12009KT 10SM CLR 21/17 A3002 RMK AO2 SLP153 T02110172 10311 20211 51020 KBUU 220635Z AUTO 36008KT 10SM OVC008 20/18 A2986 RMK AO2 T01970183 KBUY 220554Z AUTO 07008KT 10SM +RA FEW009 BKN040 OVC055 21/20 A2977 RMK AO2 SLP072 6//// T02110200 10272 20206 58006 PNO $ KBVE 220551Z AUTO 26013KT 10SM CLR 30/27 A2993 RMK AO2 SLP135 T03000272 10317 20300 403330289 58005 $ KBVN 220635Z AUTO 10003KT 10SM CLR 20/19 A3009 RMK AO2 T01970185 KBVO 220553Z AUTO 00000KT 10SM CLR 21/19 A2996 RMK AO2 SLP134 T02060194 10328 20200 403440200 50002 KBVS 220635Z AUTO 00000KT 10SM CLR 13/11 A3021 RMK A01 KBVU 220635Z AUTO 04007KT 10SM CLR 26/16 A3003 RMK AO2 KBVX 220456Z AUTO 26004KT 10SM CLR 22/19 A2991 RMK AO2 SLP124 T02220189 403500222 KBVY 220553Z AUTO 06004KT 10SM FEW012 BKN090 18/16 A3010 RMK AO2 SLP187 T01780161 10189 20178 56010 KBWD 220635Z AUTO 15004KT 10SM FEW033 29/12 A2998 RMK AO2 KBWG 220553Z AUTO 29005KT 10SM CLR 22/18 A2981 RMK AO2 SLP086 T02220183 10272 20222 403060200 58006 KBWI 220554Z 27007KT 10SM BKN021 BKN140 18/18 A2962 RMK AO2 RAE15 SLP028 P0000 60227 T01830178 10211 20183 55009 KBWP 220630Z AUTO 07006KT 10SM CLR 18/16 A3008 RMK AO1 KBWW 220635Z AUTO 11020G27KT 10SM FEW010 18/17 A2992 RMK AO2 KBXA 220635Z AUTO 25003KT 10SM CLR 27/24 A2990 RMK AO2 T02660240 KBXK 220615Z AUTO 36006KT 10SM CLR 29/18 A2994 RMK AO1 KBYG 220553Z AUTO 24010KT 10SM CLR 22/10 A3009 RMK AO2 SLP118 T02170100 10311 20211 50005 $ KBYI 220553Z AUTO 20005KT 10SM CLR 19/10 A3005 RMK AO2 SLP131 T01940100 10317 20194 51012 KBYL 220635Z AUTO 00000KT 5SM FEW003 BKN019 BKN024 19/19 A2979 RMK AO1 KBYS 220555Z AUTO 18004KT 10SM CLR 31/10 A3004 RMK AO2 SLP118 WND DATA ESTMD T03100097 10356 20336 52018 KBYY 220635Z AUTO 19003KT 7SM CLR 25/24 A2997 RMK AO2 T02500246 KBZN 220556Z VRB04KT 10SM CLR 21/09 A3006 RMK AO2 SLP130 60000 T02060089 10289 20172 53026 KC07 220630Z AUTO 15003KT 10SM CLR 16/04 A3062 RMK AO2 KC09 220635Z AUTO 33004KT 10SM BKN025 OVC034 21/19 A2981 RMK AO2 T02070190 KC29 220635Z AUTO 01008G15KT 10SM OVC014 21/18 A2993 RMK AO1 T02050180 KC35 220635Z AUTO 36009KT 10SM SCT025 OVC043 18/18 A2995 RMK AO2 T01800177 KC62 220635Z AUTO 03005KT 7SM -RA OVC007 20/20 A2976 RMK AO2 T01980198 KC65 220635Z AUTO 01005KT 10SM BKN008 OVC012 20/20 A2975 RMK A01 KC75 220635Z AUTO 34007KT 10SM SCT021 20/18 A2985 RMK AO2 T01950183 KC83 220635Z AUTO 00000G25KT 10SM FEW060 23/12 A2995 RMK AO2 KCAD 220635Z AUTO 05005KT 10SM -RA BKN008 OVC014 18/17 A2989 RMK AO2 T01870180 KCAE 220556Z 27010KT 10SM -TSRA OVC110CB 24/22 A2977 RMK AO2 RAB03 TSB14 SLP078 FRQ LTGICCCCA S TS S MOV E CB S MOV E P0003 60003 T02390217 10311 20239 55004 KCAG 220553Z AUTO 00000KT 10SM FEW110 17/14 A3025 RMK AO2 SLP154 6//// T01720144 10339 20172 51016 $ KCAK 220551Z 09006KT 10SM FEW120 19/15 A2978 RMK AO2 SLP074 T01940150 10256 20194 58009 KCAO 220555Z AUTO 21011KT 10SM CLR 23/07 A3016 RMK AO2 SLP127 T02330072 10344 20211 $ KCAR 220554Z AUTO 10003KT 10SM CLR 18/14 A3017 RMK AO2 SLP215 T01780139 10267 20167 51007 KCAV 220635Z AUTO 34003KT 10SM SCT021 BKN039 BKN048 18/17 A3006 RMK AO2 PWINO KCBE 220636Z AUTO 00000KT 10SM SCT005 OVC025 17/16 A2980 RMK AO1 KCBF 220635Z AUTO 05008KT 10SM CLR 20/18 A3005 RMK AO2 KCBG 220635Z AUTO 00000KT 10SM CLR 19/17 A3011 RMK AO2 KCBK 220635Z AUTO 12006KT 10SM -RA SCT100 21/19 A3010 RMK AO2 KCBM 220556Z AUTO 00000KT 10SM CLR 25/24 A2984 RMK AO2 SLP105 T02460237 10322 20244 403460244 58003 $ KCCA 220635Z AUTO 00000KT 10SM CLR 20/19 A2992 RMK AO2 KCCB 220635Z AUTO 28004KT 10SM 21/14 A3006 RMK AO2 KCCO 220635Z AUTO 00000KT 10SM CLR 22/20 A2985 RMK AO2 T02150195 KCCR 220553Z 28004KT 10SM CLR 20/11 A3002 RMK AO2 SLP150 T02000111 10306 20200 51017 KCCU 220630Z AUTO 17008KT 10SM SCT044 SCT050 15/03 A3076 RMK AO2 KCCY 220635Z AUTO 36006KT 10SM CLR 17/16 A3004 RMK AO2 KCDA 220635Z AUTO 00000KT 10SM CLR 13/11 A3013 RMK AO2 T01300111 KCDC 220553Z AUTO 00000KT 10SM CLR 20/16 A3025 RMK AO2 SLP155 T02000156 10289 20200 50005 $ KCDD 220555Z AUTO 08003KT 10SM OVC034 18/15 A3018 RMK AO2 KCDH 220635Z AUTO 00000KT 8SM SCT085 BKN120 27/24 A2985 RMK AO2 KCDI 220635Z AUTO 00000KT 10SM SCT120 19/17 A2973 RMK AO2 T01850167 KCDJ 220552Z AUTO 00000KT 22/18 A3001 RMK AO1 SLP148 T02170178 10306 20211 403220206 53007 KCDN 220635Z AUTO 21007KT 9SM -RA SCT037 BKN043 OVC120 24/23 A2976 RMK AO2 LTG DSNT ALQDS KCDR 220553Z AUTO 07014KT 10SM CLR 21/18 A3005 RMK AO2 PK WND 05028/0511 SLP146 T02110183 10317 20206 51030 KCDS 220553Z AUTO 21005KT 10SM CLR 28/10 A2998 RMK AO2 SLP118 T02830100 10394 20283 404170250 51008 KCDW 220631Z 09011G22KT 1 3/4SM +RA BR BKN007 OVC015 21/21 A2979 RMK AO2 P0020 T02060206 KCEC 220556Z AUTO 14005KT 10SM OVC050 14/11 A3003 RMK AO2 SLP168 T01390106 10172 20139 53016 KCEF 220619Z AUTO 06007KT 10SM -DZ BKN022 OVC033 19/14 A3002 RMK AO2 DZB19 SLP170 KCEU 220554Z AUTO 30005KT 9SM CLR 21/20 A2979 RMK AO2 SLP075 60129 T02060200 10250 20200 58015 KCEW 220553Z AUTO 26005KT 10SM CLR 28/24 A2988 RMK AO2 SLP113 T02830239 10328 20283 403610239 58005 TSNO $ KCEY 220635Z AUTO 30004KT 10SM CLR 21/20 A2985 RMK AO1 KCEZ 220553Z AUTO 07004KT 10SM CLR 24/10 A3025 RMK AO2 SLP141 60000 T02440100 10333 20233 51007 $ KCFD 220635Z AUTO 19007KT 10SM CLR 27/23 A2997 RMK AO2 T02700227 KCFE 220635Z AUTO 04004KT 10SM CLR 19/16 A3012 RMK AO2 T01900160 KCFJ 220635Z AUTO 31006KT 10SM OVC007 19/19 A2976 RMK AO2 T01860186 KCFS 220635Z AUTO 07005KT 10SM CLR 20/19 A2982 RMK AO2 T01970185 KCFV 220552Z AUTO 00000KT 10SM CLR 22/20 A2994 RMK AO2 SLP129 T02220200 10339 20222 403560217 51005 $ KCGC 220635Z AUTO 00000KT 10SM CLR 27/26 A2988 RMK AO2 KCGE 220635Z AUTO 26007KT 2SM BR BKN004 OVC008 22/21 A2967 RMK A01 KCGF 220245Z 10010KT 10SM SCT050 23/18 A2980 KCGI 220553Z AUTO 33003KT 10SM CLR 23/18 A2986 RMK AO2 SLP108 T02280183 10300 20228 403170206 56003 KCGS 220637Z AUTO 27003KT 10SM OVC007 17/16 A2967 RMK AO1 T01710160 KCGZ 220556Z AUTO 28008KT 10SM CLR 32/18 A2997 RMK AO2 SLP131 6//// T03170178 10367 20317 50014 $ KCHA 220553Z AUTO 29004KT 10SM CLR 23/18 A2983 RMK AO2 SLP091 T02330183 10278 20233 56002 KCHD 220347Z 25010KT 10SM CLR 35/16 A2992 RMK LAST KCHK 220630Z AUTO 14003KT 10SM CLR 26/22 A2992 RMK AO2 T02630219 KCHO 220553Z AUTO 00000KT 10SM CLR 19/16 A2975 RMK AO2 SLP067 T01940156 10228 20189 56007 KCHS 220556Z 24006KT 10SM FEW060 24/23 A2979 RMK AO2 SLP087 T02440228 10283 20239 58007 KCIC 220635Z AUTO 14010KT 10SM CLR 30/13 A2992 RMK AO1 KCID 220552Z AUTO 35007KT 10SM CLR 19/17 A2996 RMK AO2 SLP140 T01890172 10261 20189 402720178 50003 KCIN 220635Z AUTO 32005KT 10SM CLR 17/17 A3006 RMK AO2 KCIR 220635Z AUTO 30003KT 10SM CLR 21/19 A2986 RMK AO2 T02060190 KCIU 220556Z AUTO 05010KT 10SM -RA OVC100 19/18 A2997 RMK AO2 SLP165 6//// T01940183 10206 20194 58003 PNO $ KCJR 220635Z AUTO 00000KT 10SM BKN028 BKN046 18/17 A2974 RMK AO2 T01790165 KCKB 220553Z 05005KT 10SM FEW031 18/15 A2975 RMK AO2 SLP059 T01780150 10239 20167 58017 KCKC 220635Z AUTO 02005KT 10SM CLR 14/11 A3016 RMK AO2 KCKF 220635Z AUTO 25005KT 10SM CLR 24/21 A2983 RMK AO2 T02410210 KCKI 220635Z AUTO 00000KT 10SM CLR 23/22 A2975 RMK AO2 LTG DSNT SW AND W KCKM 220635Z AUTO 00000KT 10SM OVC060 25/25 A2986 RMK A01 KCKN 220635Z AUTO 12008KT 10SM SCT050 18/17 A3010 RMK AO2 KCKP 220635Z AUTO 02003KT 10SM CLR 18/18 A3009 RMK AO2 T01750175 KCKV 220552Z AUTO 28005KT 10SM CLR 22/18 A2983 RMK AO2 SLP095 T02170178 10278 20217 403000217 56005 KCKZ 220635Z AUTO 10008G17KT 060V140 OVC008 22/22 A2969 RMK AO2 KCLE 220551Z 12008KT 10SM FEW100 BKN150 BKN230 21/16 A2978 RMK AO2 SLP079 60000 T02110156 10244 20211 56005 $ KCLI 220635Z AUTO 02007KT 10SM OVC015 19/16 A2997 RMK AO2 T01900156 KCLL 220553Z AUTO 19008KT 10SM CLR 28/24 A2996 RMK AO2 SLP140 T02780239 10367 20278 403720239 51004 KCLM 220553Z AUTO 25006KT 10SM CLR 14/10 A3022 RMK AO2 SLP233 T01440100 10194 20133 52007 KCLS 220635Z AUTO 00000KT 10SM CLR 14/13 A3019 RMK AO2 KCLT 220552Z 20004KT 10SM SCT025 BKN130 OVC250 22/19 A2976 RMK AO2 SLP067 LTG DSNT E-SE CB DSNT E-SE 60000 T02220194 10278 20217 58008 KCLW 220635Z AUTO 26006KT 10SM SCT015 28/26 A2992 RMK AO2 KCMA 220636Z AUTO 00000KT 10SM SCT010 20/16 A3002 RMK AO2 T02000161 KCMD 220635Z AUTO 00000KT 10SM SCT048 BKN060 BKN075 20/19 A2988 RMK AO2 T02020186 KCMH 220638Z 08003KT 10SM BKN029 19/18 A2970 RMK AO2 T01940183 KCMI 220553Z AUTO 32010KT 10SM FEW034 BKN044 OVC060 20/19 A2981 RMK AO2 SLP089 60006 T02000194 10256 20194 402610189 56006 KCMR 220635Z AUTO 17005KT 9SM CLR 15/13 A3035 RMK AO2 KCMX 220553Z AUTO 04005KT 10SM OVC034 17/13 A3009 RMK AO2 SLP187 T01670133 10178 20150 58001 KCMY 220635Z AUTO 01005KT 10SM BKN014 16/15 A3002 RMK AO2 T01620150 KCNB 220559Z AUTO 00000KT 10SM CLR 19/18 A3013 RMK AO2 KCNC 220635Z AUTO 33006KT 10SM CLR 19/18 A3000 RMK AO2 KCNI 220635Z AUTO 26004KT 10SM BKN043 24/17 A2985 RMK AO2 KCNK 220555Z AUTO 08004KT 10SM CLR 22/19 A3005 RMK AO2 SLP162 T02170194 10294 20211 403110172 53012 $ KCNM 220553Z AUTO 19008KT 10SM CLR 27/09 A3006 RMK AO2 SLP114 T02720089 10383 20267 51016 KCNO 220553Z AUTO 29007KT 10SM CLR 24/12 A3004 RMK AO2 SLP167 T02390122 10350 20239 51029 KCNU 220552Z AUTO 05004KT 10SM CLR 24/17 A2999 RMK AO2 SLP140 T02390172 10333 20233 403390211 51007 KCNW 220355Z 17007KT 10SM SKC 32/16 A2994 KCNY 220553Z AUTO 26006KT 10SM CLR 28/09 A3012 RMK AO2 SLP124 60000 T02830089 10378 20283 51020 KCOD 220556Z AUTO 19005KT 10SM CLR 18/08 A3009 RMK AO2 SLP144 T01830083 10311 20178 50006 KCOE 220556Z AUTO 15004KT 10SM CLR 19/04 A3012 RMK AO2 SLP201 6//// T01940039 10267 20156 53020 PNO $ KCOF 220556Z AUTO 25008KT 10SM CLR 26/26 A2993 RMK AO2 SLP140 T02590259 10269 20259 50000 KCOM 220635Z AUTO 20008KT 10SM CLR 29/10 A3000 RMK AO2 T02870097 KCON 220551Z AUTO 03004KT 10SM OVC015 16/14 A3012 RMK AO2 SLP199 T01610144 10200 20150 56010 KCOQ 220635Z AUTO 00000KT 10SM CLR 15/13 A3015 RMK AO2 KCOS 220554Z 09006KT 10SM FEW090 SCT180 BKN250 21/14 A3029 RMK AO2 SLP148 T02060144 10261 20206 51010 $ KCOT 220553Z AUTO 15010KT 10SM CLR 29/24 A2997 RMK AO2 SLP141 T02890244 10378 20289 404000233 51014 $ KCOU 220554Z AUTO 33005KT 10SM CLR 22/18 A2996 RMK AO2 SLP135 T02220178 10300 20217 403110194 53006 KCPC 220610Z AUTO 00000KT 10SM CLR 25/24 A2976 RMK AO2 T02460235 KCPK 220635Z AUTO 00000KT 7SM SCT028 20/19 A2978 RMK AO2 T01950187 KCPR 220553Z AUTO 27005KT 10SM CLR 18/12 A3012 RMK AO2 SLP118 60000 T01830122 10300 20178 51009 KCPS 220553Z AUTO 32009G19KT 10SM CLR 24/18 A2988 RMK AO2 SLP113 T02390183 10267 20233 402940211 55005 $ KCPT 220635Z AUTO 18006KT 10SM SCT045 OVC060 28/18 A2995 RMK AO2 KCPU 220630Z AUTO 34006KT 10SM CLR 24/08 A3004 RMK AO2 T02350080 KCPW 220630Z AUTO 00000KT 10SM SCT065 SCT075 BKN120 11/03 A3082 RMK AO2 LTG DSNT NE KCQB 220635Z AUTO 08006KT 10SM CLR 25/18 A2995 RMK AO2 T02540185 KCQC 220553Z AUTO 18012KT 10SM CLR 22/02 A3036 RMK AO2 SLP158 T02170022 10317 20206 51009 KCQF 220635Z AUTO 27004KT 10SM CLR 28/27 A2988 RMK AO2 KCQM 220635Z AUTO 00000KT 7SM CLR 14/14 A3017 RMK AO2 KCQT 220611Z AUTO 00000KT 10SM BKN013 21/18 A3002 KCQX 220635Z AUTO 09007KT 1 1/4SM BR OVC002 19/18 A3009 RMK AO2 T01890183 TSNO KCRE 220632Z AUTO 21010KT 10SM SCT015 SCT025 27/24 A2976 RMK AO1 T02720244 KCRG 220553Z AUTO 24006KT 10SM FEW015 26/24 A2986 RMK AO2 SLP110 T02560239 10261 20244 58014 $ KCRP 220551Z 17008KT 10SM BKN250 27/27 A2998 RMK AO2 SLP150 T02670267 10300 20267 403390239 50002 $ KCRQ 220553Z AUTO 34003KT 10SM CLR 20/18 A3003 RMK AO2 SLP165 T02000183 10222 20200 51016 KCRS 220553Z AUTO 20009KT 10SM CLR 30/20 A2992 RMK AO2 SLP124 T03000200 10389 20300 404110250 $ KCRW 220606Z 00000KT 10SM FEW000 SCT090 19/19 A2974 KCRX 220635Z AUTO 00000KT 7SM 23/22 A2984 RMK AO2 KCSG 220551Z 01003KT 10SM FEW045 SCT065 BKN100 23/21 A2984 RMK AO2 LTG DSNT S RAB21E41 SLP098 P0000 60013 T02280211 10256 20217 56009 KCSM 220553Z AUTO 12009KT 10SM CLR 28/21 A2999 RMK AO2 SLP125 T02830206 10394 20283 404110250 50008 KCSQ 220635Z AUTO 01008KT 10SM CLR 20/17 A3005 RMK AO2 KCSV 220553Z AUTO 29004KT 10SM FEW042 BKN055 19/18 A2986 RMK AO2 SLP091 T01940178 10244 20183 402780161 58007 KCTB 220556Z AUTO 35016KT 10SM CLR 14/03 A3008 RMK AO2 SLP157 T01440033 10283 20144 52033 TSNO KCTJ 220634Z AUTO 00000KT 10SM CLR 20/19 A2989 RMK AO2 T01990191 KCTY 220635Z AUTO 24005KT 5SM HZ SCT018 BKN023 OVC029 27/ A2986 RMK AO2 T0270//// KCTZ 220635Z AUTO 00000KT 10SM SCT017 OVC031 24/24 A2978 RMK AO2 T02400240 KCUB 220633Z AUTO 00000KT 4SM RA SCT095 BKN110 23/20 A2975 RMK AO2 LTG DSNT SE AND S PRESFR P0005 T02280200 KCUH 220635Z AUTO 00000KT 10SM CLR 25/18 A2994 RMK AO2 T02510182 KCUL 220633Z AUTO 29005KT 10SM SCT022 BKN065 OVC100 22/20 A2981 RMK AO2 KCUT 220553Z AUTO 09009KT 10SM CLR 17/12 A3017 RMK AO2 SLP152 60016 T01720122 10261 20167 56016 KCVB 220635Z AUTO 14004KT 10SM CLR 27/23 A3001 RMK AO2 T02700225 KCVC 220635Z AUTO 00000KT 10SM CLR 22/20 A2982 RMK AO2 PNO KCVG 220623Z 26004KT 3SM BR BKN004 OVC008 21/21 A2967 RMK AO2 RAE22 P0001 T02060206 KCVH 220635Z AUTO 26004KT 10SM CLR 15/14 A3007 RMK A01 KCVN 220556Z AUTO 16005KT 10SM CLR 22/09 A3016 RMK AO2 SLP160 T02220089 10361 20217 51008 KCVO 220556Z AUTO 31010KT 10SM CLR 17/11 A3013 RMK AO2 SLP202 T01670106 10283 20167 51012 KCVS 220558Z AUTO 15005KT 10SM CLR 23/07 A3017 RMK AO2 SLP146 T02310072 10371 20231 52010 $ KCVW 220635Z AUTO 24011G17KT 210V270 10SM CLR 29/26 A2993 RMK A01 KCVX 220635Z AUTO 07008KT 7SM -RA BKN009 BKN048 OVC055 20/20 A2995 RMK AO2 T02000200 KCWA 220635Z AUTO 01011G16KT 10SM BKN023 OVC060 16/15 A3002 RMK AO2 KCWC 220635Z AUTO 18004KT 10SM CLR 31/11 A2992 RMK AO2 T03110107 KCWF 220635Z AUTO 24009KT 10SM CLR 28/25 A2994 RMK AO2 T02810255 KCWI 220556Z AUTO 33007KT 10SM CLR 18/18 A2993 RMK AO2 SLP150 60006 T01830178 10211 20183 402720183 58002 KCWN 220558Z AUTO 36010KT 10SM FEW130 BKN180 23/10 A3028 RMK AO2 SLP050 60013 T02260095 10240 20218 50005 $ KCWV 220635Z AUTO 00000KT 10SM CLR 24/23 A2983 RMK AO2 T02380228 KCXE 220635Z AUTO 13004KT 5SM SCT090 BKN120 A2978 RMK AO1 P0010 KCXO 220553Z AUTO 22006KT 10SM CLR 28/24 A2997 RMK AO2 SLP145 T02780244 10344 20256 403610256 50001 KCXP 220635Z AUTO 32003KT 10SM CLR 20/12 A3022 RMK AO2 KCXU 220635Z AUTO 00000KT 10SM CLR 23/19 A2983 RMK AO1 T02250192 KCXW 220635Z AUTO 00000KT 2SM BR CLR 23/22 A2989 RMK A01 VIS 1/2V5 KCXY 220639Z AUTO 26006KT 2SM RA BR SCT008 BKN013 OVC019 19/17 A2961 RMK AO2 P0018 T01940172 KCYS 220553Z 24004KT 10SM CLR 17/14 A3022 RMK AO2 SLP131 60003 T01720144 10250 20172 51003 KCZT 220635Z AUTO 16014G19KT 10SM CLR 30/23 A2995 RMK AO2 KCZZ 220552Z AUTO 00000KT 21/14 A3007 RMK AO1 SLP143 T02060139 10294 20206 51014 KD07 220556Z AUTO 15009KT 23/18 A2999 RMK AO1 SLP136 T02280183 10294 20228 58003 KD25 220635Z AUTO 35005KT 4SM BR OVC004 14/14 A3011 RMK AO2 T01410141 KD39 220635Z AUTO 00000KT 10SM SCT037 17/16 A3012 RMK AO2 T01680163 KD50 220635Z AUTO 18008KT 10SM CLR 19/17 A2994 RMK AO2 KD55 220635Z AUTO 13008KT 10SM CLR 17/17 A3010 RMK AO2 KD60 220635Z AUTO 16006KT 10SM CLR 18/18 A2998 RMK AO2 KD73 220635Z AUTO 28004KT 10SM CLR 22/21 A2982 RMK AO2 T02170209 KD95 220635Z AUTO 00000KT 10SM SCT090 SCT120 19/19 A2982 RMK AO2 T01920185 KDAA 220637Z AUTO 27006KT 10SM BKN010 OVC017 18/17 A2970 RMK AO2 RAE26DZB26E27 SLP060 $ KDAB 220553Z 20006KT 10SM FEW110 24/24 A2988 RMK AO2 SLP119 T02440244 10261 20239 58017 $ KDAG 220550Z AUTO 25007KT 10SM CLR 33/15 A3000 RMK AO2 SLP127 T03280150 10372 20317 51025 KDAL 220553Z 22008KT 10SM SCT300 34/17 A2988 RMK AO2 SLP110 T03440172 10428 20344 404330289 53001 KDAN 220553Z AUTO VRB03KT 10SM -RA FEW003 BKN040 OVC110 21/21 A2978 RMK AO2 RAE08B46 SLP073 P0001 60037 T02060206 10256 20200 51001 KDAW 220551Z AUTO 00000KT 10SM OVC014 14/14 A3012 RMK AO2 SLP196 T01390139 10194 20133 56011 KDAY 220556Z 05005KT 1/2SM R06L/P6000FT BR BKN001 OVC006 19/19 A2971 RMK AO2 SFC VIS 4 SLP054 60000 T01940194 10222 20194 58006 KDBN 220635Z AUTO 00000KT 10SM SCT075 23/22 A2984 RMK AO2 KDBQ 220553Z AUTO 36011KT 10SM CLR 19/17 A2996 RMK AO2 SLP140 60001 T01890167 10217 20183 402670183 53001 KDCA 220635Z 25006KT 10SM BKN010 BKN036 OVC140 19/16 A2969 RMK AO2 RAE00 P0000 T01890161 $ KDCM 220635Z AUTO 00000KT 10SM BKN021 BKN027 20/20 A2977 RMK AO2 LTG DSNT E AND SE KDCU 220553Z AUTO 01003KT 10SM SCT048 BKN075 BKN090 23/21 A2985 RMK AO2 SLP099 T02280206 10289 20222 403330222 $ KDCY 220635Z AUTO 30006KT 10SM SCT028 BKN041 OVC070 21/20 A2977 RMK AO2 T02060196 KDDC 220552Z AUTO 11007KT 10SM CLR 25/18 A3004 RMK AO2 SLP137 T02500183 10328 20250 403440189 53006 KDDH 220554Z AUTO 09011KT 10SM CLR 18/11 A3001 RMK AO2 SLP158 T01830111 10228 20183 56019 KDEC 220609Z AUTO 32014KT 10SM BKN012 BKN020 BKN042 20/20 A2983 RMK AO2 T02000200 KDED 220635Z AUTO 22007KT 10SM CLR 26/24 A2987 RMK AO2 KDEH 220635Z AUTO 35007KT 10SM OVC050 18/17 A3001 RMK AO2 KDEN 220553Z 23008KT 10SM SCT160 BKN180 24/13 A3018 RMK AO2 SLP120 T02390128 10317 20233 51004 KDEQ 220553Z AUTO 00000KT 10SM CLR 27/25 A2986 RMK AO2 SLP103 T02670250 10394 20267 404000222 53001 TSNO KDET 220553Z 09006KT 10SM FEW110 22/18 A2978 RMK AO2 SLP082 T02220183 10228 20217 58005 KDEW 220553Z AUTO 00000KT 10SM CLR 13/02 A3012 RMK AO2 SLP191 T01330022 10272 20111 53024 KDFI 220640Z AUTO 03006KT 10SM SCT007 OVC090 21/20 A2973 RMK AO2 T02060200 KDFW 220553Z 21015KT 10SM FEW300 33/16 A2988 RMK AO2 SLP105 T03330161 10417 20333 404280272 51001 KDGW 220553Z AUTO 06003KT 10SM CLR 18/14 A3010 RMK AO2 SLP123 T01780144 10289 20178 51011 KDHN 220627Z AUTO 26014G24KT 8SM -TSRA FEW021 SCT120 27/23 A2987 RMK AO2 LTG DSNT S-W RAB21 TSB21 P0000 T02720228 KDHT 220553Z AUTO 18008KT 10SM CLR 22/07 A3011 RMK AO2 SLP125 T02220067 10383 20217 404060172 51009 KDIJ 220556Z AUTO 18006KT 10SM CLR 18/08 A3022 RMK AO2 SLP171 T01780078 10278 20172 51007 KDIK 220556Z AUTO 13020G30KT 10SM CLR 18/16 A3000 RMK AO2 PK WND 13033/0528 SLP140 60003 T01830161 10261 20172 57018 KDKB 220635Z AUTO 35007KT 10SM OVC010 20/19 A2986 RMK AO2 T01970191 KDKK 220553Z AUTO 05008KT 7SM -RA BKN050 BKN070 OVC100 16/16 A2984 RMK AO2 SLP101 P0002 60002 T01610156 10239 20161 58018 $ KDKR 220630Z AUTO 22008KT 10SM 27/23 A2994 RMK AO2 KDKX 220635Z AUTO 00000KT 10SM FEW044 BKN050 OVC110 21/21 A2979 RMK A01 KDLF 220556Z AUTO 12007KT 10SM CLR 30/15 A2996 RMK AO2 SLP130 T03010154 10393 20301 403980244 52014 KDLH 220555Z 08007KT 10SM BKN120 16/14 A3014 RMK AO2 SLP205 T01560144 10206 20156 402500156 51002 $ KDLL 220635Z AUTO 01005KT 10SM BKN022 OVC030 18/16 A2995 RMK AO2 T01820161 KDLN 220553Z AUTO 00000KT 10SM CLR 18/03 A3013 RMK AO2 SLP143 T01780028 10300 20156 51038 $ KDLO 220635Z AUTO 28003KT 10SM CLR 27/09 A2995 RMK AO2 T02670086 KDLP 220635Z AUTO 27014G19KT 10SM CLR 30/28 A2991 RMK A01 KDLS 220553Z AUTO 32011KT 10SM CLR 23/09 A3007 RMK AO2 SLP180 T02330089 10300 20233 51019 KDLZ 220637Z AUTO 09003KT 10SM BKN028 BKN033 18/18 A2972 RMK AO2 KDMA 220558Z AUTO 30005KT 10SM CLR 31/16 A3005 RMK AO2 SLPNO T03110159 10360 20311 51011 CHINO RWY12 $ KDMH 220554Z AUTO 19/18 A2961 RMK AO1 SLP025 P0002 60146 T01940178 10217 20194 55024 KDMN 220553Z AUTO 23005KT 10SM SCT120 28/15 A3013 RMK AO2 SLP109 T02830150 10372 20283 51016 KDMO 220553Z AUTO 36004KT 10SM CLR 22/18 A2999 RMK AO2 SLP147 T02170178 10294 20211 403110200 51008 KDMW 220635Z AUTO 25008KT 10SM -DZ SCT009 SCT048 BKN110 18/18 A2964 RMK AO2 P0006 KDNA 220635Z AUTO VRB06G15KT 10SM CLR 31/10 A3011 RMK AO2 KDNL 220553Z AUTO 14005KT 10SM FEW043 SCT100 22/21 A2980 RMK AO2 LTG DSNT NE-SE RAB27E52 TSB19E43 PRESFR SLP085 P0002 60002 T02220211 10289 20222 50004 KDNN 220635Z AUTO 00000KT 10SM CLR 21/20 A2984 RMK AO2 KDNS 220635Z AUTO 00000KT 5SM BR CLR 16/16 A3009 RMK AO2 KDNV 220635Z AUTO 33007KT 7SM SCT006 BKN012 BKN017 20/20 A2975 RMK AO2 T01950195 KDOV 220636Z AUTO 16017KT 8SM -RA OVC007 22/22 A2962 RMK AO2 DZE02RAB36 SLP033 $ KDPA 220552Z 35012KT 6SM -RA BR OVC015 20/19 A2982 RMK AO2 RAB33 SLP094 P0001 60002 T02000194 10239 20200 402670194 56003 KDPL 220635Z AUTO 00000KT 2 1/2SM BR BKN007 24/24 A2979 RMK AO2 KDQH 220635Z AUTO 00000KT 10SM CLR 23/23 A2985 RMK AO2 KDRA 220555Z AUTO 20003KT 10SM CLR 28/11 A3008 RMK AO2 SLP126 T02830111 10350 20283 50011 KDRI 220635Z AUTO 21005KT 10SM CLR 26/25 A2995 RMK AO2 T02610253 KDRM 220635Z AUTO 02003KT 10SM CLR 20/18 A2994 RMK AO2 T02020184 KDRO 220553Z AUTO 22016G28KT 10SM SCT120 25/08 A3033 RMK AO2 PK WND 21028/0550 LTG DSNT E AND SE SLP154 T02500083 10333 20233 53028 KDRT 220553Z AUTO 12011KT 10SM CLR 32/17 A2995 RMK AO2 SLP121 T03220172 10394 20322 404000256 51014 KDSF 220635Z AUTO 26021KT 10SM SCT016 BKN047 29/26 A2994 RMK A01 KDSM 220554Z 36006KT 10SM FEW250 22/17 A3001 RMK AO2 SLP155 T02170172 10278 20217 402940183 53002 KDSV 220638Z AUTO 00000KT 6SM RA BR FEW008 SCT034 OVC047 16/14 A2987 RMK AO2 P0004 T01560139 KDTA 220635Z AUTO 08003KT 10SM CLR 23/11 A3017 RMK AO1 KDTL 220635Z AUTO 00000KT 10SM SCT040 18/17 A3014 RMK AO2 KDTN 220553Z AUTO 22009KT 10SM CLR 31/21 A2986 RMK AO2 SLP106 T03110211 10389 20311 404110278 58007 KDTO 220553Z AUTO 21010KT 10SM CLR 33/14 A2989 RMK AO2 SLP108 T03280144 10422 20322 404330228 53003 KDTS 220553Z AUTO 27004KT 10SM CLR 29/27 A2986 RMK AO2 SLP112 T02890267 10300 20289 403440283 58004 $ KDTW 220553Z 07006KT 7SM FEW055 BKN085 22/19 A2978 RMK AO2 LTG DSNT SW RAB0455E24 TSE17 SLP080 OCNL LTGIC DSNT SW TS MOV NW CB DSNT SW MOV NW P0003 60003 T02220189 10228 20217 56004 $ KDUA 220635Z AUTO 33003KT CLR 29/20 A2990 RMK AO2 PWINO KDUB 220635Z AUTO 29009KT 10SM CLR 15/03 A3029 RMK AO2 KDUC 220635Z AUTO 08006KT 10SM CLR 28/21 A2994 RMK AO2 T02800208 KDUG 220556Z AUTO 32009KT 10SM CLR 27/16 A3015 RMK AO2 SLP129 T02670161 10339 20256 50010 KDUH 220635Z AUTO 00000KT 10SM -RA SCT035 SCT041 BKN120 21/19 A2975 RMK AO2 T02100192 KDUJ 220631Z AUTO 05007KT 1 1/2SM RA BR FEW002 BKN020 OVC034 14/14 A2980 RMK AO2 P0014 T01390139 KDUX 220635Z AUTO 17008KT 10SM CLR 24/08 A3009 RMK AO2 T02420080 KDVK 220635Z AUTO 25006KT 10SM OVC010 20/18 A2977 RMK AO2 KDVL 220556Z AUTO 13008KT 10SM CLR 19/16 A3008 RMK AO2 SLP196 T01940161 10233 20194 55013 KDVN 220552Z AUTO 33005KT 10SM CLR 18/17 A2994 RMK AO2 SLP131 60000 T01830172 10261 20183 402720183 58002 KDVO 220635Z AUTO 34007KT 10SM CLR 17/13 A3004 RMK AO2 KDVP 220635Z AUTO 01003KT 10SM CLR 18/17 A3012 RMK AO2 T01760165 KDVT 220553Z AUTO 24006KT 10SM CLR 33/14 A2995 RMK AO2 SLP113 T03280139 10378 20328 51016 KDWH 220553Z AUTO 21008KT 10SM CLR 27/24 A2997 RMK AO2 SLP146 T02720244 10344 20272 403610261 51002 KDWU 220626Z AUTO 14004KT 10SM BKN007 OVC030 20/19 A2971 KDWX 220635Z AUTO 06004KT 10SM CLR 18/05 A3030 RMK AO2 T01820050 KDXR 220553Z AUTO 07010KT 4SM RA BR OVC006 17/17 A2995 RMK AO2 SLP139 P0009 60014 T01720172 10200 20161 57017 KDXX 220635Z AUTO 00000KT 10SM CLR 19/19 A3010 RMK AO2 KDYA 220635Z AUTO 00000KT 7SM CLR 25/23 A2984 RMK AO2 T02490234 KDYB 220635Z AUTO 00000KT 10SM SCT034 SCT040 BKN120 22/22 A2979 RMK AO1 LTG DSNT W AND NW KDYL 220554Z AUTO VRB06KT 6SM -RA BR OVC009 22/21 A2968 RMK AO2 SLP045 P0018 60070 T02170211 10217 20167 56047 KDYR 220556Z AUTO 00000KT 10SM CLR 22/21 A2987 RMK AO2 SLP124 6//// T02220206 10317 20222 403330222 52000 PNO $ KDYS 220556Z AUTO 21009KT 10SM M 31/08 M RMK AO2 SLPNO T03090080 10394 20260 404100260 PNO $ KDYT 220635Z AUTO 07009KT 10SM SCT028 SCT037 17/16 A3015 RMK AO2 KDZB 220635Z AUTO 19007KT 10SM CLR 28/21 A2999 RMK AO2 T02820211 KDZJ 220635Z AUTO 25003KT 1 1/4SM BR BKN003 18/18 A2987 RMK AO2 T01820181 KE11 220635Z AUTO 22008KT 10SM CLR 27/08 A3009 RMK AO2 T02680083 KE38 220635Z AUTO 15005KT 10SM CLR 25/11 A3022 RMK AO2 T02530113 KE80 220635Z AUTO 23006KT 10SM CLR 25/02 A3018 RMK AO2 T02490021 KEAN 220635Z AUTO 11006KT 10SM CLR A3008 RMK AO2 KEAR 220557Z AUTO 12007KT 10SM CLR 22/19 A3009 RMK AO2 SLP169 T02170194 10283 20217 402890178 53006 KEAT 220555Z AUTO 34005KT 10SM CLR 21/07 A3013 RMK AO2 SLP197 T02060072 10289 20206 52032 KEAU 220556Z AUTO 02007KT 10SM CLR 18/15 A3004 RMK AO2 SLP167 T01780150 10228 20178 402720161 55003 KEBA 220635Z AUTO 23004KT 10SM CLR 22/21 A2981 RMK AO2 T02200206 KEBG 220635Z AUTO 15003KT 7SM CLR 27/24 A2998 RMK AO2 T02710237 KEBS 220635Z AUTO 34005KT 10SM CLR 17/17 A3003 RMK AO2 KECG 220622Z AUTO 00000KT 10SM BKN019 22/22 A2979 RMK AO2 T02220217 KECP 220553Z AUTO 21005KT 7SM CLR 28/27 A2986 RMK AO2 SLP123 T02830267 10300 20283 403280239 58004 KECS 220635Z AUTO 13011G16KT 10SM CLR 20/15 A3007 RMK AO2 KECU 220635Z AUTO 15008KT 10SM CLR 28/15 A3011 RMK AO2 KEDC 220635Z AUTO RMK AO2 PWINO KEDN 220635Z AUTO 01004KT 2 1/2SM +TSRA BKN016 OVC029 25/25 A2986 RMK AO2 LTG DSNT ALQS P0018 T02510246 KEDU 220640Z AUTO 15006KT 10SM CLR 21/13 A2995 RMK AO1 KEDW 220558Z AUTO 25013KT 10SM CLR 28/12 A3002 RMK AO2 SLP137 T02790122 10365 20279 51020 KEED 220556Z AUTO 01005KT 10SM CLR 31/19 A2994 RMK AO2 SLP109 T03060189 10344 20306 50007 $ KEEN 220556Z AUTO 06007KT 020V110 10SM SCT048 OVC075 18/14 A3009 RMK AO2 SLP201 T01780144 10217 20161 56012 KEEO 220553Z AUTO 00000KT 10SM FEW120 18/08 A3026 RMK AO2 SLP137 60000 T01830078 10300 20178 51007 KEET 220553Z AUTO 00000KT 10SM CLR 24/23 A2987 RMK AO2 SLP106 T02440233 10317 20244 403390244 50005 KEFD 220550Z 21008KT 10SM BKN250 27/25 A2998 KEFK 220635Z AUTO 18004KT 10SM CLR 15/12 A3012 RMK AO2 T01520120 KEFT 220635Z AUTO 36010G17KT 10SM OVC011 20/18 A2991 RMK AO2 T01950177 KEGE 220556Z AUTO 00000KT 10SM CLR 19/09 A3032 RMK AO2 SLP184 60000 T01890089 10294 20189 403440139 51013 KEGI 220556Z AUTO 26006KT 10SM CLR 29/24 A2987 RMK AO2 LTG DSNT NE SLP114 T02850236 10329 20273 403660256 55004 FZRANO $ KEGV 220635Z AUTO 02008KT 10SM OVC007 16/15 A3007 RMK AO2 T01560150 KEHA 220635Z AUTO 16009KT 10SM CLR 24/19 A3006 RMK AO2 T02400194 KEHC 220635Z AUTO 23018KT 10SM CLR 30/24 A2996 RMK A01 KEHO 220635Z AUTO 26003KT 10SM CLR 20/19 A2976 RMK AO2 T01950192 KEHR 220556Z AUTO 28011KT 10SM SCT043 SCT055 OVC070 23/19 A2981 RMK AO2 SLP098 T02280194 10261 20222 402830194 56009 KEHY 220630Z AUTO 10SM CLR 17/08 A3027 RMK AO2 PWINO KEIK 220636Z AUTO 16007KT 10SM CLR 23/12 A3020 RMK AO2 T02250124 KEIR 220635Z AUTO 28018KT 10SM CLR 30/25 A2997 RMK A01 KEKN 220551Z AUTO 00000KT 10SM CLR 15/14 A2979 RMK AO2 SLP078 T01500139 10217 20144 58017 TSNO KEKO 220556Z AUTO 21012G24KT 10SM FEW120 26/09 A3018 RMK AO2 PK WND 25029/0526 SLP149 T02560089 10300 20256 53023 KEKQ 220642Z AUTO 27008KT 10SM FEW017 SCT050 OVC070 21/19 A2980 RMK AO2 RAB0557E14 PNO $ KEKS 220635Z AUTO 36007KT 10SM CLR 19/09 A3018 RMK AO2 PWINO KEKX 220635Z AUTO 00000KT 10SM SCT021 SCT032 BKN100 20/20 A2977 RMK AO2 T02000199 KEKY 220556Z AUTO 00000KT 8SM CLR 23/23 A2988 RMK AO2 SLP123 60010 T02280228 10311 20228 403390228 50003 KELA 220635Z AUTO 21005KT 10SM CLR 26/24 A2997 RMK AO2 T02610242 KELD 220553Z AUTO 00000KT 10SM CLR 28/25 A2987 RMK AO2 SLP110 T02780250 10378 20261 404060261 57002 KELK 220635Z AUTO 13004KT 10SM CLR 28/21 A2999 RMK AO2 T02750210 KELM 220553Z AUTO 00000KT 4SM +RA BR FEW003 OVC018 14/14 A2987 RMK AO2 SLP110 P0013 60042 T01440144 10183 20144 56019 KELN 220553Z AUTO 32013G20KT 10SM CLR 18/07 A3014 RMK AO2 SLP198 T01780072 10261 20178 51019 KELO 220635Z AUTO 05003KT 10SM OVC031 18/14 A3016 RMK AO2 KELP 220551Z 13010G17KT 10SM CLR 32/03 A3006 RMK AO2 SLP094 T03220033 10383 20317 51014 $ KELY 220553Z AUTO 15006KT 10SM FEW080 17/10 A3030 RMK AO2 SLP150 60001 T01720100 10267 20172 53002 KELZ 220556Z AUTO 10005KT 3SM -RA BR OVC006 14/13 A2989 RMK AO2 CIG 004V009 SLP113 P0009 60077 T01390133 10161 20128 58019 KEMK 220635Z AUTO 27013KT 10SM SCT024 SCT043 29/25 A2999 RMK A01 KEMM 220635Z AUTO 25010G20KT 10SM CLR 18/07 A3033 RMK AO2 KEMP 220553Z AUTO 00000KT 10SM CLR 22/17 A3002 RMK AO2 SLP154 T02220167 10333 20222 403560183 53012 KEMT 220245Z 21007KT 10SM CLR 25/14 A2996 KEMV 220635Z AUTO 00000KT 10SM SCT034 BKN047 BKN055 18/18 A2980 RMK AO2 KEND 220556Z AUTO 10008KT 10SM CLR 27/19 A2996 RMK AO2 SLP130 T02650191 10365 20265 403790256 50005 $ KENL 220635Z AUTO 30008KT 10SM SCT085 22/20 A2984 RMK AO2 T02200201 KENV 220556Z AUTO 26011KT 10SM CLR 27/09 A3008 RMK AO2 SLP133 T02720094 10333 20272 52016 KENW 220628Z AUTO 36009KT 8SM OVC006 21/20 A2984 RMK AO2 CIG 005V011 T02060200 $ KEOD 220558Z AUTO 29004KT 10SM CLR 22/19 A2984 RMK AO2 SLP102 T02230187 10276 20221 403000221 57004 KEOE 220635Z AUTO 00000KT 10SM CLR 21/20 A2979 RMK AO2 KEOK 220635Z AUTO 35006KT 10SM CLR 20/19 A2993 RMK AO2 KEPH 220553Z AUTO 36011KT 10SM CLR 23/03 A3009 RMK AO2 SLP183 T02280033 10294 20222 53023 KEQA 220635Z AUTO 06007KT 10SM CLR A3002 RMK AO2 KEQY 220639Z AUTO 28003KT 10SM VCTS SCT023 SCT031 BKN055 23/21 A2974 RMK AO2 LTG DSNT NE-SE RAE21 TSE0556B18E33 P0003 T02280211 KERI 220551Z AUTO 07007KT 10SM BKN075 BKN090 20/14 A2981 RMK AO2 RAE19 SLP089 P0000 60000 T02000144 10244 20194 57008 KERV 220635Z AUTO 17004KT 10SM CLR 27/22 A3004 RMK AO2 T02650224 KERY 220635Z AUTO 01003KT 4SM BR SCT050 OVC120 18/17 A2997 RMK AO2 T01760171 KESC 220556Z AUTO 35005KT 10SM OVC007 17/16 A2998 RMK AO2 SLP171 60001 T01670156 10200 20161 55001 KESF 220553Z AUTO 24008KT 10SM CLR 27/24 A2990 RMK AO2 SLP122 T02720244 10339 20272 403670244 58003 KESN 220629Z AUTO 25006KT 7SM BKN004 OVC009 22/21 A2968 RMK AO2 P0001 T02200210 KEST 220552Z AUTO 35005KT 10SM CLR 18/17 A3008 RMK AO2 SLP181 T01780172 10239 20167 402560167 53003 KETB 220635Z AUTO 02009KT 10SM OVC006 19/18 A2989 RMK AO2 KETH 220634Z AUTO 00000KT 10SM CLR 18/16 A3010 RMK AO2 KETN 220635Z AUTO 00000KT 10SM CLR 21/11 A2997 RMK AO2 T02100111 KEUG 220554Z 03006KT 10SM CLR 15/09 A3012 RMK AO2 SLP198 T01500094 10278 20150 53013 KEUL 220556Z AUTO 31008KT 10SM CLR 23/03 A3003 RMK AO2 SLP147 T02330033 10356 20222 51035 KEVB 220147Z 00000KT 10SM SCT045 25/22 A2990 RMK LAST KEVM 220635Z AUTO 00000KT 2 1/2SM BR SCT031 14/14 A3018 RMK AO2 VIS 1 1/2V5 T01420141 KEVU 220635Z AUTO 03007KT 10SM CLR 20/15 A3003 RMK AO2 KEVV 220554Z 29007KT 7SM -RA SCT024 BKN047 OVC055 22/21 A2981 RMK AO2 RAB24 SLP090 P0003 60003 T02170206 10267 20217 402830200 55005 KEVW 220553Z AUTO 25017KT 10SM CLR 19/10 A3033 RMK AO2 PK WND 22033/0500 SLP157 T01890100 10306 20189 51016 KEWB 220553Z AUTO 07007KT 10SM OVC007 19/18 A3005 RMK AO2 SLP177 T01890183 10200 20183 56014 $ KEWK 220556Z AUTO 07004KT 10SM CLR 23/18 A3004 RMK AO2 SLP155 T02280178 10311 20228 51010 KEWN 220554Z AUTO 18006KT 10SM CLR 24/24 A2980 RMK AO2 SLP090 T02390239 10267 20239 58003 KEWR 220551Z 08018G27KT 3SM R04R/5000VP6000FT +RA BR BKN007 OVC014 23/22 A2979 RMK AO2 PK WND 10028/0538 SLP086 P0027 60120 T02280217 10228 20189 58035 KEXX 220635Z AUTO 10SM CLR 21/21 A2974 RMK AO2 T02120207 KEYE 220553Z AUTO 31009KT 10SM OVC011 21/19 A2973 RMK AO2 SLP060 60000 T02110189 10244 20211 58004 KEYF 220630Z AUTO 00000KT 10SM CLR 24/23 A2978 RMK AO2 T02390225 KEYW 220553Z AUTO 25007KT 10SM FEW025 30/23 A2998 RMK AO2 SLP151 T03000233 10317 20300 58012 KEZF 220635Z AUTO 27003KT 10SM SCT009 OVC023 19/19 A2973 RMK AO2 T01880188 KEZM 220635Z AUTO 00000KT 10SM CLR 27/26 A2984 RMK AO2 T02650255 KEZS 220635Z AUTO 02009KT 10SM BKN018 OVC022 19/17 A2997 RMK AO2 T01930169 KEZZ 220635Z AUTO 02006KT 10SM CLR 19/17 A3002 RMK AO2 T01940170 KF00 220635Z AUTO 28005KT 10SM CLR 29/16 A2989 RMK AO2 T02930156 KF05 220635Z AUTO 07005KT 10SM CLR 29/19 A2993 RMK AO1 T02930187 KF17 220635Z AUTO 20004KT 10SM CLR 27/22 A2990 RMK AO2 T02700215 KF44 220635Z AUTO 00000KT 10SM CLR 28/20 A2989 RMK AO2 KF45 220630Z AUTO 25003KT 10SM CLR 23/23 A2996 RMK AO2 KF46 220635Z AUTO 22008G14KT 10SM CLR 32/19 A2988 RMK AO2 T03150185 KF70 220635Z AUTO 18003KT 10SM CLR 21/16 A3006 RMK AO1 KFAF 220556Z AUTO 21005KT 10SM CLR 20/19 A2975 RMK AO2 SLP077 T02020185 10215 20202 52015 $ KFAM 220556Z AUTO 27003KT 10SM CLR 21/19 A2992 RMK AO2 SLP121 T02060189 10283 20200 403000189 58002 KFAR 220553Z AUTO 10005KT 10SM CLR 18/17 A3010 RMK AO2 SLP192 T01780172 10233 20178 402440156 51007 KFAT 220553Z 31012KT 10SM SCT130 31/13 A2993 RMK AO2 SLP130 T03060133 10378 20306 51019 KFAY 220553Z 05004KT 10SM FEW023 SCT042 BKN049 23/20 A2977 RMK AO2 LTG DSNT N AND NE SLP075 60000 T02280200 10311 20228 55000 KFBG 220455Z VRB02KT 10SM FEW028 SCT044 BKN055 22/18 A2978 RMK AO2A LTG DST N SLPNO WND DATA ESTMD ALSTG ESTMD LAST KFBL 220635Z AUTO 00000KT 7SM CLR 17/16 A3009 RMK AO2 KFBR 220635Z AUTO 24014G20KT 10SM CLR 21/08 A3033 RMK AO2 T02110078 KFCH 220630Z AUTO 31008G14KT 10SM CLR 28/16 A2993 RMK A01 KFCI 220556Z AUTO 20003KT 10SM CLR 18/17 A2976 RMK AO2 SLP092 T01780167 10206 20178 50003 $ KFCM 220553Z AUTO 05004KT 10SM CLR 21/16 A3008 RMK AO2 SLP182 T02110161 10272 20211 402780172 53010 KFCS 220558Z AUTO 30003KT 10SM OVC180 21/13 A3023 RMK AO2 SLP164 60000 T02080130 10261 20205 51007 $ KFDK 220635Z AUTO 24007KT 10SM OVC014 17/17 A2970 RMK AO2 KFDR 220553Z AUTO 07008KT 10SM CLR 31/21 A2991 RMK AO2 SLP103 T03060206 10428 20306 404390261 51011 KFDW 220635Z AUTO 23004KT 10SM -RA SCT065 SCT070 BKN100 21/20 A2975 RMK AO1 KFDY 220553Z AUTO 10006KT 10SM FEW050 21/19 A2972 RMK AO2 SLP056 T02060189 10239 20200 58006 KFEP 220635Z AUTO 33011KT 10SM OVC018 19/18 A2992 RMK AO2 T01860178 KFET 220635Z AUTO 00000KT 10SM CLR 21/18 A3007 RMK AO2 T02120182 KFFA 220630Z AUTO 00000KT 10SM 24/24 A2979 RMK AO2 T02410240 KFFC 220553Z AUTO 31003KT 10SM CLR 22/21 A2985 RMK AO2 SLP101 T02220206 10272 20217 58001 KFFL 220635Z AUTO 34006KT 10SM SCT044 19/17 A2995 RMK AO2 PWINO KFFM 220635Z AUTO 08004KT 10SM CLR 19/19 A3011 RMK AO2 KFFO 220556Z 06003KT 10SM BKN006 OVC110 20/19 A2970 RMK AO2A BKN V OVC SLP055 T01990191 10221 20197 57011 KFFT 220600Z AUTO VRB03KT 10SM SCT009 BKN014 OVC019 22/20 A2972 RMK AO2 T02170200 KFFX 220638Z AUTO 03003KT 10SM SCT005 SCT021 OVC028 20/19 A2983 RMK AO2 T01970193 KFFZ 220247Z 27008G17KT 50SM SCT200 36/18 A2991 KFGN 220635Z AUTO 00000KT 7SM SCT017 19/16 A3015 RMK AO2 KFGX 220635Z AUTO 00000KT 5SM -RA BKN006 OVC012 20/20 A2971 RMK AO2 T01970197 KFHB 220635Z AUTO 23007KT 10SM SCT011 SCT080 SCT095 25/22 A2983 RMK AO2 T02460221 KFHR 220553Z AUTO 00000KT 10SM CLR 12/08 A3020 RMK AO2 SLP228 T01220083 10233 20117 53006 TSNO KFHU 220558Z AUTO 26011KT 10SM CLR 25/16 A3022 RMK AO2 SLP154 60000 T02510162 10308 20251 51008 KFIG 220614Z AUTO 03004KT 5SM RA BR BKN008 OVC014 15/14 A2980 RMK AO2 P0005 T01500144 KFIN 220635Z AUTO 22005KT 10SM CLR 25/23 A2985 RMK AO2 T02460230 KFIT 220601Z AUTO 03003KT 10SM OVC014 17/16 A3011 RMK AO2 T01720161 KFKA 220635Z AUTO 34007KT 10SM CLR 17/15 A3006 RMK AO2 T01680151 KFKL 220556Z AUTO 10SM -RA FEW013 BKN039 OVC065 16/14 RMK AO2 RAB11 SLPNO P0000 60000 T01560144 10206 20156 $ KFKN 220635Z AUTO 00000KT 10SM SCT049 19/19 A2979 RMK AO2 T01910188 KFKR 220635Z AUTO 34007KT 10SM OVC007 21/19 A2976 RMK AO2 P0002 T02100193 KFKS 220635Z AUTO 05003KT 10SM BKN009 OVC016 20/20 A2988 RMK AO2 T01970197 KFLD 220634Z AUTO 02018G24KT 9SM OVC008 20/18 A2993 RMK AO2 CIG 007V012 T02000178 KFLG 220557Z AUTO 00000KT 10SM CLR 14/12 A3038 RMK AO2 SLP182 T01440117 10233 20144 $ KFLL 220553Z 00000KT 10SM FEW120 BKN250 28/24 A2995 RMK AO2 SLP140 T02830244 10306 20278 58004 KFLO 220553Z AUTO 20005KT 10SM CLR 24/23 A2976 RMK AO2 SLP074 T02440233 10306 20244 58008 KFLP 220556Z AUTO 00000KT 10SM CLR 23/17 A2995 RMK AO2 SLP133 T02280172 10339 20228 403610228 51002 KFLY 220635Z AUTO 23003KT 10SM CLR 18/11 A3034 RMK AO2 T01830113 KFME 220636Z AUTO 25007KT 5SM BKN007 BKN027 OVC033 A2967 RMK AO1 KFMH 220635Z AUTO 10011KT 3SM BR OVC003 19/19 A3008 RMK AO2 KFMM 220635Z AUTO 00000KT 10SM CLR 21/15 A3012 RMK AO2 T02080146 KFMN 220612Z AUTO 03010KT 10SM -RA FEW060 FEW075 BKN100 26/10 A3018 KFMY 220553Z AUTO 28005KT 10SM CLR 28/26 A2996 RMK AO2 SLP146 T02780256 10278 20267 50006 KFNB 220553Z AUTO 03004KT 10SM CLR 21/18 A3003 RMK AO2 SLP158 T02060183 10289 20206 403060178 53005 KFNL 220556Z AUTO 02005KT 10SM CLR 22/14 A3015 RMK AO2 SLP136 60000 T02170144 10306 20217 50004 KFNT 220553Z AUTO 08008KT 10SM FEW065 BKN080 OVC100 21/19 A2981 RMK AO2 SLP091 T02060189 10217 20200 58002 KFOA 220635Z AUTO 28004KT 10SM CLR 21/20 A2982 RMK AO2 T02140203 KFOD 220556Z AUTO 33003KT 10SM CLR 18/17 A3007 RMK AO2 SLP202 T01830172 10256 20183 53004 KFOE 220553Z AUTO 02004KT 10SM CLR 22/19 A3001 RMK AO2 SLP151 T02220189 10328 20222 403440183 52007 KFOK 220553Z AUTO 09012G21KT 5SM -RA BR OVC003 21/20 A2995 RMK AO2 SLP140 P0006 60025 T02110200 10211 20200 56019 $ KFOT 220635Z AUTO 00000KT 7SM BKN023 OVC029 10/10 A3004 RMK AO1 KFOZ 220633Z AUTO 00000KT 10SM CLR 16/15 A3016 RMK AO2 KFPK 220635Z AUTO 01004KT 5SM BR SCT007 BKN070 OVC090 20/19 A2978 RMK AO2 T01960185 KFPR 220553Z AUTO 26004KT 10SM CLR 24/24 A2995 RMK AO2 SLP140 T02440244 10272 20239 51000 KFRG 220553Z AUTO 11013G23KT 9SM -RA OVC006 22/22 A2987 RMK AO2 PK WND 10030/0543 SLP113 P0008 60027 T02220217 10222 20189 58023 KFRH 220635Z AUTO 26004KT 7SM BKN026 18/ A2977 RMK AO1 KFRI 220556Z AUTO 03003KT 10SM OVC190 22/19 A3003 RMK AO2 SLP158 60000 T02200186 10315 20214 403290191 52011 KFRM 220556Z AUTO 34005KT 10SM CLR 19/18 A3009 RMK AO2 SLP189 T01890178 10244 20189 402560172 53005 KFRR 220635Z AUTO 21003KT 10SM OVC015 16/16 A2974 RMK AO1 KFSD 220556Z AUTO 00000KT 10SM CLR 19/17 A3011 RMK AO2 SLP190 T01890172 10261 20178 402720172 51013 KFSE 220635Z AUTO 00000KT 7SM CLR 14/14 A3014 RMK AO2 KFSI 220556Z AUTO 04004KT 10SM CLR 29/22 M RMK AO2 SLPNO T02880220 10424 20282 404340248 $ KFSM 220553Z AUTO 10003KT 10SM CLR 27/19 A2992 RMK AO2 SLP123 T02670194 10372 20261 403890244 51005 KFSO 220635Z AUTO 15005KT 10SM CLR 18/12 A3005 RMK AO2 T01780115 KFST 220553Z AUTO 16006KT 10SM CLR 25/10 A3007 RMK AO2 SLP128 T02500100 10361 20250 403780211 50008 $ KFSW 220635Z AUTO 34003KT 10SM CLR 19/19 A2994 RMK AO2 KFTG 220631Z AUTO 20007KT 10SM CLR 24/13 A3019 RMK AO2 T02380128 KFTK 220556Z AUTO 26007KT 10SM SCT039 OVC090 20/20 A2977 RMK AO2 SLP078 60040 T02030203 10216 20203 57008 KFTN 220635Z AUTO 14010KT 10SM CLR 31/20 A2997 RMK A01 KFTW 220553Z 20013G20KT 10SM CLR 32/16 A2990 RMK AO2 SLP111 T03170156 10400 20317 404220233 51002 KFTY 220553Z 23003KT 10SM CLR 22/21 A2983 RMK AO2 SLP092 T02220211 10272 20222 58000 KFUL 220553Z AUTO 00000KT 10SM CLR 23/17 A3001 RMK AO2 SLP163 T02280167 10300 20228 51022 KFVE 220553Z AUTO 12003KT 10SM CLR 22/12 A3017 RMK AO2 SLP207 T02170117 10278 20211 51004 $ KFVX 220635Z AUTO 00000KT 10SM BKN043 OVC049 18/17 A2976 RMK AO2 T01750171 KFWA 220619Z 02006KT 10SM FEW008 BKN029 OVC075 21/20 A2973 KFWB 220615Z AUTO 00000KT 10SM CLR 20/18 A2997 RMK AO2 KFWC 220635Z AUTO 00000KT 10SM SCT080 SCT095 22/20 A2981 RMK AO1 T02170195 KFWN 220559Z AUTO 03014G23KT 9SM -RA FEW007 OVC012 18/17 A2984 RMK AO2 P0000 T01780167 KFWS 220635Z AUTO 20008KT 10SM CLR 31/16 A2992 RMK AO2 T03070164 KFXE 220553Z 24003KT 10SM CLR 27/24 A2995 RMK AO2 SLP144 60000 T02720244 10306 20272 58006 KFXY 220635Z AUTO 01004KT 10SM CLR 18/17 A3006 RMK AO2 KFYE 220635Z AUTO 00000KT 10SM 23/22 A2985 RMK A01 KFYG 220555Z AUTO 00000KT 10SM FEW027 20/19 A2990 RMK AO2 KFYJ 220635Z AUTO 24006KT 10SM SCT010 SCT014 19/19 A2977 RMK AO1 T01910187 KFYM 220635Z AUTO 00000KT 10SM FEW044 FEW070 23/20 A2985 RMK A01 KFYV 220553Z AUTO 00000KT 10SM CLR 19/18 A2999 RMK AO2 SLP139 T01890183 10328 20189 403390189 50003 KFZG 220635Z AUTO 00000KT 7SM CLR A2985 RMK AO2 PWINO KFZY 220554Z AUTO VRB04KT 10SM CLR 22/11 A2991 RMK AO2 SLP125 T02220111 10250 20222 58018 KGAD 220556Z AUTO 10SM CLR 22/22 A2985 RMK AO2 SLP103 T02170217 10311 20217 403390206 58003 KGAF 220635Z AUTO 14005KT 10SM CLR 17/17 A3011 RMK AO2 PWINO KGAG 220553Z AUTO 14009KT 10SM CLR 28/19 A2999 RMK AO2 SLP121 T02780194 10356 20278 403720239 50005 KGAI 220556Z AUTO 28008KT 10SM OVC004 17/16 A2969 RMK AO2 RAE21 SLP079 P0002 60199 T01670161 10189 20167 55000 KGAO 220635Z AUTO 24008KT 10SM SCT014 28/25 A2993 RMK AO2 T02820250 KGBD 220556Z AUTO 10008KT 10SM CLR 26/19 A3002 RMK AO2 RAB06E35 SLP146 P0000 60000 T02610194 10328 20261 403330200 53000 KGBG 220635Z AUTO 33007KT 10SM CLR 19/18 A2992 RMK AO2 T01900175 KGBK 220635Z AUTO 23008KT 10SM CLR 29/24 A3001 RMK A01 KGCC 220553Z AUTO 22006KT 10SM CLR 19/15 A3006 RMK AO2 SLP121 T01890150 10283 20183 53011 $ KGCD 220635Z AUTO 33004KT 10SM CLR 18/M04 A3018 RMK AO2 T01751037 KGCK 220554Z AUTO 10007KT 10SM CLR 24/18 A3005 RMK AO2 SLP134 T02440183 10333 20244 403390189 53008 KGCM 220635Z AUTO 00000KT 10SM CLR 20/17 A2995 RMK AO2 KGCN 220554Z AUTO 06003KT 10SM CLR 13/12 A3034 RMK AO2 SLP175 60002 T01330122 10167 20133 50004 $ KGCY 220635Z AUTO 20003KT 10SM SCT005 BKN055 OVC085 19/19 A2981 RMK A01 KGDB 220635Z AUTO 00000KT 10SM CLR 19/18 A3011 RMK AO2 T01910180 KGDJ 220635Z AUTO 15003KT 10SM CLR 31/13 A2993 RMK AO2 T03120133 KGDP 220551Z AUTO 06021G27KT 10SM CLR 26/08 A3023 RMK AO2 PK WND 07027/0547 SLP136 T02560078 10333 20250 50006 $ KGDV 220556Z AUTO 14013G18KT 10SM CLR 24/15 A2994 RMK AO2 SLP113 T02390150 10339 20222 50005 KGED 220554Z AUTO 19014G24KT 10SM OVC008 22/22 A2965 RMK AO2 SLP041 60015 T02220217 10239 20222 53026 $ KGEG 220553Z 27006KT 10SM FEW080 19/M02 A3012 RMK AO2 SLP185 FU FEW080 T01941017 10267 20194 53019 KGEU 220050Z 21016G22KT 10SM SKC 38/16 A2987 RMK LAST KGEV 220635Z AUTO 00000KT 10SM BKN080 17/15 A2984 RMK AO2 T01650152 KGEY 220553Z AUTO 21005KT 10SM CLR 23/09 A2997 RMK AO2 SLP097 T02280094 10339 20228 50009 $ KGEZ 220553Z AUTO 31008KT 5SM -RA BR OVC011 21/19 A2971 RMK AO2 RAB52 SLP053 P0000 60000 T02110189 10239 20211 56008 KGFA 220633Z AUTO 33004KT 10SM BKN130 22/01 A3004 RMK AO2 RAB16E22SHRAB22E33 SLP144 $ KGFK 220553Z AUTO 11006KT 10SM BKN045 18/17 A3009 RMK AO2 SLP187 T01830172 10250 20167 402670133 58002 $ KGFL 220553Z AUTO 04007KT 10SM OVC060 19/13 A3002 RMK AO2 SLP162 T01940133 10250 20189 56016 KGGE 220635Z AUTO 21005KT 7SM CLR 23/23 A2979 RMK AO2 LTG DSNT W KGGG 220553Z AUTO 22009KT 10SM CLR 30/21 A2986 RMK AO2 SLP102 T03000206 10378 20300 403890256 58009 KGGI 220635Z AUTO 34004KT 10SM CLR 19/17 A3002 RMK AO2 T01880168 KGGP 220635Z AUTO 33005KT 7SM BKN006 BKN022 OVC050 20/19 A2975 RMK AO2 KGGW 220553Z AUTO 13011KT 10SM CLR 23/17 A2988 RMK AO2 SLP103 T02280167 10311 20217 53012 KGHG 220635Z AUTO 09008KT 050V120 10SM FEW008 OVC014 19/18 A3008 RMK AO2 KGHW 220635Z AUTO 02003KT 10SM CLR 18/17 A3012 RMK AO2 KGIC 220635Z AUTO 19004KT 10SM CLR 11/02 A3019 RMK AO1 KGIF 220553Z AUTO 28003KT 10SM CLR 26/24 A2995 RMK AO2 SLP140 T02610244 10289 20261 58003 KGJT 220553Z AUTO 10007KT 050V120 10SM CLR 26/13 A3014 RMK AO2 LTG DSNT NW SLP122 60006 T02610128 10372 20261 51031 KGKJ 220553Z AUTO 09005KT 10SM BKN075 BKN110 17/14 A2982 RMK AO2 SLP090 T01720144 10222 20172 56014 KGKT 220635Z AUTO 20004KT 10SM FEW029 SCT034 OVC042 21/20 A2979 RMK A01 KGKY 220553Z AUTO 18009G16KT 10SM CLR 32/17 A2990 RMK AO2 SLP113 T03220172 10417 20322 404330244 51000 KGLD 220553Z AUTO 16005KT 10SM -RA SCT090 BKN120 22/19 A3009 RMK AO2 SLP140 P0001 60002 T02170189 10317 20211 58027 KGLE 220635Z AUTO 00000KT 10SM CLR 30/13 A2992 RMK AO2 T03040125 KGLH 220553Z AUTO A2984 RMK AO2 SLPNO 58003 PWINO $ KGLR 220625Z AUTO 05010KT 8SM OVC006 18/18 A2994 RMK AO2 RAE0555 CIG 004V008 P0000 T01780178 KGLS 220552Z AUTO 21009KT 10SM CLR 28/26 A2998 RMK AO2 SLP151 T02830261 10300 20283 403220278 58005 KGLW 220630Z AUTO 00000KT 10SM SCT050 20/18 A2979 RMK AO2 T02030176 KGLY 220615Z AUTO 01005KT 9SM CLR 20/19 A2998 RMK AO2 KGMJ 220635Z AUTO 00000KT 10SM CLR 22/20 A2997 RMK AO2 KGMU 220553Z AUTO 28011KT 10SM BKN004 OVC009 21/21 A2978 RMK AO2 CIG 002V008 SLP074 60005 T02110206 10278 20211 58014 KGNA 220556Z AUTO 00000KT 14/12 A3014 RMK AO1 SLP205 T01390122 10172 20139 402500111 50005 KGNB 220630Z AUTO 00000KT 10SM CLR 12/06 A3045 RMK AO2 T01170063 KGNC 220635Z AUTO 21007KT 10SM CLR 26/08 A3011 RMK AO2 T02560075 KGNR 220556Z AUTO 10003KT 15/12 A3016 RMK AO1 SLP211 T01500122 10217 20144 58003 KGNT 220635Z AUTO 31004KT 10SM CLR 22/09 A3032 RMK AO2 T02180085 KGNV 220627Z AUTO 28005KT 9SM BKN009 26/24 A2990 RMK AO2 PRESRR T02610239 KGOK 220553Z AUTO 09007KT 10SM CLR 27/18 A2995 RMK AO2 SLP126 T02720183 10361 20272 403780267 51002 KGON 220609Z AUTO 08012G22KT 6SM -RA BR OVC004 20/19 A3000 RMK AO2 CIG 003V007 P0000 T02000189 $ KGOO 220635Z AUTO 12003KT 10SM FEW100 23/13 A3013 RMK AO1 KGOP 220635Z AUTO 19008KT 10SM CLR 29/17 A2997 RMK AO2 KGOV 220609Z AUTO 05007KT 6SM BR OVC007 19/18 A2990 RMK AO2 RAB01E09 OVC V BKN SLP127 KGPC 220635Z AUTO 30005KT 10SM BKN010 OVC022 20/18 A2976 RMK AO2 KGPH 220635Z AUTO 00000KT 10SM CLR 20/16 A3000 RMK AO2 KGPI 220555Z AUTO 00000KT 10SM CLR 14/02 A3009 RMK AO2 SLP175 T01440017 10283 20111 51026 KGPM 220635Z AUTO 19011KT 10SM CLR 32/15 A2991 RMK AO2 T03170152 KGPT 220553Z AUTO 26003KT 10SM CLR 28/26 A2989 RMK AO2 SLP120 T02830256 10328 20278 403560272 53001 KGPZ 220556Z AUTO 15004KT 10SM OVC044 18/16 A3017 RMK AO2 SLP216 T01780161 10239 20167 402500144 53008 TSNO KGRB 220553Z AUTO 01012KT 9SM OVC012 19/17 A2995 RMK AO2 SLP141 60001 T01890172 10211 20189 402390183 53001 KGRD 220556Z AUTO 21006KT 10SM FEW090 20/20 A2978 RMK AO2 RAE03 SLP929 P0000 60027 T02000200 10267 20200 $ KGRF 220558Z 32003KT 10SM CLR 18/09 A3018 RMK AO2A SLP223 T01790093 10256 20177 52008 $ KGRI 220553Z AUTO 10006KT 10SM CLR 22/19 A3008 RMK AO2 SLP175 T02220189 10289 20222 403060167 50009 KGRK 220558Z AUTO 18006KT 10SM CLR 29/19 A2996 RMK AO2 SLP131 T02930187 10388 20292 404100242 50001 KGRN 220635Z AUTO 04016G20KT 10SM VCTS OVC026 21/19 A3012 RMK AO2 LTG DSNT NE T02130191 KGRR 220553Z AUTO 03006KT 7SM BKN009 OVC013 21/21 A2981 RMK AO2 SLP092 60057 T02060206 10228 20200 51001 KGRY 220635Z AUTO 28007G14KT 230V360 10SM CLR 30/25 A2998 RMK A01 KGSB 220632Z AUTO 23005KT 9SM BKN008 25/24 A2978 RMK AO2 CIG 007 RWY26 SLP086 $ KGSH 220632Z AUTO 04005KT 6SM -RA BR SCT007 BKN029 OVC035 21/20 A2976 RMK AO2 RAB23 T02060200 PNO $ KGSO 220554Z 11004KT 10SM FEW014 BKN036 BKN045 21/20 A2976 RMK AO2 SLP066 FRQ LTGIC DSNT S CB DSNT S 60127 T02060200 10261 20200 56012 $ KGSP 220553Z AUTO 25005KT 10SM CLR 21/19 A2977 RMK AO2 SLP069 60002 T02060194 10261 20206 56020 KGTB 220556Z AUTO 08006KT 10SM BKN160 19/11 A2996 RMK AO2 SLP142 T01900113 10266 20189 58010 KGTF 220553Z 35005KT 10SM FEW070 FEW090 SCT110 22/M01 A3003 RMK AO2 SLP134 T02171006 10339 20217 51031 KGTR 220556Z AUTO 20003KT 10SM CLR 24/23 A2985 RMK AO2 SLP108 6//// T02390233 10317 20239 403440239 58003 PNO $ KGTU 220556Z 20011KT 10SM CLR 30/22 A2998 RMK AO2 SLP145 T03000222 10383 20300 403940244 50001 KGUC 220556Z AUTO 36006KT 10SM CLR 18/11 A3040 RMK AO2 SLP193 T01780106 10233 20167 403060078 50007 KGUL 220635Z AUTO 25007KT 10SM 29/23 A3001 RMK A01 KGUP 220553Z AUTO 25009KT 10SM CLR 22/09 A3030 RMK AO2 SLP060 60000 T02170094 10350 20217 50026 KGUS 220636Z AUTO 01007KT 10SM -DZ OVC006 20/20 A2973 RMK AO2 DZB0556E0556RAB0556E09DZB36 SLP066 $ KGUY 220553Z AUTO 15007KT 10SM CLR 26/16 A3003 RMK AO2 SLP112 T02610161 10394 20261 404110222 51008 KGVE 220635Z AUTO 00000KT 10SM CLR 18/18 A2973 RMK AO1 T01830177 KGVL 220553Z AUTO 25005KT 10SM CLR 22/22 A2984 RMK AO2 SLP089 60002 T02170217 10289 20217 58001 KGVQ 220556Z AUTO 10006KT 10SM -RA FEW033 BKN049 OVC090 16/15 A2991 RMK AO2 RAB25 SLP145 P0000 60003 T01610150 10200 20161 56019 KGVT 220630Z AUTO 23008KT 10SM CLR 32/15 A2988 RMK AO2 KGWB 220635Z AUTO 03006KT 7SM OVC007 20/20 A2975 RMK AO2 KGWO 220553Z AUTO 00000KT 7SM CLR 26/25 A2984 RMK AO2 SLP103 T02560250 10322 20256 403390217 58004 KGWR 220635Z AUTO 00000KT 6SM BR CLR 17/17 A3009 RMK A01 KGWW 220635Z AUTO 23008KT 10SM BKN008 BKN012 OVC038 25/24 A2980 RMK AO2 T02450243 KGXA 220555Z AUTO 27007KT 10SM CLR 26/13 A3008 RMK AO2 SLP107 WND DATA ESTMD T02610133 10359 20311 51026 PWINO $ KGXF 220558Z 14006KT 9SM CLR 31/20 A2992 RMK AO2A SLP119 T03060204 10362 20304 51009 KGXY 220556Z AUTO 11005KT 10SM CLR 20/16 A3014 RMK AO2 SLP156 60000 T02000161 10300 20194 53004 KGYB 220635Z AUTO 21005KT 10SM CLR 26/23 A2998 RMK AO2 T02590229 KGYH 220635Z AUTO 26005KT OVC004 21/20 A2977 RMK AO2 PWINO KGYI 220635Z AUTO 28004KT 10SM CLR 32/17 A2990 RMK AO2 T03150165 KGYL 220635Z AUTO 00000KT 10SM CLR 19/19 A3010 RMK AO2 T01920192 KGYR 220347Z 23011KT 10SM FEW080 SCT250 33/15 A2991 RMK LAST KGYY 220635Z AUTO 03008KT 7SM -RA SCT011 SCT016 BKN031 22/21 A2979 RMK AO2 P0002 T02160210 KGZH 220553Z AUTO 00000KT 10SM CLR 27/25 A2986 RMK AO2 RAE0454 SLP108 P0000 60001 T02670250 10328 20267 403560250 58006 KGZL 220635Z AUTO 36003KT 10SM CLR 24/16 A2992 RMK AO2 KGZN 220620Z AUTO 20008KT 10SM CLR 30/11 A2999 RMK AO2 KGZS 220635Z AUTO 00000KT 10SM FEW036 SCT042 BKN065 20/20 A2984 RMK A01 KHAE 220635Z AUTO 34005KT 10SM CLR 22/17 A2993 RMK AO2 KHAF 220640Z AUTO 23003KT 5SM BR OVC004 15/14 A3008 RMK AO2 KHAI 220635Z AUTO 00000KT 4SM RA SCT005 BKN020 OVC060 A2978 RMK AO2 KHAO 220627Z AUTO 00000KT 9SM SCT011 OVC016 22/21 A2968 RMK AO2 T02170206 KHBG 220553Z AUTO 25004KT 10SM CLR 28/23 A2989 RMK AO2 SLP117 T02830228 10333 20283 403560256 58002 TSNO KHBI 220625Z AUTO 17003KT 10SM -DZ BKN050 BKN075 OVC120 22/21 A2978 RMK AO2 T02180206 KHBR 220553Z AUTO 09008KT 7SM CLR 29/20 A2996 RMK AO2 SLP120 T02890200 10417 20289 404390206 51009 $ KHBV 220635Z AUTO 00000KT 7SM CLR 26/22 A3000 RMK AO2 T02610219 KHCD 220635Z AUTO 03005KT 10SM CLR 20/18 A3011 RMK AO2 T01960184 KHCO 220635Z AUTO 11008KT 10SM CLR 18/17 A3009 RMK AO2 KHCR 220635Z AUTO 00000KT 10SM CLR 18/14 A3026 RMK AO2 KHDC 220635Z AUTO 28007KT 10SM CLR 27/23 A2991 RMK AO2 KHDE 220635Z AUTO 00000KT 10SM CLR 22/20 A3013 RMK AO2 LTG DSNT S T02160200 KHDN 220556Z AUTO 07005KT 10SM CLR 20/08 A3029 RMK AO2 SLP150 60000 T02000083 10300 20189 403280167 51013 KHDO 220551Z AUTO 15010KT 10SM CLR 29/24 A3000 RMK AO2 SLP140 T02940244 10389 20294 404060228 51013 KHEF 220556Z AUTO 29006KT 10SM FEW008 OVC017 17/17 A2972 RMK AO2 SLP072 6//// T01720167 10189 20172 53002 PNO $ KHEI 220623Z AUTO 09023G32KT 10SM FEW007 OVC025 18/17 A3006 RMK AO2 PK WND 08032/0619 T01830167 KHEQ 220630Z AUTO 22004KT 10SM CLR 22/18 A3009 RMK AO2 KHEZ 220556Z AUTO 22007KT 10SM CLR 28/23 A2991 RMK AO2 SLP127 T02780233 10328 20278 55000 KHFD 220553Z AUTO VRB06KT 10SM OVC016 19/16 A3000 RMK AO2 SLP158 T01940161 10228 20194 56013 KHFF 220640Z AUTO 14003KT 10SM BKN130 21/20 A2973 RMK AO2 LTG DSNT W-N SLP079 $ KHFJ 220630Z AUTO 22003KT 10SM CLR 18/17 A2998 RMK AO2 KHFY 220635Z AUTO 31005G09KT 10SM BKN016 OVC021 20/19 A2973 RMK AO2 T02030187 KHGR 220641Z AUTO 30007KT 10SM BKN004 BKN010 OVC019 17/16 A2968 RMK AO2 RAE14 CIG 003V009 P0001 T01720161 KHHF 220635Z AUTO 00000KT 10SM CLR 26/19 A3001 RMK AO2 T02590191 KHHG 220635Z AUTO 02003KT 7SM OVC005 A2973 RMK AO2 KHHR 220613Z AUTO 22006KT 10SM BKN012 21/18 A3003 RMK AO2 T02060178 KHHV 220635Z AUTO 20007G12KT 170V240 10SM CLR 29/24 A3000 RMK A01 KHHW 220635Z AUTO 00000KT 10SM CLR 30/20 A2988 RMK AO2 T02970201 KHIB 220640Z AUTO 00000KT 3/4SM BR VV003 12/12 A3017 RMK AO2 T01220122 KHIE 220552Z AUTO 03003KT 10SM CLR 12/10 A3014 RMK AO2 SLP203 T01170100 10233 20117 58003 KHIF 220558Z AUTO 18019KT 10SM FEW110 26/11 A3016 RMK AO2 PK WND 17026/07 SLP141 T02600106 10344 20252 50029 KHII 220635Z AUTO 00000KT 10SM CLR 30/18 A2994 RMK AO2 KHIO 220553Z 29006KT 10SM CLR 18/12 A3014 RMK AO2 SLP205 T01780117 10267 20178 51014 KHJH 220635Z AUTO 00000KT 10SM CLR 21/19 A3007 RMK AO2 LTG DSNT W T02100193 KHJO 220553Z AUTO 32011KT 10SM CLR 31/18 A2993 RMK AO2 SLP135 T03060183 10372 20306 51019 KHKA 220553Z AUTO 35004KT 10SM CLR 22/19 A2986 RMK AO2 SLP109 T02220194 10317 20222 403390222 58001 $ KHKS 220553Z AUTO 27008KT 10SM BKN085 28/24 A2987 RMK AO2 SLP104 T02830244 10328 20278 403500239 58003 $ KHKY 220553Z AUTO 19003KT 10SM CLR 21/19 A2976 RMK AO2 SLP055 T02060194 10222 20206 56013 KHLB 220635Z AUTO VRB05KT 10SM OVC005 20/20 A2969 RMK A01 KHLC 220553Z AUTO 22006KT 10SM CLR 24/20 A3009 RMK AO2 RAB17E28 SLP164 P0000 60000 T02440200 10300 20244 403280189 53018 TSNO KHLG 220553Z AUTO 06004KT 10SM CLR 18/15 A2977 RMK AO2 SLP075 T01780150 10233 20178 57013 KHLN 220553Z AUTO 27008KT 10SM FEW120 22/M03 A3007 RMK AO2 SLP159 T02221033 10333 20211 51033 KHLR 220558Z AUTO 20009KT 10SM CLR 30/19 A2993 RMK AO2 SLP120 T03000189 10386 20299 404120243 50000 KHLX 220635Z AUTO 00000KT 2 1/2SM BR SCT002 OVC110 17/16 A2983 RMK AO2 VIS 1V5 T01650159 KHMN 220558Z AUTO 14014KT 10SM CLR 31/04 A3010 RMK AO2 SLP107 T03050042 10390 20286 50014 $ KHMP 220635Z AUTO 00000KT 10SM 19/18 A2985 RMK AO2 T01910181 KHMZ 220635Z AUTO 31006KT 10SM -DZ SCT007 OVC015 15/15 A2975 RMK AO2 T01510147 KHNB 220556Z AUTO 28005KT 10SM SCT034 BKN047 OVC055 21/20 A2978 RMK AO2 RAB29E51 SLP082 P0001 60002 T02060200 10244 20206 56007 KHND 220556Z AUTO 00000KT 10SM CLR 27/17 A3006 RMK AO2 SLP153 60000 T02670172 10300 20261 51012 $ KHNR 220635Z AUTO 01004KT 10SM 17/17 A3007 RMK AO2 KHNZ 220635Z AUTO 08004KT 10SM SCT019 BKN036 OVC100 19/19 A2979 RMK AO2 T01920185 KHOB 220635Z AUTO 18008KT 10SM CLR 26/07 A3012 RMK AO2 KHOE 220635Z AUTO 17003KT 7SM CLR 24/23 A2984 RMK AO2 KHON 220555Z AUTO 12008KT 10SM CLR 20/17 A3008 RMK AO2 SLP179 T02000172 10261 20200 402720139 51007 KHOP 220556Z AUTO 29005KT 10SM CLR 22/19 A2983 RMK AO2 SLP098 T02190187 10273 20219 402990219 57005 KHOT 220553Z AUTO 00000KT 10SM CLR 28/23 A2990 RMK AO2 SLP118 T02830233 10378 20278 403830256 53006 KHOU 220553Z 21008KT 9SM SCT250 27/26 A2997 RMK AO2 SLP151 T02720261 10344 20272 403610261 58001 $ KHPN 220556Z 09014G28KT 6SM -RA BR OVC003 19/19 A2989 RMK AO2 PK WND 10028/0554 SLP116 P0020 60039 T01940189 10200 20172 56023 KHPT 220635Z AUTO 34005KT 10SM CLR 17/17 A3004 RMK AO2 KHQG 220635Z AUTO 15008KT 10SM CLR 26/18 A3004 RMK AO2 T02580181 KHQI 220635Z AUTO 20012KT 10SM CLR 29/26 A2997 RMK A01 KHQM 220639Z AUTO 24004KT 6SM BR SCT006 13/12 A3022 RMK AO2 T01330122 KHQU 220635Z AUTO 00000KT 10SM CLR 21/21 A2984 RMK AO2 T02100206 KHQZ 220635Z AUTO 21010G15KT 10SM CLR 31/17 A2989 RMK AO1 T03100167 KHRI 220553Z AUTO 13003KT 10SM CLR 19/05 A3006 RMK AO2 SLP175 T01890050 10317 20178 51021 KHRJ 220635Z AUTO 07003KT 10SM CLR 21/21 A2974 RMK AO2 P0001 T02080208 KHRL 220552Z 16008KT 8SM CLR 26/25 A2998 RMK AO2 SLP151 T02610250 10333 20261 403720250 50004 KHRO 220553Z AUTO 28003KT 10SM CLR 20/17 A2999 RMK AO2 SLP137 T02000172 10322 20200 403440200 51001 $ KHRT 220556Z 00000KT 10SM FEW150 29/26 A2986 RMK AO2A SLP113 T02890255 10301 20288 403520282 58003 $ KHRX 220635Z AUTO 18006KT 10SM CLR 24/08 A3012 RMK AO2 T02430082 KHSA 220155Z 00000KT 7SM SKC 27/25 A2989 KHSB 220635Z AUTO 28007KT 10SM CLR 21/20 A2984 RMK AO2 T02100195 KHSD 220635Z AUTO 09005KT 10SM CLR 28/20 A2995 RMK A01 KHSE 220551Z AUTO 21008KT 10SM CLR 26/24 A2982 RMK AO2 SLP096 T02610244 10267 20261 58001 KHSG 220635Z AUTO 21010KT 10SM CLR 22/05 A3007 RMK AO2 T02180046 KHSI 220553Z AUTO 10007KT 10SM CLR 23/18 A3009 RMK AO2 SLP169 T02330183 10289 20228 403000167 50007 KHSP 220633Z AUTO 20003KT 7SM CLR 16/16 A2986 RMK AO2 KHST 220556Z AUTO 22005KT 10SM CLR 26/24 A2995 RMK AO2 SLP145 T02610241 10305 20261 57009 VISNO RWY24 $ KHSV 220633Z AUTO 30003KT 2 1/2SM HZ BKN060 24/21 A2984 KHTL 220614Z AUTO 04007KT 10SM BKN007 OVC032 19/18 A2990 KHTO 220635Z AUTO 10012G18KT 3SM -RA OVC003 20/19 A2996 RMK AO2 P0001 T01980194 KHTS 220551Z 18004KT 10SM BKN037 OVC070 19/18 A2973 RMK AO2 SLP058 60009 T01940183 10228 20189 58012 KHUA 220558Z AUTO 00000KT 10SM BKN060 OVC085 24/20 A2984 RMK AO2 SLP098 T02350197 10298 20226 403310226 56005 KHUF 220638Z 28007KT 10SM FEW028 SCT035 OVC060 21/19 A2977 RMK AO2 T02060194 KHUM 220635Z AUTO 25005KT 7SM CLR 27/26 A2993 RMK AO2 T02660255 KHUT 220552Z AUTO 06007KT 10SM CLR 26/18 A3002 RMK AO2 SLP139 T02610183 10322 20222 403390194 52011 KHVE 220635Z AUTO 19005KT 10SM CLR 23/14 A3016 RMK AO2 KHVN 220553Z AUTO 09016G28KT 10SM OVC006 21/19 A2996 RMK AO2 PK WND 09028/0550 SLP145 60008 T02060194 10211 20189 56018 KHVR 220553Z AUTO 34009KT 10SM FEW110 26/00 A2991 RMK AO2 SLP107 T02610000 10333 20256 51021 $ KHVS 220635Z AUTO 23003KT 7SM TS SCT031 SCT046 SCT055 23/22 A2975 RMK AO2 LTG DSNT W THRU N KHWD 220554Z 33007KT 10SM OVC010 18/14 A3004 RMK AO2 SLP183 T01780144 10228 20178 53006 KHWO 220553Z AUTO 00000KT 10SM CLR 28/23 A2997 RMK AO2 SLP148 T02830233 10289 20272 58004 KHWV 220638Z AUTO 11008G20KT 080V140 5SM RA BR OVC006 22/22 A2990 RMK AO2 CIG 003V008 P0012 T02170217 KHWY 220635Z AUTO 28003KT 10SM OVC027 18/16 A2972 RMK AO2 T01800157 KHXD 220635Z AUTO VRB05KT 10SM CLR 25/22 A2981 RMK AO2 KHYA 220625Z 10007G15KT 1 1/2SM BR OVC002 19/19 A3006 RMK AO2 T01940189 KHYI 220556Z AUTO 19008KT 4SM HZ CLR 27/24 A3001 RMK AO2 SLP149 T02720244 10367 20272 403830233 51010 $ KHYR 220553Z AUTO 04012KT 10SM OVC013 17/16 A3011 RMK AO2 SLP194 T01670156 10211 20156 402500156 56003 KHYS 220556Z AUTO 10007KT 10SM CLR 25/19 A3004 RMK AO2 RAE00 SLP154 P0000 60000 T02500194 10317 20250 403280194 53007 KHYW 220635Z AUTO 00000KT 5SM BR SCT011 23/23 A2976 RMK AO2 KHYX 220635Z AUTO 07006KT 10SM OVC045 20/18 A2982 RMK AO2 KHZD 220635Z AUTO 00000KT 10SM CLR 21/20 A2985 RMK A01 KHZE 220635Z AUTO 15012KT 10SM CLR 19/17 A2998 RMK AO2 KHZL 220635Z AUTO 07008G18KT 040V110 5SM RA OVC007 17/16 A2973 RMK AO2 P0008 KHZR 220635Z AUTO 23005KT 10SM CLR 26/24 A2992 RMK AO2 T02560242 KHZX 220635Z AUTO 00000KT 10SM CLR 16/15 A3015 RMK AO2 KHZY 220553Z AUTO 09004KT 10SM FEW120 19/16 A2982 RMK AO2 SLP092 T01890156 10239 20189 58006 KI16 220635Z AUTO 10SM OVC002 18/18 A2982 RMK AO2 T01800175 KI19 220559Z AUTO 00000KT 2 1/2SM BR OVC002 19/18 A2972 RMK AO2 KI23 220635Z AUTO 00000KT 5SM BKN001 OVC013 19/19 A2971 RMK AO1 KI35 220635Z AUTO 5SM SCT004 BKN008 OVC015 19/19 A2979 RMK AO2 T01940191 KI63 220635Z AUTO 33006KT 10SM CLR 19/19 A2990 RMK AO2 T01930185 KI67 220635Z AUTO 00000KT 10SM OVC008 21/18 A2966 RMK AO1 KI69 220635Z AUTO 00000KT 7SM -RA BKN008 OVC015 21/21 A2969 RMK AO2 P0001 T02050205 KI75 220635Z AUTO 30004KT 10SM CLR 20/18 A3002 RMK AO2 T01960177 KIAB 220556Z AUTO 09008KT 10SM CLR 27/17 A3000 RMK AO2 SLP146 T02690165 10335 20254 403460216 50007 KIAD 220613Z COR 29011KT 10SM -RA FEW008 OVC013 17/17 A2970 RMK AO2 RAB04 P0000 T01670167 $ KIAG 220553Z AUTO 09003KT 10SM OVC040 16/13 A2987 RMK AO2 RAE47 SLP112 P0005 60013 T01560133 10244 20150 58016 $ KIAH 220553Z 22006KT 10SM BKN250 28/24 A2997 RMK AO2 SLP146 T02830239 10356 20283 403720267 51003 KIBM 220635Z AUTO 22003KT 10SM CLR 19/16 A3014 RMK AO2 T01900159 KICL 220635Z AUTO 00000KT 10SM CLR 18/17 A3006 RMK AO2 KICR 220553Z AUTO 14010KT 10SM CLR 22/17 A3007 RMK AO2 SLP166 T02220172 10278 20222 402940156 51008 KICT 220553Z 06008KT 10SM SCT100 BKN200 27/18 A2999 RMK AO2 SLP137 T02720183 10344 20272 403610222 51005 $ KIDA 220553Z AUTO 22010KT 10SM CLR 21/09 A3009 RMK AO2 SLP141 T02110094 10328 20200 51015 KIDI 220635Z AUTO 05005KT 9SM BKN008 OVC011 16/16 A2981 RMK A01 KIDP 220635Z AUTO 02008KT 10SM CLR 22/19 A2998 RMK AO2 T02170191 KIEN 220609Z AUTO 09016G21KT 10SM FEW032 20/19 A3008 RMK AO2 LTG DSNT NE AND E TSB0553E08 T02000189 KIER 220635Z AUTO 22007KT 10SM CLR 27/24 A2988 RMK AO2 T02700236 KIFA 220635Z AUTO 35004KT 10SM CLR 18/17 A3005 RMK AO2 T01790167 KIFP 220635Z AUTO 36006KT 10SM CLR 28/20 A2994 RMK AO2 KIGM 220551Z AUTO 18004KT 10SM CLR 22/20 A3014 RMK AO2 SLP144 T02170200 10261 20217 51010 $ KIGQ 220635Z AUTO 36005KT 10SM OVC011 21/21 A2979 RMK AO2 T02050205 KIIB 220635Z AUTO 33005KT 10SM 17/16 A3000 RMK AO2 T01670160 KIJD 220608Z AUTO 08005KT 9SM OVC014 19/16 A3003 RMK AO2 T01890161 KIJX 220635Z AUTO 33006KT 10SM CLR 20/18 A2988 RMK AO2 T01980181 KIKG 220635Z AUTO 14003KT 7SM CLR 27/27 A2998 RMK AO2 T02700265 KIKK 220635Z AUTO 32010KT 10SM BKN008 OVC017 20/20 A2979 RMK AO2 T02010195 KIKT 220640Z AUTO 28011G22KT 10SM FEW016 30/26 A2994 RMK A01 KIKV 220635Z AUTO 35007KT 10SM CLR 21/17 A3003 RMK AO2 KIKW 220635Z AUTO 04006KT 10SM SCT016 OVC023 20/20 A2983 RMK AO2 T02030196 KILE 220556Z AUTO 20009KT 10SM CLR 29/20 A2996 RMK AO2 SLP141 T02940200 10389 20294 404170244 51001 KILG 220639Z AUTO 14014G21KT 1 3/4SM -RA BR OVC006 23/23 A2961 RMK AO2 PK WND 13028/0607 RAB0553RAEMMB04RAEMMB38 P0001 T02330228 $ KILM 220553Z AUTO 17005KT 10SM CLR 25/23 A2978 RMK AO2 SLP084 T02500228 10272 20250 58005 KILN 220613Z AUTO 11004KT 3/4SM BR VV002 19/19 A2970 RMK AO2 T01890189 KIML 220553Z AUTO 16011KT 10SM -RA FEW095 SCT110 22/20 A3006 RMK AO2 SLP144 P0002 60002 T02220200 10289 20222 58001 KIMM 220635Z AUTO RMK AO2 PNO PWINO TSNO KIMS 220635Z AUTO 27007KT 10SM SCT009 BKN023 OVC031 20/19 A2973 RMK AO1 KIMT 220640Z AUTO 36012KT 8SM BKN011 BKN120 17/16 A3001 RMK AO2 T01720156 KIND 220620Z 30011KT 7SM -RA BKN013 OVC018 21/19 A2973 RMK AO2 RAB13 P0000 T02060189 $ KINF 220635Z AUTO 19003KT 10SM CLR 25/25 A2989 RMK AO2 KINJ 220635Z AUTO 18007KT 10SM CLR 29/19 A2992 RMK AO2 T02920187 KINK 220553Z AUTO 16007KT 10SM CLR 28/08 A3004 RMK AO2 SLP117 T02830083 10383 20283 404000217 51012 $ KINL 220555Z AUTO 10006KT 10SM CLR 18/16 A3018 RMK AO2 SLP219 T01780156 10222 20178 402390178 55000 KINS 220558Z AUTO 09010KT 10SM CLR 27/12 A3007 RMK AO2 SLP128 T02720124 10334 20272 51012 $ KINT 220554Z AUTO 11004KT 10SM FEW030 20/20 A2977 RMK AO2 SLP069 60023 T02000200 10283 20200 58013 KINW 220556Z AUTO 27006KT 10SM CLR 24/12 A3021 RMK AO2 SLP141 T02390122 10356 20239 50019 KIOB 220635Z AUTO 26004KT 5SM +DZ BKN005 OVC010 20/20 A2973 RMK AO2 P0003 KIOW 220552Z AUTO 35009KT 10SM CLR 21/17 A2996 RMK AO2 SLP141 T02110172 10272 20211 402780194 50003 $ KIPJ 220625Z AUTO 00000KT 10SM SCT044 BKN050 21/18 A2976 RMK AO2 T02080183 KIPL 220553Z AUTO 29004KT 10SM CLR 33/14 A2984 RMK AO2 SLP106 T03330144 10406 20333 51016 KIPT 220625Z AUTO 25005KT 4SM RA BR OVC017 16/15 A2973 RMK AO2 P0014 T01610150 KIRK 220555Z AUTO 34008KT 10SM CLR 22/18 A2998 RMK AO2 SLP146 T02170183 10283 20206 403000183 58001 KIRS 220635Z AUTO 04006KT 5SM BR BKN004 OVC010 20/19 A2977 RMK AO2 T01960192 KISM 220156Z 26004KT 10SM CLR 27/24 A2993 KISN 220552Z AUTO 17014G20KT 10SM CLR 21/17 A2993 RMK AO2 SLP124 60004 T02110167 10222 20206 403060178 50000 KISO 220635Z AUTO 20006KT 7SM BKN007 OVC050 25/24 A2980 RMK AO2 T02460237 KISP 220556Z AUTO 09017G24KT 9SM -RA OVC005 22/22 A2989 RMK AO2 PK WND 09027/0515 SLP123 P0006 60023 T02170217 10217 20189 56021 KISQ 220635Z AUTO 01005KT 7SM -RA SCT004 BKN042 OVC065 18/17 A2996 RMK AO2 T01810172 KISW 220554Z AUTO 02011KT 10SM CLR 18/14 A3001 RMK AO2 SLP157 T01780144 10217 20178 402670178 50004 TSNO KITH 220622Z AUTO VRB05KT 9SM -RA SCT028 BKN065 OVC080 16/14 A2987 RMK AO2 P0002 KITR 220553Z AUTO 15006KT 10SM CLR 19/17 A3012 RMK AO2 SLP138 P0005 60063 T01940172 10317 20189 58022 KIWA 220547Z 30008KT 20SM SKC 34/14 A2996 KIWD 220556Z AUTO 03006KT 8SM OVC003 14/13 A3013 RMK AO2 SLP204 6//// T01390133 10178 20133 401780133 50000 PNO $ KIWI 220553Z AUTO 00000KT 10SM CLR 12/11 A3017 RMK AO2 SLP215 T01170111 10200 20117 58004 KIXA 220635Z AUTO 00000KT 10SM SCT033 SCT043 SCT055 19/19 A2978 RMK AO2 P0001 KIXD 220553Z AUTO 02008KT 10SM CLR 23/19 A3001 RMK AO2 SLP150 T02330189 10311 20222 403390194 52004 KIYA 220635Z AUTO 23004KT 10SM CLR 26/26 A2994 RMK AO2 T02590259 KIZA 220635Z AUTO 00000KT 10SM CLR 16/13 A3007 RMK AO2 KIZG 220636Z AUTO 23003KT 2SM BR SCT002 10/10 A3015 RMK AO2 T01000100 $ KJAC 220556Z AUTO 00000KT 10SM CLR 12/08 A3024 RMK AO2 SLP188 T01220083 10256 20122 51009 KJAN 220554Z 22004KT 10SM SCT080 SCT100 28/24 A2986 RMK AO2 SLP108 T02780239 10328 20272 403440244 58003 KJAQ 220615Z AUTO 00000KT 10SM CLR 23/10 A3005 RMK AO1 T02320103 KJAS 220635Z AUTO 20004KT 10SM CLR 26/25 A2995 RMK AO2 T02620250 PWINO KJAU 220635Z AUTO 00000G10KT 10SM SCT041 BKN080 OVC100 21/19 A2982 RMK A01 KJAX 220638Z 21003KT 10SM SCT012 BKN090 BKN250 24/23 A2985 KJBR 220553Z AUTO VRB06KT 10SM CLR 26/20 A2987 RMK AO2 SLP110 T02610200 10322 20261 403390261 58001 KJCA 220635Z AUTO 24004KT 10SM CLR 21/21 A2981 RMK AO2 T02140209 KJCT 220551Z AUTO 18009KT 10SM CLR 30/17 A3003 RMK AO2 SLP125 T03000167 10383 20300 404060222 50006 KJDD 220635Z AUTO 23007KT 10SM CLR 31/18 A2987 RMK AO2 KJDN 220548Z AUTO 10006KT 24/16 A2989 RMK AO1 SLP097 T02440161 10350 20244 50015 KJEF 220553Z 29003KT 10SM CLR 22/18 A2994 RMK AO2 SLP123 T02170183 10294 20217 403110200 51006 KJER 220553Z AUTO 16003KT 10SM CLR 25/05 A3006 RMK AO2 SLP135 T02500050 10339 20239 53014 KJES 220118Z AUTO 00000KT 10SM CLR 24/21 A2985 RMK AO2 KJFK 220551Z 09020G32KT 3SM -RA BR BKN007 OVC047 22/22 A2982 RMK AO2 PK WND 10032/0541 SLP099 P0004 60060 T02220222 10222 20194 58030 KJFX 220635Z AUTO 00000KT 10SM 21/22 A2985 RMK AO2 PWINO KJFZ 220635Z AUTO 25004KT 10SM SCT002 BKN021 OVC027 16/16 A2983 RMK AO2 T01620157 KJGG 220635Z AUTO 00000KT 10SM CLR 21/18 A2978 RMK AO1 KJHN 220635Z AUTO 01009KT 10SM CLR 26/18 A3009 RMK AO2 T02600183 KJHW 220556Z AUTO 10008KT 10SM RA FEW013 BKN041 OVC050 15/14 A2985 RMK AO2 SLP105 P0008 60009 T01500139 10194 20150 58024 KJKA 220635Z AUTO 29007G17KT 270V360 10SM CLR 29/27 A2988 RMK AO2 T02910265 KJKJ 220635Z AUTO 08004KT 10SM CLR 18/17 A3010 RMK AO2 KJKL 220633Z AUTO 00000KT 1 1/4SM -RA BR OVC002 19/18 A2975 RMK AO2 RAB07 P0003 T01890183 $ KJLN 220553Z AUTO 00000KT 10SM CLR 21/18 A2997 RMK AO2 SLP138 T02110178 10333 20206 403500206 53003 KJMR 220636Z AUTO 00000KT 10SM CLR 16/15 A3014 RMK AO2 KJMS 220556Z AUTO 13006KT 10SM CLR 18/17 A3009 RMK AO2 SLP185 60000 T01830172 10222 20178 402390144 58004 KJNX 220635Z AUTO 22010G15KT 10SM +TSRA SCT018 BKN041 OVC060 21/21 A2981 RMK AO2 LTG DSNT ALQS P0007 KJOT 220635Z AUTO 35006KT 10SM BKN016 OVC023 22/20 A2981 RMK AO2 T02170197 KJQF 220640Z AUTO 00000KT 10SM SCT037 BKN046 BKN110 21/20 A2977 RMK AO2 LTG DSNT E AND SE KJRB 220635Z AUTO RMK AO2 PWINO PNO FZRANO RVRNO KJSL 220640Z AUTO VRB04G11KT 9SM CLR 30/23 A2999 RMK A01 KJSO 220635Z AUTO 21005KT 10SM CLR 27/21 A2993 RMK AO2 T02800212 KJST 220642Z AUTO 05004KT 10SM OVC002 14/13 A2977 RMK AO2 RAE29 P0001 T01440133 KJSV 220635Z AUTO 00000KT 10SM CLR 22/17 A2992 RMK AO2 KJTC 220635Z AUTO 28004KT 10SM FEW095 FEW120 20/14 A3040 RMK AO2 KJVL 220635Z AUTO 01008KT 7SM BKN009 OVC014 20/20 A2989 RMK AO2 KJVW 220635Z AUTO 28004KT 7SM CLR 27/25 A2986 RMK AO2 KJWG 220635Z AUTO 00000KT 10SM CLR 26/21 A2998 RMK AO2 T02580211 KJWN 220635Z AUTO 00000KT 10SM CLR 22/19 A2981 RMK A01 KJWY 220635Z AUTO 20009KT 10SM CLR 31/19 A2992 RMK AO2 T03050185 KJXI 220635Z AUTO 20005KT 10SM SCT110 A2987 RMK AO2 KJXN 220634Z AUTO 03005KT 10SM SCT007 BKN032 OVC042 20/19 A2979 RMK AO2 T02000194 KJYG 220637Z AUTO 36003KT 10SM CLR 18/17 A3009 RMK AO2 KJYL 220635Z AUTO 22003KT 10SM SCT016 24/23 A2981 RMK AO2 T02370233 KJYM 220635Z AUTO 04004KT 3SM BR SCT005 BKN022 OVC037 18/18 A2977 RMK AO2 P0001 KJYO 220635Z AUTO 31009KT 10SM SCT007 OVC018 15/15 A2971 RMK AO2 KJYR 220635Z AUTO 09006KT 10SM CLR 20/18 A3008 RMK AO2 KJZP 220635Z AUTO 33003KT 10SM CLR 21/20 A2987 RMK AO2 T02110197 PNO KK88 220635Z AUTO 00000KT 10SM 21/17 A3001 RMK AO1 T02050166 KKLS 220556Z AUTO 07003KT 10SM CLR 17/12 A3018 RMK AO2 SLP224 T01670122 10244 20167 51012 KKY8 220635Z AUTO 25004KT 10SM 22/22 A2977 RMK A01 KL08 220635Z AUTO 33011KT 10SM CLR 33/16 A2990 RMK AO2 KL18 220635Z AUTO 00000KT 10SM CLR 19/17 A3005 RMK AO2 KL35 220635Z AUTO 00000KT 10SM CLR 15/10 A3037 RMK AO2 KL52 220635Z AUTO 13003KT 10SM BKN010 16/15 A3006 RMK A01 KLAA 220553Z AUTO 09018G27KT 10SM CLR 27/18 A3005 RMK AO2 PK WND 09030/0543 SLP114 T02720178 10344 20267 50007 $ KLAF 220634Z AUTO 32009KT 7SM BKN007 OVC014 20/19 A2975 RMK AO2 CIG 006V011 T02000194 KLAL 220335Z AUTO 28003KT 10SM CLR 26/25 A2997 RMK AO2 KLAM 220635Z AUTO 20005KT 10SM CLR 24/M01 A3037 RMK AO2 T02411007 KLAN 220553Z 04005KT 8SM BKN012 BKN055 OVC095 20/19 A2980 RMK AO2 SLP088 60000 T02000194 10211 20200 58002 KLAR 220553Z AUTO 14004KT 10SM CLR 13/12 A3031 RMK AO2 SLP137 60000 T01330117 10206 20133 53005 $ KLAS 220556Z 00000KT 10SM SCT130 BKN180 28/17 A3002 RMK AO2 SLP136 T02830167 10317 20283 50013 $ KLAW 220553Z AUTO 05005KT 10SM CLR 28/21 A2993 RMK AO2 SLP118 T02830211 10428 20283 404440228 51008 KLAX 220553Z 21006KT 10SM BKN011 BKN200 21/18 A3002 RMK AO2 SLP164 T02110178 10233 20206 52020 KLBB 220553Z 17009KT 10SM SCT250 28/07 A3008 RMK AO2 SLP122 T02830072 10378 20272 403940228 51009 KLBE 220635Z AUTO 02005KT 10SM SCT017 OVC065 17/16 A2978 RMK AO2 KLBF 220553Z AUTO 13008KT 10SM CLR 23/23 A3008 RMK AO2 SLP154 T02330228 10294 20228 403110200 50007 KLBL 220556Z AUTO 13008KT 10SM CLR 26/19 A3004 RMK AO2 SLP133 T02560194 10356 20256 403720200 51007 KLBO 220635Z AUTO 30004KT 10SM CLR 21/18 A2998 RMK AO2 KLBT 220554Z AUTO 16003KT 10SM CLR 24/22 A2975 RMK AO2 SLP073 T02440222 10300 20244 58009 KLBX 220553Z AUTO 21003KT 9SM CLR 26/24 A2998 RMK AO2 SLP152 T02610244 10317 20261 403500250 58003 KLCG 220635Z AUTO 00000KT 7SM CLR 17/16 A3009 RMK AO2 T01650158 KLCH 220553Z AUTO 24009KT 10SM CLR 29/26 A2994 RMK AO2 SLP146 T02890256 10317 20289 403500272 56002 $ KLCI 220556Z AUTO 00000KT 10SM CLR 13/12 A3014 RMK AO2 SLP218 T01330122 10206 20122 58010 KLCK 220635Z AUTO 06004KT 4SM BR SCT025 17/18 A2970 RMK AO2 T01740175 KLCQ 220635Z AUTO 23003KT 7SM OVC005 25/24 A2987 RMK AO2 KLDJ 220635Z AUTO 12025G35KT 4SM -RA SCT012 BKN018 OVC024 23/22 A2975 RMK AO2 P0002 T02280215 KLDM 220635Z AUTO 03005KT 10SM OVC005 19/19 A2985 RMK AO2 T01930186 KLEB 220553Z AUTO 00000KT 10SM CLR 14/12 A3010 RMK AO2 SLP185 T01440117 10228 20139 56008 KLEE 220553Z AUTO 23006KT 10SM CLR 26/24 A2991 RMK AO2 SLP127 60000 T02610244 10272 20250 58013 KLEW 220556Z AUTO 00000KT 10SM CLR 12/11 A3016 RMK AO2 SLP226 T01170111 10200 20111 56005 KLEX 220633Z 24008KT 10SM BKN010 BKN019 OVC040 21/19 A2973 KLFI 220556Z 31007KT 10SM CLR 20/19 A2977 RMK AO2A SLP088 60000 T02030193 10216 20203 52016 $ KLFK 220553Z AUTO 21005KT 10SM CLR 27/24 A2992 RMK AO2 SLP125 T02670244 10344 20267 403670228 58007 TSNO $ KLFT 220553Z AUTO 24007KT 10SM CLR 28/25 A2994 RMK AO2 SLP137 T02780250 10333 20278 403560267 58003 KLGA 220629Z 09024G32KT 8SM -RA FEW008 BKN012 OVC045 23/21 A2979 RMK AO2 PK WND 09032/0620 P0004 T02330211 $ KLGB 220553Z 17003KT 10SM CLR 22/17 A3002 RMK AO2 SLP164 T02220172 10272 20222 51021 KLGC 220635Z AUTO 00000KT 10SM CLR 22/22 A2984 RMK AO2 T02220220 KLGD 220556Z AUTO 30008KT 10SM CLR 15/01 A3017 RMK AO2 SLP347 T01500011 10278 20150 51018 KLGU 220551Z AUTO 06007KT 10SM SCT110 24/12 A3013 RMK AO2 RAB12E22 SLP137 P0000 60000 T02440117 10350 20233 51031 KLHB 220635Z AUTO 00000KT 10SM CLR 26/22 A2996 RMK AO2 T02560220 KLHM 220635Z AUTO 15012KT 10SM CLR 26/09 A2995 RMK AO1 KLHQ 220629Z AUTO 06003KT 4SM BR SCT023 SCT037 18/18 A2971 RMK AO2 T01780178 KLHW 220611Z AUTO 20003KT 10SM BKN020 23/21 A2980 RMK AO2 SLP094 $ KLHX 220553Z AUTO 09017G23KT 10SM CLR 27/17 A3010 RMK AO2 SLP115 T02670167 10378 20267 50005 KLHZ 220635Z AUTO 7SM -RA SCT007 SCT025 SCT038 20/20 A2982 RMK AO2 KLIC 220555Z AUTO 00000KT 10SM CLR 19/17 A3021 RMK AO2 SLP138 60027 T01940172 10300 20183 51006 KLIT 220553Z 35006KT 10SM CLR 27/20 A2989 RMK AO2 SLP121 T02670200 10344 20256 403500228 53007 $ KLJF 220635Z AUTO 03004KT 10SM CLR 20/19 A3011 RMK AO2 KLKR 220635Z AUTO 31003KT 10SM FEW020 FEW090 23/23 A2975 RMK AO2 KLKU 220635Z AUTO 21003KT 10SM CLR 16/16 A2978 RMK AO2 T01630159 KLKV 220553Z AUTO 34011KT 10SM CLR 18/M04 A3019 RMK AO2 SLP685 T01781039 10317 20156 51019 KLLJ 220555Z AUTO 00000KT 10SM CLR 20/M01 A3013 RMK AO2 SLP128 T02001006 10344 20200 $ KLLQ 220553Z AUTO 00000KT 10SM BKN100 27/25 A2985 RMK AO2 SLP105 T02670250 10339 20261 403500250 56005 KLMO 220635Z AUTO 00000KT 10SM CLR 23/13 A3015 RMK AO2 T02300127 KLMT 220553Z AUTO 31007KT 7SM CLR 20/07 A3017 RMK AO2 SLP169 T02000072 10311 20189 51018 $ KLNA 220635Z AUTO 28003KT 25/24 A2996 RMK AO2 T02530236 PWINO KLNC 220635Z AUTO 21009KT 10SM CLR 31/18 A2990 RMK AO2 T03100178 KLND 220553Z AUTO 00000KT 10SM CLR 23/08 A3014 RMK AO2 SLP124 T02280083 10322 20222 51009 KLNK 220554Z AUTO 36004KT 8SM CLR 20/18 A3007 RMK AO2 SLP171 T02000178 10294 20200 403060172 53010 KLNL 220635Z AUTO 02007KT 5SM BR OVC004 16/15 A3010 RMK AO2 T01550150 KLNN 220635Z AUTO 10004KT 10SM SCT100 19/14 A2977 RMK AO1 T01900135 KLNP 220630Z AUTO 23004KT 10SM SCT060 SCT075 OVC085 17/17 A2983 RMK AO2 KLNQ 220555Z AUTO 25010G17KT 10SM CLR 29/25 A2994 RMK AO2 T02930253 10310 20293 KLNR 220556Z AUTO 34011G17KT 10SM CLR 20/18 A2995 RMK AO2 SLP134 T02000178 10228 20194 402780194 53002 KLNS 220642Z AUTO 08011KT 3SM -RA BR BKN006 OVC012 21/21 A2956 RMK AO2 P0004 T02110206 KLOL 220553Z AUTO 34003KT 10SM CLR 27/07 A3011 RMK AO2 SLP146 60000 T02670072 10339 20261 53015 KLOM 220635Z AUTO 11012G20KT 7SM BKN008 OVC012 21/21 A2967 RMK AO1 KLOR 220622Z AUTO 26003KT 9SM VCTS SCT042 SCT060 BKN130 25/24 A2984 RMK AO2 RAE21 TSE22 SLP085 KLOT 220635Z AUTO 36009G16KT 10SM OVC013 20/19 A2981 RMK AO2 T02020190 KLOU 220553Z AUTO 28008KT 10SM CLR 29/21 A2975 RMK AO2 SLPNO 60001 T02890206 56008 $ KLOZ 220553Z AUTO 24004KT 10SM FEW006 BKN027 OVC050 20/20 A2978 RMK AO2 RAB0455E28 SLP072 P0003 60003 T02000200 10222 20200 58007 KLPC 220556Z AUTO 27003KT 10SM OVC006 16/15 A3007 RMK AO2 SLP184 T01610150 10206 20161 51013 KLPR 220553Z AUTO 07006KT 10SM SCT100 19/15 A2977 RMK AO2 SLP076 60000 T01940150 10233 20194 56005 KLQK 220635Z AUTO 34003KT 3SM BR OVC003 20/20 A2978 RMK AO2 T02030203 KLRD 220556Z AUTO 15013G19KT 10SM CLR 31/22 A2998 RMK AO2 SLP148 T03060217 10394 20306 51017 KLRF 220556Z AUTO 00000KT 10SM CLR 25/21 A2989 RMK AO2 SLP121 T02460213 10342 20243 403490230 51005 KLRJ 220635Z AUTO 02003KT 9SM CLR 17/16 A3009 RMK AO2 KLRO 220615Z AUTO 25005KT 10SM CLR 25/23 A2980 RMK AO2 KLRU 220635Z AUTO 27010KT 10SM CLR 28/12 A3011 RMK AO2 T02800122 KLRY 220635Z AUTO 03006KT 10SM CLR 22/18 A3002 RMK AO2 KLSE 220553Z AUTO 35008KT 10SM CLR 19/17 A3000 RMK AO2 SLP148 T01940167 10250 20194 402940194 58001 KLSF 220556Z AUTO 34004KT 10SM VCTS SCT050 22/22 A2982 RMK AO2 RAB26E38DZB38E39 SLP101 P0000 60060 T02180218 10242 20210 57007 $ KLSV 220558Z 04004KT 10SM BKN150 29/16 A3000 RMK AO2A DZB17E26 SLP133 P0000 60000 T02850157 10317 20279 50011 KLTS 220556Z AUTO 08006KT 10SM CLR 31/19 A2994 RMK AO2 SLP117 T03060190 10422 20300 404320228 51012 $ KLUA 220635Z AUTO 00000KT 10SM OVC025 18/17 A2976 RMK AO2 KLUD 220635Z AUTO 20008KT 7SM CLR 32/13 A2991 RMK AO2 T03200130 KLUF 220558Z AUTO 20005KT 10SM CLR 33/15 A2992 RMK AO2 SLP117 T03320152 10389 20329 50012 $ KLUG 220635Z AUTO 00000KT 10SM FEW041 22/19 A2983 RMK A01 KLUK 220553Z AUTO 21004KT 10SM OVC013 22/21 A2968 RMK AO2 RAE08 SLP046 P0000 60010 T02170211 10222 20211 58009 KLUL 220635Z AUTO 25004KT 10SM CLR 27/22 A2987 RMK AO2 T02650221 KLUM 220635Z AUTO 36005KT 10SM CLR 18/16 A3008 RMK AO2 T01800155 KLUX 220635Z AUTO 26003KT 10SM CLR 20/20 A2977 RMK AO2 KLVJ 220553Z AUTO 20005KT 8SM CLR 26/26 A2999 RMK AO2 SLP153 T02610256 10339 20261 403560250 58002 KLVK 220553Z AUTO 30009KT 10SM CLR 17/14 A3003 RMK AO2 SLP164 T01720139 10294 20172 51017 KLVL 220635Z AUTO 00000KT 10SM BKN034 OVC048 18/18 A2979 RMK AO1 T01810176 KLVM 220553Z AUTO 31009KT 10SM CLR 17/13 A3003 RMK AO2 SLP120 60006 T01670133 10306 20167 53010 KLVN 220635Z AUTO 04004KT 10SM CLR 19/17 A3008 RMK AO2 KLVS 220553Z AUTO 00000KT 10SM CLR 19/02 A3036 RMK AO2 SLP146 T01940017 10311 20178 51016 KLWA 220635Z AUTO 04007KT 4SM BR OVC004 20/19 A2979 RMK AO2 T02010192 KLWB 220635Z AUTO 00000KT 1/2SM FG OVC003 18/17 A2980 RMK AO2 T01760173 KLWC 220552Z AUTO 03006KT 10SM CLR 23/19 A3000 RMK AO2 SLP150 T02280189 10317 20228 403440178 53005 $ KLWD 220553Z AUTO 34006KT 10SM CLR 19/17 A3003 RMK AO2 SLP160 T01940172 10278 20194 403000178 53008 KLWM 220554Z AUTO 07004KT 10SM FEW013 BKN085 19/15 A3012 RMK AO2 SLP199 T01940150 10222 20189 56012 KLWS 220556Z AUTO 22005KT 10SM CLR 22/M01 A3011 RMK AO2 SLP187 T02171006 10300 20211 51023 KLWT 220554Z AUTO 28011KT 10SM CLR 19/09 A3002 RMK AO2 SLP125 T01890094 10322 20183 53016 KLWV 220553Z AUTO 30008KT 10SM SCT085 BKN120 22/19 A2979 RMK AO2 SLP083 60000 T02220194 10267 20222 402780200 55005 KLXL 220635Z AUTO 10003KT 10SM SCT055 17/17 A3012 RMK AO2 KLXN 220635Z AUTO 14010KT 10SM CLR 23/20 A3011 RMK AO2 LTG DSNT SE T02320201 KLXT 220553Z AUTO 01006KT 10SM CLR 23/18 A3001 RMK AO2 SLP153 T02280183 10306 20228 53008 KLXV 220553Z AUTO 04003KT 10SM CLR 11/06 A3059 RMK AO2 SLP164 T01060056 10189 20089 51005 KLXY 220635Z AUTO 20008KT 10SM CLR 28/20 A2993 RMK AO2 T02790198 KLYH 220634Z AUTO 19003KT 10SM BKN024 19/18 A2977 KLYO 220635Z AUTO 08011KT 10SM -RA SCT085 SCT120 25/18 A3002 RMK AO2 T02480177 KLYV 220635Z AUTO 00000KT 10SM CLR 16/15 A3012 RMK AO2 KLZU 220556Z AUTO 27005KT 8SM 22/22 A2983 RMK AO2 SLP101 6//// T02220217 10289 20217 50007 $ KLZZ 220635Z AUTO 21004KT 10SM CLR 29/19 A2997 RMK AO2 T02910191 KM02 220635Z AUTO 29008G13KT 10SM CLR 21/19 A2985 RMK A01 KM04 220635Z AUTO 00000KT 10SM CLR 23/21 A2986 RMK A01 KM08 220635Z AUTO 00000KT 9SM CLR 22/21 A2985 RMK A01 KM19 220556Z AUTO 32006KT 10SM CLR 23/19 A2989 RMK AO2 SLP121 60000 T02330189 10317 20233 51001 KM21 220635Z AUTO 30004KT 10SM SCT080 SCT100 22/18 A2980 RMK AO2 T02150178 KM25 220635Z AUTO 29003KT 10SM CLR 22/18 A2986 RMK AO2 PWINO KM30 220635Z AUTO 32003KT 10SM CLR 21/19 A2986 RMK AO2 T02130185 KM40 220635Z AUTO 00000KT 4SM BR CLR 24/24 A2985 RMK AO2 KM54 220635Z AUTO 00000KT 10SM CLR 20/18 A2980 RMK A01 KM63 220558Z AUTO VRB06KT 10SM CLR 31/02 A3004 RMK AO2 SLP130 WND DATA ESTMD T03110015 10379 20305 50010 KM75 220635Z AUTO 33005KT 10SM FEW039 SCT075 OVC110 21/19 A2987 RMK A01 KM91 220635Z AUTO 29005KT 10SM FEW038 SCT045 SCT050 21/19 A2982 RMK A01 KMAE 220553Z AUTO 30009KT 10SM CLR 28/15 A2994 RMK AO2 SLP137 T02780150 10372 20278 51020 KMAF 220553Z AUTO 19007KT 10SM CLR 30/09 RMK AO2 SLPNO T03000089 10394 20300 404000250 $ KMAI 220553Z AUTO 20004KT 8SM CLR 27/27 A2985 RMK AO2 SLP104 T02720267 10294 20272 403280239 58013 KMAN 220635Z AUTO 29007KT 10SM CLR 24/02 A3004 RMK A01 KMAO 220635Z AUTO 17004KT 7SM CLR 23/22 A2976 RMK AO2 KMBG 220639Z AUTO 01003KT 4SM -TSRA BR BKN065 BKN090 OVC110 21/19 A3008 KMBL 220617Z AUTO 04007KT 10SM BKN010 BKN025 OVC050 19/19 A2986 RMK AO2 RAE00 CIG 008V012 P0000 KMBO 220635Z AUTO 26005KT 10SM CLR 27/24 A2986 RMK AO2 PWINO KMBS 220553Z AUTO 06009KT 10SM SCT065 SCT090 21/20 A2984 RMK AO2 SLP100 60001 T02060200 10222 20206 58001 KMBT 220635Z AUTO 00000KT 10SM FEW050 23/19 A2982 RMK A01 KMBY 220635Z AUTO 30005KT 10SM CLR A2997 RMK AO2 KMCB 220553Z AUTO 25004KT 10SM CLR 27/23 A2991 RMK AO2 SLP121 T02670228 10333 20261 403560239 50000 TSNO KMCC 220635Z AUTO 16010G14KT 10SM CLR 23/10 A2997 RMK AO2 KMCD 220635Z AUTO 04008KT 7SM SCT036 BKN046 OVC100 20/20 A2994 RMK AO2 T01950195 KMCE 220553Z AUTO 29004KT 10SM CLR 27/14 A2995 RMK AO2 SLP139 T02670139 10350 20267 51022 KMCF 220556Z AUTO 25006KT 10SM CLR 29/26 A2994 RMK AO2 SLP142 60000 T02880262 10297 20281 58005 FZRANO $ KMCI 220553Z 02007KT 10SM CLR 21/18 A3002 RMK AO2 SLP153 T02110183 10294 20211 403170194 53006 KMCJ 220635Z AUTO 20007KT 150V230 9SM CLR 27/24 A2996 RMK A01 KMCK 220553Z AUTO 15006KT 10SM CLR 24/19 A3007 RMK AO2 LTG DSNT SE SLP155 T02390194 10300 20233 403220194 50010 KMCN 220622Z AUTO 27006KT 10SM -RA FEW050 SCT080 BKN110 22/21 A2981 KMCO 220553Z 24005KT 10SM BKN250 26/24 A2993 RMK AO2 SLP132 T02610239 10283 20261 58003 $ KMCW 220553Z AUTO 02007KT 10SM CLR 18/17 A3006 RMK AO2 SLP170 T01780172 10250 20167 402610161 53002 KMCX 220635Z AUTO 34005KT 10SM BKN008 OVC012 20/20 A2975 RMK AO2 T02020195 KMDD 220635Z AUTO 20007KT 10SM 30/10 A3007 RMK AO2 T03000099 KMDH 220552Z AUTO 00000KT 10SM CLR 21/18 A2986 RMK AO2 SLP107 T02110183 10272 20211 402940189 56006 KMDJ 220635Z AUTO 26018KT 10SM FEW020 SCT033 30/26 A2995 RMK A01 KMDQ 220635Z AUTO 00000KT 10SM OVC065 22/20 A2985 RMK A02 T02210200 KMDS 220635Z AUTO 09003KT 10SM CLR 17/17 A3012 RMK AO2 KMDT 220631Z 29008KT 1 3/4SM +RA BR OVC008 19/18 A2960 RMK AO2 CIG 005V011 P0003 T01890183 KMDW 220553Z 36009KT 9SM -RA BKN010 OVC015 21/20 A2980 RMK AO2 RAB05 SLP082 P0002 60003 T02110200 10239 20211 402560206 55003 $ KMDZ 220635Z AUTO 03007KT 10SM OVC016 15/14 A3003 RMK AO2 T01530140 KMEB 220625Z AUTO 18005KT 10SM BKN022 26/22 A2975 RMK AO2 T02560222 KMEH 220556Z AUTO 00000KT 10SM CLR 08/02 A3021 RMK AO2 SLP221 T00830022 10239 20083 51014 KMEI 220558Z AUTO 00000KT 10SM CLR 27/25 A2986 RMK AO2 SLP108 T02720250 10333 20272 403500261 58001 KMEM 220554Z 36008KT 10SM CLR 26/20 A2986 RMK AO2 SLP105 T02610194 56001 $ KMER 220345Z 32010KT 10SM SKC 29/14 A2992 KMEV 220635Z AUTO 13003KT 10SM CLR 16/13 A3022 RMK AO2 KMEZ 220635Z AUTO 00000KT 10SM CLR 24/23 A2994 RMK AO2 TSNO KMFD 220624Z AUTO 09007KT 10SM SCT022 OVC110 19/19 A2976 KMFE 220553Z AUTO 14009KT 9SM CLR 28/26 A2998 RMK AO2 SLP150 T02830256 10361 20283 403940272 51005 KMFI 220554Z AUTO 03011KT 9SM CLR 17/16 A3001 RMK AO2 SLP158 T01720156 10200 20167 402610161 58001 TSNO KMFR 220553Z AUTO 00000KT 10SM OVC046 22/02 A3006 RMK AO2 SLP169 T02220022 10328 20217 51019 KMFV 220635Z AUTO 24013G18KT 10SM OVC013 21/20 A2974 RMK AO2 T02140195 KMGC 220635Z AUTO 01004KT 10SM OVC004 19/19 A2979 RMK AO2 KMGE 220556Z AUTO 27006KT 10SM CLR 23/20 A2984 RMK AO2 SLP095 60000 T02250202 10282 20223 50001 $ KMGG 220635Z AUTO 06003KT 10SM CLR 19/17 A3012 RMK AO2 T01860172 KMGJ 220554Z AUTO 05011KT 9SM RA OVC017 17/16 A2990 RMK AO2 SLP122 P0010 60013 T01720161 10211 20172 58024 KMGM 220553Z AUTO 22003KT 10SM CLR 26/24 A2984 RMK AO2 SLP100 T02560239 10322 20256 403440250 58003 KMGN 220635Z AUTO 05003KT 10SM -DZ SCT013 BKN035 OVC055 19/18 A2993 RMK AO2 T01930187 KMGR 220635Z AUTO 00000KT 10SM CLR 23/20 A2983 RMK AO2 KMGW 220553Z AUTO 13004KT 10SM FEW020 18/15 A2977 RMK AO2 SLP071 T01830150 10222 20183 55014 KMGY 220553Z AUTO 08006KT 5SM BR OVC003 21/19 A2969 RMK AO2 SLP047 60000 T02060189 10217 20206 58011 KMHE 220553Z AUTO 12005KT 10SM CLR 19/18 A3008 RMK AO2 SLP181 T01890178 10278 20189 402890150 51007 KMHK 220552Z AUTO 02003KT 10SM CLR 23/19 A3003 RMK AO2 SLP157 T02330189 10317 20228 403330189 53012 $ KMHL 220635Z AUTO 00000KT 10SM CLR 21/17 A2999 RMK AO2 KMHR 220245Z 22009KT 10SM SKC 28/11 A2990 KMHS 220556Z AUTO 00000KT 7SM CLR 18/03 A3014 RMK AO2 SLP189 T01780033 10317 20178 52022 KMHT 220553Z 00000KT 10SM BKN017 OVC080 17/16 A3010 RMK AO2 SLP205 T01720156 10206 20172 56009 KMHV 220620Z AUTO 24012KT 10SM CLR 28/14 A3006 RMK A01 KMIA 220553Z 21004KT 10SM FEW040 SCT100 OVC250 28/26 A2996 RMK AO2 SLP145 60000 T02780256 10294 20278 58002 $ KMIB 220556Z AUTO 09006KT 10SM CLR 17/16 A2998 RMK AO2 SLP153 60001 T01730158 10234 20173 402720095 50007 KMIC 220553Z AUTO 04006KT 10SM CLR 21/16 A3009 RMK AO2 SLP184 T02060161 10272 20206 402830167 53012 KMIE 220553Z AUTO 02004KT 10SM OVC005 21/20 A2971 RMK AO2 RAE0458 SLP052 P0002 60011 T02110200 10228 20211 58003 KMIS 220635Z AUTO 27024KT 10SM CLR 29/27 A2991 RMK A01 KMIV 220635Z AUTO 15012G22KT 10SM OVC005 22/22 A2965 RMK AO2 PK WND 13027/0601 RAE22 P0001 T02220217 KMIW 220553Z AUTO 36008KT 10SM CLR 19/18 A3000 RMK AO2 SLP154 T01890183 10256 20189 402670161 51002 KMJQ 220635Z AUTO 00000KT 10SM CLR 17/16 A3010 RMK AO2 KMJX 220636Z AUTO 15017G27KT 10SM BKN011 BKN026 OVC034 23/22 A2973 RMK AO2 PK WND 15027/0634 RAE00 P0000 KMKC 220554Z 01005KT 10SM CLR 24/17 A3000 RMK AO2 SLP149 T02390172 10311 20239 403330206 52008 KMKE 220552Z 01013G22KT 8SM OVC004 20/19 A2985 RMK AO2 SLP106 60000 T02000194 10206 20200 402500194 50000 $ KMKG 220637Z AUTO 02006KT 10SM SCT006 BKN023 OVC029 21/19 A2983 KMKJ 220635Z AUTO 25004KT 10SM SCT002 SCT010 OVC026 17/17 A2984 RMK AO2 T01740165 KMKL 220553Z AUTO 00000KT 10SM CLR 23/22 A2986 RMK AO2 SLP107 T02280222 10311 20228 403220228 55000 KMKN 220635Z AUTO 16006KT 10SM CLR 30/15 A2997 RMK AO2 T02990146 KMKO 220553Z AUTO 03005KT 10SM CLR 24/19 A2994 RMK AO2 SLP128 T02440189 10367 20239 403890239 50002 KMKS 220635Z AUTO 23004KT 10SM CLR 23/22 A2978 RMK AO2 LTG DSNT NW KMKT 220556Z AUTO 02005KT 10SM CLR 19/18 A3009 RMK AO2 SLP188 T01940178 10256 20189 402610161 53008 KMKY 220556Z AUTO RMK AO2 SLPNO 6//// PWINO FZRANO $ KMLB 220553Z AUTO 24006KT 10SM CLR 26/23 A2993 RMK AO2 SLP135 T02560233 10272 20256 50000 KMLC 220553Z AUTO 00000KT 10SM CLR 28/21 A2992 RMK AO2 SLP120 T02780206 10367 20278 403890256 51004 KMLE 220635Z AUTO 00000KT 10SM CLR 23/19 A3005 RMK AO2 T02270187 KMLF 220618Z AUTO 21010KT 10SM CLR 23/13 A3020 KMLI 220552Z AUTO 34006KT 10SM CLR 21/18 A2991 RMK AO2 SLP125 60003 T02110178 10272 20211 402830200 58001 KMLJ 220635Z AUTO 29005KT 10SM CLR 23/20 A2981 RMK AO2 KMLP 220553Z AUTO 30004KT 10SM CLR 12/M04 A3026 RMK AO2 SLP161 T01171039 10178 20111 51016 $ KMLS 220553Z AUTO 16007KT 10SM CLR 23/16 A2990 RMK AO2 SLP098 T02330156 10300 20228 51007 KMLT 220553Z AUTO 00000KT 10SM CLR 16/12 A3018 RMK AO2 SLP221 T01560122 10244 20156 51000 KMLU 220553Z AUTO 21003KT 10SM CLR 27/23 A2987 RMK AO2 SLP114 T02720228 10361 20261 403890256 50000 KMMH 220635Z AUTO 00000KT 10SM CLR 13/10 A3040 RMK AO2 T01280099 KMMI 220635Z AUTO 00000KT 7SM BKN040 BKN050 BKN090 21/21 A2983 RMK A01 KMMK 220553Z AUTO VRB06KT 10SM -RA OVC012 19/17 A2998 RMK AO2 RAB0455E05B22 SLP150 P0001 60001 T01940172 10217 20189 56016 $ KMML 220556Z AUTO 27005KT 10SM CLR 18/17 A3012 RMK AO2 SLP197 T01780172 10244 20178 402560178 53008 KMMT 220556Z AUTO 24006KT 10SM -TSRA FEW013 24/23 A2977 RMK AO2 DZB42E46RAB46 TSB56 SLP081 P0000 60000 T02430232 10292 20237 56008 $ KMMU 220635Z AUTO 08010G15KT 050V120 5SM RA OVC008 21/21 A2977 RMK AO2 P0019 KMMV 220553Z AUTO 33006KT 10SM CLR 18/12 A3014 RMK AO2 SLP204 T01780117 10272 20178 51015 KMNE 220635Z AUTO 19003KT 10SM CLR 29/22 A2988 RMK AO2 T02880218 KMNH 220630Z AUTO 22003KT 10SM CLR 17/12 A3035 RMK AO2 KMNI 220635Z AUTO 22006KT 10SM VCTS SCT040 22/21 A2976 RMK AO2 LTG DSNT W AND NW KMNM 220556Z AUTO 02010KT 10SM OVC009 18/16 A2998 RMK AO2 SLP165 60000 T01780161 10222 20178 53002 $ KMNN 220553Z AUTO 11003KT 10SM BKN034 OVC065 20/19 A2974 RMK AO2 RAB38E47 SLP066 P0000 60000 T02000189 10239 20189 56008 $ KMNV 220635Z AUTO 00000KT 10SM OVC043 21/19 A2980 RMK A01 KMNZ 220635Z AUTO 21009KT 10SM CLR 30/17 A2998 RMK AO2 T02950165 KMOB 220556Z AUTO VRB04KT 10SM CLR 28/24 A2990 RMK AO2 SLP120 T02780239 10322 20278 403560267 58001 KMOD 220553Z AUTO 34008KT 10SM CLR 27/10 A2995 RMK AO2 SLP140 T02670100 10356 20267 51019 $ KMOP 220635Z AUTO 04005KT 10SM BKN006 BKN010 OVC015 21/21 A2983 RMK AO2 T02050205 KMOR 220635Z AUTO 23006KT 10SM SCT025 SCT032 OVC039 20/20 A2979 RMK A01 KMOT 220554Z AUTO 13005KT 10SM CLR 19/16 A2998 RMK AO2 SLP147 60002 T01890161 10239 20183 402830128 55002 KMOX 220635Z AUTO 05003KT 5SM BR CLR 18/18 A3010 RMK AO2 KMPO 220553Z AUTO 06013G25KT 8SM -RA OVC002 16/16 A2981 RMK AO2 PRESFR SLP087 P0016 60087 T01560156 10156 20128 58042 KMPV 220551Z AUTO 23004KT 10SM CLR 14/12 A3016 RMK AO2 SLP208 T01440117 10233 20144 58004 KMPZ 220635Z AUTO 35009KT 10SM CLR 20/20 A2995 RMK AO2 KMQB 220640Z AUTO 35006KT 10SM CLR 19/18 A2993 RMK AO2 T01880180 KMQE 220556Z AUTO 07009KT 17/16 A3008 RMK AO1 SLP193 T01670161 10178 20161 56012 KMQI 220550Z AUTO 22009KT 10SM CLR 25/24 A2980 RMK AO2 T02470237 10251 20238 402740222 KMQJ 220624Z AUTO 35005KT 4SM BKN006 OVC011 20/20 A2972 RMK AO1 KMQS 220635Z AUTO 11012G19KT 1 1/2SM -RA OVC002 22/22 A2961 RMK AO2 KMQY 220556Z AUTO 30006KT 10SM CLR 22/19 A2984 RMK AO2 SLP974 T02220189 10283 20222 403170189 56004 KMRB 220553Z AUTO 31004KT 10SM OVC018 17/16 A2972 RMK AO2 SLP061 60040 T01720161 10178 20156 56021 KMRC 220635Z AUTO 00000KT 9SM CLR 21/21 A2983 RMK A01 KMRF 220556Z AUTO 34005KT 10SM 21/11 A3021 RMK AO2 SLP162 6//// T02110106 10339 20211 $ KMRH 220558Z AUTO 21009KT 10SM CLR 26/24 A2980 RMK AO2 SLP091 T02610239 10267 20256 58004 KMRJ 220635Z AUTO 35007KT 10SM BKN014 OVC023 20/19 A2994 RMK AO2 KMRN 220520Z AUTO 00000KT 10SM SCT120 A2980 RMK AO2 P0001 KMRT 220635Z AUTO 00000KT 2SM BKN002 BKN035 19/18 A2972 RMK AO2 T01850180 KMRY 220628Z 22004KT 10SM OVC004 16/14 A3008 RMK AO2 T01610144 KMSN 220608Z AUTO 01013KT 10SM BKN014 OVC021 20/18 A2991 KMSO 220553Z AUTO 36005KT 10SM CLR 16/00 A3012 RMK AO2 SLP181 T01610000 10306 20150 51030 KMSP 220553Z 04008KT 10SM CLR 21/17 A3009 RMK AO2 SLP185 T02110172 10272 20211 402890172 52012 KMSS 220553Z AUTO 00000KT 10SM CLR 14/14 A3001 RMK AO2 SLP160 T01440139 10267 20144 58004 KMSV 220556Z AUTO 08014G19KT 6SM RA OVC005 A2991 RMK AO2 CIG 003V008 SLPNO P0008 6//// FZRANO $ KMSY 220553Z 25010KT 9SM FEW010 FEW150 28/27 A2992 RMK AO2 SLP135 FU FEW010 T02830267 10328 20283 403500267 56004 KMTC 220556Z AUTO 05007KT 10SM BKN120 22/22 A2978 RMK AO2 SLP086 T02180218 10227 20218 57005 KMTH 220553Z AUTO 23004KT 10SM CLR 29/23 A2997 RMK AO2 SLP147 T02890233 10306 20283 58012 KMTJ 220553Z AUTO 24007KT 10SM BKN110 26/06 A3026 RMK AO2 RAB24E33 SLP143 P0000 60000 T02560061 10328 20250 53024 KMTN 220636Z AUTO 26007KT 10SM SCT016 BKN021 BKN030 19/19 A2962 RMK AO2 KMTO 220553Z AUTO 32009KT 10SM BKN043 OVC055 20/19 A2980 RMK AO2 SLP087 60005 T02000194 10256 20200 402720194 56006 KMTP 220554Z AUTO 08009G14KT 19/19 A3001 RMK AO1 SLP161 60005 T01940194 10194 20178 56017 KMTV 220635Z AUTO 00000KT 5SM BR SCT003 SCT008 OVC013 18/18 A2980 RMK AO2 T01780178 KMTW 220556Z AUTO 01010G19KT 10SM OVC010 20/18 A2992 RMK AO2 CIG 009V013 SLP145 60000 T02000183 10211 20200 402170189 51004 KMUI 220616Z AUTO 04010G19KT 6SM +RA BR BKN014 OVC019 19/19 A2958 RMK AO2 PRESFR SLP017 KMUO 220558Z AUTO 31012KT 10SM CLR 24/01 A3001 RMK AO2 SLP133 T02380014 10362 20237 52024 $ KMUT 220635Z AUTO 34007KT 10SM CLR 20/17 A2994 RMK AO2 KMVE 220635Z AUTO 00000KT 10SM CLR 18/16 A3011 RMK AO2 KMVH 220635Z AUTO 31012G17KT 10SM CLR 19/08 A3004 RMK AO2 KMVL 220554Z AUTO 00000KT 10SM CLR 13/12 A3012 RMK AO2 SLP197 T01330117 10244 20117 50000 KMVN 220556Z AUTO 27005KT 10SM CLR 21/19 A2984 RMK AO2 SLP099 T02110189 10261 20211 56010 KMVY 220608Z AUTO 10011G18KT 5SM BR OVC002 19/19 A3006 RMK AO2 T01890189 KMWA 220635Z AUTO 27003KT 10SM CLR 22/20 A2986 RMK AO2 T02200196 KMWC 220635Z AUTO 01012G16KT 10SM OVC006 20/17 A2988 RMK AO2 KMWH 220552Z AUTO 29007KT 10SM CLR 21/06 A3009 RMK AO2 SLP182 T02110056 10289 20211 51020 KMWK 220625Z AUTO 32003KT 10SM BKN075 BKN085 19/18 A2979 RMK AO2 T01910178 KMWL 220553Z AUTO 15006KT 10SM CLR 26/12 A2992 RMK AO2 SLP114 T02610122 10417 20256 404330222 51006 KMWM 220635Z AUTO 00000KT 10SM CLR 18/17 A3010 RMK AO2 KMWN 220551Z 15027G35KT 70SM FEW040 FEW100 FEW140 BKN180 BKN200 11/M19 RMK 10140 20101 KMWO 220635Z AUTO 05005KT 7SM OVC006 20/20 A2969 RMK AO2 T02040199 KMWT 220553Z AUTO 00000KT 9SM CLR 24/24 A2991 RMK AO2 SLP112 T02390239 10356 20239 403780239 53004 KMXF 220556Z AUTO 32003KT 10SM FEW080 26/24 A2983 RMK AO2 LTG DSNT S SLP102 T02610241 10320 20261 403380245 55001 $ KMXO 220635Z AUTO 34006KT 10SM CLR 18/18 A2995 RMK AO2 KMYF 220553Z AUTO 34005KT 10SM CLR 22/18 A3004 RMK AO2 SLP169 T02170178 10256 20217 51016 KMYJ 220635Z AUTO 32004KT 10SM CLR 19/17 A2994 RMK AO2 KMYL 220551Z AUTO 33008KT 10SM CLR 18/03 A3019 RMK AO2 SLP175 T01830028 10283 20183 51026 KMYP 220633Z AUTO 10SM SCT070 SCT080 BKN110 12/03 A3086 RMK AO2 KMYR 220556Z AUTO 20007KT 10SM CLR 26/24 A2978 RMK AO2 SLP084 T02610244 10289 20261 58011 KMYV 220553Z AUTO 15009KT 10SM CLR 26/13 A2993 RMK AO2 SLP139 T02610133 10367 20261 51024 KMYZ 220635Z AUTO 32003KT 10SM CLR 19/18 A3006 RMK AO2 KMZG 220635Z AUTO 26008KT 10SM FEW017 29/26 A2998 RMK A01 KMZH 220635Z AUTO 06004KT 10SM OVC009 16/15 A3013 RMK AO2 KMZZ 220635Z AUTO 00000KT 7SM OVC005 20/20 A2973 RMK AO2 T01960196 KN03 220635Z AUTO 04004KT 10SM -RA SCT032 BKN045 BKN055 16/15 A2988 RMK AO2 KN38 220635Z AUTO 03008G13KT 3SM -RA OVC003 13/13 A2983 RMK AO2 KN60 220552Z AUTO 17015G24KT 18/18 A2998 RMK AO1 PK WND 15031/0456 SLP147 60008 T01780178 10233 20178 402610128 55045 KNAK 220632Z AUTO 24005KT 10SM BKN025 BKN049 OVC055 20/18 A2964 RMK AO2 T02000183 $ KNBC 220556Z AUTO 21006KT 10SM FEW042 25/23 A2981 RMK AO2 SLP094 T02500233 10272 20244 58004 KNCA 220556Z AUTO 20007KT 10SM CLR 26/24 A2978 RMK AO2 SLP087 60000 T02560244 10267 20250 58001 KNDZ 220556Z AUTO VRB04KT 10SM CLR 28/25 A2987 RMK AO2 SLP099 T02780250 10311 20278 403500244 58004 $ KNEL 220619Z AUTO 9SM BKN013 BKN019 OVC033 A2972 KNEW 220553Z AUTO 24016KT 10SM CLR 29/25 A2991 RMK AO2 SLP123 T02890250 10333 20289 403440278 58004 $ KNFE 220556Z AUTO 00000KT 10SM CLR 22/20 A2978 RMK AO2 SLP085 60001 T02170200 10233 20217 51009 KNFG 220555Z COR 00000KT 10SM SCT013 BKN150 20/18 A3002 RMK AO2 SLP166 T02000178 10256 20200 51017 KNFL 220556Z AUTO 25005KT 10SM CLR 26/13 A3011 RMK AO2 SLP164 T02560133 10339 20256 51017 KNFW 220552Z AUTO 20014KT 10SM CLR 33/13 A2990 RMK AO2 SLP110 T03280133 10422 20328 404390256 51003 $ KNGP 220556Z AUTO 17011KT 10SM CLR 28/27 A2998 RMK AO2 SLP151 T02830272 10311 20283 403330272 50002 KNGU 220559Z 23008KT 10SM FEW018 SCT300 21/18 A2978 RMK AO2 SLP086 T02110183 10222 20211 53012 KNHK 220559Z AUTO 25010KT 4SM -RA BR BKN008 OVC013 21/20 A2968 RMK AO2 CIG 004V011 P0000 T02060200 $ KNID 220556Z AUTO 20009KT 10SM CLR 32/14 A2998 RMK AO2 SLP124 T03170139 10383 20311 51015 $ KNIP 220553Z 25007KT 10SM FEW015 SCT250 26/22 A2986 RMK AO2 SLP107 T02560222 10256 20250 58016 $ KNJK 220556Z AUTO 26004KT 10SM CLR 34/14 A2987 RMK AO2 SLP130 T03390139 10406 20339 51016 $ KNJM 220557Z AUTO 22012KT 10SM SCT015 27/24 A2980 RMK AO2 SLP093 T02720239 10272 20267 58003 KNKT 220311Z 18006KT 10SM BKN016 25/25 A2981 RMK AO2 T02500250 KNKX 220555Z 32004KT 10SM FEW010 23/18 A3004 RMK AO2 SLP165 T02280183 10278 20228 51014 $ KNLC 220556Z 33011KT 10SM SCT180 BKN240 29/16 A2994 RMK AO2 SLP135 RH/45 T02940161 10372 20294 51020 KNMM 220556Z AUTO 00000KT 10SM BKN043 BKN049 BKN060 27/26 A2986 RMK AO2 SLP116 T02720256 10328 20267 403500267 58003 $ KNOG 220556Z AUTO 17008KT 10SM CLR 27/26 A2999 RMK AO2 SLP134 T02670256 10333 20267 403720233 50006 $ KNOW 220635Z AUTO 29009KT 10SM CLR 12/11 A3022 RMK AO2 T01230106 KNOZ 220559Z AUTO 16004KT 10SM CLR 33/14 A2989 RMK AO2 SLP071 T03280139 10406 20328 51015 $ KNQA 220635Z AUTO 00000KT 10SM CLR 23/22 A2986 RMK A01 KNQI 220556Z AUTO 16007KT 9SM FEW017 28/25 A2998 RMK AO2 SLP148 T02780250 10322 20278 403670244 50007 KNQX 220553Z AUTO 25008KT 10SM FEW026 28/23 A2998 RMK AO2 SLP150 T02830233 10294 20278 58010 $ KNRB 220552Z AUTO 24006KT 10SM SCT015 26/23 A2985 RMK AO2 SLP108 T02610228 10267 20250 56014 $ KNRS 220624Z AUTO 31006KT 10SM BKN016 22/18 A3004 RMK AO2 T02220183 $ KNSE 220456Z AUTO 26006KT 10SM CLR 28/24 A2989 RMK AO2 SLP104 T02780244 $ KNSI 220557Z AUTO 29014KT 10SM CLR 18/ A3003 RMK AO2 SLP164 T0178 10228 20178 51017 $ KNTD 220636Z AUTO 32005KT 10SM OVC010 20/17 A3002 RMK AO2 T02000167 CHINO N VISNO N $ KNTU 220556Z 22008KT 10SM SCT280 21/18 A2977 RMK AO2 SLP082 60001 T02060178 10222 20206 51013 $ KNUC 220556Z AUTO 29008KT 10SM OVC009 19/17 A3006 RMK AO2 SLP176 T01890167 10217 20183 51019 KNUI 220553Z AUTO 23018KT 7SM OVC007 21/20 A2968 RMK AO2 RAE21 SLP051 6//// T02060200 10239 20206 53034 PNO $ KNUQ 220608Z 36007KT 10SM BKN010 17/16 A3005 RMK AO2 T01670161 KNUW 220556Z 00000KT 10SM FEW220 14/10 A3024 RMK AO2 SLP240 T01440100 10217 20133 53007 $ KNXF 220556Z AUTO 32006KT 10SM FEW012 21/18 A3003 RMK AO2 SLP254 6//// T02110178 10244 20206 51017 PNO $ KNXP 220556Z 18004KT 10SM FEW080 SCT120 30/13 A3007 RMK AO2 SLP141 T03000128 10361 20300 51015 KNY0 220634Z AUTO 12009KT 10SM BKN032 OVC038 18/12 A2999 RMK AO2 KNYC 220617Z AUTO 10009G20KT 070V140 5SM -RA BR OVC010 22/22 A2983 RMK AO2 P0003 T02220217 $ KNYG 220616Z AUTO 30012G21KT 10SM SCT013 BKN025 OVC039 19/18 A2972 RMK AO2 T01890183 KNYL 220557Z AUTO 18006KT 10SM CLR 34/13 A2987 RMK AO2 SLP110 T03390133 10406 20339 51014 KNZY 220452Z 33008KT 10SM FEW015 SCT140 SCT220 22/18 A3001 RMK AO2 SLP163 T02170178 KO32 220635Z AUTO 31003KT 10SM CLR 27/17 A2994 RMK AO2 KO54 220635Z AUTO 36004KT 10SM CLR 21/08 A3006 RMK AO1 KO69 220635Z AUTO 30005KT 6SM BR OVC010 16/15 A3005 RMK A01 KOAJ 220556Z AUTO 18006KT 8SM CLR 24/24 A2979 RMK AO2 SLP090 60000 T02390239 10272 20239 58004 KOAK 220622Z 29010KT 10SM SCT009 16/15 A3005 RMK AO2 T01610150 KOBE 220635Z AUTO 25003KT 7SM CLR 23/23 A2995 RMK AO2 KOCF 220551Z AUTO 20007KT 10SM CLR 25/24 A2990 RMK AO2 SLP125 T02500239 10250 20233 58017 $ KOCH 220556Z AUTO 22005KT 10SM 28/21 A2991 RMK AO2 SLP129 T02780211 10372 20278 403830239 58007 $ KOCQ 220635Z AUTO 01008G15KT 340V040 10SM OVC011 18/16 A2995 RMK AO1 T01810162 KOCW 220635Z AUTO 19003KT 10SM OVC010 25/24 A2979 RMK AO2 T02460238 KODO 220553Z AUTO 20007KT 10SM CLR 30/07 A3008 RMK AO2 SLP126 T03000067 10383 20300 403940239 51010 KODX 220553Z AUTO 11007KT 10SM CLR 22/20 A3006 RMK AO2 SLP170 T02170200 10278 20211 402890161 50004 $ KOEB 220635Z AUTO 04006KT 5SM BR OVC006 20/20 A2978 RMK AO2 T01980196 KOEO 220635Z AUTO 36004KT 10SM CLR 18/16 A3013 RMK AO2 T01770160 KOFF 220556Z AUTO 01003KT 10SM CLR 21/18 A3005 RMK AO2 SLP172 T02080180 10285 20205 403010177 50010 $ KOFK 220556Z AUTO 00000KT 10SM CLR 19/18 A3009 RMK AO2 SLP178 T01940178 10272 20194 402940167 51016 KOFP 220642Z AUTO 00000KT 1 1/2SM BR CLR 17/17 A2975 RMK AO2 T01720172 KOGA 220635Z AUTO 13007KT 10SM CLR 24/19 A3007 RMK AO2 LTG DSNT N T02400185 KOGB 220635Z AUTO 16005KT 10SM VCTS -RA FEW034 BKN110 22/19 A2977 RMK AO2 PK WND 27039/0557 WSHFT 0554 LTG DSNT ALQDS TSE29 P0032 T02170194 KOGD 220553Z AUTO 18015G22KT 10SM FEW110 27/11 A3014 RMK AO2 PK WND 17027/0457 SLP133 T02670106 10356 20256 51035 KOGS 220635Z AUTO 07003KT 10SM CLR 13/12 A2998 RMK AO2 T01320122 KOJA 220635Z AUTO 00000KT 10SM CLR 27/22 A2998 RMK AO2 KOJC 220553Z AUTO 03009KT 10SM CLR 24/18 A3000 RMK AO2 SLP147 T02390183 10306 20233 403170194 51004 KOKB 220552Z AUTO 00000KT 10SM CLR 21/17 A3002 RMK AO2 SLP165 T02110172 10250 20211 51016 KOKC 220552Z 10008KT 10SM FEW250 28/20 A2996 RMK AO2 SLP123 T02780200 10350 20272 403720233 51005 KOKK 220556Z AUTO 35006KT 10SM BKN009 OVC015 20/20 A2974 RMK AO2 RAB23E50 CIG 006V011 SLP068 P0000 60008 T02000200 10217 20200 56006 KOKM 220635Z AUTO 04005KT 10SM CLR 23/19 A2993 RMK AO2 T02270190 KOKV 220635Z AUTO 27006KT 10SM OVC020 16/15 RMK AO2 KOKZ 220635Z AUTO 00000KT 7SM BKN060 BKN080 21/21 A2981 RMK AO2 T02100210 KOLE 220635Z AUTO 08010KT 2 1/2SM RA OVC002 12/12 A2986 RMK AO2 VIS 1 1/2V3 KOLF 220553Z AUTO 00000KT 10SM CLR 23/16 A2991 RMK AO2 SLP112 T02280156 10261 20200 53008 TSNO KOLG 220635Z AUTO 03008KT 10SM OVC013 16/15 A3013 RMK AO1 KOLM 220554Z AUTO 00000KT 10SM CLR 17/11 A3018 RMK AO2 SLP220 T01720111 10256 20172 51011 KOLS 220554Z AUTO 00000KT 10SM CLR 25/17 A3015 RMK AO2 SLP137 T02500172 10339 20250 51010 KOLU 220556Z AUTO 00000KT 8SM CLR 19/18 A3009 RMK AO2 SLP182 T01940183 10283 20189 402890178 51012 KOLV 220050Z 30005KT 10SM FEW040 29/21 A2984 KOLY 220635Z AUTO 30007KT 10SM BKN038 OVC047 20/19 A2981 RMK AO2 T02030191 KOLZ 220635Z AUTO 32005KT 10SM CLR 17/17 A3001 RMK AO2 KOMA 220552Z COR 30006KT 10SM BKN250 21/18 A3006 RMK AO2 SLP171 T02110178 10289 20211 403060189 53010 KOMH 220635Z AUTO 00000KT 10SM CLR 17/16 A2973 RMK AO2 KOMK 220553Z AUTO 35006KT 10SM CLR 19/08 A3015 RMK AO2 SLP203 T01940078 10294 20189 53025 KONA 220635Z AUTO 32005KT 10SM CLR 19/16 A3004 RMK AO2 KONL 220635Z AUTO 13007KT 10SM CLR 21/18 A3010 RMK AO2 T02130178 KONM 220635Z AUTO 00000KT 10SM CLR 25/05 A3015 RMK AO2 T02510050 KONO 220553Z AUTO 33015G22KT 10SM CLR 24/01 A3003 RMK AO2 SLP151 T02440006 10367 20244 51031 KONP 220635Z AUTO 00000KT 10SM CLR 10/09 A3019 RMK AO2 KONT 220553Z 27008KT 10SM SCT250 23/13 A3004 RMK AO2 SLP157 T02280128 10333 20228 51029 $ KONX 220640Z AUTO 10SM BKN019 19/18 A2980 RMK AO2 T01890175 KONZ 220635Z AUTO 09004KT 10SM OVC110 21/19 A2976 RMK AO2 T02140193 KOOA 220635Z AUTO 36006KT 10SM CLR 19/18 A2998 RMK AO2 T01860175 KOPF 220553Z AUTO 00000KT 10SM CLR 28/24 A2996 RMK AO2 SLP146 T02780239 10294 20272 58000 KOPL 220635Z AUTO 24004KT 10SM CLR 26/25 A2993 RMK AO2 T02560248 KOPN 220635Z AUTO 28004KT 10SM CLR 23/20 A2986 RMK AO2 KOQN 220635Z AUTO 13010G19KT 088V158 4SM RA BKN006 OVC010 22/21 A2963 RMK AO2 P0006 KOQT 220553Z AUTO 00000KT 10SM OVC035 22/22 A2982 RMK AO2 SLP080 60000 T02220217 10278 20217 56006 KORB 220633Z AUTO 00000KT 10SM CLR 14/13 A3014 RMK AO2 KORC 220635Z AUTO 04003KT 10SM CLR 20/17 A3010 RMK AO2 KORD 220624Z 36012KT 8SM BKN008 OVC013 21/19 A2981 -RA RMK RAB0558E03B22 P0000 T02060189 KORE 220552Z AUTO 07006KT 10SM BKN050 OVC070 19/14 A3008 RMK AO2 SLP185 T01890144 10222 20183 56014 KORF 220551Z 24008KT 10SM CLR 21/19 A2977 RMK AO2 SLP080 60000 T02110189 10222 20211 53011 KORG 220635Z AUTO 23006KT 10SM CLR 28/26 A2995 RMK AO2 T02760262 KORH 220354Z 06008KT 10SM FEW010 BKN075 16/14 A3011 KORL 220153Z 25004KT 10SM 28/24 A2991 KORS 220635Z AUTO 14004KT 10SM CLR 16/11 A3019 RMK AO2 KOSA 220635Z AUTO 33003KT 10SM CLR 29/17 A2988 RMK AO1 T02930171 KOSC 220635Z AUTO 02007KT 10SM SCT050 BKN065 OVC070 20/19 A2987 RMK AO2 T02000194 KOSH 220553Z 01012KT 5SM BR OVC009 19/18 A2994 RMK AO2 RAB09E27 CIG 007V013 SLP128 P0000 60015 T01890178 10222 20189 402330189 53005 KOSU 220639Z AUTO 05005KT 3SM BR FEW020 SCT031 18/18 A2971 RMK AO2 T01780178 KOTG 220556Z AUTO 00000KT 10SM CLR 17/16 A3012 RMK AO2 SLP197 T01670156 10239 20167 402560167 53004 KOTH 220556Z AUTO 36008KT 10SM CLR 13/11 A3015 RMK AO2 SLP208 T01330111 10183 20133 51007 KOTM 220553Z AUTO 35008KT 10SM CLR 19/18 A2997 RMK AO2 SLP144 T01940183 10267 20194 402780183 58001 KOUN 220635Z AUTO 08007KT 10SM CLR 27/20 A2993 RMK AO2 T02710205 KOVE 220553Z AUTO 14006KT 10SM CLR 29/15 A2994 RMK AO2 SLP137 T02940150 10372 20294 51022 KOVL 220635Z AUTO 02004KT 10SM CLR 18/17 A3009 RMK AO2 KOVS 220638Z AUTO 03004KT 10SM BKN021 19/17 A2997 RMK AO2 T01940167 KOWA 220614Z AUTO 00000KT 10SM CLR 18/16 A3008 RMK AO2 KOWB 220556Z AUTO 29008KT 10SM BKN048 OVC085 22/19 A2980 RMK AO2 SLP095 T02220194 10256 20222 402890200 57008 KOWD 220639Z AUTO 06006KT 10SM FEW011 SCT016 OVC075 19/17 A3007 RMK AO2 T01940172 KOWI 220635Z AUTO 03006KT 10SM CLR 21/19 A2999 RMK AO2 PWINO KOWP 220635Z AUTO 09003KT 10SM CLR 28/17 A2995 RMK AO2 T02770174 KOWX 220635Z AUTO 00000KT 2 1/2SM CLR 16/16 A2975 RMK AO1 KOXB 220622Z AUTO 22018G24KT 10SM OVC010 22/20 A2971 RMK AO2 PK WND 22026/0609 T02170200 KOXC 220613Z AUTO 08008KT 9SM RA OVC004 18/17 A2998 RMK AO2 P0004 KOXI 220635Z AUTO 36005KT 7SM OVC007 20/18 A2976 RMK AO1 KOXR 220551Z AUTO 30008KT 10SM FEW008 19/17 A3001 RMK AO2 SLP162 T01940172 10228 20194 51018 KOXV 220635Z AUTO 36007KT 10SM CLR 21/18 A2999 RMK AO2 KOYM 220635Z AUTO 06004KT 5SM +RA BKN008 OVC014 13/13 A2983 RMK AO2 P0011 KOZA 220635Z AUTO 20009KT 10SM CLR 25/11 A3007 RMK AO2 KOZR 220632Z AUTO 22003KT 10SM TS FEW023 SCT034 BKN048 25/22 A2985 RMK AO2 RAE14DZB14E17RAB23E32 TSB0559 SLP107 KOZS 220635Z AUTO 30005KT 10SM CLR 21/18 A2997 RMK AO2 KOZW 220635Z AUTO 08004KT 10SM SCT013 SCT047 BKN100 21/19 A2979 RMK AO2 T02050193 KP08 220635Z AUTO 27004KT 10SM CLR 30/19 A2999 RMK AO2 KP28 220556Z AUTO 09006KT 26/19 A2999 RMK AO1 SLP137 T02610189 10333 20256 403440211 53006 KP53 220556Z AUTO 34008KT 16/16 A3000 RMK AO1 SLP161 T01560156 10167 20144 56005 $ KP59 220551Z AUTO 07003KT 13/11 A3010 RMK AO1 SLP192 T01330111 10156 20133 57000 KP60 220556Z AUTO 00000KT 09/07 A3032 RMK AO1 SLP194 T00940067 10228 20094 50003 KP68 220553Z AUTO VRB03KT 16/14 A3035 RMK AO1 SLP191 P0010 60014 T01610144 10272 20161 51037 KP69 220552Z AUTO 36003KT 16/09 A3014 RMK AO1 SLP189 T01560089 10333 20156 51039 $ KP92 220553Z AUTO 25007KT 230V300 A2993 RMK AO1 SLP136 58003 KPAE 220553Z AUTO VRB03KT 10SM CLR 16/11 A3021 RMK AO2 SLP230 T01560106 10228 20156 53010 KPAH 220553Z AUTO 32005KT 10SM CLR 23/18 A2984 RMK AO2 SLP101 T02280183 10289 20228 403170211 56003 $ KPAM 220556Z AUTO 25008KT 10SM CLR 29/27 A2988 RMK AO2 SLP121 T02890270 10301 20289 403190249 58006 $ KPAN 220635Z AUTO 00000KT 10SM CLR 23/14 A3024 RMK AO2 KPAO 220347Z 31010KT 10SM SKC 22/17 A3002 KPBF 220553Z AUTO 01006KT 10SM CLR 27/24 A2987 RMK AO2 SLP112 T02670239 10333 20256 403500233 53002 $ KPBG 220553Z AUTO 13008KT 10SM CLR 21/12 A3004 RMK AO2 SLP172 T02060117 10250 20200 58003 KPBH 220635Z AUTO 03009KT 10SM OVC009 15/15 A3007 RMK AO2 T01500148 KPBI 220553Z 00000KT 10SM FEW040 SCT250 25/23 A2996 RMK AO2 SLP146 T02500228 10261 20244 50004 $ KPBX 220635Z AUTO 16003KT 1 1/2SM BR BKN001 OVC060 19/19 A2976 RMK AO2 VIS 1/2V4 T01870187 KPCD 220635Z AUTO 28006KT 10SM CLR 19/18 A2986 RMK AO2 T01910181 KPCM 220635Z AUTO 00000KT 10SM SCT016 27/25 A2994 RMK AO2 KPCW 220635Z AUTO 09007KT 10SM 22/18 A2974 RMK AO2 KPCZ 220635Z AUTO 36008KT 10SM OVC017 20/17 A2997 RMK AO2 T02020173 KPDC 220635Z AUTO 35008KT 10SM CLR 20/16 A2997 RMK AO2 T01970156 KPDK 220553Z AUTO 25004KT 10SM CLR 23/21 A2983 RMK AO2 SLP084 T02280206 10267 20228 50002 KPDT 220553Z AUTO 09008KT 10SM CLR 17/M01 A3010 RMK AO2 SLP179 T01721011 10289 20172 51017 KPDX 220553Z 33006G14KT 10SM CLR 20/12 A3015 RMK AO2 SLP208 T02000117 10272 20200 51015 KPEA 220635Z AUTO 35004KT 10SM CLR 19/17 A3001 RMK AO2 T01880170 KPEO 220638Z AUTO VRB03KT 8SM -RA FEW013 OVC029 17/16 A2988 RMK AO2 P0019 T01670156 KPEQ 220635Z AUTO 13007KT 10SM CLR 28/10 A3003 RMK AO2 T02780095 KPEX 220635Z AUTO 00000KT 5SM BR SCT035 16/16 A3011 RMK AO2 T01610162 KPEZ 220635Z AUTO 15004KT 10SM CLR 27/24 A2999 RMK AO2 T02650243 KPGA 220553Z AUTO 24003KT 10SM CLR 26/14 A3013 RMK AO2 SLP128 60000 T02610139 10300 20261 50005 TSNO KPGD 220553Z AUTO 28003KT 10SM FEW021 28/25 A2997 RMK AO2 SLP149 T02780250 10283 20261 50003 KPGV 220630Z AUTO 21006KT 7SM SCT042 SCT050 SCT060 24/23 A2981 RMK AO2 KPHD 220553Z AUTO 10004KT 10SM CLR 19/16 A2977 RMK AO2 SLP074 T01890156 10250 20189 58006 KPHF 220554Z AUTO 25006KT 10SM CLR 20/18 A2977 RMK AO2 SLP079 T02000183 10222 20200 53015 KPHL 220610Z 12018G26KT 10SM FEW007 OVC011 23/22 A2963 RMK AO2 PK WND 13026/0608 RAE06 P0001 T02280222 $ KPHN 220636Z AUTO 07006KT 10SM SCT120 21/18 A2981 RMK AO2 KPHP 220555Z AUTO 17029G38KT 10SM -RA SCT055 BKN080 BKN100 23/23 A2986 RMK AO2 PK WND 17038/0553 PRESFR SLP086 P0001 60002 T02330228 10311 20228 58042 KPHT 220635Z AUTO 00000KT 10SM CLR 22/19 A2986 RMK A01 KPHX 220551Z 26009KT 10SM BKN250 34/14 A2992 RMK AO2 SLP111 T03390139 10389 20339 51015 KPIA 220554Z 33007KT 10SM CLR 21/18 A2988 RMK AO2 SLP113 60000 T02060183 10267 20206 402780194 55001 KPIB 220556Z AUTO VRB03KT 10SM CLR 27/23 A2989 RMK AO2 SLP118 T02720228 10339 20272 403610239 58002 KPIE 220553Z AUTO 26007KT 10SM FEW016 FEW033 28/27 A2994 RMK AO2 SLP137 T02830272 10289 20272 58003 KPIH 220553Z AUTO 19004KT 10SM CLR 22/09 A3009 RMK AO2 SLP136 60000 T02220089 10339 20211 51016 KPIL 220553Z AUTO 17005KT 7SM CLR 28/24 A2998 RMK AO2 SLP153 T02780239 10322 20278 403500261 51005 KPIM 220635Z AUTO 00000KT 10SM CLR 22/21 A2986 RMK AO2 T02160210 PWINO KPIR 220553Z AUTO 13011KT 10SM CLR 22/17 A3001 RMK AO2 SLP147 T02220172 10294 20222 403110144 53001 KPIT 220551Z 08009KT 10SM FEW020 BKN095 BKN170 17/14 A2977 RMK AO2 SLP082 T01720144 10228 20172 58016 $ KPKB 220253Z 00000KT 10SM SCT030 A2979 KPKD 220553Z AUTO 00000KT 10SM CLR 19/17 A3013 RMK AO2 SLP200 T01890167 10250 20183 402560167 53004 KPKV 220635Z AUTO 20006KT 7SM CLR 28/26 A2997 RMK AO2 T02750257 KPLD 220635Z AUTO 00000KT 4SM BR OVC003 20/20 A2971 RMK AO2 KPLN 220554Z AUTO 04004KT 4SM -RA BR FEW008 BKN055 OVC070 21/19 A2995 RMK AO2 RAE0459B30 SLP139 P0002 60033 T02060194 10206 20194 50002 KPLR 220635Z AUTO 00000KT 10SM CLR 21/21 A2985 RMK A01 KPLU 220635Z AUTO 00000KT 10SM CLR 14/09 A3020 RMK AO2 KPMD 220553Z AUTO 28005KT 10SM CLR 27/13 A3007 RMK AO2 SLP150 T02720128 10350 20272 51024 KPMH 220635Z AUTO 00000KT 5SM BR BKN025 OVC033 17/17 A2971 RMK AO2 T01650165 KPMP 220553Z AUTO 27004KT 10SM CLR 28/23 A2995 RMK AO2 SLP143 T02830228 10311 20283 58005 KPMU 220635Z AUTO 22003KT 3/4SM BR BKN070 24/23 A2985 RMK AO2 VIS 1/4V5 KPMV 220635Z AUTO 04003KT 10SM CLR 20/18 A3005 RMK AO2 T02000180 KPNA 220635Z AUTO 29018G28KT 10SM VCTS BKN100 15/07 A3032 RMK AO2 LTG DSNT SE KPNC 220553Z AUTO 00000KT 10SM CLR 23/21 A2996 RMK AO2 SLP130 T02330206 10339 20228 403500228 52001 KPNE 220554Z AUTO 12019G26KT 8SM OVC011 24/22 A2968 RMK AO2 PK WND 10028/0522 RAE43 SLP050 P0009 60073 T02440217 10244 20200 56040 KPNM 220635Z AUTO 03003KT 10SM CLR 19/17 A3012 RMK AO2 KPNS 220553Z 27008KT 10SM CLR 29/24 A2987 RMK AO2 SLP116 T02940239 10317 20294 403610278 50000 KPNT 220635Z AUTO 32008KT BKN017 OVC025 21/20 A2983 RMK AO2 T02050202 PWINO KPOB 220617Z AUTO 11005KT 10SM FEW030 BKN120 OVC180 21/20 A2975 RMK AO2 SLP075 $ KPOC 220347Z 27010KT 10SM CLR 23/13 A3001 RMK LAST KPOE 220558Z AUTO 28007KT 10SM CLR 27/25 A2991 RMK AO2 LTG DSNT S SLP126 T02690245 10330 20269 403480250 55003 KPOF 220553Z AUTO 00000KT 10SM CLR 22/19 A2988 RMK AO2 SLP112 T02220194 10322 20222 403440217 53001 KPOU 220553Z AUTO 07005KT 8SM -RA BKN017 OVC100 18/16 A2991 RMK AO2 RAB0454 SLP124 P0002 60002 T01830161 10217 20183 58020 KPOV 220636Z AUTO 09006KT 10SM CLR 17/14 A2978 RMK AO2 T01660144 PWINO KPOY 220635Z AUTO 22006KT 10SM CLR 18/06 A3005 RMK AO2 KPPA 220635Z AUTO 12006KT 10SM CLR 25/08 A3007 RMK AO2 T02460077 KPPF 220552Z AUTO 00000KT 10SM CLR 21/19 A2998 RMK AO2 SLP143 T02060189 10333 20206 403440206 51006 $ KPPO 220635Z AUTO 01008KT 10SM SCT005 OVC055 20/19 A2978 RMK AO2 T01960190 KPPQ 220635Z AUTO 33006KT 10SM CLR 21/20 A2991 RMK AO2 T02130195 KPQI 220556Z AUTO 00000KT 10SM CLR 16/13 A3018 RMK AO2 SLP255 T01560128 10250 20144 53008 KPQL 220553Z AUTO 00000KT 10SM CLR 28/25 A2989 RMK AO2 SLP123 T02780250 10328 20278 403610267 53001 KPQN 220635Z AUTO 00000KT 10SM CLR 18/16 A3013 RMK AO2 KPRB 220553Z AUTO 10SM CLR 19/13 A3005 RMK AO2 SLP167 T01890133 10283 20189 51024 KPRC 220553Z AUTO 00000KT 10SM CLR 22/13 A3024 RMK AO2 SLP159 T02220128 10294 20217 51014 KPRG 220635Z AUTO 31005KT 10SM SCT012 OVC021 20/19 A2979 RMK AO2 T01950185 KPRN 220631Z AUTO 00000KT 10SM SCT041 26/23 A2985 RMK AO2 TSB09E25 T02560228 KPRO 220635Z AUTO 31004KT 10SM CLR 18/18 A3004 RMK AO2 T01790175 KPRS 220635Z AUTO 05008KT 10SM CLR 32/12 A3003 RMK AO2 T03170117 KPRX 220556Z AUTO 28005KT 10SM CLR 32/17 A2989 RMK AO2 SLP121 T03170172 10400 20289 404110267 51006 KPSC 220553Z AUTO 02004KT 10SM FU CLR 17/11 A3007 RMK AO2 SLP179 T01720106 10306 20161 53020 KPSF 220612Z AUTO 07010G16KT 10SM BKN026 OVC036 17/12 A3001 RMK AO2 T01720117 KPSK 220635Z AUTO 00000KT 10SM CLR 17/16 A2983 RMK AO2 T01700162 KPSM 220556Z 10004KT 10SM BKN015 17/15 A3012 RMK AO2A SLP201 T01730149 10187 20170 55007 KPSN 220635Z AUTO 19005KT 10SM CLR 27/21 A2992 RMK AO2 T02700213 KPSO 220635Z AUTO 21005KT 10SM BKN100 BKN110 23/06 A3045 RMK AO2 T02290057 KPSP 220553Z AUTO 32010KT 10SM CLR 34/16 A2992 RMK AO2 SLP127 T03390156 10389 20339 51018 KPSX 220553Z AUTO 19011KT 10SM SCT016 29/27 A2997 RMK AO2 SLP148 T02890267 10311 20289 403330283 58006 KPTB 220635Z AUTO 17004KT 10SM CLR 17/16 A2979 RMK AO2 T01740164 KPTD 220635Z AUTO 00000KT 10SM CLR 15/11 A2999 RMK AO2 KPTK 220553Z AUTO 06006KT 10SM CLR 21/19 RMK AO2 SLPNO T02060194 10222 20206 $ KPTN 220556Z AUTO 25006KT 10SM CLR 27/26 A2995 RMK AO2 SLP143 6//// T02720261 10311 20261 403390250 58004 PNO $ KPTS 220635Z AUTO 00000KT 10SM CLR 21/20 A2997 RMK AO2 T02060204 KPTT 220635Z AUTO 11005KT 10SM CLR 25/19 A3002 RMK AO2 T02500187 KPTV 220556Z AUTO 28003KT 10SM CLR 29/21 A2994 RMK AO2 SLP142 T02940211 10367 20294 51020 KPTW 220629Z AUTO 09007KT 050V140 6SM -RA BR BKN009 OVC014 22/22 A2964 RMK AO2 P0000 T02170217 KPUB 220553Z AUTO 36004KT 10SM CLR 22/18 A3015 RMK AO2 SLP133 60000 T02220183 10300 20217 51006 KPUC 220553Z AUTO 36009KT 10SM BKN090 OVC110 23/11 RMK AO2 RAB28E37 SLPNO P0000 60000 T02280111 10294 20228 $ KPUJ 220635Z AUTO 00000KT 7SM CLR 20/20 A2986 RMK AO2 KPUW 220553Z AUTO 00000KT 10SM CLR 13/02 A3017 RMK AO2 SLP208 T01330017 10256 20122 51020 KPVB 220635Z AUTO 33009KT 10SM BKN026 19/19 A2996 RMK AO1 T01880188 KPVC 220616Z AUTO 10009KT 10SM BKN006 BKN080 18/17 A3010 RMK AO2 KPVD 220633Z AUTO 07009KT 10SM OVC009 19/17 A3006 KPVE 220635Z AUTO 00000KT 10SM CLR 21/20 A2984 RMK A01 KPVF 220635Z AUTO 12005KT 10SM 23/13 A3011 RMK AO1 KPVG 220556Z 00000KT 10SM CLR 18/18 A2979 RMK AO2 SLP088 T01830183 10211 20183 53009 KPVJ 220635Z AUTO 00000KT 10SM CLR 26/21 A2993 RMK AO2 T02590214 KPVU 220630Z AUTO 13013KT RA SCT120 21/16 A3017 RMK AO2 WSHFT 0610 P0000 $ KPVW 220635Z AUTO 00000KT 4SM HZ CLR 24/09 A3009 RMK AO2 T02390089 KPWA 220553Z AUTO 10008KT 10SM CLR 29/19 A2996 RMK AO2 SLP123 T02940194 10361 20294 403780244 51005 KPWC 220635Z AUTO 08003KT 10SM CLR 17/15 A3017 RMK AO2 KPWG 220556Z AUTO 18009KT 10SM CLR 30/19 A2994 RMK AO2 SLP136 T03000194 10400 20300 404220233 58001 KPWK 220552Z AUTO 35009KT 10SM BKN009 OVC012 21/20 A2983 RMK AO2 RAB0459E08 SLP099 P0000 60002 T02110200 10233 20206 402500206 55002 KPWM 220551Z AUTO 00000KT 10SM BKN015 15/14 A3013 RMK AO2 SLP204 T01500144 10194 20144 58009 KPWT 220556Z AUTO 06004KT 10SM CLR 14/08 A3020 RMK AO2 SLP242 T01390078 10244 20139 53009 KPXE 220635Z AUTO 23005KT 10SM SCT041 SCT065 22/19 A2982 RMK AO2 T02230194 KPYM 220552Z AUTO 08006KT 10SM OVC009 19/17 A3008 RMK AO2 CIG 007V012 SLP185 T01890172 10194 20178 58011 KPYX 220635Z AUTO 15007KT 10SM CLR A3004 RMK AO2 KPZQ 220635Z AUTO 00000KT 10SM SCT039 SCT045 OVC070 19/18 A2994 RMK AO2 T01910177 KQAZ 220556Z AUTO 00000KT 9999 CLR 28/19 A2993 RMK AO2 SLPNO WND DATA ESTMD T02810185 10293 20276 52012 KQBD 220555Z AUTO 19010G19KT 10SM VV003 27/12 A3015 RMK AO2 SLP075 WND DATA ESTMD 60002 T02710117 10365 20249 51036 KQBF 220556Z AUTO 00000KT 9999 CLR 25/22 A2991 RMK AO2 SLPNO WND DATA ESTMD T02470217 10265 20247 55001 KQBL 220556Z AUTO 00000KT 7SM BKN150 29/27 A2989 RMK AO2 SLP123 WND DATA ESTMD T02850272 10298 20284 58003 KQBR 220610Z AUTO 17009G18KT 10SM BKN210 27/09 A3015 RMK AO2 SLP073 WND DATA ESTMD T02690092 KQD3 220556Z AUTO 26012G19KT 220V300 9999 CLR 38/17 A2978 RMK AO2 SLP049 WND DATA ESTMD T03800167 10381 20336 50007 KQDG 220556Z AUTO 30013G21KT M M BKN130 26/22 A2968 RMK AO2 SLP053 T02580216 10269 20253 55006 PWINO $ KQEL 220640Z AUTO 16002KT 9999 CLR 37/20 A2983 RMK A02 TSNO KQEN 220640Z AUTO 27006KT 9999 CLR 32/15 A2993 RMK A02 TSNO KQER 220640Z AUTO 25002KT 9999 CLR 36/17 A2975 RMK A02 TSNO KQES 220640Z AUTO 28003KT 9999 CLR 32/23 A2981 RMK A02 TSNO KQEV 220640Z AUTO 18001KT 9999 FEW065 SCT220 36/24 A2972 RMK A02 TSNO KQEW 220640Z AUTO 12004KT 9999 FEW240 33/24 A2977 RMK A02 TSNO KQEY 220640Z AUTO 17008G15KT 9999 BKN220 35/19 A2951 RMK A02 TSNO KQFB 220640Z AUTO 18003KT 9999 FEW150 SCT240 34/23 A2986 RMK A02 TSNO KQFR 220634Z AUTO 00000KT 10SM CLR 19/12 A3029 RMK AO1 KQFT 220640Z AUTO 21004KT 9999 CLR 36/21 A2974 RMK A02 TSNO KQFW 220640Z AUTO 27004KT 9999 CLR 36/15 A2978 RMK A02 TSNO KQFX 220640Z AUTO 33001KT 9999 FEW220 38/22 A2974 RMK A02 TSNO KQGE 220556Z AUTO 00000KT 10SM FEW150 29/22 A2987 RMK AO2 SLP119 T02850222 10299 20285 58002 $ KQHA 220555Z VRB02KT 7SM BKN050 21/19 A2974 RMK SLPNO WND DATA ESTMD ALSTG/SLP ESTMD KQHC 220555Z AUTO VRB02KT 2 1/2SM BR FEW012 BKN080 19/16 A3010 RMK AO2 SLP190 WND DATA ESTMD T01890160 10277 20203 57011 KQHY 220556Z AUTO 00000KT 10SM BKN150 28/27 A2988 RMK AO2 SLP125 T02830269 10295 20282 58002 $ KQKR 220555Z AUTO 26005KT 10SM CLR 25/23 A2995 RMK AO2 SLP128 WND DATA ESTMD T02460232 10249 20237 53005 TSNO $ KQN3 220556Z AUTO 00000KT 9999 CLR 26/21 A2990 RMK AO2 SLPNO WND DATA ESTMD T02590210 10292 20257 53004 KQND 220556Z AUTO 00000KT 9999 FEW120 25/22 A2997 RMK AO2 SLPNO WND DATA ESTMD T02530223 10262 20245 53010 KQQL 220555Z AUTO 33006KT 10SM SCT016 BKN020 OVC024 21/18 A2974 RMK AO2 SLP063 WND DATA ESTMD T02120178 10252 20212 56007 KQQY 220555Z AUTO 00000KT OVC140 21/20 A3002 RMK AO2 SLP144 WND DATA ESTMD 60036 T02100202 10322 20204 58017 PWINO TSNO $ KQRD 220558Z AUTO 00000KT 9SM CLR 28/27 A2987 RMK AO2 LTG DSNT N SLP119 58002 KQRH 220556Z AUTO 00000KT 9999 CLR 38/17 A2975 RMK AO2 SLP061 WND DATA ESTMD T03820169 10385 20324 KQSM 220600Z 28011KT 9999 FEW030 SCT130 BKN230 31/18 Q1003 RMK 1CU030 3AC130 A2964 KQVF 220555Z AUTO VRB05KT 10SM FEW018 SCT065 BKN085 BKN100 26/21 A3011 RMK AO2 SLP195 WND DATA ESTMD T02580210 10250 20244 52014 KQWX 220555Z AUTO VRB03KT 12SM CLR 22/ A3011 RMK AO2 SLP178 WND DATA ESTMD T0222 10301 20279 52009 KQZF 220555Z AUTO 16007KT 10SM CLR 27/22 A2997 RMK AO2 SLP132 WND DATA ESTMD T02660218 10284 20259 52008 $ KRAC 220553Z AUTO 36013G21KT 6SM BR OVC004 20/19 A2986 RMK AO2 RAB39E48 SLP107 P0000 60000 T02000194 10206 20200 402330183 58001 KRAL 220553Z AUTO 27005KT 10SM CLR 23/08 A3004 RMK AO2 SLP156 T02330083 10344 20233 51029 KRAP 220552Z AUTO 21014G22KT 10SM CLR 20/16 A3001 RMK AO2 SLP135 60078 T02000161 10278 20194 56015 $ KRAS 220635Z AUTO 17008KT 10SM CLR 27/26 A2999 RMK AO2 T02740262 KRAW 220635Z AUTO 36005KT 10SM CLR A2998 RMK AO2 KRBD 220553Z AUTO 21010G16KT 10SM CLR 33/17 A2989 RMK AO2 SLP109 T03330172 10422 20333 404330289 58002 KRBG 220553Z AUTO 00000KT 10SM CLR 22/08 A3008 RMK AO2 SLP184 T02170078 10306 20217 51012 KRBL 220554Z AUTO 13004KT 10SM CLR 29/18 A2991 RMK AO2 SLP123 T02940178 10372 20294 51019 KRBO 220635Z AUTO 17006KT 10SM CLR 27/25 A2998 RMK AO2 T02670247 KRBW 220635Z AUTO 22006KT 10SM SCT027 BKN040 OVC050 23/22 A2980 RMK AO2 LTG DSNT N KRCA 220556Z AUTO 21015KT 10SM SCT180 20/19 A3000 RMK AO2 SLP136 60106 T02000186 10286 20200 56014 $ KRCE 220635Z AUTO 10007KT 10SM FEW044 27/19 A2996 RMK AO2 KRCM 220635Z AUTO 31004KT 10SM CLR 20/16 A2999 RMK AO2 KRCR 220630Z AUTO 36003KT 10SM OVC008 21/21 A2975 RMK AO2 KRCV 220635Z AUTO 22013KT 10SM TS OVC100 19/09 A3044 RMK AO2 LTG DSNT SW T01890089 KRCX 220635Z AUTO 02007KT 10SM BKN011 16/14 A3009 RMK AO2 T01570142 KRCZ 220635Z AUTO 14005KT 10SM CLR 23/23 A2973 RMK AO2 T02320230 KRDD 220553Z AUTO 00000KT 10SM CLR 30/17 A2991 RMK AO2 SLP122 T03000167 10378 20294 51024 KRDG 220554Z AUTO 05014G19KT 10SM RA FEW013 BKN017 OVC027 19/19 A2960 RMK AO2 SLP026 P0018 60047 T01890189 10189 20167 56049 KRDK 220635Z AUTO 36004KT 10SM CLR 18/17 A3005 RMK AO2 KRDM 220556Z AUTO 33005KT 10SM CLR 18/02 A3016 RMK AO2 SLP190 T01830022 10300 20183 51016 KRDR 220556Z AUTO 15006KT 10SM CLR 18/18 A3008 RMK AO2 SLP189 T01760176 10245 20153 402630129 58008 $ KRDU 220551Z 23007KT 10SM -RA SCT046 SCT090 OVC250 22/20 A2980 RMK AO2 RAE0456B42 SLP087 OCNL LTG DSNT SE-SW P0000 60001 T02170200 10283 20211 53007 KREG 220635Z AUTO 00000KT 10SM CLR 27/25 A2991 RMK AO2 T02650254 TSNO KREO 220552Z AUTO 35008KT 25/M16 A3010 RMK AO1 SLP143 T02501161 10367 20250 51022 KRFD 220607Z 36010KT 10SM BKN014 OVC024 21/18 A2988 KRFI 220635Z AUTO 21003KT 10SM CLR 28/21 A2990 RMK AO2 T02800206 KRGA 220635Z AUTO 24006KT 10SM BKN012 BKN020 20/19 A2975 RMK AO2 KRGK 220635Z AUTO 29003KT 10SM CLR 18/15 A3006 RMK AO2 KRHI 220553Z AUTO 02005KT 10SM OVC013 17/16 A3007 RMK AO2 SLP180 T01720156 10200 20172 402170156 50001 KRHP 220635Z AUTO 00000KT 7SM OVC002 18/18 A2985 RMK AO2 T01840184 KRHV 220447Z 32007KT 10SM 20/14 A3000 RMK LAST KRIC 220554Z 32009KT 10SM FEW014 FEW021 20/18 A2975 RMK AO2 SLP076 60001 T02000178 10200 20194 50007 $ KRID 220635Z AUTO 07003KT 2 1/2SM BR OVC003 19/19 A2971 RMK AO2 KRIL 220553Z AUTO 08010KT 10SM -RA BKN110 24/10 A3019 RMK AO2 RAB30 SLP134 P0000 60000 T02390100 10350 20239 51016 KRIV 220558Z AUTO 28004KT 10SM CLR 23/09 A3006 RMK AO2 SLP165 T02290086 10337 20229 51025 KRIW 220553Z AUTO VRB06KT 10SM CLR 23/07 A3013 RMK AO2 SLP120 T02280067 10328 20217 51008 KRKD 220639Z AUTO 00000KT 10SM BKN007 13/12 A3016 RMK AO2 CIG 004V009 KRKP 220603Z AUTO 18006KT 7SM SCT014 28/26 A2998 RMK AO2 T02830256 KRKR 220635Z AUTO 00000KT 10SM CLR 25/18 A2991 RMK AO2 KRKS 220554Z AUTO 21005KT 10SM CLR 22/05 A3025 RMK AO2 SLP141 T02170050 10289 20217 50007 KRKW 220635Z AUTO VRB04KT 10SM FEW080 21/18 A2982 RMK A01 KRLD 220635Z AUTO 33005KT 10SM CLR 20/06 A3008 RMK AO2 T01950063 KRME 220553Z AUTO 10009KT 10SM SCT039 OVC110 21/14 A2995 RMK AO2 SLP137 T02110139 10244 20211 56020 KRMG 220553Z AUTO 19004KT 10SM CLR 23/21 A2982 RMK AO2 SLP087 60001 T02280206 10283 20222 56001 KRMN 220635Z AUTO 00000KT 10SM SCT020 SCT026 OVC050 18/18 A2977 RMK AO2 T01820182 KRMY 220635Z AUTO 02003KT 5SM BR SCT006 SCT055 19/18 A2978 RMK AO2 T01910183 KRNC 220635Z AUTO 00000KT 10SM CLR 20/18 A2984 RMK A01 KRND 220556Z AUTO 17007KT 10SM CLR 27/24 A3001 RMK AO2 SLP153 T02650239 10365 20265 403830228 50010 KRNH 220635Z AUTO 01004KT 10SM CLR 16/16 A3010 RMK AO2 T01620155 KRNM 220553Z AUTO 30005KT 10SM CLR 21/17 A3006 RMK AO2 SLP162 T02060167 10283 20206 51014 KRNO 220555Z 21003KT 10SM BKN200 BKN250 21/17 A3017 RMK AO2 SLP157 FU ALF ALQDS 60002 T02060172 10228 20200 51007 $ KRNP 220635Z AUTO 03003KT 7SM CLR 20/19 A2981 RMK AO2 T02040185 KRNT 220553Z AUTO VRB04KT 10SM CLR 20/11 A3018 RMK AO2 SLP224 T02000111 10261 20200 53009 $ KRNV 220635Z AUTO 00000KT 10SM CLR A2984 RMK AO2 KROA 220635Z 06003KT 10SM BKN014 19/17 A2979 KROC 220554Z 00000KT 10SM -RA FEW040 BKN050 BKN120 18/16 A2990 RMK AO2 SLP125 P0000 60003 T01830161 10228 20183 56021 KROG 220458Z AUTO 09003KT 10SM CLR 24/17 A3000 RMK AO2 SLP143 T02390167 403390194 KROS 220635Z AUTO 00000KT 7SM BKN120 17/15 A3012 RMK AO2 T01650151 KROW 220551Z AUTO 18006KT 10SM CLR 26/05 A3009 RMK AO2 SLP113 T02610050 10394 20261 51018 KROX 220636Z AUTO 10006KT 10SM BKN050 17/14 A3014 RMK AO2 KRPD 220635Z AUTO 35004KT 10SM CLR 16/14 A3011 RMK AO2 T01600144 KRPH 220635Z AUTO 00000KT 10SM CLR 28/12 A2992 RMK AO2 T02790115 KRPJ 220635Z AUTO 34011KT 10SM OVC012 20/19 A2987 RMK AO2 T02000190 KRQB 220635Z AUTO 05004KT 10SM -DZ OVC008 20/19 A2985 RMK AO2 T01990190 KRQE 220553Z AUTO 30004KT 10SM CLR 22/11 A3034 RMK AO2 SLP123 T02220106 10339 20217 51022 KRQO 220635Z AUTO RMK AO2 PWINO TSNO KRRL 220635Z AUTO 03007KT 10SM BKN019 16/15 A3004 RMK AO2 T01610153 TSNO KRRT 220626Z AUTO 12007KT 10SM BKN047 18/16 A3015 RMK AO2 KRSL 220553Z AUTO 11012KT 10SM FEW055 SCT070 BKN110 24/20 A3000 RMK AO2 SLP137 T02390200 10317 20239 403220194 58008 KRSN 220635Z AUTO 00000KT 10SM CLR 28/21 A2991 RMK AO2 T02840206 KRSP 220554Z AUTO 31007KT 1/4SM -RA FG VV002 15/15 A2974 RMK AO2 SLP071 P0006 60249 T01500150 10156 20133 56014 $ KRST 220554Z AUTO 34007KT 10SM CLR 17/16 A3007 RMK AO2 SLP179 T01720161 10244 20172 402610172 53006 KRSV 220635Z AUTO 30003KT 10SM SCT039 OVC049 20/19 A2979 RMK AO2 T01970192 KRSW 220553Z 30004KT 10SM CLR 28/26 A2996 RMK AO2 SLP143 T02780256 10278 20256 50004 KRTN 220553Z AUTO 00000KT 10SM CLR 22/04 A3027 RMK AO2 SLP134 T02170039 10333 20217 50010 KRTS 220635Z AUTO 26004KT 10SM CLR 19/16 A3022 RMK AO2 KRUE 220553Z AUTO 00000KT 10SM CLR 23/21 A2991 RMK AO2 SLP120 T02330211 10361 20233 51008 $ KRUG 220635Z AUTO 8/52000009KT 10SM CLR 18/17 A3004 RMK AO2 KRUQ 220635Z AUTO 00000KT 10SM BKN044 20/20 A2975 RMK AO2 T01970197 KRUT 220556Z AUTO 15007KT 10SM CLR 17/13 A3007 RMK AO2 SLP194 T01670128 10233 20167 58014 $ KRVL 220635Z AUTO 07005KT 3/4SM +RA OVC001 15/15 A2971 RMK AO2 KRVS 220553Z AUTO 03003KT 10SM CLR 25/19 A2993 RMK AO2 SLP137 T02500189 10356 20244 403720244 50002 KRWF 220553Z AUTO 36003KT 10SM CLR 20/18 A3009 RMK AO2 SLP186 T02000178 10256 20200 402670172 53004 KRWI 220633Z AUTO 00000KT 7SM -RA SCT018 BKN026 BKN075 22/22 A2979 RMK AO2 LTG DSNT SW AND W P0000 T02170217 KRWL 220553Z AUTO 20003KT 10SM FEW110 21/08 A3025 RMK AO2 SLP123 T02110083 10311 20189 51005 KRWV 220635Z AUTO 20010KT 10SM CLR 27/23 A2997 RMK AO2 T02690235 KRXE 220553Z AUTO 19007KT 10SM CLR 21/08 A3007 RMK AO2 SLP133 T02110078 10322 20211 52013 KRYN 220245Z 34008KT 10SM CLR 34/17 A3001 RMK LAST KRYV 220635Z AUTO 34007KT 10SM OVC008 19/19 A2990 RMK AO2 T01920192 KRYW 220635Z AUTO 21005KT 10SM CLR 28/23 A3001 RMK AO2 T02810230 KRYY 220548Z AUTO 27005KT 10SM CLR 23/21 A2984 RMK AO2 SLP827 60009 T02280206 10289 20228 50001 KRZL 220635Z AUTO 31004KT 5SM HZ OVC008 20/17 A2977 RMK AO2 KRZN 220635Z AUTO 00000KT 10SM SCT013 16/15 A3013 RMK AO2 T01600149 KS25 220635Z AUTO 16017G24KT 10SM CLR 20/16 A2993 RMK AO2 KS32 220635Z AUTO 14007KT 7SM CLR 17/17 A3008 RMK AO2 KS33 220635Z AUTO 31006KT 10SM CLR 13/04 A3018 RMK AO2 KS39 220635Z AUTO 24003KT 10SM CLR 17/01 A3017 RMK AO2 KS52 220635Z AUTO 04004KT 10SM CLR 18/05 A3018 RMK AO2 T01810052 KSAA 220635Z AUTO 15008KT 10SM CLR 17/08 A3029 RMK AO2 KSAC 220553Z AUTO 18007KT 10SM CLR 21/13 A2996 RMK AO2 SLP145 T02110133 10344 20211 53023 KSAD 220551Z AUTO 30012KT 10SM CLR 31/15 A3003 RMK AO2 SLP103 T03060150 10367 20306 51017 KSAF 220553Z AUTO 12009KT 10SM CLR 25/01 A3028 RMK AO2 SLP121 T02500006 10350 20250 51016 KSAN 220617Z 32005KT 10SM BKN013 BKN200 23/19 A3005 RMK AO2 T02280189 KSAR 220635Z AUTO 28003KT 10SM CLR 21/20 A2988 RMK AO2 T02050202 KSAT 220551Z 15008KT 10SM SCT250 27/23 A3001 RMK AO2 SLP141 T02720233 10361 20272 403720239 51011 KSAV 220553Z AUTO 21005KT 10SM CLR 24/22 A2982 RMK AO2 SLP097 T02390217 10261 20233 58004 TSNO KSAW 220638Z AUTO 01011KT 1 3/4SM BR OVC003 14/13 A3004 RMK AO2 T01440133 KSAZ 220635Z AUTO 00000KT 10SM CLR 17/16 A3012 RMK AO2 KSBA 220553Z AUTO 09005KT 10SM CLR 19/17 A3000 RMK AO2 SLP157 T01890172 10222 20189 51010 $ KSBD 220640Z AUTO 24005KT 10SM CLR 25/11 A3005 RMK AO2 T02470111 KSBM 220553Z AUTO 02012KT 9SM OVC008 20/19 A2990 RMK AO2 RAE37 CIG 006V011 SLP121 P0000 60001 T02000189 10211 20200 402170189 51003 TSNO KSBN 220631Z AUTO 36008KT 10SM FEW008 BKN012 OVC033 19/19 A2978 KSBO 220635Z AUTO 00000KT 10SM SCT055 SCT070 25/24 A2981 RMK AO2 KSBP 220556Z AUTO 29008KT 10SM OVC006 16/15 A3006 RMK AO2 SLP178 T01610150 10244 20156 51015 KSBS 220635Z AUTO 32006KT 10SM CLR 18/08 A3031 RMK AO1 T01780083 KSBY 220636Z AUTO 20012KT 2SM -RA BR BKN006 OVC009 21/21 A2970 RMK AO2 RAB19 P0001 T02060206 KSCD 220635Z AUTO 00000KT 1 1/2SM BR BKN120 22/22 A2986 RMK AO2 T02180218 KSCF 220635Z AUTO 25019KT 10SM FEW032 FEW040 FEW049 30/24 A2997 RMK A01 KSCK 220555Z 30006KT 10SM CLR 26/07 A2996 RMK AO2 SLP146 T02610067 10339 20244 51020 KSCR 220635Z AUTO 12004KT 10SM BKN004 BKN027 BKN100 13/12 A2978 RMK AO2 T01290115 KSCX 220635Z AUTO 00000KT 10SM FEW023 SCT029 OVC040 20/19 A2981 RMK A01 KSDA 220635Z AUTO 05004KT 10SM CLR 18/18 A3004 RMK AO2 KSDB 220553Z AUTO 23003KT 10SM CLR 23/13 A3023 RMK AO2 SLP173 T02330128 10294 20228 50017 $ KSDC 220615Z AUTO 00000KT 10SM -RA SCT046 BKN120 17/16 A2991 RMK AO2 KSDF 220556Z 28010KT 10SM FEW110 BKN130 21/19 A2974 RMK AO2 SLP066 60004 T02060194 10233 20206 56009 KSDL 220553Z AUTO 26003KT 10SM CLR 33/13 A2997 RMK AO2 SLP120 T03330128 10383 20333 51016 KSDM 220553Z AUTO 28003KT 10SM CLR 20/18 A3004 RMK AO2 SLP167 T02000183 10250 20200 51016 KSDY 220056Z AUTO 07010KT 10SM CLR 22/19 A2991 RMK AO2 LTG DSNT E AND SE TSE45RAE33 SLP124 P0018 T02170194 KSEA 220553Z 36008KT 10SM FEW200 19/09 A3020 RMK AO2 SLP229 T01890089 10261 20189 53008 KSEE 220635Z AUTO 29005KT 10SM CLR 21/18 A3003 RMK AO2 KSEF 220635Z AUTO 28003KT 7SM OVC001 26/25 A2994 RMK AO2 T02600245 KSEG 220632Z AUTO 03007KT 2 1/2SM RA BR SCT007 BKN015 OVC022 17/16 A2966 RMK AO2 P0031 T01670156 KSEM 220635Z AUTO 29004KT 10SM CLR 26/24 A2983 RMK AO2 KSEP 220635Z AUTO 00000KT 10SM CLR 28/14 A2999 RMK AO2 T02790135 KSET 220554Z AUTO 31008KT 10SM CLR 23/19 A2988 RMK AO2 SLP112 T02330189 10261 20222 402890211 56004 KSEZ 220635Z AUTO 04004KT 10SM CLR 24/15 A3022 RMK AO2 KSFB 220553Z AUTO 21006KT 10SM CLR 26/24 A2991 RMK AO2 SLP126 T02610244 10272 20261 58006 KSFF 220553Z AUTO 29004KT 10SM CLR 19/01 A3010 RMK AO2 SLP180 T01890011 10283 20178 53020 KSFM 220556Z AUTO 00000KT 10SM OVC014 13/12 A3014 RMK AO2 SLP208 60000 T01280122 10183 20094 56009 KSFO 220556Z 27011KT 10SM FEW005 17/14 A3004 RMK AO2 SLP171 T01670139 10206 20161 51010 $ KSFQ 220635Z AUTO 00000KT 10SM CLR 20/20 A2979 RMK AO2 T02000198 KSFY 220635Z AUTO 34008KT 10SM CLR 19/18 A2991 RMK AO2 PWINO KSFZ 220556Z AUTO VRB06KT 10SM OVC008 17/16 A3007 RMK AO2 SLP129 T01720156 10200 20172 56013 KSGF 220552Z AUTO 00000KT 10SM CLR 21/17 A2997 RMK AO2 SLP134 T02060172 10306 20200 403280200 56000 KSGH 220556Z AUTO 10003KT 8SM 19/19 A2971 RMK AO2 SLP057 T01890189 10217 20183 58010 $ KSGJ 220556Z AUTO 22006KT 10SM CLR 25/22 A2986 RMK AO2 SLP109 T02500217 10256 20244 58018 KSGR 220553Z AUTO 21007KT 10SM CLR 27/25 A2997 RMK AO2 SLP149 T02720250 10344 20272 403720256 58001 KSGS 220635Z AUTO 01004KT 10SM CLR 20/16 A3009 RMK AO2 T02000160 KSGT 220556Z AUTO 01009KT 10SM CLR 26/23 A2988 RMK AO2 SLP115 T02610228 10328 20261 403390228 51003 KSGU 220556Z AUTO 15003KT 10SM CLR 27/15 A3008 RMK AO2 SLP142 6//// T02720150 10311 20272 51007 PNO $ KSHD 220635Z AUTO 00000KT 10SM CLR 16/15 A2979 RMK AO2 T01640154 KSHL 220635Z AUTO 01003KT 10SM FEW050 16/15 A3009 RMK AO2 KSHN 220553Z AUTO 26005KT 10SM CLR 17/11 A3017 RMK AO2 SLP216 T01720111 10261 20167 51012 KSHR 220553Z AUTO 29007KT 10SM CLR 20/11 A3000 RMK AO2 SLP119 T02000106 10322 20167 51009 KSHV 220556Z 22010KT 10SM CLR 31/21 A2985 RMK AO2 SLP105 T03060206 10383 20300 404110256 58009 KSIF 220640Z AUTO 00000KT 7SM OVC070 20/20 A2977 RMK AO2 T01950195 KSIK 220635Z AUTO 00000KT 10SM CLR 22/20 A2987 RMK AO2 KSIY 220553Z AUTO 36009KT 7SM OVC043 22/02 A3009 RMK AO2 SLP176 T02220022 10339 20222 51020 KSJC 220553Z 31005KT 10SM FEW009 19/15 A3004 RMK AO2 SLP172 T01940150 10267 20194 51015 KSJN 220554Z AUTO 27003KT 10SM CLR 24/14 A3027 RMK AO2 SLP134 60000 T02440139 10350 20244 51020 KSJS 220635Z AUTO 00000KT 10SM SCT003 BKN028 OVC085 20/20 A2975 RMK AO2 T01980198 KSJT 220551Z AUTO 18007KT 10SM CLR 31/11 A3001 RMK AO2 SLP129 T03060106 10406 20306 404220233 51012 $ KSJX 220635Z AUTO 04008KT 7SM SCT005 BKN049 OVC055 20/20 A2995 RMK AO2 T02000196 KSKA 220558Z AUTO 27007KT 10SM CLR 16/M01 A3012 RMK AO2 SLP192 T01621010 10264 20162 52019 $ KSKF 220556Z 14010KT 10SM CLR 27/24 A2999 RMK AO2A SLP147 T02740240 10377 20274 403860228 51010 $ KSKX 220556Z AUTO 36006KT 10SM FEW110 21/08 A3038 RMK AO2 SLP187 T02110083 10339 20206 51015 $ KSLB 220635Z AUTO 36005KT 10SM CLR 17/16 A3009 RMK AO2 KSLC 220554Z 17013KT 10SM FEW110 BKN150 BKN200 25/13 A3011 RMK AO2 PK WND 18030/0501 RAB18E24 SLP134 P0000 60000 T02500133 10356 20239 51018 KSLE 220556Z AUTO 34007KT 10SM CLR 18/10 A3012 RMK AO2 SLP200 T01830100 10283 20183 51014 KSLG 220556Z AUTO 07004KT 10SM CLR 23/17 A2999 RMK AO2 SLP142 T02330172 10322 20233 403390206 50003 KSLH 220635Z AUTO 05004KT 5SM RA SCT015 BKN041 OVC050 19/18 A2993 RMK AO2 T01950188 KSLK 220551Z AUTO 00000KT 10SM CLR 09/09 A3004 RMK AO2 SLP167 T00890089 10233 20089 58011 KSLN 220553Z AUTO 09008KT 10SM CLR 26/18 A3003 RMK AO2 SLP152 T02560178 10322 20256 403330206 53009 KSLO 220635Z AUTO 29007KT 10SM CLR 22/19 A2984 RMK AO2 T02170193 KSLR 220635Z AUTO 23008KT 10SM CLR 32/17 A2988 RMK AO2 T03160170 KSME 220635Z AUTO 26007KT 10SM BKN011 BKN050 OVC065 20/20 A2978 RMK AO2 KSMF 220553Z 14013KT 10SM SCT130 BKN160 23/13 A2994 RMK AO2 SLP136 T02330128 10361 20233 53023 KSMN 220556Z AUTO 22004KT 10SM CLR 22/04 A3008 RMK AO2 SLP149 6//// T02170044 10344 20217 51041 PNO $ KSMO 220628Z AUTO 15004KT 10SM BKN008 20/18 A3003 RMK AO2 T02000178 KSMP 220556Z AUTO 25003KT 10SM CLR 10/07 A3027 RMK AO2 SLP238 T01000067 10161 20100 51007 KSMQ 220557Z AUTO 10011G21KT 3SM -RA BR BKN016 OVC022 22/22 A2971 RMK AO2 PRESFR P0000 T02220222 KSMS 220635Z AUTO 21008KT 10SM VCTS FEW025 SCT035 SCT070 25/23 A2977 RMK AO2 LTG DSNT ALQDS KSMX 220551Z AUTO 33004KT 5SM BR OVC002 17/16 A3007 RMK AO2 SLP182 T01670156 10228 20167 51012 $ KSNA 220553Z 24004KT 10SM FEW015 SCT250 21/17 A3002 RMK AO2 SLP165 LAST T02110172 10272 20211 51020 KSNC 220635Z AUTO 09008G14KT 2 1/2SM -RA OVC003 19/19 A2999 RMK AO2 KSNH 220635Z AUTO 00000KT 10SM BKN065 OVC080 23/22 A2984 RMK A01 KSNK 220635Z AUTO 16008KT 10SM CLR 29/08 A3004 RMK AO2 T02910075 KSNL 220635Z AUTO 08005KT 10SM CLR 26/19 A2995 RMK AO2 T02600189 KSNS 220553Z AUTO 34007KT 10SM OVC005 16/15 A3006 RMK AO2 SLP189 T01610150 10200 20161 51013 KSNT 220551Z AUTO 17004KT 11/M02 A3026 RMK AO1 SLP145 T01111022 10278 20100 51017 KSNY 220553Z AUTO 17011KT 10SM CLR 22/18 A3009 RMK AO2 SLP131 60000 T02220183 10278 20206 58003 KSOA 220635Z AUTO 16008KT 10SM CLR 30/13 A3008 RMK AO2 KSOP 220556Z AUTO 09007KT 10SM FEW001 BKN043 OVC110 21/21 A2977 RMK AO2 LTG DSNT W-NE RAE02B37E50 SLP091 P0000 6//// T02110211 10283 20211 56012 KSOW 220635Z AUTO 17006KT 10SM BKN110 20/15 A3036 RMK AO2 KSPA 220635Z AUTO 00000KT 10SM CLR 20/19 A2977 RMK AO2 KSPB 220553Z AUTO 33005KT 10SM CLR 18/11 A3014 RMK AO2 SLP205 T01830111 10267 20183 51013 KSPD 220556Z AUTO 00000KT 22/07 A3012 RMK AO1 SLP124 T02220072 10367 20206 51015 KSPF 220635Z AUTO 19004G14KT 10SM CLR 24/13 A3001 RMK AO2 PWINO KSPG 220553Z AUTO 28008KT 10SM CLR 30/26 A2992 RMK AO2 SLP132 T03000261 10306 20294 58003 KSPI 220552Z AUTO 33009G18KT 10SM CLR 22/19 A2987 RMK AO2 SLP109 T02170194 10267 20217 402720194 55000 KSPR 220635Z AUTO 25018KT 10SM CLR 29/24 A2994 RMK A01 KSPS 220552Z AUTO 02004KT 10SM CLR 28/13 A2990 RMK AO2 SLP107 T02830128 10428 20283 404390278 53008 KSPW 220553Z AUTO 00000KT 4SM BR CLR 17/16 A3009 RMK AO2 SLP185 T01670156 10261 20167 402780167 53004 TSNO KSQI 220556Z AUTO 34008KT 10SM FEW022 19/18 A2989 RMK AO2 SLP132 6//// T01940183 10233 20194 402780194 58004 KSQL 220640Z AUTO 32005KT 10SM CLR 18/14 A3004 RMK AO2 KSRB 220635Z AUTO 00000KT 9SM BKN049 OVC055 20/19 A2981 RMK A01 KSRC 220556Z AUTO 34005KT 10SM CLR 25/19 A2990 RMK AO2 SLP127 T02500189 10344 20239 50002 KSRE 220635Z AUTO 06005KT 10SM CLR 25/18 A2994 RMK AO2 KSRQ 220553Z AUTO 29010KT 10SM FEW018 29/26 A2994 RMK AO2 SLP137 T02890261 10300 20289 50000 KSRR 220635Z AUTO 13004KT CLR 22/03 A3037 RMK AO2 KSSC 220638Z 22011KT 8SM -RA 25/22 A2975 RMK RAB31 SLP073 TSNO $ KSSF 220553Z AUTO 15008KT 10SM CLR 28/27 A2998 RMK AO2 SLP139 T02830272 10383 20283 404000239 51011 KSSI 220630Z AUTO 24007KT 10SM BKN008 24/22 A2983 RMK AO2 T02440217 KSTC 220553Z AUTO 00000KT 10SM CLR 18/17 A3011 RMK AO2 SLP201 T01830172 10256 20178 402610161 53008 KSTE 220635Z AUTO 01008KT 10SM BKN033 OVC060 16/15 A3000 RMK AO2 T01620150 KSTF 220635Z AUTO 00000KT 10SM CLR 23/22 A2986 RMK AO2 KSTJ 220553Z AUTO 33004KT 10SM CLR 19/19 A3002 RMK AO2 SLP157 T01940189 10294 20189 403170172 53006 KSTK 220630Z AUTO 18003KT 10SM CLR 22/18 A3007 RMK AO2 KSTL 220551Z 30005KT 10SM CLR 23/19 A2989 RMK AO2 SLP110 T02280194 10267 20222 403000217 55004 KSTP 220553Z AUTO 00000KT 10SM CLR 20/16 A3009 RMK AO2 SLP185 T02000161 10261 20200 402720167 51010 KSTS 220553Z AUTO 16006KT 8SM SCT007 16/14 A3004 RMK AO2 SLP164 T01560139 10261 20156 51022 $ KSUA 220635Z AUTO 23004KT 10SM SCT013 26/23 A2996 RMK AO2 KSUE 220641Z AUTO 36013KT 6SM BR OVC004 18/17 A2995 RMK AO2 KSUN 220635Z AUTO 31009KT 10SM CLR 17/02 A3019 RMK AO2 KSUS 220554Z AUTO 31005KT 10SM CLR 23/19 A2989 RMK AO2 SLP113 T02330189 10283 20206 403110194 55002 KSUT 220640Z AUTO 19005KT 10SM SCT011 26/25 A2979 RMK AO2 T02620245 KSUU 220558Z AUTO 22022G28KT 10SM CLR 18/14 A2994 RMK AO2 PK WND 25030/00 SLP145 T01830138 10317 20182 51013 $ KSUW 220635Z AUTO 07007KT 10SM SCT036 16/15 A3014 RMK AO2 T01600151 KSUX 220552Z AUTO 08007KT 10SM CLR 21/17 A3008 RMK AO2 SLP177 T02110167 10278 20211 402890161 51009 KSVC 220635Z AUTO 33012KT 10SM CLR 24/14 A3022 RMK AO2 T02390135 KSVE 220635Z AUTO 30005KT 10SM FEW110 23/10 A3017 RMK AO2 KSVH 220635Z AUTO 00000KT 10SM CLR 21/19 A2975 RMK AO2 T02050188 KSVN 220556Z AUTO 22005KT 10SM CLR 24/21 A2980 RMK AO2 SLP094 T02370212 10257 20237 58006 FZRANO $ KSWF 220545Z 08012KT 5SM -RA BR OVC010 17/17 A2992 KSWO 220553Z AUTO 08007KT 10SM CLR 27/17 A2995 RMK AO2 SLP126 T02670172 10361 20256 403780256 50001 KSWW 220635Z AUTO 17008KT 10SM CLR 29/07 A3005 RMK AO2 T02900072 KSXS 220635Z AUTO 29004KT 10SM TS FEW028 26/24 A2984 RMK AO2 RAE03 TSE03TSB07E22TSB35 SLP102 KSXT 220556Z AUTO 35009KT 10SM CLR 15/01 A3018 RMK AO2 SLP183 T01500011 10239 20150 51007 KSXU 220635Z AUTO 15006KT 10SM CLR 26/02 A3016 RMK AO2 T02630021 KSYF 220635Z AUTO 10005KT 10SM CLR 21/18 A3007 RMK AO2 T02060176 KSYI 220635Z AUTO 00000KT 10SM FEW041 19/18 A2984 RMK A01 KSYM 220635Z AUTO 22007KT 9SM BKN004 OVC010 20/19 A2972 RMK AO2 KSYN 220635Z AUTO 01005KT 10SM CLR 18/16 A3007 RMK AO2 T01760160 KSYR 220554Z 08010KT 10SM -RA SCT090 OVC110 21/14 A2990 RMK AO2 RAB48 SLP117 PCPN VERY LIGHT P0000 60000 T02110144 10244 20211 56021 KSZL 220556Z AUTO 35006KT 10SM CLR 22/18 A2995 RMK AO2 SLPNO T02160178 10300 20211 403080188 52009 $ KSZT 220635Z AUTO 00000KT 10SM CLR 15/03 A3011 RMK AO2 KSZY 220635Z AUTO 00000KT 10SM BKN075 22/21 A2985 RMK A01 KT20 220635Z AUTO 20006KT 10SM BKN009 26/26 A2998 RMK AO2 T02600255 KT35 220635Z AUTO 19009KT 10SM CLR 28/23 A2995 RMK AO2 T02810225 KT70 220558Z AUTO 20010KT 10SM CLR 32/18 A2992 RMK AO2 SLP116 60000 T03150181 10393 20314 404020243 52013 KT82 220635Z AUTO 00000KT 10SM CLR 27/21 A3003 RMK AO2 T02680205 KTAD 220554Z AUTO 30005KT 10SM CLR 20/12 A3024 RMK AO2 SLP141 T02000122 10350 20194 50012 KTAN 220607Z AUTO VRB04KT 10SM OVC009 19/17 A3006 RMK AO2 T01940167 KTAZ 220635Z AUTO 34009KT 10SM CLR 20/19 A2984 RMK AO2 T01980187 KTBN 220556Z AUTO 00000KT 10SM CLR 20/18 A2995 RMK AO2 SLP135 T02030175 10280 20201 402980193 52001 KTBR 220635Z AUTO 23003KT 10SM CLR 23/22 A2981 RMK AO2 T02300221 KTCC 220553Z AUTO 18009KT 10SM CLR 27/07 A3009 RMK AO2 SLP109 T02720072 10389 20256 51014 $ KTCL 220640Z AUTO 00000KT 1/2SM FG VV002 25/24 A2984 RMK AO2 T02500244 KTCM 220558Z AUTO 03004KT 10SM CLR 19/10 A3019 RMK AO2 SLP226 T01920099 10254 20186 52008 $ KTCS 220553Z AUTO 27006KT 10SM CLR 28/06 A3013 RMK AO2 SLP099 T02830061 10378 20283 51012 $ KTDF 220635Z AUTO 00000KT 7SM RA SCT070 SCT075 OVC090 18/18 A2980 RMK AO2 P0006 KTDR 220554Z AUTO 24005KT 9SM BKN017 29/27 A2988 RMK AO2 CIG 017V160 SLP122 $ KTDZ 220553Z AUTO 05004KT 10SM BKN033 OVC100 22/21 A2975 RMK AO2 LTG DSNT N AND NW SLP071 T02220206 10228 20211 55004 $ KTEB 220551Z 07013G21KT 3SM +RA BR BKN010 OVC017 21/20 A2982 RMK AO2 CIG 006V014 SLP097 P0018 60072 T02110200 10211 20183 58027 KTEW 220635Z AUTO 03005KT 7SM OVC007 21/19 A2979 RMK AO2 T02050192 KTEX 220635Z AUTO 00000KT 10SM BKN100 18/08 A3059 RMK AO2 KTFP 220635Z AUTO 21009G15KT 10SM SCT014 SCT019 29/26 A2997 RMK AO2 T02860260 PNO KTGI 220635Z AUTO 24021G24KT 10SM OVC011 22/21 A2973 RMK AO1 KTHA 220635Z AUTO 30005KT 10SM CLR 21/ A2984 RMK A01 KTHV 220635Z AUTO 27008KT 1 3/4SM RA BR FEW005 BKN010 OVC021 18/17 A2964 RMK AO2 P0007 T01780172 KTIF 220635Z AUTO 11008KT 10SM CLR 23/21 A3011 RMK AO2 LTG DSNT NW T02300208 KTIK 220556Z AUTO 09005KT 10SM CLR 27/20 A2995 RMK AO2 SLP132 T02650196 10346 20261 403640261 51004 KTIP 220635Z AUTO 33009KT 10SM BKN010 BKN020 OVC030 21/20 A2980 RMK AO2 T02120203 KTIW 220553Z AUTO 02004KT 10SM CLR 18/08 A3020 RMK AO2 SLP223 T01830078 10233 20183 53011 KTIX 220047Z 24005KT 7SM SCT040 BKN120 26/24 A2989 RMK LAST KTKC 220635Z AUTO 00000KT 10SM CLR 19/18 A3011 RMK AO2 T01870181 KTKI 220553Z AUTO 21008KT 10SM CLR 34/13 A2988 RMK AO2 SLP107 6//// T03390133 10394 20317 404220250 53002 PNO $ KTKV 220635Z AUTO 02004KT 10SM OVC015 16/14 A3006 RMK AO2 T01570143 KTKX 220635Z AUTO 35006KT 10SM CLR 25/19 A2986 RMK AO2 KTLH 220553Z AUTO 25005KT 10SM CLR 25/22 A2985 RMK AO2 SLP107 60000 T02500222 10278 20239 58011 $ KTMA 220635Z AUTO 24003KT 10SM CLR 24/24 A2981 RMK AO2 T02400237 KTMB 220553Z AUTO 21004KT 10SM CLR 28/24 A2995 RMK AO2 SLP143 T02780244 10289 20267 58005 $ KTME 220635Z AUTO 21005KT 7SM FEW017 26/25 A2998 RMK AO2 KTMK 220635Z AUTO 00000KT 10SM CLR 11/10 A3020 RMK AO2 KTMT 220635Z AUTO 20006KT 10SM -RA SCT048 SCT060 OVC090 17/14 A3034 RMK AO2 P0002 T01700144 KTNB 220635Z AUTO 28003KT 10SM SCT100 18/14 A2986 RMK AO2 T01750140 KTNU 220635Z AUTO 36008KT 10SM BKN035 19/18 A3001 RMK AO2 KTOA 220247Z 26009KT 10SM FEW010 FEW100 21/18 A2996 RMK LAST KTOB 220635Z AUTO 36006KT 10SM CLR 17/15 A3007 RMK AO2 KTOC 220635Z AUTO 24005KT 10SM CLR 23/22 A2979 RMK AO2 T02250216 KTOI 220611Z AUTO 22005KT 10SM FEW080 26/23 A2986 RMK AO2 LTG DSNT ALQDS T02610228 $ KTOL 220626Z 06006KT 10SM SCT016 OVC028 23/19 A2974 KTOP 220553Z AUTO 03003KT 10SM CLR 22/19 A3001 RMK AO2 SLP152 T02220194 10322 20222 403500178 53007 KTOR 220553Z AUTO 12009KT 10SM CLR 22/16 A3006 RMK AO2 SLP121 60000 T02220161 10278 20217 51011 KTPA 220553Z 26010KT 10SM FEW020 FEW035 BKN210 29/26 A2994 RMK AO2 SLP138 T02940261 10300 20283 58004 KTPF 220635Z AUTO 26005KT 10SM SCT110 28/27 A2993 RMK AO2 KTPH 220556Z AUTO 03006KT 10SM SCT085 25/11 A3025 RMK AO2 LTG DSNT E-SW RAB10E22 SLP151 P0000 60000 T02500106 10328 20239 51023 KTPL 220551Z AUTO 17009KT 10SM CLR 29/21 A2996 RMK AO2 SLP140 T02940206 10389 20294 404110228 51002 KTQE 220554Z AUTO 31006KT 10SM CLR 19/18 A3007 RMK AO2 SLP170 T01890178 10278 20178 402940156 51009 KTQH 220635Z AUTO 00000KT 10SM CLR 22/17 A2995 RMK AO2 KTRI 220553Z 00000KT 8SM BKN010 BKN110 20/19 A2980 RMK AO2 SLP065 T02000189 10239 20200 58011 KTRK 220635Z AUTO 14003KT 10SM CLR 15/09 A3031 RMK AO2 KTRL 220553Z AUTO 21007KT 10SM CLR 30/17 A2989 RMK AO2 SLP113 60000 T03000167 10406 20300 404170250 58001 KTRM 220552Z AUTO 27004KT 10SM CLR 31/17 A2984 RMK AO2 SLP109 T03060167 10411 20306 52015 KTSP 220635Z AUTO 28008KT 10SM CLR 22/14 A3018 RMK AO2 KTTA 220640Z AUTO 03003KT 10SM SCT001 SCT046 SCT060 20/20 A2974 RMK AO2 T02010199 KTTD 220553Z AUTO 00000KT 10SM CLR 19/12 A3014 RMK AO2 SLP204 T01940122 10272 20194 51015 KTTF 220637Z AUTO 10005KT 10SM BKN023 BKN041 BKN055 23/20 A2975 RMK AO2 T02300201 KTTN 220617Z AUTO 13019G25KT 3SM -RA BR SCT009 BKN018 OVC031 23/22 A2969 RMK AO2 P0012 T02330222 KTUL 220553Z 08003KT 10SM CLR 24/20 A2993 RMK AO2 SLP124 T02440200 10356 20244 403780239 50005 KTUP 220553Z AUTO 00000KT 10SM CLR 24/22 RMK AO2 SLPNO T02390222 10317 20239 403440239 $ KTUS 220553Z 32005KT 10SM CLR 32/16 A3007 RMK AO2 SLP125 T03220161 10367 20322 51012 KTVC 220553Z AUTO 04005KT 5SM -RA BR BKN008 BKN013 OVC028 21/19 A2989 RMK AO2 RAB43 CIG 006V012 SLP117 P0002 60032 T02060194 10228 20200 53001 KTVF 220556Z AUTO 07006KT 10SM SCT046 17/16 A3014 RMK AO2 SLP205 T01720161 10228 20172 58000 KTVI 220635Z AUTO 26006KT 10SM CLR 25/22 A2984 RMK AO2 KTVK 220635Z AUTO 33003KT 10SM 20/20 A3000 RMK AO2 KTVL 220553Z AUTO VRB03KT 10SM OVC090 17/12 A3031 RMK AO2 SLP191 T01720122 10261 20172 51010 KTVR 220553Z AUTO VRB03KT 10SM CLR 27/23 A2987 RMK AO2 SLP119 T02720233 10328 20261 403500250 50001 KTWF 220553Z AUTO 20007KT 10SM CLR 21/06 A3007 RMK AO2 SLP124 T02060056 10328 20206 51012 KTWM 220635Z AUTO 00000KT 10SM BKN024 16/13 A3013 RMK AO2 KTXK 220553Z AUTO 21003KT 10SM CLR 29/21 A2987 RMK AO2 SLP109 T02940211 10383 20278 403940250 51003 KTYQ 220635Z AUTO 33006KT 10SM 19/19 A2974 RMK AO2 T01940192 KTYR 220553Z AUTO 22008KT 10SM CLR 31/19 A2989 RMK AO2 SLP111 T03060189 10394 20306 404060267 56006 KTYS 220553Z 00000KT 10SM FEW032 BKN043 OVC100 21/20 A2981 RMK AO2 SLP082 60008 T02110200 10250 20206 56005 KTZR 220635Z AUTO 00000KT 5SM BR OVC009 19/19 A2971 RMK AO2 T01850185 KU42 220635Z AUTO 18013KT 10SM CLR 24/15 A3016 RMK AO1 T02370145 KU68 220635Z AUTO 31004KT 10SM CLR 23/ A2999 RMK AO2 KUAO 220553Z AUTO 35008KT 10SM CLR 20/12 A3015 RMK AO2 SLP206 T02000117 10278 20200 51014 KUBE 220635Z AUTO 36005KT 10SM CLR 15/13 A3011 RMK AO2 KUCP 220556Z AUTO 08004KT 10SM CLR 18/16 A2981 RMK AO2 SLP101 T01780156 10233 20178 58014 KUDG 220556Z AUTO 17006KT 10SM CLR 25/23 A2975 RMK AO2 LTG DSNT W SLP075 T02500228 10306 20250 58008 KUES 220635Z AUTO 36007KT 10SM OVC007 18/18 A2989 RMK AO2 KUGN 220555Z AUTO 01007KT 7SM OVC008 20/20 A2982 RMK AO2 RAB01E27 SLP090 P0000 60005 T02000200 10211 20200 402500194 58001 KUIL 220553Z AUTO 00000KT 10SM CLR 11/09 A3023 RMK AO2 SLP237 T01110094 10189 20111 53010 KUIN 220554Z AUTO 33008KT 10SM CLR 21/18 A2991 RMK AO2 SLP124 T02110183 10267 20206 402720194 56004 KUKF 220635Z AUTO 06004KT 10SM SCT009 SCT013 SCT070 18/18 A2983 RMK AO2 LTG DSNT S KUKI 220556Z AUTO 17003KT 10SM CLR 24/14 A3001 RMK AO2 SLP153 T02390139 10356 20239 51022 KULM 220635Z AUTO 04005KT 10SM CLR 20/17 A3008 RMK AO2 KULS 220635Z AUTO 36011KT 10SM CLR 22/17 A3007 RMK AO2 KUNI 220635Z AUTO 00000KT 10SM SCT041 SCT046 18/18 A2971 RMK AO2 T01800180 KUNO 220553Z AUTO 32006KT 10SM CLR 23/17 A2996 RMK AO2 SLP130 T02280172 10300 20228 403220217 58004 KUNU 220635Z AUTO 35011G15KT 10SM OVC006 19/18 A2992 RMK AO2 T01870184 KUNV 220635Z AUTO 02009KT 7SM -RA SCT003 BKN019 OVC027 15/15 A2975 RMK AO2 P0016 T01450145 KUOX 220635Z AUTO 00000KT 9SM CLR 23/23 A2986 RMK AO2 KUSE 220625Z AUTO 04008KT 7SM FEW020 FEW065 OVC095 20/20 A2975 RMK AO2 KUTA 220635Z AUTO 30004KT 10SM 24/22 A2987 RMK AO2 TSNO KUTS 220553Z AUTO 21008KT 10SM CLR 28/23 A2996 RMK AO2 SLP139 T02780233 10350 20278 403610250 56001 KUUU 220553Z AUTO 10013G19KT 10SM OVC004 19/18 A3004 RMK AO2 SLP172 T01940183 10194 20183 56014 KUVA 220635Z AUTO 14010KT 10SM CLR 29/24 A2998 RMK AO2 T02890235 KUXL 220635Z AUTO 22006KT 10SM CLR 28/25 A2994 RMK AO2 T02760254 KUYF 220635Z AUTO 00000KT 7SM BKN005 OVC009 18/17 A2972 RMK AO2 KUZA 220554Z AUTO 31003KT 10SM CLR 22/19 A2977 RMK AO2 LTG DSNT E AND SE SLP067 60000 T02170194 10272 20211 56008 KVAD 220556Z AUTO 23004KT 10SM CLR 25/25 A2983 RMK AO2 SLP102 60000 T02450245 10253 20238 50002 $ KVAF 220635Z AUTO 23012KT 7SM FEW021 29/24 A2998 RMK A01 KVAY 220631Z AUTO 14010G18KT 2 1/2SM -RA BR OVC009 23/23 A2967 RMK AO2 RAB0558 CIG 006V013 P0008 T02280228 $ KVBG 220628Z AUTO 04003KT 3SM BR OVC001 15/14 A3007 RMK AO2 SLP184 $ KVBS 220635Z AUTO 19016G23KT 10SM CLR M40/ A2994 RMK A01 KVBT 220556Z AUTO 00000KT 10SM CLR 24/17 A3001 RMK AO2 SLP149 T02390172 10317 20239 403330211 50002 KVBW 220635Z AUTO 00000KT 10SM CLR 17/17 A2977 RMK AO2 T01670166 KVCB 220553Z AUTO 20008KT 10SM CLR 24/11 A2994 RMK AO2 SLP137 T02390111 10361 20239 51010 KVCT 220551Z AUTO 20007KT 7SM CLR 26/24 A2999 RMK AO2 SLP152 T02610244 10322 20256 403560222 50001 KVCV 220248Z 16010G15KT 10SM SKC A3001 KVDF 220635Z AUTO 00000KT 7SM SCT018 SCT023 BKN030 25/25 A2993 RMK AO2 KVDI 220635Z AUTO 00000KT 10SM CLR 24/22 A2982 RMK AO2 KVEL 220553Z AUTO 18007KT 10SM CLR 25/09 A3017 RMK AO2 SLP133 T02500094 10356 20250 51022 KVER 220635Z AUTO 00000KT 10SM CLR 22/17 A2996 RMK AO2 T02160174 KVES 220635Z AUTO 00000KT 3SM BR BKN007 BKN120 19/19 A2970 RMK AO2 KVGT 220553Z AUTO 00000KT 10SM CLR 28/14 A3002 RMK AO2 SLP155 T02830144 10317 20283 51014 KVIH 220553Z AUTO 32003KT 10SM CLR 21/16 A2996 RMK AO2 SLP133 T02060161 10289 20194 403170183 53003 $ KVIS 220556Z AUTO 31008KT 10SM CLR 29/21 A2993 RMK AO2 SLP137 T02890206 10367 20289 51019 KVJI 220635Z AUTO 25005KT 10SM BKN006 OVC011 20/20 A2982 RMK AO2 T01960196 KVKS 220635Z AUTO 22005KT 10SM CLR 28/23 A2987 RMK A01 KVKY 220635Z AUTO 27024KT 10SM CLR 29/26 A2992 RMK A01 KVLD 220623Z AUTO 18003KT 2SM BR CLR 23/23 A2983 RMK AO2 T02330233 KVLL 220635Z AUTO 02004KT 10SM SCT017 21/19 A2981 RMK AO2 T02100193 KVNC 220635Z AUTO 29012KT 7SM BKN019 BKN028 OVC046 30/26 A2995 RMK AO2 KVNW 220635Z AUTO 00000KT 10SM SCT008 BKN014 OVC020 20/19 A2973 RMK AO2 KVNY 220551Z AUTO 22003KT 10SM CLR 25/13 A3001 RMK AO2 SLP152 T02500133 10339 20250 51020 KVOA 220640Z AUTO 26027KT 7SM CLR 30/26 A2989 RMK A01 KVOK 220556Z AUTO 36006KT 10SM CLR 18/17 A2999 RMK AO2 SLP155 T01750168 10214 20175 402610173 55000 KVPC 220553Z AUTO 00000KT 6SM BR CLR 21/21 A2984 RMK AO2 SLP090 6//// T02110211 10278 20211 50001 $ KVPS 220556Z 26004KT 10SM SCT150 29/26 A2986 RMK AO2A SLP117 T02850261 10313 20283 403640273 58003 $ KVPZ 220638Z AUTO 01006KT 9SM BKN007 BKN011 OVC024 21/18 A2978 RMK AO2 T02060183 KVQQ 220635Z AUTO 18003KT 10SM FEW013 SCT022 BKN075 24/23 A2986 RMK AO2 KVQT 220635Z AUTO VRB06G13KT 9SM CLR 31/26 A2998 RMK A01 KVRB 220553Z AUTO 26006KT 10SM CLR 25/24 A2995 RMK AO2 SLP140 T02500239 10283 20250 50000 KVSF 220554Z AUTO 00000KT 10SM BKN060 14/14 A3011 RMK AO2 SLP193 T01440139 10228 20139 56010 KVTA 220629Z AUTO 00000KT 9SM FEW008 BKN026 OVC030 20/19 A2972 RMK AO2 T02000194 KVTI 220635Z AUTO 31004KT 10SM CLR 19/17 A2999 RMK AO2 T01880170 KVTN 220552Z AUTO 15008KT 10SM CLR 24/21 A3008 RMK AO2 SLP160 T02440206 10306 20244 403170178 50013 KVUJ 220635Z AUTO 00000KT 10SM VCTS SCT035 BKN042 BKN048 22/22 A2977 RMK AO2 LTG DSNT E THRU W P0002 T02180215 KVUO 220553Z AUTO VRB05KT 10SM CLR 19/12 A3014 RMK AO2 SLP205 T01940117 10267 20194 51014 KVVV 220635Z AUTO 04003KT 10SM CLR 19/18 A3010 RMK AO2 KVWU 220635Z AUTO 08004KT 10SM CLR 16/16 A3016 RMK AO2 KVYS 220635Z AUTO 33009KT 10SM SCT014 BKN026 OVC034 21/20 A2986 RMK AO2 T02110196 KW13 220635Z AUTO 00000KT 10SM CLR 16/16 A2978 RMK AO1 T01610160 KW22 220630Z AUTO 00000KT 10SM FEW024 SCT037 17/17 A2975 RMK AO2 KW29 220635Z AUTO 27012KT 10SM OVC007 20/19 A2965 RMK AO2 KW31 220640Z AUTO 19004KT 10SM BKN046 BKN050 BKN100 18/18 A2980 RMK AO2 P0001 KW43 220635Z AUTO 24005KT 10SM CLR 21/12 A3004 RMK AO2 KW63 220635Z AUTO 00000KT 4SM SCT055 SCT075 BKN110 20/20 A2978 RMK AO1 P0008 KW75 220635Z AUTO 26003KT 10SM OVC007 19/19 A2975 RMK AO1 T01930193 KW78 220630Z AUTO 00000KT 10SM BKN003 BKN021 OVC085 20/19 A2977 RMK AO1 P0001 T02000192 KW81 220635Z AUTO 00000KT 10SM SCT047 OVC055 18/18 A2978 RMK AO1 T01820182 KW96 220635Z AUTO 10SM CLR 19/19 A2975 RMK AO1 T01850185 KW99 220635Z AUTO 00000KT 10SM SCT008 SCT013 OVC025 17/16 A2977 RMK AO2 T01690160 KWAL 220626Z AUTO 22010KT 10SM OVC010 22/21 A2974 KWBF 220640Z AUTO 00000KT 10SM CLR 30/24 A3000 RMK A01 KWDG 220635Z AUTO 10008KT CLR 26/19 A2995 RMK AO2 PWINO KWDR 220635Z AUTO 27006KT 10SM CLR 23/22 A2984 RMK AO1 KWHP 220250Z 12005KT 10SM SKC 27/15 A3000 KWJF 220556Z AUTO 24014KT 10SM CLR 26/13 A3005 RMK AO2 SLP153 T02610128 10344 20261 51021 KWLD 220554Z AUTO 05003KT 10SM CLR 24/21 A2999 RMK AO2 SLP142 T02390206 10333 20239 403440222 53003 $ KWMC 220556Z AUTO 18012KT 10SM BKN120 26/11 A3012 RMK AO2 PK WND 14029/0503 WSHFT 0452 RAB14E25 SLP139 P0000 60000 T02610111 10367 20256 51027 KWRB 220624Z 30004KT 10SM -DZ FEW042 23/20 A2980 RMK AO2A DZB24 SLP091 KWRI 220639Z 13017G28KT 10SM BKN012 22/22 A2968 RMK AO2A BKN V SCT SLP049 KWRL 220553Z AUTO 17004KT 10SM CLR 18/09 A3000 RMK AO2 SLP106 T01780094 10333 20178 51011 KWST 220630Z AUTO 09010G19KT 3SM -RA BR OVC002 20/20 A3002 RMK AO2 P0000 T02000200 KWVI 220553Z AUTO 30004KT 8SM OVC004 16/15 A3007 RMK AO2 SLP181 T01560150 51011 $ KWVL 220556Z AUTO 00000KT 10SM CLR 13/12 A3015 RMK AO2 SLP234 T01280117 10222 20122 55000 $ KWWD 220555Z AUTO RMK AO2 SLPNO 6//// PWINO FZRANO $ KWWR 220635Z AUTO 12008KT 10SM CLR 27/17 A3002 RMK AO2 KWYS 220630Z AUTO 00000KT 10SM CLR 10/09 A3020 RMK AO2 KX07 220635Z AUTO 00000KT 24/24 RMK A01 KX60 220635Z AUTO 20005KT 6SM BR 27/27 A2986 RMK A01 KXBP 220635Z AUTO 21009G16KT 10SM CLR 32/12 A2992 RMK AO2 T03210120 KXIF 220556Z AUTO 00000KT 10SM -RA FEW007 SCT015 17/16 A2961 RMK AO2 SLPNO WND DATA ESTMD P0009 60368 T01680163 10169 20146 57043 KXIH 220635Z AUTO 23016KT 10SM CLR 29/25 A2995 RMK A01 KXLL 220635Z AUTO 06010KT 5SM RA OVC009 A2968 RMK AO2 P0004 KXMR 220556Z AUTO 23004KT 9SM CLR 26/25 A2991 RMK AO2 SLP132 T02620246 10266 20254 58002 $ KXNA 220355Z 00000KT 10SM CLR 24/17 A2998 KXNO 220620Z AUTO 08005KT 10SM -RA VCTS BKN070 OVC080 21/15 A2976 RMK AO2 TSB05E20 PRESFR SLP077 $ KXNX 220635Z AUTO 00000KT 10SM CLR 22/18 A2983 RMK A01 KXPY 220635Z AUTO 26014G19KT 10SM FEW016 29/27 A2994 RMK A01 KXSA 220617Z AUTO 25006KT 10SM OVC006 19/19 A2974 RMK AO2 KXVG 220638Z AUTO 00000KT 3SM BR SCT027 16/15 A3015 RMK AO2 KY19 220635Z AUTO 16017G22KT 10SM FEW040 SCT055 SCT070 19/19 A2999 RMK AO2 LTG DSNT S KY23 220635Z AUTO 02007KT 10SM CLR 17/15 A3009 RMK AO2 T01700150 KY31 220635Z AUTO 03008KT 10SM CLR 19/18 A2986 RMK AO2 P0001 T01900180 KY49 220635Z AUTO 08004KT 10SM SCT035 19/17 A3014 RMK AO2 T01900170 KY50 220556Z AUTO 02007KT 10SM OVC021 19/16 A2996 RMK AO2 SLP161 T01940161 10228 20194 402560189 53003 KY51 220635Z AUTO 36006KT 10SM OVC013 17/17 A3001 RMK AO1 T01720172 KY63 220635Z AUTO 12004KT 5SM BR CLR 20/19 A3011 RMK AO2 T01990189 KY70 220635Z AUTO 03006KT 5SM BR SCT006 OVC011 20/20 A2981 RMK AO2 T02000195 KYIP 220553Z 05005KT 10SM BKN043 22/20 A2978 RMK AO2 LTG DSNT S SLP079 T02220200 10233 20222 55003 KYKM 220553Z AUTO 33007KT 10SM CLR 22/06 A3012 RMK AO2 SLP191 T02170056 10300 20211 51027 KYKN 220556Z AUTO 09003KT 10SM CLR 19/18 A3009 RMK AO2 SLP195 T01940178 10272 20194 402720167 53009 KYNG 220551Z 10009KT 10SM BKN110 OVC160 18/14 A2979 RMK AO2 SLP082 T01830144 10233 20183 58013 KZPH 220635Z AUTO 00000KT 10SM CLR 25/24 A2993 RMK AO2 T02450240 KZZV 220641Z AUTO 10004KT 10SM BKN026 19/17 A2973 RMK AO2 T01890167 LATI 220620Z 15006KT CAVOK 26/16 Q1010 NOSIG LBBG 220630Z 27003KT 220V340 CAVOK 26/20 Q1010 NOSIG LBGO 220630Z AUTO 07004KT 020V100 9999 NCD 24/19 Q1010 NOSIG LBIA 220600Z 00000KT 9999 SKC 24/17 Q1012 LBPD 220630Z AUTO 23004KT 130V280 9999 NCD 25/16 Q1011 NOSIG LBPG 220600Z 00000KT 9999 SKC 21/17 Q1011 LBPL 220600Z 30002KT 9999 SKC 22/17 Q1011 LBSF 220630Z 00000KT CAVOK 20/15 Q1014 NOSIG LBWN 220630Z 27003KT 220V320 CAVOK 26/20 Q1010 NOSIG LCEN 220620Z 29009KT 260V320 CAVOK 33/18 Q1005 NOSIG RMK RWY11 30010KT 270V330 LCLK 220630Z 15007KT 110V170 CAVOK 30/20 Q1005 NOSIG LCPH 220630Z 27014KT 9999 FEW010 29/25 Q1005 LCRA 220550Z 04003KT CAVOK 30/19 Q1005 BLU NOSIG LDDU 220630Z 13015KT CAVOK 27/15 Q1010 NOSIG LDLO 220600Z 30005KT CAVOK 26/20 Q1009 LDOS 220630Z 01005KT 340V050 9999 SCT047 22/18 Q1010 LDPL 220630Z 31007KT CAVOK 24/20 Q1009 NOSIG LDRI 220630Z VRB02KT CAVOK 26/17 Q1009 LDSP 220630Z 10005KT 050V120 CAVOK 28/17 Q1008 NOSIG LDZA 220630Z VRB01KT CAVOK 21/17 Q1010 NOSIG LDZD 220630Z 02003KT 340V070 9999 FEW075 26/18 Q1009 NOSIG LEAB 220600Z 12003KT 8000 SCT015 18/17 Q1016 NOSIG LEAG 220630Z AUTO VRB02KT CAVOK 21/13 Q1012 LEAL 220630Z 01004KT 300V050 9999 FEW025 25/20 Q1013 NOSIG LEAM 220630Z 33004KT CAVOK 25/21 Q1012 LEAS 220630Z 23003KT 200V260 9999 FEW028 SCT075 18/17 Q1018 NOSIG LEBA 220630Z 00000KT CAVOK 21/13 Q1013 LEBB 220630Z 14003KT 100V160 9999 FEW024 SCT036 BKN060 18/16 Q1017 NOSIG LEBG 220630Z 04008KT 9999 FEW003 13/13 Q1019 LEBL 220630Z 16004KT 9999 -SHRA FEW010 FEW020CB 22/19 Q1015 NOSIG LEBT 220630Z AUTO 04002KT 9999 BKN040 OVC049 24/16 Q1015 LEBZ 220600Z 23005KT CAVOK 17/14 Q1013 LECH 220630Z AUTO 17004KT 110V230 CAVOK 17/16 Q1016 LECO 220630Z 00000KT 9999 FEW005 17/17 Q1017 NOSIG LEDA 220630Z VRB02KT 9999 -DZ FEW047 BKN050 17/15 Q1016 LEGA 220600Z 16005KT CAVOK 18/04 Q1016 LEGE 220630Z VRB02KT 9999 BKN022 21/18 Q1015 LEGR 220630Z 00000KT CAVOK 17/06 Q1015 LEGT 220600Z 05006KT 9999 FEW037 SCT045 19/13 Q1016 LEHC 220630Z AUTO 28004KT 250V310 CAVOK 16/12 Q1016 LEIB 220630Z 07007KT 9999 FEW015 26/22 Q1013 NOSIG LEJR 220630Z 19006KT 0300 R20/0550D FG OVC001 17/17 Q1013 LELC 220630Z 36007KT 9999 BKN013 25/22 Q1013 NOSIG LELL 220630Z 00000KT 9999 FEW015 22/21 Q1015 LELN 220630Z VRB02KT 9999 BKN033 13/11 Q1019 LEMD 220630Z 35005KT 310V020 9999 SCT055 18/14 Q1016 NOSIG LEMG 220630Z 18001KT CAVOK 23/19 Q1012 NOSIG LEMH 220630Z 06006KT 020V110 CAVOK 25/17 Q1015 LEMO 220600Z 14003KT CAVOK 16/11 Q1012 NOSIG LEPA 220630Z 06005KT 9999 FEW020 SCT030 23/20 Q1014 NOSIG LEPP 220630Z 33003KT 290V010 9999 FEW018 16/13 Q1018 LERI 220600Z VRB02KT 7000 FEW012 SCT030 24/21 Q1014 NOSIG LERS 220630Z 33003KT 300V360 9999 FEW030TCU SCT050 23/14 Q1014 LERT 220600Z 00000KT 7000 R28/0800N BCFG SCT002 18/17 Q1013 NOSIG LESA 220630Z 08003KT 020V140 CAVOK 15/11 Q1017 LESO 220630Z 17003KT 9999 FEW030 18/16 Q1017 LEST 220630Z 01006KT 9999 SCT022 16/16 Q1018 NOSIG LETL 220630Z AUTO VRB01KT CAVOK 15/11 Q1018 LETO 220600Z 03005KT 350V060 9999 FEW045TCU SCT050 17/14 Q1016 NOSIG LEVC 220630Z 06009KT 010V090 9999 BKN030 25/16 Q1014 TEMPO SHRA FEW025CB LEVD 220630Z 05006KT 020V080 CAVOK 13/12 Q1018 LEVS 220630Z 02003KT 300V100 9999 SCT045 19/13 Q1016 LEVT 220630Z 00000KT 7000 SCT015 BKN020 14/13 Q1019 LEVX 220630Z VRB01KT CAVOK 18/16 Q1016 NOSIG LEXJ 220630Z 23006KT 200V260 9999 -SHRA SCT022TCU SCT050 19/18 Q1017 LEZG 220630Z 28011KT 9999 FEW050 19/14 Q1016 LEZL 220630Z 15001KT CAVOK 20/16 Q1012 NOSIG LFAQ 220630Z AUTO VRB02KT 5000 BR NSC 17/14 Q1016 NOSIG LFAT 220630Z AUTO VRB03KT 3500 BR NSC 15/14 Q1016 BECMG 9999 NSW LFBA 220630Z AUTO 29003KT 260V320 CAVOK 17/16 Q1017 NOSIG LFBC 220630Z AUTO VRB01KT 9999 FEW018 SCT023 BKN033 18/17 Q1017 NOSIG LFBD 220630Z AUTO 14004KT 9999 BKN038 OVC046 18/15 Q1017 NOSIG LFBE 220630Z AUTO VRB02KT CAVOK 16/15 Q1017 NOSIG LFBG 220630Z AUTO 00000KT CAVOK 17/15 Q1017 LFBH 220630Z AUTO 11003KT CAVOK 19/18 Q1017 TEMPO 0500 FG VV/// LFBI 220630Z AUTO 29003KT CAVOK 17/16 Q1017 TEMPO BKN008 LFBL 220630Z AUTO 00000KT CAVOK 17/14 Q1018 NOSIG LFBM 220630Z AUTO 09002KT CAVOK 17/15 Q1017 NOSIG LFBO 220630Z AUTO 31006KT 9999 FEW048 17/14 Q1017 NOSIG LFBP 220630Z AUTO VRB02KT CAVOK 17/16 Q1017 NOSIG LFBT 220630Z AUTO VRB02KT 9999 FEW029 OVC056 17/15 Q1018 NOSIG LFBU 220630Z AUTO VRB01KT 0650 0600 R28/0900U FG VV/// 16/15 Q1017 BECMG CAVOK LFBY 220630Z AUTO 00000KT 9999 // ////// 17/16 Q1017 LFBZ 220630Z AUTO 15003KT CAVOK 19/17 Q1017 BECMG SCT018 FEW020TCU LFCK 220630Z AUTO VRB02KT CAVOK 17/15 Q1018 NOSIG LFCR 220630Z AUTO VRB02KT CAVOK 15/12 Q1017 NOSIG LFGA 220630Z AUTO 20005KT CAVOK 19/14 Q1015 LFGJ 220630Z AUTO 02004KT CAVOK 19/16 Q1016 NOSIG LFJL 220630Z AUTO 30005KT CAVOK 18/14 Q1015 NOSIG LFJR 220630Z AUTO VRB02KT CAVOK 19/16 Q1017 NOSIG LFKB 220630Z AUTO VRB02KT CAVOK 25/17 Q1010 NOSIG LFKC 220630Z AUTO 19010KT CAVOK 27/16 Q1011 NOSIG LFKF 220630Z AUTO 26013KT CAVOK 26/19 Q1012 NOSIG LFKJ 220630Z AUTO VRB03KT CAVOK 25/17 Q1012 NOSIG LFKS 220630Z AUTO 02007KT CAVOK 27/17 Q1011 LFLB 220630Z AUTO VRB01KT CAVOK 19/14 Q1015 NOSIG LFLC 220630Z AUTO VRB01KT 9999 BKN041 BKN047 OVC072 17/14 Q1017 NOSIG LFLL 220630Z 01003KT 340V060 CAVOK 19/14 Q1015 NOSIG LFLN 220630Z AUTO 29005KT 250V320 CAVOK 20/15 Q1016 LFLP 220630Z AUTO 00000KT CAVOK 19/14 Q1016 BECMG 01010KT LFLS 220630Z AUTO VRB02KT CAVOK 19/14 Q1016 BECMG 35012KT LFLU 220630Z AUTO 36012KT CAVOK 20/15 Q1014 LFLW 220630Z AUTO 00000KT CAVOK 12/11 Q1018 LFLX 220630Z AUTO VRB01KT CAVOK 18/15 Q1017 NOSIG LFLY 220630Z AUTO 36005KT 330V060 CAVOK 19/13 Q1015 NOSIG LFMC 220630Z AUTO 30007KT 9999 ////// 23/16 Q1011 LFMD 220630Z AUTO 35003KT 310V040 CAVOK 23/18 Q1010 BECMG 14010KT LFMH 220630Z AUTO VRB02KT 9999 FEW054 BKN094 17/14 Q1017 NOSIG LFMI 220630Z AUTO 32012KT CAVOK 23/16 Q1012 NOSIG LFMK 220630Z AUTO 28008KT CAVOK 18/15 Q1016 NOSIG LFML 220630Z AUTO 31009KT CAVOK 23/14 Q1012 NOSIG LFMN 220630Z 33008KT 9999 SCT024 SCT260 23/17 Q1010 NOSIG LFMO 220630Z AUTO 35017KT 330V030 CAVOK 23/13 Q1012 BECMG 34010G20KT LFMP 220630Z AUTO 30008KT 270V330 9999 SCT072 22/13 Q1015 NOSIG LFMT 220630Z AUTO 28007KT CAVOK 22/13 Q1013 NOSIG LFMU 220630Z AUTO 27010KT CAVOK 21/13 Q1014 NOSIG LFMV 220630Z AUTO 34012KT CAVOK 22/14 Q1012 NOSIG LFMY 220630Z AUTO 32009KT 260V350 CAVOK 22/14 Q1012 LFOA 220630Z AUTO VRB01KT CAVOK 17/13 Q1017 LFOB 220630Z AUTO VRB03KT 5000 BR NSC 16/15 Q1017 NOSIG LFOC 220630Z AUTO VRB02KT CAVOK 18/16 Q1017 LFOE 220630Z AUTO VRB03KT 1700 1400 R22/1600D BR OVC002 16/15 Q1017 BECMG CAVOK LFOH 220630Z AUTO 22005KT CAVOK 18/14 Q1017 NOSIG LFOJ 220630Z AUTO 35004KT 7000 NSC 17/15 Q1017 LFOK 220630Z AUTO 27003KT CAVOK 17/15 Q1016 NOSIG LFOP 220630Z AUTO 27004KT 220V300 2100 BR OVC003 15/15 Q1017 BECMG CAVOK LFOT 220630Z AUTO VRB02KT CAVOK 18/15 Q1017 NOSIG LFOV 220630Z AUTO 36003KT CAVOK 17/15 Q1017 LFPB 220630Z AUTO VRB03KT CAVOK 18/13 Q1016 NOSIG LFPG 220630Z 32005KT 7000 NSC 17/14 Q1017 NOSIG LFPM 220630Z AUTO 34004KT CAVOK 18/15 Q1016 LFPN 220630Z AUTO 32005KT 6000 NSC 17/15 Q1017 NOSIG LFPO 220630Z 28004KT 240V330 CAVOK 19/13 Q1017 NOSIG LFPT 220630Z AUTO 30006KT 1500 BR VV/// 15/14 Q1017 LFPV 220630Z AUTO 32005KT 7000 NSC 17/15 Q1017 NOSIG LFQA 220630Z AUTO 31005KT 270V330 CAVOK 19/13 Q1016 LFQB 220630Z AUTO 01003KT 330V050 9999 ////// 18/15 Q1016 LFQG 220630Z AUTO VRB02KT CAVOK 18/15 Q1017 LFQQ 220630Z AUTO 20003KT 160V230 CAVOK 18/12 Q1016 NOSIG LFRB 220630Z AUTO VRB02KT 1800 0800 R25/1000U R07/P2000 BCFG VV/// 15/15 Q1018 BECMG 8000 NSW NSC LFRC 220630Z AUTO 28006KT CAVOK 18/14 Q1017 NOSIG LFRD 220630Z AUTO VRB01KT CAVOK 17/16 Q1017 NOSIG LFRG 220630Z AUTO 24003KT 210V270 3300 BR OVC002 16/16 Q1018 BECMG CAVOK LFRH 220630Z AUTO 03005KT 9999 BKN002 BKN011 16/16 Q1017 BECMG BKN012 LFRI 220630Z AUTO 00000KT CAVOK 18/18 Q1017 TEMPO 3000 BR VV/// LFRJ 220630Z AUTO 00000KT CAVOK 16/16 Q1018 LFRK 220630Z AUTO 00000KT 6000 NSC 16/16 Q1017 NOSIG LFRL 220630Z AUTO 04004KT 1500 0450 R23/0650D R05/0750D BCFG VV/// 16/16 Q1018 LFRM 220630Z AUTO VRB01KT CAVOK 18/15 Q1017 NOSIG LFRN 220630Z AUTO 00000KT CAVOK 16/15 Q1017 NOSIG LFRO 220630Z AUTO 00000KT CAVOK 16/15 Q1017 TEMPO 0300 FG VV/// LFRQ 220630Z AUTO 06004KT 030V090 0450 R28/0800U FG VV/// 16/16 Q1017 BECMG 8000 NSW SCT020 LFRS 220630Z AUTO 00000KT CAVOK 19/18 Q1017 NOSIG LFRT 220630Z AUTO 28004KT 6000 BKN026 16/15 Q1017 LFRU 220630Z AUTO 00000KT 7000 VV/// 15/15 Q1017 LFRV 220630Z AUTO 05003KT 020V080 0650 FG VV/// 17/16 Q1017 LFRZ 220630Z AUTO VRB02KT 9999 VV/// 16/16 Q1017 TEMPO 1500 BR LFSB 220630Z 15004KT 9999 FEW043 20/15 Q1015 NOSIG LFSD 220630Z AUTO 31004KT 270V330 CAVOK 20/13 Q1016 LFSG 220630Z AUTO 25006KT CAVOK 17/14 Q1016 LFSI 220630Z AUTO VRB03KT CAVOK 17/15 Q1016 LFSL 220630Z AUTO 35003KT 290V040 CAVOK 17/13 Q1017 NOSIG LFSN 220630Z AUTO 30007KT 280V340 9999 BKN049 BKN058 18/14 Q1015 LFSO 220630Z AUTO VRB03KT CAVOK 17/14 Q1016 LFST 220630Z AUTO 13003KT CAVOK 19/16 Q1015 NOSIG LFSX 220630Z AUTO 00000KT 9000 FEW002/// SCT012/// 15/15 Q1016 LFTH 220630Z AUTO 31004KT 280V350 CAVOK 23/16 Q1011 BECMG 25015KT LFTW 220630Z AUTO 32006KT 300V360 CAVOK 22/13 Q1013 NOSIG LFYR 220630Z AUTO 00000KT CAVOK 17/15 Q1017 LGAD 220620Z 00000KT CAVOK 26/17 Q1013 LGAL 220620Z VRB02KT CAVOK 26/18 Q1011 LGAV 220620Z VRB02KT CAVOK 30/14 Q1012 NOSIG LGBL 220620Z 00000KT CAVOK 29/16 Q1011 LGEL 220620Z 00000KT CAVOK 30/16 Q1012 LGHI 220550Z 05003KT CAVOK 28/21 Q1010 LGIO 220620Z /////KT CAVOK 20/17 Q1015 LGIR 220620Z 00000KT CAVOK 29/21 Q1011 NOSIG LGKF 220550Z 00000KT CAVOK 26/18 Q1013 LGKL 220620Z 00000KT CAVOK 28/16 Q1012 LGKO 220620Z 35012KT 320V030 CAVOK 29/18 Q1009 LGKP 220620Z 30026KT CAVOK 28/20 Q1008 LGKR 220620Z 14003KT 9999 FEW008 SCT070 24/22 Q1012 NOSIG LGKV 220620Z 00000KT CAVOK 27/19 Q1010 LGKZ 220550Z 00000KT CAVOK 24/08 Q1015 LGLM 220620Z 00000KT CAVOK 30/18 Q1011 LGLR 220550Z 00000KT CAVOK 25/16 Q1012 BLU LGMK 220620Z 35010KT CAVOK 29/18 Q1011 LGMT 220620Z 32005KT 220V360 CAVOK 28/21 Q1011 LGNX 220550Z 36004KT CAVOK 28/16 Q1012 LGPA 220550Z 32005KT CAVOK 28/17 Q1012 NOSIG LGPZ 220620Z VRB03KT CAVOK 26/22 Q1013 LGRP 220620Z 25013KT CAVOK 29/21 Q1007 NOSIG LGRX 220620Z 00000KT CAVOK 26/21 Q1013 LGSA 220620Z 30008KT CAVOK 31/20 Q1012 LGSK 220550Z 18008KT CAVOK 26/21 Q1011 LGSM 220620Z 01010KT 340V050 CAVOK 29/20 Q1010 LGSO 220620Z AUTO VRB03KT //// // ////// 31/13 Q1012 RE// LGSR 220620Z 32010KT 280V340 CAVOK 31/15 Q1011 LGSY 220550Z VRB03KT CAVOK 29/13 Q1011 BLU LGTG 220550Z 00000KT CAVOK 28/15 Q1013 BLU LGTS 220620Z VRB03KT CAVOK 28/14 Q1011 NOSIG LGZA 220620Z VRB03KT 9999 FEW020 24/19 Q1013 LHBC 220545Z 13006KT 9999 FEW004 BKN083 20/19 Q1011 LHBP 220630Z 23006KT 200V260 9999 FEW010 BKN150 20/19 Q1010 NOSIG LHDC 220615Z 16007KT 9999 SCT043 BKN083 20/17 Q1011 NOSIG LHKE 220615Z 00000KT CAVOK 21/19 Q1011 NOSIG RMK BLU LHPA 220615Z 00000KT CAVOK 19/18 Q1011 TEMPO -RA RMK BLU LHPP 220615Z 05003KT 9999 TSRA BKN016CB 18/17 Q1011 LHPR 220615Z 19005KT 160V220 8000 FEW016 SCT033 BKN083 19/18 Q1011 RMK BLU LHSM 220615Z 27001KT 9999 FEW010 FEW050CB BKN060 20/19 Q1011 RETS LHSN 220615Z 14008KT 120V180 9999 FEW030 BKN083 BKN200 21/19 Q1010 NOSIG RMK BLU LHUD 220615Z 17002KT 9999 TS FEW026CB BKN083 20/19 Q1011 LIBC 220600Z 22005KT 160V260 9999 VCTS FEW030 SCT060 28/16 Q1011 LIBD 220620Z VRB03KT CAVOK 29/11 Q1009 LIBG 220600Z 14004KT 110V190 CAVOK 28/23 Q1009 LIBH 220555Z 19006KT CAVOK 27/23 Q1009 RMK FEW FEW070 QUK 1 QUL 1 SE VIS MAR 10 KM VIS MIN 9999 LIBN 220555Z 17011KT 9999 FEW035 27/24 Q1010 RMK SCT SCT100 VIS MIN 9999 WIND THR14 /////KT WIND THR32 17010KT BLU LIBP 220550Z 23005KT CAVOK 23/17 Q1010 LIBR 220620Z 19016KT CAVOK 28/21 Q1008 LIBV 220555Z 18007KT CAVOK 26/17 Q1011 RMK FEW FEW100 VIS MIN 9999 WIND THR32 /////KT WIND THR14 19008KT BLU LIBY 220555Z 16008KT CAVOK 26/23 Q1011 RMK FEW FEW090 QUK 2 QUL 1 S VIS MAR 12 KM VIS MIN 9999 LICA 220550Z 30005KT 270V340 9999 FEW040 26/20 Q1012 LICB 220550Z 08003KT CAVOK 24/10 Q1015 LICC 220620Z 28006KT 260V320 CAVOK 30/08 Q1012 LICD 220550Z 09006KT CAVOK 27/26 Q1013 LICF 220555Z 32011KT CAVOK 28/20 Q1011 RMK FEW FEW100 QUK 2 QUL 1 NW VIS MAR 12 KM MON LIB NC VIS MIN 9999 LICG 220555Z 34003KT 8000 NSC 24/23 Q1013 RMK SKC VIS MIN 8000 WIND THR08 32003KT WIND THR21 32004KT BLU LICJ 220620Z 22011KT CAVOK 28/20 Q1012 LICL 220555Z 07004KT CAVOK 25/12 Q1013 RMK SKC QUK 1 QUL 0 VIS MAR 20 KM VIS MIN 9999 LICR 220550Z 34011KT CAVOK 29/19 Q1011 LICT 220555Z 18008KT 9999 BKN008 26/24 Q1013 RMK BKN VIS MIN 9999 WIND THR13 18007KT GRN LICZ 220555Z 25009KT CAVOK 30/15 Q1013 RMK SKC VIS MIN 9999 WIND THR28 26007KT WIND THR10 25009KT A2992 BLU LIEA 220620Z VRB02KT CAVOK 25/21 Q1013 LIEB 220555Z 35008KT CAVOK 24/10 Q1012 RMK FEW FEW200 QUK 1 QUL 0 VIS MAR 30 KM MON LIB VIS MIN 9999 LIEC 220555Z 27022KT CAVOK 23/19 Q1011 RMK FEW FEW070 QUK 3 QUL 0 VIS MAR 18 KM VIS MIN 9999 LIED 220555Z 33006KT 9999 FEW006 24/23 Q1013 RMK FEW VIS MIN 9999 WIND THR35 33005KT WIND THR17 /////KT BLU LIEE 220620Z 33006KT CAVOK 24/20 Q1013 LIEO 220620Z 23016KT CAVOK 25/19 Q1012 LIMC 220620Z 01003KT 330V050 CAVOK 21/16 Q1011 NOSIG LIME 220620Z 34003KT CAVOK 21/16 Q1011 NOSIG LIMF 220620Z VRB01KT CAVOK 20/16 Q1012 LIMG 220600Z 00000KT CAVOK 19/17 Q1011 LIMH 220555Z /////KT 0800 FZFG VV/// M01/M02 Q1024 RMK MON INVIS VAL INVIS VIS MIN 0800 LIMJ 220620Z 03005KT CAVOK 23/18 Q1010 LIML 220620Z VRB02KT CAVOK 22/18 Q1011 NOSIG LIMP 220550Z 23004KT CAVOK 22/19 Q1011 LIMS 220555Z 27008KT CAVOK 21/21 Q1010 LIMU 220555Z 22004KT CAVOK 23/19 Q1012 RMK FEW FEW200 QUK 2 QUL 1 SE VIS MAR 25 KM VIS MIN 9999 LIMW 220620Z AUTO VRB02KT 9999 NSC 17/13 Q1014 LIMZ 220550Z 19002KT 9999 SCT060 16/16 Q1012 LIPB 220550Z VRB01KT 9999 SCT090 17/16 Q1013 LIPC 220555Z 24002KT CAVOK 22/21 Q1009 RMK FEW FEW200 VIS MIN 9999 WIND THR11 24003KT WIND THR29 /////KT BLU LIPE 220620Z 27007KT CAVOK 23/19 Q1010 LIPF 220555Z 14002KT CAVOK 19/17 Q1009 RMK FEW FEW200 VIS MIN 9999 LIPH 220620Z VRB01KT CAVOK 24/19 Q1009 LIPL 220555Z 27002KT 0300 R31/0450U FG BKN001 19/18 Q1010 RMK BKN VIS MIN 0300 WIND THR31 26003KT WIND THR13 25002KT RED LIPO 220550Z 26004KT 4000 BR NSC 20/19 Q1010 LIPQ 220620Z VRB01KT CAVOK 23/19 Q1009 LIPR 220615Z 26003KT CAVOK 23/22 Q1009 LIPS 220555Z 35004KT CAVOK 23/21 Q1010 RMK SKC VIS MIN 9999 WIND THR26 31003KT WIND THR08 35004KT BLU LIPU 220600Z VRB03KT CAVOK 21/20 Q1010 LIPX 220620Z VRB02KT 9000 NSC 22/19 Q1010 LIPY 220550Z VRB02KT CAVOK 23/18 Q1009 LIPZ 220620Z VRB03KT CAVOK 23/19 Q1009 NOSIG LIQC 220555Z 00000KT 9999 BKN030 26/23 Q1011 RMK BKN QUK 1 QUL 0 VIS MAR 12 KM VIS MIN 9999 LIQO 220555Z 00000KT 9999 SCT003 20/18 Q1012 RMK SCT VAL CLD SCT VIS MIN 9999 LIRA 220620Z 04003KT 340V090 9999 SCT025 26/18 Q1011 LIRE 220555Z 36003KT 9999 FEW015 SCT020 BKN030 26/21 Q1010 RMK BKN VIS MIN 9999 WIND THR13 01003KT WIND THR31 36003KT BLU LIRF 220620Z 04004KT 360V060 9999 FEW027 SCT035 26/16 Q1011 NOSIG LIRM 220555Z 10005KT 9999 SCT030 27/23 Q1008 LIRN 220620Z 20003KT 160V240 9999 FEW020 28/21 Q1010 NOSIG LIRP 220615Z 12010KT 9999 -TSRA FEW020CB BKN040 21/21 Q1010 TEMPO TSRA LIRQ 220620Z VRB02KT 9999 FEW015 SCT055 24/20 Q1010 LIRS 220555Z 06003KT 9999 FEW040 24/20 Q1010 LIRT 220255Z 31015KT 9999 FEW020 19/12 Q1015 RMK FEW MON INVIS VAL INVIS VIS MIN 9999 LIRU 220600Z 35004KT 9999 SCT030 22/16 Q1011 LIRV 220555Z /////KT 9999 SCT018 20/18 Q1011 LIRX 220555Z 02003KT 9999 FEW008 21/20 Q1010 RMK FEW VIS MIN 9999 VIS MAR 15 KM LIRZ 220550Z VRB01KT 9999 FEW040 22/16 Q1011 LIVC 220555Z 26013KT 2000 BR BKN000 11/09 Q1020 RMK BKN MON INC VAL INVIS VIS MIN 2000 LIVD 220555Z /////KT 9999 FEW010 SCT040 13/09 Q1017 RMK BKN BKN100 VIS MIN 9999 LIVE 220555Z 02007KT 9999 SCT020 12/11 Q1017 RMK BKN SCT060 VIS MIN 9999 LIVO 220555Z 00000KT 9999 FEW005 SCT025 14/12 Q1013 RMK BKN VIS MIN 9999 LIVR 220555Z 30006KT 9999 FEW010 BKN040 09/04 Q1018 RMK BKN MON CLD SCT VIS MIN 9999 LIVT 220555Z 00000KT 9999 FEW030 23/19 Q1008 RMK FEW QUK 0 QUL 0 VIS MAR 20 KM VIS MIN 9999 LJCE 220630Z 23005KT 200V260 9999 FEW005 SCT070 21/18 Q1010 RMK BLU LJLJ 220630Z 00000KT 8000 SCT005 BKN055 18/17 Q1012 NOSIG LJMB 220630Z 03001KT 9999 SCT033 21/18 Q1011 LJPZ 220630Z 12005KT 9999 FEW023 23/19 Q1009 LKCV 220600Z 30005KT CAVOK 20/17 Q1011 NOSIG RMK BLU BLU LKKB 220600Z 31007KT 270V330 CAVOK 20/13 Q1011 NOSIG LKKV 220630Z 29004KT 8000 NSC 16/15 Q1014 LKLN 220600Z AUTO VRB01KT 7000 -RA OVC100 17/16 Q1013 LKMT 220630Z 35003KT 310V070 CAVOK 21/16 Q1010 NOSIG LKNA 220600Z 29005KT 8000 -RA FEW008 OVC100 17/16 Q1011 NOSIG RMK BLU BLU LKPD 220600Z 32004KT 300V010 CAVOK 21/13 Q1010 NOSIG RMK BLU BLU LKPR 220630Z 32008KT CAVOK 20/13 Q1012 NOSIG LKTB 220630Z VRB02KT 9999 FEW009 20/17 Q1010 NOSIG LLBG 220620Z 22006KT 9999 BKN025 29/21 Q1007 NOSIG LLET 220550Z 04010KT CAVOK 30/16 Q1007 LLHA 220550Z 26008KT 9999 SCT025 29/21 Q1007 LLIB 220550Z 15009KT 110V190 9999 SCT027 27/21 Q1008 LLSD 220550Z 22006KT 9999 SCT025 28/21 Q1007 LMML 220615Z 22003KT 180V260 CAVOK 27/24 Q1014 NOSIG LOWG 220620Z 27004KT 220V360 9999 FEW010 SCT070 BKN220 19/17 Q1012 NOSIG LOWI 220620Z VRB02KT 9999 FEW005 SCT020 BKN060 16/15 Q1015 NOSIG LOWK 220620Z VRB02KT 9999 FEW006 BKN110 18/16 Q1012 NOSIG LOWL 220620Z 25012KT 5000 RA FEW011 BKN025 OVC035 17/16 Q1012 TEMPO -RA LOWS 220620Z 15005KT 5000 RA FEW009 BKN026 BKN037 17/16 Q1014 BECMG -RA LOWW 220620Z 28013KT 9999 FEW025 BKN030 21/16 Q1011 NOSIG LOXT 220550Z 27009KT 10KM FEW006ST BKN009ST 18/18 Q1010 RMK OVC LOXZ 220550Z VRB01KT 20KM FEW002ST SCT006ST BKN010ST 16/14 Q1013 LPAZ 220630Z 36006KT 9999 FEW014 SCT038 20/18 Q1024 LPBJ 220600Z /////KT 9999 BKN007 16/15 Q1014 LPCS 220630Z 34017KT 9999 FEW007 18/16 Q1014 LPFR 220630Z 35008KT CAVOK 19/14 Q1013 LPHR 220630Z 30012KT 280V340 9999 SCT012 BKN030 22/20 Q1026 LPLA 220630Z /////KT 8000 -RADZ BKN006 BKN020 21/21 Q1025 LPMA 220630Z 36010G21KT 330V030 9999 SCT016 21/15 Q1019 LPMR 220600Z 34010KT 290V360 9999 BKN007 17/16 Q1015 LPMT 220600Z 34009KT 9999 FEW018 SCT021 20/16 Q1014 LPOV 220600Z VRB01KT 3000 BR OVC004 17/16 Q1014 LPPD 220630Z VRB03KT 9999 FEW018 20/17 Q1025 LPPR 220630Z 00000KT 9000 NSC 16/15 Q1015 LPPS 220630Z 01011KT 9999 -DZ SCT010 BKN030 20/17 Q1019 LPPT 220630Z 33013KT 300V360 9999 FEW014 SCT017 19/16 Q1015 LQBK 220630Z 14005KT 9999 FEW047 23/20 Q1010 NOSIG LQMO 220630Z 33005KT 300V010 CAVOK 25/14 Q1008 LQSA 220630Z VRB02KT CAVOK 19/13 Q1011 NOSIG LQTZ 220630Z 29005KT 9999 SCT045 22/17 Q1010 LRAR 220630Z 13009KT 9999 -TSRA FEW005 BKN010 SCT040CB 21/20 Q1010 R09/29//95 LRBC 220630Z VRB01KT CAVOK 23/19 Q1011 LRBM 220630Z AUTO 11006KT 9999 FEW050 SCT200 21/17 Q1012 LRBO 220600Z VRB02KT 9999 FEW100 25/18 Q1011 BLU BLU LRBS 220630Z 06003KT 340V100 CAVOK 25/18 Q1011 NOSIG LRCK 220630Z 34003KT 270V010 CAVOK 27/18 Q1011 NOSIG LRCL 220630Z 29006KT 9999 FEW046CB BKN055 22/16 Q1012 LRCT 220600Z VRB02KT 9999 FEW060 BKN150 21/18 Q1013 BLU BLU LRCV 220630Z 09004KT 030V120 CAVOK 23/19 Q1011 LRIA 220630Z 30004KT 250V010 CAVOK 24/18 Q1010 LROD 220630Z 12008KT 9999 FEW047CB 19/18 Q1011 LROP 220630Z 07004KT 030V100 CAVOK 24/20 Q1011 NOSIG LRSB 220630Z VRB02KT CAVOK 21/17 Q1013 LRSM 220630Z AUTO 19008KT 9999 SCT090 BKN160 23/18 Q1011 RERA LRSV 220630Z 23005KT CAVOK 23/16 Q1011 LRTC 220630Z VRB02KT CAVOK 27/20 Q1010 LRTM 220630Z 00000KT 8000 FEW015 SCT023 23/19 Q1012 LRTR 220630Z 09009KT 9999 SHRA VCTS FEW048CB 20/19 Q1011 RETS R11/290095 LRTZ 220600Z 32008KT 9999 SKC 25/19 Q1010 BLU BLU LSGC 220620Z VRB01KT 9999 FEW020 13/12 Q1018 LSGG 220620Z VRB02KT 9999 SCT080 17/14 Q1016 NOSIG LSGS 220620Z VRB02KT 9999 FEW025 BKN090 18/14 Q1016 LSMA 220550Z AUTO 25002KT 9999NDV BKN071 OVC097 17/16 Q1016 RMK LSMD 220550Z AUTO 11003KT 080V140 9999NDV FEW140 18/14 Q1016 RMK LSME 220550Z VRB02KT 9999 FEW049 OVC088 18/15 Q1016 RMK BLU LSMM 220550Z AUTO VRB02KT 9999NDV FEW003 SCT010 OVC061 15/15 Q1017 RMK LSMP 220550Z AUTO 19003KT 160V220 8000NDV NCD 15/14 Q1016 RMK LSMS 220550Z VRB03KT 9999 FEW025 BKN090 16/14 Q1016 RMK BLU LSZA 220620Z VRB01KT CAVOK 18/16 Q1012 NOSIG LSZB 220620Z AUTO 12006KT 9999 BKN080 19/16 Q1016 LSZC 220620Z AUTO 27002KT 9999 BKN050 SCT070 BKN090 17/15 Q1016 LSZG 220620Z VRB01KT 1000 FG BKN001 15/14 Q1016 BECMG CAVOK LSZH 220620Z 00000KT 9999 FEW002 SCT150 18/15 Q1016 NOSIG LSZL 220550Z AUTO 00000KT 9999NDV NCD 18/14 Q1012 RMK LSZR 220620Z AUTO 16002KT 9999 FEW038 OVC100 19/15 Q1016 LSZS 220620Z 06001KT 9999 FEW003 BKN052 10/09 Q1018 RMK B LTAB 220550Z VRB02KT CAVOK 24/14 Q1014 NOSIG RMK RWY06 VRB02KT LTAC 220620Z VRB02KT 9999 FEW040 24/13 Q1014 NOSIG RMK RWY21L 03006KT 350V050 RWY03L 20002KT RWY21R 36005KT 290V060 LTAD 220550Z 27004KT 230V330 CAVOK 23/13 Q1015 NOSIG RMK RWY29 30003KT 230V040 LTAE 220550Z 01004KT 320V060 CAVOK 24/12 Q1014 NOSIG RMK RWY21 05005KT 360V100 LTAF 220620Z VRB03KT 9999 SCT035 30/24 Q1004 NOSIG RMK RWY23 23004KT 190V280 LTAG 220620Z 17006KT 9999 SCT030 29/23 Q1005 NOSIG LTAI 220620Z 33018KT CAVOK 35/13 Q1006 NOSIG RMK RWY18C 32016KT RWY36R 32015KT RWY18L 33014KT LTAJ 220620Z 34013KT 310V010 CAVOK 30/08 Q1004 NOSIG RMK RWY10 33014KT 310V010 LTAL 220550Z 21003KT 9999 FEW025 20/14 Q1015 LTAN 220550Z 01015KT CAVOK 24/13 Q1015 NOSIG RMK RWY19 01013KT LTAP 220620Z 17003KT 100V230 9999 FEW040 23/15 Q1012 NOSIG RMK RWY23 06003KT LTAR 220550Z 36012KT 9999 FEW040 17/10 Q1016 RMK RWY19 33012KT LTAS 220640Z VRB04KT 9999 FEW025CB 26/21 Q1011 RETS RMK RWY18 VRB02KT LTAT 220620Z 32012KT 290V350 CAVOK 27/10 Q1009 BECMG TL0700 05006KT RMK RWY03 VRB05KT LTAU 220620Z VRB02KT CAVOK 23/09 Q1014 NOSIG RMK RWY07 VRB04KT LTAY 220550Z 34004KT 230V030 CAVOK 24/15 Q1015 LTAZ 220620Z 31006KT 240V010 9999 FEW040 24/10 Q1014 LTBA 220620Z 21007KT 150V250 9999 FEW025 27/24 Q1011 NOSIG RMK RWY17L 22007KT 170V240 RWY05 20006KT 160V220 RWY23 22007KT LTBF 220550Z 00000KT CAVOK 25/19 Q1012 NOSIG RMK RWY18 06003KT 020V100 LTBG 220550Z 00000KT CAVOK 28/20 Q1011 NOSIG RMK RWY18 /////KT LTBH 220550Z 04003KT 360V080 CAVOK 27/20 Q1011 LTBI 220550Z 29005KT 9999 FEW040 23/16 Q1015 NOSIG RMK RWY09 25006KT 210V280 LTBJ 220620Z 35013KT CAVOK 30/17 Q1010 NOSIG RMK RWY16 35013KT LTBL 220550Z 32006KT 290V350 CAVOK 29/18 Q1011 NOSIG RMK RWY17 32010KT LTBO 220550Z 00000KT CAVOK 24/13 Q1015 LTBQ 220550Z VRB02KT 8000 NSC 25/22 Q1011 NOSIG RMK RWY09 VRB01KT LTBR 220620Z VRB02KT 9999 FEW035 25/19 Q1012 NOSIG LTBS 220620Z 34012KT CAVOK 34/15 Q1006 NOSIG RMK RWY19 32013KT LTBU 220620Z VRB02KT 8000 NSC 28/21 Q1011 RMK RWY23 VRB02KT LTBY 220550Z 26007KT CAVOK 23/16 Q1015 LTBZ 220550Z 31004KT 270V360 CAVOK 20/16 Q1016 LTCA 220550Z 31009KT 280V340 CAVOK 28/11 Q1008 NOSIG RMK RWY07 33007KT 280V040 LTCB 220550Z 02004KT 340V050 9999 SCT035 26/20 Q1010 LTCC 220620Z VRB06KT CAVOK 33/10 Q1002 NOSIG RMK RWY16 29006KT 260V360 LTCD 220550Z VRB01KT 9999 FEW045 22/12 Q1012 NOSIG LTCE 220620Z 05013KT 9999 FEW040 20/11 Q1015 NOSIG RMK RWY08R 06012KT RWY26R 06013KT RWY08L 08010KT 010V160 LTCF 220550Z 04007KT 010V100 9999 FEW040 19/12 Q1016 LTCG 220620Z 31004KT 280V340 9999 SCT035 BKN100 26/20 Q1010 NOSIG RMK RWY29 33005KT LTCI 220550Z 30009KT 9999 FEW040 25/12 Q1011 NOSIG RMK RWY21 VRB03KT LTCJ 220620Z 25008KT 9999 FEW100 30/13 Q1002 RMK RWY20 24006KT 200V280 LTCK 220550Z VRB04KT 9999 SCT040 26/11 Q1009 RMK RWY11 24007KT LTCM 220550Z 27010KT 9999 FEW030 27/19 Q1009 LTCN 220550Z 28013KT CAVOK 30/08 Q1004 NOSIG LTCO 220550Z 07010KT 030V100 CAVOK 24/11 Q1013 LTCP 220550Z 36008KT 310V030 CAVOK 31/09 Q1004 LTCR 220550Z 35008KT 300V040 9999 FEW040 SCT100 34/11 Q1001 LTCS 220620Z 33006KT 280V020 CAVOK 31/09 Q1006 RMK RWY22 33007KT 290V350 LTCT 220550Z 32012KT 290V350 9999 FEW040 28/12 Q1009 LTCU 220550Z 32008KT 280V360 9999 FEW035 27/11 Q1008 LTCV 220550Z VRB03KT CAVOK 34/06 Q1002 LTCW 220550Z 11004KT 020V190 9999 SCT040 23/10 Q1014 LTDA 220550Z VRB06KT 9999 SCT035 31/18 Q1004 NOSIG LTFC 220620Z 32012KT CAVOK 26/10 Q1014 LTFD 220550Z 00000KT CAVOK 29/19 Q1011 LTFE 220620Z 29004KT 230V340 CAVOK 30/19 Q1008 NOSIG RMK RWY10 29005KT LTFG 220550Z 26003KT 230V310 CAVOK 31/23 Q1005 LTFH 220550Z 30005KT 270V360 9999 SCT034 26/18 Q1010 NOSIG LTFJ 220620Z 22005KT 190V260 CAVOK 27/20 Q1011 NOSIG LUKK 220630Z 31003KT CAVOK 25/20 Q1009 R08/D NOSIG LWOH 220630Z 00000KT CAVOK 23/15 Q1015 LWSK 220630Z 00000KT CAVOK 23/16 Q1012 NOSIG LXGB 220550Z 23008KT CAVOK 22/11 Q1012 LYBE 220630Z 07006KT 050V110 CAVOK 23/19 Q1010 NOSIG LYBT 220630Z 04007KT 010V120 CAVOK 23/19 Q1010 NOSIG LYKV 220630Z VRB01KT 9999 SCT047 20/19 Q1011 NOSIG LYNI 220630Z 20003KT 140V270 9999 FEW040 22/17 Q1011 NOSIG LYPG 220630Z VRB02KT CAVOK 27/15 Q1011 NOSIG LYTV 220630Z VRB01KT CAVOK 28/14 Q1010 NOSIG LYUZ 220630Z VRB02KT 9999 SCT025 21/15 Q1013 LYVR 220630Z 05011KT 020V080 9999 FEW033 SCT040 22/19 Q1011 NOSIG LZIB 220630Z 23008KT 9999 FEW006 BKN018 20/17 Q1010 NOSIG LZKZ 220630Z 05003KT 010V100 CAVOK 22/17 Q1010 NOSIG LZPP 220630Z 32003KT 9999 FEW010 BKN030 20/18 Q1010 LZSL 220630Z VRB02KT 9999 FEW010 BKN098 19/16 Q1011 LZTT 220630Z VRB01KT 9999 FEW053 20/14 Q1012 NOSIG LZZI 220630Z VRB02KT CAVOK 18/16 Q1011 MDLR 220300Z 00000KT 9999 FEW018 25/24 Q1017 MDPC 220600Z 10008KT 9999 SCT018 27/24 Q1018 MDPP 220600Z 00000KT 9999 FEW016 26/24 Q1015 MDSD 220600Z 10004KT 9999 NFEW018 25/23 Q1016 NOSIG MDST 220600Z 16004KT 9999 SCT016 25/25 Q1016 MGGT 220600Z 36012KT 9999 FEW010 BKN014 19/16 Q1027 A3033 SCT080 MGHT 220600Z 14008KT 9999 OVC018 17/12 MGMM 220600Z 00000KT CAVOK 23/23 Q1018 A3006 MGPB 220600Z 00000KT 9999 TS SCT016 FEW025CB OVC080 25/24 Q1015 A2997 CBT/LTNG NW MHCA 220500Z 36004KT 9999 FEW028 BKN090 22/16 Q1020 A3012 NOSIG MHLC 220600Z 00000KT 9999 FEW026CB SCT200 25/24 Q1014 A2995 NOSIG MHLM 220600Z 35007KT 9999 FEW022 27/27 Q1014 A2995 NOSIG MHRO 220600Z 04010KT 9999 SCT020CB 27/25 Q1015 A2997 NOSIG MHSC 220558Z AUTO 33006KT 9999 OVC060 23/22 A3005 RMK AO2 SLP136 T02290215 10278 20225 403160204 50000 $ MHTG 220600Z 36005KT 9999 BKN028 SCT090 21/17 Q1020 A3012 NOSIG MKJP 220600Z 33003KT 9999 FEW022 28/24 Q1014 MKJS 220600Z 21003KT 9999 FEW022 28/23 Q1014 MMAA 220551Z 29002KT 6SM SCT100 BKN300 29/25 A2993 RMK SLP122 52015 964 8/032 HZY MMCB 220051Z 00000KT 10SM BKN035 BKN080 OVC250 28/13 A3005 RMK 8/537 BINOVC HZY MMCM 220349Z 00000KT 7SM FEW020 29/25 A3003 RMK 8/100 MMCP 220512Z RTD 00000KT 7SM SKC 24/23 A3002 MMCU 220247Z 13005KT 10SM FEW030 30/08 A3008 RMK SLP063 52007 913 8/500 MMCZ 220446Z 11005KT 7SM FEW015 28/25 A3003 RMK 8/500 MMDO 220245Z 21015KT 8SM BKN025CB OVC030 20/09 A3028 RMK SLP113 52016 911 8/9// BINOVC MMGL 220546Z 20004KT 8SM BKN020CB OVC080 18/16 A3022 RMK SLP122 52028 914 60415 8/96/ TS+RAE34 OCNLLTG MMGM 220147Z 20006KT 10SM SKC 35/24 A2979 MMLO 220549Z 00000KT 8SM SKC 21/09 A3035 RMK SLP117 52014 971 MMLP 220146Z 20010KT 10SM SKC 34/11 A2987 MMMD 220546Z 09006KT 7SM SCT030 28/23 A3004 RMK SLP178 52005 911 8/500 MMML 220548Z 13004KT 10SM SKC 32/13 A2987 RMK SLP117 52017 927 MMMT 220456Z 36010KT 7SM FEW020 28/21 A2999 RMK 8/100 MMMX 220547Z 31006KT 10SM BKN020 17/08 A3041 NOSIG RMK SLP112 52009 901 8/500 MMMZ 220246Z 29003KT 10SM SCT035 SCT080 BKN220 30/26 A2990 RMK SLP108 52017 906 8/463 FQT LTGIC E MMOX 220151Z 30005KT 7SM FEW040 BKN220 22/10 A3022 RMK 8/408 ISOL AC MMPR 220552Z 21005KT 12SM FEW020 SCT250 29/25 A2993 RMK SLP132 52014 904 8/408 CBS/SW MMPS 220047Z 27003KT 7SM SCT015 BKN070 BKN310 30/24 A2995 RMK 8/432 HZY MMQT 220457Z RTD 06010KT 10SM SCT030 18/10 A3039 RMK 8/400 MMSD 220502Z RTD 00000KT 8SM SKC 30/14 A2994 MMSL 220247Z 28011KT 7SM SKC 30/19 A2995 MMSP 220545Z 06003KT 10SM SKC 18/12 A3034 RMK SLP136 52023 915 MMTG 220354Z 16007KT 10SM BKN080 BKN300 27/19 A3000 RMK 8/038 MMTJ 220549Z 00000KT 6SM SCT014 20/18 A3007 RMK SLP177 53021 920 8/500 HZY ISOL CI MMTM 220248Z E09014KT 7SM SKC 28/24 A2998 RMK SLP127 57015 910 HZY MMTO 220546Z 00000KT 7SM SCT020 SCT070 13/06 A3047 RMK SLP123 52020 907 8/530 MMUN 220049Z 04006KT 7SM SCT015 29/26 A3002 RMK 8/500 CI MMVR 220145Z 07004KT 7SM SKC 28/24 A2997 RMK HZY DSNT CB 3TH QUAD MMZC 220545Z 18010KT 10SM SKC 17/// A3036 MMZH 220146Z 00000KT 7SM BKN090 30/25 A2987 RMK 8/030 HZY MMZO 220148Z 00000KT 10SM BKN100 29/25 A2984 RMK 8/050 MNMG 220601Z 19004KT 9999 FEW024 SCT300 25/24 Q1011 A2986 NOSIG MPBO 220100Z 29007KT 9999 SCT018 BKN090 Q1012 MPDA 220200Z 00000KT 9999 SCT015 SCT080 25/24 Q1006 RERA RWY WET MPMG 220300Z 31005KT 9999 FEW016 SCT090 27/25 Q1010 NOSIG MPTO 220600Z VRB02KT 9999 FEW018CB 26/25 Q1010 NOSIG MRLB 220600Z 15005KT 9999 FEW045 BKN160 26/21 A2984 NOSIG MROC 220600Z 11009KT 070V140 CAVOK 22/18 A2999 NOSIG MSLP 220550Z 34004KT 9999 FEW070 27/24 Q1011 A2986 NOSIG MSSA 220050Z 00000KT 9999 FEW047 26/20 Q1016 A3001 MSSM 220050Z 00000KT CAVOK 33/22 Q1009 A2980 MSSS 220550Z 35003KT CAVOK 23/23 Q1017 A3004 MTPP 220100Z 12007KT 8000 SCT025CB 29/22 Q1014 A2994 RMK MUCC 220550Z 12003KT 9000 FEW020 27/25 Q1016 MUCF 220559Z AUTO 08003KT 24/23 Q1016 MUCL 220605Z AUTO 06007KT 030V090 30/25 Q1016 MUCM 220550Z 33003KT 9000 SCT020 22/20 Q1016 MUCU 220551Z 36006KT 9000 FEW020 26/19 Q1015 MUGM 220556Z 36007KT 9999 FEW280 27/23 A2998 RMK SLP150 T02720228 10300 20267 58022 MUHA 220635Z VRB01KT 8000 3200S PRFG NSC 22/21 Q1016 MUHG 220550Z VRB03KT 8000 FEW020 21/19 Q1016 MUSC 220550Z 17006KT 8000 NSC 23/21 Q1016 MUVR 220550Z 14005KT 8000 FEW030 24/23 Q1016 MWCR 220300Z 06010KT 9999 FEW018 30/27 Q1016 MYNN 220600Z 19005KT 9999 FEW020 SCT150 BKN220 28/25 A2996 MZBZ 220100Z 10007KT 4000 SHRA SCT012 SCT018 28/25 A2996 Q1014 BECMG AT0130 9999 RMK CB TOP-SW LTNG-SW NCRG 220600Z 09005KT 9999 SCT012 23/21 Q1013 RMK DEW NFFN 220600Z 20007KT 9999 SCT030 25/20 Q1012 NOSIG NFKD 220200Z AUTO 10011KT //// 25/20 Q1014 NFNA 220500Z 08008KT 9999 FEW020 25/18 Q1012 NFNR 220200Z AUTO 11008KT //// 30/24 Q1011 NFTF 220600Z 11004KT 9999 FEW010 SCT018 BKN040 22/15 Q1015 NFTL 220600Z 09006KT 9999 SCT018 23/15 Q1014 NFTV 220600Z 00000KT 9999 FEW017 23/19 Q1013 NGFU 220600Z 10009KT 9999 SCT020 30/26 Q1008 NGTA 220600Z 12005KT 9999 -SHRA FEW018TCU SCT038 BKN100 26/25 Q1009 NIUE 220600Z AUTO 14005KT //// // ///////// 20/17 Q1014 NSFA 220500Z 17003KT 9999 SCT020 SCT130 28/24 Q1011 NSTU 220550Z 12010KT 10SM SCT018 27/23 A2986 RMK SLP112 60000 8/100 T02670229 10289 20267 52010 NTAA 220630Z 07010KT 9999 FEW020 SCT060 BKN120 26/20 Q1015 NOSIG NVSS 220500Z 13006KT 9999 FEW025 BKN120 27/22 Q1011 RMK HZ NWWW 220630Z AUTO 14005KT 9999 SCT058 SCT068 OVC078 21/15 Q1015 NOSIG NZAA 220630Z AUTO 26010KT 9999 VCSH NCD 13/10 Q1012 NOSIG NZCH 220630Z AUTO 32009KT 9999 NCD 09/M03 Q1000 NOSIG NZCM 220555Z 07009KT 9999 BKN090 BKN160 M13/M24 A2879 RMK SLP752 NZSP 220550Z 10008KT 6000 IC BR SKC M68/ A2814 RMK CLN AIR 11009KT ALL WNDS GRID NZWN 220630Z AUTO 33013KT 9999 NCD 12/06 Q1005 NOSIG OAHR 220555Z 36006KT CAVOK 37/M01 Q1005 RMK A2969 BLU OAIX 220558Z 00000KT 9000 HZ FEW360 32/15 A2975 RMK AO2A SLP960 T03230150 10325 20220 58011 $ OAJL 220555Z 09007G13KT 9000 HZ CLR 36/21 A2953 RMK AO2A SLP946 T03570207 10331 20304 57008 OAKB 220550Z 01005KT CAVOK 32/09 Q1011 NOSIG RMK A2986 BLU BLU OAKN 220555Z 28003G11KT 9999 CLR 40/M05 A2957 RMK AO2A SLP943 Q1001 PA3630 DA7249 58002 OAMS 220550Z 07004KT 9999 SKC 38/02 Q0998 BLU+BLU+ OBBI 220630Z 32016KT CAVOK 37/24 Q0998 NOSIG OEAB 220600Z 36004KT 9000 NSC 26/08 Q1022 NOSIG OEAH 220600Z 36014KT 6000 NSC 40/05 Q0999 NOSIG OEAO 220600Z 00000KT CAVOK 33/06 Q1010 OEAR 220600Z 36004KT CAVOK 36/12 Q1007 OEBA 220600Z 33014KT CAVOK 29/10 Q1018 NOSIG OEBH 220600Z 33005KT CAVOK 32/06 Q1014 NOSIG OEDF 220600Z 36018KT 7000 NSC 41/09 Q0998 NOSIG OEDM 220600Z 30005KT CAVOK 32/M02 Q1009 OEDR 220600Z 35022KT 7000 NSC 41/09 Q0996 NOSIG OEGN 220600Z 23004KT 7000 FEW030 SCT100 33/27 Q1005 NOSIG OEGS 220600Z 07008KT CAVOK 39/14 Q1007 OEGT 220600Z 28018KT CAVOK 26/16 Q1008 NOSIG OEHL 220600Z 06002KT CAVOK 32/09 Q1011 OEJN 220600Z 33006KT CAVOK 33/26 Q1003 NOSIG OEKJ 220600Z 32006KT 8000 SKC 37/04 Q1007 OEKM 220600Z 33005KT 9000 SKC 28/10 Q1022 NOSIG OEMA 220600Z 30008KT CAVOK 35/00 Q1011 NOSIG OEMK 220600Z 30002KT CAVOK 36/20 Q1005 OENG 220600Z 36008KT CAVOK 35/08 Q1012 NOSIG OEPA 220600Z 33010KT CAVOK 36/09 Q1003 NOSIG OERF 220600Z 32014KT CAVOK 32/06 Q1005 OERK 220600Z 36006KT CAVOK 37/03 Q1007 NOSIG OERR 220600Z 30014KT CAVOK 30/21 Q1006 NOSIG OESH 220600Z 22016KT CAVOK 34/10 Q1007 NOSIG OESK 220600Z 32013KT CAVOK 29/08 Q1010 OETB 220600Z 30004KT CAVOK 28/10 Q1010 NOSIG OETF 220600Z 32010KT CAVOK 30/01 Q1018 NOSIG OETR 220600Z 27006KT CAVOK 23/18 Q1009 OEWD 220600Z 32010KT CAVOK 36/07 Q1006 OEWJ 220600Z 29004KT CAVOK 32/23 Q1004 NOSIG OEYN 220600Z 09006KT CAVOK 32/27 Q1003 NOSIG OIAA 220600Z 32012KT 7000 NSC 39/09 Q0998 OIAG 220500Z 35006KT 7000 NSC 35/05 Q0997 OIAH 220600Z 32006KT 7000 NSC 36/M02 Q1000 OIAM 220600Z 33010KT CAVOK 38/12 Q0997 OIAW 220630Z 31006KT CAVOK 39/10 Q0996 OIBA 220600Z 03010KT 6000 NSC 34/29 Q0995 OIBB 220500Z 33008KT CAVOK 34/21 Q0996 A2943 OIBJ 220600Z 00000KT 5000 HZ NSC 38/17 Q1003 OIBK 220630Z 32006KT 5000 HZ NSC 36/26 Q0996 OIBL 220600Z 09006KT 5000 HZ NSC 38/23 Q0995 OIBP 220630Z 00000KT 3000 HZ NSC 38/27 Q0996 A2943 OIBQ 220600Z 30012KT CAVOK 35/25 Q0997 OIBS 220600Z 36008KT 5000 HZ NSC 35/27 Q0996 OIBV 220500Z 26004KT 4000 HZ NSC 34/28 Q0995 OICC 220630Z 29006KT CAVOK 30/01 Q1008 A2978 NOSIG OICI 220630Z 30006KT CAVOK 31/05 Q1009 A2980 OICK 220600Z 00000KT 9000 NSC 33/03 Q1006 OICM 220500Z 29006KT CAVOK 35/04 Q0997 OICS 220600Z 27002KT CAVOK 29/M01 Q1008 OIFM 220630Z 00000KT 7000 NSC 34/M03 Q1011 A2987 OIFS 220600Z 26002KT CAVOK 29/M05 Q1017 OIGG 220630Z 00000KT 9999 FEW020TCU SCT025 BKN080 28/24 Q1007 OIHH 220600Z 29004KT CAVOK 29/04 Q1010 OIHR 220630Z 08008KT CAVOK 34/02 Q1012 OIIE 220600Z 03004KT CAVOK 34/08 Q1007 OIII 220630Z 18008KT CAVOK 35/04 Q1009 A2980 OIIK 220600Z 26004KT 9000 NSC 27/15 Q1010 OIIP 220600Z 32004KT CAVOK 28/14 Q1009 OIKB 220630Z 09004KT 4000 HZ NSC 40/18 Q0996 A2942 OIKK 220600Z 18004KT 9999 FEW045 35/M02 Q1015 A2989 OIKQ 220600Z 07006KT 4000 HZ NSC 38/28 Q0995 OIMB 220600Z 06010KT CAVOK 34/M11 Q1009 OIMC 220600Z AUTO 27010KT //// // ////// 37/22 Q1002 OIMD 220500Z 13012KT CAVOK 36/01 Q1004 OIMM 220630Z 17004KT CAVOK 37/07 Q1008 A2978 OIMN 220600Z 29006KT 8000 SCT050 29/20 Q1012 OIMQ 220600Z AUTO 11010KT //// // ////// 37/04 Q1007 OIMS 220600Z 07012KT CAVOK 37/07 Q1009 OINE 220600Z 15006KT 9999 FEW030 33/24 Q1005 OING 220600Z 21010KT 7000 SCT020 FEW025CB OVC080 28/27 Q1007 OINN 220600Z 18004KT 8000 FEW020CB BKN025 OVC080 26/24 Q1006 OINR 220600Z 33008KT 9999 FEW022CB SCT027 OVC080 27/24 Q1005 OINZ 220600Z 21008KT 9999 FEW015 FEW023CB BKN025 OVC070 26/25 Q1006 RERA OISF 220600Z 12004KT 4000 DU NSC 33/15 Q1006 OISL 220600Z 00000KT CAVOK NSC 37/16 Q1001 OISR 220600Z 00000KT 6000 NSC 40/14 Q0999 OISS 220630Z 14004KT 5000 HZ NSC 34/06 Q1009 A2981 OISY 220600Z 00000KT 8000 FEW045 30/M00 Q1013 OITL 220630Z 07021KT 9999 FEW013 SCT090 21/14 Q1013 OITM 220600Z 10023KT CAVOK 26/15 Q1008 OITP 220500Z 12006KT 9999 BKN040 BKN090 28/18 Q1007 OITR 220630Z 02014KT 9999 FEW035 27/13 Q1009 OITT 220630Z 10012KT 9999 FEW030 26/12 Q1011 A2987 OITZ 220600Z 11016KT 9999 FEW020 SCT070 25/12 Q1012 OIYY 220630Z 31006KT CAVOK 36/M09 Q1008 OIZB 220600Z 34027G37KT 6000 NSC 42/00 Q0994 OIZH 220630Z 02008KT 7000 FEW040 37/03 Q1007 A2975 OIZI 220600Z 28004KT 6000 NSC 39/09 Q1001 OIZJ 220600Z 10012KT 6000 NSC 34/30 Q0995 OJAI 220600Z 28010KT 5000 HZ BKN035 23/18 Q1011 NOSIG OJAM 220600Z 25009KT 5000 HZ SCT030 23/17 Q1011 NOSIG OJAQ 220600Z 35012KT CAVOK 29/18 Q1008 NOSIG OKBK 220600Z 34011KT 8000 NSC 38/10 Q0999 NOSIG OLBA 220600Z 23011KT 8000 FEW026 29/22 Q1008 NOSIG OMAA 220600Z VRB02KT 8000 NSC 37/26 Q0996 BECMG 32010KT OMAD 220600Z 31005KT 260V010 8000 NSC 36/26 Q0996 NOSIG OMAL 220600Z 17012KT 5000 DU NSC 39/13 Q0999 NOSIG OMDB 220600Z VRB06KT 7000 NSC 41/13 Q0996 NOSIG OMDW 220600Z 18009KT 5000 DU NSC 39/13 Q0997 NOSIG OMFJ 220600Z 12004KT 060V180 5000 HZ NSC 38/20 Q0997 RMK A2944 OMRK 220600Z 16003KT 6000 NSC 43/13 Q0996 A2942 OMSJ 220600Z 09003KT 8000 NSC 41/14 Q0996 OODQ 220550Z AUTO 20033KT //// 28/21 Q1000 RMK 0987 OOMS 220550Z 05007KT 8000 NSC 32/29 Q0996 NOSIG OOSA 220550Z 18006KT 4500 HZ SCT007 BKN013 OVC020 26/25 Q1006 NOSIG OOSH 220550Z AUTO VRB04KT //// 36/24 Q0996 RMK 0992 OPIS 220425Z 14008KT 4000 BR FEW030 SCT080 30/26 Q1001 RH76 OPKC 220555Z 24014KT 6000 SCT020 BKN030 32/21 Q0999 NOSIG OPLA 220555Z 17005KT 4000 FU SCT040 BKN100 31/27 Q1000 A29.52 TEMPO 05020G40KT 1500 TSRA FEW030CB OPMT 220600Z 13004KT 4000 FU FEW120 34/24 Q0997 NOSIG OPNH 220600Z 18010KT 6000 NSC 37/25 Q0996 NOSIG OPPS 220630Z 05008KT 5000 HZ SCT040 SCT100 30/25 Q999 OPRN 220630Z 13014KT 7000 BKN030 SCT050 33/26 Q1002 NOSIG RMK A2960 OPSK 220600Z 13010KT 5000 HZ NSC 35/25 Q0995 NOSIG OPST 220600Z 13006KT 4000 FU SCT040 SCT100 30/25 Q1001 TEMPO 13030KT 1500 TSRA FEW030CB RH78 ORBD 220555Z 30012KT 6000 DUHZ CLR 33/16 A2951 RMK WND DATA ALSTG ESTMD ORBI 220600Z 29015KT CAVOK 35/17 Q0999 NOSIG ORER 220600Z 18005KT 8000 NSC 35/08 Q1002 NOSIG ORMM 220600Z 27012KT CAVOK 38/08 Q0999 NOSIG ORNI 220600Z 31014KT 8000 NSC 35/11 Q1000 NOSIG ORSU 220600Z VRB02KT CAVOK 34/07 Q1005 OSDI 220600Z 20012KT CAVOK 26/17 Q1008 OSKL 220600Z 08004KT CAVOK 34/05 Q1000 OSLK 220600Z 19009KT 9999 FEW026 TCU SCT030 28/22 Q1006 OTBD 220600Z 34014KT CAVOK 38/22 Q0997 NOSIG OTBH 220556Z 36024G27KT 8000 HZ CLR 40/15 A2946 RMK AO2A PK WND 36029/55 SLP977 T03960145 10396 20314 50004 $ OTHH 220600Z 01013KT CAVOK 36/23 Q0997 NOSIG PAAD 220635Z AUTO 12007KT 10SM CLR 12/09 A3017 RMK AO2 T01200093 PAAK 220634Z AUTO 28014KT 1/2SM FG BKN002 BKN030 OVC045 09/09 A2994 RMK AO2 PNO $ PAAQ 220553Z AUTO 15005KT 10SM CLR 21/13 A3026 RMK AO2 SLP249 T02110128 10244 20211 55001 TSNO PABA 220552Z AUTO 08008KT 10SM CLR 10/09 A3020 PABE 220553Z 20007KT 10SM SCT050 20/13 A3014 RMK AO2 SLP207 T02000128 10233 20200 55006 PABI 220553Z AUTO 05004KT 10SM CLR 24/11 A3025 PABL 220556Z AUTO RMK AO2 SLPNO 6//// PWINO FZRANO $ PABR 220553Z 25008KT 10SM SCT038 BKN046 12/09 A3006 PABT 220553Z 21004KT 10SM FEW045 23/11 A3019 RMK AO2 SLP229 T02280111 10244 20222 56006 PABV 220556Z AUTO 22005KT 10SM CLR 22/13 A3028 RMK AO2 SLP261 6//// T02170128 10233 20206 55002 PNO $ PACD 220619Z AUTO 14017KT 5SM -RA BR FEW005 FEW013 OVC019 11/11 A3001 PACM 220556Z AUTO 13012KT 10SM SCT110 16/13 A3010 RMK AO2 SLP190 60000 T01560128 10167 20150 55008 PACV 220637Z 18003KT 3/4SM R27/4500VP6000FT BR VV003 12/12 A3036 RMK AO2 T01220122 PACZ 220621Z AUTO 19020G26KT 10SM FEW009 BKN150 14/11 A3006 RMK AO2 PK WND 17027/0557 SLP179 PADE 220353Z AUTO 19014KT 10SM BKN045 OVC060 20/14 A3009 RMK AO2 SLP191 T02000144 TSNO $ PADK 220556Z AUTO 25012KT 10SM OVC005 09/08 A2998 PADL 220556Z AUTO 13010KT 10SM FEW049 BKN065 16/12 A3022 PADQ 220553Z 14009KT 10SM OVC036 14/11 A3032 PADU 220556Z AUTO 14009KT 10SM OVC014 12/09 A2993 RMK AO2 SLP137 T01170089 10133 20111 55003 PAED 220556Z AUTO 29007KT 10SM CLR 18/12 A3027 PAEG 220453Z AUTO 00000KT 10SM CLR 23/12 A3022 RMK SLP232 T02330122 TSNO VIA AUTODIAL PAEH 220555Z AUTO 16018G32KT 110V180 10SM SCT014 14/11 A3010 PAEI 220556Z AUTO 00000KT 10SM CLR 23/12 A3019 PAEM 220556Z AUTO 18007KT 10SM CLR 17/13 A3013 RMK AO2 SLP262 60000 T01720133 10183 20167 56006 PAEN 220553Z AUTO 20010KT 10SM SCT005 13/11 A3032 PAFA 220553Z 13003KT 10SM FEW050 FEW080 SCT250 25/13 A3019 PAFB 220558Z AUTO 00000KT 10SM CLR 26/13 A3019 PAFE 220556Z AUTO VRB04KT 10SM CLR 17/12 A3026 RMK AO2 SLP258 T01670117 10228 20167 53006 PAFM 220556Z AUTO 29004KT 10SM -RA BKN050 BKN065 OVC120 18/16 A3018 RMK AO2 SLP232 P0011 60014 T01780161 10250 20178 55002 PAFR 220558Z AUTO 00000KT 10SM CLR 19/12 A3025 PAFS 220601Z AUTO 00000KT 10SM CLR 25/13 A3019 PAGA 220556Z AUTO 20003KT 10SM CLR 21/17 A3018 PAGH 220556Z AUTO 30005KT 10SM FEW045 BKN070 OVC090 18/16 A3016 RMK AO2 RAB28E56 SLP216 P0006 60006 T01780161 10250 20178 55002 PAGK 220553Z AUTO 00000KT 10SM CLR 22/09 A3026 RMK AO2 SLP237 T02170094 10278 20217 55004 TSNO PAGM 220607Z AUTO 17015KT 10SM OVC007 10/09 A3001 RMK AO2 PAGN 220556Z AUTO VRB04KT 10SM CLR 14/11 A3026 RMK AO2 SLP236 T01390111 10178 20139 53006 PAGS 220556Z AUTO 00000KT 10SM CLR 12/10 A3030 RMK AO2 SLP261 T01220100 10189 20122 53009 PAGY 220553Z AUTO 00000KT 10SM CLR 18/12 A3023 RMK AO2 SLP238 T01780122 10217 20172 51019 TSNO PAHL 220556Z AUTO 22005KT 10SM FEW100 23/14 A3017 RMK AO2 SLP223 T02330139 10261 20233 55003 PAHN 220554Z AUTO 10004KT 10SM CLR 17/13 A3023 RMK AO2 SLP238 T01720128 10217 20161 53011 TSNO PAHO 220553Z AUTO 24007KT 10SM CLR 16/11 A3033 RMK AO2 SLP269 T01610111 10189 20144 55001 TSNO PAHP 220556Z AUTO 16014KT 10SM BKN055 13/12 A3008 RMK AO2 SLP223 60000 T01330122 10139 20133 55004 PAHX 220556Z AUTO 18003KT 10SM BKN050 23/15 A3016 RMK AO2 SLP214 T02280150 10244 20222 56009 PAHY 220556Z AUTO 00000KT 10SM CLR 15/12 A3024 RMK AO2 SLP340 6//// T01500117 10211 20150 51014 PNO $ PAIG 220556Z AUTO 06007KT 10SM CLR 17/13 A3020 RMK AO2 SLP237 T01720133 10183 20150 56006 $ PAII 220556Z AUTO 13018G24KT 10SM CLR 14/11 A3021 RMK AO2 PK WND 14027/0509 SLP231 T01440111 10194 20144 56006 PAIK 220556Z AUTO 21005KT 10SM OVC075 21/15 A3015 RMK AO2 SLP211 60000 T02110150 10233 20206 53003 PAIL 220553Z AUTO 16006KT 10SM CLR 14/12 A3028 RMK AO2 SLP253 T01440117 10200 20144 58004 TSNO PAIM 220555Z AUTO 26003KT 10SM SCT075 22/12 A3020 PAIN 220556Z AUTO 10SM CLR 19/07 A3024 RMK AO2 SLP247 T01890067 10267 20189 55001 $ PAIW 220632Z AUTO 18024G29KT 10SM SCT006 SCT020 OVC037 11/10 A3008 RMK AO2 PK WND 17029/0632 PAJC 220640Z AUTO 07006KT 7SM -RA SCT010 BKN013 OVC035 12/11 A3018 RMK AO2 RAB10 P0001 PAJN 220553Z 22004KT 10SM FEW350 18/11 A3022 PAJZ 220556Z AUTO 16008KT 7SM OVC031 19/14 A3027 RMK AO2 SLP257 T01890139 10233 20189 53005 $ PAKF 220642Z AUTO 18009G15KT 3SM -RA BR BKN006 OVC010 11/10 A3001 RMK AO2 RAB32 P0000 PAKH 220608Z AUTO 09012KT 10SM BKN014 OVC027 13/12 A3031 RMK AO2 $ PAKI 220556Z AUTO 16015KT 10SM SCT060 BKN075 OVC095 14/12 A3009 RMK AO2 SLP191 T01440122 10161 20144 55006 PAKK 220456Z AUTO 20006KT 10SM OVC041 18/15 A3013 RMK AO2 SLP217 T01830150 PNO $ PAKN 220554Z 19008KT 10SM CLR 17/12 A3019 PAKP 220556Z AUTO 20005KT 10SM CLR 18/09 A3021 RMK AO2 SLP245 T01830094 10211 20183 55001 PAKT 220553Z AUTO 16005KT 9SM CLR 14/13 A3025 PAKU 220145Z 07009KT 10SM R06/P6000FT SCT042 15/10 A3018 PAKV 220553Z AUTO 00000KT 10SM FEW060 BKN080 22/16 A3019 RMK AO2 SLP225 60000 T02220156 10244 20217 55006 TSNO PAKW 220553Z AUTO 20006KT 10SM CLR 13/12 A3027 RMK SLP248 T01280117 10189 20128 53008 TSNO VIA AUTODIAL PALG 220556Z AUTO 00000KT 10SM BKN060 19/18 A3014 RMK AO2 SLP211 60008 T01890178 10239 20189 56004 PWINO PALH 220553Z 00000KT 10SM CLR 21/13 A3028 RMK AO2 SLP255 T02060128 10244 20206 56004 PALJ 220054Z 23010KT 40SM SCT100 27/18 A3025 RMK EST PASS OPN NOSPECI PALP 220204Z 04008KT 15SM FEW038 SCT130 BKN220 15/10 A3017 PALU 220618Z AUTO 19018G25KT 160V230 8SM -SHRA BKN020 15/12 A3000 RMK AO2 SLP160 $ PAMB 220556Z AUTO 13011KT 10SM OVC070 16/12 A3021 RMK AO2 SLP235 T01560117 10183 20156 58007 $ PAMC 220553Z AUTO 00000KT 10SM CLR 24/14 A3018 RMK AO2 SLP223 T02440144 10267 20244 56008 TSNO PAMD 220551Z AUTO 27007KT 10SM OVC006 12/11 A3038 RMK AO2 SLP277 T01170111 10133 20117 55004 PAMH 220556Z AUTO 00000KT 10SM OVC110 24/12 A3019 RMK AO2 SLP975 T02390122 10289 20239 55004 PAMM 220556Z AUTO 35003KT 10SM CLR 16/14 A3024 RMK AO2 SLP233 T01560139 10206 20156 53007 PAMO 220602Z AUTO 00000KT 10SM FEW046 BKN070 17/14 A3015 RMK AO2 SLP212 60001 T01720139 10178 20156 58009 PAMR 220553Z 33005KT 10SM CLR 19/13 A3027 RMK AO2 SLP251 T01890133 10239 20189 56004 $ PANA 220556Z AUTO 19006KT 10SM FEW065 SCT090 19/13 A3013 RMK AO2 SLP201 T01940133 10228 20194 55006 PANC 220553Z 22003KT 10SM FEW050 BKN200 20/12 A3028 PANI 220556Z AUTO 15004KT 10SM CLR 21/13 A3016 RMK AO2 SLP183 T02110133 10239 20211 56006 PANN 220553Z AUTO 00000KT 10SM CLR 24/16 A3017 RMK AO2 SLP219 T02390156 10294 20239 55004 TSNO PANT 220553Z AUTO 13008KT 10SM CLR 15/13 A3023 RMK SLP238 T01500128 10178 20150 53006 TSNO VIA AUTODIAL PANV 220456Z AUTO 13003KT 10SM FEW047 SCT055 BKN070 22/14 A3015 RMK AO2 SLP226 T02220144 PANW 220556Z AUTO 21006KT 10SM BKN034 17/12 A3024 RMK AO2 SLP255 T01720117 10228 20172 51004 PAOH 220556Z AUTO 08003KT 10SM CLR 14/11 A3026 RMK AO2 SLP248 T01390106 10244 20139 53009 PAOM 220553Z 14004KT 10SM OVC007 13/13 A3012 PAOO 220556Z AUTO 13020KT 10SM FEW018 SCT040 BKN090 14/12 A3009 RMK AO2 PK WND 13028/0534 SLP200 60000 T01440117 10150 20139 56008 PAOR 220553Z 00000KT 10SM SCT100 BKN240 20/13 A3025 PAOT 220553Z 18010KT 10SM FEW045 BKN060 BKN070 17/14 A3009 PAOU 220556Z AUTO 14018KT 10SM BKN037 OVC050 13/11 A3007 RMK AO2 SLP182 T01330106 10161 20133 53003 PAPB 220638Z AUTO 13010KT 6SM -RA BR SCT007 BKN027 OVC070 10/10 A2990 RMK AO2 P0007 T01000100 TSNO PAPG 220556Z 13003KT 10SM CLR 18/12 A3022 RMK AO2 SLP237 T01830122 10211 20172 53004 PAPH 220556Z AUTO 15019G26KT 10SM FEW033 14/11 A3012 RMK AO2 PK WND 16026/0552 SLP203 T01440106 10167 20139 50000 PAPN 220556Z AUTO 11013KT 10SM CLR 14/12 A3017 RMK AO2 SLP218 60000 T01390117 10161 20139 55002 PAPO 220556Z AUTO 17016KT 3SM BR SCT028 BKN033 OVC042 11/11 A3002 RMK AO2 RAB0457E06 SLP165 P0000 60000 T01110106 10122 20111 56008 PAPT 220252Z 16010KT 25SM FEW100 21/17 A3028 RMK NO SPECI LAST PAQH 220556Z AUTO 12014KT 10SM CLR 18/12 A3012 RMK AO2 SLP199 T01830122 10217 20183 56010 PAQT 220553Z AUTO 09012KT 10SM CLR 16/12 A3014 RMK AO2 SLP207 T01560117 10178 20156 58009 TSNO PARC 220556Z AUTO 13004KT 10SM CLR 19/09 A3020 RMK AO2 SLP245 T01940094 10217 20194 55002 PARS 220556Z AUTO 00000KT 8SM FEW050 20/16 A3014 RMK AO2 SLP210 T02000161 10217 20200 56010 $ PARY 220556Z AUTO VRB03KT 10SM OVC110 23/14 A3019 PASA 220556Z AUTO 17011KT 4SM BR OVC012 12/09 A3004 RMK AO2 SLP175 T01170094 10139 20117 53002 PASC 220553Z 07010KT 10SM FEW040 SCT180 13/09 A3015 PASD 220633Z AUTO 17004KT 10SM BKN006 OVC013 11/10 A3012 RMK AO2 RAB12E28 PNO $ PASI 220553Z 32010KT 10SM FEW015 14/12 A3029 PASK 220556Z AUTO 00000KT 10SM FEW047 BKN070 OVC090 20/16 A3015 RMK AO2 SLP208 60013 T02000161 10239 20178 55001 $ PASM 220602Z AUTO 00000KT 10SM BKN038 BKN050 OVC065 18/14 A3015 RMK AO2 SLP226 60000 T01830144 10189 20167 58009 PASN 220634Z AUTO 10006KT 3SM -RA BR OVC004 08/08 A2991 PASO 220553Z AUTO 17010G20KT 10SM CLR 14/10 A3033 RMK AO2 SLP271 T01390100 10172 20139 55000 TSNO PASX 220556Z AUTO 26008KT 10SM CLR 15/11 A3034 RMK AO2 SLP282 T01500111 10228 20150 53003 PASY 220558Z AUTO M 5SM -RA BR OVC003 09/08 A2990 PATA 220552Z AUTO 12003KT 10SM FEW080 FEW200 23/14 A3017 RMK AO2 SLP218 T02330139 10272 20222 55006 TSNO PATC 220555Z AUTO 19019KT 7SM BKN002 11/11 A3006 PATE 220637Z AUTO 19015KT 10SM BKN009 OVC014 13/12 A3011 RMK AO2 CIG 007V012 PATG 220556Z AUTO 12016G22KT 10SM FEW024 OVC049 16/12 A3017 RMK AO2 SLP311 T01610122 10183 20156 55006 PATK 220553Z AUTO 20004KT 10SM CLR 23/13 A3025 RMK AO2 SLP245 T02280133 10250 20228 55005 TSNO $ PATL 220555Z AUTO 00000KT 10SM CLR 22/14 A3024 PATO 220553Z AUTO 08010G20KT 10SM CLR 16/11 A3031 RMK AO2 SLP263 T01560106 10206 20156 53003 TSNO PAUN 220556Z AUTO 34003KT 10SM FEW050 19/16 A3017 RMK AO2 SLP222 T01940156 10211 20178 56007 PAUT 220635Z AUTO 14014G21KT 10SM OVC003 10/10 A2995 RMK AO2 T01030098 PAVA 220556Z AUTO 17013KT 10SM FEW021 BKN041 OVC090 15/12 A3010 RMK AO2 SLP277 60000 T01500122 10161 20139 56003 $ PAVC 220631Z AUTO 07010KT 3/4SM -RA BR OVC003 11/11 A3007 RMK AO2 P0003 PAVD 220556Z 07008KT 10SM FEW300 11/08 A3034 PAVL 220636Z AUTO 19016KT 1 3/4SM -RA BR FEW013 BKN027 OVC039 14/14 A3005 RMK AO2 RAB08 P0002 T01440139 TSNO $ PAWD 220621Z AUTO 19008KT 10SM BKN013 14/13 A3035 RMK AO2 T01390128 TSNO PAWG 220556Z 27005KT 10SM CLR 18/12 A3023 PAWI 220453Z AUTO 24006KT 10SM BKN033 BKN060 OVC100 12/08 A3005 RMK AO2 SLP175 T01220078 TSNO $ PAWM 220556Z AUTO 17006KT 10SM BKN024 OVC031 16/14 A3016 RMK AO2 SLP214 60001 T01610139 10161 20150 55005 PAWN 220556Z AUTO 13003KT 9SM FEW043 OVC060 17/15 A3009 RMK AO2 SLP204 60000 T01670150 10194 20167 56008 PAWS 220456Z AUTO 18003KT 10SM CLR 22/14 A3028 RMK AO2 SLP265 T02220144 PAYA 220553Z AUTO 29005KT 10SM BKN007 13/12 A3033 RMK AO2 SLP270 T01330117 10172 20133 55000 TSNO PAZK 220456Z AUTO 21006KT 10SM CLR 19/10 A3032 RMK AO2 SLP275 T01940100 PFCL 220556Z AUTO 14017G23KT 10SM FEW120 16/12 A3020 RMK AO2 SLP220 T01560122 10194 20150 56004 TSNO PFEL 220618Z AUTO 00000KT 10SM BKN031 OVC070 16/14 A3018 RMK AO2 PFKT 220556Z AUTO 20012KT 10SM BKN029 OVC060 13/12 A3011 RMK AO2 SLP197 60001 T01330122 10144 20133 58002 PFKW 220556Z AUTO 26003KT 10SM BKN060 22/13 A3013 RMK AO2 SLP201 T02170133 10233 20211 55006 PFNO 220556Z AUTO 20004KT 10SM OVC070 20/15 A3013 RMK AO2 SLP204 T02000150 10228 20200 55003 PFSH 220556Z AUTO 13003KT 8SM BKN037 OVC050 18/16 A3017 RMK AO2 SLPNO T01780156 10189 20167 56006 PWINO $ PFWS 220556Z AUTO 17016G21KT 10SM SCT075 16/12 A3023 RMK AO2 SLP242 T01610122 10206 20161 55003 PFYU 220556Z AUTO 00000KT 10SM CLR 22/14 A3020 PGRO 220550Z 26005KT 210V290 7SM FEW014 BKN100 28/24 A2977 PGSN 220554Z 24010KT 10SM SCT020 29/26 A2976 RMK AO2 SLP097 60000 T02940261 10311 20294 56012 $ PGUA 220556Z 24007KT 7SM SCT028 BKN170 30/25 A2978 RMK AO2A SLP075 60012 T02950246 10323 20260 57014 RVRNO VISNO RWY24L CHINO RWY24L $ PGUM 220616Z 22008KT 10SM SCT021 BKN027 30/27 A2978 PGWT 220557Z 23009KT 7SM SCT016 BKN100 28/25 A2974 PHBK 220556Z AUTO 01008KT 10SM BKN055 28/20 A2998 RMK AO2 SLP154 T02780200 10306 20272 53013 PHHI 220556Z AUTO 31004KT 10SM CLR 23/18 A3001 RMK AO2 SLP153 T02310182 10289 20231 52013 $ PHJH 220345Z 35012KT 10SM SCT030 BKN045 25/21 A2997 RMK LAST PHJR 220553Z 06006KT 10SM CLR 26/18 A3000 RMK AO2 SLP166 T02560183 10322 20256 53016 PHKO 220553Z 04006KT 10SM OVC050 26/21 A2995 PHLI 220553Z 05015KT 10SM SCT025 SCT029 BKN048 26/21 A3003 PHMK 220554Z AUTO 03009G16KT 10SM OVC060 26/20 A3000 RMK AO2 SLP159 T02560200 10306 20256 53010 TSNO PHNG 220557Z 06007KT 10SM OVC060 27/20 A2999 RMK AO2 SLP150 T02670200 10289 20261 53012 $ PHNL 220553Z 06010KT 10SM FEW025 FEW038 BKN280 26/18 A2999 PHNY 220556Z AUTO 05017G24KT 10SM OVC055 22/19 A3003 RMK AO2 SLP149 T02220189 10267 20222 51013 PHOG 220554Z 04006KT 10SM SCT043 BKN060 24/21 A2999 PHSF 220611Z AUTO M 10SM BKN010 15/12 A3030 RMK AO2 BKN V SCT SLP147 WND DATA ESTMD $ PHTO 220553Z 30005KT 10SM -RA SCT021 BKN027 OVC035 24/22 A2999 PKMJ 220550Z 20004KT 15SM SCT015 SCT050 BKN300 30/25 A2978 PKMR 220550Z 24004KT 15SM FEW015 SCT050 OVC300 29/24 A2977 RMK SLP083 8/808 T02910240 10299 20291 55000 PKWA 220640Z AUTO 00000KT 10SM CLR 29/24 A2980 RMK AO2 T02900236 PLCH 220600Z 12006KT 9999 FEW020 27/22 Q1009 PMDY 220641Z AUTO 07018KT 10SM FEW018 SCT028 OVC045 24/21 A3013 RMK AO2 PPIT 220556Z AUTO 25006KT 10SM FEW065 20/14 A3012 RMK AO2 SLP199 T02000144 10228 20194 55005 TSNO PPIZ 220556Z AUTO 12005KT 10SM OVC036 14/11 A3003 RMK AO2 SLP174 60000 T01440111 10144 20117 58017 TSNO PPNU 220635Z AUTO 10SM CLR 12/10 A3014 RMK AO1 PTKK 220552Z VRB05KT 15SM FEW014 BKN120 BKN280 30/25 A2980 RMK SLP093 8/171 T03040254 10315 20304 57005 PTKR 220626Z 29005KT 3SM SHRA BKN017CB OVC290 28/25 A2980 RMK CB ALQDS AND OHD MOV NE PTPN 220356Z 06005KT 15SM -RA BKN017TCU OVC130 27/25 A2982 RMK TCU ALQDS LAST PTRO 220550Z 27010KT 14SM BKN015 BKN110 OVC290 28/24 A2980 PTSA 220450Z 24012KT 10SM BKN014CB BKN130 OVC300 28/25 A2973 RMK CB DSNT SW-NE PTTP 220553Z 12002KT 14SM -RA BKN017 OVC120 26/25 A2983 RMK SLP102 60002 8/12/ T02620245 10272 20256 55014 PTYA 220551Z 25009KT 12SM SCT016TCU BKN130 OVC300 29/25 A2977 RMK TCU NW-NE AND SE-SW SLP083 60002 8/278 T02920254 10298 20284 57015 PWAK 220558Z AUTO 17018KT 8000 BR FEW016 SCT023 SCT037 BKN110 27/25 A2985 RMK AO2 RAE20RAB41E57 SLP115 $ RCFN 220630Z VRB01KT 9999 -RA FEW008 SCT013 OVC060 28/24 Q1001 NOSIG RMK A2958 RCKH 220630Z 13005KT 080V210 9999 FEW010 FEW014CB SCT024 BKN150 30/27 Q1001 WS R27 TEMPO 5000 SHRA RMK 26009KT/R09 CB SE A2956 RCMQ 220630Z 30007KT 6000 TS FEW012 FEW016CB SCT020 BKN050 31/26 Q1001 NOSIG RMK A2956 TS E MOV S RCNN 220630Z 28008KT 9999 VCTS VCSH FEW012 FEW014CB SCT025 BKN150 32/25 Q1000 NOSIG RMK A2955 TS NE STNRY VCSH NE-E RCSS 220630Z 29008KT 250V330 9999 FEW020 SCT030 BKN150 33/27 Q0999 NOSIG RMK A2952 RCTP 220630Z 36007KT 320V030 9999 FEW015 SCT018 BKN150 30/27 Q1000 NOSIG RMK A2954 RJAA 220630Z 13006KT 090V170 9999 FEW030 34/27 Q1007 NOSIG RJAF 220600Z 35010KT 9999 FEW060 BKN/// 34/18 Q1011 RJAH 220600Z 24003KT 170V340 9999 FEW030 BKN230 35/24 Q1006 RJAW 220600Z 12011KT 090V160 9999 FEW015 SCT230 29/26 Q1009 RMK 2CU015 A2981 RJBB 220630Z 24015KT 9999 FEW020 BKN/// 32/25 Q1009 NOSIG RJBD 220600Z 20007KT 150V270 9999 FEW010 BKN/// 30/26 Q1011 RJBE 220600Z 22016KT 9999 FEW025 SCT/// 30/26 Q1009 RJBT 220600Z 36008KT 9999 FEW035 SCT/// 33/22 Q1009 RJCA 220230Z 24006KT 9999 FEW005 SCT008 BKN010 23/18 Q1005 RMK 1ST005 3ST008 5ST010 A2969 RJCB 220600Z 33008KT 290V360 9999 FEW030 SCT/// 26/17 Q1002 RJCC 220630Z 35017KT 9999 FEW030 SCT070 BKN/// 24/14 Q1005 RJCH 220600Z 24009KT 9999 FEW025 SCT130 BKN/// 25/21 Q1005 RJCK 220600Z 15004KT 120V190 9999 FEW015 BKN030 22/18 Q1003 RJCM 220600Z 01009KT 9999 FEW015 BKN030 17/11 Q1005 RJCN 220600Z 03009KT 360V070 9999 FEW020 SCT045 20/14 Q1002 RJCO 220326Z 31013G23KT 9999 FEW030 BKN050 BKN230 20/16 Q1006 RMK 1CU030 5CU050 6CI230 A2973 RJCW 220600Z 33016KT 9999 FEW010 SCT015 17/13 Q1006 RJDC 220600Z 09016KT 9999 FEW025 SCT180 BKN/// 30/27 Q1009 RJDT 220600Z 13006KT 100V160 9999 FEW020 BKN/// 31/25 Q1009 RJEB 220600Z 35005KT 290V040 9999 FEW020 BKN030 17/13 Q1006 RJEC 220600Z 29010KT 9999 FEW020 SCT035 BKN/// 24/18 Q1004 RJFF 220630Z 32012KT 9999 +TSRA FEW025 BKN045CB BKN070 33/24 Q1007 RJFG 220600Z 14012KT 110V180 9999 FEW005 SCT010 BKN015 28/26 Q1010 RJFK 220600Z 14010KT 9999 VCSH FEW030 BKN150 BKN/// 30/22 Q1011 RJFM 220600Z 09006KT 9999 FEW010 SCT025 BKN030 29/27 Q1010 RJFO 220600Z 13011KT 9999 FEW010 SCT030 BKN/// 28/26 Q1009 RJFR 220600Z 08017KT 9999 FEW015 SCT150 BKN/// 30/24 Q1009 RJFS 220600Z 21010KT 9999 FEW035 SCT160 BKN/// 34/25 Q1008 RJFT 220600Z 20006KT 9999 FEW030 BKN040 BKN050 32/25 Q1009 RJFU 220600Z 15008KT 9999 FEW030 BKN040 BKN160 34/26 Q1008 RJGG 220630Z 17010KT 9999 FEW025 BKN/// 33/27 Q1007 NOSIG RJKA 220600Z 16009KT 9999 FEW009 BKN015 BKN/// 29/26 Q1008 RJNK 220600Z 33006KT 290V350 9999 FEW030 BKN250 32/18 Q1009 RJNS 220600Z 23011KT 9999 FEW020 BKN/// 32/26 Q1008 RJNT 220600Z 35007KT 310V020 9999 FEW040 BKN/// 35/23 Q1008 RJNW 220600Z 28007KT 240V310 9999 FEW025 SCT/// 33/22 Q1010 RJOA 220600Z 20006KT 150V240 9999 SCT025 31/23 Q1011 RJOB 220600Z 23006KT 140V290 9999 FEW025 SCT/// 34/23 Q1010 RJOC 220600Z 02008KT 9999 FEW030 SCT/// 33/23 Q1008 RJOH 220600Z 05008KT 9999 FEW030 SCT050 34/20 Q1008 RJOI 220555Z 18010KT 9999 FEW030 SCT120 BKN240 34/23 A2982 RMK SLP098 T03440233 10356 20306 57010 RJOK 220600Z 20009KT 9999 FEW020 SCT030 FEW030CB BKN/// 31/24 Q1010 RJOM 220600Z VRB03KT 9999 FEW025 SCT060 BKN/// 30/25 Q1010 RJOO 220600Z 22008KT 160V270 9999 FEW030 BKN/// 35/19 Q1008 RMK 1CU030 A2979 RJOP 220625Z 18007KT 9999 FEW030CB BKN230 34/24 Q1009 RETS RMK 1CB030 A2982 CB 20KM W MOV NE RJOR 220600Z 36006KT 9999 FEW035 SCT/// 31/23 Q1008 RJOT 220611Z 07006KT 030V110 9999 TS VCSH FEW020 FEW025CB SCT035 32/24 Q1010 RMK 1CU020 1CB025 3CU035 A2985 FBL TS 15KM S STNR CB SE RJOW 220600Z 31007KT 9999 FEW030 BKN/// 33/26 Q1009 RJOY 220600Z 29012KT 9999 FEW035 BKN/// 34/23 Q1009 RJSA 220600Z 28007KT 240V330 9999 FEW020 SCT100 BKN/// 26/21 Q1006 RJSC 220600Z 28012G23KT 240V310 9999 FEW050 BKN/// 34/21 Q1007 RJSF 220600Z 33009KT 9999 SCT050 BKN/// 33/22 Q1009 RJSH 220446Z 26018G29KT 9999 FEW030 SCT120 BKN230 32/22 Q1004 RMK 1CU030 3AC120 A2967 RJSI 220600Z 27009KT 210V310 9999 FEW030 SCT045 BKN/// 30/22 Q1007 RJSK 220600Z 27012KT 9999 FEW010 BKN012 BKN015 27/23 Q1008 RJSN 220600Z 27011KT 9999 FEW030 BKN/// 33/24 Q1008 RJSO 220106Z 25016G30KT 9999 FEW025 SCT080 BKN150 28/22 Q1004 RMK 1CU025 3AC080 5AC150 A2968 RJSR 220600Z 26007KT 230V300 9999 FEW005 SCT012 BKN040 26/24 Q1008 RJSS 220600Z 08010KT 9999 FEW050 BKN/// 32/22 Q1005 RJSY 220600Z 25013KT 9999 FEW030 BKN035 29/23 Q1009 RJTF 220600Z 18008KT 140V230 9999 FEW030 BKN/// 35/25 Q1006 RJTI 220600Z 18011KT 9999 FEW030 BKN/// 32/26 Q1006 RJTL 220432Z 21005KT 150V270 9999 FEW030 BKN230 37/26 Q1007 RMK 2CU030 A2974 RJTO 220600Z 21015KT 9999 FEW008 SCT013 BKN/// 31/27 Q1008 RJTT 220630Z 19014KT 9999 FEW030 BKN/// 34/25 Q1006 NOSIG RJTY 220556Z AUTO 22006KT 10SM CLR 36/24 A2978 RMK AO2 SLP077 T03590241 10368 20324 57017 FZRANO $ RKJB 220600Z 12013KT 9999 SCT035 BKN200 33/24 Q1008 NOSIG RKJK 220556Z AUTO 15011KT 10SM FEW150 SCT170 SCT200 35/23 A2977 RMK AO2 SLP085 60000 T03480234 10359 20316 $ RKNY 220600Z 11007KT CAVOK 31/22 Q1006 NOSIG RKPC 220600Z 09012KT 040V180 9999 BKN040 BKN200 30/22 Q1006 WS R13 R31 NOSIG RKPK 220600Z 23008KT 9999 FEW030 BKN200 33/23 Q1009 NOSIG RKSG 220556Z AUTO 29005KT 10SM FEW190 37/24 A2975 RMK AO2 SLP076 T03650237 10366 20301 57010 $ RKSI 220630Z 31008KT CAVOK 34/21 Q1008 NOSIG RKSM 220600Z 21005KT 9999 FEW030 BKN200 38/21 A2976 RKSO 220558Z 23006KT 7SM SCT250 37/21 A2974 RMK AO2A SLP073 T03670207 10375 20306 57010 $ RKSS 220600Z 34005KT 290V100 CAVOK 36/18 Q1007 NOSIG RKTN 220600Z 21002KT 9999 SCT040 BKN200 36/23 Q1007 NOSIG RKTU 220600Z 24006KT 9999 FEW030 BKN200 36/24 Q1007 NOSIG ROAH 220630Z 15015KT 9999 SCT020 BKN/// 31/25 Q1005 RODN 220626Z AUTO 14014G21KT 10SM SCT016 BKN022 30/26 A2970 RMK AO2 BKN V SCT SLP062 ROIG 220600Z 10006KT 9999 -SHRA FEW004 SCT045 BKN090 27/26 Q1001 ROMY 220600Z 14015KT 9999 BKN012 BKN/// 29/26 Q1002 RORS 220600Z 13019KT 9999 BKN012 BKN160 29/27 Q1002 RORY 220600Z AUTO 15013KT 9999 FEW015 30/27 Q1006 ROTM 220556Z 15010G22KT 9999 SCT015 BKN025 BKN100 30/26 A2971 RMK SLP046 T03000261 10300 20256 583003 ROYN 220600Z AUTO 11011KT 9999 -RA FEW013 SCT130 29/25 Q1000 RPLB 220600Z VRB03 8000 -TSRA FEW014CB BKN016 OVC070 26/25 Q1007 RMK A2974 CB OHD RPLC 220600Z 18010KT 8000 -TSRA FEW015 SCT018 OVC090 26/24 Q1007 NOSIG RMK A2974 CB S-W RPLI 220600Z 22010KT 9999 FEW018CB SCT019 BKN100 31/26 Q1004 NOSIG RMK A2965 CB SE SW RPLL 220600Z 23012KT 8000 -TSRA FEW018CB SCT020 OVC070 25/25 Q1006 NOSIG RMK A2971 CB S-W RPMD 220600Z 17007KT 120V210 9999 FEW015CB SCT090 BKN290 31/24 Q1008 RMK A2977 CB ENE WNW RPMR 220600Z 36012KT 9999 VCSH FEW020CB BKN080 32/23 Q1010 NOSIG RMK A2983 CB NNE E S RPMZ 220600Z 24008KT 9999 FEW017 BKN090 32/25 Q1008 RMK A2977 RPVD 220600Z 25010KT 9000 -SHRA SCT015 OVC070 30/26 Q1007 RMK A2974 RPVM 220600Z 25009KT 220280 9999 FEW020 BKN100 31/23 Q1008 RMK A2977 RPVP 220600Z 18006KT 9999 FEW017CB OVC080 30/26 Q1007 RMK A2974 CB SW SAAR 220600Z 36007KT CAVOK 07/03 Q1014 SABE 220600Z 32007KT CAVOK 09/05 Q1017 NOSIG SACO 220600Z 04014KT CAVOK 08/M01 Q1008 NOSIG SADF 220600Z 00000KT CAVOK 07/03 Q1017 SAEZ 220600Z 36008KT CAVOK 09/03 Q1016 NOSIG SAME 220600Z 20006KT CAVOK 07/M02 Q1008 SANT 220600Z 36004KT CAVOK 09/02 Q1007 SAOC 220600Z 36006KT 9999 BKN200 08/M02 Q1009 SARC 220600Z 05003KT CAVOK 08/05 Q1016 SARE 220600Z 04005KT CAVOK 06/05 Q1016 SARF 220600Z 07003KT CAVOK 07/06 Q1016 SARI 220600Z 09003KT CAVOK 06/05 Q1018 SARL 220600Z 07006KT CAVOK 07/05 Q1017 SARP 220600Z 09004KT CAVOK 08/05 Q1018 SASA 220600Z 23003KT CAVOK 03/01 Q1012 SASJ 220600Z 02003KT CAVOK 02/01 Q1012 SAVC 220600Z 27013KT CAVOK 04/M03 Q1004 SAWE 220600Z 23006KT CAVOK M05/M05 Q1000 SAWG 220600Z 23010KT CAVOK M04/M05 Q1003 SAWH 220600Z 27013KT 9999 SCT040 SCT060 02/M03 Q0002 SAZM 220600Z 34005KT CAVOK 05/03 Q1014 SAZN 220600Z 27005KT CAVOK 04/M02 Q1014 SAZS 220600Z 27009KT 6000 -SN SCT003 BKN010 M02/M02 Q1011 NOSIG SBAN 220600Z 07005KT CAVOK 16/08 Q1020 SBAR 220600Z 12011KT 9999 SCT017 25/20 Q1016 SBBE 220600Z 08008KT CAVOK 25/23 Q1011 SBBH 220600Z 10005KT CAVOK 16/12 Q1021 SBBI 220100Z 09004KT 9999 BKN007 13/11 Q1023 SBBR 220600Z 00000KT CAVOK 10/08 Q1020 SBBU 220300Z 07009KT CAVOK 18/16 Q1020 SBBV 220600Z 31002KT 9999 FEW025 FEW030TCU 24/23 Q1012 SBCF 220600Z 11008KT CAVOK 15/12 Q1022 SBCG 220600Z 12007KT CAVOK 13/06 Q1017 SBCH 220400Z 12014KT CAVOK 07/04 Q1020 SBCO 220300Z 14001KT CAVOK 05/04 Q1023 SBCT 220600Z 09005KT 9999 OVC009 12/10 Q1023 SBCY 220600Z 20004KT CAVOK 15/14 Q1017 SBCZ 220600Z 12005KT 9999 SCT005 BKN100 22/19 Q1015 SBDN 220300Z 00000KT CAVOK 14/08 Q1019 SBEG 220600Z 33001KT CAVOK 23/22 Q1011 SBFI 220600Z 10003KT 0900 R14/1200 R32/1200 FG SCT003 05/05 Q1018 SBFL 220600Z 00000KT 9999 SCT025 13/12 Q1024 SBFZ 220600Z 10010KT 9999 SCT030 BKN070 26/23 Q1012 SBGL 220600Z 24009KT 9999 SCT012 BKN030 23/20 Q1020 SBGO 220600Z 00000KT CAVOK 15/11 Q1019 SBGR 220600Z 12004KT 9999 BKN009 OVC011 16/15 Q1023 SBHT 220100Z 00000KT CAVOK 22/22 Q1012 SBIL 220600Z 27003KT 9999 FEW040 18/18 Q1018 SBIP 220300Z 00000KT CAVOK 16/15 Q1020 SBJP 220600Z 18008KT 9999 FEW019 BKN070 22/19 Q1015 SBKG 220300Z 13007KT CAVOK 20/17 Q1018 SBKP 220600Z 12013KT CAVOK 16/13 Q1020 SBLO 220600Z 00000KT CAVOK 15/10 Q1019 SBLS 220100Z 14008KT CAVOK 19/13 Q1022 SBMA 220600Z 21002KT CAVOK 21/19 Q1011 SBME 220400Z 22003KT CAVOK 20/18 Q1019 SBMG 220300Z 00000KT CAVOK 13/05 Q1018 SBMK 220400Z 23002KT CAVOK 17/10 Q1020 SBMN 220600Z 10002KT CAVOK 25/24 Q1011 SBMO 220600Z 32004KT 9999 FEW023 19/18 Q1016 SBMQ 220600Z 01003KT 9999 BKN015 26/26 Q1011 SBMT 220200Z 13008KT 9999 BKN011 BKN013 16/13 Q1024 SBNF 220300Z 11004KT 9999 SCT030 16/11 Q1024 SBNT 220600Z 18011KT 9999 BKN030 24/19 Q1013 SBPA 220600Z 08002KT CAVOK 06/06 Q1022 SBPJ 220600Z 11002KT CAVOK 19/14 Q1013 SBPL 220600Z 16008KT CAVOK 21/13 Q1017 SBPS 220600Z 25005KT 9999 FEW030 19/17 Q1019 SBPV 220600Z 22006KT CAVOK 22/16 Q1013 SBRB 220600Z 15004KT 110V180 CAVOK 15/11 Q1016 SBRF 220600Z 21007KT 9999 FEW025 22/19 Q1015 SBRJ 220600Z 18014KT 6000 FEW007 BKN012 BKN070 23/21 Q1020 SBRP 220600Z 09004KT CAVOK 15/11 Q1018 SBSC 220600Z 21008KT 9999 BKN010 OVC040 22/20 Q1020 SBSG 220600Z 22005KT 190V250 9999 FEW020 BKN033 23/20 Q1013 SBSJ 220600Z 00000KT 9999 BKN017 17/15 Q1023 SBSL 220600Z 07004KT CAVOK 25/24 Q1011 SBSM 220300Z 03003KT 350V060 CAVOK 05/04 Q1022 SBSN 220600Z 15003KT CAVOK 23/23 Q1011 SBSP 220429Z AUTO 16006KT 5000 BR SCT003 BKN005 OVC016 14/13 Q1024 SBSR 220600Z 23005KT CAVOK 18/11 Q1018 SBSV 220600Z 12006KT 9999 SCT023 25/19 Q1017 SBTE 220600Z 35003KT CAVOK 25/20 Q1011 SBUL 220300Z 13006KT CAVOK 20/07 Q1021 SBUR 220600Z 06004KT CAVOK 20/09 Q1019 SBVT 220600Z 32002KT CAVOK 19/18 Q1019 SBYS 220200Z 17004KT 120V190 CAVOK 17/12 Q1021 SCAP 220600Z AUTO VRB01KT //// // NSC 00/M00 Q1018 SCAR 220600Z 29004KT 9000 SKC 15/12 Q1016 SCAT 220600Z AUTO 20006KT 9999 // ///013 12/08 Q1019 SCBA 220600Z AUTO 30012KT 240V330 CAVOK M01/M04 Q1007 SCCF 220600Z 10012KT 9999 VCTS NSC 07/M00 Q1027 SCCH 220600Z AUTO 07003KT 9999 OVC004 04/04 Q1023 SCCI 220600Z 25014KT 9999 FEW020 SCT096 00/M03 Q1003 NOSIG SCCY 220600Z AUTO 05004KT 330V080 CAVOK M01/M03 Q1009 SCDA 220600Z 19007KT 9999 OVC022 15/13 Q1017 SCEL 220600Z VRB02KT 9999 FEW180 BKN220 04/00 Q1022 NOSIG SCFA 220600Z 22007KT 9999 OVC013 13/10 Q1017 NOSIG SCFT 220500Z AUTO 00000KT 3300 -SN ///002 M00/M01 Q1012 SCIC 220600Z AUTO 29003KT 270V330 1700 -DZ BR BKN042 05/05 Q1023 SCIE 220600Z 17003KT 9999 FEW040 03/03 Q1024 SCIP 220600Z 09008KT 9999 SCT020 18/16 Q1027 NOSIG SCON 220600Z AUTO 21005KT 180V240 CAVOK 03/01 Q1015 SCPQ 220600Z AUTO 26009KT 210V290 //// R35/P2000N -SHSN OVC017 01/00 Q1016 SCQP 220600Z 32009KT 270V010 8000 -SHRA BKN027 04/03 Q1020 SCRM 220600Z 28018KT 9999 BKN015 M01/M02 Q0992 SCSE 220600Z 14002KT 9999 BKN016 09/07 Q1019 SCSN 220600Z AUTO 00000KT //// R/////// // ///////// 08/08 Q1023 SCTE 220600Z 02004KT 9999 -SHRA BKN035 01/01 Q1017 NOSIG SCTN 220600Z AUTO 26007KT 230V290 9999 SCT016 BKN039 04/02 Q1015 SCVD 220600Z AUTO 36007KT 320V020 9999 RA OVC033 05/04 Q1019 SCVM 220600Z 12005KT CAVOK 07/05 Q1022 SECU 220600Z AUTO 05002KT ////NDV BKN036 BKN043 BKN049 12/10 Q1026 SEGU 220600Z 22014KT 9999 OVC026 22/18 Q1012 NOSIG RMK A2989 SELT 220600Z 16006KT 9999 BKN030 11/09 Q1029 SEMT 220600Z 21010KT 9999 OVC020 22/20 Q1012 SEQM 220600Z 11001KT 9999 FEW007 BKN020 12/12 Q1025 NOSIG RMK A3029 SERO 220200Z 26003KT 9999 OVC020 22/20 Q1012 SESA 220300Z 23010KT 9999 BKN012 21/19 Q1013 SGAS 220600Z 00000KT CAVOK 07/05 Q1016 SGES 220600Z 00000KT 8000 NSC 04/04 Q1018 SKBG 220500Z 00000KT 9999 SCT015 SCT080 22/21 A2998 SKBO 220600Z 13007KT 9999 BKN020 13/06 A3035 SKBQ 220600Z 01010KT CAVOK 27/24 A2979 SKCC 220500Z 18023G33KT 9999 SCT017 BKN070 27/17 A2995 RMK LTNG/S SKCG 220600Z 03003KT CAVOK 26/24 A2977 SKCL 220600Z 00000KT 9999 SCT020 BKN120 21/20 A2996 SKLT 220600Z 21004KT 180V290 9999 BKN008 OVC070 22/22 A2993 RERA SKPE 220600Z 10006KT 9999 FEW014 SCT070 19/18 A3003 SKRG 220600Z VRB02KT 8000 VCSH SCT010CB BKN070 15/14 A3029 REDZ RMK CB SE/S SKSP 220600Z 04012KT 9999 FEW016 BKN200 28/25 A2990 SLCB 220600Z 10004KT 9999 FEW025 BKN080 OVC200 11/07 Q1027 SLLP 220617Z VRB02KT 1000 SN SCT002 SCT008 BKN070 00/00 Q1039 SLTJ 220200Z 00000KT 9999 SCT070 BKN200 09/04 Q1019 SLVR 220600Z 30003KT 9999 NSC 14/06 Q1017 SMJP 220600Z VRB01KT CAVOK 24/24 Q1011 NOSIG SOCA 220630Z AUTO 00000KT 9999 NCD 23/23 Q1011 TEMPO 1500 MIFG BKN003 SPCL 220600Z 13006KT 9999 BKN015 BKN070 22/22 Q1016 RMK PP000 SPHI 220600Z 19011KT 9999 FEW010 18/16 Q1014 RMK PP000 SPJC 220600Z 16007KT 9999 FEW010 OVC015 17/15 Q1015 NOSIG RMK PP000 SPJL 220200Z 07003KT 5000 BKN010 BKN060 02/01 Q1037 RMK PP000 SPME 220300Z 29003KT 9999 SCT013 BKN020 21/19 Q1013 RMK BIRD HAZARD RWY 32/14 PP000 SPQT 220600Z 00000KT 6000 -RA BKN010 BKN070 23/22 Q1014 NOSIG RMK PP010 SPQU 220600Z 04007KT 9999 SCT100 11/03 Q1027 RMK PP000 SPRU 220600Z 15008KT 6000 OVC015 17/16 Q1014 RMK BR PP000 SPSO 220600Z 04001KT 3000 BR FU NSC 15/12 Q1015 RMK BKN160 PP000 SPST 220300Z 00000KT 9999 SCT015 OV070 23/22 Q1016 RMK BIRD HAZARD RWY 17/35 PP010 SPTN 220600Z 03006KT 0700 FG OVC002 14/14 Q1017 RMK PP000 SPZO 220600Z 09002KT 9999 FEW020 SCT030 BKN080 05/02 Q1035 RMK BR CLNG BLW 1200M BIRD HAZARD RWY 28 PP000 SULS 220600Z 01005KT CAVOK 05/02 Q1019 SUMU 220600Z 02006KT CAVOK 04/02 Q1018 NOSIG SVAC 220100Z /////KT 9999 FEW017 25/23 Q1014 SVBS 220200Z /////KT CAVOK 25/22 Q1015 SVGD 220300Z /////KT 9999 BKN017 22/22 Q//// SVGU 220300Z /////KT CAVOK 24/23 Q1013 SVMG 220600Z /////KT 9999 SCT010 25/24 Q1014 SVMI 220600Z 00000KT 9999 FEW016 26/22 Q1007 SVMT 220300Z /////KT 9999 BKN010 25/24 Q1013 SVVA 220600Z /////KT 9999 BKN016 26/23 Q1015 SYCJ 220500Z VRB02KT CAVOK 25/24 Q1012 NOSIG TAPA 220600Z 10010KT 9999 SCT018 27/22 Q1015 NOSIG TBPB 220600Z 10016KT 9999 FEW022 26/20 Q1013 NOSIG TFFF 220630Z AUTO VRB02KT 9999 FEW029 OVC056 26/22 Q1014 TEMPO 4000 SHRA SCT018TCU TFFR 220630Z AUTO 12003KT CAVOK 24/22 Q1015 TEMPO 4000 SHRA SCT018TCU TGPY 220400Z 09008KT 9999 FEW017 27/24 Q1014 ADJ SHRA-E TIST 220553Z AUTO 10008KT 10SM CLR 27/23 A2999 TISX 220553Z AUTO 06006KT 10SM CLR 26/24 A3000 TJBQ 220050Z 09012KT 10SM BKN018 BKN027 OVC070 27/23 A3004 TJSJ 220556Z 11005KT 10SM FEW024 27/24 A3000 TKPK 220200Z 06008KT 9999 FEW021 27/23 Q1016 TLPL 220600Z 10015KT 9999 BKN023 27/23 Q1014 NOSIG TNCA 220600Z 09013KT 9999 FEW017 27/24 Q1012 A2990 NOSIG TNCB 220555Z AUTO 08010KT //// // FEW016/// 27/24 Q1013 RE// TNCC 220600Z AUTO 10009KT 9999 NCD 27/23 Q1013 NOSIG TNCE 220555Z AUTO 08010KT 050V120 //// // ///////// 27/22 Q1015 RE// TNCM 220600Z 09009KT 9999 -SHRA FEW017 27/22 Q1016 RMK A3000 TTCP 220600Z 00000KT 9999 FEW016 26/23 Q1013 NOSIG TTPP 220600Z 12005KT 9999 FEW016 25/23 Q1012 NOSIG TVSA 220200Z 08010KT 050V120 9999 SCT018 27/22 Q1015 TXKF 220555Z 13011KT 9999 VCSH FEW022 SCT090 SCT300 26/22 Q1022 UAAA 220630Z 01005MPS 9999 FEW100 SCT200 32/09 Q1003 R05R/CLRD65 NOSIG UAAH 220630Z 22006MPS CAVOK 32/08 Q1002 NOSIG RMK QFE715/0954 UAAT 220630Z 04004MPS 340V130 9999 FEW200 34/04 Q1002 R02/CLRD65 NOSIG RMK QFE701/0935 UACC 220630Z 05009MPS 1300 SHRA BKN008 OVC036CB 13/12 Q1007 R04/250350 BECMG 04011G16MPS 1500 SHRA RMK QFE724/0966 UACK 220630Z 04010MPS 9999 BKN037 15/07 Q1012 R02/010070 NOSIG RMK QFE735/0980 UACP 220630Z 03006MPS 350V060 CAVOK 16/04 Q1015 R05/0/0060 NOSIG RMK QFE749/0999 UADD 220630Z 28003MPS 9999 NSC 37/04 Q1002 R31/0///65 NOSIG RMK QFE694/0926 UAII 220630Z 32002MPS 210V020 CAVOK 39/05 Q1001 R28/0///70 NOSIG RMK QFE714/0952 UAKD 220630Z 25008MPS CAVOK 36/05 Q0998 R22/0///65 NOSIG RMK QFE716/0954 UAKK 220630Z 08004MPS 9999 SCT021 22/16 Q1003 R23/2///60 NOSIG RMK QFE706/0942 UAOO 220630Z 10004MPS 070V130 9999 BKN040CB 36/04 Q0998 R05/CLRD70 NOSIG RMK QFE737/0983 UARR 220630Z 07009MPS 9999 BKN033CB OVC083 19/12 Q1008 R04/210265 NOSIG RMK QFE752/1003 UASK 220630Z 14005MPS 100V170 9999 SCT050 BKN110 29/14 Q1002 R12/090060 NOSIG RMK QFE727/0969 UASP 220630Z 01006MPS 340V040 9999 BKN014CB 16/13 Q1005 R03/19//65 NOSIG RMK QFE744/0992 UASS 220630Z 28008MPS 250V310 9999 SCT046 30/14 Q1001 NOSIG RMK QFE733/0977 UATE 220630Z 30006MPS 260V340 CAVOK 30/21 Q1007 R30/0///70 NOSIG RMK QFE753/1005 UATG 220630Z 31007MPS CAVOK 32/14 Q1004 R32/CLRD70 NOSIG RMK QFE755/1007 UATT 220630Z 07010MPS CAVOK 22/08 Q1009 R13/70D NOSIG RMK QFE737/0983 UAUU 220630Z 04013MPS CAVOK 18/03 Q1014 R33/CLRD70 TEMPO 05016MPS RMK QFE745/0993 UBBB 220630Z 35018KT CAVOK 31/20 Q1007 R88/D NOSIG UBBG 220630Z 21008KT 9999 SCT030CB BKN067 23/20 Q1009 R30/CLRD// NOSIG UBBL 220600Z VRB02KT 9999 SCT100 32/18 Q1008 R33/CLRD// NOSIG RMK MT OP UBBN 220630Z 20004KT 9999 FEW050 30/13 Q1006 R14R/CLRD// NOSIG RMK MT OP QFE680 UBBQ 220600Z 28006KT 230V330 9999 SCT030CB OVC040 27/19 Q1009 R16/CLRD// NOSIG RMK MT OBSC UBBY 220600Z 12006KT 9999 SCT037CB OVC080 25/19 Q1013 R33/////// NOSIG RMK MT OP UBEE 220600Z 10007KT 9999 SCT020 BKN066 28/21 Q1008 R30/CLRD// NOSIG UCFL 220600Z 14003MPS 9999 FEW033 24/13 Q1012 R07/CLRD70 UCFM 220630Z 26004MPS 200V310 CAVOK 35/08 Q1002 R26/CLRD70 NOSIG UCFO 220630Z VRB01MPS CAVOK 35/12 Q1004 R12/CLRD70 NOSIG UDSG 220630Z 05006KT 9999 FEW049 25/11 Q1013 R02/CLRD70 NOSIG UDYZ 220630Z VRB02KT 9999 NSC 29/12 Q1008 R09/000070 NOSIG UEEE 220630Z 00000MPS 9999 FEW050CB 27/14 Q0995 R23L/09//60 NOSIG RMK QFE737 UGKO 220630Z VRB02KT 9999 SCT042 27/20 Q1009 NOSIG UGSB 220630Z 26004KT 220V290 9999 FEW026 SCT120 26/22 Q1010 NOSIG UGTB 220630Z 31010KT 9999 BKN041CB OVC053 24/17 Q1013 NOSIG UHBB 220630Z 21004MPS 9999 FEW033 33/21 Q0998 R18/090060 NOSIG RMK QFE733/0978 UHHH 220630Z 06003MPS 9999 SCT030CB 20/14 Q1007 R05R/090060 NOSIG RMK QFE749/0999 UHMA 220600Z 13004MPS 9999 FEW003 BKN017 OVC029 11/10 Q1010 RMK END R01/12004MPS MT OBSC QFE753/1005 UHMM 220630Z 21004MPS 9999 NSC 24/10 Q1008 R10/70D NOSIG RMK QFE741 UHPP 220630Z 19004MPS 160V220 9999 FEW013 BKN039 17/15 Q1003 R16R/CLRD70 NOSIG RMK MT OBSC QFE749/0999 UHSS 220630Z 01004MPS 9999 SCT045 21/14 Q1005 R01/70D NOSIG RMK QFE753/1004 UHWW 220630Z 23006MPS 9999 NSC 32/21 Q1005 R25L/0///70 NOSIG RMK QFE752 UIAA 220630Z 26006MPS 9999 SCT043CB 21/12 Q1005 R29/150060 NOSIG RMK QFE695/0927 UIBB 220630Z VRB01MPS 6000 OVC016 11/07 Q1013 R30/CLRD60 NOSIG RMK QFE716/0955 UIII 220630Z 11003MPS 050V150 3600 FU BKN025 22/12 Q1009 R12/CLRD60 NOSIG RMK QFE715/0953 UIUU 220630Z 07004MPS 040V120 9999 FEW046CB 22/09 Q1009 R26/CLRD60 NOSIG RMK QFE713/0950 UKBB 220630Z 26003MPS 9999 FEW007 OVC030 20/19 Q1006 R88/290050 TEMPO VRB10G17MPS 1000 TSRA SQ BKN006 UKDD 220630Z VRB03MPS 9000 SCT019 BKN026TCU 23/18 Q1006 R26/090070 NOSIG UKDE 220630Z 28003MPS 190V340 9999 SCT024 25/19 Q1006 R20L/CLRD70 NOSIG UKDR 220630Z 30004MPS 270V330 9999 OVC014 20/16 Q1007 R36/09//70 NOSIG UKHH 220630Z 27004MPS 250V310 9999 SCT021 23/19 Q1005 R25/0///72 NOSIG UKKK 220630Z 30005MPS 9999 SCT010 BKN046 21/19 Q1007 R26/290156 NOSIG UKKM 220630Z AUTO 30004MPS 9999 // FEW008/// 21/20 Q1007 UKLI 220630Z 00000MPS 9999 SCT043 23/17 Q1011 R28/090070 NOSIG UKLL 220630Z 00000MPS CAVOK 22/15 Q1011 R31/D NOSIG UKLN 220630Z 00000MPS CAVOK 22/18 Q1011 R33/09//70 NOSIG UKLR 220630Z 30002MPS 230V340 CAVOK 23/16 Q1010 NOSIG UKLU 220630Z 13003MPS 080V240 9999 NSC 22/16 Q1010 R10/090070 NOSIG UKOH 220630Z 34004MPS 310V020 CAVOK 25/17 Q1008 R21/CLRD// NOSIG UKON 220600Z 35003MPS 310V020 CAVOK 23/18 Q1008 NOSIG UKOO 220630Z 32003MPS 290V010 CAVOK 25/17 Q1009 R34/090060 NOSIG UKWW 220630Z 31003MPS CAVOK 22/08 Q1009 R31/0///65 NOSIG ULAA 220630Z 19006MPS 140V220 CAVOK 24/15 Q1015 R08/CLRD70 NOSIG RMK QFE760/1014 ULLI 220630Z VRB01MPS 4400 BR OVC006 22/20 Q1009 R10R/090060 NOSIG RMK OBST OBSC ULMM 220630Z 15004MPS CAVOK 22/16 Q1007 R13/150065 NOSIG RMK QFE749 ULOO 220630Z 33003MPS 300V020 P5000 SCT016 24/19 Q1009 R19/090070 NOSIG RMK QFE752 ULPB 220630Z 20002MPS 9999 SCT014 BKN038 22/19 Q1010 R19/09//60 NOSIG RMK QFE754/1005 ULWC 220630Z 10003MPS 9999 SCT020 20/17 Q1014 R21/010060 NOSIG RMK QFE750/1000 UMBB 220600Z 00000MPS 8000 NSC 21/16 Q1010 NOSIG UMGG 220630Z 31002MPS 8000 OVC004 20/19 Q1006 R28/190055 NOSIG RMK QBB120 UMII 220600Z 04003MPS 7000 BKN006 20/19 Q1007 R05/D TEMPO 2000 BR BKN005 RMK QBB180 UMKK 220630Z VRB01MPS CAVOK 22/19 Q1011 R24/60D NOSIG RMK QFE757/1009 UMMG 220630Z 34004MPS CAVOK 22/16 Q1010 R17/CLRD// NOSIG UMMS 220630Z 36002MPS 9000 -SHRA SCT065CB BKN095 19/17 Q1008 R31/290055 NOSIG UMOO 220600Z 02003MPS 6000 BKN005 OVC/// 20/20 Q1006 NOSIG RMK QBB150 UNAA 220630Z 09002MPS 070V140 CAVOK 26/13 Q1004 R02/090065 NOSIG RMK QFE731 UNBB 220630Z 03002MPS 9999 4700NE BR OVC004 17/16 Q1003 R06/290150 NOSIG RMK QBB140 QFE730 UNEE 220630Z 33005MPS 6000 SCT011 SCT033CB 16/15 Q1005 R23/290055 NOSIG RMK QFE731 UNKL 220630Z 12005MPS 8000 SCT036 23/13 Q1007 R11/CLRD65 NOSIG RMK QFE730 UNNT 220630Z 02005MPS 5000 -RA BR BKN006 OVC040 15/14 Q1005 R07/290160 R34/290160 NOSIG RMK QBB190 QFE744/0992 UNOO 220630Z 02007MPS 9999 BKN033 17/04 Q1011 R07/CLRD60 NOSIG RMK QFE750 UNTT 220630Z 05003MPS 5000 -SHRA FU FEW046CB 15/13 Q1007 R21/190055 NOSIG RMK QFE740 URKA 220630Z 25006MPS 9999 SCT019 27/22 Q1008 R22/010070 NOSIG RMK QFE751/1002 URKK 220630Z 24005MPS CAVOK 25/21 Q1008 R23L/CLRD70 TEMPO 2000 TSRA SCT008 BKN020CB RMK QFE753 URMG 220630Z 34002MPS 9999 FEW038 30/20 Q1008 R26/000070 NOSIG RMK QFE742/0989 URML 220630Z 07004MPS 040V100 9999 NSC 31/19 Q1008 R32/01//70 NOSIG RMK QFE755/1007 URMM 220630Z VRB01MPS 9999 FEW049 26/16 Q1010 R30/090070 NOSIG RMK QFE729/0972 URMN 220630Z 05001MPS 9999 SCT/// 26/16 Q1010 R24/010070 NOSIG RMK QFE721 URMO 220630Z 29002MPS 9999 NSC 25/18 Q1010 R09/010070 NOSIG RMK QFE714/0952 URMT 220630Z 27003MPS 9999 FEW040 22/17 Q1011 R25/010070 NOSIG RMK QFE719 URRP 220630Z 23003MPS 9999 SCT/// SCT041CB 28/23 Q1006 R23/CLRD70 TEMPO 20006G12MPS 2000 TSRA BR SCT003 BKN020CB RMK QFE746/0995 URSS 220630Z 25001MPS 9999 FEW030 27/20 Q1009 R02/090070 R06/090070 NOSIG RMK R06/19002G05MPS MT OBSC QFE756 URWA 220630Z 29003MPS 250V350 CAVOK 31/16 Q1006 R27/010070 NOSIG RMK QFE756/1008 URWI 220630Z 29004MPS 270V330 CAVOK 28/17 Q1008 R27/010065 NOSIG URWW 220630Z 26003MPS 210V310 CAVOK 28/18 Q1006 R24/010070 NOSIG USCC 220630Z 06006MPS CAVOK 18/05 Q1020 R09/000060 NOSIG RMK QFE744 USCM 220630Z 04009MPS 9999 SCT040 17/05 Q1017 R36/090065 TEMPO 07015MPS RMK QFE724 USHH 220630Z 03003MPS 340V070 CAVOK 18/05 Q1023 R06/010060 NOSIG RMK QFE764 USNN 220630Z 02005MPS CAVOK 19/06 Q1020 R03/0///65 NOSIG RMK QFE761 USPP 220630Z 11006MPS CAVOK 20/09 Q1022 R03/090060 NOSIG RMK QFE756 USRR 220630Z 04005MPS 350V080 CAVOK 18/05 Q1022 R07/CLRD60 NOSIG RMK QFE761 USSS 220630Z 04006MPS 360V070 CAVOK 18/06 Q1022 R08R/010060 R08L/010060 NOSIG RMK QFE746/0995 USTR 220630Z 04006MPS 9999 SCT046 18/04 Q1021 R03/CLRD65 NOSIG RMK QFE755/1007 UTAA 220600Z 29006KT 9999 NSC 34/22 Q1004 R88/70D NOSIG UTAK 220600Z 33016KT CAVOK 29/18 Q1005 NOSIG UTAM 220600Z 32012KT CAVOK 40/07 Q0999 NOSIG UTAT 220600Z 29016KT CAVOK 37/21 Q1000 NOSIG UTAV 220600Z 34010KT CAVOK 40/07 Q0999 NOSIG UTDD 220630Z VRB02MPS 9999 NSC 40/08 Q1001 R09/D NOSIG RMK QFE683/0911 UTDK 220630Z 18004MPS 9999 NSC 40/08 Q1000 R01/09//70 RMK QFE694/0925 UTDL 220630Z 07004MPS 9999 NSC 35/10 Q1001 R08/CLRD70 NOSIG RMK QFE712/0950 UTDT 220630Z 27002MPS 230V300 9999 NSC 38/09 Q0998 35CLRD70 RMK QFE710/0946 UTFF 220600Z 05004KT 010V100 9999 NSC 35/09 Q1002 R18/CLRD70 UTFN 220630Z 10004KT 360V160 9999 NSC 36/08 Q1001 R28/CLRD70 NOSIG UTNN 220630Z 26008KT 8000 NSC 34/16 Q1000 R33/CLRD60 NOSIG UTNU 220630Z 28014KT CAVOK 38/21 Q0999 R31/CLRD70 NOSIG UTSA 220630Z 01004KT 9999 NSC 40/05 Q1000 R07/CLRD70 NOSIG UTSB 220600Z 34008KT CAVOK 40/10 Q0999 R01/CLRD70 NOSIG UTSK 220630Z 15008KT CAVOK 42/04 Q0997 R34/CLRD70 UTSS 220630Z 04008KT 9999 NSC 38/06 Q1001 R09/70D NOSIG UTST 220630Z 28008KT CAVOK 38/05 Q0997 R88/CLRD70 NOSIG UTTT 220630Z 23004KT 160V290 CAVOK 37/09 Q1001 R08L/CLRD70 NOSIG UUBC 220630Z 07004MPS 040V100 6000 OVC009 21/19 Q1008 R31/190055 TEMPO 3000 BR BKN004 RMK QFE739/0985 UUBP 220630Z 06003MPS 4000 BR BKN006 OVC017CB 20/20 Q1005 R34/190060 NOSIG RMK QFE736/0982 UUBW 220630Z 05005MPS 9999 OVC011 21/18 Q1009 R30/010060 NOSIG UUDD 220630Z 08004MPS 040V110 8000 OVC009 20/17 Q1010 R14R/290095 R14L/190095 NOSIG UUDL 220630Z 09005MPS 9999 SCT020 21/17 Q1013 R23/010060 NOSIG RMK QFE752 UUEE 220630Z 07006MPS 9000 OVC009 20/19 Q1010 R06C/CLRD62 R06R/CLRD62 NOSIG UUMO 220630Z 10005MPS 9999 -RA OVC008 20/19 Q1009 R08/290050 NOSIG RMK QFE742/0990 UUOB 220630Z 24003MPS 210V280 CAVOK 24/18 Q1005 R11/090060 NOSIG UUOK 220630Z 00000MPS 9999 BKN007 21/21 Q1005 R12/CLRD65 NOSIG RMK QFE736/0981 UUOO 220630Z 03003MPS 9999 BKN013 23/20 Q1005 R12/090070 NOSIG RMK QFE740 UUWW 220630Z 08005MPS 9999 BKN011 BKN033CB 20/18 Q1009 R06/190060 NOSIG UUYY 220630Z 13003MPS 090V170 CAVOK 23/11 Q1023 R36/61D NOSIG RMK QFE758/1010 UWGG 220630Z 08006MPS 9999 SCT033 22/16 Q1013 R36R/090070 NOSIG UWKD 220630Z 10006G11MPS 9999 SCT036 22/11 Q1015 R11/70D NOSIG RMK QFE751/1001 UWKE 220630Z 09006G11MPS 9999 FEW026 18/11 Q1016 R03/090070 NOSIG RMK QFE745/0994 UWKS 220630Z 09007MPS 9999 FEW020 21/14 Q1015 R06/010060 NOSIG RMK QFE746 UWLW 220600Z 10006MPS 8000 BKN029CB 21/15 Q1012 R20/CLRD60 NOSIG RMK QFE753 UWOO 220630Z 10009G14MPS CAVOK 23/07 Q1011 R08/65D NOSIG RMK QFE748/0997 UWOR 220600Z 06011G17MPS CAVOK 20/04 Q1010 R07/CLRD65 NOSIG RMK QFE733/0978 UWSS 220630Z 07003MPS 5000 BR BKN008 OVC020CB 20/20 Q1006 R12/290255 NOSIG RMK QFE743 UWUU 220630Z 08005MPS 040V130 9999 SCT040 20/10 Q1016 R14R/0///60 NOSIG RMK QFE752/1003 UWWW 220630Z 11008MPS 9999 SCT026 20/13 Q1012 R05/290150 NOSIG RMK QFE746/0994 VAAH 220630Z 24011KT 4000 HZ FEW015 SCT020 BKN080 31/26 Q1002 NOSIG VAAU 220600Z 27004KT 4000 -DZ FEW012 SCT018 BKN080 25/22 Q1007 NOSIG VABB 220630Z 24008G18KT 2500 HZ FEW012 SCT018 FEW025TCU BKN100 29/25 Q1005 TEMPO 1500 SHRA VABO 220600Z 27008KT 2000 HZ SCT012 SCT020 BKN080 28/26 Q1002 NOSIG VABP 220600Z 27010KT 5000 HZ SCT010 SCT020 BKN100 26/24 Q1003 NOSIG VAID 220600Z 27011KT 3000 HZ SCT010 SCT020 BKN100 26/23 Q1005 NOSIG VAJB 220630Z 30006G16KT 2500 BR SCT008 BKN020 OVC080 25/24 Q1002 VAJJ 220630Z 28015G29KT 3000 HZ FEW010 SCT018 FEW025TCU BKN090 29/25 Q1005 TEMPO 1500 SHRA VANP 220630Z 22004KT 6000 FEW010 SCT020 BKN100 28/25 Q1002 NOSIG VASD 220300Z 24005KT 5000 HZ FEW020 SCT030 OVC060 24/24 Q1005 NOSIG VAUD 220600Z 27005KT 6000 FEW025 BKN080 30/24 Q1003 NOSIG VCBI 220610Z 26008KT 200V340 9999 FEW018 29/25 Q1010 NOSIG VCRI 220610Z 26024KT 9999 FEW018 33/22 Q1008 NOSIG VDPP 220630Z 25007KT 230V290 9000 -RA SCT015 FEW017CB BKN040 28/25 Q1006 CB VDSR 220630Z 22009KT 9999 SCT015 SCT040 30/25 Q1005 VDSV 220630Z 27012KT 9999 SCT015 BKN040 30/26 Q1008 VEAT 220630Z 16005KT 4000 BR SCT018 FEW030CB BKN100 29/26 Q1000 NOSIG VEBN 220630Z 07011KT 4000 HZ SCT020 SCT025 34/25 Q0998 BECMG 5000 HZ VEBS 220630Z 23010KT 4000 -RA SCT010 BKN015 OVC080 26/26 Q0997 NOSIG VECC 220630Z 16015KT 2200 -RA SCT015 OVC090 28/27 Q0995 NOSIG VEDG 220330Z 07013KT 1600 DZ SCT012 OVC080 27/27 Q0995 NOSIG VEGT 220630Z 03008KT 5000 BR SCT018 FEW025CB BKN100 30/28 Q1002 NOSIG VEGY 220600Z 05010KT 3000 HZ FEW010 SCT018 BKN100 29/26 Q0997 VEIM 220600Z 00000KT 5000 BR SCT018 SCT025 BKN100 26/23 Q1006 NOSIG VEJS 220600Z 05004KT 2000 -RA SCT012 OVC090 27/26 Q0993 VEKO 220600Z 18004KT 6000 SCT020 BKN100 31/27 Q0999 VELP 220630Z 17003KT 5000 HZ FEW015 SCT025 BKN100 31/24 Q1004 NOSIG VELR 220600Z 32003KT 5000 -RA FEW010 BKN018 FEW025CB OVC090 26/26 Q1003 VEMN 220630Z 22002KT 6000 SCT020 FEW025CB BKN100 33/27 Q1002 NOSIG VEMR 220600Z 08003KT 6000 SCT018 FEW025CB BKN100 32/26 Q1002(.) CB TO SE/E VEPT 220630Z 09012G22KT 5000 HZ SCT018 SCT025 35/25 Q0996 NOSIG VERC 220630Z 08005KT 2500 -RA SCT008 SCT015 OVC080 25/25 Q0998 NOSIG VERP 220500Z 25011KT 1500 RA SCT008 BKN018 OVC080 25/25 Q1002 NOSIG VGEG 220500Z 16014KT 4000 SCT016 FEW030CB BKN100 29/26 Q1002 NOSIG VGHS 220630Z 12012KT 3500 HZ BKN010 FEW025CB BKN100 30/27 Q0999 TEMPO TSRA VHHH 220630Z 22017KT 6000 -SHRA FEW016 SCT025 27/25 Q1003 RERA TEMPO 4000 SHRA FEW010CB SCT020 VIGR 220600Z 00000KT 4000 HZ BKN018 BKN080 29/28 Q0999 VIJP 220630Z 30007KT 2500 -RA BKN020 FEW030CB OVC080 25/25 Q1001 TEMPO 1500 TSRA VILK 220630Z 120006KT 3000 HZ SCT020 BKN100 35/26 Q0999 NOSIG VLLB 220600Z 14002KT 9999 VCRA SCT013 SCT060 BKN080 31/25 Q1001 VCRA NW NOSIG VLLN 220600Z 09004KT 9999 SCT020 BKN100 32/24 Q1006 NOSIG VLPS 220600Z 22008KT 5000 DZ BKN020 BKN050 30/25 Q1005 NOSIG VLSK 220600Z 22006KT 6000 DZ SCT016 BKN093 27/25 Q1004 NOSIG VLVT 220630Z 27010KT 9999 SCT016 FEW040 33/25 Q1002 NOSIG VMMC 220630Z 23009KT 9999 -SHRA FEW020 SCT040 25/24 Q1002 RERA TEMPO 4000 SHRA VNKT 220620Z VRB02KT 8000 FEW010 SCT030 BKN100 28/21 Q1009 NOSIG VOBL 220630Z 28016KT 8000 SCT010 SCT012 27/20 Q1012 NOSIG VOBZ 220630Z 27015G25KT 6000 SCT020 OVC100 32/23 Q1003 NOSIG VOCI 220630Z 28008KT 4000 HZ FEW008 SCT012 FEW025TCU(S NW) BKN080 29/25 Q1010 TEMPO 2000 RA VOCL 220630Z 27010KT 4000 BR FEW004 SCT012 BKN080 28/24 Q1010 BECMG 5000 BR VOHB 220600Z 30010KT 6000 -DZ SCT010 SCT015 BKN080 23/21 Q1013 VOHY 220630Z 25010KT 5000 HZ SCT010 SCT015 BKN080 28/24 Q1008 NOSIG VOML 220630Z 28010KT 6000 FEW012 SCT020 28/24 Q1010 NOSIG VOMM 220630Z 25010G22KT 7000 SCT020 36/22 Q1005 NOSIG VORY 220630Z 29015G25KT 6000 FEW020 BKN090 30/25 Q1003 NOSIG VOTP 220630Z 29014G24KT 7000 FEW020 SCT100 35/21 Q1005 NOSIG VOTR 220200Z 28008G18KT 6000 FEW016 29/20 Q1008 NOSIG VOTV 220630Z 35012G22KT 6000 SCT015 31/25 Q1009 NOSIG VOVZ 220600Z 24010KT 6000 FEW016 OVC080 30/25 Q1000 NOSIG VQPR 220630Z 11005KT 9999 SCT030 BKN090 24/13 Q1015 VRMM 220400Z 28016KT 8000 -SHRA SCT017TCU OVC100 27/25 Q1012 TEMPO 4000 SHRA VTBD 220630Z 24012KT 9999 FEW020 SCT035 32/25 Q1006 NOSIG VTBO 220600Z 21013KT 7000 FEW021 30/26 Q1008 VTBS 220600Z 21010KT 170V240 9999 FEW020 SCT040 33/23 Q1007 NOSIG VTBU 220630Z 23008KT 7000 FEW020 SCT100 31/22 Q1007 NOSIG VTCC 220630Z VRB02KT 9999 FEW025CB BKN035 29/24 Q1008 NOSIG VTCH 220600Z 30003KT 4000 BR FEW012 OVC025 26/23 Q1007 NOSIG VTCL 220600Z 34003KT 300V030 9999 SCT025 BKN100 30/24 Q1007 NOSIG VTCN 220600Z 13004KT 090V180 9999 SCT025 BKN100 30/24 Q1004 NOSIG VTCP 220600Z 23004KT 160V300 9999 SCT025 SCT100 32/25 Q1006 NOSIG VTCT 220600Z 21010KT 9999 BKN030 30/25 Q1006 NOSIG VTPB 220600Z 18003KT 4000 RA BKN030 28/24 Q1006 TEMPO TL0645 3000 RA VTPH 220600Z VRB08KT 9999 FEW035 BKN100 33/23 Q1006 NOSIG VTPM 220600Z 25010KT -RA 9999 BKN025 OVC080 27/23 Q1008 NOSIG VTPO 220600Z 18003KT 9999 SCT025 30/24 Q1005 NOSIG VTPP 220600Z VRB02KT 6000 -RA FEW010 SCT025 BKN100 27/25 Q1006 RERA NOSIG VTSB 220600Z 23015KT 9999 VCSH FEW018TCU 33/24 Q1009 VTSC 220600Z 09008KT 060V120 9999 FEW020 SCT070 31/24 Q1009 NOSIG VTSE 220600Z 25009KT 230V330 9999 SCT020 32/25 Q1008 NOSIG VTSF 220600Z 04006KT 330V080 9999 FEW018 34/23 Q1008 NOSIG VTSG 220600Z 24012KT 9999 BKN020 32/24 Q1010 NOSIG VTSH 220600Z 24010KT 9999 FEW020 33/24 Q1008 NOSIG VTSK 220600Z 24008KT 9999 FEW025 SCT100 33/24 Q1009 VTSM 220630Z 29009KT 9999 FEW020 32/23 Q1009 NOSIG VTSP 220630Z 26011KT 210V290 9999 SCT020 32/24 Q1011 NOSIG VTSR 220600Z 23013KT 190V250 9999 BKN020 31/26 Q1010 VTSS 220630Z 24010KT 9999 SCT020 BKN100 32/24 Q1009 NOSIG VTST 220600Z 24013G23KT 9999 FEW020 33/23 Q1009 NOSIG VTUD 220600Z 28013KT 9999 FEW030 33/23 Q1003 NOSIG VTUI 220600Z 25009KT 220V290 9999 FEW030 SCT100 29/25 Q1002 NOSIG VTUK 220600Z 25013KT 220V280 9999 SCT025 BKN080 32/23 Q1004 NOSIG VTUL 220600Z 28012KT 250V310 9999 SCT030 BKN100 32/24 Q1004 NOSIG VTUO 220600Z 25009KT 200V320 8000 SCT040 BKN100 30/25 Q1006 VTUQ 220600Z 24010KT 200V300 9999 FEW030 32/25 Q1006 NOSIG VTUU 220600Z 27015KT 240V300 9999 FEW020 SCT025 BKN100 29/25 Q1005 NOSIG VTUV 220500Z 22014KT 7000 -RA SCT025 BKN100 27/24 Q1005 NOSIG VTUW 220600Z 27006KT 210V310 9999 SCT020 BKN050 28/25 Q1002 NOSIG VVCI 220630Z 03004KT 9999 FEW039 BKN060 31/25 Q0999 NOSIG VVCR 220630Z 22018KT 9999 FEW015 SCT050 35/24 Q1003 NOSIG VVCT 220630Z 26013G24KT 230V300 9999 SCT013 FEW015TCU 31/24 Q1007 NOSIG TCU/OVER RWY VVDN 220630Z 26003KT 210V320 8000 FEW013 BKN060 31/25 Q1000 NOSIG VVNB 220630Z 31005KT 270V360 9999 SCT025 33/25 Q0999 NOSIG VVPB 220630Z 32007KT 7000 -RA SCT015 BKN050 27/27 Q1001 TEMPO 4000 RA VVPQ 220630Z 26012KT 9999 SCT015 31/25 Q1008 NOSIG VVTS 220630Z 25016KT 9999 SCT017 FEW020TCU 33/25 Q1006 NOSIG RMK TCU/SE VYMD 220630Z 15007G15KT 8000 BKN018 FEW020CB BKN110 33/26 Q1003 VYNT 220600Z 19008KT 6000 BKN015 FEW017CB OVC100 29/25 Q1005 VYYY 220630Z 21010G20KT 4000 TS BKN010 FEW015CB OVC080 30/26 Q1006 WAAA 220630Z 32006KT 260V360 9999 FEW019 32/25 Q1009 NOSIG WABB 220600Z 11008KT 9999 FEW018 31/23 Q1007 NOSIG WADD 220630Z 11012KT 9999 FEW012 29/24 Q1011 NOSIG WADL 220630Z 15011KT 120V180 9000 SCT016 31/22 Q1012 NOSIG WAHQ 220600Z 24014KT 8000 FEW015 33/22 Q1012 NOSIG WAHS 220630Z 34009KT 7000 FEW014 32/22 Q1010 NOSIG WAJJ 220630Z 11007KT 9999 SCT013 33/21 Q1006 NOSIG WALL 220600Z 23004KT 9999 FEW020 30/24 Q1009 WAMM 220630Z 33007KT 280V040 9999 FEW021 33/23 Q1008 NOSIG WAOO 220630Z 21006KT 9000 FEW020 32/23 Q1010 WAPP 220630Z 17004KT 130V220 9000 BKN017 28/24 Q1010 NOSIG WAQQ 220500Z 17003KT 9999 FEW015 31/24 Q1009 WARR 220600Z 08011KT 050V110 9999 FEW020 32/22 Q1011 NOSIG WATT 220630Z 12016KT 9999 FEW018 32/18 Q1011 NOSIG WBGB 220600Z 18006KT 110V250 9999 FEW016 BKN150 33/24 Q1008 WBGG 220600Z 15005KT 100V230 9999 SCT018 BKN150 31/25 Q1008 NOSIG WBGR 220600Z VRB06KT 9999 FEW016 BKN300 34/21 Q1008 WBGS 220600Z VRB06KT 9999 FEW018 BKN300 34/23 Q1008 WBGY 220600Z 16005KT 080V230 9999 FEW023 BKN300 33/25 Q1008 WBKK 220630Z 23006KT 180V290 9999 FEW015 SCT140 BKN270 33/25 Q1008 NOSIG WBKL 220600Z VRB04KT 9999 FEW015 BKN140 BKN290 31/25 Q1009 WBKS 220600Z 33006KT 280V040 9999 FEW017 BKN290 34/24 Q1007 WBKT 220600Z 24012KT 170V280 9999 FEW014 SCT140 BKN270 32/22 Q1007 WBKW 220600Z 16009KT 130V230 9999 FEW017 SCT140 BKN300 31/24 Q1007 WBSB 220630Z 21010KT 9999 FEW017 BKN140 34/22 Q1008 NOSIG WIBB 220630Z 21005KT 9999 BKN015 33/22 Q1008 WIDD 220630Z 22008KT 9999 SCT014 32/24 Q1012 WIEE 220600Z 22004KT 180V280 9999 NCD 31/24 Q1011 WIHH 220500Z 15004KT 5000 HZ FEW022 34/20 Q1011 NOSIG WIII 220630Z 03007KT 8000 FEW020 32/24 Q1010 NOSIG WIMM 220600Z 05010KT 360V110 9999 SCT018 31/23 Q1009 NOSIG WIOO 220630Z 11004KT 9999 FEW013 31/24 Q1008 WIPP 220630Z 11008KT 080V210 9999 SCT013 32/23 Q1010 NOSIG WMAU 220600Z 10008KT 050V130 9999 FEW018TCU SCT020 BKN280 31/27 Q//// QFF1010 WMBA 220600Z 19004KT 100V270 9999 SCT022 SCT150 BKN280 33/25 Q1010 WMKA 220600Z 25006KT 200V310 9999 SCT020 BKN280 32/27 Q1009 WMKB 220600Z 28004KT 210V330 9000 FEW020 SCT140 BKN280 32/25 Q1009 NOSIG WMKC 220600Z 05007KT 010V080 9999 SCT018 BKN280 33/26 Q1009 WMKD 220500Z VRB08KT 9999 SCT019 BKN280 33/25 Q1010 NOSIG WMKE 220600Z VRB07KT 9999 SCT018 SCT140 BKN260 30/27 Q1009 WMKI 220600Z VRB02KT 9999 FEW020 SCT140 BKN260 32/25 Q1010 WMKJ 220600Z 21005KT 150V320 9999 TS FEW017CB SCT018 BKN280 30/27 Q1011 WMKK 220630Z 15006KT 100V210 9999 SCT018 SCT140 BKN280 31/25 Q1010 NOSIG WMKL 220600Z VRB03KT 9999 FEW017CB SCT140 BKN280 30/26 Q1010 WMKM 220600Z 00000KT 9000 FEW010 FEW017CB SCT028 BKN260 26/25 Q1011 RETSRA WMKN 220600Z VRB05KT 9999 SCT018 BKN300 33/27 Q1009 WMKP 220630Z 22008KT 190V250 9000 FEW020 SCT140 BKN270 33/24 Q1009 NOSIG WMSA 220600Z 16010KT 120V210 9999 FEW018 SCT140 BKN280 32/24 Q1011 WSAP 220600Z 20011KT 9999 FEW018TCU SCT300 33/25 Q1011 RETS WSSL 220600Z 25005KT 200V280 9999 FEW018TCU SCT150 BKN300 32/24 Q1010 RETS WSSS 220630Z 21006KT 180V270 9999 FEW018CB FEW020TCU BKN300 31/24 Q1010 NOSIG YABA 220635Z AUTO 30023G33KT 9999 // SCT055 16/07 Q0995 YAMB 220630Z AUTO 04006KT 9999 // NCD 18/05 Q1019 YARG 220600Z AUTO 34005KT 260V040 9999 // NCD 30/M03 Q1015 YAYE 220600Z AUTO 34016KT 9999 // NCD 29/M03 Q1013 YBAS 220630Z AUTO 03003KT 9999 // NCD 26/M04 Q1016 RF00.0/000.0 YBBN 220630Z 11007KT 9999 FEW040 17/09 Q1020 FM0730 13007KT 9999 FEW040 YBCG 220630Z AUTO 12008KT 9999 // NCD 17/07 Q1020 RF00.0/000.0 YBCS 220630Z 13011KT 9999 FEW025 25/17 Q1015 NOSIG YBCV 220600Z AUTO 34004KT 280V020 9999 // NCD 20/M08 Q1018 YBDV 220600Z AUTO 03009KT //// // ////// 22/M05 Q1015 YBHI 220600Z AUTO 35011KT 9999 // NCD 16/M05 Q1017 YBHM 220630Z AUTO 13015KT 9999 // SCT074 20/17 Q1017 YBMA 220630Z AUTO 13005KT 110V170 9999 // NCD 25/M12 Q1015 RF00.0/000.0 YBMK 220600Z AUTO 11014KT 9999 // NCD 21/16 Q1017 YBNA 220600Z AUTO 14007KT 9999 // NCD 17/07 Q1021 YBOK 220600Z AUTO 04009KT 9999 // SCT061 18/03 Q1019 YBPN 220600Z AUTO 11011KT 9999 // NCD 22/16 Q1017 YBRK 220630Z AUTO 01004KT 350V050 9999 // NCD 23/05 Q1017 RF00.0/000.0 YBRM 220630Z AUTO 24009KT 9999 // NCD 28/12 Q1013 RF00.0/000.0 YBTL 220630Z AUTO 06014KT 9999 // NCD 23/18 Q1016 YBUD 220600Z AUTO 09011KT 9999 // NCD 20/10 Q1018 YBWP 220600Z AUTO 10012KT 9999 // BKN058 30/15 Q1011 YBWX 220600Z AUTO 24013KT //// // ////// 25/15 Q1015 YCAR 220600Z AUTO 25012KT 9999 // SCT027 SCT041 BKN086 22/18 Q1014 YCAS 220600Z AUTO 36003KT //// // ////// 18/02 Q1020 YCBA 220600Z AUTO 07007KT 9999 // NCD 16/M03 Q1019 YCBB 220600Z AUTO 28001KT 9999 // NCD 14/M06 Q1020 YCBP 220600Z AUTO 01022KT 9999 // NCD 26/// Q1010 YCCY 220600Z AUTO 25003KT //// // ////// 25/M09 Q1015 YCDU 220600Z AUTO 36011KT 9999 // NCD 22/01 Q1005 YCFS 220630Z AUTO 04008KT 9999 // NCD 16/06 Q1021 RF00.0/000.0 YCIN 220630Z AUTO 31008KT 260V340 9999 // NCD 31/10 Q1013 RF00.0/000.0 YCNM 220600Z AUTO 23004KT //// // ////// 16/M07 Q1020 YCOM 220600Z AUTO 22006KT 9999 // NCD 07/M04 Q1018 YDBY 220600Z AUTO 33011KT 9999 // NCD 31/12 Q1014 YEML 220600Z AUTO 31005KT 9999 // NCD 24/M01 Q1017 YESP 220600Z AUTO 29012KT 9999 // SCT010 BKN039 OVC115 14/13 Q1000 YFRT 220630Z AUTO 31021KT //// // ////// 25/07 Q1005 RF00.0/000.0 YGEL 220630Z AUTO 28027G39KT 4700 // SCT021 SCT039 OVC055 16/14 Q1009 YGFN 220600Z AUTO 10005KT 9999 // NCD 17/06 Q1021 YGLA 220630Z AUTO 10012KT 9999 // NCD 20/10 Q1018 RF00.0/000.0 YGTE 220600Z AUTO 15007KT 9999 // SCT059 27/11 Q1013 YGTH 220600Z AUTO 01004KT 9999 // NCD 14/M01 Q1019 YHID 220630Z AUTO 12015KT 9999 // NCD 27/21 Q1011 YHUG 220600Z AUTO 16003KT 9999 // NCD 27/M06 Q1015 YKRY 220600Z AUTO 11004KT 9999 // SCT056 18/04 Q1019 YLEC 220600Z AUTO 36016KT //// // ////// 18/M04 Q1015 YLHI 220630Z AUTO 19005KT 9999 // NCD 16/09 Q1020 YLIS 220600Z AUTO 13007KT 9999 // NCD 18/07 Q1020 YLRE 220600Z AUTO 23005KT 190V280 9999 // NCD 20/M12 Q1016 YMAV 220630Z AUTO 36011KT 9999 // BKN055 13/03 Q1017 RF00.0/000.0 YMAY 220600Z AUTO 11004KT 9999 // OVC048 11/02 Q1021 YMDG 220600Z AUTO 33003KT 9999 // NCD 13/M04 Q1020 YMEK 220631Z AUTO 26018G28KT 9999 // SCT015 SCT030 BKN042 17/14 Q1012 YMEN 220600Z AUTO 01013KT 9999 // NCD 13/03 Q1018 YMER 220600Z AUTO 12005KT 9999 // BKN058 13/05 Q1020 YMHB 220630Z 34011KT 9999 FEW050 11/05 Q1016 YMIA 220600Z AUTO 36015KT 9999 // NCD 16/M03 Q1016 YMLT 220630Z AUTO 34006KT 9999 // SCT015 BKN029 BKN039 09/08 Q1017 YMML 220630Z 02017KT 9999 FEW047 12/03 Q1018 FM0630 MOD TURB BLW 5000FT YMOR 220600Z AUTO 34005KT 300V020 9999 // NCD 17/M06 Q1020 YMTG 220600Z AUTO 36020KT 9999 // NCD 14/04 Q1012 YNAR 220600Z AUTO 11004KT //// // ////// 13/M01 Q1020 YNBR 220600Z AUTO 35009KT 9999 // NCD 17/M07 Q1019 YNTN 220600Z AUTO 31009KT 9999 // NCD 29/11 Q1013 YNWN 220600Z AUTO 27010KT 9999 // NCD 26/06 Q1013 YOLD 220600Z AUTO 36016KT 9999 // NCD 19/M04 Q1013 YPAD 220630Z 01017KT CAVOK 17/M01 Q1010 NOSIG YPBO 220600Z AUTO 30007KT 9999 // NCD 26/06 Q1014 YPCC 220630Z AUTO 11012KT 9999 // SCT027 28/22 Q1014 YPDN 220630Z 16009KT CAVOK 32/M05 Q1011 NOSIG YPEA 220630Z AUTO 28024G37KT 9999 // SCT041 SCT047 18/09 Q1004 YPGV 220630Z AUTO 18012KT 9999 // BKN029 OVC034 26/18 Q1013 YPJT 220641Z AUTO 27024G41KT 9999 -SHRA SCT032 SCT049 BKN073 16/12 Q1003 RESHRA YPKG 220637Z AUTO 31015G27KT 9999 // BKN065 21/05 Q1004 YPKU 220630Z AUTO 11006KT 9999 // NCD 32/M04 Q1013 RF00.0/000.0 YPLM 220630Z AUTO 28015KT 9999 // ////// 25/15 Q1015 YPPD 220630Z AUTO 30018KT 9999 // NCD 26/14 Q1014 YPPH 220634Z 29015G26KT 9999 VCSH BKN040 18/10 Q1003 INTER 0634/0800 28025G40KT 4000 SHRA SCT012 INTER 0800/0930 VRB25G45KT 2000 TSRA BKN010 FEW030CB FM0634 MOD TURB BLW 5000FT YPTN 220630Z AUTO 14009KT 9999 // NCD 30/M05 Q1014 YPWR 220630Z AUTO 02017KT 9999 // OVC120 18/M03 Q1012 RF00.0/000.0 YPXM 220630Z AUTO 13012KT 9999 // SCT008 BKN013 24/20 Q1015 YRMD 220600Z AUTO 15004KT 9999 // NCD 28/M02 Q1014 YSCB 220630Z 36010KT 9999 FEW050 09/M02 Q1020 NOSIG RMK USE TAF FOR ARRIVALS AFTER 0800Z YSDU 220630Z AUTO 01004KT 9999 // NCD 14/M06 Q1020 RF00.0/000.0 YSNF 220630Z AUTO 14006KT 9999 // SCT024 BKN060 16/12 Q1017 YSNW 220600Z AUTO 07006KT 9999 // NCD 15/02 Q1019 YSRI 220630Z AUTO 06007KT 9999 // NCD 16/M01 Q1019 RF00.0/000.0 PRESENT WEATHER SENSOR US YSSY 220630Z 03012KT CAVOK 16/02 Q1020 NOSIG YSTW 220630Z AUTO 25005KT 9999 // NCD 16/M04 Q1020 RF00.0/000.0 YSWG 220600Z AUTO 00000KT 9999 // NCD 10/01 Q1021 YTEF 220600Z AUTO 32015KT 9999 // NCD 30/05 Q1013 YTNK 220600Z AUTO 13009KT 9999 // NCD 25/M03 Q1017 YTRE 220600Z AUTO 10008KT 9999 // NCD 15/04 Q1020 YWGT 220600Z AUTO 02005KT 9999 // OVC053 11/02 Q1020 YWHA 220614Z AUTO 36017G27KT 9999 // NCD 18/M02 Q1011 YWLM 220630Z AUTO 09007KT 9999 // NCD 15/04 Q1020 ZBAA 220630Z 32005MPS 290V350 CAVOK 31/22 Q1006 NOSIG ZBHH 220600Z VRB02MPS 9999 FEW040 FEW040TCU 30/21 Q1011 NOSIG ZBSJ 220600Z 09003MPS 060V120 8000 TS FEW026CB SCT046 33/27 Q1005 NOSIG ZBTJ 220630Z 08001MPS 4000 BR NSC 31/25 Q1005 NOSIG ZBYN 220630Z 32007MPS 9999 FEW033CB FEW040TCU 25/20 Q1009 RETS NOSIG ZGGG 220630Z 17005MPS 140V200 9999 SCT050 36/21 Q1000 NOSIG ZGHA 220600Z 28004MPS 230V300 1500 TSRA BR FEW012 FEW050CB BKN050 25/24 Q1002 BECMG TL0640 NSW ZGKL 220600Z 07003MPS 9999 FEW033 36/25 Q1000 NOSIG ZGNN 220600Z 02005MPS 350V060 9999 SCT030 33/23 Q1000 NOSIG ZGOW 220600Z 17003MPS 110V220 9999 SCT033 35/25 Q1000 NOSIG ZGSZ 220600Z 18007MPS 9999 FEW020 FEW030CB 32/26 Q1002 BECMG AT0745 SHRA ZHCC 220600Z 08005MPS 050V110 9999 FEW033 35/17 Q1005 NOSIG ZHHH 220600Z 34003MPS 280V040 9999 SCT030 36/25 Q1001 NOSIG ZJHK 220600Z 13005MPS 100V160 9999 -SHRA SCT010 FEW023TCU BKN033 28/26 Q0998 NOSIG ZJSY 220600Z 24007MPS 200V270 3500 -SHRA SCT013 FEW026CB BKN040 27/25 Q0998 TEMPO SHRA ZLLL 220600Z VRB02MPS 9999 FEW023 25/13 Q1013 NOSIG ZLXY 220600Z 09004MPS 030V150 CAVOK 37/23 Q1003 NOSIG ZMUB 220630Z VRB02MPS 9999 FEW033 BKN250 20/10 Q1013 NOSIG RMK QFE653.0 57 MOP ZPPP 220600Z VRB02MPS 9999 FEW026TCU SCT026 25/12 Q1017 NOSIG ZSAM 220600Z 16006MPS 120V180 9999 FEW030TCU 34/25 Q0999 NOSIG ZSFZ 220600Z 14006MPS 9999 FEW023 FEW026TCU 33/25 Q0999 NOSIG ZSHC 220630Z 24005MPS 210V270 9999 BKN020 30/26 Q0996 NOSIG ZSNB 220600Z 23004MPS 200V350 9999 -SHRA BKN020 OVC050 29/26 Q0997 NOSIG ZSNJ 220600Z 35004MPS 320V060 9999 -SHRA SCT033 FEW040CB 28/26 Q0999 RESHRA BECMG FM0640 2000 SHRA BR ZSOF 220600Z 03004MPS 350V080 9999 BKN030 33/25 Q1002 NOSIG ZSPD 220630Z 24011G16MPS 9999 -SHRA BKN011 BKN033 27/25 Q0990 BECMG TL0730 BKN015 OVC033 ZSQD 220600Z 09007MPS 9999 FEW033 33/21 Q1006 NOSIG ZSSS 220630Z 25010G15MPS 9999 -SHRA BKN015 27/25 Q0991 NOSIG ZUCK 220600Z VRB03MPS 9999 FEW033 38/22 Q1002 NOSIG ZUGY 220600Z 06002MPS 010V110 9999 SCT033 33/19 Q1008 NOSIG ZUUU 220600Z 15003MPS 070V190 9999 FEW030 FEW030TCU 33/26 Q1004 NOSIG ZWSH 220600Z 08003MPS CAVOK 32/10 Q1010 NOSIG ZWWW 220630Z 01004MPS 330V050 CAVOK 33/09 Q1004 NOSIG ZYCC 220600Z 26004MPS 230V310 9999 SCT030 32/24 Q1007 NOSIG ZYHB 220600Z 21006MPS 8000 FEW023 32/25 Q1004 NOSIG ZYTL 220630Z 16003MPS 110V230 CAVOK 32/21 Q1008 NOSIG ZYTX 220630Z 24005MPS 200V260 CAVOK 33/26 Q1006 NOSIG
Current TAF: AGGH 220510Z 2206/2306 11008KT 9999 FEW019 SCT029 FM221000 VRB03KT 9999 FEW017 BKN100 T 30 28 26 24 Q 1008 1010 1011 1009 AYPY 212245Z 2200/2224 15007KT 9999 SCT018 FM220500 15012KT 9999 SCT020 SCT140 T 29 31 28 26 Q 1011 1010 1008 1009 BIAR 220157Z 2203/2303 34005KT 3000 RADZ OVC005 TX10/2215Z TN07/2303Z PROB40 TEMPO 2203/2209 0500 FG VV002 BECMG 2209/2211 9000 -RADZ SCT010 OVC015 TEMPO 2209/2212 2500 DZ BR OVC010 BECMG 2218/2220 OVC010 TEMPO 2220/2303 2500 DZ BR OVC005 BIEG 220157Z 2203/2303 36005KT 5000 -DZ BR OVC005 TX12/2217Z TN08/2303Z PROB40 TEMPO 2203/2206 1000 FG VV002 BECMG 2206/2209 9999 -DZ OVC015 TEMPO 2206/2212 5000 -DZ BR OVC008 TEMPO 2220/2303 2500 -DZ BR OVC010 BIKF 220157Z 2203/2303 23010KT 9999 -DZ FEW008 OVC015 TX10/2215Z TN08/2200Z PROB40 TEMPO 2203/2208 3500 -DZ BR OVC007 TEMPO 2208/2224 5000 -RADZ OVC012 BECMG 2215/2218 VRB02KT PROB40 TEMPO 2300/2303 3500 BR -DZ OVC007 BIRK 220157Z 2203/2303 22007KT 9999 -DZ FEW010 BKN018 OVC030 TX11/2215Z TN09/2206Z PROB40 TEMPO 2203/2208 4000 -DZ BR OVC008 PROB40 TEMPO 2208/2303 5000 -RADZ OVC015 BECMG 2212/2215 VRB02KT BKPR 220530Z 2206/2306 VRB05KT 9999 FEW050 TEMPO 2211/2219 33015KT CBBC 220038Z 2201/2205 VRB03KT P6SM BKN030 TEMPO 2201/2205 BKN020 RMK FCST BASED ON AUTO OBS. NXT FCST WILL BE ISSUED AT 221245Z CWSA 211938Z 2120/2124 15012G22KT 1/2SM -DZ FG VV002 TEMPO 2120/2124 21/2SM -RA BR BKN020 PROB30 2120/2124 1SM +TSRA BR BKN005 OVC010CB RMK FCST BASED ON AUTO OBS. NXT FCST WILL BE ISSUED AT 220745Z CWWU 220600Z 2206/2306 25005KT P6SM BKN060 BKN070 OVC140 TEMPO 2208/2213 19007KT 5SM -SHRA BKN010 OVC020 FM221300 22009KT P6SM SCT015 BKN025 FM221900 18012G20KT P6SM BKN020 RMK FCST BASED ON AUTO OBS. NXT FCST BY 221200Z CYAB 211840Z 2119/2122 FCST NOT AVBL DUE NO OBS RMK NXT FCST WILL BE ISSUED AT 231245Z CYAM 220138Z 2202/2214 36005KT P6SM -SHRA FEW005 SCT020 BKN060 TEMPO 2202/2206 5SM -SHRA BR BKN020 PROB30 2202/2204 VRB15G25KT 2SM TSRA BR BKN007 OVC030CB FM220600 04010KT P6SM BKN040 TEMPO 2206/2210 BKN020 FM221000 03007KT P6SM FEW040 BKN120 RMK NXT FCST BY 220800Z CYAY 220138Z 2202/2214 24010KT P6SM SCT080 PROB30 2202/2204 2SM TSRA BR OVC020CB FM220600 24012KT P6SM SCT006 TEMPO 2206/2209 3SM BR OVC006 FM220900 24012KT 3SM BR OVC006 TEMPO 2209/2212 P6SM NSW OVC012 FM221200 23010KT P6SM BKN020 RMK FCST BASED ON AUTO OBS. NXT FCST BY 220800Z CYAZ 212013Z 2120/2201 26007KT 3SM BR SCT003 BKN008 BECMG 2120/2122 P6SM NSW FEW008 SCT020 RMK NXT FCST WILL BE ISSUED AT 221445Z CYBB 211840Z 2119/2124 27012G22KT P6SM SCT015 TEMPO 2119/2121 BKN015 FM212100 27015G25KT P6SM SCT220 RMK NXT FCST WILL BE ISSUED AT 221845Z CYBC 220138Z 2202/2214 VRB03KT P6SM SKC FM221200 08010KT P6SM FEW240 RMK FCST BASED ON AUTO OBS. NXT FCST BY 220800Z CYBG 220530Z 2206/2306 VRB03KT P6SM FEW100 SCT240 BECMG 2212/2214 10008KT FM221400 10008KT P6SM SCT050 BKN240 FM222000 13008KT P6SM -SHRA SCT015 OVC050 FM230200 09005KT P6SM -SHRA FEW010 OVC020 RMK NXT FCST BY 221200Z CYBK 220538Z 2206/2218 VRB03KT P6SM SCT050 BKN090 TEMPO 2206/2207 P6SM -TSRA FEW020 BKN050CB FM221000 34010KT P6SM SCT020 BKN090 TEMPO 2210/2218 BKN020 RMK NXT FCST BY 221200Z CYBL 220038Z 2201/2204 02005KT P6SM FEW090 RMK NXT FCST WILL BE ISSUED AT 221445Z CYBR 220538Z 2206/2218 10010KT P6SM FEW160 FM221200 12012KT P6SM BKN080 FM221600 18015G25KT P6SM BKN040 TEMPO 2216/2218 P6SM -SHRA PROB30 2216/2218 VRB20G30KT 4SM TSRA BKN040CB RMK NXT FCST BY 221200Z CYBX 220610Z 2206/2214 VRB03KT P6SM SCT080 BKN100 TEMPO 2206/2210 1/2SM -DZ FG VV002 FM221000 VRB03KT 1/2SM -DZ FG VV002 TEMPO 2210/2214 3SM BR OVC007 BECMG 2210/2212 24006KT RMK NXT FCST BY 220800Z CYCA 220510Z 2205/2214 ADVISORY OFFSITE VRB03KT P6SM SCT020 OVC030 TEMPO 2205/2210 P6SM -SHRA OVC020 FM221000 VRB03KT P6SM FEW090 RMK NXT FCST BY 220800Z CYCB 220638Z 2207/2219 26008KT P6SM SCT030 BKN160 TEMPO 2207/2209 BKN020 OVC160 BECMG 2207/2209 31012KT FM220900 31012KT P6SM SCT030 BKN080 OVC200 TEMPO 2209/2219 BKN020 OVC080 BECMG 2215/2217 25015KT RMK NXT FCST BY 221300Z CYCG 220038Z 2201/2204 32010KT P6SM SCT110 BECMG 2201/2203 33005KT RMK NXT FCST WILL BE ISSUED AT 221445Z CYCO 220638Z 2207/2219 VRB03KT P6SM FEW050 BKN080 FM220800 VRB03KT P6SM SCT040 BKN080 TEMPO 2208/2216 BKN040 OVC080 BECMG 2208/2210 27012KT FM221600 27012KT P6SM FEW050 BKN100 BECMG 2217/2219 33012KT RMK NXT FCST BY 221300Z CYCY 220638Z 2207/2219 VRB03KT P6SM SCT003 BKN060 TEMPO 2207/2209 1/2SM -DZ FG BKN003 FM220900 20010KT P6SM SCT030 RMK FCST BASED ON AUTO OBS. NXT FCST BY 221300Z CYDB 220538Z 2206/2218 VRB03KT P6SM FEW080 SCT240 RMK FCST BASED ON AUTO OBS. NXT FCST BY 221200Z CYDF 220138Z 2202/2214 23006KT P6SM FEW100 BKN210 FM220500 VRB03KT P6SM SCT015 BKN030 TEMPO 2205/2208 5SM -SHRA BR OVC008 FM220800 VRB03KT 5SM -SHRA BR OVC008 TEMPO 2208/2212 P6SM NSW OVC015 FM221200 21008KT P6SM OVC015 TEMPO 2212/2214 BKN025 RMK NXT FCST BY 220800Z CYDN 220538Z 2206/2218 13006KT P6SM FEW140 BECMG 2208/2210 17010KT FM221400 17012G22KT P6SM BKN060 TEMPO 2214/2218 P6SM -SHRA PROB30 2214/2218 VRB15G25KT 4SM TSRA BKN040CB RMK FCST BASED ON AUTO OBS. NXT FCST BY 221200Z CYDP 211940Z 2120/2123 31010G20KT P6SM SCT060 RMK NXT FCST WILL BE ISSUED AT 220945Z CYDQ 220039Z 2201/2205 28008KT P6SM FEW040 TEMPO 2201/2205 P6SM -SHRA VCTS BKN040CB RMK FCST BASED ON AUTO OBS. NXT FCST WILL BE ISSUED AT 221245Z CYEG 220540Z 2206/2306 28010KT P6SM SCT040 BKN200 TEMPO 2206/2210 P6SM -SHRA SCT015 BKN040 OVC080 FM221000 32010KT P6SM -RA BKN025 OVC060 TEMPO 2210/2215 4SM -RA BR BKN008 OVC020 FM221500 32015G25KT P6SM BKN060 TEMPO 2215/2306 P6SM -SHRA BKN030 BECMG 2300/2302 34008KT RMK NXT FCST BY 220900Z CYEK 220538Z 2206/2218 18012KT P6SM BKN200 PROB30 2208/2214 1/2SM FG BKN004 RMK FCST BASED ON AUTO OBS. NXT FCST BY 221200Z CYEN 212211Z 2122/2124 12015G25KT P6SM BKN040 TEMPO 2122/2124 VRB15G25KT 5SM TSRA BR BKN040CB RMK NXT FCST WILL BE ISSUED AT 221145Z CYEV 220638Z 2207/2219 VRB03KT P6SM FEW120 BKN260 BECMG 2207/2209 15007KT FM221500 19007KT P6SM SCT080 RMK NXT FCST BY 221300Z CYFB 220538Z 2206/2306 31006KT P6SM SCT100 FM221300 31010KT P6SM BKN050 FM222200 31008KT P6SM SCT040 RMK NXT FCST BY 221200Z CYFC 220538Z 2206/2218 VRB03KT P6SM SKC PROB30 2208/2211 1/2SM FG VV002 FM221500 16005KT P6SM BKN015 RMK FCST BASED ON AUTO OBS. NXT FCST BY 221200Z CYFS 220538Z 2206/2218 34010KT P6SM FEW040 SCT160 RMK NXT FCST BY 221200Z CYGK 211938Z 2120/2203 19008KT P6SM FEW050 FEW220 BECMG 2122/2124 VRB03KT FM220200 10005KT P6SM BKN170 BKN240 RMK NXT FCST WILL BE ISSUED AT 221145Z CYGL 220538Z 2206/2306 VRB03KT P6SM FEW040 BKN240 BECMG 2210/2212 29006KT BECMG 2301/2303 35006KT RMK NXT FCST BY 221200Z CYGP 220138Z 2202/2214 VRB03KT P6SM FEW100 FEW240 TEMPO 2202/2212 BKN008 PROB30 2204/2212 1/2SM FG VV002 FM221200 22005KT P6SM FEW008 BKN015 RMK NXT FCST BY 220800Z CYGQ 220138Z 2202/2214 05010KT P6SM FEW025 OVC130 TEMPO 2202/2211 BKN020 OVC140 FM221100 05008KT P6SM FEW030 SCT120 BECMG 2212/2214 06012KT RMK NXT FCST BY 220800Z CYGR 211938Z 2120/2202 11010KT P6SM SCT020 BKN050 TEMPO 2120/2124 BKN020 BKN050 FM220000 12010KT P6SM SCT008 BKN030 TEMPO 2200/2202 6SM -RA BR BKN008 BKN030 RMK NXT FCST WILL BE ISSUED AT 221045Z CYGV 220626Z 2206/2214 08005KT 1/2SM FG VV002 TEMPO 2206/2212 2SM -RA BR FEW002 BKN008 FM221200 08008KT 6SM BR FEW002 BKN008 RMK FCST BASED ON AUTO OBS. NXT FCST BY 220800Z CYGW 220538Z 2206/2218 VRB03KT P6SM SKC PROB30 2208/2212 1SM BR BKN004 FM221200 22006KT P6SM FEW005 SCT050 FM221700 35010KT P6SM SKC RMK FCST BASED ON AUTO OBS. NXT FCST BY 221200Z CYGX 220638Z 2207/2219 12006KT P6SM FEW120 RMK NXT FCST BY 221300Z CYHD 220138Z 2202/2214 06007KT P6SM OVC040 TEMPO 2208/2211 OVC012 RMK FCST BASED ON AUTO OBS. NXT FCST BY 220800Z CYHI 211838Z 2119/2124 FCST NOT AVBL DUE NO OBS RMK NXT FCST WILL BE ISSUED AT 221545Z CYHK 220538Z 2206/2218 24010KT P6SM FEW040 SCT230 FM221300 26012KT P6SM SCT020 BKN080 TEMPO 2213/2218 P6SM -SHRA BKN020 RMK FCST BASED ON AUTO OBS. NXT FCST BY 221200Z CYHM 220641Z 2206/2306 04010KT 5SM -RA BR BKN006 OVC020 TEMPO 2206/2215 P6SM -SHRA SCT005 OVC025 FM221500 03015G25KT P6SM -SHRA SCT010 OVC020 FM221800 36010KT P6SM -SHRA SCT008 BKN010 OVC025 PROB30 2218/2223 OVC006 FM222300 VRB03KT P6SM BKN020 FM230500 07007KT P6SM -SHRA BKN050 RMK NXT FCST BY 221200Z CYHU 220538Z 2206/2306 10008KT P6SM FEW240 FM221100 03006KT P6SM SCT060 BKN160 FM221300 05008G18KT P6SM -SHRA BKN040 OVC100 FM221500 07008G18KT 6SM -SHRA BR BKN020 OVC050 TEMPO 2215/2218 P6SM -SHRA SCT020 OVC050 FM221800 11010G20KT P6SM BKN025 BKN050 TEMPO 2218/2221 P6SM -SHRA FM222100 06012KT P6SM BKN012 OVC030 FM230200 11008KT P6SM -SHRA BKN030 OVC050 RMK FCST BASED ON AUTO OBS. NXT FCST BY 221200Z CYHY 220538Z 2206/2218 33010G20KT P6SM FEW040 SCT090 BKN210 FM221000 35015KT P6SM SCT050 BKN080 TEMPO 2210/2218 P6SM -SHRA BKN050 OVC080 RMK NXT FCST BY 221200Z CYHZ 220538Z 2206/2306 21005KT 1/2SM FG VV002 FM221100 20007KT 3/4SM BR BKN003 OVC004 TEMPO 2211/2216 6SM BR FEW003 OVC004 FM221600 20010KT 6SM -SHRA BR BKN005 OVC015 FM221900 22010KT P6SM -SHRA FEW008 BKN020 FM230000 20008KT 2SM BR OVC005 FM230300 18007KT 3/4SM -SHRA BR OVC002 RMK NXT FCST BY 220900Z CYIO 220638Z 2207/2219 23015G25KT P6SM SCT012 BKN040 TEMPO 2207/2219 5SM -SHRA BR BKN012 OVC030 RMK FCST BASED ON AUTO OBS. NXT FCST BY 221300Z CYIV 220638Z 2207/2219 VRB03KT P6SM FEW120 BKN250 BECMG 2210/2212 14010KT RMK NXT FCST BY 221300Z CYJT 220538Z 2206/2306 07010KT P6SM SCT010 OVC080 TEMPO 2206/2209 P6SM -SHRA OVC010 FM220900 VRB03KT P6SM SCT008 OVC015 FM221500 24010KT P6SM OVC015 TEMPO 2215/2218 5SM -SHRA BR OVC008 FM221800 25010KT 4SM -DZ BR OVC006 PROB30 2218/2303 1/2SM FG VV002 FM230300 VRB03KT P6SM BKN025 TEMPO 2303/2306 5SM -SHRA BR OVC020 RMK NXT FCST BY 221200Z CYKA 220638Z 2207/2219 VRB03KT P6SM FEW090 FM221100 VRB03KT P6SM FEW020 PROB30 2211/2214 BKN020 RMK NXT FCST BY 221300Z CYKF 220138Z 2202/2214 08008KT P6SM BKN050 TEMPO 2202/2204 P6SM -SHRA FM220400 09006KT P6SM OVC025 TEMPO 2204/2212 5SM -SHRA BR OVC020 FM221200 08010G20KT 3SM -RA BR OVC009 RMK FCST BASED ON AUTO OBS. NXT FCST BY 220800Z CYKJ 212048Z 2120/2124 10015G25KT P6SM SCT040 OVC080 TEMPO 2120/2124 P6SM -SHRA BKN020 OVC040 PROB30 2120/2124 VRB20G30KT 3SM TSRA OVC020CB RMK FCST BASED ON AUTO OBS. NXT FCST WILL BE ISSUED AT 220945Z CYKL 220138Z 2202/2214 VRB03KT P6SM BKN050 TEMPO 2202/2214 5SM -SHRA BR OVC040 RMK FCST BASED ON AUTO OBS. NXT FCST BY 220800Z CYKZ 220538Z 2206/2218 13012G22KT P6SM SCT040 BKN120 TEMPO 2206/2213 P6SM -SHRA OVC040 FM221300 08010G20KT P6SM -SHRA OVC030 TEMPO 2213/2217 OVC020 FM221700 05010G20KT 6SM -SHRA BR OVC008 RMK NXT FCST BY 221200Z CYLD 220010Z 2200/2201 36007KT P6SM -RA OVC030 TEMPO 2200/2201 3SM -SHRA BR BKN005 OVC030 RMK NXT FCST WILL BE ISSUED AT 221145Z CYLL 220540Z 2206/2218 32008KT P6SM FEW060 SCT120 FM220700 28010KT P6SM SCT040 BKN080 TEMPO 2207/2213 P6SM -SHRA FEW012 BKN040 OVC080 FM221300 28012KT P6SM SCT012 BKN025 TEMPO 2213/2217 BKN012 FM221700 30020G30KT P6SM OVC030 TEMPO 2217/2218 4SM -SHRA BR OVC020 RMK FCST BASED ON AUTO OBS. NXT FCST BY 221200Z CYLW 220638Z 2207/2219 02005KT P6SM SCT080 TEMPO 2207/2210 BKN080 BECMG 2208/2210 VRB03KT FM221800 35010KT P6SM SKC RMK FCST BASED ON AUTO OBS. NXT FCST BY 221300Z CYMA 220538Z 2206/2218 VRB03KT P6SM FEW080 BKN240 RMK NXT FCST BY 221200Z CYMH 220107Z 2201/2203 19008KT P6SM BKN060 TEMPO 2201/2203 VRB15G25KT 2SM TSRA BR BKN040 OVC060CB RMK FCST BASED ON AUTO OBS. NXT FCST WILL BE ISSUED AT 220845Z CYMM 220640Z 2207/2219 22012G22KT 6SM -RA BR SCT012 OVC025 TEMPO 2207/2209 1SM -RA BR BKN012 OVC025 FM220900 29010G20KT 6SM -RA OVC020 TEMPO 2209/2219 2SM -RA BR OVC008 BECMG 2214/2216 32020G30KT RMK FCST BASED ON AUTO OBS. NXT FCST BY 221300Z CYMO 220538Z 2206/2218 36005KT P6SM FEW030 BKN250 BECMG 2211/2213 36010KT RMK FCST BASED ON AUTO OBS. NXT FCST BY 221200Z CYMX 220538Z 2206/2306 16005KT P6SM FEW240 FM221100 05006KT P6SM SCT060 BKN160 FM221300 05008KT P6SM -SHRA BKN040 OVC100 FM221600 07008KT 6SM -SHRA BR BKN015 OVC050 TEMPO 2216/2218 P6SM -SHRA SCT020 OVC050 FM221800 07008KT P6SM BKN012 BKN050 TEMPO 2218/2221 P6SM -SHRA BKN025 OVC050 FM222100 06012KT 6SM BR OVC006 FM230200 09005KT 3SM -SHRA BR BKN006 OVC015 RMK NXT FCST BY 221200Z CYNA 220138Z 2202/2214 10005KT 1/2SM FG VV002 TEMPO 2202/2212 1SM -RA BR FM221200 09005KT 3/4SM BR FEW002 BKN004 RMK FCST BASED ON AUTO OBS. NXT FCST BY 220800Z CYNE 220638Z 2207/2219 11008KT P6SM BKN140 FM221400 16012KT P6SM SCT040 BKN100 RMK FCST BASED ON AUTO OBS. NXT FCST BY 221300Z CYOA 211838Z 2119/2123 07008KT 5SM -SHRA BR OVC006 TEMPO 2119/2121 P6SM NSW SCT006 OVC012 FM212100 06010KT P6SM SCT012 BKN050 OVC120 TEMPO 2121/2123 P6SM -SHRA BKN008 OVC050 RMK NXT FCST WILL BE ISSUED AT 221245Z CYOD 220530Z 2206/2306 20008KT P6SM FEW030 BKN160 BECMG 2206/2208 27008KT FM221400 27008KT P6SM OVC012 FM221600 32015G25KT P6SM -SHRA SCT012 OVC025 RMK NXT FCST BY 221200Z CYOJ 220640Z 2207/2219 34008KT P6SM SCT050 FM220900 34012G22KT P6SM SCT020 TEMPO 2209/2219 BKN020 PROB30 2209/2214 BKN008 RMK FCST BASED ON AUTO OBS. NXT FCST BY 221300Z CYOW 220538Z 2206/2306 06010KT P6SM FEW070 FEW190 BKN240 FM221200 07010G20KT P6SM OVC120 TEMPO 2212/2215 P6SM -SHRA FM221500 08015G25KT 6SM -SHRA BR BKN020 OVC050 FM221800 08015G25KT P6SM BKN025 BKN050 TEMPO 2218/2306 P6SM -SHRA BKN020 OVC050 BECMG 2222/2224 08012G22KT RMK NXT FCST BY 220900Z CYPA 220638Z 2207/2219 VRB03KT P6SM SCT040 BKN210 TEMPO 2207/2210 VRB15G25KT 4SM TSRA BKN040CB FM221000 27008KT P6SM SCT015 BKN120 TEMPO 2210/2215 P6SM -SHRA BKN015 OVC080 FM221500 30012KT P6SM BKN080 TEMPO 2215/2219 P6SM -SHRA RMK NXT FCST BY 221300Z CYPC 211838Z 2119/2123 29012KT P6SM FEW012 SCT220 FM212100 29012G22KT P6SM SCT040 BKN060 TEMPO 2121/2123 P6SM -SHRA BKN040 RMK NXT FCST WILL BE ISSUED AT 221445Z CYPE 220640Z 2207/2219 34012KT P6SM FEW080 SCT200 PROB30 2207/2210 BKN006 FM221000 34012G22KT P6SM SCT012 TEMPO 2210/2216 BKN012 PROB30 2210/2214 BKN004 FM221600 34010G20KT P6SM BKN030 TEMPO 2216/2219 BKN020 RMK NXT FCST BY 221300Z CYPH 220538Z 2206/2218 03012KT P6SM SKC RMK FCST BASED ON AUTO OBS. NXT FCST BY 221200Z CYPL 211938Z 2120/2202 05008KT P6SM BKN050 RMK NXT FCST WILL BE ISSUED AT 221245Z CYPQ 211938Z 2120/2202 11008G18KT P6SM SCT030 BECMG 2123/2201 11008KT RMK FCST BASED ON AUTO OBS. NXT FCST WILL BE ISSUED AT 220945Z CYPR 220638Z 2207/2219 VRB03KT P6SM OVC007 TEMPO 2207/2217 2SM BR OVC005 RMK FCST BASED ON AUTO OBS. NXT FCST BY 221300Z CYPX 220538Z 2206/2218 30008KT P6SM SCT250 PROB30 2210/2215 1SM BR RMK FCST BASED ON AUTO OBS. NXT FCST BY 221200Z CYPY 220207Z 2202/2206 05012G22KT P6SM -RA SCT010 OVC050 TEMPO 2202/2206 3SM RA BR OVC006 PROB30 2202/2203 VRB15G25KT 2SM TSRA OVC020CB RMK FCST BASED ON AUTO OBS. NXT FCST WILL BE ISSUED AT 221145Z CYQA 211938Z 2120/2202 11010G20KT P6SM FEW060 BKN240 BECMG 2122/2124 11008KT RMK FCST BASED ON AUTO OBS. NXT FCST WILL BE ISSUED AT 221145Z CYQB 220538Z 2206/2306 05008KT P6SM FEW260 FM221500 08008G18KT P6SM BKN080 BKN200 FM221700 08008G18KT P6SM -SHRA BKN040 OVC120 PROB30 2218/2219 VRB15G25KT 2SM TSRA BR OVC030CB FM221900 10008G18KT 6SM -SHRA BR BKN015 OVC030 TEMPO 2219/2224 P6SM -SHRA SCT015 OVC030 PROB30 2219/2224 VRB15G25KT 2SM TSRA BR BKN008 OVC030CB FM230000 08008KT P6SM OVC025 FM230500 08008KT P6SM -SHRA OVC020 RMK NXT FCST BY 221200Z CYQD 220638Z 2207/2219 12012G22KT P6SM BKN140 OVC200 FM220900 16012G22KT P6SM BKN080 TEMPO 2209/2215 P6SM -SHRA PROB30 2209/2212 VRB15G25KT 4SM TSRA BKN060CB FM221500 17010KT P6SM -SHRA BKN040 TEMPO 2215/2219 4SM -SHRA BR BKN020 OVC040 RMK FCST BASED ON AUTO OBS. NXT FCST BY 221300Z CYQF 220540Z 2206/2218 30010KT P6SM SCT060 BKN120 TEMPO 2206/2207 P6SM -SHRA SCT030 BKN060 OVC120 FM220700 32010KT P6SM BKN060 TEMPO 2207/2210 BKN030 FM221000 30012G22KT P6SM BKN025 TEMPO 2210/2214 4SM -RA BR OVC012 FM221400 32015G25KT P6SM BKN040 TEMPO 2214/2216 BKN020 RMK NXT FCST BY 221200Z CYQG 220538Z 2206/2306 08007KT P6SM SCT030 BKN150 TEMPO 2206/2212 BKN025 FM221200 07010G20KT P6SM -SHRA BKN025 TEMPO 2212/2215 BKN020 FM221500 06015KT P6SM -SHRA BKN008 OVC012 FM221800 05012KT P6SM BKN012 BKN030 FM222100 03012KT P6SM SCT020 BKN050 RMK NXT FCST BY 221200Z CYQH 220538Z 2206/2218 09007KT P6SM FEW040 SCT060 BKN100 TEMPO 2206/2208 P6SM -SHRA FEW040 BKN060 FM220800 09007KT P6SM FEW060 SCT100 RMK NXT FCST BY 221200Z CYQI 220631Z 2206/2218 VRB03KT 1/4SM FG VV001 TEMPO 2206/2208 6SM BR FEW001 FM221200 15010KT 1/2SM -SHRA FG VV002 RMK NXT FCST BY 221200Z CYQK 220138Z 2202/2214 10008KT P6SM BKN050 FM221200 14008KT P6SM FEW050 RMK NXT FCST BY 220800Z CYQL 220540Z 2206/2218 30008KT P6SM SCT100 RMK FCST BASED ON AUTO OBS. NXT FCST BY 221200Z CYQM 220538Z 2206/2306 22005KT P6SM FEW008 SCT012 SCT030 TEMPO 2206/2214 BKN008 OVC012 FM221400 18008KT P6SM BKN015 FM221800 19012KT P6SM BKN025 BKN100 TEMPO 2218/2302 P6SM -SHRA OVC020 FM230200 20010KT P6SM -SHRA OVC015 RMK NXT FCST BY 221200Z CYQQ 220539Z 2206/2306 34005KT P6SM SKC RMK NXT FCST BY 221200Z CYQR 220538Z 2206/2306 12015G25KT P6SM SCT250 FM220900 15010KT P6SM BKN120 PROB30 2209/2215 VRB15G25KT 5SM TSRA BKN080CB FM221500 28010KT P6SM SCT060 BECMG 2218/2220 28018G28KT RMK NXT FCST BY 221200Z CYQT 220138Z 2202/2214 04007KT P6SM SCT030 BKN120 TEMPO 2202/2206 BKN030 OVC130 BECMG 2202/2203 VRB03KT FM220600 VRB03KT P6SM FEW025 BECMG 2209/2211 04008KT RMK NXT FCST BY 220800Z CYQU 220640Z 2207/2219 30006KT P6SM BKN080 FM221000 30006KT P6SM FEW012 BKN080 TEMPO 2210/2216 BKN012 PROB30 2210/2214 BKN006 FM221600 36006KT P6SM BKN030 TEMPO 2216/2219 BKN020 RMK NXT FCST BY 221300Z CYQW 220538Z 2206/2218 01010KT P6SM SCT080 FM220900 30010KT P6SM SCT025 BKN060 TEMPO 2209/2218 P6SM -SHRA RMK FCST BASED ON AUTO OBS. NXT FCST BY 221200Z CYQX 220538Z 2206/2306 23010G20KT P6SM SCT020 OVC140 FM220900 23008KT 6SM -SHRA BR BKN008 OVC015 TEMPO 2209/2215 P6SM NSW SCT008 OVC015 PROB30 2209/2215 2SM SHRA BR BKN004 OVC015CB FM221500 21010KT P6SM BKN015 OVC025 FM221800 23012KT P6SM BKN025 BECMG 2222/2224 24008KT RMK NXT FCST BY 221200Z CYQY 220538Z 2206/2218 18008KT 3/4SM BR OVC002 TEMPO 2206/2209 2SM -SHRA BR FEW002 OVC004 FM220900 22010KT 2SM BR BKN003 OVC006 TEMPO 2209/2212 6SM -DZ BR FEW003 BKN008 FM221200 22012KT P6SM FEW003 BKN008 FM221500 21012KT P6SM SCT020 BKN080 TEMPO 2215/2218 P6SM -SHRA BKN020 OVC080 RMK NXT FCST BY 221200Z CYQZ 220039Z 2201/2206 16005KT P6SM SCT050 TEMPO 2201/2204 P6SM -SHRA VCTS BKN050CB RMK FCST BASED ON AUTO OBS. NXT FCST WILL BE ISSUED AT 221145Z CYRB 220628Z 2206/2306 26018KT P6SM SCT003 OVC012 TEMPO 2206/2222 2SM -SN BR OVC003 FM222200 27014KT P6SM SCT008 BKN025 TEMPO 2222/2306 5SM -SN BR BKN008 RMK NXT FCST BY 221200Z CYRJ 211938Z 2120/2202 07005KT P6SM FEW060 SCT230 BECMG 2200/2202 20008KT RMK NXT FCST WILL BE ISSUED AT 221145Z CYRL 211938Z 2120/2202 VRB03KT P6SM BKN070 TEMPO 2120/2123 SCT070 FM212300 VRB03KT P6SM FEW050 RMK NXT FCST WILL BE ISSUED AT 221045Z CYRQ 220138Z 2202/2214 07005KT P6SM SKC BECMG 2211/2213 08012KT RMK FCST BASED ON AUTO OBS. NXT FCST BY 220800Z CYRT 220538Z 2206/2218 19006KT P6SM SCT270 PROB30 2208/2214 1/2SM FG FM221600 18014KT P6SM BKN200 RMK NXT FCST BY 221200Z CYSB 220138Z 2202/2214 10010KT P6SM FEW060 BKN180 BECMG 2205/2207 VRB03KT BECMG 2211/2213 05010KT RMK NXT FCST BY 220800Z CYSF 220538Z 2206/2218 FCST NOT AVBL DUE SENSORS INOP RMK FCST BASED ON AUTO OBS. PCPN SENSORS INOP. NXT FCST BY 221200Z CYSJ 220538Z 2206/2218 21005KT 1/2SM FG VV002 TEMPO 2206/2213 1/4SM FG VV001 FM221300 18005KT 2SM -DZ BR FEW002 OVC004 PROB30 2213/2216 OVC003 FM221600 18012KT 6SM -SHRA BR BKN008 OVC015 RMK NXT FCST BY 221200Z CYSM 220538Z 2206/2218 05005KT P6SM FEW060 SCT090 BKN120 FM220900 02005KT P6SM SCT060 OVC100 TEMPO 2209/2218 P6SM -SHRA FEW040 OVC060 BECMG 2213/2215 33012KT RMK NXT FCST BY 221200Z CYSN 211939Z 2120/2201 04007KT P6SM SCT050 BKN080 TEMPO 2120/2201 P6SM -SHRA BKN050 RMK NXT FCST WILL BE ISSUED AT 221245Z CYSP 211928Z 2119/2121 03015G25KT P6SM BKN007 BKN010 OVC040 TEMPO 2119/2121 SCT010 OVC040 RMK NXT FCST WILL BE ISSUED AT 221345Z CYSY 211838Z 2119/2123 28018KT 2SM -SN BR OVC006 TEMPO 2119/2123 P6SM NSW SCT004 OVC020 RMK NXT FCST WILL BE ISSUED AT 221445Z CYTE 220638Z 2207/2219 27005KT P6SM SCT050 BKN110 TEMPO 2207/2212 P6SM -SHRA BKN015 BKN050 BECMG 2207/2209 04008KT FM221200 04008KT P6SM FEW030 BECMG 2215/2217 20010KT RMK FCST BASED ON AUTO OBS. NXT FCST BY 221300Z CYTH 220638Z 2207/2219 VRB03KT P6SM FEW080 SCT210 FM221500 13012KT P6SM BKN120 RMK NXT FCST BY 221300Z CYTL 220138Z 2202/2214 VRB03KT P6SM BKN060 FM220600 12008KT P6SM FEW050 RMK FCST BASED ON AUTO OBS. NXT FCST BY 220800Z CYTR 220530Z 2206/2306 VRB03KT P6SM FEW020 OVC070 TEMPO 2206/2211 P6SM -SHRA BKN013 OVC020 FM221100 06008KT 6SM -SHRA BR SCT008 BKN015 OVC030 TEMPO 2211/2218 4SM SHRA BR BKN008 OVC015 BECMG 2212/2214 06012G22KT FM221800 06010G20KT P6SM -SHRA FEW008 BKN015 OVC025 TEMPO 2218/2306 P6SM NSW SCT015 BKN025 OVC080 BECMG 2221/2223 14008KT RMK NXT FCST BY 221200Z CYTS 220138Z 2202/2214 01005KT P6SM SCT070 BKN200 RMK NXT FCST BY 220800Z CYTZ 220138Z 2202/2302 08012KT P6SM BKN050 TEMPO 2202/2211 P6SM -SHRA FM221100 06010G20KT P6SM -SHRA FEW020 OVC060 TEMPO 2211/2214 BKN020 FM221400 04015G25KT P6SM -SHRA OVC020 FM221700 06017KT 3SM -RA BR OVC009 RMK FCST BASED ON AUTO OBS. NXT FCST BY 220800Z CYUB 220038Z 2201/2205 29010KT P6SM BKN030 OVC110 RMK NXT FCST WILL BE ISSUED AT 221445Z CYUL 220538Z 2206/2306 10005KT P6SM FEW150 SCT240 FM221100 03006KT P6SM SCT060 BKN160 FM221300 05008G18KT P6SM -SHRA BKN040 OVC100 FM221500 07008G18KT 6SM -SHRA BR BKN020 OVC050 TEMPO 2215/2218 P6SM -SHRA SCT020 OVC050 FM221800 11010G20KT P6SM BKN025 BKN050 TEMPO 2218/2221 P6SM -SHRA FM222100 06012G22KT P6SM OVC015 FM230200 10012KT P6SM -SHRA BKN030 OVC050 RMK NXT FCST BY 220900Z CYUX 220638Z 2207/2219 24012KT P6SM FEW040 FM221300 21012G22KT P6SM SCT040 BKN080 TEMPO 2213/2219 BKN040 RMK FCST BASED ON AUTO OBS. NXT FCST BY 221300Z CYUY 220538Z 2206/2218 VRB03KT P6SM BKN200 FM221600 05010KT P6SM BKN150 RMK NXT FCST BY 221200Z CYVC 220638Z 2207/2219 VRB15G25KT 4SM TSRA BKN020 OVC040CB TEMPO 2207/2210 12006KT P6SM -SHRA OVC040 FM221000 14010KT P6SM BKN025 TEMPO 2210/2219 P6SM -SHRA BKN015 RMK NXT FCST BY 221300Z CYVM 220638Z 2207/2219 21008KT P6SM BKN060 TEMPO 2207/2210 P6SM -SHRA FM221000 VRB03KT P6SM FEW060 RMK FCST BASED ON AUTO OBS. NXT FCST BY 221300Z CYVO 220538Z 2206/2218 VRB03KT P6SM BKN170 FM221600 05010KT P6SM BKN150 RMK FCST BASED ON AUTO OBS. NXT FCST BY 221200Z CYVP 220538Z 2206/2218 VRB03KT P6SM FEW040 BECMG 2210/2212 23007KT RMK NXT FCST BY 221200Z CYVQ 220538Z 2206/2218 28005KT P6SM FEW050 BKN270 BECMG 2210/2212 12005KT FM221600 13010KT P6SM SKC RMK NXT FCST BY 221200Z CYVR 220538Z 2206/2312 VRB03KT P6SM SKC BECMG 2215/2217 28010KT BECMG 2302/2304 26005KT FM230900 10006KT P6SM SKC RMK NXT FCST BY 220900Z CYVT 220038Z 2201/2204 25006KT P6SM FEW030 RMK NXT FCST WILL BE ISSUED AT 221345Z CYVV 211939Z 2120/2123 08012KT P6SM FEW030 BKN150 TEMPO 2120/2123 P6SM -SHRA BKN030 BKN150 RMK NXT FCST WILL BE ISSUED AT 221045Z CYWA 220530Z 2206/2218 VRB03KT P6SM BKN140 OVC200 BECMG 2213/2215 08012G22KT FM221600 08012G22KT P6SM OVC060 RMK FCST BASED ON AUTO OBS. NXT FCST BY 221200Z CYWE 211838Z 2119/2201 VRB03KT P6SM SCT015 OVC025 TEMPO 2119/2201 P6SM -SHRA OVC015 RMK FCST BASED ON AUTO OBS. NXT FCST WILL BE ISSUED AT 221245Z CYWG 220538Z 2206/2306 15008KT P6SM FEW050 FM221500 16015KT P6SM SCT040 BKN140 FM222000 18020G30KT P6SM BKN040 TEMPO 2220/2302 P6SM -SHRA PROB30 2220/2302 VRB25G35KT 4SM TSRA BKN040CB FM230200 20010KT P6SM FEW040 RMK NXT FCST BY 221200Z CYWK 220138Z 2202/2214 36005KT P6SM SCT060 BKN240 PROB40 2202/2212 3SM BR OVC005 RMK NXT FCST BY 220800Z CYWL 220640Z 2207/2219 12005KT P6SM FEW040 SCT090 PROB30 2209/2216 1SM BR BKN002 RMK NXT FCST BY 221300Z CYXC 220638Z 2207/2219 33008KT P6SM FEW100 BECMG 2209/2211 27005KT BECMG 2215/2217 VRB03KT RMK NXT FCST BY 221300Z CYXE 220538Z 2206/2306 15010KT P6SM FEW050 BECMG 2208/2210 30012KT FM221200 30012KT P6SM BKN060 TEMPO 2212/2224 P6SM -SHRA BECMG 2218/2220 30018G28KT FM230000 30018G28KT P6SM SCT040 RMK NXT FCST BY 221200Z CYXH 220540Z 2206/2218 30012G22KT P6SM FEW120 RMK FCST BASED ON AUTO OBS. NXT FCST BY 221200Z CYXJ 220640Z 2207/2219 33012G22KT P6SM FEW050 BKN120 TEMPO 2207/2209 P6SM -SHRA BKN050 FM220900 33012KT P6SM -RA SCT020 OVC050 TEMPO 2209/2219 5SM -SHRA BR VCTS SCT007 BKN020CB OVC040 RMK NXT FCST BY 221300Z CYXL 220138Z 2202/2214 10005KT P6SM BKN040 FM220900 09007KT P6SM SCT025 RMK NXT FCST BY 220800Z CYXS 220640Z 2207/2219 VRB03KT P6SM BKN080 TEMPO 2207/2217 P6SM -SHRA BKN050 FM221700 03007KT P6SM BKN050 TEMPO 2217/2219 P6SM -SHRA VCTS SCT030 BKN050CB RMK FCST BASED ON AUTO OBS. NXT FCST BY 221300Z CYXT 220640Z 2207/2219 17008KT P6SM FEW120 SCT220 RMK NXT FCST BY 221300Z CYXU 220538Z 2206/2306 08010G20KT P6SM SCT030 BKN150 FM220800 07010G20KT P6SM SCT040 BKN120 TEMPO 2208/2212 P6SM -SHRA BKN040 FM221200 09012G22KT P6SM -SHRA BKN025 OVC100 TEMPO 2212/2215 OVC020 FM221500 07010KT 6SM -SHRA BR BKN008 OVC025 FM221700 04010KT P6SM -SHRA OVC025 TEMPO 2217/2222 OVC015 FM222200 36008KT P6SM BKN025 BECMG 2301/2303 05005KT RMK NXT FCST BY 221200Z CYXX 220538Z 2206/2306 VRB03KT P6SM SKC BECMG 2219/2221 22008KT BECMG 2303/2305 VRB03KT RMK NXT FCST BY 221200Z CYXY 220538Z 2206/2306 32005KT P6SM FEW080 SCT240 BECMG 2206/2208 VRB03KT BECMG 2215/2217 12008KT RMK NXT FCST BY 221200Z CYXZ 211940Z 2120/2124 04007KT 6SM FU BKN070 OVC120 TEMPO 2120/2124 4SM SHRA BR PROB30 2120/2124 2SM TSRA BR BKN020 OVC050CB RMK NXT FCST WILL BE ISSUED AT 221245Z CYYB 220138Z 2202/2214 07005KT P6SM SCT150 BKN240 BECMG 2203/2205 VRB03KT FM221100 03010KT P6SM BKN170 RMK NXT FCST BY 220800Z CYYC 220540Z 2206/2306 34010KT P6SM SCT060 BKN120 FM221200 32010KT P6SM BKN040 BECMG 2213/2215 34012G22KT FM222000 36012KT P6SM BKN060 TEMPO 2222/2304 VRB20G30KT P6SM -SHRA VCTS BKN040CB RMK NXT FCST BY 220900Z CYYD 220039Z 2201/2206 VRB03KT P6SM FEW060 TEMPO 2201/2206 BKN060 RMK NXT FCST WILL BE ISSUED AT 221345Z CYYE 220640Z 2207/2219 34008KT P6SM SCT040 BKN080 TEMPO 2207/2211 P6SM -SHRA VCTS BKN040CB OVC080 FM221100 34010KT P6SM FEW040 BKN080 TEMPO 2211/2219 P6SM -SHRA BKN040 BKN050 RMK NXT FCST BY 221300Z CYYF 220638Z 2207/2219 35005KT P6SM FEW090 BECMG 2216/2218 36010KT RMK NXT FCST BY 221300Z CYYG 220538Z 2206/2218 16010KT 3SM -DZ BR OVC004 TEMPO 2206/2212 6SM BR FEW004 OVC010 FM221200 21010KT 6SM BR BKN008 OVC015 FM221500 20010KT P6SM FEW015 SCT220 RMK NXT FCST BY 221200Z CYYH 220538Z 2206/2218 22012KT P6SM SCT040 BKN060 TEMPO 2206/2218 P6SM -SHRA BKN040 BECMG 2215/2217 28014KT RMK NXT FCST BY 221200Z CYYJ 220538Z 2206/2306 VRB03KT P6SM FEW250 FM221700 09007KT P6SM SKC BECMG 2303/2305 VRB03KT RMK NXT FCST BY 221200Z CYYL 220638Z 2207/2219 FCST NOT AVBL DUE NO OBS RMK FCST BASED ON AUTO OBS. NXT FCST BY 221300Z CYYN 220538Z 2206/2218 13008KT P6SM FEW150 TEMPO 2206/2215 P6SM VCTS BKN060CB BECMG 2208/2210 28012KT FM221500 30020G30KT P6SM FEW060 RMK FCST BASED ON AUTO OBS. NXT FCST BY 221200Z CYYQ 220538Z 2206/2306 15010KT P6SM FEW150 BKN250 FM221800 14015KT P6SM BKN060 FM230400 10012KT P6SM -SHRA BKN060 RMK NXT FCST BY 221200Z CYYR 220530Z 2206/2306 VRB03KT P6SM FEW110 SCT240 TEMPO 2206/2209 BKN110 OVC240 FM220900 06005KT P6SM FEW010 BKN080 OVC200 TEMPO 2209/2212 BKN010 OVC080 BECMG 2210/2212 06010KT FM222100 06008KT 6SM -SHRA BR BKN012 OVC030 RMK NXT FCST BY 221200Z CYYT 220538Z 2206/2306 25010KT P6SM FEW008 BKN070 TEMPO 2206/2209 5SM -SHRA BR OVC008 FM220900 24010KT 5SM -SHRA BR OVC004 TEMPO 2209/2215 P6SM NSW SCT004 OVC010 PROB30 2209/2215 1SM SHRA BR OVC003 FM221500 25012G22KT P6SM SCT004 OVC012 TEMPO 2215/2224 5SM -SHRA BR OVC004 BECMG 2216/2218 25018G28KT FM230000 25018G28KT 2SM -DZ BR OVC003 RMK NXT FCST BY 221200Z CYYU 220138Z 2202/2214 02007KT P6SM BKN150 RMK NXT FCST BY 220800Z CYYY 220138Z 2202/2214 VRB03KT P6SM FEW100 SCT240 RMK NXT FCST BY 220800Z CYYZ 220538Z 2206/2312 11012G22KT P6SM -SHRA OVC050 FM221300 05010G20KT P6SM -SHRA OVC030 TEMPO 2213/2217 OVC020 FM221700 02012KT P6SM -SHRA SCT008 OVC015 TEMPO 2217/2221 BKN008 FM222100 12008KT P6SM BKN020 FM230300 VRB03KT P6SM SCT020 BKN040 RMK NXT FCST BY 220900Z CYZE 211940Z 2120/2122 10009KT P6SM SCT030 BKN080 RMK FCST BASED ON AUTO OBS. NXT FCST WILL BE ISSUED AT 220945Z CYZF 220538Z 2206/2306 03015G25KT P6SM FEW060 SCT230 TEMPO 2206/2210 BKN060 FM222200 02012G22KT P6SM SKC BECMG 2304/2306 03007KT RMK NXT FCST BY 221200Z CYZH 220640Z 2207/2219 30012KT P6SM SCT012 OVC040 TEMPO 2207/2210 4SM -RA BR SCT006 OVC012 PROB30 2207/2210 OVC006 FM221000 29015G25KT P6SM SCT012 TEMPO 2210/2216 BKN012 RMK FCST BASED ON AUTO OBS. NXT FCST BY 221300Z CYZP 220638Z 2207/2219 VRB03KT P6SM FEW010 TEMPO 2209/2216 SCT005 BKN010 RMK FCST BASED ON AUTO OBS. NXT FCST BY 221300Z CYZR 211939Z 2120/2202 15010KT P6SM SCT020 OVC030 TEMPO 2120/2202 P6SM -SHRA OVC020 PROB30 2120/2122 VRB17G27KT 2SM TSRA BR BKN008 OVC020CB RMK FCST BASED ON AUTO OBS. NXT FCST WILL BE ISSUED AT 220745Z CYZS 220638Z 2207/2219 09008KT P6SM FEW030 FM220900 16010KT P6SM SCT015 TEMPO 2209/2216 BKN015 PROB30 2209/2216 BKN005 FM221600 20015KT P6SM FEW020 RMK NXT FCST BY 221300Z CYZT 220638Z 2207/2219 VRB03KT P6SM SCT006 OVC012 TEMPO 2207/2217 2SM BR OVC006 RMK NXT FCST BY 221300Z CYZU 211838Z 2119/2123 19008KT P6SM SCT040 BKN080 TEMPO 2119/2121 P6SM -SHRA BKN040 BKN080 FM212100 30008KT P6SM BKN040 OVC070 TEMPO 2121/2123 P6SM -SHRA PROB40 2121/2123 VRB20G30KT 4SM TSRA BKN015CB RMK NXT FCST WILL BE ISSUED AT 221415Z CYZV 220612Z 2206/2306 07010KT P6SM FEW007 BKN240 TEMPO 2206/2209 5SM BR BKN007 OVC240 FM220900 08010KT 1/2SM FG VV002 FM221500 08010KT 6SM -DZ BR BKN005 FM221900 10010KT P6SM FEW005 BKN012 FM230000 09008KT 2SM BR OVC005 FM230300 08005KT 1/2SM FG VV002 RMK NXT FCST BY 221200Z CYZX 220530Z 2206/2306 VRB03KT P6SM SCT030 TEMPO 2207/2208 SCT005 BKN012 FM220800 VRB03KT P6SM SCT003 BKN012 TEMPO 2208/2211 11/2SM BR OVC003 PROB30 2208/2211 1/2SM FG OVC002 FM221100 VRB03KT 6SM BR SCT005 OVC010 TEMPO 2211/2215 11/2SM -SHRA -DZ BR BKN003 OVC008 FM221500 20010KT P6SM SCT010 BKN020 OVC100 TEMPO 2215/2222 2SM -SHRA BR BKN010 OVC025 PROB30 2215/2222 2SM TSRA BR OVC015CB FM222200 19008KT P6SM BKN020 FM230100 18007KT P6SM BKN008 OVC020 FM230400 18007KT 2SM BR OVC005 RMK NXT FCST BY 221200Z CYZY 220640Z 2207/2209 VRB03KT P6SM SCT040 BKN080 TEMPO 2207/2209 6SM -SHRA BR OVC040 RMK FCST BASED ON AUTO OBS. NXT FCST WILL BE ISSUED AT 221445Z CZBF 211938Z 2120/2203 04008KT P6SM SKC FM220000 11005KT P6SM FEW010 RMK NXT FCST WILL BE ISSUED AT 220845Z CZFM 211838Z 2119/2123 VRB03KT P6SM FEW040 RMK NXT FCST WILL BE ISSUED AT 221545Z CZMT 212207Z 2122/2124 30012G22KT P6SM FEW006 SCT012 TEMPO 2122/2124 SCT004 BKN008 RMK NXT FCST WILL BE ISSUED AT 221415Z CZUM 220138Z 2202/2214 VRB03KT P6SM SCT050 TEMPO 2202/2214 P6SM -SHRA BKN050 BECMG 2207/2209 08008KT RMK FCST BASED ON AUTO OBS. NXT FCST BY 220800Z CZVL 220540Z 2206/2218 28010KT P6SM SCT040 BKN200 TEMPO 2206/2210 P6SM -SHRA SCT015 BKN040 OVC080 FM221000 32010KT P6SM -RA BKN025 OVC060 TEMPO 2210/2215 4SM -RA BR BKN008 OVC020 FM221500 32015G25KT P6SM BKN060 TEMPO 2215/2218 P6SM -SHRA BKN030 RMK FCST BASED ON AUTO OBS. NXT FCST BY 221200Z DAAE 220500Z 2206/2306 29008KT 9999 FEW023 PROB30 TEMPO 2206/2210 5000 -TSRA FEW026CB BECMG 2209/2211 04012KT PROB30 TEMPO 2212/2218 FEW023CB BECMG 2221/2223 VRB02KT DAAG 220500Z 2206/2306 VRB02KT 9999 FEW023 SCT090 TEMPO 2206/2210 FEW026CB PROB30 TEMPO 2206/2209 5000 -RA BECMG 2208/2211 01010KT PROB30 TEMPO 2210/2215 FEW026TCU BECMG 2219/2222 VRB02KT PROB40 TEMPO 2222/2304 4000 BR BKN015 DAAJ 220500Z 2206/2306 04008KT 8000 NSC PROB30 TEMPO 2206/2210 4000 HZ BECMG 2209/2212 22010KT BECMG 2218/2221 06010KT DAAS 220500Z 2206/2306 16008KT 9999 FEW030 PROB30 TEMPO 2206/2208 5000 -TSRA FEW023CB BECMG 2210/2212 03013KT PROB30 TEMPO 2212/2220 FEW020CB BECMG 2219/2221 26006KT DAAT 220500Z 2206/2306 06008KT CAVOK BECMG 2209/2212 17010KT BECMG 2215/2218 24010KT BECMG 2220/2223 VRB02KT DAAV 220500Z 2206/2306 29008KT 9999 FEW023 PROB30 TEMPO 2206/2210 5000 -TSRA FEW026CB BECMG 2209/2211 04012KT PROB30 TEMPO 2212/2218 FEW023CB BECMG 2221/2223 VRB02KT DABB 220632Z 2206/2306 16008KT 2000 BR BKN010 PROB30 TEMPO 2206/2210 5000 -TSRA FEW023CB BECMG 2210/2212 04014KT FEW026 PROB30 TEMPO 2213/2220 FEW023CB BECMG 2219/2220 16008KT DABC 220500Z 2206/2306 06008KT 9999 FEW030 PROB40 TEMPO 2206/2210 5000 -TSRA FEW023CB BECMG 2210/2212 03013KT PROB30 TEMPO 2212/2220 FEW020CB BECMG 2219/2221 26006KT DABS 220500Z 2206/2306 33012KT 9000 SCT040 PROB30 TEMPO 2206/2112 5000 -TSRA FEW030CB BECMG 2208/2210 20016KT PROB30 TEMPO 2212/2218 22015G25KT FEW033CB BECMG 2221/2223 01008KT DABT 220500Z 2206/2306 27008KT 8000 SCT030 SCT090 PROB30 TEMPO 2206/2212 5000 -TSRA FEW030CB BECMG 2208/2211 20016KT PROB30 TEMPO 2212/2218 22015G25KT FEW023CB BECMG 2221/2223 29008KT DAOB 220500Z 2206/2306 30008KT 9999 FEW026 SCT200 PROB30 TEMPO 2206/2209 FEW026TCU PROB40 TEMPO 2222/2302 FEW026CB DAOI 220500Z 2206/2306 VRB02KT 9999 SCT026 SCT100 PROB30 TEMPO 2210/2217 34012KT -TSRA FEW026CB DAON 220500Z 2206/2306 VRB02KT 9999 SCT026 BECMG 2208/2210 02012KT PROB30 TEMPO 2211/2217 -TSRA FEW026CB BECMG 2219/2221 VRB02KT DAOO 220500Z 2206/2306 VRB02KT 9000 BKN026 PROB30 TEMPO 2206/2208 3000 BR BKN015 BECMG 2008/2010 36012KT 9999 SCT026 PROB30 TEMPO 2212/2218 -TSRA FEW026CB BECMG 2218/2220 VBR02KT DAUA 220500Z 2206/2306 13012KT 8000 NSC TEMPO 2206/2210 VRB02KT DAUB 220500Z 2206/2306 15014KT 9999 FEW030 TEMPO 2206/2212 17015G25KT PROB40 TEMPO 2206/2212 2000 DRSA FEW023CB BECMG 2116/2118 27008KT DAUG 220500Z 2206/2306 20010KT 8000 SCT040 SCT100 PROB40 TEMPO 2208/2215 22024KT 3000 DRSA DAUH 220500Z 2206/2306 16010KT 8000 FEW040 PROB40 TEMPO 2207/2214 19024KT 3000 DRSA DAUI 220500Z 2206/2306 06010KT 8000 NSC BECMG 2208/2211 16012KT PROB30 TEMPO 2208/2212 16022KT 5000 DRSA BECMG 2218/2221 VRB02KT DAUZ 220500Z 2206/2306 09010KT 8000 NSC PROB30 TEMPO 2214/2218 10020KT 5000 DRSA DBBB 220500Z 2206/2312 VRB02KT 8000 SCT012 TEMPO 2206/2210 4000 SHRA BKN010 BECMG 2208/2210 22010KT TEMPO 2305/2309 BKN010 DFFD 220500Z 2206/2312 20008KT 9999 SCT020 TEMPO 2206/2214 09025G45KT 2500 SQ TSRA SCT020 SCT033CB DGAA 220500Z 2206/2312 26005KT 9999 BKN010 BKN025 TEMPO 2206/2210 8000 RA BKN010 BECMG 2209/2211 BKN020 BECMG 2212/2214 SCT025 DIAP 220500Z 2206/2312 20006KT 8000 SCT012 TEMPO 2206/2212 BKN012 DIBK 220500Z 2206/2306 20008KT 9999 SCT013 TEMPO 2206/2208 4000 BR BKN011 PROB30 TEMPO 2216/2222 TS BKN013 FEW025CB DIYO 220500Z 2206/2306 20004KT 9999 SCT013 TEMPO 2206/2208 4000 BR BKN011 PROB30 TEMPO 2216/2222 TS BKN013 FEW025CB DNAA 220600Z 2206/2312 03002KT 0800 FG BKN004 TEMPO 2207/2208 0200 VV/// BECMG 2210/2212 24005KT 7000 NSW BKN009 TEMPO 2214/2219 TS BKN010 FEW020CB PROB30 TEMPO 2217/2222 09010KT 5000 -TSRA BKN008 FEW018CB BECMG 2222/2224 VRB02KT DNJO 220340Z 2206/2312 20004KT5000 BR BKN003 TEMPO 2206/2207 VRB02KT 3000 BECMG 2208/2210 12012KT 6000 SW BKN006 BECMG 2210/2212 BKN009 FEW017CB TEMPO 2214/2218 08010KT 5000 TSRA BKN005 BECMG 2218/2220 SCT005 DNKA 220340Z 2206/2312 14005KT 9999 SCT007 PROB30 TEMPO 2206/2211 5000 RA BKN007 TEMPO 2214/2218 24010KT TS BKN010 FEW020CB DNKN 220330Z 2206/2312 22010KT 9999 FEW012 TEMPO 2214/2220 TS BKN013 FEW020CB DNMA 220330Z 2206/2312 27012KT CAVOK TEMPO 2214/2219 07020KT 5000 TSRA BKN013 FEW020CB DNMM 220350Z 2206/2312 VRB02KT 7000 SCT008 TEMPO 2206/2207 5000 BR BECMG 2208/2210 20010KT BKN013 TEMPO 2210/2215 BKN013 FEW020CB DNSO 220330Z 2206/2312 20012KT CAVOK TEMPO 2212/2217 BKN013 DNYO 220330Z 2206/2312 24008KT 9999 FEW011 TEMPO 2213/2218 07020KT 5000 TSRA BKN012 FEW020CB DRRN 220500Z 2206/2312 22010KT 8000 NSC PROB30 TEMPO 2208/2211 4000 TSSHRA FEW030 FEW033CB PROB40 TEMPO 2300/2304 08020G35KT 1000 SQ BLDU TSRA SCT030 SCT033CB DRZA 220500Z 2206/2306 28008KT 6000 NSC PROB40 TEMPO 2215/2219 08025KT 3000 BLDU TSRA SCT030 FEW033CB DRZR 220500Z 2206/2306 24010KT 8000 FEW030 PROB40 TEMPO 2215/2220 VRB30KT 2000 TSRA SCT030 FEW033CB DTMB 220535Z 2206/2306 36012KT 5000 SCT010 DTNH 220535Z 2206/2306 01012KT 9999 FEW026 DTTA 220535Z 2206/2306 30005KT 9999 FEW033= DTMB 220535Z 2206/2306 36012KT 5000 SCT010 DTTJ 220535Z 2206/2306 35010KT CAVOK DTTX 220535Z 2206/2306 02005KT CAVOK DTTZ 220535Z 2206/2306 13010KT CAVOK DXNG 220511Z 2206/2306 22008KT 9999 SCT008 BECMG 2210/2212 BKN008 FEW016CB PROB40 TEMPO 2214/2220 4000 TSRA BECMG 2220/2222 SCT006 DXXX 220500Z 2206/2312 26004KT 9999 SCT013 BECMG 2208/2210 20012KT TEMPO 2212/2218 BKN012 BECMG 2300/2302 26005KT EBBR 220510Z 2206/2312 28005KT 9999 FEW040= EDDF 220500Z 2206/2312 VRB03KT CAVOK BECMG 2206/2209 22005KT BECMG 2212/2215 32006KT PROB30 TEMPO 2213/2219 34015G25KT 4000 TSRA SCT040CB BECMG 2219/2222 VRB03KT EBCI 220510Z 2206/2312 31005KT 9999 FEW040 EBLG 220510Z 2206/2312 34005KT 9999 FEW040 EBOS 220510Z 2206/2312 27007KT 3500 BR FEW040 BECMG 2206/2208 9999 NSW EDDB 220500Z 2206/2306 36004KT CAVOK BECMG 2212/2216 06005KT BECMG 2217/2219 29004KT EDDC 220500Z 2206/2306 01004KT CAVOK BECMG 2208/2210 01009KT BECMG 2218/2220 25004KT PROB30 TEMPO 2303/2306 4000 -RA BKN009 EDDE 220500Z 2206/2306 27004KT 9999 FEW030 PROB30 TEMPO 2207/2210 4500 RA BKN014 EDDF 220500Z 2206/2312 VRB03KT CAVOK BECMG 2206/2209 22005KT BECMG 2212/2215 32006KT PROB30 TEMPO 2213/2219 34015G25KT 4000 TSRA SCT040CB BECMG 2219/2222 VRB03KT EDDG 220500Z 2206/2306 30009KT CAVOK BECMG 2218/2220 VRB03KT PROB30 TEMPO 2301/2305 2500 BR EDDH 220500Z 2206/2312 VRB03KT CAVOK BECMG 2206/2209 28005KT BECMG 2209/2212 30010KT BECMG 2219/2222 30004KT EDDK 220500Z 2206/2312 32008KT CAVOK BECMG 2218/2220 VRB03KT EDDL 220500Z 2206/2312 30009KT CAVOK BECMG 2218/2221 VRB03KT BECMG 2307/2310 28005KT EDDM 220500Z 2206/2312 27008KT 8000 BKN020 PROB30 TEMPO 2206/2210 4000 RADZ BKN008 TEMPO 2212/2220 3000 SHRA BKN012TCU PROB30 TEMPO 2215/2220 TSRA BKN012CB PROB40 TEMPO 2310/2312 SHRA BKN025CB EDDN 220500Z 2206/2306 33007KT 9999 BKN020 PROB30 TEMPO 2206/2208 4000 RADZ BKN008 PROB30 TEMPO 2212/2218 35015G25KT 4000 TSRA BKN015CB EDDP 220500Z 2206/2306 32005KT CAVOK EDDR 220500Z 2206/2306 VRB03KT CAVOK PROB30 TEMPO 2206/2209 SHRA SCT030CB BECMG 2211/2214 32005KT BECMG 2218/2221 VRB03KT EDDS 220500Z 2206/2306 VRB03KT 9999 FEW010 BKN045 BECMG 2209/2212 32005KT PROB30 TEMPO 2213/2221 30015G25KT 4000 TSRA SCT040CB EDDT 220500Z 2206/2306 36004KT CAVOK BECMG 2212/2216 06005KT BECMG 2217/2219 29004KT EDDV 220500Z 2206/2306 VRB03KT CAVOK BECMG 2206/2209 27005KT TEMPO 2210/2218 29010KT BECMG 2218/2221 VRB03KT EDDW 220500Z 2206/2306 VRB03KT CAVOK BECMG 2206/2209 31007KT TEMPO 2212/2218 32012KT BECMG 2219/2222 VRB03KT PROB30 TEMPO 2302/2305 3000 MIFG EDFH 220500Z 2206/2306 30005KT CAVOK PROB30 TEMPO 2206/2209 SHRA SCT030CB BECMG 2223/2302 VRB03KT EDLP 220500Z 2206/2306 24005KT CAVOK BECMG 2208/2210 30006KT BECMG 2217/2219 VRB03KT EDLV 220500Z 2206/2306 31006KT CAVOK BECMG 2217/2219 VRB03KT EDLW 220500Z 2206/2306 25006KT CAVOK BECMG 2206/2208 31006KT BECMG 2218/2220 VRB03KT EDNY 220500Z 2206/2306 VRB03KT 9999 SCT012 BKN040 BECMG 2206/2209 25006KT TEMPO 2210/2220 SHRA BKN010TCU PROB30 TEMPO 2212/2216 33015G25KT 4000 TSRA BKN012CB BECMG 2219/2221 VRB03KT TEMPO 2302/2306 4000 BR BKN006 EDSB 220500Z 2206/2306 21005KT CAVOK BECMG 2211/2214 33007KT PROB30 TEMPO 2212/2218 35015G25KT 4000 TSRA BKN030CB BECMG 2218/2221 VRB03KT EEEI 220530Z 2206/2306 23006KT 9999 FEW035 PROB30 TEMPO 2206/2207 BKN005 PROB40 TEMPO 2222/2305 VRB02KT 1500 BCFG BKN004 EETN 220515Z 2206/2306 24008KT 9000 SCT005 SCT030 TEMPO 2206/2209 3000 BR BKN002 TEMPO 2209/2216 34010KT SCT010 SCT020CB PROB40 TEMPO 2219/2222 2000 BCFG BR BKN003 PROB40 TEMPO 2222/2405 0500 FG VV002 EFHK 220527Z 2206/2306 22008KT CAVOK TEMPO 2208/2212 FEW040CB PROB30 TEMPO 2300/2305 3000 BR FEW003 EFJY 220527Z 2206/2306 22007KT 9999 FEW010 BKN025 TEMPO 2209/2214 SCT035CB PROB40 TEMPO 2300/2305 3000 BR FEW002 EFKU 220531Z 2206/2306 18005KT 9999 BKN015 TEMPO 2206/2209 BKN005 SCT020CB TEMPO 2209/2212 SHRA SCT020CB EFOU 220531Z 2206/2306 15008KT 9999 FEW008 SCT025 TEMPO 2206/2209 SHRA BKN008 SCT025CB TEMPO 2209/2218 7000 SHRA SCT025CB PROB40 2209/2218 TSRA PROB40 2300/2306 3000 BR BKN004 EFRO 220531Z 2206/2306 12005KT 8000 SCT003 BKN015 TEMPO 2206/2215 4000 SHRA BKN010 SCT020CB PROB40 2206/2215 TSRA TEMPO 2215/2221 SCT030CB PROB30 2215/2221 TSRA TEMPO 2221/2303 BKN005 PROB40 2221/2303 2500 BR BKN004 EFTP 220527Z 2206/2306 22009KT 9999 SCT010 TEMPO 2209/2213 SCT030CB PROB40 TEMPO 2300/2305 1200 BR SCT002 EFTU 220527Z 2206/2306 19008KT CAVOK PROB30 TEMPO 2206/2209 FEW030CB TEMPO 2223/2304 2000 BR FEW002 EFVA 220531Z 2206/2306 21008KT 9999 BKN020 TEMPO 2206/2209 BKN008 SCT030CB TEMPO 2209/2218 SCT030CB PROB40 2209/2215 4000 TSRA TEMPO 2218/2224 BKN012 TEMPO 2300/2306 2000 BR BKN003 EGAA 220609Z 2206/2306 25006KT 9999 SCT012 BKN030 TEMPO 2206/2212 BKN012 PROB40 TEMPO 2206/2211 BKN007 TEMPO 2216/2306 7000 SHRA BKN014 PROB30 2219/2306 BKN008 EGBB 220500Z 2206/2306 32006KT 9999 FEW045 PROB30 2206/2208 8000 EGCC 220604Z 2206/2312 28006KT 9999 SCT015 TEMPO 2206/2214 BKN014 PROB40 TEMPO 2206/2210 4000 -RA BKN007 PROB30 2302/2306 6000 BKN012 EGCN 220454Z 2206/2306 28008KT 9999 SCT030= EGGP 220454Z 2206/2306 29008KT 9999 FEW010 SCT015 TEMPO 2206/2214 BKN010 PROB30 TEMPO 2206/2210 4000 -DZ BKN005 PROB30 2302/2306 6000 BKN012 EGFF 220500Z 2206/2306 28007KT 9999 FEW040 PROB30 2206/2208 8000 EGGD 220454Z 2206/2306 25006KT 9999 FEW040 PROB40 2300/2306 5000 BR BKN004 EGGP 220454Z 2206/2306 29008KT 9999 FEW010 SCT015 TEMPO 2206/2214 BKN010 PROB30 TEMPO 2206/2210 4000 -DZ BKN005 PROB30 2302/2306 6000 BKN012 EGGW 220454Z 2206/2306 32005KT 9999 FEW035 PROB30 2206/2208 8000 PROB30 2303/2306 8000 EGKK 220452Z 2206/2312 25003KT 9999 FEW045 PROB30 2302/2307 7000 EGLL 220502Z 2206/2312 28005KT 9999 FEW045 PROB30 2302/2307 8000 EGNM 220454Z 2206/2306 28014KT 9999 FEW010 PROB30 2206/2210 8000 BKN010 PROB40 2222/2306 8000 BKN008 EGNT 220454Z 2206/2306 27009KT 9999 FEW012 SCT030 TEMPO 2206/2208 BKN012 PROB30 TEMPO 2300/2306 BKN012 EGNX 220500Z 2206/2306 31006KT 9999 FEW035 PROB30 2206/2208 8000 EGPD 220457Z 2206/2306 22005KT 9999 SCT030 BECMG 2212/2215 07010KT BECMG 2219/2221 20005KT EGPF 220457Z 2206/2306 23007KT 9999 BKN010 TEMPO 2206/2212 3000 -RADZ BKN005 BECMG 2212/2215 BKN018 PROB30 TEMPO 2212/2306 4000 -RADZ BKN006 EGPH 220457Z 2206/2306 24012KT 9999 BKN020 TEMPO 2206/2211 6000 -RA BKN008 TEMPO 2300/2306 BKN012 EGPK 220457Z 2206/2306 24008KT 9999 SCT009 BKN015 TEMPO 2206/2212 3000 -RADZ BKN008 PROB40 TEMPO 2206/2212 BKN004 PROB40 TEMPO 2212/2306 4000 -RADZ BKN006 EGQS 220149Z 2203/2221 24012KT 9999 SCT045 TEMPO 2203/2215 BKN018 PROB30 TEMPO 2205/2211 25015G25KT EGSS 220454Z 2206/2312 33005KT 9999 FEW040 PROB30 2206/2208 8000 PROB30 2303/2308 8000 EGUN 220356Z 2204/2310 VRB06KT 9999 FEW045 FEW250 QNH2995INS BECMG 2209/2210 28008KT 9999 BKN045 QNH2997INS TX26/2215Z TN13/2204Z EGVN 220425Z 2206/2306 29004KT 9999 SCT040 PROB30 2303/2306 6000 HZ EGWU 220419Z 2206/2224 26005KT 9999 FEW030 EGXC 220117Z 2203/2221 29004KT 9999 FEW040 PROB30 TEMPO 2208/2211 SCT020 EGXW 220128Z 2203/2221 28007KT CAVOK EGYP 220139Z 2203/2221 26007KT 9999 BKN008 TEMPO 2203/2216 2000 -RADZ BKN004 PROB30 TEMPO 2203/2214 0700 RADZ BKN000 BECMG 2216/2218 BKN018 PROB30 TEMPO 2218/2221 7000 RA BKN012 EHAM 220431Z 2206/2312 28005KT CAVOK BECMG 2210/2212 30011KT BECMG 2218/2221 VRB03KT PROB40 2300/2306 4000 MIFG BR BECMG 2309/2311 31006KT EHBK 220441Z 2206/2312 28005KT CAVOK BECMG 2211/2214 32011KT BECMG 2218/2221 30005KT EHEH 220516Z 2206/2312 30004KT CAVOK PROB30 TEMPO 2213/2217 31010G20KT FEW050CB BECMG 2222/2301 VRB03KT EHGG 220441Z 2206/2312 31008KT CAVOK BECMG 2223/2302 VRB03KT 2500 BCFG PROB40 2301/2305 0300 BECMG 2305/2307 CAVOK EHRD 220441Z 2206/2312 28005KT CAVOK BECMG 2210/2212 27010KT BECMG 2218/2221 VRB03KT PROB40 2300/2306 2000 MIFG BR BECMG 2309/2311 30007KT EICK 220500Z 2206/2306 32005KT 9999 BKN006 BECMG 2206/2209 22007KT TEMPO 2206/2209 3000 BR BKN004 BECMG 2209/2212 BKN012 BECMG 2212/2214 BKN020 BECMG 2216/2218 27008KT BECMG 2222/2224 BKN008 PROB30 TEMPO 2300/2304 3000 BR BKN003 BECMG 2303/2306 23007KT EIDW 220500Z 2206/2306 26008KT 9999 SCT020 BKN025 TEMPO 2206/2209 -DZ BKN004 PROB30 TEMPO 2209/2213 BKN010 TEMPO 2303/2306 BKN012 EIKN 220500Z 2206/2306 24010KT 2000 BR BKN003 TEMPO 2206/2208 0200 FG BKN001 BECMG 2211/2213 9999 BKN010 BECMG 2213/2215 BKN015 BECMG 2219/2221 22008KT BECMG 2220/2223 -RA BKN008 TEMPO 2300/2306 2000 BR BKN003 PROB30 TEMPO 2302/2306 0200 FG BKN001 EINN 220500Z 2206/2306 26007KT 9999 BKN006 TEMPO 2206/2209 3000 -DZ BR BKN004 BECMG 2210/2212 BKN012 TEMPO 2214/2224 BKN016 BECMG 2301/2303 22007KT EKAH 220520Z 2206/2306 26008KT 9999 SCT030 BECMG 2303/2306 BKN010 EKBI 220520Z 2206/2306 29008KT 9999 SCT030 BECMG 2223/2301 BKN008 TEMPO 2301/2306 BKN015 EKCH 220520Z 2206/2306 VRB03KT CAVOK BECMG 2209/2212 18010KT BECMG 2217/2220 VRB03KT EKKA 220514Z 2206/2306 27008KT 9999 FEW040 TEMPO 2212/2218 28010G20KT TEMPO 2222/2306 4000 BR BKN008 EKSP 220514Z 2206/2306 28007KT 9999 FEW040 TEMPO 2212/2218 29010G20KT TEMPO 2223/2306 4000 BR BKN008 EKYT 220514Z 2206/2306 26015KT 9999 FEW030 TEMPO 2208/2218 27015G25KT TEMPO 2223/2305 BKN008 ELLX 220500Z 2206/2312 32007KT CAVOK ENAN 220500Z 2206/2306 30010KT 9999 BKN005 BECMG 2208/2210 03010KT FEW005 SCT030 BECMG 2217/2219 VRB05KT ENBO 220500Z 2206/2306 VRB05KT 9999 FEW005 SCT040 TEMPO 2206/2209 BKN007 ENBR 220500Z 2206/2306 22005KT 9999 FEW010 BKN020 BECMG 2215/2217 BKN012 TEMPO 2216/2224 3000 DZRA BR BKN005 ENDU 220500Z 2206/2306 VRB05KT 9999 FEW005 SCT040 TEMPO 2206/2209 BKN004 ENGC 220500Z 2206/2306 21020KT 9999 SCT010 BKN020 TEMPO 2206/2221 3000 RADZ BR BKN008 BECMG 2213/2216 27020KT BECMG 2222/2301 25010KT ENGM 220500Z 2206/2306 VRB05KT CAVOK PROB40 2206/2207 3000 BCFG BKN004 BECMG 2209/2211 18010KT BECMG 2222/2224 VRB05KT PROB30 2301/2305 2000 BCFG BKN002 ENNA 220500Z 2206/2306 VRB08KT 9999 SCT020 BKN040 TEMPO 2209/2215 4000 SHRA SCT008 BKN030CB PROB30 TEMPO 2209/2215 TSRA ENOA 220500Z 2206/2306 21010KT 9999 SCT008 BKN020 BECMG 2206/2208 20020KT TEMPO 2206/2224 3000 RADZ BR BKN008 BECMG 2213/2216 27020KT BECMG 2220/2223 25008KT ENOL 220500Z 2206/2306 12007KT 9999 FEW030 SCT060 BECMG 2209/2211 33010KT BECMG 2217/2220 VRB07KT BECMG 2223/2302 25010KT BKN014 PROB30 TEMPO 2300/2306 4000 -RADZ BR BKN008 ENRY 220500Z 2206/2306 16008KT 9999 FEW010 PROB40 2302/2306 BKN004 ENSB 220500Z 2206/2306 12010KT 9999 -RA FEW012 BKN030 TEMPO 2206/2306 VRB05KT ENTC 220500Z 2206/2306 VRB05KT 9999 FEW004 SCT040 TEMPO 2206/2209 4000 BCFG BKN003 ENTO 220500Z 2206/2306 03005KT 9999 FEW010 BECMG 2213/2215 17010KT BECMG 2222/2224 02005KT PROB40 2300/2305 1500 BCFG BKN002 ENVA 220500Z 2206/2306 VRB05KT 9999 FEW030 SCT080 BECMG 2210/2212 28010KT TEMPO 2302/2306 RADZ BKN008 ENZV 220500Z 2206/2306 24005KT 9999 FEW010 BKN025 PROB30 TEMPO 2215/2303 BKN012 EPBY 220530Z 2206/2306 01005KT CAVOK= EPGD 220530Z 2206/2306 VRB02KT CAVOK BECMG 2208/2210 02010KT BECMG 2221/2223 VRB02KT EPGD 220530Z 2206/2306 VRB02KT CAVOK BECMG 2208/2210 02010KT BECMG 2221/2223 VRB02KT EPKK 220530Z 2206/2306 VRB02KT CAVOK TEMPO 2212/2218 07010KT SCT040TCU EPKT 220530Z 2206/2306 04007KT CAVOK PROB30 TEMPO 2212/2218 SCT040TCU EPLL 220530Z 2206/2306 VRB03KT CAVOK BECMG 2212/2214 36010KT EPMO 220530Z 2206/2306 VRB04KT CAVOK BECMG 2211/2214 35010KT EPPO 220530Z 2206/2306 35006KT CAVOK EPRZ 220530Z 2206/2306 VRB02KT CAVOK TEMPO 2212/2218 04010KT SCT040TCU EPSC 220530Z 2206/2306 VRB04KT CAVOK PROB40 TEMPO 2213/2218 BKN040CB EPWA 220530Z 2206/2306 VRB02KT CAVOK BECMG 2209/2212 34010KT EPWR 220530Z 2206/2306 29006KT CAVOK ESGG 220606Z 2206/2306 23010KT 9999 BKN020 PROB40 2206/2208 BKN014 PROB40 2223/2303 BKN012 PROB40 2303/2306 BKN008 ESKN 220530Z 2206/2306 26010KT CAVOK PROB40 2214/2218 16010KT BECMG 2220/2222 VRB03KT ESMS 220515Z 2206/2306 VRB03KT CAVOK BECMG 2206/2209 22010KT BECMG 2217/2220 VRB03KT ESSA 220530Z 2206/2306 25012KT CAVOK BECMG 2219/2221 VRB02KT ETAD 220307Z 2203/2309 33006KT 9999 SCT050 BKN100 QNH2992INS BECMG 2212/2213 33009KT 9999 SCT060 BKN070 QNH2993INS BECMG 2303/2304 VRB06KT 9999 SCT030 BKN100 QNH2994INS TX26/2212Z TN14/2203Z LAST NO AMDS AFT 2203 NEXT 2210 ETAR 220216Z 2202/2308 VRB06KT 9999 BKN050 QNH2992INS BECMG 2207/2208 32009KT 9999 BKN050 QNH2993INS BECMG 2215/2216 VRB06KT 9999 SCT050 BKN180 QNH2994INS TX26/2215Z TN14/2203Z ETIC 220612Z 2206/2312 VRB06KT 8000 -SHRA FEW015 BKN060 QNH2990INS BECMG 2210/2211 02009KT 9999 NSW FEW060 SCT100 QNH2992INS BECMG 2219/2220 31006KT 8000 BR BKN060 QNH2997INS BECMG 2305/2306 30006KT 9999 NSW BKN065 QNH3001INS TX23/2213Z TN15/2304Z EVLA 220202Z 2203/2303 VRB02KT 0400 FG BKN001 BECMG 2205/2206 4000 BR BKN004 BECMG 2206/2208 8000 NSW SCT005 BECMG 2208/2210 27010KT BECMG 2218/2220 VRB02KT TEMPO 2222/2303 0500 FG VV002 EVRA 220200Z 2203/2303 VRB02KT 3000 MIFG BR SCT002 TEMPO 2203/2206 0400 FG BKN002 BECMG 2206/2208 8000 NSW BECMG 2210/2212 36007KT EYVI 220504Z 2206/2306 VRB05KT 9000 FEW030 TEMPO 2209/2218 35015KT SCT030CB TEMPO 2300/2304 3000 MIFG BR SCT003 FAGG 220200Z 2200/2224 35008KT CAVOK TEMPO 2204/2213 36010G23KT TX29/2212Z TN15/2203Z FCBB 220500Z 2206/2312 24005KT 3000 BR BKN020 BECMG 2207/2209 7000 NSW PROB30 2305/2308 3000 BR FCPP 220500Z 2206/2306 18006KT 4000 BR SCT010 BKN023 BECMG 2207/2209 8000 NSW BECMG 2223/2302 3000 BR FEFF 220500Z 2206/2312 VRB02KT 8000 FEW010 BECMG 2207/2208 BKN013 BECMG 2209/2211 BKN026 FEW040CB PROB40 2214/2218 VRB15KT 4000 TSRA FGBT 220500Z 2206/2306 16006KT 9999 SCT010 TEMPO 2212/2215 BKN010 FEW020CB TEMPO 2215/2221 TS BKN012 FEW020CB TEMPO 2300/2306 4000 TSRA BKN008 FEW018CB FGSL 220500Z 2206/2312 23006KT 9999 SCT010 TEMPO 2206/2210 4000 TSRA BKN008 FEW018CB BECMG 2210/2212 BKN010 FEW020CB TEMPO 2303/2312 4000 TSRA BKN008 FEW016CB FIMP 220515Z 2206/2312 13010G20KT 9999 SCT015 TEMPO 2206/2212 5000 -SHRA FEW008 BKN014 BKN045 PROB30 TEMPO 2215/2302 7000 -SHRA FEW010 BKN014 BKN050 FIMR 220520Z 2206/2300 09015G30KT 9999 SCT018 TEMPO 7000 -SHRA FEW010 BKN015 BKN050 FJDG 220230Z 2202/2307 14018KT 9999 FEW020 SCT250 QNH2988INS TX29/2210Z TN25/2302Z FKKD 220500Z 2206/2312 VRB05KT 9999 SCT003 BKN013 FEW016CB PROB40 TEMPO 2206/2209 4000 TSRADZ BECMG 2210/2212 BKN16 FEW020CB TEMPO 2222/2307 4000 TSRA BKN013 FEW016CB FKYS 220500Z 2206/2306 VRB03KT 3000 BR BKN006 BECMG 2207/2209 6000 NSW BKN016 TEMPO 2214/2221 TS BKN013 FEW020CB BECMG 2221/2223 BKN006 FMCH 220500Z 2206/2312 12008KT 9999 FEW020TCU SCT030 BKN080 BECMG 2207/2209 20013KT BECMG 2216/2218 11003KT PROB40 TEMPO 2304/2309 12013KT 4000 SHRA FMCZ 220500Z 2206/2306 16015KT 9999 SCT030 BECMG 2212/2214 09005KT BECMG 2223/2301 16018KT TEMPO 2222/2303 18015G25KT 3000 SHRA FEW015TCU FMEE 220500Z 2206/2312 11018G28KT 9999 SCT040 BECMG 2214/2216 15008KT BECMG 2223/2301 VRB02KT BECMG 2305/2307 11018KT FMMI 220500Z 2206/2312 14008KT 9999 FEW017 SCT020 PROB40 TEMPO 2304/2312 12015G25KT FMNM 220500Z 2206/2306 14008KT 9999 FEW023 SCT040= FMMT 220500Z 2206/2306 22010KT 9000 FEW007 SCT017 BKN033 TEMPO 2206/2306 3000 RA PROB40 TEMPO 2210/2218 18015G25KT FNLU 220500Z 2206/2312 VRB03KT 5000 BR FEW015 BKN020 BECMG 2212/2214 26012KT CAVOK BECMG 2218/2220 20010KT BECMG 2300/2302 9000 BKN020 TEMPO 2306/2310 7000 FEW018 SCT020 FOOG 220500Z 2206/2306 17007KT 7000 SCT008 BKN030 PROB30 TEMPO 2206/2209 4500 BR BKN006 OVC033 FOOL 220500Z 2206/2312 15010KT 8000 SCT013 TEMPO 2206/2209 BKN008 OVC030 FSIA 220503Z 2206/2306 15015KT 9999 SCT020 PROB40 TEMPO 2212/2218 -SHRA FEW012 BKN016 FTTJ 220500Z 2206/2312 18008KT CAVOK TEMPO 2213/2220 VRB15G30KT 3500 TSRA FZAA 220500Z 2206/2312 24004KT 3000 BR BKN014 FM221200 31010KT 6000 NSW NSC BECMG 2215/2217 23004KT BECMG 2305/2307 2000 BROVC014 GABS 220530Z 2206/2312 20008KT 9999 SCT020 PROB40 TEMPO 2206/2210 4000 TS SHRA SCT020 FEW030CB TEMPO 2214/2222 10015G35KT 3000 TSRA BKN020 SCT030CB PROB40 TEMPO 2301/2306 VRB15G35KT 2500 TSRA BKN020 SCT030CB GAGO 220530Z 2206/2306 23012KT 6000 FEW030 PROB40 TEMPO 2206/2208 3000 HZ TEMPO 2208/2214 10015G40KT 2000 BLDU TSRA BKN026 FEW033CB PROB30 TEMPO 2214/2222 TSRA FEW030 FEW033 GBYD 220530Z 2206/2312 26007KT 9999 SCT014 GCFV 220200Z 2203/2303 35011KT 9999 FEW020 TX28/2214Z TN21/2205Z BECMG 2207/2210 05015KT PROB30 TEMPO 2213/2219 05015G25KT BECMG 2220/2224 35010KT GCGM 220200Z 2203/2303 VRB03KT CAVOK TX26/2214Z TN20/2205Z= GCHI 220200Z 2203/2303 35021KT 9999 SCT025 TX26/2214Z TN21/2205Z PROB30 TEMPO 2203/2303 36021G31KT GCHI 220200Z 2203/2303 35021KT 9999 SCT025 TX26/2214Z TN21/2205Z PROB30 TEMPO 2203/2303 36021G31KT GCLA 220200Z 2203/2303 03011KT 9999 SCT025 TX25/2214Z TN20/2205Z PROB30 TEMPO 2203/2208 33008KT PROB30 TEMPO 2212/2218 03015G25KT GCLP 220200Z 2203/2303 36022KT 9999 SCT020 TX27/2214Z TN21/2205Z PROB40 TEMPO 2203/2208 36022G32KT TEMPO 2208/2219 36026G36KT GCRR 220200Z 2203/2303 36019KT 9999 FEW020 TX27/2214Z TN21/2205Z PROB40 TEMPO 2203/2220 36019G29KT GCTS 220200Z 2203/2303 04010KT CAVOK TX28/2214Z TN21/2205Z PROB40 TEMPO 2203/2210 VRB04KT BECMG 2208/2210 08020KT BECMG 2220/2222 04010KT GCXO 220200Z 2203/2303 30019KT 9999 BKN008 TX22/2214Z TN16/2205Z PROB40 TEMPO 2203/2209 3500 BCFG BKN004 PROB30 TEMPO 2203/2208 0800 FG BKN001 BECMG 2208/2210 SCT012 GEML 220200Z 2203/2303 28007KT CAVOK TX30/2216Z TN19/2302Z PROB40 TEMPO 2203/2208 4000 BR BKN009 GFLL 220500Z 2206/2312 24010KT 7000 RA BKN010 FEW026CB TEMPO 2216/2220 27008KT 7000 RA BKN010 TEMPO 2300/2304 VRB03KT 9999 SCT013 GMAD 220500Z 2206/2312 06008KT 8000 SCT020= GMME 220500Z 2206/2312 VRB02KT 6000 SCT015 TEMPO 2206/2208 3000 BR SCT008 SCT015 BECMG 2209/2212 32008KT 5000 NSW NSC TEMPO 2212/2218 CAVOK GMFF 220500Z 2206/2312 24006KT 9999 SCT033 SCT100 BECMG 2210/2214 32012KT CAVOK GMFM 220500Z 2206/2312 VRB02KT 6000 SCT016 SCT100 BECMG 2212/2216 32010KT 9999 SCT023 SCT100 BECMG 2222/2302 VRB02KT CAVOK GMFO 220500Z 2206/2312 36016KT 9999 FEW026 BKN120 BKN200 TEMPO 2220/2310 24006KT GMME 220500Z 2206/2312 VRB02KT 6000 SCT015 TEMPO 2206/2208 3000 BR SCT008 SCT015 BECMG 2209/2212 32008KT 5000 NSW NSC TEMPO 2212/2218 CAVOK GMMH 220500Z 2206/2312 02019KT 6000 NSC GMMI 220500Z 2206/2312 02009KT 8000 NSC= GMML 220500Z 2206/2312 03020KT 8000 OVC017 BECMG 2210/2212 CAVOK GMML 220500Z 2206/2312 03020KT 8000 OVC017 BECMG 2210/2212 CAVOK GMMN 220500Z 2206/2312 34006KT 9999 SCT010 SCT016 BECMG 2211/2213 36014KT BECMG 2219/2221 02005KT TEMPO 2300/2308 BKN010 GMMW 220500Z 2206/2312 28008KT CAVOK GMMX 220500Z 2206/2312 24006KT 8000 NSC TEMPO 2214/2220 34015KT SCT033 GMMZ 220500Z 2206/2312 VRB02KT 6000 NSC TEMPO 2213/2218 18014KT GMTA 220500Z 2206/2312 01003KT 9999 FEW026 GMTT 220500Z 2206/2312 21004KT 8000 FEW016 BECMG 2209/2211 29012KT TEMPO 2223/2309 VRB02KT 4000 BR SCT010 GOBD 220530Z 2206/2312 30008KT 9999 SCT013 GOGS 220530Z 2206/2306 30007KT 9999 SCT013= KWRI 220515Z 2205/2308 08015G25KT 6000 -SHRA SCT007 OVC015 510109 QNH2952INS TEMPO 2205/2206 12025G35KT 510004 BECMG 2205/2206 15015G25KT 9000 -SHRA OVC005 510109 QNH2951INS BECMG 2208/2209 18012KT 9999 NSW OVC005 510109 QNH2962INS BECMG 2215/2216 17012G18KT 9999 OVC007 QNH2985INS BECMG 2217/2218 17015G25KT 9999 OVC010 QNH2988INS BECMG 2220/2221 17015G25KT 9000 -SHRA OVC010 QNH2989INS TX28/2217Z TN21/2206Z GOOY 220530Z 2206/2312 28008KT 9999 SCT013= GBYD 220530Z 2206/2312 26007KT 9999 SCT014 GOSS 220530Z 2206/2306 28008KT 9999 SCT013 GQNO 220500Z 2206/2312 27012KT 6000 NSC GQPP 220500Z 2206/2306 36015KT 7000 NSC PROB30 TEMPO 2206/2210 BKN006 TEMPO 2214/2220 3000 DRSA GUCY 220500Z 2206/2312 27006KT 9999 SCT015 BKN110 BECMG 2206/2210 20010KT 5000 -TSRA BKN013 FEW020CB BKN100 TEMPO 2218/2223 16014KT 4000 TSRA BKN013 FEW020CB OVC090 GVAC 220500Z 2206/2312 01008KT 9999 SCT013 BKN017 TEMPO 1917/1921 BKN014 GVNP 220500Z 2206/2312 02010KT 9999 FEW014 BKN018 BECMG 2002/2007 SCT016 GVSV 220500Z 2206/2312 06012KT 9999 SCT018 TEMPO 1915/1919 06012G24KT FEW015 BKN020 HBBA 220500Z 2206/2312 36002KT 5000 HZ NSC BECMG2207/2209 18015G25KT 8000 FEW035 BECMG2215/2217 18010KT 9000 NSC BECMG2220/2222 00000KT CAVOK BECMG2302/2304 36003KT 5000 HZ NSC BECMG2307/2309 18015G25KT 8000 FEW035 HDAM 212300Z 2200/2224 VRB03KT 5000 HZ SCT133 BECMG 2206/2212 27010KT 6000 HZ/SA FEW133 BECMG 2212/2215 08011KT HECA 220500Z 2206/2312 32010KT CAVOK= HEAX 220500Z 2206/2312 32012KT 9999 FEW020 HELX 220500Z 2206/2312 32008KT CAVOK HKEL 220500Z 2206/2306 10005KT CAVOK BECMG 2209/2212 FEW024CB SCT026 BECMG 2212/2215 04010KT -SHRA FEW024CB SCT025 BKN080 BECMG 2218/2221 16005KT SCT023 HKJK 220500Z 2206/2312 16005KT 9999 BKN017 BECMG 2206/2209 OVC021 BECMG 2212/2215 21008KT HKKI 220500Z 2206/2306 09005KT 9999 FEW019 SCT080 BECMG 2209/2212 24008KT FEW021CB SCT024 BKN080 TEMPO 2212/2215 -SHRA FEW024CB BKN025 BKN080 BECMG 2218/2221 34005KT TS FEW022CB SCT023 BKN080 HKMO 220500Z 2206/2312 24004KT 8000 SCT020 BKN080 BECMG 2209/2212 18010KT SCT025 SCT080 BECMG 2218/2221 20005KT SCT022 BECMG 2300/2306 00000KT -SHRA BKN018 BECMG2309/2312 21010KT BKN023 BKN080 HRYR 212300Z 2200/2306 VRB02KT 9999 FEW026 BECMG 2203/2206 00000KT FEW025 FM220900 15008KT SCT025 TEMPO 2213/2217 18012KT SCT025 FM222200 32003KT FEW026 BECMG 2303/2306 VRB03KT FEW026 HSSS 220500Z 2206/2312 21010G20KT 9999 FEW040 SCT140 HTDA 220500Z 2206/2312 18010KT 9999 SCT012 BECMG 2218/2221 00000KT FEW013 HTDO 220500Z 2206/2306 09010KT 9999 NSC HTKJ 220500Z 2206/2306 00000KT 9999 BKN025 BKN080 BECMG 2210/2213 09005KT SCT028 BKN090 HTMW 220500Z 2206/2306 12010KT CAVOK BECMG 2212/2214 33010KT 9999 FEW027 BECMG 2300/2302 18010KT CAVOK HTZA 220500Z 2206/2306 21010KT 9999 SCT018 BECMG 2209/2211 15015KT FEW020 BKN080 BECMG 2303/2305 22015KT BKN018 HUEN 220500Z 2206/2312 20008KT 9999 FEW018 FEW020CB BECMG 2207/2212 18008KT FEW022 FEW024CB FM 221700 22007KT 9999 FEW021 BECMG 2220/2224 35005KT 9000 FEW019 TEMPO 2301/2306 VRB10KT 8000 -TSRA SCT017 FEW019CB BECMG 2307/2312 17006KT 9999 FEW022 FEW024CB KABE 220535Z 2206/2306 05015G22KT 6SM -RA SCT006 OVC015 WS020/16040KT TEMPO 2206/2208 3SM RA OVC006 FM220800 10013KT P6SM VCSH OVC007 FM221200 17009KT P6SM BKN009 FM221700 15008KT P6SM VCSH BKN020 FM222000 15008KT 5SM -SHRA OVC040 KABI 220551Z 2206/2306 15009KT P6SM FEW250 FM221500 24012KT P6SM SKC FM221800 18008KT P6SM SKC KABQ 220539Z 2206/2306 12008KT P6SM FEW110 FM220800 VRB06KT P6SM SKC FM221900 25006KT P6SM SCT110 FM230400 VRB06KT P6SM FEW110 KABR 220527Z 2206/2306 09006KT P6SM SCT120 BKN200 FM221500 17010KT P6SM SCT040 FM230100 17007KT P6SM -SHRA VCTS BKN070CB KABY 220521Z 2206/2306 24004KT P6SM SCT025 FM221700 25008KT P6SM VCTS SCT040CB FM230000 22004KT P6SM BKN050 BKN100 KACK 220533Z 2206/2306 11013G20KT 1/2SM -RA FG VV002 FM220800 13013G20KT 1SM -RA BR OVC003 FM221300 15015KT 2SM -RA BR OVC005 WS020/16040KT FM222200 14013G21KT 3SM -RA BR OVC008 FM230000 15016G23KT P6SM VCSH OVC015 KACT 220520Z 2206/2306 19009KT P6SM SCT300 KACV 220520Z 2206/2306 14003KT 6SM HZ BKN040 FM221100 15003KT 5SM BR SCT005 FM221900 28006KT 6SM BR BKN035 FM230300 16003KT 6SM HZ BKN003 KACY 220535Z 2206/2306 15016G29KT P6SM VCSH OVC015 WS020/16040KT FM220800 17014G24KT P6SM OVC009 FM221400 17012KT P6SM BKN025 FM221900 15012G22KT P6SM VCSH BKN035 KADF 220539Z 2206/2306 VRB04KT P6SM SKC FM230000 34004KT P6SM BKN250 KADW 220635Z 2206/2307 04012KT 4800 -SHRA BKN006 BKN016 OVC020 QNH2964INS BECMG 2208/2209 26009KT 9999 NSW OVC009 QNH2968INS BECMG 2214/2215 14006KT 9999 BKN015 OVC030 QNH2975INS BECMG 2217/2218 14012KT 9000 -SHRA BKN015 OVC030 QNH2972INS TEMPO 2223/2303 10015G25KT -TSRA BKN015CB OVC025 TX27/2220Z TN18/2208Z KAEG 220539Z 2206/2306 12008KT P6SM FEW110 FM220800 VRB06KT P6SM SKC FM221900 24007KT P6SM SCT110 FM230400 VRB05KT P6SM FEW110 KAEX 220520Z 2206/2306 VRB04KT P6SM SKC TEMPO 2211/2214 4SM BR FEW015 FM221500 27008KT P6SM SKC FM230100 VRB04KT P6SM SKC KAFW 220520Z 2206/2306 19009KT P6SM FEW300 FM221200 26007KT P6SM BKN300 FM222100 VRB03KT P6SM FEW200 SCT300 KAGC 220528Z 2206/2306 07005KT P6SM BKN100 FM221000 VRB05KT P6SM BKN025 FM221300 15005KT P6SM BKN040 FM222000 10005KT P6SM -SHRA VCTS BKN035CB FM222300 12005KT P6SM BKN070 KAGS 220520Z 2206/2306 VRB10KT P6SM VCTS BKN025CB TEMPO 2206/2207 VRB10G25KT 2SM TSRA OVC020CB FM220700 VRB05KT P6SM SCT012 BKN100 TEMPO 2209/2212 BKN012 FM221600 26010KT P6SM SCT050 KAHN 220531Z 2206/2306 VRB03KT P6SM SCT040 FM220900 VRB03KT 3SM BR SCT008 SCT250 FM221400 27006KT P6SM SCT035 FM221800 28010G20KT P6SM VCSH BKN045 PROB30 2220/2224 3SM TSRA OVC030CB FM230200 31006KT P6SM VCSH SCT040 BKN080 KAIA 220522Z 2206/2306 17007KT P6SM BKN250 FM221600 30011KT P6SM SKC KALB 220529Z 2206/2306 05006KT P6SM VCSH BKN050 OVC150 FM220700 07012KT P6SM -SHRA OVC040 WS020/11045KT TEMPO 2207/2211 4SM -SHRA BR OVC030 FM221100 13013G20KT P6SM VCSH OVC025 FM221600 16015G22KT P6SM VCSH BKN040 FM230100 15008KT P6SM VCSH BKN025 KALI 220536Z 2206/2306 17008KT P6SM SCT250 FM221000 18005KT 5SM BR SCT012 TEMPO 2211/2213 2SM BR BKN012 FM221330 17008KT P6SM SCT025 FM221600 19012G18KT P6SM SKC FM222100 14015G22KT P6SM SKC FM230200 16012KT P6SM SCT250 KALO 220535Z 2206/2306 35006KT P6SM SKC FM221400 01008KT P6SM SCT060 FM221600 01008KT P6SM FEW025 SCT040 FM222200 02006KT P6SM FEW035 SCT080 KALS 220540Z 2206/2306 15007KT P6SM FEW120 SCT200 FM222100 27012KT P6SM VCTS SCT090CB BKN150 FM230100 36010KT P6SM SCT040 BKN080 KALW 220521Z 2206/2306 14006KT P6SM SKC FM221600 24005KT P6SM SKC FM222100 32006KT P6SM SKC FM230400 08005KT P6SM SKC KAMA 220520Z 2206/2306 20010KT P6SM SKC FM221700 21014KT P6SM FEW090 FM230100 17011KT P6SM SCT200 KANB 220520Z 2206/2306 25003KT P6SM SKC FM221500 27012G18KT P6SM FEW040 FM230000 29007KT P6SM SCT050 KAND 220557Z 2206/2306 23004KT P6SM SCT070 SCT250 FM220800 VRB02KT 5SM BR SCT004 SCT008 TEMPO 2210/2212 2SM BR BKN004 FM221400 25007KT P6SM SCT140 PROB30 2220/2223 4SM -TSRA BKN060CB FM222300 28007KT P6SM BKN060 PROB30 2223/2304 4SM -TSRA OVC025CB NOT SKED KAOO 220636Z 2207/2306 03009KT P6SM -RA OVC035 TEMPO 2207/2208 4SM -RA BR OVC015 FM220800 32006KT 6SM -RA BR SCT007 OVC025 FM221200 25008KT P6SM SCT005 BKN025 FM221500 20008KT P6SM BKN035 FM221800 15009KT 6SM -SHRA VCTS SCT025 BKN050CB FM230100 14007KT 6SM BR BKN012 OVC035 KAPA 220539Z 2206/2306 22008KT P6SM FEW130 BKN200 FM221500 27006KT P6SM SCT110 FM221700 35006KT P6SM SCT110 BKN200 PROB30 2221/2224 VRB20G30KT -TSRA BKN080CB FM230000 35013G21KT P6SM SCT060 BKN100 PROB30 2300/2306 VRB20G30KT -TSRA BKN060CB KAPF 220542Z 2206/2306 24007KT P6SM FEW025 SCT050 SCT120 FM221200 27010KT P6SM VCTS SCT025CB BKN050 FM221800 28013KT P6SM SHRA BKN035 PROB30 2219/2223 VRB15G25KT TSRA BKN035CB FM222300 26011KT P6SM VCTS BKN030CB BKN100 BKN250 KAPN 220527Z 2206/2306 04004KT P6SM OVC040 FM221800 04008KT 6SM -SHRA OVC080 FM230000 01007KT P6SM OVC023 KARA 220520Z 2206/2306 24006KT P6SM SCT250 TEMPO 2212/2215 BKN015 FM221500 27010KT P6SM SKC FM221800 26014G22KT P6SM SKC FM230100 24008KT P6SM SKC KART 220546Z 2206/2306 11006KT P6SM BKN200 FM220900 09009KT P6SM OVC090 FM221000 09010KT 3SM +RA OVC025 FM221200 07013G20KT 6SM -RA OVC025 FM221400 13015G23KT P6SM OVC025 FM222000 17013KT P6SM BKN040 FM230000 16004KT P6SM BKN060 KASD 220520Z 2206/2306 VRB06KT P6SM SKC FM221400 28009KT P6SM FEW250 FM230100 27005KT P6SM FEW250 KASE 220520Z 2206/2306 21006KT P6SM VCSH FEW090 SCT140 FM221800 35005KT P6SM VCTS FEW090CB SCT200 FM222000 34008KT P6SM VCTS FEW080CB SCT140 FM230300 17009KT P6SM SCT080 BKN130 KASN 220520Z 2206/2306 29003KT P6SM SKC FM221500 27012G18KT P6SM FEW040 FM230000 29007KT P6SM SCT050 KAST 220631Z 2207/2306 32007KT P6SM FEW015 FM221000 VRB03KT P6SM FEW002 TEMPO 2210/2214 3SM BR SCT002 FM221700 32010KT P6SM SKC FM222000 34012G20KT P6SM SKC KATL 220531Z 2206/2312 28006KT P6SM FEW040 SCT100 FM220900 28005KT P6SM SCT250 FM221500 29009KT P6SM VCSH SCT035 FM221800 28010G20KT P6SM VCSH BKN045 PROB30 2220/2224 3SM TSRA OVC030CB FM230200 31006KT P6SM VCSH SCT040 BKN080 FM230700 30005KT P6SM SCT035 SCT080 KATW 220520Z 2206/2306 02010G17KT P6SM VCSH SCT008 OVC015 TEMPO 2208/2210 BKN007 FM221000 02010G17KT 5SM -SHRA BR OVC005 FM221500 04011G19KT P6SM OVC012 TEMPO 2216/2217 BKN020 FM221700 04010G16KT P6SM SCT025 BKN070 FM222300 04008KT P6SM SCT080 FM230100 02006KT P6SM SCT100 KATY 220527Z 2206/2306 11006KT P6SM SCT120 BKN200 FM221600 13008KT P6SM SCT040 FM230400 16005KT P6SM -SHRA VCTS BKN070CB KAUG 220520Z 2206/2306 00000KT P6SM SCT250 FM220900 VRB03KT 1/2SM FG OVC008 FM221200 VRB04KT P6SM OVC010 FM221500 14006KT 2SM -SHRA BR OVC003 KAUS 220528Z 2206/2312 18009KT P6SM SCT250 FM221100 19005KT P6SM SCT010 SCT250 TEMPO 2212/2214 6SM BR BKN010 FM221500 19009KT P6SM FEW250 KAUW 220520Z 2206/2306 01010G17KT P6SM BKN015 TEMPO 2209/2213 BKN008 FM221600 02008KT P6SM BKN025 FM221800 02007KT P6SM VCSH BKN040 FM230100 01003KT P6SM SCT150 KAVL 220541Z 2206/2306 33004KT P6SM SCT024 SCT070 BKN250 FM221000 34004KT 5SM BR FEW005 TEMPO 2210/2212 3SM BR BKN004 FM221400 34005KT P6SM BKN050 FM221700 31004KT P6SM -SHRA VCTS BKN050CB FM222300 VRB03KT P6SM BKN060 PROB30 2223/2304 4SM TSRA OVC025CB KAVP 220523Z 2206/2306 06008KT P6SM -RA OVC025 WS020/09045KT TEMPO 2206/2208 3SM RA BR OVC015 FM220800 06008KT 5SM -SHRA BR OVC015 FM221300 14012G25KT P6SM OVC025 FM221700 16010G20KT P6SM BKN040 FM230300 13007KT P6SM BKN025 OVC050 KAXN 220520Z 2206/2306 09005KT P6SM FEW250 FM221700 12009KT P6SM SCT200 FM222100 15008KT P6SM SCT200 FM230300 13005KT P6SM SCT070 BKN200 KAZO 220540Z 2206/2306 VRB03KT P6SM BKN008 OVC030 FM221400 05006KT P6SM VCSH OVC010 FM222200 04007KT P6SM BKN060 KBAB 202350Z 2023/2201 19009KT 9999 FEW150 QNH2980INS TEMPO 2023/2102 18012G18KT BECMG 2103/2104 18009KT 9999 FEW150 QNH2972INS TX36/2023Z TN19/2112Z LAST NO AMDS AFT 2023 NEXT 2211 KBAD 212312Z 2123/2224 23006KT 9999 FEW200 QNH2984INS BECMG 2209/2210 36006KT 9999 FEW250 QNH2979INS TX40/2123Z TN27/2212Z LAST NO AMDS AFT 2123 NEXT 2210 KBAF 220533Z 2206/2306 06009KT P6SM -RA OVC025 FM220900 05009KT 6SM -RA BR OVC015 FM221100 07011KT 3SM RA BR OVC008 WS020/15040KT FM221400 13009G19KT 3SM -RA OVC008 FM222000 15009KT 6SM -RA BKN015 FM230200 15008KT 3SM -RA BR OVC008 KBAM 220533Z 2206/2306 23015G25KT P6SM VCSH BKN110 FM221000 VRB06KT P6SM SCT110 BKN250 FM222000 23010G20KT P6SM VCTS SCT120CB BKN250 FM230300 VRB06KT P6SM VCSH SCT120 BKN250 KBBD 220551Z 2206/2306 17005KT P6SM SKC FM221500 19010KT P6SM SKC FM230000 17005KT P6SM SKC KBCB 220602Z 2206/2306 00000KT 5SM BR SCT120 FM220900 00000KT 3SM BR VCSH BKN008 OVC015 TEMPO 2210/2212 3/4SM -SHRA BR OVC002 FM221500 VRB02KT 6SM BR VCSH BKN008 OVC015 FM222100 VRB04KT P6SM OVC040 KBCE 220529Z 2206/2306 33005KT P6SM SCT080 BKN150 FM221900 30010KT P6SM VCTS SCT080CB BKN120 FM222300 29008KT P6SM SCT100 BKN150 KBDL 220533Z 2206/2312 05010KT P6SM -RA OVC025 FM220800 05010KT 6SM -RA BR OVC015 FM221000 08011KT 3SM RA BR OVC008 WS020/15040KT FM221400 14012G24KT 5SM -RA BR OVC008 FM221700 16011G22KT 3SM -RA BR BKN020 FM230000 15008KT 6SM -RA BKN015 FM230900 14007KT 3SM BR VCSH OVC010 KBDN 220521Z 2206/2306 VRB04KT P6SM SKC FM222100 35010KT P6SM SKC KBDR 220547Z 2206/2306 09024G35KT 2SM +SHRA BR OVC006 WS020/11045KT TEMPO 2207/2209 2SM +TSRA OVC006CB FM220900 09022G31KT 3SM SHRA BR OVC009 WS020/13050KT FM221200 14014G24KT P6SM VCSH OVC009 FM221500 16013G24KT P6SM VCSH BKN020 OVC035 FM230300 16011KT 3SM SHRA OVC020 KBED 220533Z 2206/2306 08006KT P6SM OVC015 FM220900 08007KT P6SM -RA OVC008 FM221100 09008KT 3SM -RA OVC005 WS020/16040KT FM221400 12009KT 2SM RA OVC003 WS020/18040KT FM221800 15011G26KT 3SM -RA OVC008 FM222200 16008KT 5SM BR VCSH OVC010 KBFD 220538Z 2206/2306 09009KT 5SM -RA BKN010 OVC020 TEMPO 2206/2208 2SM +RA BR OVC005 FM220800 07008KT 1SM RA BR OVC005 FM221100 34007KT 3SM -RA BR SCT005 OVC015 FM221300 17005KT P6SM BKN025 OVC050 FM221500 19008KT P6SM BKN050 FM222200 16007KT P6SM BKN050 PROB30 2222/2304 3SM -TSRA OVC030CB KBFF 220522Z 2206/2306 10007KT P6SM SCT150 FM221400 32011KT P6SM SKC FM222000 36011KT P6SM SCT250 KBFI 220520Z 2206/2306 VRB03KT P6SM SKC FM221800 31005KT P6SM SKC FM230400 VRB03KT P6SM SKC KBFL 220530Z 2206/2306 33007KT P6SM FEW200 KBFM 220527Z 2206/2306 25005KT P6SM SCT250 FM221400 29009G15KT P6SM FEW050 SCT250 KBGM 220523Z 2206/2306 06010KT P6SM -SHRA OVC025 WS020/12050KT TEMPO 2208/2211 3SM SHRA BR OVC012 FM221100 10012KT 5SM -SHRA BR OVC012 FM221400 12012G24KT P6SM OVC015 FM221800 16015G26KT P6SM BKN035 FM230300 14010KT P6SM OVC025 KBGR 220533Z 2206/2306 15003KT P6SM SCT250 FM220800 00000KT 5SM BR BKN003 FM221100 08004KT 6SM BR SCT003 BKN070 FM221300 08005KT P6SM OVC025 FM221500 10006KT 3SM -RA OVC010 FM221800 13007KT 2SM -SHRA OVC004 KBHB 220533Z 2206/2306 00000KT P6SM SCT250 FM220900 07004KT 3SM BR VCSH SCT003 FM221100 08006KT 1SM BR OVC003 FM221500 11006KT 3SM -RA BR OVC005 FM221700 11006KT 2SM -RA BR OVC003 FM230000 16008KT 1SM -SHRA BR OVC002 KBHM 220520Z 2206/2306 34005KT P6SM SKC FM221500 31012G20KT P6SM FEW040 FM230000 32008KT P6SM SKC KBIF 220604Z 2206/2312 15009KT 9999 SKC QNH2997INS BECMG 2220/2221 06009KT 9999 SKC QNH2997INS BECMG 2305/2306 15009KT 9999 SKC QNH2999INS TX39/2222Z TN23/2212Z KBIH 220602Z 2206/2306 34007KT P6SM SCT100 BKN250 FM221900 16011KT P6SM SCT090 SCT250 FM222100 17012G18KT P6SM VCTS SCT080CB BKN120 FM230200 33007KT P6SM BKN120 KBIL 220524Z 2206/2306 25008KT P6SM FEW100 BKN200 FM220800 31012G20KT P6SM FEW100 BKN200 FM221600 36012G20KT P6SM FEW150 KBIS 220528Z 2206/2306 08007KT 6SM -TSRA BKN100CB OVC120 FM220800 12008KT P6SM VCTS SCT100CB BKN150 FM221000 15010KT P6SM FEW090 SCT200 FM221800 20012KT P6SM VCTS SCT050CB BKN060 FM222200 30013KT P6SM FEW070 SCT100 KBJC 220543Z 2206/2306 28005KT P6SM FEW110 FM221600 34005KT P6SM SCT110 FM221900 01010KT P6SM BKN110 PROB30 2220/2224 VRB20G30KT -TSRA OVC060CB FM230000 01013G21KT P6SM SCT060 OVC100 PROB30 2300/2306 VRB20G30KT -TSRA BKN060CB KBJI 220520Z 2206/2306 VRB04KT P6SM SCT050 FM221100 VRB04KT P6SM SCT020 FM221300 13005KT P6SM BKN040 FM230000 16007KT P6SM SCT100 KBKE 220520Z 2206/2306 VRB06KT P6SM SKC FM221800 31009KT P6SM FEW250 FM230200 VRB06KT P6SM FEW250 KBKF 220305Z 2203/2307 17009KT 9000 -SHRA SCT060 BKN100 QNH3007INS BECMG 2204/2205 19012KT 9999 NSW SCT200 QNH3005INS BECMG 2219/2220 36012G18KT 9000 -SHRA FEW100 BKN150 QNH3012INS TEMPO 2220/2222 VRB25G35KT 8000 TSRA BKN120CB BECMG 2302/2303 20012KT 8000 -SHRA FEW050 BKN080 QNH3025INS TEMPO 2304/2306 VRB15G25KT VCTS BKN050CB BECMG 2306/2307 01009KT 9999 VCSH SCT015 BKN030 OVC070 QNH3027INS TX34/2223Z TN19/2212Z KBKW 220534Z 2206/2306 16006KT P6SM BKN070 TEMPO 2207/2210 4SM -SHRA OVC035 FM221600 19005KT P6SM VCTS OVC025CB FM222100 16004KT 5SM SHRA VCTS BKN040CB FM230100 15004KT P6SM BKN040 KBLF 220539Z 2206/2306 VRB04KT P6SM VCSH BKN050 FM220800 VRB03KT P6SM SCT015 BKN025 TEMPO 2208/2211 4SM -SHRA BKN015 FM221100 VRB03KT P6SM BKN003 OVC015 TEMPO 2211/2215 4SM -SHRA OVC007 FM221700 VRB04KT 6SM -SHRA OVC040 FM222100 VRB03KT P6SM OVC080 KBLH 220553Z 2206/2306 01006KT P6SM FEW250 FM221800 15006KT P6SM SKC FM230100 25006KT P6SM SKC KBLI 220520Z 2206/2306 VRB04KT P6SM SKC FM221800 26006KT P6SM SKC FM230300 VRB03KT P6SM SKC KBLV 220000Z 2200/2306 31009KT 9999 FEW035 QNH2985INS BECMG 2211/2212 34009KT 9999 BKN025 QNH2986INS TEMPO 2215/2221 35012G20KT TX27/2221Z TN20/2212Z KBMG 220612Z 2206/2306 30009KT P6SM BKN018 FM220900 31009KT P6SM OVC008 FM221400 34006KT P6SM VCTS OVC010CB FM221800 35006KT 6SM -SHRA VCTS OVC035CB LTD TO CLD VIS AND WIND TIL 221300 KBMI 220520Z 2206/2306 34011KT P6SM VCSH OVC015 FM221700 35011KT P6SM VCSH OVC020 FM222000 01010KT P6SM VCTS BKN040CB FM230200 03006KT P6SM SCT060 KBNA 220520Z 2206/2306 29007KT P6SM SCT060 FM221200 31008KT P6SM VCSH BKN025 OVC040 FM221800 31010G18KT P6SM VCTS BKN040CB FM230000 33007KT P6SM VCSH BKN040 KBNO 220520Z 2206/2306 27008KT P6SM SKC FM221800 VRB06KT P6SM FEW250 KBOI 220520Z 2206/2306 30010KT P6SM FEW250 FM221800 31010G17KT P6SM FEW250 FM230100 VRB06KT P6SM SCT200 KBOS 220533Z 2206/2312 08010KT P6SM OVC015 FM220900 08011KT 6SM -RA BR OVC008 WS020/16040KT FM221300 11010G21KT 2SM RA BR OVC005 WS020/18040KT FM221700 14013G28KT 3SM -RA OVC008 FM230000 15009KT 6SM BR VCSH OVC015 KBPI 220521Z 2206/2306 35008KT P6SM VCTS BKN110CB FM220800 VRB05KT P6SM SCT110 BKN180 FM222200 VRB06KT P6SM VCSH BKN100 FM230200 34007KT P6SM SCT110 BKN200 KBPK 220539Z 2206/2306 VRB04KT P6SM SKC KBPT 220520Z 2206/2306 23006KT P6SM BKN250 TEMPO 2212/2215 BKN012 FM221500 24010G15KT P6SM SKC FM230100 22008KT P6SM SKC KBRD 220535Z 2206/2306 10004KT P6SM SCT040 TEMPO 2206/2208 BKN040 FM220900 VRB03KT 3SM BR SCT015 FM221300 10005KT P6SM SCT040 KBRL 220520Z 2206/2306 36009KT P6SM SKC FM221100 01013KT P6SM BKN025 FM221800 01009KT P6SM SCT035 KBRO 220538Z 2206/2306 16006KT P6SM SKC FM221500 17015G20KT P6SM SCT030 FM221900 15016G21KT P6SM FEW050 FM230200 16011KT P6SM SKC KBTL 220540Z 2206/2306 VRB03KT P6SM BKN008 OVC030 FM221400 05006KT P6SM VCSH OVC010 FM222200 04007KT P6SM BKN060 KBTM 220520Z 2206/2306 35010G18KT P6SM FEW100 FM221000 16006KT P6SM SKC FM221800 33007KT P6SM FEW100 KBTR 220520Z 2206/2306 24012KT P6SM SKC FM221200 26006KT P6SM SCT250 FM221400 27010KT P6SM FEW250 FM230100 26006KT P6SM SCT250 KBTV 220531Z 2206/2306 13008KT P6SM SCT250 FM221000 09005KT P6SM VCSH BKN080 FM221200 08005KT 4SM -SHRA BR OVC060 FM221500 10008KT P6SM VCSH OVC040 FM221800 13012G22KT P6SM SCT060 FM230000 15010KT P6SM SCT060 KBUF 220546Z 2206/2306 11009KT 5SM -RA OVC045 FM220900 07008KT 3SM +RA OVC025 FM221200 02007KT 5SM RA OVC007 FM221600 34006KT P6SM OVC012 FM221800 21010KT P6SM BKN025 FM222000 21009KT P6SM BKN040 FM230200 13006KT P6SM BKN060 KBUR 220529Z 2206/2306 12006KT P6SM SCT250 FM221200 VRB03KT P6SM SKC FM221500 12006KT P6SM SKC FM221900 17008KT P6SM SKC FM230400 12006KT P6SM SKC KBVI 220528Z 2206/2306 09006KT P6SM BKN100 FM220900 VRB05KT P6SM BKN025 FM221600 15005KT P6SM BKN035 FM222100 08005KT P6SM -SHRA OVC035 FM230000 12005KT P6SM BKN035 NOT SKED KBVO 220520Z 2206/2306 00000KT P6SM SKC FM221500 08005KT P6SM SKC FM230100 00000KT P6SM SKC KBWG 220534Z 2206/2306 26007KT P6SM SCT070 FM221200 27007KT P6SM BKN021 FM221300 29008KT P6SM OVC015 FM221700 30009KT P6SM VCSH BKN022 FM221900 31009KT P6SM BKN040 PROB30 2219/2301 4SM -SHRA SCT040 KBWI 220536Z 2206/2312 30010KT P6SM SCT025 BKN140 FM220900 22005KT P6SM OVC045 FM221400 15005KT P6SM BKN050 FM221800 13008KT P6SM -SHRA OVC060 KBYI 220520Z 2206/2306 24007KT P6SM SCT120 FM221700 28008KT P6SM SCT110 KBZN 220535Z 2206/2312 15005KT P6SM FEW100 FM221800 35005KT P6SM SKC KCAE 220520Z 2206/2306 21007KT 5SM -SHRA VCTS OVC030CB TEMPO 2206/2207 27015G30KT 3SM TSRA OVC025CB FM220700 VRB05KT P6SM SCT012 BKN100 TEMPO 2209/2212 BKN012 FM221600 25008KT P6SM SCT050 KCAK 220533Z 2206/2306 10008KT P6SM OVC250 FM221400 07006KT P6SM BKN025 FM221700 07007KT P6SM OVC050 FM230300 02005KT P6SM OVC025 KCAR 220533Z 2206/2306 14003KT P6SM SKC FM221700 16007KT P6SM VCSH BKN070 FM222100 17007KT 4SM -RA SCT010 OVC020 FM222300 16007KT 3SM -RA OVC010 FM230400 18006KT 2SM -RA BR OVC007 KCDC 220529Z 2206/2306 17006KT P6SM SCT100 FM222000 25009KT P6SM SCT080 BKN100 FM230300 VRB04KT P6SM SCT100 BKN150 KCDR 220608Z 2206/2306 08012KT P6SM FEW090 OVC200 FM220900 15013KT P6SM OVC250 FM221600 35011KT P6SM SKC KCDS 220532Z 2206/2306 20010KT P6SM FEW250= KPVW 220532Z 2206/2306 21010KT P6SM FEW250 KCEC 220520Z 2206/2306 15011KT 6SM HZ BKN035 FM221100 16003KT 5SM BR SCT005 BKN035 FM221700 17005KT 6SM HZ BKN040 FM230300 16003KT 6SM HZ BKN003 KCEF 220200Z 2202/2308 06012KT 9999 BKN020 OVC035 QNH2999INS BECMG 2205/2206 07012G18KT 6000 SHRA OVC013 QNH2989INS BECMG 2212/2213 15012G18KT 6000 SHRA OVC013 QNH2991INS TEMPO 2214/2218 16015G25KT BECMG 2217/2218 16012G18KT 9000 -SHRA OVC010 QNH2999INS TEMPO 2218/2223 16015G25KT BECMG 2223/2224 16012G18KT 9000 -SHRA OVC008 QNH3006INS TX29/2221Z TN17/2206Z LAST NO AMDS AFT 2203 NEXT 2210 KCGI 220520Z 2206/2306 VRB04KT P6SM FEW250 FM221300 33009KT P6SM SCT100 FM221600 34011G19KT P6SM BKN070 FM230100 35010KT P6SM SCT100 KCHA 220520Z 2206/2306 27003KT P6SM SCT070 FM221400 26007KT P6SM SCT040 FM221800 26007KT P6SM VCSH BKN050 TEMPO 2220/2224 4SM -TSRA BR BKN035CB FM230000 29004KT P6SM VCSH BKN050 KCHO 220536Z 2206/2306 00000KT P6SM FEW030 FM221200 00000KT P6SM BKN045 FM221800 10005KT 6SM -SHRA BKN035 KCHS 220532Z 2206/2306 22005KT P6SM SCT250 FM220700 22004KT P6SM VCSH SCT040 SCT250 FM221000 22005KT P6SM SCT250 FM221700 20010G19KT P6SM SCT050 PROB30 2222/2302 4SM -TSRA BKN050CB FM230200 18005KT P6SM BKN250 KCID 220520Z 2206/2306 36009KT P6SM SKC FM221100 01013KT P6SM BKN035 TEMPO 2213/2216 BKN025 FM222300 01005KT P6SM SCT035 KCKB 220534Z 2206/2306 00000KT P6SM BKN040 FM220900 00000KT 5SM BR SCT003 BKN040 FM221200 00000KT P6SM BKN050 FM221600 14004KT P6SM -SHRA VCTS BKN050CB FM230100 VRB04KT P6SM BKN050 KCKV 220520Z 2206/2306 29005KT P6SM SCT060 FM221200 31010KT P6SM VCSH BKN025 OVC040 FM221800 31010G18KT P6SM VCTS BKN040CB FM230000 33007KT P6SM VCSH BKN040 KCLE 220533Z 2206/2312 12010KT P6SM OVC150 FM221100 09007KT P6SM BKN050 FM221400 08007KT P6SM VCSH BKN025 FM221800 03012KT P6SM BKN050 FM230100 09006KT P6SM BKN025 KCLL 220520Z 2206/2306 18006KT P6SM SCT250 FM221000 21004KT P6SM BKN010 FM221300 23007KT P6SM SCT250 KCLM 220520Z 2206/2306 VRB04KT P6SM SKC FM220700 26005KT P6SM SKC FM221700 05006KT P6SM SKC FM222300 33006KT P6SM SKC KCLT 220541Z 2206/2312 VRB03KT P6SM VCSH SCT024 OVC080 TEMPO 2206/2208 BKN024 FM221000 22003KT P6SM FEW006 SCT012 FM221400 22003KT P6SM SCT080 PROB30 2218/2222 4SM -TSRA OVC025CB FM222200 18004KT P6SM BKN050 PROB30 2222/2304 4SM -TSRA OVC025CB KCMA 220529Z 2206/2306 26006KT P6SM BKN010 FM220900 VRB03KT 4SM BR OVC008 FM221700 25012KT P6SM SKC FM230200 25006KT P6SM SKC KCMH 220531Z 2206/2306 14004KT P6SM BKN035 FM220900 08007KT P6SM VCSH OVC008 FM221400 07007KT P6SM -SHRA OVC018 FM221800 05008KT P6SM -SHRA BKN025 FM230200 05007KT P6SM VCSH BKN015 KCMI 220520Z 2206/2306 30007KT P6SM VCSH BKN020 FM221200 35011KT P6SM VCSH OVC025 FM222000 35011KT P6SM VCTS BKN040CB FM230000 02009KT P6SM BKN080 KCMX 220534Z 2206/2306 03007KT P6SM SCT030 FM220800 02006KT P6SM BKN035 FM221300 03007KT P6SM BKN030 FM221400 04006KT P6SM BKN050 FM221700 04006KT P6SM SCT080 KCNM 220532Z 2206/2306 15006KT P6SM SCT250 KCNU 220520Z 2206/2306 04005KT P6SM SCT250 FM222300 08005KT P6SM FEW250 KCNY 220520Z 2206/2306 27010KT P6SM SCT110 SCT150 FM221100 31005KT P6SM SCT110 BKN250 FM222100 35007KT P6SM FEW100 SCT250 FM230100 32011KT P6SM FEW120 SCT250 FM230500 03010KT P6SM FEW100 SCT200 KCOD 220521Z 2206/2306 24006KT P6SM SCT120 FM221100 36012G20KT P6SM SCT120 FM221500 01008KT P6SM FEW120 FM230200 VRB05KT P6SM SKC LTD TO CLD VIS AND WIND KCOE 220520Z 2206/2306 VRB03KT P6SM FEW090 FM221000 08006KT P6SM SKC FM222000 36004KT P6SM SKC KCOF 220200Z 2202/2308 23006KT 9999 FEW040 SCT200 QNH2988INS BECMG 2215/2216 27012KT 9999 -SHRA VCTS SCT030CB SCT100 BKN200 QNH2982INS TEMPO 2218/2224 29018G25KT 4800 -TSRA OVC020CB BECMG 2223/2224 26009KT 9999 NSW FEW040 SCT100 SCT200 QNH2982INS TX30/2218Z TN25/2210Z KCON 220520Z 2206/2306 VRB03KT P6SM OVC015 FM221000 VRB03KT P6SM -SHRA OVC010 FM221200 07005KT 2SM SHRA BR OVC008 FM221900 13005KT 4SM -SHRA OVC008 KCOS 220540Z 2206/2306 34008KT P6SM SCT200 FM221700 04008KT P6SM SCT090 SCT200 FM222000 05012KT P6SM VCTS SCT090CB BKN200 FM222200 36015G25KT P6SM -TSRA BKN070CB BKN150 FM230100 01015G25KT P6SM VCSH SCT050 BKN140 KCOU 220520Z 2206/2306 34005KT P6SM SKC FM221700 35010KT P6SM FEW070 FM230200 01006KT P6SM FEW250 KCPR 220521Z 2206/2306 24006KT P6SM SCT120 FM221600 01010G18KT P6SM SCT120 BKN180 FM221900 05007KT P6SM SCT100 BKN180 FM222300 08008KT P6SM VCSH BKN100 FM230300 09009KT P6SM BKN110 KCPS 220520Z 2206/2306 32006KT P6SM FEW250 FM221200 33009KT P6SM BKN027 FM221700 34011G18KT P6SM BKN035 FM222000 34012KT P6SM SCT050 FM230300 36006KT P6SM SCT040 KCRE 220521Z 2206/2306 22009KT P6SM FEW010 SCT100 FM221400 19012G20KT P6SM SCT030 SCT100 FM230000 19011KT P6SM SCT070 BKN250 FM230400 19011KT P6SM VCSH SCT050 OVC120 KCRG 220609Z 2206/2306 24008KT P6SM SCT012 SCT100 BKN200 FM220700 26005KT P6SM OVC010 FM221400 25009KT P6SM SCT020 SCT080 BKN250 FM221700 26010KT P6SM VCTS SCT040CB BKN080 FM230000 24008KT P6SM VCSH SCT030 SCT080 BKN250 KCRP 220536Z 2206/2306 17006KT P6SM FEW015 FM221400 18009KT P6SM SCT025 TEMPO 2214/2216 BKN025 FM221600 18012G18KT P6SM FEW035 FM222000 14016G24KT P6SM FEW035 FM230200 17012KT P6SM FEW015 KCRQ 220609Z 2206/2306 34003KT P6SM SCT012 SCT200 FM220900 VRB03KT P6SM BKN012 FM221700 VRB05KT P6SM SCT012 FM222000 27009KT P6SM FEW015 SCT200 FM230300 VRB05KT P6SM BKN015 KCRW 220534Z 2206/2306 00000KT P6SM BKN090 FM220900 00000KT 5SM BR BKN035 FM221600 VRB03KT P6SM -SHRA VCTS OVC030CB FM230100 VRB03KT P6SM BKN050 KCSG 220531Z 2206/2306 28004KT P6SM SCT045 BKN100 TEMPO 2206/2207 3SM TSRA BKN030CB FM220900 VRB03KT P6SM SCT250 FM221400 29005KT P6SM VCSH SCT035 FM221800 29010G18KT P6SM VCSH SCT050 PROB30 2220/2224 3SM TSRA OVC030CB FM230200 31006KT P6SM VCSH SCT040 BKN080 KCSM 220520Z 2206/2306 10012KT P6SM SKC FM221800 16010KT P6SM FEW250 KCSV 220520Z 2206/2306 30005KT P6SM SCT040 BKN070 TEMPO 2208/2212 5SM BR OVC025 FM221200 29007KT P6SM VCSH SCT009 OVC015 FM221800 31010KT P6SM VCTS BKN040CB FM230000 32004KT P6SM VCSH BKN035 KCTB 220623Z 2206/2306 34011KT P6SM FEW100 FM221200 28008KT P6SM SKC FM221800 02010KT P6SM SKC KCUB 220520Z 2206/2306 21007KT 5SM -SHRA VCTS OVC030CB TEMPO 2206/2207 27010G25KT 3SM TSRA OVC025CB FM220700 VRB05KT P6SM SCT012 BKN100 TEMPO 2209/2212 BKN012 FM221600 25007KT P6SM SCT050 KCVG 220633Z 2207/2312 25004KT 4SM BR VCSH OVC005 FM221600 34005KT P6SM -SHRA OVC012 FM221900 01008KT P6SM -SHRA VCTS BKN025CB FM230200 03007KT P6SM BKN025 FM230600 04006KT P6SM BKN015 KCVS 220205Z 2202/2308 15009KT 9999 SKC QNH3009INS BECMG 2208/2209 23009KT 9999 SKC QNH3005INS BECMG 2216/2217 20012G20KT 9999 SKC QNH3002INS BECMG 2223/2224 20009KT 9999 SKC QNH3002INS TX39/2222Z TN19/2212Z KCWA 220520Z 2206/2306 01010G17KT P6SM BKN015 TEMPO 2209/2213 BKN008 FM221600 02008KT P6SM BKN025 FM221800 02007KT P6SM VCSH BKN040 FM230100 01003KT P6SM SCT150 LTD TO CLD VIS AND WIND TIL 221100 KCXO 220520Z 2206/2306 19007KT P6SM SCT250 FM220900 22004KT P6SM BKN010 FM221300 23010KT P6SM SCT250 KCXP 220547Z 2206/2306 VRB03KT P6SM SCT150 BKN200 FM222000 31006KT P6SM VCTS SCT050CB BKN100 FM222200 26010G18KT P6SM -TSRA FEW050 BKN070CB BKN140 FM230300 VRB04KT P6SM VCSH SCT070 BKN200 KCYS 220522Z 2206/2306 25008KT P6SM SKC FM221600 33015KT P6SM SKC FM222000 33014KT P6SM VCTS BKN200CB FM230000 36015G22KT P6SM BKN100 KDAB 220535Z 2206/2306 25005KT P6SM FEW040 FM221600 24010KT P6SM VCSH SCT025 SCT040 FM221800 27012KT P6SM VCTS SCT035CB BKN060 FM230200 23005KT P6SM FEW040 SCT060 BKN150 KDAG 220520Z 2206/2306 26012KT P6SM SCT250 FM222000 29007KT P6SM SCT250 KDAL 220520Z 2206/2306 19009KT P6SM FEW300 FM221200 26007KT P6SM BKN300 FM222100 VRB03KT P6SM FEW200 SCT300 KDAN 220539Z 2206/2306 VRB04KT P6SM SCT030 BKN050 TEMPO 2210/2212 4SM -SHRA BKN008 FM221200 VRB03KT 6SM BR VCSH BKN008 OVC015 FM221800 VRB04KT P6SM OVC030 FM222100 VRB04KT 6SM -SHRA OVC040 FM230400 VRB04KT P6SM BKN200 KDAY 220633Z 2207/2306 05004KT 4SM BR OVC002 FM221100 05005KT 5SM BR VCSH OVC008 FM221600 05008KT P6SM -SHRA OVC012 FM222200 04010KT P6SM VCSH BKN025 FM230100 04008KT P6SM BKN045 KDBQ 220520Z 2206/2306 36011KT P6SM SKC FM220700 01013KT P6SM BKN025 TEMPO 2210/2214 BKN015 FM222000 02011KT P6SM SCT035 KDCA 220536Z 2206/2312 32013G21KT P6SM OVC020 FM220900 22005KT P6SM OVC060 FM221300 16004KT P6SM BKN045 FM221900 12006KT P6SM -SHRA OVC035 FM230600 15007KT 6SM BR OVC250 KDDC 220520Z 2206/2306 12011KT P6SM SCT100 FM221800 16013KT P6SM FEW250 FM230100 10012KT P6SM FEW250 KDEC 220613Z 2206/2306 33011KT P6SM OVC015 FM221700 35011KT P6SM VCSH OVC020 FM222100 34012KT P6SM VCTS BKN040CB FM230100 01009KT P6SM BKN080 KDEN 220539Z 2206/2312 19010KT P6SM FEW110 BKN200 FM221500 27007KT P6SM SCT110 FM221800 01011KT P6SM SCT110 BKN200 PROB30 2221/2224 VRB20G30KT -TSRA BKN090CB FM230000 34013G21KT P6SM SCT060 BKN100 PROB30 2300/2306 VRB20G30KT -TSRA BKN060CB FM230600 34007KT P6SM BKN060 OVC100 KDET 220532Z 2206/2306 10008KT P6SM VCSH SCT035 BKN080 FM220800 07007KT P6SM VCSH SCT030 BKN040 OVC080 FM221000 04008KT P6SM VCSH SCT022 BKN040 OVC060 FM221700 02008KT P6SM VCSH SCT030 BKN040 BKN070 FM230200 32005KT P6SM BKN028 OVC050 KDFW 220520Z 2206/2312 19009KT P6SM FEW300 FM221200 26007KT P6SM BKN300 FM222100 VRB03KT P6SM FEW200 SCT300 KDHN 220543Z 2206/2306 21006KT P6SM SCT030 BKN100 TEMPO 2206/2208 VRB15G25KT 2SM +TSRA BKN030CB FM221200 25008KT P6SM SCT040 FM221800 27011KT P6SM VCTS SCT040CB BKN100 FM230000 22004KT P6SM BKN050 BKN100 KDHT 220520Z 2206/2306 19010KT P6SM SKC FM221400 22016KT P6SM FEW090 FM230000 17011KT P6SM SCT120 BKN200 FM230400 36018G28KT P6SM BKN120 KDIJ 220520Z 2206/2306 15007KT P6SM SCT100 FM221800 26009KT P6SM FEW100 LTD TO CLD VIS AND WIND KDIK 220528Z 2206/2306 13019G29KT P6SM FEW100 SCT150 FM221600 24013KT P6SM SCT050 BKN120 FM221800 31017G25KT P6SM SCT120 FM230400 31007KT P6SM SKC KDLH 220535Z 2206/2306 05004KT P6SM SCT045 TEMPO 2207/2209 BKN030 FM220900 04004KT P6SM BKN018 FM221300 06006KT P6SM SCT090 KDLS 220521Z 2206/2306 31009KT P6SM SKC FM221200 VRB03KT P6SM SKC FM222000 06006KT P6SM SKC FM230400 VRB03KT P6SM SKC KDMA 220604Z 2206/2312 VRB06KT 9999 FEW300 QNH3002INS BECMG 2217/2218 32009KT 9999 FEW130 SCT300 QNH3006INS BECMG 2222/2223 32010G15KT 9999 SCT300 QNH3002INS BECMG 2308/2309 15006KT 9999 FEW300 QNH3001INS TX40/2221Z TN26/2212Z KDMN 220531Z 2206/2306 28008KT P6SM FEW140 FEW250 FM230300 27008KT P6SM FEW140 FEW250 KDNL 220520Z 2206/2306 VRB10KT P6SM VCTS BKN025CB TEMPO 2206/2207 VRB15G30KT 1 1/2SM TSRA OVC020CB FM220700 VRB05KT P6SM SCT012 BKN100 TEMPO 2209/2212 BKN012 FM221600 26010KT P6SM SCT050 KDOV 220000Z 2200/2306 05015G25KT 8000 -SHRA SCT007 BKN015 OVC025 510004 QNH2965INS TEMPO 2200/2204 07025G35KT 540004 BECMG 2203/2204 05015G25KT 8000 -SHRA OVC007 510004 QNH2954INS TEMPO 2204/2205 07025G35KT 540004 BECMG 2205/2206 20009KT 9000 -SHRA OVC005 QNH2953INS BECMG 2210/2211 20009KT 6000 BR OVC005 QNH2978INS BECMG 2214/2215 16012G18KT 9999 NSW BKN007 QNH2981INS BECMG 2217/2218 16015G25KT 9999 SCT007 BKN010 510004 QNH2982INS TEMPO 2218/2221 20015G25KT 6000 -TSRA SCT005 OVC007CB BECMG 2223/2224 15012KT 9999 OVC007 QNH2985INS TX28/2220Z TN20/2206Z KDPA 220545Z 2206/2306 36012KT P6SM VCSH SCT012 BKN018 FM221100 36012KT 6SM -SHRA SCT008 OVC012 TEMPO 2211/2215 3SM SHRA BKN008 FM221500 02012G17KT P6SM VCSH BKN015 FM221900 03012G17KT P6SM SCT025 BKN040 FM230100 03009KT P6SM FEW050 KDRO 220520Z 2206/2306 30009KT P6SM VCTS FEW080CB BKN140 FM220800 34005KT P6SM FEW090 SCT250 FM221800 26006KT P6SM FEW250 FM222100 29010KT P6SM FEW100 SCT250 KDRT 220528Z 2206/2306 12010KT P6SM FEW250 KDSM 220535Z 2206/2306 01006KT P6SM SCT250 FM221800 01008KT P6SM FEW200 FM230300 03005KT P6SM FEW250 KDTW 220532Z 2206/2312 05007KT 6SM BR VCSH FEW025 BKN035 BKN080 TEMPO 2206/2207 6SM -SHRA BR BKN040 OVC050 FM221000 04008KT P6SM VCSH SCT022 BKN040 OVC060 FM221700 02008KT P6SM VCSH SCT030 BKN040 BKN070 FM230200 32005KT P6SM BKN028 OVC050 FM230600 VRB03KT P6SM BKN016 OVC030 KDUG 220520Z 2206/2306 VRB04KT P6SM SCT100 FM221600 32008KT P6SM SCT100 FM230200 34012KT P6SM SCT100 BKN150 KDUJ 220528Z 2206/2306 06005KT 3SM -RA BR OVC008 FM220900 VRB03KT 2SM -RA BR OVC004 FM221300 18005KT P6SM OVC008 FM221500 15008KT P6SM OVC015 FM221800 14010KT P6SM VCSH BKN035 FM230000 12008KT P6SM BKN050 KDVL 220520Z 2206/2306 13007KT P6SM SCT040 FM221800 16013G20KT P6SM VCTS BKN050CB FM230000 22009KT P6SM BKN100 KEAR 220525Z 2206/2306 11005KT P6SM BKN200 FM221700 14009KT P6SM FEW040 SCT200 FM230300 10005KT P6SM BKN150 KEAT 220520Z 2206/2306 32008KT P6SM SKC FM221800 15004KT P6SM SKC FM230500 01005KT P6SM SKC KEAU 220520Z 2206/2306 03005KT P6SM FEW020 FM221300 03010G18KT P6SM SCT020 FM222100 03006KT P6SM SCT040 BKN070 FM230000 VRB04KT P6SM FEW200 KECG 220559Z 2206/2306 21005KT P6SM BKN025 FM220800 19006KT P6SM SCT060 FM221100 17007KT P6SM SCT120 FM221200 16007KT P6SM BKN100 FM221800 16013G20KT P6SM BKN070 KECP 220521Z 2206/2306 21005KT P6SM SCT025 FM221500 26011G19KT P6SM VCTS SCT030CB BKN100 TEMPO 2218/2222 VRB15G30KT 2SM +TSRA BKN030CB FM222200 27015KT P6SM FEW030 SCT150 KEED 220520Z 2206/2306 22008KT P6SM SCT150 BKN250 KEET 220520Z 2206/2306 34004KT P6SM FEW040 FM221500 31010G18KT P6SM FEW040 FM230000 31006KT P6SM SKC KEFD 220200Z 2204/2310 20009KT 9999 FEW025 QNH2993INS BECMG 2208/2209 24005KT 9999 SCT025 QNH2993INS BECMG 2211/2212 24009KT 9999 BKN025 QNH2995INS BECMG 2213/2214 25012KT 9999 SKC QNH2988INS BECMG 2223/2224 21009KT 9999 FEW350 QNH2984INS TX37/2221Z TN24/2212Z KEGE 220520Z 2206/2306 06004KT P6SM FEW110 SCT150 FM222100 26007KT P6SM VCTS FEW100CB SCT130 FM222300 32007KT P6SM VCTS FEW100CB SCT140 FM230300 07005KT P6SM FEW100 SCT130 LTD TO CLD VIS AND WIND TIL 221300 KEKN 220534Z 2206/2306 00000KT 4SM BR SCT035 FM220830 00000KT 1/2SM FG OVC001 FM221300 00000KT 2SM BR BKN025 FM221400 00000KT P6SM BKN060 KEKO 220533Z 2206/2306 24010KT P6SM VCSH BKN130 FM221000 VRB05KT P6SM SCT150 BKN200 FM222000 18008KT P6SM VCTS BKN100CB BKN200 FM230400 14007KT P6SM VCSH SCT100 BKN250 KEKS 220535Z 2206/2306 18008KT P6SM FEW100 FM220800 VRB05KT P6SM SKC FM221800 34010KT P6SM SKC KELD 220535Z 2206/2306 VRB03KT P6SM SCT090 FM221500 34005KT P6SM SKC FM221800 32006KT P6SM SCT150 SCT250 FM222000 32006KT P6SM BKN130 BKN250 FM230100 VRB03KT P6SM BKN120 BKN250 KELM 220523Z 2206/2306 13005KT 5SM -SHRA BR OVC025 TEMPO 2206/2209 2SM SHRA BR OVC015 FM220900 36008KT 2SM -SHRA BR OVC009 FM221200 12010KT P6SM OVC025 FM221700 16015G25KT P6SM BKN040 FM230400 13006KT P6SM OVC025 KELP 220531Z 2206/2306 15008KT P6SM FEW250 FM222100 06008KT P6SM FEW140 FEW250 KELY 220533Z 2206/2306 20005KT P6SM BKN100 FM222000 36008KT P6SM VCTS SCT080CB BKN100 FM230300 VRB06KT P6SM VCSH SCT070 BKN090 KENV 220529Z 2206/2306 17014KT P6SM SCT090 BKN130 FM220800 15007KT P6SM BKN150 FM221600 12010KT P6SM SCT120 BKN150 FM230300 34006KT P6SM SCT120 BKN150 KENW 220520Z 2206/2306 36011G18KT P6SM VCSH OVC008 FM221700 03012KT P6SM VCSH OVC010 FM222000 03012KT P6SM VCSH BKN040 FM230000 03009KT P6SM SCT035 FM230400 36006KT P6SM SCT200 KERI 220533Z 2206/2306 12010KT 6SM -SHRA OVC070 FM220800 08009KT 6SM -SHRA OVC025 FM221000 06008KT 6SM -SHRA OVC015 TEMPO 2212/2215 4SM SHRA OVC009 FM221500 02007KT 6SM BR VCSH OVC015 FM221900 VRB03KT P6SM BKN040 FM230000 03006KT P6SM BKN025 KEUG 220644Z 2207/2306 01005KT P6SM SKC FM221900 01010KT P6SM SKC KEUL 220520Z 2206/2306 30010KT P6SM FEW250 FM221700 34008KT P6SM SCT200 KEVV 220520Z 2206/2306 29006KT P6SM SCT035 BKN080 FM221200 31008KT P6SM VCSH BKN025 FM222300 33010KT P6SM VCSH BKN070 FM230200 36007KT P6SM BKN140 KEVW 220641Z 2207/2306 24012KT P6SM FEW090 SCT120 FM220800 17006KT P6SM SCT060 BKN100 FM221800 29011KT P6SM VCTS SCT060CB BKN080 FM230100 34010KT P6SM SCT080 BKN120 KEWN 220557Z 2206/2306 18005KT P6SM SCT030 FM221800 18010G20KT 4SM -TSRA BKN050CB FM230000 15008KT P6SM VCSH BKN040 KEWR 220540Z 2206/2312 08021G33KT 2SM +SHRA BR BKN005 OVC008 WS020/13055KT TEMPO 2206/2207 2SM +TSRA BKN005 OVC008CB FM220700 10017G28KT 2SM SHRA BR OVC009 WS020/13045KT FM221000 14011G18KT P6SM VCSH OVC010 FM221500 17013G18KT P6SM VCSH BKN020 OVC040 FM230100 15011KT P6SM VCSH OVC020 FM230500 16011KT 3SM SHRA OVC028 KEYW 220529Z 2206/2306 25008KT P6SM FEW030 FM221300 28010KT P6SM SCT025 SCT100 BKN250 FM222100 29011G18KT P6SM SCT025 SCT100 BKN200 KFAR 220520Z 2206/2306 09006KT P6SM SCT200 FM221900 16012G17KT P6SM SCT140 FM230200 17006KT P6SM BKN090 KFAT 220530Z 2206/2306 30009KT P6SM FEW120 SCT200 KFAY 220537Z 2206/2306 VRB06KT P6SM SCT050 BKN250 KFBG 220339Z 2203/2307 17009KT 8000 -TSRA BKN020CB BKN030 OVC080 QNH2973INS TEMPO 2203/2204 18025G35KT 2400 TSRAGR BKN020CB OVC030 BECMG 2203/2204 17009KT 9999 NSW BKN020 BKN030 OVC080 QNH2973INS BECMG 2209/2210 17009KT 9999 BKN006 OVC025 QNH2974INS BECMG 2213/2214 20009KT 9999 SCT010 BKN045 OVC080 QNH2970INS BECMG 2218/2219 19010G15KT 8000 -SHRA BKN035 OVC080 QNH2968INS TEMPO 2220/2223 18012G20KT 6000 -TSRA OVC025CB BECMG 2305/2306 12006KT 4800 BR BKN015 QNH2983INS TX33/2217Z TN22/2211Z KFCS 220336Z 2203/2303 28009KT 9999 VCSH BKN150 QNH3014INS WND 240V170 BECMG 2204/2205 35009KT 9999 NSW FEW120 QNH3020INS BECMG 2214/2215 04009KT 9999 FEW100 QNH3016INS BECMG 2220/2221 35012G18KT 9999 VCTS FEW100CB QNH3018INS TEMPO 2221/2303 VRB35G45KT 6000 -TSRA BKN100CB BECMG 2302/2303 35020G30KT 8000 -SHRA BKN100 530009 QNH3024INS TX36/2203Z TN19/2212Z KFDY 220533Z 2206/2306 08005KT P6SM BKN070 FM221000 07006KT P6SM BKN025 FM221700 05012KT P6SM BKN040 FM230100 02007KT P6SM BKN025 KFFO 220531Z 2205/2309 03006KT 9999 OVC005 QNH2967INS BECMG 2206/2207 08006KT 6000 BR OVC005 QNH2965INS BECMG 2214/2215 05009KT 4800 -SHRA BR OVC007 QNH2971INS BECMG 2217/2218 06012KT 6000 -SHRA BKN007 OVC015 QNH2972INS TEMPO 2221/2224 06015G20KT 4800 -TSRA OVC015CB BECMG 2302/2303 04009KT 9999 NSW FEW015 SCT030 BKN040 QNH2986INS TX22/2221Z TN19/2210Z KFKL 220528Z 2206/2306 08006KT P6SM BKN025 FM220800 05005KT P6SM -RA OVC010 TEMPO 2209/2213 3SM -RA BR OVC008 FM221700 16008KT P6SM BKN035 FM222000 13010KT P6SM VCSH BKN035 FM230000 12010KT P6SM BKN050 KFLG 220520Z 2206/2306 VRB05KT P6SM SCT150 FM221800 22010KT P6SM BKN070 PROB30 2220/2224 -TSRA BKN040CB FM230200 VRB03KT P6SM FEW070 KFLL 220542Z 2206/2312 VRB04KT P6SM FEW040 SCT110 BKN250 FM221400 28006KT P6SM VCSH SCT030 BKN060 FM221700 23008KT P6SM VCTS BKN030CB BKN050 FM222000 27010KT P6SM SHRA BKN035 PROB30 2220/2224 VRB15G25KT TSRA BKN035CB FM230200 VRB05KT P6SM VCSH SCT040 SCT100 BKN250 KFLO 220521Z 2206/2306 20005KT P6SM SCT060 BKN100 FM221400 21010KT P6SM SCT025 SCT080 FM221800 20010KT P6SM BKN040 FM230100 18006KT P6SM VCSH SCT020 BKN050 KFMH 220533Z 2206/2306 10009KT 6SM BR OVC005 FM220700 11009KT 3SM -RA BR OVC005 FM220800 12009KT 1/2SM -RA FG OVC003 WS020/15040KT FM221200 15012G19KT 1SM RA BR OVC003 WS020/18040KT FM221500 18018G26KT 2SM RA BR OVC005 FM222000 17016G25KT 3SM -RA BR OVC008 KFMN 220539Z 2206/2306 VRB10G20KT P6SM VCTS SCT060CB BKN120 FM220700 13010KT P6SM BKN120 FM221100 09006KT P6SM SCT120 FM222100 26011KT P6SM SCT100 FM230000 29011KT P6SM SCT100 BKN150 KFMY 220529Z 2206/2306 26006KT P6SM SCT025 BKN200 FM220900 29005KT P6SM VCTS SCT020CB SCT150 FM221300 30011KT P6SM VCTS SCT020 BKN040CB BKN120 FM221700 28014G20KT P6SM VCTS BKN035CB BKN100 FM230300 26006KT P6SM VCTS SCT020CB BKN120 KFNT 220532Z 2206/2306 08007KT P6SM VCSH FEW010 BKN040 BKN080 TEMPO 2206/2210 BKN025 OVC050 FM221000 06008KT P6SM BKN026 OVC060 FM221700 02011KT P6SM -SHRA BKN028 BKN040 OVC060 FM230200 26005KT P6SM BKN016 OVC040 KFOD 220535Z 2206/2306 34003KT P6SM SKC FM221400 03006KT P6SM FEW250 KFOE 220520Z 2206/2306 04006KT P6SM FEW100 KFPR 220535Z 2206/2306 25005KT P6SM FEW040 SCT200 FM221500 24011KT P6SM SCT025 SCT040 FM221800 27012KT P6SM VCTS SCT035CB BKN060 FM230200 23005KT P6SM FEW040 SCT060 BKN150 KFSD 220520Z 2206/2306 08004KT P6SM BKN250 FM221400 12006KT P6SM BKN150 FM221800 14007KT P6SM FEW035 BKN150 FM230200 VRB04KT P6SM SCT100 KFSM 220520Z 2206/2306 01004KT P6SM SKC FM221500 34008KT P6SM SKC FM230100 VRB03KT P6SM SKC KFST 220532Z 2206/2306 15009KT P6SM SCT250 KFTK 220100Z 2201/2307 27009KT 9999 BKN030 BKN045 QNH2974INS TEMPO 2201/2203 6000 -TSRA OVC030CB BECMG 2206/2207 30009KT 9999 OVC030 QNH2974INS BECMG 2214/2215 30010G15KT 9999 OVC030 QNH2974INS BECMG 2220/2221 31010G15KT 8000 -SHRA OVC020 QNH2976INS BECMG 2303/2304 01006KT 9999 NSW OVC010 QNH2983INS TX22/2219Z TN19/2210Z KFTW 220520Z 2206/2306 19009KT P6SM FEW300 FM221200 26007KT P6SM BKN300 FM222100 VRB03KT P6SM FEW200 SCT300 KFTY 220531Z 2206/2306 VRB03KT P6SM SCT080 FM220900 VRB03KT 3SM BR FEW250 FM221500 29009KT P6SM VCSH SCT035 FM221800 28010G20KT P6SM VCSH BKN045 PROB30 2220/2224 3SM TSRA OVC030CB FM230200 31006KT P6SM VCSH SCT040 BKN080 KFVE 220533Z 2206/2306 14003KT P6SM SKC FM222100 16006KT P6SM VCSH BKN045 FM222300 16006KT 5SM -SHRA BKN035 FM230100 16006KT 5SM -SHRA OVC015 FM230400 17007KT 1SM BR VCSH OVC007 KFWA 220528Z 2206/2306 03005KT P6SM SCT006 OVC080 TEMPO 2206/2207 3SM SHRA BKN005 OVC080 FM221500 05010KT P6SM VCSH OVC020 FM221900 04010KT P6SM VCTS BKN035CB FM230000 04007KT P6SM BKN050 KFXE 220542Z 2206/2306 VRB05KT P6SM FEW040 SCT120 BKN250 FM221400 27007KT P6SM VCSH SCT030 BKN060 FM221700 22008KT P6SM VCTS BKN030CB BKN050 FM222000 25010KT P6SM SHRA BKN035 PROB30 2220/2224 VRB15G25KT TSRA BKN035CB FM230200 VRB05KT P6SM VCSH SCT040 SCT100 BKN250 KFYV 220520Z 2206/2306 00000KT P6SM SKC FM221500 34007KT P6SM SKC FM230100 VRB03KT P6SM SKC KGBD 220520Z 2206/2306 10006KT P6SM VCTS SCT100CB BKN150 TEMPO 2206/2209 -TSRA BKN100CB FM221300 12008KT P6SM SCT150 FM221700 14013KT P6SM SCT200 FM230100 11007KT P6SM SCT200 LTD TO CLD VIS AND WIND KGCC 220520Z 2206/2306 15011KT P6SM SCT250 FM221000 22012KT P6SM FEW250 FM221600 36018G28KT P6SM FEW250 FM230300 01006KT P6SM FEW250 KGCK 220520Z 2206/2306 12010KT P6SM SCT100 FM221400 15012KT P6SM FEW250 FM230200 09011KT P6SM SCT250 KGCN 220520Z 2206/2306 VRB05KT P6SM SCT150 FM221800 24008KT P6SM SCT070 FM230200 VRB03KT P6SM FEW070 KGDV 220536Z 2206/2306 12013KT P6SM SCT180 FM221100 30011KT P6SM SCT050 FM221500 32018G25KT P6SM FEW100 FM230200 31009KT P6SM SKC KGEG 220520Z 2206/2306 23007KT P6SM FEW080 FM221000 12004KT P6SM FEW150 FM222100 33005KT P6SM FEW200 KGFA 220303Z 2203/2309 22009KT 9999 FEW150 QNH2989INS BECMG 2300/2301 06012KT 9999 SKC QNH2995INS TX33/2223Z TN12/2212Z KGFK 220520Z 2206/2306 VRB04KT P6SM BKN150 FM221500 16011KT P6SM BKN050 FM230000 18008KT P6SM VCTS BKN070CB KGFL 220529Z 2206/2306 03006KT P6SM VCSH BKN080 OVC150 FM220800 02008KT P6SM -SHRA OVC035 TEMPO 2208/2212 3SM -SHRA BR OVC020 FM221200 02009KT P6SM VCSH OVC020 FM221600 13012KT P6SM VCSH BKN035 FM230300 15004KT P6SM VCSH OVC025 KGGG 220535Z 2206/2306 22008KT P6SM FEW300 FM221500 25008KT P6SM SCT180 SCT250 FM221800 25007KT P6SM SCT180 BKN250 FM222000 25007KT P6SM BKN150 BKN250 FM230100 20004KT P6SM BKN120 BKN250 KGGW 220536Z 2206/2306 09009KT P6SM BKN090 FM220700 33014KT P6SM VCSH BKN070 FM221500 31020G28KT P6SM SKC FM230200 32010KT P6SM SKC KGJT 220520Z 2206/2306 20005KT P6SM FEW070 BKN110 FM220800 11008KT P6SM BKN250 FM221900 27008KT P6SM FEW110 SCT250 FM230100 33009KT P6SM FEW130 SCT200 FM230400 04009KT P6SM FEW110 SCT150 KGKY 220520Z 2206/2306 19009KT P6SM FEW300 FM221200 26007KT P6SM BKN300 FM222100 VRB03KT P6SM FEW200 SCT300 KGLD 220540Z 2206/2306 21006KT P6SM -RA SCT120 BKN200 FM220900 13008KT P6SM SCT200 FM230200 09007KT P6SM BKN150 KGLH 220520Z 2206/2306 31007KT P6SM SCT150 KGLS 220520Z 2206/2306 20012KT P6SM SCT018= KLFI 220515Z 2205/2307 32010G15KT 9000 BR SCT015 QNH2969INS BECMG 2214/2215 19012G18KT 9000 -SHRA BKN030 QNH2970INS TEMPO 2218/2222 18015G25KT 8000 -TSRA BKN030CB OVC045 TX24/2218Z TN20/2208Z KGMU 220541Z 2206/2306 23003KT P6SM SCT008 SCT250 TEMPO 2206/2209 BKN008 FM220900 25003KT P6SM SCT005 SCT008 BKN080 FM221500 23006KT P6SM SCT050 PROB30 2218/2224 4SM -TSRA BKN050CB FM230000 35003KT P6SM BKN070 PROB30 2300/2304 4SM -TSRA OVC025CB KGNV 220641Z 2207/2306 27005KT P6SM BKN008 FM221400 25009KT P6SM SCT020 SCT080 BKN250 FM221600 26010KT P6SM VCTS SCT040CB BKN080 FM230000 24008KT P6SM VCSH SCT030 SCT080 BKN250 KGON 220547Z 2206/2306 09016G26KT 6SM -SHRA BR OVC008 WS020/14050KT FM220800 09021G32KT 3SM SHRA BR OVC006 WS020/13055KT TEMPO 2208/2210 2SM TSRA OVC008CB FM221000 13018G27KT 3SM -SHRA BR BKN006 WS020/16050KT FM221400 15015G25KT 3SM BR VCSH BKN010 FM230000 15014KT 5SM -SHRA OVC025 KGPI 220520Z 2206/2306 26004KT P6SM SKC FM221800 11006KT P6SM SKC KGPT 220520Z 2206/2306 28005KT P6SM SKC FM221800 28012KT P6SM FEW045 FEW250 FM230000 VRB06KT P6SM FEW250 KGRB 220520Z 2206/2306 01013G20KT P6SM VCSH SCT008 OVC015 TEMPO 2207/2209 BKN008 FM220900 02011G17KT 5SM -SHRA BR OVC007 FM221400 03011G17KT P6SM OVC015 TEMPO 2215/2217 BKN025 FM221700 04011G17KT P6SM SCT030 BKN070 FM222200 04010KT P6SM SCT080 FM230100 01007KT P6SM SCT100 KGRF 212106Z 2121/2303 33012KT 9999 SKC QNH3014INS BECMG 2203/2204 VRB06KT 9999 FEW250 QNH3016INS BECMG 2216/2217 03012KT 9999 SKC QNH3009INS TX23/2123Z TN12/2213Z KGRI 220525Z 2206/2306 11005KT P6SM BKN200 FM221700 14007KT P6SM FEW040 SCT200 FM230300 10005KT P6SM BKN150 KGRK 220024Z 2200/2306 18012KT 9999 FEW320 QNH2992INS BECMG 2207/2208 22010KT 9999 SKC QNH2995INS BECMG 2219/2220 17009KT 9999 SKC QNH2993INS TEMPO 2220/2224 17012G20KT TX41/2221Z TN25/2212Z KGRR 220540Z 2206/2306 03005KT P6SM FEW005 BKN030 FM221200 05005KT P6SM VCSH BKN008 OVC020 FM221800 05006KT P6SM BKN015 OVC020 FM222100 05007KT P6SM BKN060 KGSB 220616Z 2206/2310 17009KT 8000 -SHRA VCTS BKN007 BKN020CB QNH2973INS BECMG 2209/2210 17009KT 9999 NSW BKN006 OVC025 QNH2974INS BECMG 2213/2214 20009KT 9999 SCT010 BKN045 OVC080 QNH2970INS BECMG 2218/2219 19010G15KT 8000 -SHRA BKN035 OVC080 QNH2968INS TEMPO 2220/2223 18012G20KT 6000 -TSRA OVC025CB BECMG 2305/2306 12006KT 4800 BR BKN015 QNH2983INS TX30/2220Z TN21/2210Z KGSO 220537Z 2206/2306 VRB05KT P6SM SCT005 BKN035 TEMPO 2210/2213 5SM BR BKN005 FM221500 09005KT P6SM SCT040 BKN250 KGSP 220541Z 2206/2306 23004KT P6SM SCT012 BKN040 FM220800 23003KT P6SM SCT009 SCT080 TEMPO 2211/2213 5SM BR FEW005 FM221800 22007KT P6SM BKN050 PROB30 2218/2223 4SM -TSRA OVC025CB FM222300 33003KT P6SM BKN050 PROB30 2223/2304 4SM -TSRA OVC025CB KGTB 220100Z 2201/2307 12009KT 9999 FEW250 QNH2992INS BECMG 2208/2209 08009KT 8000 -SHRA BKN010 OVC020 QNH2978INS BECMG 2212/2213 16015G25KT 8000 -SHRA BKN030 QNH2973INS BECMG 2216/2217 27009KT 8000 -SHRA BKN020 QNH2975INS TX28/2219Z TN16/2210Z KGTF 220622Z 2206/2306 03005KT P6SM VCSH SCT080 BKN120 FM220800 22005KT P6SM SCT100 BKN150 FM221600 32010KT P6SM SKC KGTR 220520Z 2206/2306 31008KT P6SM SCT150 FM221300 32006G14KT P6SM SCT150 FM230000 00000KT P6SM BKN250 KGUC 220520Z 2206/2306 VRB03KT P6SM FEW100 BKN120 FM222000 31007KT P6SM FEW090 SCT200 FM222100 34008KT P6SM VCTS SCT100CB BKN130 FM230400 VRB04KT P6SM SCT080 BKN140 KGUP 220539Z 2206/2306 VRB06KT P6SM SCT120 FM221900 25007KT P6SM SCT090 FM230500 VRB03KT P6SM FEW110 KGUS 220407Z 2204/2309 33009KT 8000 -SHRA OVC006 QNH2971INS BECMG 2211/2212 01009KT 9999 NSW OVC010 QNH2974INS BECMG 2214/2215 03009KT 8000 -SHRA OVC020 QNH2976INS TEMPO 2215/2218 02012G18KT BECMG 2223/2224 02006KT 9999 NSW SCT020 BKN050 QNH2984INS TX24/2220Z TN16/2302Z KGUY 220520Z 2206/2306 17011KT P6SM SCT200 FM221500 22014KT P6SM FEW090 FM230200 01016G26KT P6SM BKN100 KGWO 220520Z 2206/2306 31006KT P6SM SCT150 KGYY 220612Z 2206/2306 35012KT P6SM VCSH OVC013 TEMPO 2206/2208 02008KT BKN009 OVC020 FM221100 01012KT 6SM -SHRA OVC010 TEMPO 2211/2215 3SM SHRA FM221500 02012G17KT P6SM VCSH SCT007 BKN015 FM221900 03012G17KT P6SM SCT025 BKN040 FM230100 03009KT P6SM SCT050 KHBG 220520Z 2206/2306 22006KT P6SM SCT150 FM221500 29011G20KT P6SM SCT080 FM230100 29004KT P6SM SKC KHCR 220529Z 2206/2306 12008KT P6SM -SHRA SCT050 BKN070 FM220700 VRB04KT P6SM SCT060 BKN110 FM221900 23010KT P6SM VCSH SCT070 BKN100 FM230300 VRB04KT P6SM SCT080 BKN120 KHDC 220520Z 2206/2306 25008KT P6SM SKC FM221400 27010KT P6SM FEW250 FM230000 27005KT P6SM FEW250 KHDN 220520Z 2206/2306 11006KT P6SM VCSH SCT110 BKN140 FM221900 33005KT P6SM SCT090 BKN140 FM222100 31007KT P6SM VCTS FEW080CB SCT120 FM230000 06008KT P6SM SCT090 BKN120 KHIB 220620Z 2206/2306 00000KT 2SM BR FEW011 FM221000 VRB03KT 3SM BR BKN020 FM221300 VRB03KT P6SM SCT150 FM221900 11006KT P6SM FEW250 KHIE 220520Z 2206/2306 13005KT P6SM OVC040 FM221400 12005KT 4SM -SHRA BR OVC010 KHIF 220539Z 2205/2311 16012G18KT 9999 SCT150 QNH3016INS BECMG 2206/2207 11012KT 9999 SCT100 BKN200 QNH3018INS BECMG 2216/2217 11009KT 9999 SCT100 BKN150 QNH3015INS BECMG 2219/2220 32009KT 9999 SCT150 QNH3012INS BECMG 2308/2309 11012KT 9999 SCT100 QNH3010INS TX35/2223Z TN20/2212Z KHIO 220539Z 2206/2306 31009KT P6SM SKC FM220800 31007KT P6SM SKC KHKS 220520Z 2206/2306 24003KT P6SM SCT150 FM221400 30011G18KT P6SM SKC FM230100 VRB03KT P6SM SKC KHKY 220541Z 2206/2306 VRB03KT P6SM BKN090 TEMPO 2210/2212 3SM BR FEW005 FM221500 18003KT P6SM SCT060 PROB30 2217/2220 4SM -TSRA OVC025CB FM222000 21003KT P6SM -SHRA VCTS BKN050CB FM230100 VRB02KT P6SM BKN050 PROB30 2301/2304 4SM -TSRA OVC025CB KHLG 220528Z 2206/2306 08005KT P6SM BKN250 FM221500 13008KT P6SM BKN035 FM221900 07005KT P6SM -SHRA VCTS BKN040CB FM222300 10005KT P6SM BKN060 KHLN 220535Z 2206/2306 27005KT P6SM FEW100 FM220800 VRB05KT P6SM SKC FM221800 32009KT P6SM SKC KHMN 220404Z 2204/2310 16009KT 9999 SKC QNH3005INS BECMG 2217/2218 30009KT 9999 SKC QNH3001INS BECMG 2223/2224 14009KT 9999 SKC QNH3001INS TX38/2222Z TN23/2211Z KHNB 220534Z 2206/2306 30008KT P6SM BKN022 FM221100 31009KT P6SM BKN010 TEMPO 2211/2215 BKN008 FM221600 33010KT P6SM VCSH BKN021 FM222000 35008KT 6SM -SHRA BKN040 FM222300 36005KT P6SM BKN060 KHND 220520Z 2206/2306 19010KT P6SM SCT110 BKN250 FM221700 VRB05KT P6SM SCT120 SCT250 KHOB 220532Z 2206/2306 16007KT P6SM SCT250 KHON 220520Z 2206/2306 10006KT P6SM OVC250 FM221000 13006KT P6SM SCT120 OVC250 FM221800 15011G16KT P6SM SCT035 FM230100 15008KT P6SM VCSH BKN050 FM230400 18005KT P6SM BKN050 KHOP 220000Z 2200/2306 30012KT 9999 BKN050 QNH2980INS BECMG 2211/2212 30009KT 9999 BKN015 OVC040 QNH2980INS BECMG 2215/2216 31012G18KT 9999 FEW020 BKN040 QNH2979INS BECMG 2217/2218 30012G18KT 8000 -SHRA OVC020 QNH2978INS BECMG 2223/2224 34009KT 9999 NSW OVC015 QNH2978INS TX27/2200Z TN19/2211Z KHOT 220539Z 2206/2306 VRB05KT P6SM SKC FM230000 34004KT P6SM BKN250 KHOU 220520Z 2206/2306 20008KT P6SM BKN250 FM221300 25009KT P6SM SCT020 FM221600 24008KT P6SM SCT250 FM222300 20012KT P6SM SCT250 KHPN 220540Z 2206/2306 10020G30KT 1SM +SHRA BR BKN005 OVC015 WS020/13055KT TEMPO 2206/2208 1SM +TSRA BKN005 OVC012CB FM220800 10015G24KT 2SM SHRA BR OVC006 WS020/13045KT FM221200 15010KT P6SM VCSH OVC011 FM221500 17009G19KT P6SM VCSH OVC020 FM230100 15011KT P6SM VCSH OVC020 FM230400 16011KT 3SM SHRA OVC028 NOT SKED KHQM 220520Z 2206/2306 VRB04KT P6SM SCT018 FM220800 26004KT P6SM OVC010 FM221800 24010KT P6SM SKC FM230400 24005KT P6SM SCT020 BKN250 KHRL 220538Z 2206/2306 16006KT P6SM SKC TEMPO 2209/2212 5SM BR FM221500 18015G21KT P6SM SCT035 FM221800 16014G20KT P6SM FEW050 FM222300 15018G24KT P6SM SKC FM230200 16011KT P6SM SKC KHRO 220539Z 2206/2306 VRB06KT P6SM SCT250 FM230300 VRB03KT P6SM BKN250 KHRT 220100Z 2201/2307 27009KT 9999 FEW200 QNH2982INS BECMG 2216/2217 26010G15KT 9999 VCTS SCT030CB QNH2978INS TEMPO 2218/2221 VRB15G25KT 6000 -TSRA BKN025CB BECMG 2221/2222 32012KT 9999 NSW BKN030 QNH2971INS BECMG 2300/2301 26006KT 9999 SCT030 BKN050 QNH2971INS BECMG 2306/2307 VRB04KT 9999 SCT030 BKN050 QNH2977INS TX33/2218Z TN28/2211Z KHST 220000Z 2200/2306 23009KT 9999 SCT030 SCT200 QNH2994INS BECMG 2214/2215 26009KT 9999 VCTS BKN030CB BKN150 QNH2996INS TEMPO 2219/2223 VRB15G25KT 4800 -TSRA BKN025CB BECMG 2223/2224 26009KT 9999 NSW SCT030 SCT200 QNH2995INS TX33/2217Z TN26/2209Z KHSV 220520Z 2206/2306 31007KT P6SM FEW070 FM221600 29008KT P6SM SCT040 FM222000 31010KT P6SM VCSH BKN040 FM230000 33008KT P6SM BKN100 KHTS 220534Z 2206/2306 00000KT P6SM OVC060 FM221000 00000KT 5SM -SHRA BR OVC007 FM221500 VRB03KT P6SM -SHRA VCTS OVC025CB FM230200 00000KT P6SM BKN050 KHUF 220640Z 2207/2306 31010KT P6SM BKN025 FM221200 32008KT P6SM VCTS OVC008CB FM221600 35008KT P6SM VCTS OVC015CB FM221800 35008KT 6SM -SHRA VCTS OVC025CB FM230200 02006KT P6SM BKN050 KHUL 220533Z 2206/2306 18005KT P6SM SKC FM221700 16006KT P6SM -SHRA OVC020 FM222000 17006KT 3SM -RA BR OVC010 FM230100 17007KT 2SM -RA BR OVC006 KHUM 220520Z 2206/2306 25005KT P6SM SKC FM221400 26010KT P6SM SCT250 FM230300 26006KT P6SM SCT250 KHUT 220520Z 2206/2306 07006KT P6SM BKN200 FM221600 13011KT P6SM FEW040 SCT200 FM230100 09006KT P6SM FEW250 KHVR 220535Z 2206/2306 32009KT P6SM BKN080 FM220800 28005KT P6SM SCT080 FM221600 33015KT P6SM SKC KHYA 220533Z 2206/2306 10010KT P6SM OVC005 FM220900 13011KT 6SM BR OVC005 FM221100 14012G20KT 3SM -RA BR OVC004 WS020/15040KT FM221200 15014G21KT 2SM RA BR OVC005 WS020/16040KT FM221400 17014KT 2SM -RA BR OVC003 WS020/18040KT FM221600 17013G22KT 3SM -RA BR OVC005 FM222200 16013G21KT 6SM BR VCSH OVC008 FM230000 16013G21KT P6SM OVC015 KHYR 220535Z 2206/2306 03005KT P6SM BKN010 FM220800 03006KT P6SM BKN008 FM221200 04007KT P6SM BKN050 FM221600 03008G13KT P6SM SKC KHYS 220520Z 2206/2306 12009KT P6SM VCTS BKN070CB FM221100 12005KT P6SM SCT200 FM230300 10007KT P6SM FEW250 KIAB 220200Z 2202/2308 09006KT 9999 SCT200 QNH2997INS BECMG 2214/2215 09009KT 9999 BKN150 QNH2995INS TX33/2220Z TN20/2212Z KIAD 220536Z 2206/2312 31011KT 6SM -RA BR OVC015 FM220900 VRB03KT P6SM BKN035 FM221500 14006KT P6SM BKN040 FM221800 13006KT P6SM -SHRA OVC045 FM230600 14006KT 4SM BR BKN200 KIAG 220546Z 2206/2306 11012KT 6SM -RA OVC045 FM220900 07007KT 3SM +RA OVC025 FM221200 03010KT 3SM +RA OVC007 FM221400 03008KT 6SM -RA OVC007 FM221800 20007KT P6SM OVC012 FM222000 21009KT P6SM BKN040 FM230200 12006KT P6SM BKN060 KIAH 220520Z 2206/2312 20006KT P6SM SCT250 FM221100 24004KT P6SM BKN012 FM221400 26008KT P6SM SCT020 FM221800 23007KT P6SM SCT250 FM230000 20007KT P6SM SCT250 KICT 220520Z 2206/2306 09005KT P6SM BKN200 FM221600 12007KT P6SM FEW040 SCT200 KIDA 220520Z 2206/2306 21008KT P6SM SCT120 FM221900 22009KT P6SM FEW110 KIFP 220520Z 2206/2306 15007KT P6SM SCT150 BKN250 FM221200 19008KT P6SM FEW120 SCT250 KILG 220535Z 2206/2306 12015G28KT P6SM VCSH SCT007 OVC012 WS020/18035KT TEMPO 2206/2208 3SM RA OVC007 FM220800 16010G20KT P6SM VCSH OVC009 FM221400 17008KT P6SM BKN020 FM221900 15012KT 6SM -SHRA OVC035 KILM 220521Z 2206/2306 20006KT P6SM SCT100 BKN250 FM221400 16011G19KT P6SM SCT020 SCT100 FM230000 17010KT P6SM VCSH SCT050 OVC100 KILN 220633Z 2207/2306 VRB03KT 1SM BR OVC002 FM221300 05005KT 5SM BR VCSH OVC008 FM221500 05008KT P6SM -SHRA OVC012 FM221900 04008KT P6SM -SHRA VCTS BKN022CB FM230100 04006KT P6SM BKN035 KIND 220520Z 2206/2312 31009KT P6SM OVC010 FM221200 34006KT P6SM VCTS OVC008CB FM221500 01007KT P6SM VCTS OVC010CB FM221800 02007KT 6SM -SHRA VCTS OVC035CB FM230000 03007KT P6SM BKN060 KINK 220532Z 2206/2306 13008KT P6SM SCT250 KINL 220535Z 2206/2306 08005KT P6SM SCT090 FM221300 09006KT P6SM SKC KINT 220537Z 2206/2306 VRB05KT P6SM SCT007 BKN035 TEMPO 2210/2213 5SM BR BKN007 FM221500 09005KT P6SM SCT040 BKN250 KINW 220520Z 2206/2306 23006KT P6SM FEW150 KIPL 220553Z 2206/2306 VRB04KT P6SM FEW250 FM230200 25007KT P6SM SKC KIPT 220538Z 2206/2306 VRB04KT 5SM -RA BR SCT007 OVC015 TEMPO 2206/2208 09009KT 2SM RA BR OVC007 FM220900 10010KT 4SM -RA BR SCT007 OVC015 TEMPO 2209/2212 2SM BR OVC005 FM221200 12008KT 6SM BR SCT005 BKN015 FM221500 14008KT P6SM BKN035 FM222000 15009KT 6SM -SHRA VCTS SCT025 BKN050CB FM230100 14007KT 6SM BR BKN012 OVC035 KISM 220535Z 2206/2306 25005KT P6SM FEW040 FM221500 24010KT P6SM VCSH SCT025 SCT040 FM221700 27012KT P6SM VCTS SCT035CB BKN060 FM230200 23005KT P6SM FEW040 SCT060 BKN150 NOT SKED TIL 221200 KISN 220528Z 2206/2306 16010G18KT P6SM FEW250 FM221100 21006KT P6SM VCTS SCT045CB BKN080 FM221700 29014KT P6SM FEW060 SCT200 KISO 220557Z 2206/2306 18007KT P6SM BKN010 TEMPO 2208/2212 BKN009 FM221300 18005KT P6SM BKN035 FM221800 18010G18KT 4SM -TSRA BKN050CB FM230000 16008KT P6SM VCSH BKN035 LTD TO CLD VIS AND WIND KISP 220547Z 2206/2306 10023G34KT 2SM +SHRA BR BKN004 OVC006 WS020/13055KT TEMPO 2207/2209 2SM +TSRA OVC006CB FM220900 11022G32KT 2SM SHRA BR OVC009 WS020/13055KT FM221100 16016G28KT P6SM VCSH BKN010 OVC020 FM221500 17014G26KT P6SM VCSH BKN020 OVC040 FM230300 16011KT 3SM SHRA OVC020 KITH 220606Z 2206/2306 07005KT P6SM -SHRA OVC030 FM220900 09009KT 6SM -SHRA OVC025 WS020/12050KT TEMPO 2209/2213 3SM SHRA BR OVC012 FM221300 10011G23KT 6SM -SHRA BR OVC024 FM221500 16015G25KT P6SM BKN035 FM230100 14008KT P6SM BKN030 OVC060 KIWA 220553Z 2206/2306 29007KT P6SM BKN250 FM221000 14005KT P6SM SCT250 FM221600 29008KT P6SM FEW250 LTD TO CLD VIS AND WIND TIL 221300 KIWD 220534Z 2206/2306 03004KT P6SM OVC008 TEMPO 2206/2210 5SM BR OVC005 FM221200 03003KT P6SM BKN015 FM221500 02005KT P6SM BKN045 FM221600 02006KT P6SM SCT070 FM230500 00000KT P6SM FEW250 KIXD 220520Z 2206/2306 VRB04KT P6SM SCT200 FM221700 02008KT P6SM FEW050 KJAC 220521Z 2206/2306 36005KT P6SM FEW120 FM221300 VRB04KT P6SM FEW120 FM221900 21008KT P6SM FEW100 FM230200 VRB05KT P6SM SKC LTD TO CLD VIS AND WIND KJAN 220520Z 2206/2306 24003KT P6SM SCT150 FM221400 30011G18KT P6SM SKC FM230100 VRB03KT P6SM SKC KJAX 220608Z 2206/2306 26005KT P6SM OVC010 FM221400 25009KT P6SM SCT020 SCT080 BKN250 FM221700 26010KT P6SM VCTS SCT040CB BKN080 FM230000 24008KT P6SM VCSH SCT030 SCT080 BKN250 KJBR 220520Z 2206/2306 34005KT P6SM SKC FM221500 32008KT P6SM SCT050 FM230000 36004KT P6SM FEW050 KJCT 220551Z 2206/2306 25005KT P6SM SKC FM221500 19008KT P6SM SKC FM230000 18005KT P6SM SKC KJER 220520Z 2206/2306 23008KT P6SM FEW150 SCT250 FM221800 25010KT P6SM SCT150 SCT250 FM230200 VRB06KT P6SM SCT150 SCT250 KJFK 220540Z 2206/2312 10026G35KT 3SM SHRA BR BKN004 OVC009 WS020/13060KT TEMPO 2206/2208 2SM +TSRA BR OVC009CB FM221000 15018G28KT P6SM VCSH OVC010 FM221500 15012G23KT P6SM VCSH BKN020 OVC040 FM230100 16011G21KT P6SM VCSH OVC015 FM230400 16011KT 3SM SHRA OVC028 KJHW 220546Z 2206/2306 11007KT 5SM -RA SCT015 OVC040 TEMPO 2206/2208 BKN015 FM220800 07006KT 3SM +RA OVC015 FM220900 06006KT 3SM +RA OVC007 FM221200 01007KT 6SM -RA OVC007 FM221600 30004KT P6SM BKN012 FM221800 20005KT P6SM BKN025 FM230000 13007KT P6SM OVC025 KJKL 220539Z 2206/2306 00000KT 3/4SM BR BKN003 OVC020 FM221100 VRB01KT 1 1/2SM BR BKN003 OVC010 FM221400 VRB03KT P6SM VCSH BKN008 OVC010 FM221600 VRB02KT P6SM VCSH BKN010 OVC015 FM230100 00000KT 2SM BR VCSH BKN035 KJLN 220520Z 2206/2306 VRB04KT P6SM SKC FM221400 02007KT P6SM FEW250 KJMS 220528Z 2206/2306 12006KT P6SM BKN110 OVC200 FM221700 16013KT P6SM FEW040 SCT250 FM222200 18013KT 6SM -SHRA VCTS SCT050CB BKN060 FM230000 21008KT P6SM SCT040 BKN050 FM230300 31007KT P6SM FEW045 SCT130 KJST 220538Z 2206/2306 05005KT 6SM -RA BKN002 OVC010 FM220900 33005KT 4SM BR OVC005 FM221300 25008KT P6SM SCT005 BKN015 FM221700 15009KT 6SM -SHRA VCTS SCT025 BKN050CB FM230100 14007KT 6SM BR BKN012 OVC035 KJXN 220540Z 2206/2306 06004KT P6SM VCSH FEW008 BKN025 FM221200 06005KT P6SM VCSH BKN010 OVC015 FM222000 02007KT P6SM BKN050 KLAF 220640Z 2207/2306 33009KT P6SM OVC007 FM221200 35007KT P6SM VCTS OVC008CB FM221500 01008KT P6SM VCTS OVC015CB FM221800 02007KT 6SM -SHRA VCTS OVC040CB FM230400 03005KT P6SM BKN100 LTD TO CLD VIS AND WIND TIL 221300 KLAL 220529Z 2206/2306 VRB05KT P6SM SCT025 BKN200 FM221300 26010KT P6SM SCT020 SCT150 FM221700 26014KT P6SM VCTS BKN035CB BKN100 FM230300 25005KT P6SM VCTS FEW020CB BKN120 NOT SKED TIL 221100 KLAN 220540Z 2206/2306 05005KT P6SM VCSH FEW010 BKN030 FM221100 06006KT P6SM VCSH BKN015 OVC025 FM222000 05010KT P6SM BKN050 KLAR 220522Z 2206/2306 18010KT P6SM SKC FM221700 32011KT P6SM SKC FM221900 35014KT P6SM VCTS BKN050CB FM222300 02011KT P6SM BKN100 KLAS 220520Z 2206/2312 11007KT P6SM FEW150 BKN200 FM221000 VRB05KT P6SM FEW150 SCT250 FM221800 11006KT P6SM FEW120 SCT250 FM230400 22011KT P6SM FEW120 SCT250 KLAW 220520Z 2206/2306 06008KT P6SM SKC FM221900 10007KT P6SM FEW250 KLAX 220557Z 2206/2312 22006KT P6SM BKN010 FM220900 VRB03KT P6SM OVC012 FM221700 26006KT P6SM SCT015 FM222000 26014KT P6SM SKC FM230600 25006KT P6SM SCT008 FM231100 25006KT P6SM BKN008 KLBB 220533Z 2206/2306 18010KT P6SM SCT250 KLBE 220528Z 2206/2306 04008KT P6SM BKN025 FM221300 18008KT P6SM BKN035 FM222000 12010KT P6SM -SHRA VCTS BKN040CB FM222300 11005KT P6SM BKN060 KLBF 220520Z 2206/2306 13006KT P6SM OVC250 FM221500 16008KT P6SM FEW200 FM222000 15010KT P6SM SCT100 FM230100 12007KT P6SM BKN100 PROB30 2301/2306 5SM -TSRA BKN050CB OVC100 KLBL 220520Z 2206/2306 11013KT P6SM SCT100 FM221500 16010KT P6SM FEW250 FM230000 09010KT P6SM FEW250 KLBT 220521Z 2206/2306 20005KT P6SM SCT060 BKN100 FM221400 21010KT P6SM SCT020 SCT080 FM221800 21009KT P6SM BKN040 FM230100 17005KT P6SM VCSH SCT020 BKN050 KLBX 220520Z 2206/2306 21006KT P6SM SCT250 FM221400 24007KT P6SM BKN022 FM221600 22012KT P6SM SCT250 FM222200 20014KT P6SM SCT250 KLCH 220520Z 2206/2306 24006KT P6SM BKN250 TEMPO 2212/2214 BKN012 FM221500 25010G15KT P6SM SKC FM230100 24006KT P6SM SKC KLCK 220531Z 2206/2306 14004KT P6SM BKN025 FM220900 08007KT P6SM VCSH OVC008 FM221400 07007KT P6SM -SHRA OVC018 FM221800 05008KT P6SM -SHRA BKN025 FM230200 05006KT P6SM VCSH BKN015 KLEB 220520Z 2206/2306 00000KT P6SM BKN250 FM220900 00000KT P6SM OVC015 FM221100 00000KT P6SM -SHRA OVC010 WS020/12035KT FM221500 07007KT 3SM -SHRA OVC008 WS020/12035KT FM221900 15008KT 5SM -SHRA BKN010 FM230500 00000KT 3SM -SHRA BR OVC003 KLEE 220535Z 2206/2306 25005KT P6SM FEW040 FM221500 24010KT P6SM VCSH SCT025 SCT040 FM221700 27012KT P6SM VCTS SCT035CB BKN060 FM230200 23005KT P6SM FEW040 SCT060 BKN150 KLEX 220534Z 2206/2306 26007KT P6SM VCSH OVC008 FM221700 30006KT 6SM -SHRA BKN018 FM222100 34006KT 6SM -SHRA BKN035 FM230100 01005KT P6SM VCSH BKN045 KLFI 220515Z 2205/2307 32010G15KT 9000 BR SCT015 QNH2969INS BECMG 2214/2215 19012G18KT 9000 -SHRA BKN030 QNH2970INS TEMPO 2218/2222 18015G25KT 8000 -TSRA BKN030CB OVC045 TX24/2218Z TN20/2208Z KLFK 220535Z 2206/2306 22006KT P6SM FEW300 FM221200 25004KT P6SM SCT010 FM221500 26008KT P6SM SCT300 FM221800 25007KT P6SM FEW170 SCT250 FM230100 19004KT P6SM FEW170 BKN250 KLFT 220520Z 2206/2306 24008KT P6SM SCT250 TEMPO 2212/2215 BKN010 FM221500 27010KT P6SM SKC FM221800 26014G22KT P6SM SKC FM230100 24008KT P6SM SKC KLGA 220540Z 2206/2312 09023G35KT 3SM SHRA BR BKN006 OVC010 WS020/13055KT TEMPO 2206/2208 2SM +TSRA BR OVC010CB FM221000 14015G26KT P6SM VCSH OVC012 FM221500 14012G20KT P6SM VCSH BKN020 OVC040 FM230100 15011G18KT P6SM VCSH OVC020 FM230400 16011KT 3SM SHRA OVC028 KLGB 220529Z 2206/2306 30008KT P6SM SCT250 FM220900 VRB03KT P6SM SCT250 FM221900 20008KT P6SM SKC FM222200 30012KT P6SM SKC FM230500 30006KT P6SM SKC KLGU 220529Z 2206/2306 27007KT P6SM SCT100 BKN150 FM220800 VRB04KT P6SM SCT120 BKN150 FM222300 35006KT P6SM SCT120 BKN150 KLIT 220539Z 2206/2306 VRB06KT P6SM SKC FM221500 34005KT P6SM SCT250 KLLQ 220539Z 2206/2306 VRB02KT P6SM SCT100 FM221800 33006KT P6SM SCT250 KLMT 220540Z 2206/2306 32005KT P6SM SKC FM221800 VRB03KT P6SM SCT080 BKN150 FM230000 30010KT P6SM VCTS BKN080CB BKN120 FM230400 24004KT P6SM SCT100 SCT150 KLND 220521Z 2206/2306 VRB05KT P6SM SCT120 BKN200 FM221700 36007KT P6SM SCT110 BKN200 FM222100 VRB06KT P6SM VCTS BKN100CB FM230200 VRB05KT P6SM VCSH BKN110 KLNK 220520Z 2206/2306 VRB05KT P6SM SCT150 BKN250 FM221500 10007KT P6SM BKN150 FM230200 08005KT P6SM SCT100 BKN250 KLNS 220538Z 2206/2306 02016G22KT 5SM -SHRA BR SCT007 OVC015 FM220700 15006KT P6SM VCSH SCT012 OVC025 FM221000 17008KT P6SM SCT025 OVC040 FM221900 15008G16KT P6SM VCTS SCT035 BKN050CB FM230100 12007KT P6SM VCSH OVC025 KLOZ 220539Z 2206/2306 VRB04KT P6SM BKN015 OVC025 FM220900 25004KT P6SM BKN008 OVC015 FM221500 25005KT 6SM SHRA BKN015 FM221900 25005KT 6SM SHRA BKN020 FM222100 VRB03KT 6SM SHRA SCT020 BKN040 FM230300 00000KT P6SM VCSH BKN025 KLRD 220536Z 2206/2306 15012KT P6SM FEW080 FM221000 15010KT P6SM SCT015 TEMPO 2211/2214 BKN015 FM221600 15012KT P6SM SKC FM230200 14015KT P6SM SKC KLRU 220531Z 2206/2306 25008KT P6SM FEW250 FM221000 30007KT P6SM FEW250 FM221500 14008KT P6SM FEW250 FM230200 24008KT P6SM FEW140 FEW250 KLSE 220530Z 2206/2306 33006KT P6SM SKC FM221200 35006KT P6SM BKN045 FM222300 02005KT P6SM SCT090 KLSV 220521Z 2205/2305 02009KT 9999 VCSH SCT090 BKN130 QNH2994INS TEMPO 2205/2209 9000 -SHRA BKN090 BECMG 2208/2209 02009KT 9999 NSW SCT120 SCT150 QNH3003INS BECMG 2218/2219 16009KT 9999 FEW100 FEW200 QNH2992INS TX38/2223Z TN22/2212Z KLUK 220633Z 2207/2306 24005KT P6SM VCSH OVC012 FM221600 34005KT P6SM -SHRA OVC014 FM221900 01007KT P6SM -SHRA VCTS BKN025CB FM230100 03006KT P6SM BKN035 KLVK 220527Z 2206/2306 29009KT P6SM SKC FM221000 27003KT P6SM SKC FM222000 29012KT P6SM SKC FM230500 29009KT P6SM FEW010 KLVM 220524Z 2206/2306 31010KT P6SM FEW150 FM221000 27012G20KT P6SM FEW150 KLVS 220539Z 2206/2306 18011KT P6SM SKC FM221900 21010KT P6SM FEW110 FM230500 05011KT P6SM FEW110 KLWB 220630Z 2207/2306 00000KT 1 1/2SM BR VCSH SCT001 OVC005 TEMPO 2208/2211 3/4SM -SHRA BR OVC003 FM221100 VRB02KT P6SM BKN003 OVC015 FM221700 14005KT 6SM BR VCSH OVC025 FM222100 14005KT P6SM OVC040 FM230100 VRB03KT P6SM BKN030 KLWS 220520Z 2206/2306 24004KT P6SM SKC FM220900 VRB03KT P6SM SKC FM221900 35005KT P6SM SKC KLWT 220535Z 2206/2306 23009KT P6SM SCT100 FM220800 30009KT P6SM FEW100 FM220900 34015KT P6SM SKC KLYH 220539Z 2206/2306 VRB04KT P6SM -SHRA VCTS BKN025CB TEMPO 2207/2209 4SM -SHRA OVC007 FM221100 VRB04KT P6SM BKN015 OVC025 TEMPO 2211/2212 4SM -SHRA OVC007 FM221400 06005KT 6SM BR VCSH OVC015 FM221800 11005KT P6SM OVC015 FM222300 11005KT P6SM BKN040 KMAF 220532Z 2206/2306 17009KT P6SM SCT250 KMBG 220635Z 2207/2306 10009KT 6SM -SHRA BR VCTS BKN080CB OVC120 TEMPO 2207/2210 VRB15G30KT 2SM TSRA BR BKN050 OVC090CB FM221000 13012KT P6SM SCT040 BKN120 OVC200 FM221400 15014KT P6SM SCT050 FM222200 26009KT P6SM VCSH BKN090 FM230000 35009KT P6SM SCT200 KMBL 220527Z 2206/2306 04007KT P6SM -SHRA SCT015 OVC035 FM221100 05006KT P6SM BKN035 FM221500 04008KT P6SM BKN060 FM230000 02006KT P6SM BKN050 KMBS 220532Z 2206/2306 07008KT P6SM VCSH SCT025 BKN040 OVC060 TEMPO 2206/2210 BKN025 OVC050 FM221000 04008KT P6SM BKN028 OVC060 FM221700 02011KT P6SM -SHRA BKN022 OVC040 FM230200 VRB03KT P6SM BKN020 OVC040 KMCB 220520Z 2206/2306 24004KT P6SM SKC FM221300 28009KT P6SM FEW250 FM230000 31006KT P6SM FEW250 FM230300 00000KT P6SM SCT250 KMCC 220529Z 2206/2306 16010KT P6SM FEW200 FM221800 21005KT P6SM SKC KMCE 220530Z 2206/2306 31008KT P6SM SCT110 BKN200 KMCF 220000Z 2200/2306 25009KT 9999 SCT025 SCT150 QNH2990INS BECMG 2212/2213 27010KT 9000 -SHRA VCTS SCT025 BKN050CB QNH2992INS TEMPO 2216/2223 VRB10G20KT 6000 -TSRA BKN040CB BECMG 2223/2224 25010KT 9999 NSW BKN030 QNH2987INS TX30/2222Z TN27/2209Z KMCI 220520Z 2206/2306 VRB04KT P6SM SCT200 FM221700 02008KT P6SM FEW050 KMCK 220540Z 2206/2306 21004KT P6SM SCT120 BKN200 FM220800 12006KT P6SM SCT250 FM230200 07006KT P6SM BKN250 KMCN 220531Z 2206/2306 27006KT P6SM SCT040 BKN080 TEMPO 2206/2208 VRB15G30KT 2SM TSRA BKN030CB FM220900 VRB03KT 3SM BR FEW050 SCT100 FM221400 28007KT P6SM VCSH SCT035 FM221800 28010G20KT P6SM VCSH BKN045 PROB30 2220/2224 3SM TSRA OVC030CB FM230200 31006KT P6SM VCSH SCT040 BKN080 KMCO 220535Z 2206/2312 24006KT P6SM FEW040 FM221500 25010KT P6SM VCSH SCT025 SCT040 FM221700 26012KT P6SM VCTS SCT035CB BKN060 FM230100 23008KT P6SM FEW040 SCT060 BKN120 KMCW 220535Z 2206/2306 35006KT P6SM SKC FM221100 01008KT 5SM BR SCT013 BKN150 FM221300 02007KT P6SM FEW050 SCT120 KMDT 220538Z 2206/2306 02006G14KT 5SM -SHRA OVC007 TEMPO 2206/2207 VRB05KT 3SM -SHRA BR SCT007 OVC020 FM220800 15006KT 6SM -SHRA SCT012 OVC025 FM221000 17008KT P6SM SCT025 OVC040 FM221900 15008G16KT P6SM VCTS SCT035 BKN050CB FM230100 12007KT P6SM VCSH OVC025 KMDW 220545Z 2206/2312 36012KT P6SM VCSH SCT008 BKN012 TEMPO 2206/2208 3SM SHRA BKN008 OVC012 FM221100 01012KT 6SM -SHRA SCT008 OVC010 TEMPO 2211/2215 3SM SHRA BKN008 FM221500 03012G18KT P6SM VCSH BKN015 FM221900 04012G17KT P6SM SCT025 BKN040 FM230100 03009KT P6SM FEW050 KMEI 220520Z 2206/2306 23006KT P6SM SCT150 FM221400 30013G20KT P6SM SKC FM230000 30006KT P6SM SKC KMEM 220520Z 2206/2312 33005KT P6SM SKC FM221500 32010KT P6SM SCT050 FM230000 01005KT P6SM SCT050 KMER 220530Z 2206/2306 31009KT P6SM SCT110 BKN200 NOT SKED KMFD 220549Z 2206/2306 11007KT P6SM VCSH BKN025 FM220800 10006KT P6SM SCT025 OVC060 FM221200 09007KT P6SM BKN025 FM221700 06010KT P6SM BKN050 FM230100 01007KT P6SM OVC025 KMFE 220538Z 2206/2306 15010KT P6SM SKC FM221500 16013G19KT P6SM FEW040 FM222200 14017G24KT P6SM FEW070 FM230200 15013KT P6SM SKC KMFR 220540Z 2206/2306 33005KT P6SM BKN040 FM220700 36003KT 5SM FU BKN030 FM222200 31008KT 1 1/2SM FU OVC030 FM230400 36003KT 5SM FU BKN040 KMGE 220500Z 2205/2311 VRB06KT 9999 SCT030 QNH2978INS BECMG 2215/2216 26010G15KT 9999 BKN030 QNH2974INS TEMPO 2220/2224 29015G25KT 4800 -TSRA BKN030CB BECMG 2300/2301 VRB06KT 9999 SCT050 QNH2976INS TX30/2220Z TN21/2211Z KMGM 220520Z 2206/2306 25005KT P6SM SCT050 FM221500 30012KT P6SM SCT040 FM230000 29005KT P6SM SKC KMGW 220604Z 2206/2306 12005KT P6SM SCT025 BKN035 FM221900 14005KT P6SM -SHRA VCTS BKN035CB FM222300 11005KT P6SM BKN060 KMHK 220520Z 2206/2306 05005KT P6SM SCT100 KMHR 220529Z 2206/2306 17006KT P6SM SKC FM221800 22006KT P6SM FEW250 KMHT 220520Z 2206/2306 04006KT P6SM OVC015 FM221100 04009KT P6SM -SHRA OVC008 FM221400 06008KT 2SM +SHRA BR OVC008 FM221900 12008KT 4SM -SHRA BR OVC008 FM222300 14008KT P6SM OVC008 KMIA 220542Z 2206/2312 VRB05KT P6SM SCT100 BKN250 FM221200 27005KT P6SM VCSH SCT030 BKN050 FM221700 24007KT P6SM VCTS BKN035CB FM222000 26008KT P6SM SHRA BKN035 PROB30 2220/2224 VRB15G25KT TSRA BKN035CB FM230200 25004KT P6SM VCTS SCT035CB BKN100 BKN250 KMIB 220410Z 2204/2307 15012G18KT 9999 BKN060 BKN150 QNH2995INS BECMG 2205/2206 09012KT 9999 BKN030 OVC120 QNH2995INS BECMG 2213/2214 21012G18KT 8000 -SHRA OVC020 510102 520303 QNH2994INS TEMPO 2215/2218 26020G30KT 3200 -TSRA SCT010 BKN020CB OVC050 BECMG 2220/2221 28015G25KT 9999 NSW SCT050 QNH2995INS BECMG 2301/2302 27009KT 9999 SKC QNH3007INS TX28/2220Z TN17/2211Z KMIV 220535Z 2206/2306 14012G28KT P6SM VCSH OVC006 WS020/16040KT FM220800 17011G20KT P6SM OVC006 FM221400 17009KT P6SM BKN020 FM221800 15012KT P6SM VCSH OVC030 FM222300 15012KT 6SM -SHRA OVC035 KMKC 220520Z 2206/2306 VRB04KT P6SM SCT200 FM221700 01007KT P6SM FEW060 KMKE 220520Z 2206/2312 01011G20KT P6SM VCSH OVC006 TEMPO 2206/2210 BKN004 FM221600 03013KT P6SM VCSH OVC010 FM221900 03013KT P6SM BKN025 FM222100 03012KT P6SM SCT035 FM230400 01006KT P6SM SCT200 KMKG 220540Z 2206/2306 03008KT P6SM VCSH BKN008 OVC015 FM221500 05009KT P6SM VCSH OVC025 FM230000 03006KT P6SM BKN060 KMKL 220520Z 2206/2306 30003KT P6SM SKC FM221500 32012G18KT P6SM SCT050 TEMPO 2218/2222 BKN050 FM230100 35005KT P6SM SCT050 KMKT 220520Z 2206/2306 02005KT P6SM SKC FM221700 06008KT P6SM FEW045 FM230200 05003KT P6SM SKC KMLB 220535Z 2206/2306 24006KT P6SM FEW040 FEW200 FM221500 24011KT P6SM SCT025 SCT040 FM221800 27012KT P6SM VCTS SCT035CB BKN060 FM230200 23005KT P6SM FEW040 SCT060 BKN150 KMLC 220520Z 2206/2306 06003KT P6SM SKC FM221500 07007KT P6SM SKC FM230100 VRB03KT P6SM SKC KMLI 220520Z 2206/2306 36011KT P6SM SKC FM220900 01013KT P6SM BKN025 TEMPO 2211/2214 BKN015 FM222000 02007KT P6SM SCT035 TEMPO 2220/2223 02011KT 5SM -SHRA BKN035 KMLS 220524Z 2206/2306 15006KT P6SM FEW100 BKN200 FM220800 31012G20KT P6SM SCT100 BKN150 FM221400 33018G26KT P6SM SCT150 KMLU 220535Z 2206/2306 VRB04KT P6SM SCT100 FM221500 33007KT P6SM FEW120 SCT250 FM221800 33008KT P6SM SCT170 BKN250 FM222000 33008KT P6SM BKN170 BKN250 FM230100 VRB03KT P6SM BKN150 BKN250 KMMH 220547Z 2206/2306 VRB04KT P6SM SCT100 BKN130 FM221800 11008KT P6SM VCTS SCT070CB BKN100 FM222100 25012G18KT P6SM -TSRA FEW040 BKN060CB OVC100 FM230200 30007KT P6SM -RA SCT060 OVC120 FM230400 VRB04KT P6SM SCT100 BKN130 KMMT 220547Z 2205/2305 25009KT 9999 SKC QNH2975INS TEMPO 2206/2207 9000 -TSRA FEW030 BKN040CB BECMG 2207/2208 20009KT 9999 FEW020 OVC040 QNH2971INS BECMG 2208/2209 20006KT 9999 BKN010 QNH2970INS BECMG 2214/2215 21006KT 9999 FEW030 BKN050 QNH2967INS TX31/2220Z TN24/2209Z KMOB 220527Z 2206/2306 26005KT P6SM SCT250 FM221400 28010G15KT P6SM FEW050 SCT250 KMOD 220529Z 2206/2306 33009KT P6SM SKC KMOT 220528Z 2206/2306 13008KT P6SM FEW200 FM221500 16010KT P6SM VCTS SCT045CB BKN080 FM221800 19012KT P6SM VCTS SCT020CB BKN035 FM222000 25014KT P6SM FEW040 SCT080 FM230200 30009KT P6SM SKC KMPV 220531Z 2206/2306 17003KT P6SM BKN250 FM220900 10005KT P6SM VCSH BKN060 FM221100 11005KT 4SM -SHRA BR OVC050 WS020/13040KT FM221600 12013G20KT P6SM VCSH OVC025 FM230000 15009KT P6SM VCSH BKN015 KMQY 220520Z 2206/2306 29005KT P6SM SCT060 FM221200 31008KT P6SM VCSH BKN025 OVC040 FM221800 31010G18KT P6SM VCTS BKN040CB FM230000 33007KT P6SM VCSH BKN040 KMRB 220536Z 2206/2306 32007KT P6SM OVC015 FM220900 VRB03KT 5SM BR OVC040 FM221200 VRB03KT P6SM BKN050 FM221800 14006KT 5SM -SHRA OVC035 FM222100 10006KT P6SM -SHRA OVC045 KMRY 220527Z 2206/2306 20004KT P6SM OVC004 FM220900 VRB03KT 5SM BR OVC003 FM221700 31004KT P6SM SCT007 FM222000 28009KT P6SM FEW007 FM230000 25008KT P6SM BKN007 FM230300 24004KT 4SM BR OVC003 KMSL 220520Z 2206/2306 31006KT P6SM FEW070 TEMPO 2210/2213 5SM BR FM221500 29008KT P6SM SCT040 FM222000 31010KT P6SM VCSH SCT040 FM230000 33008KT P6SM BKN100 NOT SKED KMSN 220520Z 2206/2306 36010KT P6SM VCSH BKN015 FM220800 36010KT P6SM OVC008 FM221600 03011KT P6SM OVC010 FM221900 03010KT P6SM BKN035 FM230400 VRB03KT P6SM FEW200 KMSO 220520Z 2206/2306 VRB03KT P6SM SKC FM221800 35007KT P6SM SKC KMSP 220520Z 2206/2312 03005KT P6SM SKC FM221600 04008KT P6SM FEW040 FM230000 02006KT P6SM FEW250 FM231000 00000KT P6SM SCT060 BKN200 KMSS 220531Z 2206/2306 VRB03KT P6SM SCT250 FM220900 07007KT P6SM VCSH BKN200 FM221100 06008KT 4SM -SHRA BR BKN090 FM221500 06013KT P6SM VCSH OVC045 FM222200 12009KT P6SM BKN040 KMSY 220520Z 2206/2312 24007KT P6SM SKC FM221400 28011KT P6SM FEW250 FM230100 25008KT P6SM SCT250 FM230600 VRB03KT P6SM SCT120 KMTC 220100Z 2201/2307 10009KT 9999 OVC035 QNH2978INS TEMPO 2201/2203 9000 -SHRA VCTS BKN020CB BECMG 2214/2215 07010G15KT 9999 SCT030 BKN050 QNH2987INS BECMG 2302/2303 VRB06KT 9999 FEW020 QNH2992INS BECMG 2305/2306 VRB06KT 8000 BR SCT012 QNH2993INS TX23/2203Z TN19/2214Z LAST NO AMDS AFT 2203 NEXT 2209 KMTH 220529Z 2206/2306 25006KT P6SM FEW030 FM221300 28009KT P6SM SCT025 SCT100 BKN250 FM222100 30010G17KT P6SM SCT025 SCT100 BKN200 KMTJ 220520Z 2206/2306 34003KT P6SM VCSH FEW060 SCT070 BKN110 FM220800 14006KT P6SM FEW110 SCT250 FM221900 34007KT P6SM FEW110 SCT250 FM230400 12005KT P6SM FEW100 SCT200 KMTW 220520Z 2206/2306 01010G17KT P6SM VCSH OVC007 FM220800 01009G16KT 5SM -SHRA BR OVC005 FM221300 03010G17KT P6SM OVC012 TEMPO 2215/2217 BKN020 FM221700 03011G16KT P6SM SCT025 BKN070 FM222200 06006KT P6SM SCT080 FM230100 36005KT P6SM SCT100 KMWH 220520Z 2206/2306 24006KT P6SM SKC FM220700 34005KT P6SM SKC FM221800 03006KT P6SM FEW250 FM222100 25006KT P6SM SKC KMXF 211900Z 2119/2301 23006KT 9999 FEW070 FEW180 QNH2980INS BECMG 2123/2124 28006KT 9999 FEW045 QNH2978INS BECMG 2215/2216 30010G18KT 9999 SKC QNH2973INS BECMG 2223/2224 31006KT 9999 FEW055 QNH2973INS TX34/2120Z TN23/2211Z LAST NO AMDS AFT 2123 NEXT 2211 KMYL 220520Z 2206/2306 35010KT P6SM FEW250 FM220900 VRB06KT P6SM FEW250 KMYR 220521Z 2206/2306 22009KT P6SM FEW010 SCT100 FM221400 18012G20KT P6SM SCT030 SCT100 FM230000 18011KT P6SM SCT070 BKN250 FM230400 19010KT P6SM VCSH SCT050 OVC120 KNBC 2203/2303 VRB05KT 9999 SKC QNH2975INS FM220900 VRB05KT 9999 FEW030 QNH2975INS TEMPO 2209/2213 9000 BR FEW007 FM221500 23010KT 9999 SCT040 SCT100 QNH2972INS TEMPO 2218/2222 20010G15KT BKN080 T24/2209Z T34/2219Z KNCA 2203/2303 VRB06KT 9999 SCT015 SCT200 QNH2976INS BECMG 2212/2312 17015G22KT 8000 -SHRA BR SCT010 BKN030 QNH2975INS TEMPO 2215/2220 1600 TSRA BR BKN010CB T24/2209Z T31/2218Z KNEW 220520Z 2206/2306 24012KT P6SM SKC FM230300 26009KT P6SM SCT250 FM230500 27005KT P6SM SCT150 KNFG 2203/2303 VRB05KT 9999 SCT012 QNH2994INS BECMG 2205/2207 VRB05KT 9999 BKN010 QNH2998INS FM221630 VRB05KT 9999 SCT015 QNH3001INS BECMG 2217/2219 22009KT 9999 FEW200 QNH2997INS TEMPO 2221/2301 23010G22KT T18/2209Z T28/2222Z KNGU 2119/2215 04012G20KT 9999 VCTS BKN030CB OVC040 QNH2962INS TEMPO 2119/2123 VRB20G30KT 4800 TSRA BR BKN010CB OVC030 FM212300 31014KT 9999 SCT010 BKN030 BKN100 QNH2970INS BECMG 2204/2206 25010KT 9999 SCT010 SCT030 BKN120 QNH2975INS BECMG 2211/2213 16015KT 9999 VCSH SCT020 BKN100 QNH2980INS T26/2119Z T21/2210Z 1912 FN00191 KNHK 2119/2215 01012G18KT 6000 -SHRA BR BKN008 OVC015 QNH2968INS BECMG 2200/2202 33015G20KT 9999 VCSH SCT015 BKN060 BKN120 QNH2971INS BECMG 2210/2212 15012G18KT 6000 BR VCTS SCT020 BKN050 BKN110 QNH2979INS AUTOMATED SENSOR METWATCH 2119 TIL 2311 T25/2119Z T19/2209Z 1942 FN00191 KNIP 2204/2223 22012KT 9999 VCSH BKN015 BKN080 QNH2989INS FM221800 24012G18KT 6000 SHRA VCTS BKN015CB BKN080 QNH2982INS TEMPO 2219/2223 VRB20G30KT 3200 TSRA BR BKN020CB OVC050 T25/2210Z T33/2218Z 0402 FN00106 KNKT 2203/2303 VRB06KT 9999 SCT015 SCT200 QNH2978INS BECMG 2212/2312 17015G22KT 8000 -SHRA BR SCT010 BKN030 QNH2977INS TEMPO 2215/2220 1600 TSRA BR BKN010CB T23/2209Z T30/2218Z KNKX 2203/2303 30008KT 9999 FEW010 QNH2994INS BECMG 2205/2207 VRB05KT 9999 BKN010 QNH2996INS BECMG 2217/2219 22009KT 9999 SCT100 QNH2996INS T28/2121Z T20/2213Z KNRB 2121/2215 17012KT 9999 VCTS BKN030CB BKN250 QNH2985INS TEMPO 2122/2202 VRB30G40KT 3200 TSRA BR BKN020CB BKN060 FM220200 22012KT 4800 -SHRA BKN050 BKN080 QNH2989INS FM221500 24012G18KT 6000 SHRA VCTS BKN030 BKN080 QNH2982INS AUTOMATED SENSOR METWATCH 2120 TIL 2312 T30/2120Z T24/2210Z 2149 FN00160 KNSI 2123/2223 28010KT 9999 FEW008 BKN250 QNH2994INS FM220400 28010KT 9999 BKN008 BKN250 QNH2997INS TEMPO 2204/2210 SCT008 SCT250 FM221000 28010KT 6000 BR OVC006 QNH3003INS FM221600 28012G18KT 9999 SCT010 QNH3000INS BECMG 2221/2222 30020G30KT 9999 FEW015 SCT250 QNH2998INS LAST NO AMDS AFT 2123 NEXT 2207 T16/2212Z T24/2222Z FS30132 KNTD 2123/2223 27009KT 9999 SCT012 BKN250 QNH2991INS TEMPO 2203/2206 BKN011 FM220600 28007KT 9999 OVC008 QNH2997INS TEMPO 2212/2218 OVC011 BECMG 2218/2220 29010G15KT 9999 SCT011 SCT250 QNH2993INS AUTOMATED SENSOR METWATCH 2206 TIL 2213 T17/2213Z T23/2223Z FS30132 KNTU 2123/2223 25010KT 8000 SHRA BKN005 BKN100 QNH2962INS BECMG 2204/2206 26010KT 9999 SCT010 SCT030 BKN120 QNH2975INS BECMG 2211/2213 16015KT 9999 VCSH SCT020 BKN100 QNH2980INS BECMG 2215/2217 15013G18KT 9999 VCTS SCT050CB BKN100 QNH2983INS TEMPO 2218/2223 VRB20G30KT 3200 TSRA BR BKN020CB BKN050 T22/2210Z T26/2219Z 2349 FN00106 KNUW 2123/2223 27007KT 9999 FEW030 BKN250 QNH3013INS FM220300 VRB05KT 9999 SCT250 QNH3016INS FM221500 28009KT 9999 FEW030 QNH3012INS T11/2212Z T22/2222Z FS30128 KNXP 2203/2303 14010KT 9999 SCT080 QNH2999INS BECMG 2206/2208 VRB05KT 9999 SCT075 QNH3001INS FM221600 17012G18KT 9999 SCT075 QNH2999INS T28/2213Z T38/2223Z KNYL 2203/2303 20007KT 9999 FEW250 QNH2979INS BECMG 2205/2207 VRB05KT 9999 SCT250 QNH2976INS AUTOMATED SENSOR METWATCH 2203 TIL 2315 T29/2213Z T42/2222Z KNZY 2123/2223 31011KT 9999 FEW020 FEW100 SCT250 QNH2991INS TEMPO 2203/2207 BKN015 BKN100 BKN250 BECMG 2207/2208 31009KT 9999 OVC010 QNH2994INS TEMPO 2208/2214 OVC008 FM221700 32012G18KT 9999 SCT015 SCT250 QNH2992INS AUTOMATED SENSOR METWATCH 2205 TIL 2214 T20/2213Z T27/2222Z FS30128 KOAJ 220557Z 2206/2306 18006KT P6SM SCT010 BKN040 TEMPO 2208/2212 BKN009 FM221800 18010G20KT 4SM -TSRA BKN050CB FM230000 15008KT P6SM VCSH BKN035 LTD TO CLD VIS AND WIND KOAK 220627Z 2206/2312 29011KT P6SM SCT009 TEMPO 2206/2208 BKN010 FM220800 28008KT P6SM OVC007 FM221700 28005KT P6SM SCT010 FM222000 29013KT P6SM SCT200 FM230400 29011KT P6SM BKN010 FM231000 28006KT P6SM OVC007 KOFF 220200Z 2202/2308 36006KT 9999 FEW020 QNH2999INS BECMG 2211/2212 06009KT 9999 SCT015 SCT200 QNH3000INS WND 06006KT AFT 2300 TX29/2220Z TN17/2210Z KOFK 220520Z 2206/2306 VRB04KT P6SM BKN250 FM221000 VRB04KT P6SM SCT150 BKN250 FM221600 14007KT P6SM BKN150 FM230300 VRB04KT P6SM SCT050 BKN100 KOGB 220520Z 2206/2306 20008KT 5SM -SHRA VCTS BKN025CB TEMPO 2206/2208 VRB15G30KT 1 1/2SM TSRA OVC020CB FM220800 VRB05KT P6SM SCT012 BKN100 TEMPO 2209/2212 BKN012 FM221600 26008KT P6SM SCT050 KOGD 220640Z 2207/2306 18015KT P6SM VCSH FEW110 SCT150 FM220800 15005KT P6SM SCT150 FM221900 26007KT P6SM SCT070 BKN100 FM230300 18009KT P6SM SCT090 BKN120 KOKC 220520Z 2206/2306 08007KT P6SM FEW250 FM221500 12010KT P6SM SCT250 KOLF 220536Z 2206/2306 11009KT P6SM SCT110 FM220800 VRB04KT P6SM VCSH BKN110 FM221200 29006KT P6SM BKN060 FM221400 30016G24KT P6SM SCT060 KOLM 220520Z 2206/2306 VRB03KT P6SM SKC FM221900 03007KT P6SM SKC FM230300 VRB03KT P6SM SKC KOLS 220520Z 2206/2306 29005KT P6SM SCT080 FM220800 VRB04KT P6SM SCT100 FM221700 33008KT P6SM SCT120 KOMA 220520Z 2206/2306 02005KT P6SM BKN250 FM221500 06006KT P6SM BKN150 FM230200 07005KT P6SM SCT100 BKN250 KONP 220634Z 2207/2306 03003KT P6SM SKC FM221000 07004KT P6SM FEW002 TEMPO 2210/2214 2SM BR BKN002 FM221800 35012G20KT P6SM SKC KONT 220520Z 2206/2312 VRB05KT P6SM SCT250 FM222100 26011G18KT P6SM SCT100 FM230400 VRB05KT P6SM SCT100 KOPF 220542Z 2206/2306 VRB04KT P6SM FEW040 SCT110 BKN250 FM221400 28007KT P6SM VCSH SCT030 BKN060 FM221700 25008KT P6SM VCTS BKN030CB BKN050 FM222000 28009KT P6SM SHRA BKN035 PROB30 2220/2224 VRB15G25KT TSRA BKN035CB FM230200 VRB05KT P6SM VCSH SCT040 BKN100 BKN250 KORD 220545Z 2206/2312 36012KT 6SM -SHRA SCT008 OVC012 FM220700 36012KT 6SM -SHRA BKN008 OVC012 FM221100 01012KT 6SM -SHRA SCT008 OVC010 TEMPO 2211/2215 3SM SHRA BKN008 FM221500 03012G19KT P6SM VCSH BKN015 FM221900 04012G17KT P6SM SCT025 BKN040 FM230100 03009KT P6SM FEW050 KORF 220559Z 2206/2306 23009KT P6SM SCT080 FM220900 21007KT P6SM SCT030 FM221200 17009KT P6SM BKN080 FM221600 16012G20KT P6SM BKN050 FM230300 16012KT P6SM BKN060 KORH 220533Z 2206/2306 08008KT P6SM BKN015 FM220900 08008KT 6SM -RA BR OVC008 FM221300 11009KT 2SM -RA BR OVC003 WS020/15040KT FM221500 14011G22KT 2SM -RA BR OVC005 FM222000 15011G23KT 5SM -RA BR OVC010 FM230000 15010G20KT 3SM -RA BR OVC008 KOSH 220520Z 2206/2306 01011G17KT P6SM VCSH SCT007 OVC015 TEMPO 2208/2210 BKN007 FM221000 01010G17KT 5SM -SHRA BR OVC006 FM221600 02011G18KT P6SM OVC013 TEMPO 2217/2219 BKN020 FM221900 04011G16KT P6SM SCT030 BKN070 FM230100 02005KT P6SM SCT080 KOTH 220540Z 2206/2306 36012KT P6SM SKC FM221000 35007KT 6SM BR SCT005 FM221200 01003KT 1SM BR OVC005 FM221600 35011KT P6SM SCT005 FM221900 35016G24KT P6SM SKC FM230400 35008KT P6SM OVC005 KOTM 220535Z 2206/2306 34008KT P6SM SKC FM221400 36008KT P6SM SCT200 FM222100 01009KT P6SM FEW040 SCT050 KOUN 220520Z 2206/2306 07006KT P6SM SKC FM221500 12010KT P6SM SCT250 KOWB 220520Z 2206/2306 29006KT P6SM SCT035 BKN120 FM221200 31008KT P6SM VCSH OVC020 FM222200 32011KT P6SM VCSH BKN045 FM230200 35007KT P6SM BKN070 KOXR 220529Z 2206/2306 28010KT P6SM BKN008 FM220800 VRB03KT 5SM BR OVC005 FM221700 26006KT P6SM BKN010 FM222100 26015KT P6SM SKC FM230300 27008KT P6SM SKC KOZR 220505Z 2205/2306 24006KT 9999 FEW030 SCT060 QNH2982INS TEMPO 2205/2208 27030G50KT 4800 +TSRAGR BKN008CB BECMG 2208/2209 35006KT 9999 SCT015 BKN030 QNH2980INS BECMG 2216/2217 28012G18KT 9999 FEW030 SCT060 QNH2973INS TEMPO 2221/2224 8000 -TSRA BKN025CB BECMG 2223/2224 VRB06KT 9999 SCT045 BKN070 QNH2974INS TX35/2220Z TN25/2211Z KPAE 220520Z 2206/2306 33005KT P6SM SKC FM220700 03004KT P6SM SKC FM221800 35006KT P6SM SKC FM230400 VRB03KT P6SM SKC KPAH 220520Z 2206/2306 30005KT P6SM SCT250 FM221300 32009KT P6SM BKN060 FM221600 33011G19KT P6SM SCT025 BKN060 FM230100 33010KT P6SM BKN070 KPBF 220539Z 2206/2306 VRB03KT P6SM SKC FM221800 34006KT P6SM SCT250 KPBG 220531Z 2206/2306 18007KT P6SM SCT250 FM221000 08005KT P6SM VCSH BKN090 FM221200 07006KT 4SM -SHRA BR OVC060 FM221500 06005KT P6SM VCSH OVC040 FM221800 11008G18KT P6SM BKN035 FM230000 15008KT P6SM SCT090 KPBI 220542Z 2206/2306 VRB05KT P6SM FEW040 SCT120 BKN250 FM221400 28007KT P6SM VCSH SCT030 BKN060 FM221700 20011KT P6SM VCTS BKN030CB BKN050 FM222000 23008KT P6SM SHRA BKN035 PROB30 2220/2224 VRB15G25KT TSRA BKN035CB FM230200 26006KT P6SM VCSH SCT040 SCT100 BKN250 KPDK 220531Z 2206/2306 25004KT P6SM FEW050 FM220900 VRB03KT 3SM BR FEW250 FM221500 29009KT P6SM VCSH SCT035 FM221800 28010G20KT P6SM VCSH BKN045 PROB30 2220/2224 3SM TSRA OVC030CB FM230200 31006KT P6SM VCSH SCT040 BKN080 KPDT 220521Z 2206/2306 12006KT P6SM SKC FM221900 34007KT P6SM SKC FM230300 05004KT P6SM SKC KPDX 220539Z 2206/2306 32005KT P6SM SKC FM222100 32010KT P6SM SKC KPEQ 220532Z 2206/2306 10006KT P6SM SCT250 KPGA 220520Z 2206/2306 30008KT P6SM FEW110 SCT150 FM221800 29006KT P6SM FEW100 FEW150 KPGD 220529Z 2206/2306 27006KT P6SM FEW020 BKN200 FM220900 25005KT P6SM VCTS SCT020CB SCT150 FM221300 28013KT P6SM VCTS SCT020 BKN040CB BKN120 FM221700 26014G20KT P6SM VCTS BKN035CB BKN100 FM230300 26006KT P6SM VCTS SCT020CB BKN120 KPGV 220557Z 2206/2306 18005KT P6SM SCT010 BKN035 TEMPO 2206/2209 BKN009 FM220900 19005KT P6SM VCTS BKN035CB FM221200 18005KT P6SM BKN035 FM221800 18010G18KT 4SM -TSRA BKN050CB FM230000 16008KT P6SM VCSH BKN035 LTD TO CLD VIS AND WIND KPHF 220559Z 2206/2306 24007KT P6SM SCT015 SCT080 TEMPO 2206/2210 BKN015 FM221300 15009KT P6SM BKN025 FM221600 15011G17KT P6SM VCSH BKN050 FM230300 16010KT P6SM BKN060 KPHL 220535Z 2206/2312 10018G28KT P6SM VCSH SCT008 OVC012 WS020/16040KT TEMPO 2206/2208 3SM RA OVC008 FM220800 15012G20KT P6SM VCSH OVC008 FM221100 18010KT P6SM OVC009 FM221500 17008KT P6SM BKN020 FM222000 15012KT 6SM -SHRA OVC040 KPHX 220553Z 2206/2312 25007KT P6SM BKN250 FM221200 12004KT P6SM SCT250 FM221700 28009KT P6SM FEW250 FM231000 10005KT P6SM FEW250 KPIA 220520Z 2206/2306 35008KT P6SM SCT020 BKN045 FM221100 35010KT P6SM OVC020 FM221600 35011KT P6SM OVC040 FM221900 36011KT P6SM VCSH BKN045 FM230100 01009KT P6SM BKN090 KPIB 220520Z 2206/2306 22006KT P6SM SCT150 FM221500 29011G20KT P6SM SCT080 FM230100 29004KT P6SM SKC KPIE 220529Z 2206/2306 28007KT P6SM FEW020 BKN200 FM220800 26006KT P6SM VCTS SCT020CB BKN120 FM221300 26014KT P6SM VCTS SCT020CB BKN150 FM221700 26014G20KT P6SM VCTS BKN035CB BKN100 FM230300 26009KT P6SM VCTS SCT020CB BKN120 KPIH 220520Z 2206/2306 22008KT P6SM FEW090 SCT110 FM221700 26010KT P6SM SCT110 KPIR 220527Z 2206/2306 12011KT P6SM BKN150 OVC250 FM221600 16011KT P6SM SCT050 FM222300 34010KT P6SM -SHRA VCTS BKN070CB FM230100 33010KT P6SM BKN200 KPIT 220528Z 2206/2312 08005KT P6SM BKN100 FM221000 VRB05KT P6SM BKN025 FM221400 15005KT P6SM BKN035 FM222000 08005KT P6SM -SHRA VCTS BKN035CB FM222300 12005KT P6SM BKN060 KPKB 220538Z 2206/2306 00000KT P6SM BKN070 FM221100 00000KT 2SM BR OVC003 FM221300 VRB03KT 5SM BR SCT003 OVC025 FM221400 VRB03KT P6SM BKN025 FM221700 VRB03KT P6SM -SHRA VCTS OVC025CB FM230100 10004KT P6SM OVC040 NOT SKED KPLN 220527Z 2206/2306 05007KT 6SM -SHRA SCT012 OVC050 TEMPO 2206/2208 BKN008 FM220800 05005KT P6SM VCSH OVC035 FM230000 36006KT P6SM BKN050 FM230300 36006KT P6SM BKN025 KPMD 220529Z 2206/2306 28008KT P6SM SCT250 FM220800 21008KT P6SM SCT250 FM221600 25010KT P6SM SKC FM222200 25015G23KT P6SM SKC FM230000 25012KT P6SM SKC KPNA 220521Z 2206/2306 30005KT P6SM VCTS BKN100CB FM220800 30006KT P6SM SCT100 BKN180 FM222100 VRB06KT P6SM VCSH BKN100 FM230200 30007KT P6SM SCT100 BKN200 LTD TO CLD VIS AND WIND KPNC 220520Z 2206/2306 07005KT P6SM SKC FM221800 12011KT P6SM SCT250 KPNE 220535Z 2206/2306 10016G28KT 5SM -RA SCT008 OVC015 WS020/16040KT TEMPO 2206/2208 3SM RA OVC008 FM220800 14012G20KT P6SM VCSH OVC008 FM221100 18011KT P6SM OVC009 FM221600 17008KT P6SM BKN025 FM222000 15010KT 6SM -SHRA BKN040 KPNS 220527Z 2206/2306 27009KT P6SM SCT250 FM221400 28011G16KT P6SM FEW050 SCT250 FM222100 29011KT P6SM SCT250 TEMPO 2221/2224 P6SM TSRA BKN050CB KPOB 220458Z 2204/2307 32012KT 9999 VCTS BKN020CB BKN030 OVC080 QNH2973INS TEMPO 2204/2207 VRB30G50KT 8000 TSRAGR BKN020CB OVC030 BECMG 2209/2210 17009KT 9999 NSW BKN006 OVC025 QNH2974INS BECMG 2213/2214 20009KT 9999 SCT010 BKN045 OVC080 QNH2970INS BECMG 2218/2219 19010G15KT 8000 -SHRA BKN035 OVC080 QNH2968INS TEMPO 2220/2223 18012G20KT 6000 -TSRA OVC025CB BECMG 2305/2306 12006KT 4800 BR BKN015 QNH2983INS TX33/2217Z TN21/2211Z KPOE 220000Z 2200/2306 26006KT 9999 SKC QNH2989INS BECMG 2208/2209 24006KT 9999 SKC WS015/26035KT QNH2988INS BECMG 2213/2214 27010G15KT 9999 SKC QNH2981INS BECMG 2223/2224 24006KT 9999 BKN150 QNH2981INS TX35/2221Z TN25/2212Z KPOU 220529Z 2206/2306 09008G15KT P6SM -SHRA BKN025 OVC040 WS020/11040KT TEMPO 2206/2208 4SM -SHRA BR FM220800 07013G20KT 4SM -SHRA BR OVC015 WS020/11045KT TEMPO 2208/2212 2SM +SHRA BR OVC008 FM221200 14009G15KT P6SM VCSH OVC020 FM221500 17010G15KT P6SM VCSH BKN035 FM230000 12007KT P6SM VCSH OVC025 KPQI 220533Z 2206/2306 00000KT P6SM SKC FM221800 16008KT P6SM OVC070 FM222100 16008KT 5SM -SHRA SCT010 OVC030 FM222300 16006KT P6SM VCSH OVC015 FM230400 17006KT 2SM -RA BR OVC007 KPRB 220529Z 2206/2306 20006KT P6SM SKC FM220800 VRB03KT P6SM SKC FM222200 20014G22KT P6SM SKC FM230100 20012KT P6SM SKC FM230500 20006KT P6SM SKC KPRC 220520Z 2206/2306 20006KT P6SM FEW150 FM221800 26008KT P6SM FEW080 FM230200 20006KT P6SM SKC KPSC 220521Z 2206/2306 VRB03KT P6SM SKC FM221800 01005KT P6SM SKC KPSF 220529Z 2206/2306 08010G16KT P6SM VCSH SCT025 OVC035 WS020/10045KT TEMPO 2206/2208 5SM -SHRA BR OVC025 FM220800 09010G18KT 4SM -SHRA BR OVC015 WS020/11045KT TEMPO 2208/2212 2SM +SHRA BR OVC008 FM221200 12010G16KT P6SM VCSH OVC015 FM221700 14012G19KT P6SM VCSH BKN035 FM230000 15006KT P6SM VCSH OVC020 KPSM 220520Z 2206/2306 05005KT P6SM OVC010 FM221100 06008KT P6SM -SHRA OVC008 FM221300 06007KT 3SM +SHRA BR OVC008 FM221500 08007KT 2SM +SHRA BR OVC003 FM221900 11007KT 2SM BR OVC003 WS020/17035KT FM230300 VRB04KT 1/2SM FG OVC003 KPSP 220520Z 2206/2306 32011KT P6SM SCT200 FM220800 32005KT P6SM SCT200 FM222100 11009KT P6SM SCT200 FM230400 32009KT P6SM SCT200 KPTK 220532Z 2206/2306 07008KT 6SM BR VCSH FEW010 BKN035 BKN060 TEMPO 2206/2210 BKN025 OVC050 FM221000 06008KT P6SM BKN022 OVC040 FM221700 02012KT P6SM VCSH BKN028 BKN045 BKN070 FM230200 36005KT P6SM BKN012 OVC040 KPUB 220540Z 2206/2306 33006KT P6SM SCT200 FM222100 12010KT P6SM VCTS SCT090CB SCT200 FM222300 35015G25KT P6SM VCTS SCT080CB BKN150 FM230300 09010KT P6SM VCSH BKN050 BKN100 KPUW 220520Z 2206/2306 VRB03KT P6SM SKC FM221900 34004KT P6SM SKC FM230200 VRB02KT P6SM SKC KPVD 220533Z 2206/2306 08009KT P6SM OVC015 FM220800 08010G17KT 6SM -RA BR OVC008 FM221000 10009KT 2SM RA BR OVC003 WS020/15040KT FM221200 14011G25KT 2SM -RA BR OVC003 WS020/18040KT FM221700 16013G28KT 3SM -RA BR OVC005 FM222100 16013G24KT 3SM -RA BR OVC008 KPVU 220529Z 2206/2306 07008KT P6SM -RA SCT080 BKN120 FM220700 13008KT P6SM BKN100 FM221900 29005KT P6SM VCSH SCT080 BKN100 FM230300 18007KT P6SM SCT100 BKN150 KPVW 220530Z 2206/2306 21011KT P6SM SCT250 KPWM 220520Z 2206/2306 00000KT P6SM BKN250 FM220700 00000KT P6SM BKN020 FM220900 VRB04KT P6SM OVC008 FM221300 07005KT 4SM SHRA BR OVC008 FM221800 10006KT 2SM SHRA BR OVC003 WS020/18035KT FM230300 13006KT 1SM -SHRA BR OVC003 KPWT 220520Z 2206/2306 VRB03KT P6SM SKC FM222200 03006KT P6SM SKC FM230400 VRB03KT P6SM SKC KQD3 220629Z 2206/2309 26010G15KT 6000 HZ SCT140 QNH2972INS TEMPO 2206/2210 25015G25KT 5000 BLDU BECMG 2209/2210 28009KT 8000 HZ FEW100 QNH2961INS BECMG 2214/2215 VRB06KT 9000 HZ SCT100 QNH2963INS TS OMTNS BECMG 2222/2223 24009KT 8000 HZ SCT160 QNH2968INS BECMG 2305/2306 26015G20KT 6000 BLDU SCT160 QNH2973INS TX42/2212Z TN32/2303Z KQN3 220507Z 2205/2311 VRB06KT 9999 FEW120 QNH2985INS BECMG 2212/2213 17009KT 8000 -SHRA SCT030 BKN120 QNH2984INS BECMG 2217/2218 VRB06KT 9999 NSW FEW120 QNH2980INS TX35/2213Z TN24/2305Z KQNA 212100Z 2121/2221 17006KT 9999 FEW030 SCT230 QNH2976INS BECMG 2204/2205 19012KT 9999 FEW030 BKN230 QNH2970INS TX34/2204Z TN27/2217Z KQRH 220452Z 2204/2309 24009KT 6000 HZ FEW140 QNH2971INS TEMPO 2207/2211 25012G18KT 4800 BLDU BECMG 2210/2211 VRB06KT 8000 HZ FEW120 QNH2961INS BECMG 2214/2215 VRB06KT 9000 HZ FEW140 QNH2963INS TS OMTNS BECMG 2222/2223 24009KT 8000 HZ SCT160 QNH2965INS BECMG 2305/2306 25012G18KT 6000 BLDU SCT160 QNH2973INS TX41/2211Z TN31/2303Z KRAP 220520Z 2206/2306 17006KT P6SM BKN150 FM221300 21008KT P6SM FEW250 FM221700 35023G33KT P6SM SCT100 FM230300 35011KT P6SM FEW250 KRBG 220540Z 2206/2306 00000KT P6SM SKC FM222300 36009KT P6SM SKC FM230400 36003KT P6SM SKC KRBL 220529Z 2206/2306 VRB05KT P6SM SKC FM222000 16008KT P6SM SKC KRDD 220529Z 2206/2306 VRB04KT P6SM SKC FM222100 16007KT P6SM SKC KRDG 220535Z 2206/2306 05013G22KT 6SM -RA SCT009 OVC015 WS020/14040KT TEMPO 2206/2208 4SM RA OVC009 FM220800 14009KT P6SM VCSH OVC006 FM221200 17009KT P6SM BKN009 FM221700 15008KT P6SM VCSH BKN020 FM222000 15008KT 5SM -SHRA OVC040 KRDM 220521Z 2206/2306 VRB04KT P6SM SKC FM222000 34011KT P6SM SKC KRDR 220200Z 2202/2308 15009KT 9999 FEW030 SCT150 QNH3004INS BECMG 2214/2215 16015G20KT 9999 SCT030 QNH2995INS BECMG 2223/2224 17009KT 9000 -SHRA OVC030 510102 QNH2995INS TEMPO 2302/2305 18020G30KT 6000 -TSRA BKN020CB OVC045 BECMG 2305/2306 27006KT 9999 NSW SCT040 QNH3001INS TX28/2220Z TN17/2210Z KRDU 220537Z 2206/2306 VRB06KT P6SM VCTS SCT040CB BKN080 TEMPO 2206/2209 4SM -TSRA BR OVC040CB FM221000 VRB06KT 5SM BR BKN009 FM221400 18009KT P6SM SCT040 BKN080 TEMPO 2221/2224 P6SM -TSRA BKN050CB KRFD 220545Z 2206/2306 36012KT P6SM VCSH BKN015 BKN025 FM221200 36012KT 6SM -SHRA SCT008 OVC010 FM221600 01012G17KT P6SM VCSH BKN015 FM222000 03012G17KT P6SM SCT025 BKN040 FM230100 03007KT P6SM FEW050 KRHI 220520Z 2206/2306 01006KT P6SM SCT007 OVC015 TEMPO 2206/2208 BKN007 FM220800 03007KT 5SM BR OVC007 FM221400 03008KT P6SM BKN012 FM221600 03007KT P6SM BKN025 FM221800 02007KT P6SM VCSH BKN040 FM230000 01003KT P6SM SCT150 TEMPO 2304/2306 2SM BR KRIC 220629Z 2206/2306 25009KT P6SM SCT015 SCT040 TEMPO 2206/2210 BKN015 FM221300 14006KT P6SM VCSH BKN030 FM221600 14008KT P6SM BKN035 FM221800 15008KT P6SM VCSH BKN050 KRIL 220520Z 2206/2306 VRB04KT P6SM VCSH FEW090 BKN140 FM221900 30007KT P6SM FEW110 SCT250 FM230000 35009KT P6SM FEW130 SCT250 KRIV 220404Z 2204/2310 VRB05KT 9999 SCT250 QNH2999INS BECMG 2219/2220 31009KT 9999 FEW100 QNH2999INS TEMPO 2221/2302 31012G18KT BECMG 2304/2305 VRB05KT 9999 SKC QNH3005INS TX36/2223Z TN17/2213Z KRIW 220521Z 2206/2306 31008KT P6SM SCT120 BKN200 FM221600 01013G23KT P6SM SCT110 BKN200 FM222100 03008KT P6SM VCSH BKN110 FM230200 04008KT P6SM BKN120 KRKD 220520Z 2206/2306 00000KT P6SM BKN250 FM220800 00000KT 1/2SM FG BKN003 FM221400 12006KT 2SM SHRA BR OVC003 WS020/19035KT FM222300 12006KT 1/2SM FG OVC002 WS020/19035KT KRKS 220521Z 2206/2306 24010KT P6SM VCSH BKN120 FM222100 24008KT P6SM VCTS BKN080CB FM230300 05007KT P6SM VCSH BKN090 KRME 220523Z 2206/2306 11010KT P6SM OVC070 FM220800 10010G18KT P6SM -SHRA OVC025 WS020/12050KT TEMPO 2208/2212 3SM SHRA BR OVC012 FM221200 12008KT 3SM BR OVC015 FM221500 13012G25KT P6SM SCT025 BKN035 FM230200 12008KT P6SM BKN070 KRNH 220520Z 2206/2306 04004KT P6SM SKC FM221800 04007KT P6SM FEW035 FM230100 02003KT P6SM FEW250 KRNO 220547Z 2206/2306 VRB03KT P6SM SCT150 BKN200 FM222000 34009KT P6SM VCSH SCT070 BKN120 FM222300 28012G22KT P6SM -TSRA FEW040 BKN070CB BKN140 FM230400 31007KT P6SM VCSH SCT070 BKN180 KROA 220539Z 2206/2306 VRB03KT P6SM BKN025 FM220800 VRB02KT P6SM VCSH SCT015 BKN025 FM221800 VRB04KT P6SM OVC025 FM221900 11005KT P6SM OVC080 FM230100 VRB03KT P6SM BKN040 KROC 220546Z 2206/2306 10006KT 5SM -RA OVC050 FM220900 08011KT 3SM +RA OVC025 FM221200 07014G20KT 5SM RA OVC012 FM221600 14012G20KT P6SM BKN025 FM221800 18011KT P6SM BKN040 FM230100 15005KT P6SM BKN060 KROG 220520Z 2206/2306 00000KT P6SM SKC FM221500 34007KT P6SM SKC FM230100 VRB03KT P6SM SKC KROW 220539Z 2206/2306 18007KT P6SM SCT300 FM221900 16010G15KT P6SM SKC FM230300 18008KT P6SM SKC KRSL 220520Z 2206/2306 10008KT P6SM VCTS SCT100CB BKN150 TEMPO 2206/2209 -TSRA BKN100CB FM221300 12008KT P6SM SCT150 FM221700 14013KT P6SM SCT200 FM230100 11007KT P6SM SCT200 KRST 220530Z 2206/2306 01008KT P6SM SKC FM221200 36007KT P6SM SCT040 TEMPO 2220/2223 BKN040 KRSW 220529Z 2206/2306 28005KT P6SM SCT025 BKN200 FM220900 29005KT P6SM VCTS SCT020CB SCT150 FM221300 30010KT P6SM VCTS SCT020 BKN040CB BKN120 FM221700 26014G20KT P6SM VCTS BKN035CB BKN100 FM230300 26006KT P6SM VCTS SCT020CB BKN120 KRUT 220531Z 2206/2306 13010KT P6SM VCSH OVC120 FM220900 11014KT 4SM -SHRA BR OVC050 WS020/13040KT FM221500 11017G25KT P6SM VCSH BKN035 FM230000 13012KT P6SM VCSH BKN045 FM230200 14009KT P6SM VCSH BKN025 KRVS 220520Z 2206/2306 00000KT P6SM SKC FM221500 09007KT P6SM SKC FM230100 VRB03KT P6SM SKC KRWF 220520Z 2206/2306 VRB04KT P6SM FEW250 FM221200 06005KT P6SM FEW250 FM221600 09007KT P6SM FEW045 FM230200 11004KT P6SM SCT250 KRWI 220537Z 2206/2306 14005KT P6SM VCTS SCT040CB BKN080 TEMPO 2206/2209 4SM -TSRA BR OVC040CB FM221000 VRB04KT 4SM BR OVC007 FM221500 15006KT P6SM SCT040 BKN080 TEMPO 2221/2224 P6SM -TSRA BKN050CB KRWL 220522Z 2206/2306 VRB04KT P6SM SKC FM222100 34012KT P6SM BKN080 KRYY 220531Z 2206/2306 25004KT P6SM FEW050 FM220900 VRB03KT 3SM BR FEW250 FM221500 29009KT P6SM VCSH SCT035 FM221800 28010G20KT P6SM VCSH BKN045 PROB30 2220/2224 3SM TSRA OVC030CB FM230200 31006KT P6SM VCSH SCT040 BKN080 KSAC 220529Z 2206/2306 21010KT P6SM SKC KSAF 220539Z 2206/2306 12011KT P6SM FEW120 FM221000 01008KT P6SM SKC FM222000 26008KT P6SM SCT110 FM230300 05007KT P6SM FEW110 KSAN 220607Z 2206/2312 VRB05KT P6SM SCT014 FM220800 28003KT P6SM BKN015 FM221600 VRB05KT P6SM SCT015 FM221900 30011KT P6SM FEW015 SCT050 SCT100 FM230200 30006KT P6SM SCT015 SCT100 FM230600 VRB05KT P6SM BKN014 KSAT 220528Z 2206/2312 14010KT P6SM SCT250 FM221100 14005KT P6SM SCT010 SCT250 TEMPO 2212/2214 BKN010 FM221500 14010KT P6SM FEW250 KSAV 220532Z 2206/2306 23004KT P6SM FEW100 SCT250 FM220900 22004KT P6SM SCT015 FM221500 25009KT P6SM SCT040 SCT250 PROB30 2219/2224 4SM -TSRA BKN060CB FM230000 20006KT P6SM BKN060 FM230500 VRB03KT P6SM SCT250 KSAW 220534Z 2206/2306 01011KT 5SM BR OVC005 FM220800 01010KT 3/4SM BR OVC003 FM221000 01010KT 1 1/2SM BR OVC004 FM221300 01010KT P6SM BKN025 FM221800 02011KT P6SM SCT130 KSBA 220529Z 2206/2306 VRB03KT P6SM SCT250 FM221000 VRB03KT P6SM OVC008 FM221700 16005KT P6SM SCT010 FM222100 24008KT P6SM SKC FM230200 32006KT P6SM OVC250 KSBD 220520Z 2206/2306 VRB05KT P6SM SCT100 FM222100 26011KT 6SM HZ FEW080 SCT200 FM230400 VRB05KT P6SM SCT250 KSBN 220528Z 2206/2306 02007KT P6SM VCSH SCT008 OVC025 TEMPO 2206/2208 BKN008 OVC025 FM220800 VRB03KT P6SM SCT007 FM221600 04008KT P6SM VCSH OVC020 FM222200 04010KT P6SM BKN060 KSBP 220533Z 2206/2306 VRB03KT P6SM OVC006 FM221100 00000KT 4SM BR OVC004 FM221500 VRB03KT 6SM BR BKN007 FM221700 30006KT P6SM FEW007 FM222000 30012KT P6SM SKC FM230400 30006KT P6SM SKC KSBY 220630Z 2207/2306 20012KT 4SM BR SCT005 OVC015 TEMPO 2207/2211 2SM -DZ BR OVC005 FM221200 19009KT P6SM BKN010 FM221500 16010KT P6SM BKN050 FM222000 14010KT P6SM BKN080 FM230100 15010KT P6SM BKN030 KSCK 220529Z 2206/2306 33008KT P6SM SKC KSDF 220534Z 2206/2312 28007KT P6SM SCT070 FM221000 28008KT P6SM VCSH BKN015 FM221800 32007KT 6SM -SHRA SCT030 BKN040 FM230000 36005KT P6SM BKN050 KSDL 220553Z 2206/2306 VRB04KT P6SM BKN250 FM221800 25006KT P6SM FEW250 KSDY 220536Z 2206/2306 10009KT P6SM SCT160 FM221100 18007KT P6SM VCSH BKN060 FM221500 30014G23KT P6SM SCT100 FM230200 31008KT P6SM SKC KSEA 220520Z 2206/2312 34007KT P6SM SKC FM220700 03006KT P6SM SKC FM221800 33008KT P6SM SKC FM230400 02006KT P6SM SKC KSEZ 220520Z 2206/2306 04007KT P6SM FEW150 FM221800 23008KT P6SM FEW080 FM230500 04007KT P6SM SKC KSFB 220535Z 2206/2306 25005KT P6SM FEW040 FM221500 24010KT P6SM VCSH SCT025 SCT040 FM221700 27012KT P6SM VCTS SCT035CB BKN060 FM230200 23005KT P6SM FEW040 SCT060 BKN120 KSFF 220520Z 2206/2306 VRB02KT P6SM FEW100 FM222100 35003KT P6SM FEW200 KSFO 220527Z 2206/2312 28013KT P6SM FEW005 FM220800 28008KT P6SM FEW005 SCT008 FM221200 27006KT P6SM BKN008 FM221600 27005KT P6SM FEW010 FM222000 30013KT P6SM SCT200 FM222300 28017KT P6SM FEW008 SCT200 FM230300 28013KT P6SM SCT010 FM231000 28008KT P6SM BKN008 KSGF 220520Z 2206/2306 VRB04KT P6SM SKC FM221400 34008KT P6SM FEW200 KSGJ 220527Z 2206/2306 25008KT P6SM SCT012 SCT100 BKN200 FM221600 24010KT P6SM VCTS SCT040 BKN080CB KSGR 220520Z 2206/2306 19008KT P6SM SCT250 FM221100 24004KT P6SM BKN012 FM221400 26008KT P6SM SCT020 FM221800 22007KT P6SM SCT250 FM230000 19010KT P6SM SCT250 KSGU 220529Z 2206/2306 25006KT P6SM SCT120 BKN180 FM220800 14005KT P6SM FEW120 FM222000 25011KT P6SM SCT100 BKN150 FM230300 14005KT P6SM SCT150 KSHR 220524Z 2206/2306 30008KT P6SM FEW100 FM220800 31016G28KT P6SM SCT100 BKN200 FM222200 33012KT P6SM FEW100 KSHV 220535Z 2206/2306 23007KT P6SM SKC FM221500 28008KT P6SM FEW180 SCT250 FM221800 29007KT P6SM SCT150 BKN250 FM222000 29007KT P6SM BKN140 BKN250 FM230100 VRB04KT P6SM BKN120 BKN250 KSJC 220527Z 2206/2306 29006KT P6SM FEW011 FM220800 31005KT P6SM FEW010 FM221200 34003KT P6SM SCT010 FM221500 VRB03KT P6SM SCT010 FM222000 30012KT P6SM SCT200 FM230400 31008KT P6SM FEW010 KSJS 220539Z 2206/2306 VRB03KT 6SM BR VCSH BKN025 OVC045 FM220800 VRB03KT P6SM VCSH BKN015 OVC025 FM221800 VRB04KT 6SM -SHRA VCTS BKN020CB FM222000 VRB03KT 6SM -SHRA VCTS SCT020CB BKN050 KSJT 220551Z 2206/2306 16008KT P6SM SKC FM221500 19009KT P6SM SKC FM230000 15008KT P6SM SKC KSKA 220300Z 2203/2309 25009KT 9999 FEW250 QNH3005INS BECMG 2211/2212 01009KT 9999 FEW250 QNH3007INS BECMG 2220/2221 04009KT 9999 SKC QNH3014INS TX26/2223Z TN11/2213Z2213Z KSKF 220200Z 2202/2308 15009KT 9999 SKC QNH2990INS BECMG 2208/2209 19005KT 9999 SCT012 QNH2996INS BECMG 2211/2212 21005KT 9999 BKN009 QNH2998INS BECMG 2213/2214 21012KT 9999 SKC QNH2985INS TX39/2221Z TN24/2212Z KSLC 220641Z 2207/2312 14009KT P6SM BKN150 FM222000 29008KT P6SM VCSH SCT080 BKN100 FM230300 18007KT P6SM SCT100 BKN150 KSLE 220643Z 2207/2306 34005KT P6SM SKC FM221800 01007KT P6SM SKC KSLI 220508Z 2205/2311 VRB06KT 9999 SKC QNH2998INS BECMG 2209/2210 VRB06KT 9999 SCT010 QNH3002INS BECMG 2217/2218 21009KT 9999 FEW250 QNH2995INS BECMG 2302/2303 VRB06KT 9999 SKC QNH2995INS TX30/2222Z TN19/2211Z LIMITED METWATCH 2205 TIL 2213 KSLK 220531Z 2206/2306 00000KT P6SM SCT200 FM221100 10009KT 4SM -SHRA BR BKN070 WS020/12040KT FM221500 11013G22KT P6SM VCSH BKN035 FM222000 14012KT P6SM VCSH SCT050 FM230100 15006KT P6SM SCT090 KSLN 220520Z 2206/2306 08005KT P6SM SCT120 BKN200 FM221500 12007KT P6SM SCT200 FM230100 08005KT P6SM SCT250 KSME 220539Z 2206/2306 VRB04KT P6SM BKN020 OVC035 FM220900 VRB04KT P6SM BKN010 OVC015 FM221100 VRB04KT P6SM BKN008 OVC015 FM221300 25005KT P6SM OVC015 FM221900 27005KT 6SM SHRA SCT015 BKN020 FM222200 28004KT 6SM SHRA SCT015 BKN035 KSMF 220529Z 2206/2306 17011KT P6SM SKC FM222000 22006KT P6SM SKC KSMN 220520Z 2206/2306 VRB03KT P6SM FEW100 FM221900 36006KT P6SM FEW100 KSMO 220529Z 2206/2306 VRB03KT P6SM FEW080 SCT250 FM220700 VRB03KT P6SM BKN008 FM221700 24008KT P6SM SKC FM230400 VRB03KT P6SM SKC KSMX 220529Z 2206/2306 VRB03KT 4SM BR OVC004 FM220900 VRB03KT 1SM BR OVC003 FM221500 VRB03KT 5SM BR BKN006 FM221730 31006KT P6SM FEW008 FM222000 31012KT P6SM SKC FM230400 VRB03KT P6SM OVC003 KSNA 220520Z 2206/2306 VRB05KT P6SM FEW014 SCT250 FM221100 VRB04KT P6SM BKN012 FM221600 VRB04KT P6SM SCT015 FM222100 24009KT P6SM FEW015 SCT200 FM230200 25005KT P6SM FEW015 SCT200 KSNS 220527Z 2206/2306 30006KT P6SM OVC006 FM221700 29003KT P6SM SCT009 FM221900 31009KT P6SM SKC FM222100 29012KT P6SM SKC FM230100 29010KT P6SM BKN006 KSNY 220522Z 2206/2306 16015KT P6SM BKN250 FM221600 34011KT P6SM SKC KSOA 220551Z 2206/2306 VRB03KT P6SM SKC FM221500 17008KT P6SM SKC FM230000 18005KT P6SM SKC KSPI 220604Z 2206/2306 33013KT P6SM BKN060 FM221200 34010KT P6SM OVC040 FM221900 34012KT P6SM VCSH BKN030 FM222200 35012KT P6SM VCSH BKN040 FM230300 36006KT P6SM BKN080 KSPS 220520Z 2206/2306 17008KT P6SM SKC FM221400 27010KT P6SM FEW250 KSRQ 220529Z 2206/2306 26009KT P6SM FEW020 BKN200 FM220900 26008KT P6SM VCTS SCT020CB SCT150 SCT250 FM221300 27014KT P6SM VCTS SCT020 BKN040CB BKN120 FM221700 26014G20KT P6SM VCTS BKN035CB BKN100 FM230300 25009KT P6SM VCTS SCT020CB BKN120 KSSF 220528Z 2206/2306 13009KT P6SM SCT250 FM221100 15005KT P6SM SCT010 SCT250 TEMPO 2212/2214 6SM BR BKN010 FM221500 14009KT P6SM FEW250 KSSI 220642Z 2207/2306 22009KT P6SM OVC008 FM221400 25009KT P6SM SCT020 SCT080 BKN250 FM221700 24009KT P6SM VCTS SCT040CB BKN080 FM230000 24008KT P6SM VCSH SCT030 SCT080 BKN250 KSTC 220520Z 2206/2306 03004KT P6SM FEW250 FM221800 08007KT P6SM FEW035 FM230200 07003KT P6SM FEW250 KSTJ 220520Z 2206/2306 VRB04KT P6SM SCT200 FM221700 03008KT P6SM FEW050 KSTL 220520Z 2206/2312 31007KT P6SM FEW250 FM221200 33009KT P6SM BKN027 FM221700 34011G17KT P6SM BKN035 FM222000 34011KT P6SM SCT050 FM230300 01006KT P6SM SCT035 KSTS 220527Z 2206/2306 16006KT P6SM SCT005 FM220700 15003KT P6SM BKN005 FM221100 17004KT P6SM OVC005 FM221700 28003KT P6SM SCT010 FM222000 18009KT P6SM SKC FM230400 16007KT P6SM BKN005 KSUA 220535Z 2206/2306 25005KT P6SM FEW040 SCT200 FM221500 24011KT P6SM SCT025 SCT040 FM221800 27012KT P6SM VCTS SCT035CB BKN060 FM230200 23005KT P6SM FEW040 SCT060 BKN150 KSUN 220520Z 2206/2312 32010KT P6SM FEW120 FM221700 18009KT P6SM FEW110 FM230400 32011KT P6SM SKC LTD TO CLD VIS AND WIND TIL 221300 KSUS 220520Z 2206/2306 31006KT P6SM FEW250 FM221300 32009KT P6SM BKN025 FM221700 34010G17KT P6SM BKN035 FM222000 34011KT P6SM SCT050 FM230300 01006KT P6SM SCT035 KSUU 220304Z 2203/2309 23015G25KT 9999 SKC QNH2988INS BECMG 2216/2217 23012G18KT 9999 SKC QNH2996INS BECMG 2223/2224 23015G25KT 9999 SKC QNH2997INS TX32/2222Z TN15/2212Z KSUX 220520Z 2206/2306 07005KT P6SM BKN250 FM221600 11005KT P6SM BKN150 FM230100 VRB04KT P6SM SCT100 KSVN 220400Z 2204/2310 22006KT 9999 SCT250 QNH2978INS BECMG 2208/2209 24004KT 9999 SCT006 QNH2976INS TEMPO 2209/2213 BKN005 BECMG 2215/2216 27007KT 9999 SCT250 QNH2974INS BECMG 2221/2222 28008KT 9999 SCT040 QNH2979INS TX32/2217Z TN22/2208Z KSWF 220547Z 2206/2312 09015G28KT 2SM +SHRA BR OVC012 WS020/13045KT FM220800 09017G30KT 3SM SHRA BR BKN006 OVC010 WS020/13045KT FM221200 13015G19KT P6SM VCSH OVC011 FM221600 12012KT P6SM VCSH OVC020 FM221900 15012KT P6SM VCSH SCT020 OVC040 FM230000 16011KT P6SM VCSH OVC015 FM230200 14010KT 3SM -SHRA BR OVC015 NOT SKED KSYM 220539Z 2206/2306 VRB03KT 6SM BR VCSH BKN007 OVC015 FM221200 VRB04KT P6SM VCSH BKN003 OVC008 FM221600 VRB04KT P6SM VCSH BKN008 OVC015 FM221800 VRB04KT 6SM -SHRA BKN010 OVC015 FM222000 VRB04KT 6SM -SHRA VCTS SCT015CB BKN020 FM222200 VRB02KT 6SM -SHRA SCT020 BKN035 KSYR 220523Z 2206/2306 06010KT P6SM -SHRA OVC070 FM220800 07010G20KT P6SM -SHRA OVC035 WS020/12050KT TEMPO 2208/2212 3SM SHRA BR OVC025 FM221200 10010KT 3SM BR OVC022 FM221600 12012G25KT P6SM SCT025 BKN035 FM230200 13007KT P6SM BKN090 KTCC 220539Z 2206/2306 17011KT P6SM FEW300 FM220900 23008KT P6SM FEW300 FM222000 20009KT P6SM FEW130 KTCL 220520Z 2206/2306 32004KT P6SM FEW040 FM221500 32012G20KT P6SM SCT040 FM230000 33007KT P6SM SKC KTCM 212106Z 2121/2303 33012KT 9999 SKC QNH3014INS BECMG 2203/2204 VRB06KT 9999 FEW250 QNH3016INS BECMG 2216/2217 03012KT 9999 SKC QNH3009INS TX23/2123Z TN12/2213Z KTCS 220531Z 2206/2306 29008KT P6SM FEW250 FM221800 15008KT P6SM FEW140 FEW250 FM230300 29007KT P6SM FEW250 KTEB 220540Z 2206/2312 08022G32KT 2SM +SHRA BR BKN007 OVC009 TEMPO 2206/2207 2SM +TSRA OVC009CB FM220700 12019G28KT 2SM SHRA BR OVC007 WS020/13045KT FM221000 16011G22KT P6SM VCSH OVC010 FM221500 15012G17KT P6SM VCSH BKN020 OVC040 FM230100 15011KT P6SM VCSH OVC020 FM230500 16011KT 3SM SHRA OVC028 KTEX 220520Z 2206/2306 12003KT P6SM VCSH SCT100 BKN120 FM221800 27008KT P6SM VCTS SCT070CB BKN140 FM230100 20005KT P6SM FEW060 SCT200 KTIK 220100Z 2201/2307 07009KT 9999 FEW150 QNH2983INS BECMG 2214/2215 11010G15KT 9999 SCT160 QNH2988INS BECMG 2220/2221 13009KT 9999 FEW180 QNH2986INS TX37/2221Z TN25/2212Z KTIX 220535Z 2206/2306 25005KT P6SM FEW040 FEW200 FM221600 24010KT P6SM VCSH SCT025 SCT040 FM221800 27012KT P6SM VCTS SCT035CB BKN060 FM230200 23005KT P6SM FEW040 SCT060 BKN150 NOT SKED TIL 221100 KTLH 220521Z 2206/2306 22007KT P6SM SCT025 FM221600 26011KT P6SM VCTS SCT030CB BKN050 TEMPO 2218/2222 VRB15G30KT 2SM +TSRA BKN030CB FM230000 22004KT P6SM BKN050 BKN100 KTMB 220542Z 2206/2306 20006KT P6SM SCT100 BKN250 FM221200 28008KT P6SM VCSH SCT030 BKN050 FM221700 29009KT P6SM VCTS BKN035CB FM222000 27007KT P6SM SHRA BKN035 PROB30 2220/2224 VRB15G25KT TSRA BKN035CB FM230200 28005KT P6SM VCTS SCT035CB BKN100 BKN250 KTOI 220520Z 2206/2306 23004KT P6SM VCTS SCT040CB FM220900 24003KT P6SM SCT040 FM221500 30012KT P6SM SCT040 FM230000 29004KT P6SM SCT050 KTOL 220557Z 2206/2306 07005KT P6SM VCTS BKN025CB FM220800 07005KT P6SM SCT025 BKN070 FM221300 06007KT P6SM OVC025 FM221800 05012G20KT P6SM OVC015 FM230100 02010KT P6SM BKN025 FM230400 36005KT P6SM BKN050 KTOP 220520Z 2206/2306 03005KT P6SM FEW100 KTPA 220529Z 2206/2312 26009KT P6SM SCT020 BKN200 FM220800 25007KT P6SM VCTS SCT030CB BKN120 FM221600 26014KT P6SM VCTS BKN035CB BKN100 FM230300 25008KT P6SM VCTS SCT020CB BKN120 KTPH 220533Z 2206/2306 18008KT P6SM VCTS SCT100CB BKN200 FM221000 35005KT P6SM VCSH SCT100 BKN200 FM221900 24012G22KT P6SM VCTS BKN090CB FM230400 35009KT P6SM VCSH BKN090 KTRI 220520Z 2206/2306 22005KT P6SM VCSH OVC012 TEMPO 2209/2213 -SHRA BKN008 FM221400 23007KT P6SM VCSH OVC020 FM221700 20007KT P6SM VCTS BKN035CB TEMPO 2218/2222 4SM -SHRA BR BKN020 FM230000 20004KT P6SM VCSH BKN035 KTRK 220547Z 2206/2306 VRB03KT P6SM FEW070 SCT200 FM221900 29006KT P6SM FEW050 SCT120 BKN180 FM222200 30012G18KT P6SM VCTS SCT070CB BKN100 FM230200 26007KT P6SM VCSH SCT080 BKN180 FM230400 VRB03KT P6SM FEW080 SCT120 KTRM 220520Z 2206/2306 VRB05KT P6SM SCT200 FM222000 14010KT P6SM SCT100 FM230400 33009KT P6SM SCT200 KTTD 220641Z 2207/2306 VRB03KT P6SM SKC FM221200 10004KT P6SM SKC FM221800 07007KT P6SM SKC KTTN 220535Z 2206/2306 09015G28KT 5SM -RA SCT008 OVC015 WS020/16050KT TEMPO 2206/2208 3SM RA OVC008 FM220800 14013G22KT P6SM VCSH OVC008 FM221100 17011KT P6SM OVC009 FM221500 18008KT P6SM BKN020 FM222000 16010KT 5SM -SHRA BKN040 KTUL 220520Z 2206/2306 05003KT P6SM SKC FM221500 07007KT P6SM SKC KTUP 220520Z 2206/2306 35003KT P6SM SKC FM221500 34011G17KT P6SM SCT050 FM230000 36004KT P6SM FEW050 KTUS 220520Z 2206/2306 33009KT P6SM BKN150 FM220800 17006KT P6SM SCT120 FM221700 32008KT P6SM SKC KTVC 220527Z 2206/2306 04008KT 6SM -SHRA SCT009 OVC012 TEMPO 2206/2209 BKN006 FM221100 04006KT P6SM BKN040 FM221800 03008KT P6SM BKN040 FM222200 02008KT P6SM BKN050 KTVF 220520Z 2206/2306 10005KT P6SM SCT250 FM221500 13007KT P6SM BKN090 FM222100 17011KT P6SM SCT110 KTVL 220547Z 2206/2306 VRB03KT P6SM FEW070 SCT200 FM221700 03006KT P6SM FEW050 SCT100 BKN180 FM222000 04009KT P6SM VCTS SCT060CB BKN080 FM222200 10011G16KT P6SM -TSRA FEW040 BKN060CB OVC120 FM230200 VRB04KT P6SM VCSH SCT070 BKN180 KTWF 220520Z 2206/2306 21011KT P6SM FEW250 FM221800 32010KT P6SM SCT150 SCT250 FM230400 21010KT P6SM SCT150 SCT250 KTXK 220535Z 2206/2306 VRB03KT P6SM SKC FM221500 05005KT P6SM SCT250 FM221800 VRB06KT P6SM BKN140 BKN250 FM230100 VRB03KT P6SM BKN120 BKN250 KTYR 220535Z 2206/2306 21008KT P6SM FEW300 FM221500 25008KT P6SM SCT170 SCT250 FM221800 25007KT P6SM SCT150 BKN250 FM230100 18005KT P6SM BKN120 BKN250 KTYS 220520Z 2206/2306 VRB03KT P6SM SCT030 BKN070 TEMPO 2210/2212 -SHRA BKN025 FM221200 24007KT P6SM VCSH OVC020 FM221800 24007KT P6SM VCTS BKN040CB TEMPO 2218/2222 4SM -TSRA BR BKN025CB FM230000 24004KT P6SM VCSH BKN040 KUAO 220642Z 2207/2306 VRB04KT P6SM SKC FM221200 02004KT P6SM SKC FM221600 02007KT P6SM SKC KUES 220520Z 2206/2306 36008KT P6SM VCSH OVC008 FM221600 03011KT P6SM OVC015 FM221900 04011KT P6SM VCSH SCT020 BKN035 FM230000 04009KT P6SM SCT035 FM230300 01005KT P6SM FEW250 KUIN 220520Z 2206/2306 33008KT P6SM FEW250 FM221200 34009KT P6SM BKN025 FM221400 35011G17KT P6SM BKN025 FM221800 35012G18KT P6SM SCT035 FM230100 36007KT P6SM SCT050 KUKI 220520Z 2206/2306 35004KT P6SM SCT120 FM221200 16004KT P6SM BKN008 FM221700 17008KT P6SM SKC KUNV 220639Z 2207/2306 03008KT 5SM -RA SCT003 OVC012 TEMPO 2207/2208 2SM +RA BR BKN003 OVC012 FM220900 32006KT 6SM -RA BR SCT008 OVC015 FM221200 25008KT P6SM SCT005 BKN015 FM221500 20008KT P6SM BKN035 FM221900 15009KT 6SM -SHRA VCTS SCT025 BKN050CB FM230100 14007KT 6SM BR BKN012 OVC035 KUTS 220520Z 2206/2306 21007KT P6SM SCT250 KVCT 220536Z 2206/2306 18006KT P6SM FEW015 FM220800 22005KT 4SM BR SCT012 TEMPO 2210/2213 1SM BR BKN012 FM221330 22008KT P6SM SCT025 FM221700 18012KT P6SM SKC FM230300 17006KT P6SM SCT015 KVEL 220520Z 2206/2306 36005KT P6SM VCSH FEW110 SCT150 FM221900 22006KT P6SM SCT090 BKN150 FM222200 30007KT P6SM FEW090 SCT120 FM230300 03008KT P6SM SCT080 BKN110 KVGT 220520Z 2206/2306 15007KT P6SM SCT110 BKN250 FM220800 34006KT P6SM SCT120 SCT250 FM221900 14007KT P6SM FEW120 SCT250 KVIS 220530Z 2206/2306 30007KT P6SM FEW120 SCT200 KVLD 220521Z 2206/2306 00000KT P6SM SCT015 TEMPO 2209/2212 4SM BR BKN006 FM221300 24007KT P6SM SCT040 FM221700 26009KT P6SM VCTS SCT040CB BKN150 TEMPO 2218/2222 VRB15G30KT 2SM +TSRA BKN030CB FM230000 22004KT P6SM BKN050 BKN100 KVNY 220529Z 2206/2306 VRB03KT P6SM SCT250 FM221900 14008KT P6SM SKC FM230100 27006KT P6SM SKC FM230500 VRB03KT P6SM SKC KVPS 220100Z 2201/2307 26006KT 9999 FEW140 FEW250 QNH2984INS BECMG 2206/2207 27006KT 9999 FEW050 SCT140 SCT250 WS018/28030KT QNH2984INS BECMG 2214/2215 28010G15KT 9999 FEW025 SCT050 SCT250 QNH2981INS BECMG 2217/2218 25010G18KT 9999 -SHRA VCTS FEW025 SCT040CB BKN080 BKN250 QNH2974INS TEMPO 2219/2303 32018G30KT 3200 -TSRA BKN025CB OVC080 BECMG 2302/2303 27008KT 9999 NSW FEW025 SCT080 SCT250 QNH2977INS WND 30004KT AFT 2305 TX35/2217Z TN27/2211Z KVQQ 220610Z 2206/2306 25004KT P6SM SCT012 SCT100 BKN250 FM220700 26005KT P6SM OVC010 FM221400 25009KT P6SM SCT020 SCT080 BKN250 FM221700 26010KT P6SM VCTS SCT040CB BKN080 FM230000 24008KT P6SM VCSH SCT030 SCT080 BKN250 KVRB 220535Z 2206/2306 24005KT P6SM FEW040 SCT200 FM221500 24011KT P6SM SCT025 SCT040 FM221800 27012KT P6SM VCTS SCT035CB BKN060 FM230200 23005KT P6SM FEW040 SCT060 BKN150 KVTN 220520Z 2206/2306 12010KT P6SM VCTS BKN070CB BKN250 FM220900 14010KT P6SM BKN250 FM221500 18012KT P6SM BKN250 FM230000 12012KT 6SM -TSRA BKN050CB BKN100 FM230300 32010KT P6SM VCTS BKN050CB BKN100 KWJF 220529Z 2206/2306 25015KT P6SM SCT250 FM220800 25008KT P6SM SCT250 FM222200 24015G25KT P6SM SKC FM230200 25015KT P6SM SKC KWMC 220533Z 2206/2306 20015G25KT P6SM BKN120 FM220900 VRB05KT P6SM SCT120 BKN250 FM222000 32007KT P6SM SCT120 BKN250 KWRB 220600Z 2206/2311 28012KT 9999 SCT040 QNH2978INS TEMPO 2206/2207 28035G50KT 3200 TSRAGR OVC030CB BECMG 2209/2210 VRB03KT 9999 FEW250 QNH2981INS BECMG 2214/2215 28007KT 9999 SCT030 QNH2976INS BECMG 2217/2218 28010G15KT 9999 -SHRA BKN040 QNH2969INS TEMPO 2218/2224 28015G30KT 4800 TSRA OVC035CB BECMG 2302/2303 VRB06KT 9999 NSW SCT035 QNH2971INS TX33/2220Z TN23/2208Z KWRI 220602Z 2206/2308 12015G25KT 6000 -SHRA SCT007 OVC015 510109 QNH2952INS BECMG 2206/2207 15010G15KT 9000 -SHRA OVC009 510109 QNH2951INS BECMG 2208/2209 18012KT 9999 NSW OVC005 510109 QNH2962INS BECMG 2215/2216 17012G18KT 9999 OVC007 QNH2985INS BECMG 2217/2218 17015G25KT 9999 OVC010 QNH2988INS BECMG 2220/2221 17015G25KT 9000 -SHRA OVC010 QNH2989INS TX28/2217Z TN21/2206Z KWRL 220521Z 2206/2306 VRB05KT P6SM FEW120 FM221300 33012G22KT P6SM FEW120 FM222100 32006KT P6SM FEW120 FM230100 VRB05KT P6SM SKC KWWR 220520Z 2206/2306 09009KT P6SM SKC FM221400 15011KT P6SM SCT150 SCT250 KXNA 220520Z 2206/2306 00000KT P6SM SKC FM221500 35008KT P6SM SKC FM230100 VRB03KT P6SM SKC KYIP 220532Z 2206/2306 04006KT 6SM BR VCSH FEW025 BKN035 BKN080 TEMPO 2206/2207 6SM -SHRA BR BKN040 OVC050 FM221000 04008KT P6SM VCSH SCT022 BKN040 OVC060 FM221700 02008KT P6SM VCSH SCT030 BKN040 BKN070 FM230200 32005KT P6SM BKN028 OVC050 KYKM 220521Z 2206/2306 32009KT P6SM SKC FM221900 12005KT P6SM SKC FM230400 VRB03KT P6SM SKC KYNG 220533Z 2206/2306 10008KT P6SM SCT025 OVC090 FM220900 08004KT P6SM VCSH OVC050 FM221400 06004KT P6SM BKN025 FM221700 08004KT P6SM BKN035 FM230300 VRB03KT P6SM BKN025 KZZV 220528Z 2206/2306 VRB03KT P6SM SCT025 FM221000 VRB03KT P6SM BKN020 FM221500 13005KT P6SM BKN035 FM221900 10005KT P6SM -SHRA VCTS BKN035CB FM222300 08003KT P6SM BKN060 LATI 220500Z 2206/2306 16005KT CAVOK TEMPO 2210/2218 26014KT FEW060 SCT140 TEMPO 2218/2306 VRB03KT SCT050 BKN100 LBBG 220500Z 2206/2306 24008KT CAVOK BECMG 2208/2210 13012KT SCT040 TEMPO 2211/2217 5000 TSRA SCT030CB BKN040 BECMG 2219/2221 VRB04KT LBGO 220500Z 2206/2306 VRB04KT CAVOK BECMG 2210/2212 10010KT SCT040 PROB30 TEMPO 2212/2217 5000 TSRA FEW030CB BECMG 2218/2220 VRB04KT LBPD 220500Z 2206/2306 VRB04KT CAVOK BECMG 2208/2210 12010KT SCT040 PROB30 TEMPO 2214/2218 TSRA FEW030CB BECMG 2219/2221 27008KT LBSF 220500Z 2206/2306 VRB04KT CAVOK BECMG 2209/2211 11010KT SCT040 PROB30 TEMPO 2212/2216 TSRA FEW030CB BECMG 2217/2219 VRB04KT LBWN 220500Z 2206/2306 VRB04KT CAVOK BECMG 2209/2211 11012KT SCT040 TEMPO 2211/2217 5000 TSRA SCT030CB BKN040 BECMG 2218/2220 VRB04KT LCLK 220530Z 2206/2306 15009KT 9999 FEW040 BECMG 2209/2212 21019KT BECMG 2216/2220 32007KT LCPH 220530Z 2206/2306 28007KT 9999 FEW040 BECMG 2208/2211 29017KT BECMG 2219/2222 35007KT LCRA 220131Z 2203/2221 28010KT CAVOK BECMG 2209/2212 26018G28KT BECMG 2218/2221 27015KT LDDU 220525Z 2206/2306 14012KT CAVOK TX30/2211Z TN23/2304Z BECMG 2213/2215 30007KT BECMG 2217/2219 VRB02KT LDLO 220608Z 2207/2306 30010KT CAVOK TX28/2212Z TN24/2300Z PROB30 TEMPO 2207/2210 TSRA FEW030CB BECMG 2217/2219 30005KT BECMG 2303/2305 02010KT LDOS 220529Z 2206/2306 VRB02KT CAVOK TX27/2212Z TN17/2303Z PROB30 TEMPO 2206/2211 VRB15KT TSRA FEW040CB BKN045 PROB40 TEMPO 2215/2220 28015KT 3000 TSRA SCT030CB BKN040 PROB30 TEMPO 2300/2306 TSRA FEW030CB BKN040 LDPL 220529Z 2206/2306 06006KT CAVOK TX27/2212Z TN18/2303Z BECMG 2210/2212 28012KT PROB30 TEMPO 2211/2217 TSRA FEW030CB BECMG 2216/2218 VRB02KT BECMG 2303/2305 06008KT LDRI 220529Z 2206/2306 VRB02KT 9999 FEW040 TX26/2212Z TN20/2303Z PROB30 TEMPO 2209/2218 TSRA FEW030CB SCT040 PROB30 TEMPO 2210/2214 32007KT LDSB 212202Z 2122/2218 CNL LDSP 220525Z 2206/2306 11008KT CAVOK TX33/2212Z TN22/2303Z BECMG 2210/2212 23012KT PROB30 TEMPO 2210/2214 TS FEW040CB BECMG 2214/2216 31016KT BECMG 2219/2221 34006KT LDZA 220529Z 2206/2306 VRB02KT 9999 SCT040 TX26/2213Z TN18/2302Z PROB30 TEMPO 2206/2210 TSRA FEW030CB BKN040 PROB40 TEMPO 2210/2217 28015KT 3000 TSRA SCT030CB BKN040 PROB30 TEMPO 2210/2214 28015KT 1000 TSGR SCT030CB BKN040 PROB30 TEMPO 2220/2300 TSRA FEW030CB SCT040 LDZD 220525Z 2206/2306 VRB02KT CAVOK TX31/2212Z TN20/2304Z BECMG 2208/2210 30015KT BECMG 2218/2220 30007KT PROB30 TEMPO 2222/2306 04010KT -TSRA FEW027CB BKN030 LEAL 220500Z 2206/2306 01007KT 9999 SCT020 TX29/2212Z TN23/2206Z BECMG 2206/2208 08013KT PROB30 TEMPO 2210/2218 FEW025CB BECMG 2221/2223 VRB03KT LEAM 220200Z 2203/2303 VRB03KT CAVOK TX30/2211Z TN21/2303Z BECMG 2210/2212 20010KT LEAS 220200Z 2203/2303 23006KT 9999 SCT010 BKN035 TX23/2215Z TN16/2205Z PROB30 TEMPO 2203/2207 3000 -RA BR BKN010 TEMPO 2209/2215 33010KT TEMPO 2214/2220 05010KT LEBB 220500Z 2206/2306 10003KT 9999 BKN055 TX25/2214Z TN16/2305Z PROB40 TEMPO 2206/2215 RA BECMG 2210/2213 31010KT BECMG 2218/2221 VRB04KT LEBL 220500Z 2206/2306 VRB03KT 9999 SCT030 TX27/2212Z TN22/2206Z TEMPO 2206/2218 4000 SHRA BKN015 SCT020CB BECMG 2208/2210 24008KT PROB40 TEMPO 2206/2218 23015G30KT 3000 TSRA BECMG 2218/2220 32008KT LEBZ 220500Z 2206/2306 25005KT CAVOK TX32/2216Z TN17/2206Z LECH 220500Z 2206/2306 04008KT 9999 BKN030 TX27/2212Z TN19/2206Z TEMPO 2206/2218 4000 SHRA BKN015 SCT025CB PROB30 TEMPO 2206/2211 3000 TSRA PROB40 TEMPO 2212/2218 06012KT 3000 TSRA BECMG 2216/2218 VRB03KT LECO 220200Z 2203/2303 35005KT 9999 SCT010 BKN030 TX24/2215Z TN15/2206Z TEMPO 2203/2208 BKN010 PROB40 TEMPO 2203/2208 3000 -RADZ BR BKN010 PROB30 TEMPO 2203/2207 0800 BCFG BKN002 PROB40 TEMPO 2214/2220 01015KT LEDA 220200Z 2203/2303 23008KT 9999 FEW040 TX30/2214Z TN19/2205Z PROB40 TEMPO 2203/2208 RA SCT060 TEMPO 2211/2216 22014G27KT PROB30 TEMPO 2212/2218 FEW030CB BECMG 2218/2220 12006KT LEGE 220500Z 2206/2306 VRB04KT 9999 SCT030 TX27/2213Z TN17/2206Z PROB40 TEMPO 2206/2218 4000 SHRA BKN015 SCT025CB PROB40 TEMPO 2212/2218 3000 TSRA BECMG 2218/2220 30007KT LEGR 220200Z 2203/2303 26005KT CAVOK TX36/2215Z TN18/2205Z LEHC 220200Z 2203/2303 25010KT 9999 FEW040 TX30/2214Z TN15/2205Z PROB30 TEMPO 2212/2218 FEW050CB BECMG 2220/2222 10012KT LEIB 220200Z 2203/2303 08012KT 9999 SCT018 TX30/2212Z TN22/2205Z PROB40 TEMPO 2203/2207 BKN012 PROB30 TEMPO 2203/2214 FEW025CB TEMPO 2212/2216 08014G25KT BECMG 2220/2222 08005KT LEJR 220626Z 2206/2306 20005KT 4000 BR BKN009 TX31/2214Z TN17/2305Z BECMG 2208/2210 CAVOK PROB40 TEMPO 2206/2208 0500 FG BKN003 LELC 220500Z 2206/2306 02009KT CAVOK TX27/2214Z TN23/2206Z PROB40 TEMPO 2206/2208 4000 BR BKN009 LELL 220200Z 2203/2303 VRB03KT 9999 SCT030 TX27/2213Z TN20/2205Z TEMPO 2205/2220 4000 SHRA SCT025CB BKN030 PROB40 TEMPO 2207/2220 26015G30KT 3000 TSRA BKN012 SCT020CB BECMG 2208/2210 25008KT LEMD 220500Z 2206/2312 02010KT CAVOK TX33/2215Z TN17/2206Z BECMG 2208/2210 VRB05KT PROB30 TEMPO 2206/2208 SHRA FEW040TCU PROB30 TEMPO 2212/2218 FEW040TCU LEMG 220500Z 2206/2306 VRB03KT CAVOK TX26/2214Z TN19/2206Z BECMG 2210/2212 14005KT PROB40 TEMPO 2206/2208 4000 BR BKN009 LEMH 220200Z 2203/2303 03010KT 9999 FEW020 TX29/2212Z TN20/2205Z TEMPO 2209/2217 04012G24KT BECMG 2218/2220 34006KT LEPA 220500Z 2206/2306 04004KT 9999 SCT025 TX30/2212Z TN20/2206Z BECMG 2206/2208 06010KT PROB30 TEMPO 2209/2218 FEW030TCU PROB40 TEMPO 2211/2216 25008KT BECMG 2220/2222 VRB03KT LEPP 220200Z 2203/2303 35006KT 9999 SCT050 TX25/2215Z TN12/2205Z PROB30 TEMPO 2212/2216 RA PROB40 TEMPO 2214/2221 34016KT PROB30 TEMPO 2300/2303 0800 BCFG LERS 220200Z 2203/2303 VRB03KT 9999 BKN030 TX27/2213Z TN20/2205Z TEMPO 2203/2216 3000 SHRA BKN020 SCT025CB PROB40 TEMPO 2204/2216 2000 +TSRA BKN010 SCT020CB TEMPO 2212/2219 20008KT LESA 220500Z 2206/2306 VRB05KT 9999 FEW040 TX30/2215Z TN11/2206Z PROB40 TEMPO 2206/2210 05010KT PROB30 TEMPO 2212/2218 FEW040TCU LESO 220500Z 2206/2306 20003KT 9999 SCT040 TX26/2215Z TN16/2206Z PROB30 TEMPO 2207/2215 RA TEMPO 2210/2220 30010KT LEST 220500Z 2206/2306 02007KT 9999 BKN020 TX24/2214Z TN13/2206Z PROB30 TEMPO 2206/2208 3000 BR LESU 220200Z 2203/2303 VRB04KT 9999 SCT050 TX24/2214Z TN14/2205Z PROB40 TEMPO 2209/2218 4000 SHRA SCT030CB BKN040 PROB40 TEMPO 2210/2214 20010G22KT PROB30 TEMPO 2212/2217 05015G30KT 3000 TSRA SCT025CB BKN030 LETO 220500Z 2206/2306 02010KT CAVOK TX33/2215Z TN16/2206Z BECMG 2208/2210 VRB05KT PROB30 TEMPO 2206/2208 SHRA FEW040TCU PROB30 TEMPO 2212/2218 FEW040TCU LEVC 220500Z 2206/2306 07010KT 9999 SCT025 TX27/2213Z TN23/2206Z PROB30 TEMPO 2206/2216 4000 SHRA BKN014 SCT025CB TEMPO 2211/2218 08014G26KT BECMG 2219/2221 VRB03KT LEVD 220500Z 2206/2306 VRB05KT CAVOK TX27/2215Z TN11/2206Z TEMPO 2219/2223 05012KT PROB30 TEMPO 2212/2218 FEW040TCU LEVT 220559Z 2206/2306 VRB04KT 9999 BKN050 TX23/2214Z TN12/2206Z TEMPO 2206/2208 3000 BR PROB30 TEMPO 2206/2215 RA TEMPO 2212/2219 02011KT PROB40 TEMPO 2300/2306 0800 FG LEVX 220500Z 2206/2306 01004KT 9999 SCT040 TX28/2214Z TN15/2305Z TEMPO 2212/2219 28010KT LEXJ 220627Z 2206/2303 22004KT 9999 SCT030 TX24/2215Z TN16/2303Z PROB30 TEMPO 2206/2210 -RA SHRA SCT030TCU TEMPO 2211/2220 33010KT LEZG 220500Z 2206/2306 26008KT 9999 FEW050 TX32/2214Z TN18/2305Z PROB30 TEMPO 2212/2218 FEW050CB BECMG 2216/2218 31011KT LEZL 220200Z 2203/2303 22005KT CAVOK TX35/2215Z TN19/2206Z LFBC 220429Z 2204/2303 25003KT 9999 SCT015 SCT030 PROB30 TEMPO 2204/2206 0800 BCFG TEMPO 2214/2218 32012KT PROB40 TEMPO 2300/2303 0800 BCFG LFBD 220500Z 2206/2312 VRB02KT CAVOK TX26/2215Z TN17/2206Z TEMPO 2206/2207 0800 BCFG BECMG 2212/2214 31010KT BECMG 2307/2309 09010KT LFBE 220500Z 2206/2306 VRB02KT CAVOK BECMG 2208/2210 31010KT LFBH 220611Z 2206/2306 VRB03KT CAVOK PROB30 2206/2208 0500 FG VV/// BECMG 2212/2214 30012KT LFBI 220500Z 2206/2306 30005KT CAVOK PROB30 TEMPO 2206/2208 BKN008 LFBL 220500Z 2206/2306 36006KT CAVOK BECMG 2207/2209 SCT030 BECMG 2210/2212 BKN045 BECMG 2215/2217 CAVOK LFBM 220200Z 2203/2303 VRB03KT CAVOK LFBO 220500Z 2206/2312 31008KT 9999 SCT035 BECMG 2216/2218 CAVOK LFBP 220500Z 2206/2306 VRB02KT CAVOK BECMG 2209/2211 03008KT SCT030 BECMG 2216/2218 VRB02KT CAVOK LFBT 220500Z 2206/2306 18005KT 9999 OVC050 BECMG 2210/2212 03008KT SCT030 BECMG 2216/2218 VRB02KT CAVOK LFBU 220548Z 2206/2306 30007KT 0300 FG VV/// BECMG 2206/2208 CAVOK LFBZ 220500Z 2206/2306 15005KT 9999 SCT018 FEW020TCU BECMG 2209/2211 30010KT SCT040 BECMG 2214/2216 CAVOK BECMG 2218/2220 VRB02KT LFCR 220500Z 2206/2306 32008KT CAVOK BECMG 2207/2209 SCT025 BECMG 2210/2212 BKN040 BECMG 2216/2218 CAVOK LFJL 220500Z 2206/2306 28006KT CAVOK BECMG 2221/2224 04005KT LFKB 220200Z 2203/2303 24005KT 9999 FEW018 TX30/2212Z TN21/2203Z BECMG 2208/2209 12010KT BECMG 2219/2220 24005KT LFKC 220200Z 2203/2303 20008KT CAVOK TX31/2212Z TN24/2203Z BECMG 2207/2209 22012KT TEMPO 2210/2217 22015G25KT TEMPO 2218/2303 FEW040CB BKN090 LFKF 220200Z 2203/2303 25008KT CAVOK BECMG 2209/2210 25015G25KT BECMG 2217/2219 26010KT TEMPO 2223/2303 FEW040CB BKN090 LFKJ 220200Z 2203/2303 05004KT 9999 SCT020 BECMG 2208/2210 24010KT BECMG 2219/2221 06004KT LFLB 220500Z 2206/2306 36010KT CAVOK LFLC 220200Z 2203/2303 VRB02KT 9999 SCT050 BECMG 2208/2210 01008KT LFLL 220500Z 2206/2312 35006KT CAVOK TEMPO 2212/2216 35015G25KT LFLP 220200Z 2203/2303 VRB03KT CAVOK BECMG 2207/2209 01010KT BECMG 2210/2212 FEW060 TEMPO 2214/2218 FEW070TCU BECMG 2218/2220 VRB03KT LFLS 220200Z 2203/2303 VRB02KT CAVOK BECMG 2207/2209 35012KT TEMPO 2210/2215 SCT050 BECMG 2223/2301 VRB02KT LFLX 220500Z 2206/2312 29005KT CAVOK= LFPB 220500Z 2206/2306 34005KT 7000 NSC LFLY 220500Z 2206/2306 VRB03KT CAVOK BECMG 2206/2208 36010KT LFMD 220200Z 2203/2303 VRB05KT 9999 FEW020 TEMPO 2203/2205 BKN014 BECMG 2208/2210 14010KT TEMPO 2211/2218 FEW050TCU PROB30 TEMPO 2215/2217 SHRA FEW040CB BKN070 BECMG 2218/2220 VRB02KT NSC LFMH 220200Z 2203/2303 VRB02KT 9999 SCT055 BECMG 2206/2208 35008KT TEMPO 2209/2218 BKN050 LFMI 220404Z 2204/2303 30008KT CAVOK BECMG 2207/2209 32018KT PROB40 TEMPO 2218/2220 32020G30KT FEW070CB LFMK 220200Z 2203/2303 27010KT CAVOK TEMPO 2208/2220 28012G22KT LFML 220400Z 2204/2309 32010KT CAVOK TX30/2213Z TN21/2204Z BECMG 2208/2210 30017KT PROB40 TEMPO 2214/2217 25018G28KT BECMG 2217/2219 32022KT PROB40 TEMPO 2218/2221 VRB10G30KT FEW070CB BECMG 2222/2224 32015KT LFMN 220200Z 2203/2309 34010KT 9999 FEW020 PROB40 TEMPO 2203/2206 BKN020 BECMG 2208/2210 16010KT TEMPO 2214/2219 FEW050TCU BKN100 PROB30 TEMPO 2216/2217 SHRA FEW040CB BKN070 BECMG 2218/2220 34010KT NSC TEMPO 2221/2302 08010KT BECMG 2307/2309 18010KT LFMO 220200Z 2203/2303 31005KT CAVOK BECMG 2205/2207 34010G20KT TEMPO 2212/2218 35015G30KT LFMP 220200Z 2203/2303 29010KT 9999 SCT070 BECMG 2213/2215 29015G25KT LFMT 220200Z 2203/2303 31012KT CAVOK BECMG 2210/2212 21012KT PROB30 TEMPO 2213/2217 21020G30KT FEW050TCU BECMG 2218/2220 33010KT LFMU 220200Z 2203/2303 29008KT CAVOK BECMG 2214/2215 32012G22KT BECMG 2300/2303 28008KT LFMV 220410Z 2204/2303 34010KT CAVOK BECMG 2205/2207 34020KT TEMPO 2217/2219 34020G30KT SCT075 LFOB 220500Z 2206/2306 27005KT CAVOK TEMPO 2206/2207 4000 BR LFOE 220200Z 2203/2303 27005KT 0100 FG VV/// BECMG 2207/2209 CAVOK LFOH 220500Z 2206/2306 26005KT CAVOK PROB30 2303/2306 3000 MIFG LFOK 220500Z 2206/2306 24005KT CAVOK TEMPO 2206/2207 4000 BR LFOP 220500Z 2206/2306 VRB02KT 1500 BR VV/// BECMG 2206/2208 CAVOK LFOT 220500Z 2206/2306 33005KT CAVOK LFPB 220500Z 2206/2306 34005KT 7000 NSC LFPG 220500Z 2206/2312 34005KT 7000 NSC TX28/2215Z TN17/2206Z LFPO 220500Z 2206/2312 28005KT CAVOK LFPV 220200Z 2203/2303 34005KT CAVOK LFQQ 220500Z 2206/2312 VRB02KT CAVOK TEMPO 2206/2207 3000 BR BECMG 2213/2215 32012KT BECMG 2217/2219 VRB02KT LFRB 220617Z 2206/2312 02005KT 4000 BCFG NSC TEMPO 2206/2208 0300 FG VV/// BECMG 2206/2208 8000 NSW TEMPO 2302/2306 3000 BR LFRD 220500Z 2206/2306 VRB03KT 9999 SCT030 PROB30 TEMPO 2206/2207 4000 BR BECMG 2210/2212 35010KT BECMG 2221/2224 VRB03KT PROB30 TEMPO 2303/2306 0500 BCFG LFRH 220500Z 2206/2306 02005KT 1000 BCFG VV/// BECMG 2207/2209 9999 NSW BKN012 BECMG 2210/2212 24010KT BECMG 2213/2215 CAVOK BECMG 2223/2301 04005KT LFRI 220500Z 2206/2306 VRB03KT CAVOK TEMPO 2206/2209 3000 BR VV/// PROB40 TEMPO 2206/2208 0600 FG TEMPO 2215/2220 28010KT LFRM 220500Z 2206/2306 VRB03KT CAVOK LFRN 220500Z 2206/2306 VRB03KT CAVOK TEMPO 2206/2207 0500 BCFG BECMG 2211/2213 35006KT PROB30 TEMPO 2303/2306 0500 BCFG LFRO 220607Z 2206/2306 VRB02KT 8000 NSC TEMPO 2206/2208 0300 FG VV/// BECMG 2209/2211 35008KT TEMPO 2302/2306 3000 BR LFRQ 220605Z 2206/2306 06003KT 3000 BR BKN015 TEMPO 2206/2208 0200 FG VV/// BECMG 2208/2210 8000 NSW SCT020 TEMPO 2302/2306 3000 BR LFRS 220500Z 2206/2312 VRB03KT CAVOK PROB40 TEMPO 2206/2207 3000 BR TEMPO 2216/2220 28010KT PROB30 TEMPO 2304/2307 4000 BR LFRZ 220500Z 2206/2306 VRB03KT CAVOK TEMPO 2206/2209 1500 BR VV/// TEMPO 2215/2221 28012KT PROB30 TEMPO 2302/2306 3000 BR BKN002 LFSB 220500Z 2206/2306 VRB03KT CAVOK BECMG 2208/2211 01006KT TEMPO 2212/2218 02010G20KT FEW055CB LFSI 220200Z 2203/2303 32012KT CAVOK TEMPO 2203/2206 VRB02KT 3000 BR LFST 220500Z 2206/2306 VRB02KT CAVOK BECMG 2206/2209 36005KT TEMPO 2211/2219 VRB10G20KT 4500 SHRA FEW050CB BKN065 PROB30 TEMPO 2212/2215 TSRA LFTH 220415Z 2204/2303 VRB03KT CAVOK BECMG 2208/2210 25015KT BECMG 2211/2213 25025KT BECMG 2218/2220 26015KT PROB40 TEMPO 2218/2221 26017G27KT -SHRA SCT075CB BECMG 2220/2222 VRB03KT LFTW 220200Z 2203/2303 34010KT CAVOK TEMPO 2215/2218 25010KT FEW060TCU LFVP 220022Z 2200/2203 CNL LGAV 220500Z 2206/2306 VRB05KT 9999 FEW030 BECMG 2209/2211 13010KT BECMG 2210/2212 20015KT BECMG 2218/2220 27010KT LGEL 220500Z 2206/2306 VRB03KT 9999 FEW030 BECMG 2209/2211 18013KT BECMG 2218/2220 30012KT LGIR 220500Z 2206/2306 VRB03KT 9999 FEW020 BECMG 2209/2211 32013KT LGKO 220500Z 2206/2306 33016KT 9999 FEW020 TEMPO 2209/2218 33016G26KT LGKR 220500Z 2206/2306 VRB03KT 9999 FEW030 BECMG 2208/2210 16013KT LGPZ 220500Z 2206/2306 VRB03KT 9999 FEW020 BECMG 2210/2212 27013KT BECMG 2219/2221 07010KT LGRP 220500Z 2206/2306 26015KT 9999 FEW020 TEMPO 2212/2218 26015G25KT LGSA 220500Z 2206/2306 31010KT 9999 FEW025 BECMG 2214/2216 30015G25KT LGSR 220500Z 2206/2306 30016KT 9999 FEW020 BECMG 2216/2218 26015G25KT LGTS 220500Z 2206/2306 VRB03KT 9999 FEW030 BECMG 2212/2214 16015KT BECMG 2218/2220 VRB03KT LHBP 220515Z 2206/2306 VRB03KT CAVOK PROB40 TEMPO 2208/2211 VRB10G20KT -TSRA FEW040CB BKN060 BECMG 2211/2213 31007KT SCT035 BECMG 2216/2218 CAVOK BECMG 2219/2221 VRB03KT LHPA 220515Z 2206/2306 VRB03KT 9999 SCT083 TEMPO 2206/2209 RA SHRA BKN040TCU BKN083 BECMG 2209/2211 36005KT CAVOK PROB40 TEMPO 2212/2306 VRB10G20KT 8000 SHRA TSRA SCT040TCU BKN050CB LIBC 220500Z 2206/2306 20014KT CAVOK LIBD 220500Z 2206/2306 16010KT CAVOK BECMG 2206/2209 01010KT BECMG 2216/2218 VRB05KT LIBP 220500Z 2206/2306 VRB05KT 9999 FEW040 BECMG 2209/2212 05010KT BECMG 2216/2218 VRB05KT LIBR 220500Z 2206/2306 16010KT CAVOK BECMG 2206/2209 01010KT BECMG 2216/2218 VRB05KT LICA 220500Z 2206/2306 VRB05KT 9999 FEW030 BECMG 2209/2211 27012KT BECMG 2218/2220 VRB06KT LICC 220500Z 2206/2306 26008KT CAVOK BECMG 2208/2210 08012KT BECMG 2216/2218 VRB05KT LICD 220500Z 2206/2306 16015KT 9999 FEW030 BECMG 2206/2209 35010KT BECMG 2216/2218 VRB04KT LICJ 220500Z 2206/2306 22018KT 9999 FEW030 BECMG 2206/2208 02012KT BECMG 2216/2218 VRB04KT LICR 220500Z 2206/2306 20008KT CAVOK BECMG 2206/2208 34010KT BECMG 2216/2218 VRB04KT LIEA 220500Z 2206/2306 24010KT 9999 SCT030 BECMG 2212/2214 30012KT BECMG 2217/2219 VRB06KT LIEE 220500Z 2206/2306 30010KT 9999 SCT040 LIEO 220500Z 2206/2306 24012KT 9999 SCT030 BECMG 2210/2212 30015KT BECMG 2217/2219 24008KT LIMC 220500Z 2206/2312 VRB05KT 9999 SCT040 LIME 220500Z 2206/2306 VRB05KT 9999 SCT040 PROB40 TEMPO 2222/2302 TSRA LIMF 220500Z 2206/2306 VRB05KT 9999 SCT040 LIMJ 220500Z 2206/2306 12005KT 9999 SCT025 TEMPO 2212/2302 TSRA LIML 220500Z 2206/2306 VRB05KT 9999 SCT040 PROB40 TEMPO 2222/2302 TSRA LIMP 220500Z 2206/2306 VRB05KT 9999 SCT050 PROB40 TEMPO 2222/2302 TSRA LIMZ 220500Z 2206/2306 VRB05KT 9999 SCT040 PROB40 TEMPO 2222/2302 TSRA LIPB 220500Z 2206/2306 VRB05KT 9999 SCT050 TEMPO 2212/2220 TSRA LIPE 220500Z 2206/2306 VRB05KT 9999 SCT040 TEMPO 2212/2218 TSRA TEMPO 2221/2306 TSRA LIPH 220500Z 2206/2306 VRB05KT 9999 SCT030 TEMPO 2118/2124 TSRA LIPO 220557Z 2206/2306 24005KT 9999 SCT050 TEMPO 2206/2208 4000 BR TEMPO 2222/2304 TSRA LIPQ 220500Z 2206/2306 VRB05KT 9999 SCT030 TEMPO 2212/2218 TSRA LIPY 220500Z 2206/2306 VRB05KT 9999 SCT040 BECMG 2209/2211 04010KT TEMPO 2214/2218 TSRA BECMG 2217/2219 VRB05KT LIPZ 220500Z 2206/2312 VRB05KT 9999 SCT030 BECMG 2210/2212 15010KT TEMPO 2218/2224 TSRA LIRA 220500Z 2206/2306 14006KT 9999 SCT030 BECMG 2208/2210 22010KT TEMPO 2300/2306 TSRA LIRF 220500Z 2206/2312 VRB05KT 9999 FEW030 BECMG 2208/2210 24012KT TEMPO 2303/2312 4000 TSRA LIRN 220500Z 2206/2306 VRB05KT 9999 SCT030 BECMG 2210/2212 20010KT LIRP 220500Z 2206/2306 24008KT 9999 SCT020 SCT040 TEMPO 2206/2218 24015G25KT 5000 TSRA FEW020CB BKN040 TEMPO 2300/2306 5000 TSRA FEW020CB BKN040 LIRQ 220500Z 2206/2306 VRB06KT 9999 SCT030 TEMPO 2206/2212 SHRA BECMG 2208/2210 22012KT TEMPO 2300/2306 TSRA LIRZ 220500Z 2206/2306 VRB05KT 9999 SCT030 BECMG 2208/2210 22012KT TEMPO 2221/2306 TSRA LJLJ 220200Z 2203/2303 VRB02KT 9999 SCT060 BKN180 PROB40 TEMPO 2203/2205 0500 FG VV001 BECMG 2208/2209 12005KT FEW060 SCT120 BECMG 2211/2213 FEW050CB TEMPO 2212/2218 TSRA SCT050CB OVC060 BECMG 2217/2219 32004KT FEW060 BKN100 TEMPO 2301/2303 -RA LJMB 220200Z 2203/2303 VRB02KT CAVOK BECMG 2203/2205 SCT030 BKN070 BECMG 2208/2211 34006KT FEW050 SCT120 TEMPO 2211/2218 TSRA SCT050CB OVC070 BECMG 2218/2221 BKN050 BECMG 2301/2303 36010KT -RA SCT040 OVC060 LKCV 220500Z 2206/2306 03008KT CAVOK PROB30 TEMPO 2212/2217 SHRA SCT050TCU BECMG 2215/2217 07006KT BECMG 2222/2300 27004KT LKKB 220500Z 2206/2306 30008KT CAVOK TEMPO 2209/2218 31010G24KT 7000 SHRA SCT040TCU LKKV 220431Z 2204/2306 VRB02KT 4000 BR NSC TEMPO 2204/2207 1500 RA BR SCT002 BECMG 2207/2210 01008KT CAVOK TEMPO 2210/2218 7000 SHRA SCT045CB BECMG 2222/2300 VRB02KT LKNA 220500Z 2206/2306 14006KT 9999 SCT040 TEMPO 2206/2210 24004KT 6000 SCT012 TEMPO 2212/2222 7000 SHRA SCT040TCU PROB30 TEMPO 2212/2217 7000 TSRA SCT030CB BECMG 2223/2302 35010KT LKPD 220500Z 2206/2306 33005KT CAVOK BECMG 2209/2211 02008KT PROB30 TEMPO 2211/2218 SHRA SCT035TCU LLBG 220503Z 2206/2306 17006KT 9999 FEW025 BECMG 2207/2209 27010KT 9999 FEW030 BECMG 2217/2219 19005KT SCT020 PROB30 2301/2305 8000 BKN017 TX31/2210Z TN25/2303Z LLET 220504Z 2206/2306 03012KT CAVOK TX38/2214Z TN28/2303Z LLIB 220316Z 2203/2224 VRB04KT 8000 SCT020 BECMG 2204/2206 14008KT 9999 FEW035 BECMG 2210/2212 31012KT BECMG 2217/2219 VRB04KT 7000 SCT018 PROB40 2221/2224 5000 BR BKN015 TX32/2212Z TN23/2203Z LOWG 220515Z 2206/2306 19004KT 9999 FEW060 SCT120 BKN300 TX24/2212Z TN16/2303Z TEMPO 2209/2212 VRB10G20KT 4000 TSRA SCT040CB BKN050 TEMPO 2212/2219 FEW050CB BKN060 PROB30 TEMPO 2212/2218 32010G20KT TSRA SCT050CB BKN060 TEMPO 2301/2306 34010KT SHRA BKN060 LOWI 220515Z 2206/2306 27003KT 9999 -SHRA FEW010 SCT030 BKN060 TX19/2214Z TN14/2303Z TEMPO 2206/2221 29010KT SHRA SCT020 BKN050 FEW050TCU PROB40 TEMPO 2300/2306 FEW004 BKN008 LOWK 220515Z 2206/2306 VRB02KT 9999 FEW040 SCT060 TX23/2213Z TN16/2303Z TEMPO 2208/2220 FEW050CB BKN060 PROB30 TEMPO 2209/2218 VRB10G20KT 4000 TSRA SCT050CB BKN060 TEMPO 2301/2306 SHRA BKN050 LOWL 220515Z 2206/2306 25006KT 9999 -RA SCT020 BKN040 TX22/2214Z TN16/2304Z TEMPO 2206/2220 27012KT 4000 SHRA SCT015 BKN020 SCT025CB PROB30 TEMPO 2208/2215 27015G25KT 2500 TSRA PROB30 TEMPO 2302/2306 5000 BR BKN011 LOWS 220553Z 2206/2306 16004KT 9999 -RA FEW010 BKN040 TX19/2212Z TN16/2303Z TEMPO 2206/2221 29005KT 3500 SHRA SCT007 BKN020 FEW025TCU TEMPO 2221/2306 4000 BR LOWW 220515Z 2206/2312 28007KT 9999 FEW025 SCT050 BKN110 TX27/2211Z TN19/2302Z TEMPO 2206/2212 32010KT FEW030 FEW040CB SCT110 TEMPO 2212/2222 VRB15G25KT 8000 -TSRA FEW030CB BKN040 PROB40 TEMPO 2212/2219 VRB25G35KT 1500 +TSRA SCT012 BKN030CB TEMPO 2222/2303 32015KT 8000 SHRA FEW040CB BKN060 FM230300 32012KT 9999 FEW045TCU SCT045 BKN080 PROB30 TEMPO 2303/2312 SHRA FEW040CB BKN060 LPAZ 220500Z 2206/2312 36010KT 9999 FEW015 SCT040 PROB30 TEMPO 2206/2312 6000 -RA SCT008 BKN012 BECMG 2222/2224 VRB05KT LPBJ 220506Z 2206/2306 30005KT 9999 BKN007 PROB40 2206/2208 4000 BCFG BKN004 BECMG 2207/2209 CAVOK BECMG 2213/2215 30010KT BECMG 2222/2224 31004KT PROB40 2303/2306 4000 BCFG BKN005 LPFR 220500Z 2206/2306 VRB03KT CAVOK BECMG 2209/2212 24013KT BECMG 2217/2220 33010KT LPLA 220500Z 2206/2306 34010KT 9999 FEW020 SCT030 TEMPO 2206/2218 8000 -SHRA SCT014 BKN020 PROB30 TEMPO 2206/2212 4000 -RADZ BR SCT007 BKN012 LPMA 220500Z 2206/2306 01012KT 9999 SCT016 TEMPO 2206/2218 SCT015 BKN030 LPMR 220506Z 2206/2306 34008KT 9999 BKN007 PROB40 2206/2208 4000 BR BKN005 BECMG 2208/2210 31012KT SCT020 PROB40 TEMPO 2213/2217 32012G22KT BECMG 2218/2221 29005KT BKN008 PROB40 2223/2306 0500 FG BKN004 LPMT 220506Z 2206/2306 34005KT 9999 BKN020 PROB40 2206/2208 BKN012 BECMG 2209/2211 34010KT FEW025 PROB40 TEMPO 2214/2218 33012G22KT BECMG 2221/2223 33004KT BKN012 PROB40 2300/2306 BKN009 LPOV 220505Z 2206/2306 VRB02KT 3000 BR BKN004 PROB40 2206/2208 0300 FG BKN002 BECMG 2207/2209 31006KT 9999 NSW FEW007 SCT020 BECMG 2211/2213 33012KT FEW020 BECMG 2219/2222 19005KT BECMG 2222/2224 16010KT SCT006 PROB40 2300/2306 4000 BR BKN003 LPPD 220500Z 2206/2306 35010KT 9999 SCT015 SCT035 PROB40 TEMPO 2206/2306 6000 -RA SCT008 BKN012 BECMG 2300/2303 VRB05KT LPPR 220500Z 2206/2306 VRB03KT 6000 FEW008 TEMPO 2206/2209 1500 BR BKN004 BECMG 2209/2211 32008KT 9999 SCT012 BECMG 2212/2214 35015KT FEW035 BECMG 2220/2223 VRB03KT FEW012 TEMPO 2300/2306 17007KT 2000 BR BKN004 LPPS 220500Z 2206/2312 02010KT 9999 SCT015 SCT030 PROB40 TEMPO 2206/2212 BKN012 LPPT 220500Z 2206/2312 34013KT 9999 BKN018 PROB30 TEMPO 2206/2208 BKN008 BECMG 2212/2215 33017KT FEW035 BECMG 2222/2224 33008KT 9999 SCT008 PROB40 TEMPO 2300/2306 BKN005 BECMG 2310/2312 28008KT SCT020 LQTZ 212255Z 2122/2217 CNL LRBS 220500Z 2206/2306 VRB04KT CAVOK TEMPO 2211/2216 SCT050CB TEMPO 2303/2306 5000 -SHRA SCT040CB LRCK 220500Z 2206/2306 VRB04KT CAVOK TEMPO 2209/2215 SCT040CB PROB40 2210/2214 VRB15G25KT 5000 -TSRA LROP 220500Z 2206/2306 VRB04KT CAVOK TEMPO 2211/2216 SCT050CB TEMPO 2303/2306 5000 -SHRA SCT040CB LRSB 220500Z 2206/2306 VRB04KT CAVOK BECMG 2208/2209 FEW040CB PROB40 TEMPO 2210/2218 VRB15G25KT 5000 TSRA SCT015 BKN030CB BECMG 2218/2220 NSC TEMPO 2300/2304 5000 BR LRTR 220500Z 2206/2306 VRB04KT 9999 SCT045CB TEMPO 2206/2209 5000 -TSRA BECMG 2209/2211 03010KT NSC TEMPO 2211/2216 VRB25KT 5000 -TSRA SCT040CB BECMG 2300/2302 35010KT TEMPO 2302/2306 VRB15KT 5000 TSRA SCT010 BKN035CB LSGG 220525Z 2206/2312 VRB03KT 9999 FEW060 TX27/2215Z TN16/2206Z TN13/2304Z BECMG 2209/2211 05007KT BECMG 2219/2221 VRB02KT BECMG 2305/2308 04010KT LSMM 220259Z 2202/2223 VRB03KT 9999 FEW050 BKN070 TEMPO 2203/2206 BKN010 PROB40 TEMPO 2208/2218 SHRA PROB30 TEMPO 2212/2218 10013KT TSRA SCT050CB LSMP 220324Z 2203/2223 VRB03KT 9999 FEW040 SCT065 BECMG 2213/2215 05010KT LSZH 220525Z 2206/2312 VRB03KT 9999 FEW008 SCT150 TX24/2214Z TN16/2206Z TN15/2304Z PROB40 TEMPO 2210/2219 30008KT SHRA FEW050TCU BECMG 2214/2217 04008KT BECMG 2218/2221 VRB03KT BECMG 2307/2309 03005KT LUKK 220520Z 2206/2306 VRB05KT CAVOK BECMG 2207/2208 31010KT PROB40 TEMPO 2212/2216 SCT045CB LWOH 220530Z 2206/2306 VRB02KT CAVOK LWSK 220530Z 2206/2306 VRB02KT CAVOK TEMPO 2210/2216 28012KT LYBE 220500Z 2206/2306 12008KT 9999 SCT040 TX30/2214Z TN17/2303Z TEMPO 2215/2306 VRB25KT 3000 TSRA SCT015 SCT027CB SCT030 LYBT 220500Z 2206/2306 11008KT 9999 SCT040 TX30/2213Z TN17/2303Z TEMPO 2215/2306 VRB25KT 3000 TSRA SCT017 SCT027CB SCT030 LYKV 220500Z 2206/2306 VRB02KT 9999 SCT040 TX31/2213Z TN17/2203Z TEMPO 2215/2224 VRB15KT 4000 TSRA SCT027CB SCT033 TEMPO 2302/2306 1500 BR BKN005 BKN027 LYNI 220500Z 2206/2306 22006KT 9999 SCT040 TX34/2214Z TN16/2303Z PROB40 TEMPO 2216/2222 VRB15KT 4000 TSRA SCT030CB SCT040 LYPG 220500Z 2206/2306 VRB02KT CAVOK TX34/2213Z TN22/2303Z TEMPO 2209/2218 16012KT PROB30 TEMPO 2300/2306 VRB15G25KT 4000 TSRA FEW030CB SCT040 LYTV 220500Z 2206/2306 15008KT CAVOK TX33/2213Z TN18/2303Z LYUZ 220500Z 2206/2306 23008KT 9999 SCT020 TX26/2213Z TN14/2303Z TEMPO 2213/2220 VRB15G30KT 5000 TSRA SCT010CB SCT017 TEMPO 2220/2224 3000 -RA BR BKN003 BKN015 BECMG 2300/2302 0200 FG VV002 LYVR 220500Z 2206/2306 11006KT 9999 SCT040 TX29/2214Z TN17/2304Z TEMPO 2215/2306 VRB25KT 3000 TSRA SCT030CB SCT033 MHSC 212125Z 2121/2303 35012KT 9999 SCT200 QNH2990INS BECMG 2201/2202 33009KT 9999 SCT050 BKN200 QNH2995INS BECMG 2205/2206 VRB06KT 8000 BR SCT200 QNH2998INS BECMG 2212/2213 33009KT 9999 NSW FEW050 SCT200 QNH2996INS BECMG 2217/2218 33012G18KT 9999 VCSH SCT050 QNH2990INS TX33/2220Z TN21/2212Z LAST NO AMDS AFT 2121 NEXT 2305 MKJP 220515Z 2206/2306 35007KT 9999 FEW022 BECMG 2214/2216 14020KT SCT022 BECMG 2301/2303 35005KT FEW022 MKJS 220515Z 2206/2306 11005KT 9999 FEW022 BECMG 2214/2216 06018KT SCT022 BECMG 2301/2303 12005KT FEW024 MMCE 212359Z 2200/2218 36010KT 5SM VC TSRA BKN015CB OVC080 TEMPO 2200/2203 2SM TSRA BKN010CB FM220400 12010KT P6SM SCT015 BKN080 FM221200 12015KT P6SM SCT015 MMCL 211851Z 2119/2218 14005KT P6SM BKN020 PROB40 2123/2203 5SM RA BKN020CB FM220400 00000KT P6SM BKN020 BKN200 FM221600 18006KT P6SM SCT020 SCT200 MMGL 220200Z 2202/2306 00000KT P6SM SCT080 VC CB TX29/2222Z TN17/2212Z FM220400 00000KT P6SM SCT020 BKN080 TEMPO 2212/2216 BKN015 FM222000 23010KT P6SM SCT030 BKN250 MMTG 220120Z 2201/2218 30015KT P6SM SCT080 BKN250 FM221200 00000KT 5SM HZ SCT015 MMTO 220158Z 2200/2306 04010KT P6SM BKN015 BKN200 TX22/2221Z TN08/2212Z FM220200 02005KT 6SM HZ SCT015 SCT200 TEMPO 2210/2214 3SM BR BKN010 FM221800 12010KT P6SM SCT015 BECMG 2219/2220 BKN015 BKN200 TEMPO 2221/2301 VC RA MPDA 220300Z 2200/2212 CNL MPMG 220300Z 2200/2212 CNL MPPA 220300Z 2200/2306 CNL= MPMG 220300Z 2200/2212 CNL MRLB 220500Z 2206/2306 08010KT 9999 FEW040 TX32/2219Z TN22/2211Z TEMPO 2210/2214 VRB02KT BECMG 2218/2220 25010KT SCT025TCU BKN090 TEMPO 2221/2224 5000 TSRA SCT015CB BKN030 MRLM 220500Z 2206/2306 25007KT 9999 SCT015 BKN110 TX30/2219Z TN22/2211Z TEMPO 2206/2215 5000 RA BKN020 BECMG 2216/2218 06007KT MROC 220500Z 2206/2306 10011KT 9999 FEW035 BKN110 TX28/2218Z TN20/2210Z BECMG 2216/2218 26005KT SCT030 TEMPO 2219/2224 3000 TSRA FEW015CB MRPV 220500Z 2206/2306 09010KT 9999 FEW030 SCT110 TX27/2218Z TN19/2209Z BECMG 2216/2218 27010KT SCT025 TEMPO 2219/2224 3000 TSRA SCT015CB MUCU 212100Z 2121/2218 18008KT 9000 SCT020 TEMPO 2121/2124 5000 TSRA FEW018CB BKN020 BECMG 2201/2203 VRB03KT BECMG 2213/2215 18008KT MUGM 2203/2223 33008KT 9999 SCT030 SCT060 BKN280 QNH3000INS BECMG 2218/2220 15013KT 9999 VCTS SCT030CB SCT250 QNH2997INS T25/2209Z T34/2218Z 0331 FN00106 MUHA 212120Z 2122/2218 02005KT 9000 FEW030 BECMG 2201/2203 VRB03KT MWCB 220000Z 2118/2218 CNL MWCR 220300Z 2200/2224 CNL MYGF 212330Z 2200/2224 24005KT 9999 SCT015CB BKN018 BKN200 TEMPO 2201/2204 4800 TSRA SCT012CB BKN015 BECMG 2212/2214 25012KT PROB30 TEMPO 2215/2220 VCTS SCT018CB MYNN 212330Z 2200/2224 20005KT 9999 VCTS FEW018CB SCT020 BKN200 BECMG 2212/2214 21008KT BECMG 2216/2218 FEW018CB NCRG 220514Z 2206/2306 32005KT 9999 SCT015 PROB40 TEMPO 2206/2218 5000 SHRA BKN015 NFFN 220508Z 2206/2306 VRB03KT 9999 SCT025 BECMG 2221/2223 27010KT NFNA 220511Z 2206/2306 08008KT 9999 SCT020 PROB30 2216/2220 VRB03KT 0900 FG FEW020 NFTF 220517Z 2206/2306 10005KT 9999 SCT018 PROB30 2215/2219 VRB03KT 0900 FG FEW020 NFTV 220525Z 2206/2306 12007KT 9999 FEW017 PROB30 2215/2219 VRB03KT 0900 FG FEW016 NGFU 220526Z 2206/2306 10008KT 9999 SCT020 NGTA 220521Z 2206/2306 09008KT 9999 -SHRA SCT018 BKN045 TEMPO 2206/2224 3000 TSRA BKN014 SCT016CB NIUE 220524Z 2206/2306 15008KT 9999 SCT018 NLWW 220500Z 2206/2306 15010KT 9999 BKN020 PROB30 TEMPO 2206/2218 3000 SHRA BKN014 FEW020CB PROB40 TEMPO 2218/2306 3000 SHRA BKN014 FEW020CB NSFA 220520Z 2206/2306 12008KT 9999 -SHRA SCT020 SCT040 PROB30 TEMPO 2206/2224 3000 TSRA BKN016 FEW018CB NSTU 220539Z 2206/2306 13008KT P6SM FEW020 SCT040 BKN100 NTAA 220500Z 2206/2312 06013KT 9999 FEW020 SCT060 BKN120 PROB30 TEMPO 2206/2210 04015G25KT 3000 SHRA SCT015TCU BKN040 BECMG 2210/2212 VRB03KT FEW020 BECMG 2218/2220 06014KT NVSS 220430Z 2206/2306 08005KT 9999 SCT020 NVVV 220430Z 2206/2306 12009KT 9999 SCT020 BKN040 INTER 2206/2212 9000 -SHRA BKN018 NWWW 220500Z 2206/2306 14008KT 9999 FEW030 BKN040 BECMG 2206/2208 VRB02KT BECMG 2300/2302 20010KT CAVOK NZAA 220118Z 2201/2300 27015KT 9999 -SHRA FEW020 BKN030 TEMPO 2201/2204 4000 SHRA FEW020TCU TEMPO 2207/2210 6000 SHRA FEW020TCU TEMPO 2220/2300 6000 SHRA FEW020TCU OAHR 220110Z 2202/2224 03008KT CAVOK BECMG 2206/2208 03020KT TEMPO 2208/2213 03020G30KT BECMG 2216/2218 03010KT OAIX 212300Z 2123/2305 07009KT 9999 SKC QNH2973INS BECMG 2209/2210 02009KT 9999 SKC QNH2969INS BECMG 2211/2212 33012G18KT 9999 SKC QNH2965INS TEMPO 2213/2215 35015G25KT BECMG 2214/2215 01012G18KT 9999 SKC QNH2964INS BECMG 2217/2218 09009KT 9999 SKC QNH2970INS TX38/2211Z TN22/2201Z OAJL 220000Z 2200/2306 VRB06KT 9999 SCT090 BKN120 QNH2952INS BECMG 2211/2212 10010G15KT 9999 FEW080 QNH2940INS BECMG 2215/2216 12009KT 9999 FEW090 SCT150 QNH2947INS BECMG 2219/2220 VRB06KT 9999 BKN080 QNH2952INS TX39/2212Z TN29/2201Z OAKN 220220Z 2202/2305 19009KT 9000 DU SKC QNH2957INS BECMG 2205/2206 22010G15KT 6000 BLDU SKC QNH2952INS BECMG 2206/2207 24010G15KT 5000 BLDU SKC QNH2952INS BECMG 2208/2209 26012G18KT 5000 BLDU SKC QNH2946INS BECMG 2215/2216 26009KT 8000 DU SKC QNH2946INS TX42/2210Z TN28/2202Z OBBI 220500Z 2206/2312 33018G28KT 8000 NSC BECMG 2215/2217 33012KT BECMG 2303/2305 33018G28KT OIAA 220530Z 2206/2312 30006MPS 7000 NSC TEMPO 2207/2214 30009G14MPS 3000 SA DU PROB40 TEMPO 1500 SA DU TEMPO 2308/2312 32008G13MPS 5000 SA DU OIAW 220530Z 2206/2312 26004MPS 5000 HZ NSC TEMPO 2208/2215 30009G14MPS 3000 SA DU PROB40 TEMPO 1500 SA DU TEMPO 2309/2312 32008G13MPS 5000 SA OIBK 220530Z 2206/2312 32004MPS 4000 HZ FEW035 TEMPO 2210/2218 26007MPS TEMPO 2220/2304 3000 BR TEMPO 2310/2312 26007MPS OICI 220530Z 2206/2312 30004MPS 7000 NSC TEMPO 2212/2217 27008MPS OIFM 220530Z 2206/2312 14003MPS CAVOK TEMPO 2213/2218 13008MPS TEMPO 2301/2304 3000 HZ TEMPO 2309/2315 15008MPS OIIE 220530Z 2206/2312 32003MPS 8000 FEW040 TEMPO 2208/2216 14008MPS TEMPO 2309/2312 12008G13MPS OIII 220530Z 2206/2312 12003MPS 8000 FEW040 TEMPO 2208/2216 14008MPS TEMPO 2309/2312 12008G13MPS OIKB 220530Z 2206/2312 07004MPS 4000 HZ NSC TEMPO 2210/2216 10009MPS FEW030 PROB40 3000 SA TEMPO 2219/2304 3000 BR TEMPO 2308/2312 20009MPS FEW030 SCT100 PROB40 3000 SA OIKK 220530Z 2206/2312 17003MPS CAVOK TEMPO 2209/2215 28007MPS FEW035 SCT100 TEMPO 2309/2312 28007MPS OIMM 220530Z 2206/2312 02004MPS 8000 FEW040 TEMPO 2208/2216 02010MPS FEW035TCU SCT040 SCT100 PROB30 TEMPO 2214/2218 5000 TS RA SCT035CB SCT040 BKN100 TEMPO 2306/2312 31010MPS 5000 TS RA FEW035CB SCT040 BKN100 OISL 220530Z 2206/2312 24004MPS 7000 FEW040 TEMPO 2213/2216 24008MPS TS SCT035CB SCT040 SCT100 OISS 220530Z 2206/2312 30004MPS 5000 HZ FEW040 TEMPO 2214/2217 24008MPS 4000 DU FEW040 SCT100 OITR 220530Z 2206/2312 24004MPS 7000 FEW040 TEMPO 2209/2212 06008MPS FEW0305TCU FEW030 SCT090 TEMPO 2309/2312 04009MPS OITT 220530Z 2206/2312 04004MPS 7000 FEW040 SCT090 TEMPO 2206/2209 06008G14MPS 3000 SA TEMPO 2210/2216 04009MPS 5000 TSRA SCT035CB SCT040 SCT090 OIZC 220530Z 2206/2312 13004MPS 4000 HZ FEW030 TEMPO 2209/2216 19007MPS 4000 SA TEMPO 2218/2304 3000 BR FEW025 TEMPO 2309/2312 19008MPS FEW030CB SCT035 SCT100 PROB40 3000 SA OIZH 220530Z 2206/2312 35004MPS 7000 NSC TEMPO 2211/2218 30007MPS FEW040 TEMPO 2309/2312 30007MPS OJAI 220458Z 2206/2312 30004KT 5000 BR SCT030 BECMG 2207/2209 29016KT 6000 TEMPO 2210/2216 4000 BLDU BECMG 2218/2220 26005KT 7000 FEW030 OJAM 220458Z 2206/2312 29004KT 5000 HZ SCT030 BECMG 2207/2209 30014KT TEMPO 2211/2216 4000 DU BECMG 2218/2220 26005KT 6000 FEW030 OJAQ 220458Z 2206/2312 35014KT CAVOK TEMPO 2210/2217 7000 NSC OKBK 220445Z 2206/2312 34012G22KT 7000 SKC TEMPO 2208/2214 2000 BLDU OLBA 220400Z 2206/2312 23010G22KT 8000 SCT025 BECMG 2221/2224 VRB05KT BECMG 2309/2312 23010G20KT OMAA 220500Z 2206/2312 31014KT 8000 NSC BECMG 2218/2220 22005KT PROB30 2300/2304 VRB02KT 4000 HZ BECMG 2306/2308 30015KT OMAD 220500Z 2206/2312 31012KT 8000 NSC BECMG 2218/2220 22004KT PROB30 2300/2304 VRB02KT 4000 HZ BECMG 2306/2308 30014KT OMDB 220455Z 2206/2312 16007KT 7000 NSC BECMG 2207/2209 32013KT BECMG 2216/2218 VRB02KT BECMG 2306/2308 29012KT OMRK 220455Z 2206/2312 18005KT 8000 NSC BECMG 2207/2209 33014KT BECMG 2215/2217 18005KT BECMG 2306/2308 32013KT OMSJ 220455Z 2206/2312 16007KT 7000 NSC BECMG 2208/2210 32015KT BECMG 2216/2218 VRB02KT BECMG 2307/2309 30014KT OODQ 220500Z 2206/2306 19030KT 6000 NSC PROB30 TEMPO 2220/2304 BKN010 OOMS 220500Z 2206/2312 05012KT 7000 NSC BECMG 2217/2219 VRB02KT PROB30 TEMPO 2220/2304 25013KT BECMG 2306/2308 01012KT OOSA 220500Z 2206/2312 17010KT 4000 -DZ SCT007 SCT010 BKN020 BECMG 2208/2210 6000 NSW FEW010 SCT012 BECMG 2218/2220 4000 -DZ FEW007 SCT010 OVC020 OOSH 220500Z 2206/2312 05012KT 8000 NSC BECMG 2217/2219 VRB02KT PROB30 TEMPO 2220/2302 BKN050 BECMG 2306/2308 04012KT ORBD 220242Z 2203/2309 30009KT 9000 HZ SKC QNH2945INS TEMPO 2205/2215 30012G18KT 8000 HZ WND 270V340 BECMG 2215/2216 28008KT 8000 HZ SKC QNH2946INS TX42/2212Z TN28/2302Z OSDI 2206/2312 22010KT 9999 FEW030 TEMPO 2212/2218 24015G25KT 8000 FEW030 OSLK 2206/2306 23012KT 9999 FEW025 TCU SCT030 OTBH 220520Z 2205/2305 34015G25KT 5000 DU SKC QNH2945INS BECMG 2208/2209 33025G35KT 3200 DU SKC QNH2940INS TEMPO 2209/2212 1600 BLDU BECMG 2213/2214 33015G25KT 5000 BLDU SKC QNH2942INS BECMG 2216/2217 32012KT 8000 DU SKC QNH2946INS BECMG 2304/2305 32015G25KT 8000 DU SKC QNH2945INS TX41/2210Z TN29/2302Z PAAQ 220521Z 2206/2306 VRB05KT P6SM FEW040 FEW200 FM230100 17011KT P6SM FEW200 PABE 220532Z 2206/2306 17011KT P6SM OVC050 FM220800 15007KT P6SM SCT030 OVC050 FM221600 13011KT P6SM -SHRA OVC025 FM222000 15015G22KT P6SM OVC050 FM230200 16009KT P6SM -RA SCT025 OVC035 PABR 220531Z 2206/2306 24008KT P6SM BKN050 FM221400 22012KT P6SM -SHRA SCT025 BKN050 FM222100 24017G25KT P6SM -SHRA BKN050 FM230300 27013KT P6SM -SHRA BKN025 OVC050 PABT 220531Z 2206/2306 25004KT P6SM FEW045 FM222100 VRB05KT P6SM VCTS SCT040CB BKN100 PACD 220602Z 2206/2306 15015G22KT P6SM SCT015 OVC025 TEMPO 2206/2209 2SM -RA BR BKN016 FM221200 15011KT 4SM BR SCT003 OVC007 FM222100 15011KT 2SM -RA BR SCT003 OVC007 FM230300 17007KT P6SM OVC010 PACV 220521Z 2206/2306 VRB05KT P6SM VCFG OVC005 FM230000 21006KT P6SM SCT005 BKN040 PADL 220532Z 2206/2306 13011KT P6SM VCSH SCT025 BKN050 FM221500 07011KT P6SM VCSH SCT025 OVC050 FM222100 07012G20KT P6SM -RA SCT025 OVC050 FM230300 07012G20KT 4SM -RA BR OVC025 PADQ 220521Z 2206/2306 13008KT P6SM BKN035 FM221200 11006KT P6SM BKN030 FM222000 10011KT 5SM -RA BR BKN015 OVC030 PADU 220532Z 2206/2306 13011KT P6SM BKN015 OVC035 FM220900 VRB03KT 3SM -RA BR SCT007 OVC015 FM221600 11005KT 5SM BR OVC015 PAED 220300Z 2203/2309 28009KT 9999 FEW040 SCT200 QNH3025INS BECMG 2217/2218 27009KT 9999 SCT010 BKN030 QNH3022INS TX25/2302Z TN11/2214Z PAEI 220400Z 2204/2310 VRB06KT 9999 FEW060 FEW200 QNH3017INS BECMG 2219/2220 10009KT 9999 FEW060 QNH3009INS TX29/2302Z TN13/2213Z PAEN 220521Z 2206/2306 21010KT P6SM FEW007 SCT020 FM221000 20005KT 1SM BR BKN004 FM222200 24007KT P6SM SCT004 PAFA 220531Z 2206/2312 11003KT P6SM FEW050 SCT250 PAGA 220531Z 2206/2306 VRB05KT P6SM FEW060 SCT100 FM222100 VRB05KT P6SM VCTS FEW050CB SCT100 PAGK 220521Z 2206/2306 VRB05KT P6SM FEW040 FEW200 FM222100 16010G16KT P6SM SCT200 PAGS 220541Z 2206/2306 VRB02KT P6SM SKC FM221300 VRB02KT P6SM BKN007 FM221900 22006KT P6SM FEW010 LTD TO CLD VIS AND WIND PAGY 220541Z 2206/2306 03004KT P6SM FEW110 FM221800 23006KT P6SM SKC FM222300 21012KT P6SM SKC FM230500 VRB03KT P6SM SKC LTD TO CLD VIS AND WIND PAHN 220541Z 2206/2306 08003KT P6SM FEW110 FM220800 30006KT P6SM SKC FM221900 13008KT P6SM SKC FM230400 08004KT P6SM SKC LTD TO CLD VIS AND WIND PAHO 220521Z 2206/2306 24010KT P6SM FEW040 SCT100 FM220800 VRB04KT P6SM SCT035 SCT100 PAIL 220532Z 2206/2306 10005KT P6SM SCT080 SCT200 FM221800 11015G25KT P6SM BKN100 PAJN 220541Z 2206/2306 VRB02KT P6SM SKC FM221700 25008KT P6SM SKC FM230300 VRB04KT P6SM SKC PAKN 220532Z 2206/2306 18011KT P6SM SCT030 FM222100 11012G20KT P6SM VCSH SCT050 BKN100 FM230100 12012G20KT P6SM -SHRA SCT025 BKN035 PAKT 220529Z 2206/2306 14007KT P6SM SKC FM221200 VRB03KT P6SM SCT005 BKN010 FM221600 13005KT P6SM FEW010 SCT020 FM221800 12010KT P6SM SKC LTD TO CLD VIS AND WIND TIL 221500 PAKW 220529Z 2206/2306 22007KT P6SM SKC FM221000 00000KT P6SM BKN009 FM221600 00000KT P6SM SKC LTD TO CLD VIS AND WIND PAMC 220531Z 2206/2306 VRB05KT P6SM FEW090= PAKN 220532Z 2206/2306 18011KT P6SM SCT030 FM222100 11012G20KT P6SM VCSH SCT050 BKN100 FM230100 12012G20KT P6SM -SHRA SCT025 BKN035 PANC 220521Z 2206/2312 24005KT P6SM FEW050 FEW200 PAOM 220531Z 2206/2306 15006KT 5SM -SHRA BR OVC007 FM220900 11007KT 2SM -SHRA BR OVC003 FM222000 15009KT P6SM -SHRA SCT003 OVC007 FM230200 19007KT P6SM OVC015 PAOR 220531Z 2206/2306 00000KT P6SM SKC PAOT 220531Z 2206/2306 19007KT P6SM SCT060 BKN080 BKN140 FM220800 19010KT P6SM -SHRA BKN025 OVC050 FM230200 26006KT P6SM OVC050 PAPG 220529Z 2206/2306 VRB05KT P6SM SKC LTD TO CLD VIS AND WIND TIL 221500 PAQT 220531Z 2206/2306 09009KT P6SM SKC FM220900 13008KT P6SM SCT150 FM221500 23015KT P6SM BKN050 FM222200 24011KT P6SM -SHRA BKN030 OVC050 PASC 220531Z 2206/2306 08008KT P6SM SCT160 BKN210 FM221500 21015KT P6SM BKN050 FM222200 24011KT P6SM -SHRA BKN030 OVC050 PASD 220532Z 2206/2306 12007KT 2SM -RA BR SCT008 BKN015 OVC030 TEMPO 2206/2210 P6SM -RA SCT015 BKN030 FM221200 13004KT 2SM -RA OVC008 FM230200 09006KT 5SM -RA OVC015 LTD TO CLD VIS AND WIND PASI 220529Z 2206/2306 32011KT P6SM FEW020 FM220900 33008KT P6SM SCT015 BKN020 FM221200 33008KT P6SM BKN010 FM221800 32010KT P6SM SCT015 FM222000 32012KT P6SM SKC PASN 220532Z 2206/2306 11005KT 1SM RA BR OVC003 FM221500 16006KT 1SM BR OVC002 FM230500 14005KT 1/2SM -RA FG VV002 PASY 220600Z 2206/2312 22012KT 8000 -SHRA BR OVC003 QNH2983INS BECMG 2216/2217 27009KT 4800 -SHRA BR OVC003 QNH2985INS TX10/2302Z TN07/2206Z LIMITED METWATCH 2206 TIL 2219 PATA 220531Z 2206/2306 VRB05KT P6SM FEW080 FEW200 FM222100 VRB05KT P6SM VCTS FEW050CB SCT100 PATK 220521Z 2206/2306 20004KT P6SM FEW200 PAUN 220531Z 2206/2306 32005KT P6SM VCSH BKN045 BKN060 OVC120 FM221700 11006KT P6SM VCSH SCT050 BKN100 FM230100 30009KT P6SM BKN100 PAVD 220521Z 2206/2306 24006KT P6SM FEW004 FM220800 08006KT P6SM VCFG BKN012 FM222000 25008KT P6SM FEW015 FM230000 26011G18KT P6SM FEW200 LTD TO CLD VIS AND WIND PAWG 220529Z 2206/2306 24005KT P6SM SKC LTD TO CLD VIS AND WIND TIL 221500 PAYA 220541Z 2206/2306 28006KT P6SM BKN007 TEMPO 2206/2208 SCT007 FM220800 VRB03KT P6SM OVC004 FM221100 00000KT 1SM BR OVC002 FM221600 VRB03KT P6SM BKN006 FM221900 28006KT P6SM FEW012 LTD TO CLD VIS AND WIND PGRO 220547Z 2206/2306 24011KT P6SM VCSH FEW016 SCT040 BKN120 PGSN 220547Z 2206/2306 26011KT P6SM VCSH SCT016 SCT040 BKN120 TEMPO 2210/2214 26011G20KT 5SM SHRA SCT014 BKN025 PGUA 220545Z 2205/2308 24012KT 9999 VCSH SCT015 QNH2974INS TEMPO 2205/2209 8000 -SHRA BKN014 BECMG 2210/2211 23012KT 8000 -SHRA BKN014 QNH2980INS TX30/2205Z TN25/2219Z PGUM 220547Z 2206/2312 23010KT P6SM VCSH FEW016 SCT040 BKN120 TEMPO 2206/2210 26011G20KT 4SM SHRA SCT014 BKN025 PGWT 220547Z 2206/2306 25011KT P6SM VCSH SCT016 SCT040 BKN120 TEMPO 2210/2214 25011G20KT 5SM SHRA SCT014 BKN025 PHJR 220539Z 2206/2306 VRB04KT P6SM SCT250 FM222200 09010G16KT P6SM SCT045 FM230400 VRB05KT P6SM SCT035 PHKO 220539Z 2206/2306 VRB06KT P6SM BKN050 FM221200 12005KT P6SM SCT250 FM222000 24009KT P6SM FEW040 SCT070 PHLI 220539Z 2206/2306 06015KT P6SM VCSH SCT025 BKN045 PHMK 220539Z 2206/2306 04011G18KT P6SM VCSH FEW025 SCT050 FM222200 04014G22KT P6SM SCT050 PHNG 2203/2303 07010G18KT 9999 FEW015 SCT025 QNH2993INS TEMPO 2203/2206 06010KT BKN025 BKN045 OVC060 FM220700 07010G18KT 9999 SCT025 BKN045 QNH2996INS TEMPO 2211/2215 07011KT 8000 -SHRA BKN020 BKN040 T25/2213Z T29/2223Z PHNL 220539Z 2206/2312 05015G21KT P6SM FEW025 SCT050 FM220800 05009KT P6SM SCT025 BKN050 FM222000 05015G21KT P6SM FEW025 SCT045 FM230600 06010KT P6SM SCT025 BKN050 PHNY 220539Z 2206/2306 04015G25KT P6SM SCT050 FM221000 05008KT P6SM SCT250 FM222200 06012KT P6SM SCT030 PHOG 220539Z 2206/2306 05012G20KT P6SM VCSH SCT035 BKN060 FM221200 05010KT P6SM FEW030 SCT050 FM222100 05018G26KT P6SM FEW030 SCT050 FM230400 05012G20KT P6SM VCSH SCT035 BKN060 LTD TO VIS AND WIND 2209/2216 PHTO 220539Z 2206/2306 24005KT P6SM VCSH SCT030 BKN050 FM222000 06009KT P6SM SCT030 BKN050 PKMJ 220547Z 2206/2306 23007KT P6SM VCSH FEW018 SCT050 SCT140 PKWA 220547Z 2206/2306 VRB04KT P6SM FEW018 SCT050 FM221600 VRB06KT P6SM VCSH FEW018 SCT050 SCT140 PLCH 220522Z 2206/2306 11008KT 9999 FEW020 PMDY 220539Z 2206/2306 06015KT P6SM SCT025 SCT045 TEMPO 2206/2210 06018G24KT -SHRA BKN020 OVC035 PTKK 220547Z 2206/2306 02006KT P6SM VCSH FEW018 SCT140 PTPN 220547Z 2206/2306 06008KT P6SM -RA SCT014 BKN040 OVC100 TEMPO 2206/2210 5SM SHRA BKN016 OVC040 FM221000 VRB06KT P6SM VCSH SCT016 SCT040 OVC120 PTRO 220547Z 2206/2306 25014KT P6SM VCSH SCT016 SCT040 BKN120 TEMPO 2210/2214 5SM SHRA BKN016 OVC040 PTSA 220547Z 2206/2306 25012KT P6SM VCSH SCT016 SCT040 BKN120 TEMPO 2206/2210 5SM SHRA BKN016 OVC040 PTYA 220547Z 2206/2306 25012KT P6SM VCSH FEW016 SCT040 BKN120 PWAK 220600Z 2206/2312 15010KT 9999 VCSH SCT020 QNH2979INS TEMPO 2206/2213 16012G18KT 4800 -SHRA BKN020 BECMG 2218/2219 14009KT 9999 NSW SCT025 QNH2984INS TX31/2302Z TN24/2217Z RCFN 220500Z 2206/2306 06005KT 8000 FEW015 BKN032 TEMPO 2206/2212 18005KT 4000 SHRA FEW008 FEW015CB BKN016 BKN035 BECMG 2212/2214 35005KT TEMPO 2300/2306 06010KT 4000 SHRA SCT008 BKN016 BKN035 RCKH 220500Z 2206/2312 26005KT 8000 FEW015 BKN032 TEMPO 2206/2210 27010KT FEW010 FEW015TCU BKN020 TEMPO 2210/2216 20012KT 3200 SHRA FEW008 BKN012 FEW016CB BKN035 TEMPO 2218/2224 06005KT TEMPO 2304/2310 24010KT FEW012 FEW015TCU BKN020 RCMQ 220550Z 2206/2306 35012KT 3200 TSRA SCT008 FEW014CB BKN016 BKN040 TX32/2305Z TN28/2220Z TEMPO 2208/2212 6000 -RA FEW010 BKN021 BKN040 BECMG 2216/2219 20004KT FEW010 SCT025 BKN060 BECMG 2300/2303 33008KT FEW012 SCT050 BKN100 RCNN 220500Z 2206/2306 25008KT 9999 FEW012 SCT025 BKN060 TX32/2206Z TN26/2220Z TEMPO 2207/2211 7000 RA FEW010 BKN025 BECMG 2212/2215 03004KT FEW012 BKN060 TEMPO 2218/2223 7000 RA FEW010 BKN025 BECMG 2302/2305 22005KT RCSS 220500Z 2206/2306 28005KT 9999 FEW015 BKN032 TEMPO 2206/2212 28012KT 4000 SHRA SCT010 FEW015CB BKN016 BKN035 BECMG 2222/2224 30010KT TEMPO 2300/2306 5000 SHRA SCT008 BKN014 BKN030 RCTP 220500Z 2206/2312 36005KT 9999 FEW015 BKN032 TEMPO 2206/2212 01012KT BECMG 2212/2214 25005KT TEMPO 2218/2224 24013KT SCT008 BKN014 BKN035 BECMG 2300/2302 24015KT TEMPO 2300/2306 5000 SHRA SCT005 BKN011 BKN030 RJAA 220505Z 2206/2312 13006KT 9999 FEW030 BECMG 2213/2215 36004KT BECMG 2221/2300 13010KT RJAH 220514Z 2206/2312 18006KT 9999 FEW030 BECMG 2211/2213 01004KT BECMG 2300/2303 17010KT BECMG 2309/2312 06008KT RJBB 220511Z 2206/2312 20008KT 9999 FEW030 SCT050 RJCB 220507Z 2206/2312 34011KT 9999 FEW005 BKN015 BECMG 2209/2211 15005KT TEMPO 2212/2221 3000 BR FEW002 BKN005 BECMG 2218/2221 34005KT BECMG 2303/2306 14006KT RJCC 220505Z 2206/2312 35016KT 9999 FEW015 BKN040 TEMPO 2218/2300 FEW005 BKN008 TEMPO 2303/2309 4000 -SHRA BR FEW005 BKN008 RJCH 220512Z 2206/2312 25007KT 9999 FEW008 SCT030 BECMG 2216/2218 03005KT BECMG 2300/2303 21005KT BECMG 2309/2312 16005KT RJCK 220510Z 2206/2312 10005KT 9999 FEW008 BKN020 BECMG 2208/2210 03005KT TEMPO 2215/2221 3000 BR BECMG 2300/2303 18009KT TEMPO 2309/2312 3000 BR FEW003 BKN006 RJCM 220515Z 2206/2312 01012KT 9999 FEW010 BKN030 TEMPO 2212/2215 FEW005 BKN008 TEMPO 2215/2221 4000 -SHRA BR FEW002 BKN005 TEMPO 2221/2303 FEW005 BKN008 BECMG 2309/2312 15005KT RJEC 220508Z 2206/2312 31009KT 9999 FEW015 SCT025 TEMPO 2215/2300 3000 BR FEW002 BKN005 RJFF 220642Z 2206/2312 20015KT 9999 FEW025 TEMPO 2206/2209 19020G30KT 1000 +TSRA BR FEW008 BKN015 BKN020 FEW020CB BECMG 2208/2210 14006KT BECMG 2303/2306 33008KT RJFK 220512Z 2206/2312 14010KT 9000 FEW015 SCT035 BECMG 2215/2217 07004KT RJFM 220510Z 2206/2312 15011KT 9000 -SHRA FEW005 SCT010 BKN025 BECMG 2213/2215 29004KT BECMG 2300/2303 12005KT BECMG 2309/2312 24006KT RJFO 220509Z 2206/2312 17007KT 9999 FEW030 RJFR 220511Z 2206/2312 10008KT 9999 FEW030 BECMG 2215/2217 05005KT BECMG 2300/2303 14003KT BECMG 2306/2309 31005KT RJFS 220511Z 2206/2312 23009KT 9999 FEW030 BECMG 2214/2216 02005KT BECMG 2300/2303 20006KT RJFT 220509Z 2206/2312 10006KT 9999 FEW035 SCT045 TEMPO 2206/2209 4000 -TSRA BR FEW025 FEW025CB SCT030 BKN045 BECMG 2221/2300 27003KT BECMG 2306/2309 09005KT TEMPO 2306/2309 4000 -TSRA BR FEW020 FEW025CB SCT030 BKN040 RJFU 220512Z 2206/2312 14010KT 9999 FEW030 SCT040 BECMG 2303/2306 25007KT RJGG 220512Z 2206/2312 20008KT 9999 FEW020 BECMG 2210/2212 30010KT BECMG 2300/2303 24006KT BECMG 2306/2309 32010KT RJNK 220506Z 2206/2312 32006KT 9999 FEW020 BECMG 2209/2211 36005KT BECMG 2212/2214 18005KT TEMPO 2216/2221 FEW005 BKN008 BECMG 2300/2303 28012KT BECMG 2309/2312 22006KT RJNS 220508Z 2206/2312 25012KT 9999 FEW015 SCT040 BECMG 2215/2217 32004KT BECMG 2300/2303 18012KT BECMG 2309/2312 04004KT RJNT 220507Z 2206/2312 36008KT 9999 FEW030 BECMG 2209/2211 20005KT BECMG 2300/2303 28010KT BECMG 2309/2312 22005KT RJOA 220510Z 2206/2312 22006KT 9999 FEW020 SCT035 TEMPO 2306/2309 TS FEW010 FEW020CB SCT025 BKN035 RJOB 220508Z 2206/2312 22005KT 9999 FEW025 TEMPO 2306/2312 4000 -TSRA BR FEW003 SCT015 FEW025CB BKN030 RJOC 220506Z 2206/2312 02007KT 9999 FEW025 SCT045 BECMG 2211/2213 17005KT RJOH 220507Z 2206/2312 05007KT 9999 FEW030 SCT045 BECMG 2212/2214 18005KT RJOI 2203/2303 17008KT 9999 FEW030 BKN240 510005 QNH2980INS FM221000 VRB05KT 9999 FEW030 SCT120 BKN240 510005 QNH2982INS FM221500 31005KT 9999 FEW025 SCT100 BKN220 500000 QNH2980INS FM222100 VRB05KT 9999 FEW030 FEW100 SCT200 QNH2979INS T34/2206Z T27/2220Z RJOK 220506Z 2206/2312 19007KT 9999 FEW020 BECMG 2212/2214 35005KT BECMG 2221/2300 17005KT TEMPO 2306/2309 TS FEW020 FEW025CB SCT040 RJOM 220509Z 2206/2312 24006KT 9999 FEW025 SCT040= RJNK 220506Z 2206/2312 32006KT 9999 FEW020 BECMG 2209/2211 36005KT BECMG 2212/2214 18005KT TEMPO 2216/2221 FEW005 BKN008 BECMG 2300/2303 28012KT BECMG 2309/2312 22006KT RJOO 220508Z 2206/2312 22009KT 9999 FEW025 BECMG 2208/2210 24006KT BECMG 2300/2303 22008KT TEMPO 2306/2309 TS FEW020 FEW025CB SCT045 BECMG 2309/2312 32005KT RJOT 220507Z 2206/2312 04006KT 9999 FEW025 SCT040 BECMG 2206/2208 20005KT TEMPO 2206/2210 TS FEW015 FEW025CB BKN030 RJSA 220505Z 2206/2312 26008KT 9999 FEW020 SCT030 TEMPO 2209/2215 3000 BR FEW002 BKN005 BKN008 TEMPO 2215/2300 1500 -SHRA BR FEW001 BKN003 BKN005 BECMG 2221/2300 02004KT TEMPO 2309/2312 4000 BR FEW002 BKN005 BKN008 RJSF 220505Z 2206/2312 34010KT 9999 FEW030 RJSK 220508Z 2206/2312 28008KT 8000 FEW010 BKN015 BKN020 TEMPO 2206/2209 FEW005 BKN008 BKN015 TEMPO 2209/2215 4000 BR FEW005 BKN008 BKN015 TEMPO 2215/2300 2000 BR FEW002 BKN005 BKN008 TEMPO 2309/2312 FEW005 BKN008 BKN015 RJSN 220508Z 2206/2312 26012KT 9999 FEW030 BECMG 2211/2213 20005KT BECMG 2300/2303 26014KT BECMG 2306/2309 03006KT RJSS 220511Z 2206/2312 08008KT 9999 FEW040 BECMG 2206/2208 30008KT BECMG 2221/2300 12008KT TEMPO 2309/2312 FEW005 BKN008 BKN015 RJTT 220507Z 2206/2312 18012KT 9999 FEW030 BECMG 2214/2216 36008KT BECMG 2221/2300 08010KT BECMG 2306/2309 19012KT RJTY 220326Z 2203/2303 17009KT 9999 VCSH SCT060 QNH2975INS BECMG 2211/2212 VRB06KT 9999 NSW FEW065 QNH2972INS BECMG 2301/2302 03012KT 9999 VCSH SCT060 QNH2971INS TX36/2206Z TN26/2218Z RKJB 220100Z 2201/2306 14010KT 9999 SCT030 BKN150 TX32/2205Z TN26/2220Z TX32/2305Z TEMPO 2201/2203 -RA BECMG 2211/2212 11008KT 4200 BR BECMG 2222/2223 15010KT 7000 NSW RKJK 212300Z 2123/2305 VRB06KT 9000 HZ FEW050 QNH2974INS TEMPO 2204/2209 VCTS SCT030CB BKN150 BECMG 2216/2217 14006KT 8000 BR SCT060 BKN120 QNH2978INS TX35/2206Z TN25/2220Z RKPC 220500Z 2206/2312 13015G25KT 7000 BKN030 BKN150 TN25/2220Z TX31/2306Z BECMG 2211/2212 17007KT SCT030 BKN180 BECMG 2223/2224 33006KT RKPK 220500Z 2206/2312 18008KT 9999 SCT030 BKN200 TN25/2221Z TX34/2306Z BECMG 2214/2215 33006KT BECMG 2302/2303 18008KT RKSG 220400Z 2204/2310 VRB06KT 9999 FEW040 SCT250 QNH2972INS TEMPO 2215/2220 9000 HZ BKN030 TX39/2205Z TN24/2215Z RKSI 220500Z 2206/2312 31006KT 7000 SCT030 BKN180 TN25/2221Z TX32/2305Z BECMG 2213/2214 20005KT BECMG 2303/2304 31006KT RKSM 220500Z 2206/2312 30006KT 9999 SCT200 TX38/2206Z TN25/2221Z RKSO 220300Z 2203/2309 VRB06KT 9999 FEW040 SCT250 QNH2972INS BECMG 2215/2216 VRB06KT 9000 HZ FEW030 SCT200 QNH2968INS TX37/2205Z TN24/2215Z RKSS 220500Z 2206/2312 29006KT 7000 FEW030 BKN180 TN23/2220Z TX34/2306Z BECMG 2215/2216 21005KT BECMG 2300/2301 30006KT RKTN 220500Z 2206/2312 21006KT 9999 SCT040 BKN200 TN25/2221Z TX37/2306Z RKTU 220500Z 2206/2312 15006KT 9999 SCT030 BKN200 TX36/2207Z TN24/2221Z BECMG 2221/2222 4800 BR BECMG 2301/2302 9999 NSW ROAH 220507Z 2206/2312 14014KT 9999 FEW015 BKN025 RODN 220605Z 2206/2306 15015G20KT 9999 BKN015 QNH2967INS BECMG 2206/2208 12012G18KT 9999 SCT015 QNH2970INS BECMG 2223/2224 14012G18KT 9999 SCT015 QNH2974INS BECMG 2302/2303 17015G25KT 9999 BKN015 QNH2977INS TX31/2305Z TN27/2218Z ROIG 220514Z 2206/2312 14012KT 9999 FEW015 BKN025 BECMG 2215/2217 12016KT TEMPO 2218/2221 12025G37KT 4000 SHRA FEW008 BKN015 FEW020CB BECMG 2221/2300 16028KT TEMPO 2221/2303 16035G48KT 3000 +SHRA FEW008 BKN015 SCT020CB TEMPO 2303/2306 18030G43KT 4000 SHRA FEW008 BKN015 FEW020CB ROTM 2203/2303 16014G20KT SCT015 BKN025 QNH2970INS RPLB 220500Z 2206/2306 26006KT 9000 -RA SCT018 OVC080 TX29/2206Z TN24/2221Z TEMPO 2206/2212 22012G24KT 2000 +TSRA FEW014CB BKN016 OVC070 RPLI 220500Z 2206/2306 22008KT 9999 SCT019 OVC100 TEMPO 2206/2212 18016G26KT 5000 RA SCT018 OVC090 RPLL 220500Z 2206/2312 24010KT 9999 SCT022 OVC090 TX29/2206Z TN26/2222Z TEMPO 2206/2212 27016KT 8000 -TSRA FEW018CB SCT020 OVC090 TEMPO 2212/2218 21015KT 7000 -SHRA BKN022 OVC090 RPMD 220500Z 2206/2306 17007KT 9999 FEW016 SCT090 BKN290 TEMPO 2206/2212 20010KT 8000 -TSRA SCT015CB BKN090 RPMZ 220500Z 2206/2306 24004KT 9999 FEW017 BKN090 TEMPO 2206/2212 27008KT 9000 TS -SHRA SCT016CB BKN090 RPVK 212300Z 2200/2224 19007KT 9999 FEW016 BKN240 TEMPO 2206/2212 25012KT 8000 TSRA FEW015CB OVC070 RPVM 220500Z 2206/2312 24010KT 9999 FEW020 BKN300 TEMPO 2206/2212 25015KT 8000 -SHRA FEW018CB STC020 OVC090 TEMPO 2212/2218 24013KT 9000 -SHRA FEW018CB SCT020 OVC090 SAAP 220500Z 2206/2306 36010KT CAVOK TX14/2218Z TN07/2210Z BECMG 2208/2210 02010KT BECMG 2216/2218 20005KT BECMG 2223/2301 20015KT SAAR 220500Z 2206/2306 02010KT CAVOK TX15/2219Z TN06/2210Z BECMG 2216/2218 23010KT 9999 BKN030 BKN200 SAAV 220500Z 2206/2306 02010KT CAVOK TX17/2218Z TN07/2210Z BECMG 2215/2218 20005KT SABE 220500Z 2206/2306 34010KT CAVOK TX14/2219Z TN08/2210Z BECMG 2213/2215 29005KT BECMG 2222/2301 22010KT 9999 BKN030 BKN090 SACO 220500Z 2206/2306 05015KT CAVOK TX17/2218Z TN04/2210Z BECMG 2210/2213 18020KT 7000 DU SCT025 SADF 220500Z 2206/2306 34005KT CAVOK TX14/2219Z TN05/2210Z BECMG 2213/2215 29005KT BECMG 2222/2301 22010KT 9999 BKN030 BKN090 SADP 220500Z 2206/2306 03005KT CAVOK TX15/2218Z TN05/2210Z BECMG 2208/2210 36010KT TEMPO 2213/2215 32010KT BECMG 2218/2220 23010KT SAEZ 220500Z 2206/2306 02010KT CAVOK TX14/2218Z TN05/2210Z BECMG 2214/2216 30010KT BECMG 2222/2300 24010KT SAME 220500Z 2206/2306 18010KT CAVOK TN03/2210Z TX14/2219Z BECMG 2213/2216 14005KT 9999 SCT030 SANR 220500Z 2206/2306 05010KT CAVOK TX21/2218Z TN08/2210Z BECMG 2216/2219 18015KT 9999 SCT035 SANT 220500Z 2206/2306 36010KT CAVOK TX22/2218Z TN05/2210Z BECMG 2215/2218 20015KT 9999 SCT030 SARE 220500Z 2206/2306 05005KT CAVOK TX16/2218Z TN03/2210Z BECMG 2212/2214 02005KT CAVOK BECMG 2215/2216 9999 BKN020 FEW035TCU PROB40 2218/2221 7000 SHRA SARF 220500Z 2206/2306 05005KT CAVOK TX19/2218Z TN04/2210Z BECMG 2212/2213 02010KT SARI 220500Z 2206/2306 00000KT CAVOK TX18/2218Z TN04/2210Z BECMG 2212/2213 02005KT SARP 220500Z 2206/2306 09005KT CAVOK TX18/2218Z TN05/2210Z BECMG 2212/2213 02005KT CAVOK BECMG 2218/2219 9999 SCT020 OVC090 SASA 220500Z 2206/2306 32005KT CAVOK TX24/2218Z TN02/2210Z BECMG 2207/2210 32005KT 7000 BR NSC BECMG 2214/2217 05010KT CAVOK BECMG 2219/2222 09015KT 9999 SCT020 SASJ 220500Z 2206/2306 34005KT CAVOK TX26/2218Z TN02/2210Z BECMG 2213/2214 05005KT CAVOK BECMG 2219/2222 20020KT 7000 DU SCT030 SAVC 220500Z 2206/2306 27010KT CAVOK TX07/2219Z TN03/2210Z BECMG 2208/2210 25015G30KT 9999 BKN030 PARTE 1/2 SAVE 220500Z 2206/2306 27010KT 9999 FEW025 BKN060 TXM01/2218Z TNM04/2210Z TEMPO 2207/2211 28015KT 4000 SN SCT008 BKN010 OVC030 BECMG 2210/2212 27020KT 9999 BKN012 SAVT 220500Z 2206/2306 27005KT 9999 FEW030 SCT100 TX08/2220Z TN04/2211Z BECMG 2207/2209 25015KT BKN020 BECMG 2212/2214 20020G30KT BKN010 BKN040 BECMG 2220/2223 223020KT 9999 SCT030 BECMG 2301/2304 29020KT CAVOK SAVV 220500Z 2206/2306 32005KT CAVOK TX09/2218Z TN03/2211Z BECMG 2208/2209 27010KT BECMG 2215/2217 25015KT 9999 BKN020 TEMPO 2223/2301 6000 -RASH SCT015 FEW030 SAWC 220500Z 2206/2306 25010KT 9999 FEW020 TX04/2218Z TNM03/2211Z BECMG 2210/2212 VRB03KT BECMG 2214/2216 14010KT 5000 -SN SCT015 BECMG 2222/2301 BKN050 SAWE 220500Z 2206/2306 23010KT CAVOK TX03/2219Z TNM07/2210Z BECMG 2212/2215 32020G35KT 9999 BKN030 OVC090 TEMPO 2215/2220 8000 -RA OVC040 SAWG 220500Z 2206/2306 27010KT CAVOK TX03/2219Z TNM05/2210Z BECMG 2212/2215 33015G30KT 9999 BKN030 OVC090 TEMPO 2215/2220 9000 -RA OVC040 SAWH 220500Z 2206/2306 27010KT 9999 SCT040 SCT090 TX03/2219Z TN00/2210Z BECMG 2113/2115 33015G25KT 9999 BKN030 OVC090 TEMPO 2116/2119 8000 -RA SAZB 220500Z 2206/2306 34010KT CAVOK TX10/2118Z TN03/2210Z BECMG 2208/2210 27010KT BECMG 2216/2218 25015KT BECMG 2300/2302 26010KT SAZM 220500Z 2206/2306 34005KT CAVOK TX12/2219Z TN03/2210Z BECMG 2207/2209 34015G25KT BECMG 2213/2215 29010KT BECMG 2217/2219 23010KT 9999 SCT030 SAZN 220500Z 2206/2306 25005KT CAVOK TX09/2219Z TN03/2210Z BECMG 2208/2210 25015G25KT 9999 SCT050 BKN090 BECMG 2220/2223 25010KT CAVOK SAZR 220500Z 2206/2306 VRB03KT CAVOK TX11/2118Z TN01/2209Z BECMG 2207/2208 21015KT TEMPO 2214/2216 25010KT SAZS 220500Z 2206/2306 29015KT 5000 SN BKN005 OVC020 TX01/2219Z TNM05/2306Z TEMPO 2208/2210 2000 SN OVC003 BECMG 2210/2212 BKN030 BKN090 SAZY 220500Z 2206/2306 25015KT 8000 VCSH BKN030 TXM01/2218Z TNM04/2210Z TEMPO 2207/2211 2500 SN BKN007 BKN012 BECMG 2211/2214 25020G35KT 9999 BKN015 BECMG 2301/2304 27010KT CAVOK SBAF 220300Z 2206/2218 24008KT 8000 BKN012 TN20/2208Z TX25/2218Z PROB40 TEMPO 2209/2211 6000 BKN010 BECMG 2211/2213 17008KT 9999 NSW BKN020 BECMG 2213/2215 SCT025 RMK PDW SBAN 220400Z 2206/2218 09005KT CAVOK TN15/2208Z TX26/2218Z PROB30 2215/2218 09008KT RMK PDS SBAR 220300Z 2206/2218 10006KT 8000 SCT016 TN22/2207Z TX27/2216Z PROB30 TEMPO 2208/2209 6000 SHRA SCT010 SCT017 BECMG 2210/2211 10011KT RMK PEI SBAT 220400Z 2206/2218 15003KT CAVOK TN17/2207Z TX35/2218Z BECMG 2211/2213 12005KT BECMG 2215/2217 13008KT RMK PFF SBBE 220400Z 2206/2306 09008KT CAVOK TN25/2207Z TX32/2216Z BECMG 2211/2213 9999 FEW020 BECMG 2215/2217 13010KT SCT040 BECMG 2219/2221 12010KT BKN040 BECMG 2223/2301 07008KT CAVOK RMK PFF SBBI 220300Z 2206/2218 08007KT 9999 BKN007 TN11/2208Z TX17/2218Z PROB40 TEMPO 2208/2210 8000 OVC005 BECMG 2211/2213 BKN010 BECMG 2213/2215 BKN020 BECMG 2215/2217 FEW030 RMK PDW SBBR 220400Z 2206/2306 09005KT CAVOK TN11/2208Z TX25/2218Z PROB30 2212/2218 09008KT RMK PDS SBBU 220300Z 2206/2218 08011KT CAVOK TN16/2209Z TX28/2218Z RMK PDW SBBV 220400Z 2206/2306 22003KT 9999 SCT025 FEW030TCU TN25/2206Z TX31/2218Z BECMG 2207/2209 9000 SCT006 BECMG 2211/2213 29002KT BECMG 2215/2217 06010KT BKN030 FEW035TCU BECMG 2219/2221 15005KT SCT030 FEW035TCU BECMG 2223/2301 25002KT FEW030 BECMG 2303/2305 12003KT CAVOK RMK PFF SBBW 220400Z 2206/2218 00000KT CAVOK TN17/2208Z TX33/2218Z BECMG 2214/2216 06005KT RMK PDS SBCF 220400Z 2206/2306 11005KT CAVOK TN13/2208Z TX25/2218Z PROB30 2212/2220 10010KT BECMG 2222/2224 14004KT RMK PDS SBCG 220300Z 2206/2306 08010KT CAVOK TN13/2208Z TX26/2218Z RMK PDW SBCJ 220400Z 2206/2218 00000KT CAVOK TN20/2208Z TX30/2217Z BECMG 2211/2213 12007KT BECMG 2215/2217 9999 FEW030 RMK PFF SBCO 220300Z 2206/2218 12003KT CAVOK TN03/2209Z TX17/2218Z PROB40 TEMPO 2209/2211 5000 BR NSC BECMG 2214/2216 13008KT RMK PDW SBCP 220300Z 2206/2218 25005KT 7000 SCT020 TN19/2209Z TX24/2218Z BECMG 2210/2213 19007KT RMK PHC SBCR 220300Z 2206/2306 20006KT CAVOK TN12/2208Z TX26/2218Z BECMG 2212/2214 10006KT RMK PDW SBCT 220300Z 2206/2306 09007KT 9999 BKN006 TN11/2208Z TX17/2218Z PROB40 TEMPO 2209/2211 6000 OVC004 BECMG 2211/2213 BKN010 BECMG 2213/2215 BKN020 BECMG 2215/2217 FEW030 BECMG 2222/2224 06003KT FEW005 PROB40 TEMPO 2300/2306 5000 BR BKN005 RMK PDW SBCY 220400Z 2206/2306 16002KT CAVOK TN17/2209Z TX30/2215Z BECMG 2211/2213 9999 SCT030 BECMG 2215/2216 16010KT FEW030 BECMG 2218/2220 11005KT CAVOK BECMG 2222/2224 05002KT BECMG 2302/2304 18005KT RMK PFF SBDN 220300Z 2206/2218 12007KT CAVOK TN13/2208Z TX28/2218Z RMK PDW SBEG 220400Z 2206/2306 00000KT CAVOK TN25/2207Z TX33/2217Z BECMG 2207/2210 03002KT 2211/2213 06005KT BECMG 2215/2217 09010KT 9999 SCT025 FEW030TCU BECMG 2219/2221 FEW025 BECMG 2223/2301 09005KT CAVOK RMK PFF SBFI 220300Z 2206/2306 10004KT CAVOK TN03/2209Z TX22/2218Z BECMG 2214/2216 03007KT BECMG 2220/2222 12006KT RMK PDW SBFL 220300Z 2206/2306 33005KT 9999 SCT030 TN12/2208Z TX18/2218Z BECMG 2214/2216 36010KT FEW035 BECMG 2300/2302 34007KT SCT025 RMK PDW SBFN 220300Z 2206/2218 11011KT 8000 SCT020 TN24/2208Z TX29/2215Z RMK PEI SBFZ 220300Z 2206/2306 14008KT 8000 SCT020 TN23/2208Z TX30/2216Z BECMG 2211/2213 13015KT BECMG 2215/2216 09017KT BECMG 2221/2222 10010KT RMK PEI SBGL 220300Z 2206/2312 24010KT 7000 BKN015 TN20/2209Z TX25/2217Z BECMG 2207/2209 21010KT 4000 RA BR BKN010 BKN025 BECMG 2212/2215 18010KT 7000 NSW BKN015 BKN030 BECMG 2220/2222 26005KT BKN020 BECMG 2300/2303 30005KT BKN015 PROB30 2307/2311 4000 BR BKN010 RMK PHC SBGO 220400Z 2206/2306 08005KT CAVOK TN16/2208Z TX29/2218Z RMK PDS SBGR 220100Z 2206/2312 14005KT 8000 OVC009TX20/2217Z TN11/2305Z PROB40 2208/2211 4000 BR OVC005 BECMG 2213/2215 14010KT 9999 BKN020 BECMG 2218/2220 BKN012 BECMG 2221/2223 07004KT BECMG 2300/2302 OVC009 PROB30 2307/2311 4000 BR OVC005 RMK PGH SBGW 220300Z 2206/2218 16008KT 8000 BKN010 TN15/2208Z TX24/2218Z BECMG 2210/2212 12008KT 9999 NSW BKN015 BECMG 2212/2214 SCT025 RMK PDW SBIH 220400Z 2206/2218 00000KT CAVOK TN20/2207Z TX33/2217Z BECMG 2207/2208 5000 BR SCT004 BECMG 2210/2212 9999 SCT010 BECMG 2214/2216 00000KT CAVOK RMK PFF SBIL 220300Z 2206/2218 24004KT 7000 SCT020 TN21/2208Z TX27/2215Z PROB40 TEMPO 2208/2209 5000 SHRA SCT012 BKN016 BECMG 2210/2212 14009KT RMK PEI SBIZ 220400Z 2206/2218 00000KT CAVOK TN20/2206Z TX36/2218Z BECMG 2209/2211 15002KT BECMG 2213/2214 09008KT 9999 FEW025 BECMG 2216/2217 11005KT RMK PFF SBJP 220300Z 2206/2306 18006KT 7000 SCT020 TN21/2208Z TX28/2215Z TEMPO 2207/2210 4000 RA BKN008 BECMG 2211/2213 13015KT TEMPO 2214/2216 4000 RA BKN012 BECMG 2217/2219 SCT030 BECMG 2221/2223 15007KT BECMG 2301/2303 18006KT RMK PEI SBJV 220300Z 2206/2218 10006KT 8000 SCT008 BKN015 TN12/2206Z TX17/2217Z BECMG 2210/2212 9999 NSW FEW010 BKN020 BECMG 2212/2214 BKN030 RMK PDW SBKG 220300Z 2206/2218 14006KT 8000 BKN010 TN18/2207Z TX26/2216Z TEMPO 2208/2209 4000 BR BKN008 BECMG 2210/2212 13012KT BKN020 BECMG 2214/2216 SCT025 RMK PEI SBKP 220100Z 2206/2306 13016KT CAVOK TN16/2209Z TX25/2217Z PROB30 2209/2211 5000 BR NSC BECMG 2302/2304 12010KT RMK PGH SBLO 220300Z 2206/2218 12007KT CAVOK TN13/2209Z TX25/2218Z PROB30 TEMPO 2209/2212 8000 BKN010 RMK PDW SBLP 220300Z 2206/2218 20005KT 9999 FEW020 TN21/2209Z TX31/2217Z RMK PEI SBME 220300Z 2206/2218 31005KT 7000 SCT020 TN17/2209Z TX30/2218Z BECMG 2209/2212 24007KT BECMG 2215/2217 17007KT RMK PHC SBMN 220400Z 2206/2306 00000KT CAVOK TN26/2209Z TX32/2217Z BECMG 2207/2209 09002KT BECMG 2211/2213 06005KT BECMG 2215/2217 09005KT 9999 SCT020 BECMG 2219/2221 FEW020 FEW025TCU BECMG 2223/2301 06005KT CAVOK RMK PFF SBMO 220300Z 2206/2306 32003KT 8000 SCT020 TN18/2208Z TX27/2216Z PROB30 TEMPO 2208/2209 5000 SHRA SCT012 BKN017 BECMG 2210/2212 13013KT BECMG 2220/2221 10006KT BECMG 2302/2304 32003KT RMK PEI SBMQ 220400Z 2206/2306 31003KT 9999 FEW015 TN25/2208Z TX34/2217Z BECMG 2207/2209 05005KT SCT015 BECMG 2211/2213 BKN015 BECMG 2215/2217 SCT025 BECMG 2219/2221 06008KT FEW025 FEW030TCU BECMG 2223/2301 SCT020 FEW030TCU BECMG 2303/2305 07004KT 9999 FEW020 RMK PFF SBNF 220300Z 2206/2306 11005KT 9999 BKN025 TN13/2208Z TX18/2216Z BECMG 2212/2214 06007KT SCT025 BECMG 2300/2302 25006KT BKN015 RMK PDW SBNT 220300Z 2206/2306 18007KT 7000 BKN016 TN21/2208Z TX27/2217Z TEMPO 2207/2210 4000 RA BKN008 BECMG 2211/2213 15018KT TEMPO 2214/2216 4000 RA BKN012 BECMG 2217/2219 SCT030 BECMG 2221/2222 15010KT BECMG 2302/2304 18008KT RMK PEI SBPJ 220400Z 2206/2218 13004KT CAVOK TN20/2208Z TX34/2218Z BECMG 2211/2213 09007KT RMK PDS SBPL 220300Z 2206/2306 14008KT 9999 SCT035 TN21/2208Z TX31/2218Z BECMG 2207/2209 BKN020 BECMG 2214/2216 SCT025 BECMG 2221/2222 CAVOK RMK PEI SBPS 220300Z 2206/2306 26004KT 8000 SCT020 TN20/2208Z TX26/2215Z PROB30 TEMPO 2206/2208 4000 RA SCT008 BKN012 BECMG 2210/2212 10009KT BECMG 2302/2304 26004KT SCT012 BKN016 RMK PEI SBRB 220400Z 2206/2306 18005KT CAVOK TN22/2209Z TX33/2218Z BECMG 2307/2309 5000 BR BKN005 BECMG 2211/2213 17010KT 9999 BKN010 BECMG 2215/2217 BKN025 BECMG 2219/2221 FEW025 BECMG 2223/2301 12005KT CAVOK RMK PFF SBRF 220300Z 2206/2306 18009KT 8000 SCT020 TN23/2208Z TX27/2215Z PROB40 TEMPO 2207/2209 4000 RA BKN012 BECMG 2210/2212 15015KT TEMPO 2213/2215 4000 RA SCT012 BKN017 BECMG 2216/2217 SCT030 BECMG 2221/2223 15010KT BECMG 2301/2303 18010KT RMK PEI SBRJ 220300Z 2206/2218 24010KT 7000 BKN015 TN21/2209Z TX25/2218Z BECMG 2207/2209 21010KT 5000 RA BR BKN010 BKN025 BECMG 2212/2215 18010KT 7000 NSW BKN015 BKN030 RMK PHC SBRP 220100Z 2206/2306 13008KT CAVOK TN14/2209Z TX29/2217Z PROB30 2208/2211 5000 BR NSC BECMG 2213/2215 07008KT RMK PGH SBSC 220300Z 2206/2218 22008KT 8000 BKN010 BKN040 TN21/2208Z TX26/2218Z BECMG 2210/2212 9999 NSW FEW015 BKN035 BECMG 2212/2214 16008KT SCT030 RMK PDW SBSJ 220300Z 2206/2306 20005KT 7000 BKN015 TN15/2209Z TX22/2217Z BECMG 2207/2209 4000 BR BKN008 BECMG 2209/2212 15005KT 7000 NSW BKN015 BECMG 2214/2216 11005KT BKN025 BECMG 2221/2223 15005KT SCT020 RMK PHC SBSL 220400Z 2206/2306 15003KT CAVOK TN25/2207Z TX30/2217Z BECMG 2209/2211 07008KT BECMG 2215/2217 SCT010 BECMG 2219/2221 07003KT BECMG 2300/2302 04003KT CAVOK RMK PFF SBSM 220300Z 2206/2218 11006KT CAVOK TN03/2208Z TX17/2218Z PROB40 TEMPO 2209/2211 5000 BR NSC RMK PDW SBSN 220400Z 2206/2306 00000KT CAVOK TN23/2206Z TX31/2219Z BECMG 2207/2209 09003KT 9999 FEW017 BECMG 2211/2213 06005KT 9999 SCT017 BECMG 2215/2217 06010KT BECMG 2219/2221 06005KT FEW020 BECMG 2223/2301 00000KT CAVOK RMK PFF SBSP 220100Z 2206/2306 15006KT 8000 OVC008TN14/2209Z TX19/2217Z PROB30 2208/2211 4000 BR OVC005 BECMG 2213/2215 15010KT 9999 BKN017 BECMG 2217/2219 BKN010 BECMG 2220/2222 10003KT BECMG 2300/2302 OVC008 RMK PGH SBSV 220300Z 2206/2306 11010KT 9999 SCT020 TN25/2208Z TX29/2215Z PROB30 TEMPO 2208/2209 6000 SHRA BKN015 FEW020TCU RMK PEI SBTE 220300Z 2206/2218 33005KT CAVOK TN22/2209Z TX34/2217Z BECMG 2210/2211 14007KT RMK PEI SBTT 220400Z 2206/2306 00000KT CAVOK TN19/2207Z TX28/2218Z BECMG 2207/2209 9999 BKN010 BECMG 2211/2213 SCT020 BECMG 2215/2217 30003KT BKN020 BECMG 2219/2221 FEW020 BECMG 2223/2301 00000KT CAVOK RMK PFF SBUG 220300Z 2206/2306 08007KT CAVOK TN05/2208Z TX13/2216Z BECMG 2216/2218 12007KT 9999 VCSH SCT030 FEW035TCU BECMG 2219/2221 NSW FEW035 RMK PDW SBUL 220100Z 2206/2218 15006KT CAVOK TN16/2208Z TX28/2217Z BECMG 2213/2215 07010KT RMK PGH SBUR 220100Z 2206/2218 07010KT CAVOK TN17/2208Z TX28/2217Z RMK PGH SBVH 220400Z 2206/2218 0500 FG BKN002 TN17/2207Z TX29/2217Z BECMG 2211/2213 16010KT 9000 BKN002 BECMG 2215/2217 CAVOK RMK PFF SBVT 220300Z 2206/2306 34004KT 9999 FEW030 TN17/2209Z TX27/2216Z PROB30 2208/2209 2000 BR BKN008 BECMG 2212/2214 06011KT BECMG 2300/2301 34003KT RMK PEI SBYS 220400Z 2206/2218 20005KT CAVOK TN09/2208Z TX29/2218Z BECMG 2208/2210 06005KT RMK PDS SCAR 220451Z 2206/2306 19004KT 9999 OVC020 TN16/2206Z TX18/2218Z BECMG 2208/2210 07004KT BECMG 2216/2218 22014KT CAVOK BECMG 2222/2300 19004KT OVC020 SCAT 220453Z 2206/2306 20004KT 9999 OVC013 TN06/2206Z TX16/2217Z BECMG 2216/2218 27010KT CAVOK BECMG 2222/2300 30004KT OVC013 SCBA 220420Z 2206/2306 31015KT 9999 SCT050 TNM01/2210Z TX02/2219Z SCCF 220452Z 2206/2306 11015KT CAVOK TN02/2206Z TX20/2218Z BECMG 2216/2217 27010KT BECMG 2218/2220 27020KT BECMG 2302/2304 11015KT SCCI 220450Z 2206/2306 25012KT 9999 FEW040 TNM04/2208Z TX04/2218Z BECMG 2210/2212 29015KT BKN035 TEMPO 2214/2300 8000 -SHRASN -SHRA SCT012 BKN027 BECMG 2216/2218 30020G30KT TEMPO 2223/2306 27030G40KT SCDA 220451Z 2206/2306 19004KT 9999 OVC015 TN14/2206Z TX17/2218Z BECMG 2216/2218 22015KT CAVOK BECMG 2220/2222 OVC015 BECMG 2300/2302 19004KT SCEL 220419Z 2206/2306 15004KT 8000 SCT180 BKN220 TX14/2219Z TN00 /2211Z TEMPO 2209/2213 VRB02KT 5000 HZ SCT020 SCT180 BECMG 2216/2218 03004KT CAVOK BECMG 2218/2220 19006KT BECMG 2301/2303 15004KT 8000 NSC SCFA 220452Z 2206/2306 19010KT 9999 OVC013 TN12/2206Z TX15/2217Z BECMG 2210/2212 22004KT BKN015 BECMG 2216/2218 19014KT SCT015 BECMG 2222/2300 19004KT OVC012 SCIE 220420Z 2206/2306 27004KT 8000 SCT020 SCT035 TX10/2218Z TN02/2210Z TEMPO 2210/2215 35004KT 7000 -SHRA SCT010 BKN018 OVC030 BECMG 2214/2216 19008KT 9999 SCT025 BECMG 2218/2220 CAVOK SCIP 220416Z 2206/2306 08007KT 9999 SCT020 TN14/2212Z TX23/2220Z TEMPO 2208/2213 VRB03KT 8000 -SHRA BKN020 BECMG 2214/2216 04007KT BECMG 2222/2300 35007KT FEW020 SCT040 SCT100 TEMPO 2302/2306 30007KT SCT020 BKN080 SCQP 220416Z 2206/2306 VRB02KT 9999 BKN035 TX10/2219Z TNM01/2306Z TEMPO 2206/2210 -SHRA BECMG 2210/2212 SCT035 BECMG 2214/2216 20005KT BECMG 2221/2223 VRB02KT CAVOK SCSE 220416Z 2206/2306 13004KT 9999 BKN015 TX15/2218Z TN06/2211Z TEMPO 2209/2214 00000KT 7000 SCT007 BKN010 BECMG 2213/2215 25006KT CAVOK BECMG 2218/2220 28013KT BECMG 2300/2302 13004KT SCTE 220419Z 2206/2306 29005KT 9999 SCT040 TN01/2210Z TX08/2219Z BECMG 2208/2210 26005KT CAVOK BECMG 2215/2217 23005KT BKN040 TEMPO 2217/2220 -SHRA BKN030 BECMG 2220/2222 36005KT SEGU 220440Z 2206/2306 23010KT 9999 BKN023 BKN100 BECMG 2215/2217 14006KT FM221800 15007KT 9999 SCT023 SCT100 BECMG 2221/2224 22008KT FM230100 22010KT 9999 BKN023 BKN100 TX29/2220Z TN20/2210Z SOCA 220237Z 2202/2224 VRB03KT 9999 SCT022 SCT100 TEMPO 2202/2204 2000 SHRA SCT012TCU PROB30 TEMPO 2206/2210 1500 MIFG BECMG 2212/2213 11012KT PROB40 TEMPO 2216/2218 3000 SHRA SCT018TCU FM222200 VRB03KT 9999 SCT022 SCT050 SPCL 220500Z 2206/2306 13004KT 9999 BKN015 BKN070 TX28/2220Z TN21/2211Z TEMPO 2208/2212 26002KT 5000 -RADZ BKN008 OVC070 TEMPO 2218/2223 18010KT 4000 SHRA BKN012 FEW025TCU BKN080 SPHI 220510Z 2206/2306 18010KT 9999 BKN010 TX25/2219Z TN17/2211Z BECMG 2214/2216 BKN015 FM221700 19015KT CAVOK FM230400 18010KT 9999 BKN025 SPJC 220510Z 2206/2306 16005KT 8000 SCT010 OVC012 TX19/2218Z TN15/2211Z TEMPO 2210/2213 OVC010 BECMG 2215/2217 OVC015 FM221800 18010KT 9999 OVC017 BECMG 2302/2304 OVC014 SPQT 220500Z 2206/2306 16002KT 9999 BKN020 BKN100 TX30/2219Z TN22/2211Z TEMPO 2208/2212 07006KT 1000 -RADZ FG BKN005 OVC070 BECMG 2213/2216 TX19/2218Z TN09/2210Z BECMG 2215/2217 25008KT FM221900 25010KT 9999 SCT050 FM230100 09005KT CAVOK SPQU 220510Z 2206/2306 04010KT 9999 SCT130 TX19/2218Z TN09/2210Z BECMG 2215/2217 25008KT FM221900 25010KT 9999 SCT050 FM230100 09005KT CAVOK SPRU 220510Z 2206/2306 15006KT 6000 OVC015 TX21/2219Z TN16/2211Z BECMG 2208/2210 5000 BR BECMG 2213/2215 7000 NSW LVA0260 220531 FF KPHLZTZX KZDCZRZX KZJXZRZX KZMAZQZX KZNYZQZX MKJKZQZX MPZLZQZX MUFHZQZX 220531 SEQMZPZX /FPL-TAE550-IS -A332/H-SDFGHIRWXY/S -SEQM0645 -N0473F380 NEGAL1A NEGAL UM674 ENSOL UM674 TCO DCT TBG UL780 URSUS/N0464F390 AR24 DIW J174 SWL J121 SIE CAMRN4 -KJFK0520 KPHL -PBN/A1B1C1D1 DOF/180722 REG/HCCOH EET/SKED0013 MPZL0047 MKJK0155 MUFH0234 KZMA0306 KZMA0311 KZMA0329 ADIZ0335 KZJX0353 KZDC0418 KZNY0513 SEL/JKFP OPR/TAE/ SPSO 220510Z 2206/2306 09003KT 8000 NSC TX20/2219Z TN13/2211Z BECMG 2208/2210 5000 BR OVC012 BECMG 2213/2215 21010KT 8000 NSW OVC015 FM232100 22015KT 9999 SCT020 BECMG 2303/2305 09002KT OVC012 SPTN 220510Z 2206/2306 VRB02KT 3000 BR OVC005 TX19/2219Z TN12/2211Z TEMPO 2206/2208 0500 FG OVC002 BECMG 2213/2215 7000 NSW OVC010 FM221600 23008KT 9999 SCT030 BECMG 2223/2301 VRB02KT OVC015 SPZO 220510Z 2206/2306 VRB02KT 9999 FEW020 SCT036 BKN080 TX16/2219Z TN04/2211Z BECMG 2212/2214 SCT043 BKN080 FM221900 28012KT 9999 SCT050 BECMG 2300/2302 VRB02KT 9999 NSC SUAA 220500Z 2206/2306 35005KT CAVOK TX12/2218Z TN03/2210Z SUCA 220500Z 2206/2306 36005KT CAVOK TX12/2218Z TN03/2210Z SUDU 220500Z 2206/2306 36005KT CAVOK TX14/2218Z TN01/2210Z SULS 220500Z 2206/2306 31005KT CAVOK TX12/2218Z TN02/2210Z SUMU 220500Z 2206/2306 35005KT CAVOK TX12/2218Z TN03/2210Z SURV 220500Z 2206/2306 02005KT CAVOK TX14/2218Z TN03/2210Z BECMG 2214/2216 SCT015 BKN070 PROB30 TEMPO 2218/2300 5000 RA SUSO 220500Z 2206/2306 02005KT CAVOK TX14/2218Z TN03/2210Z BECMG 2214/2216 SCT015 BKN070 PROB30 TEMPO 2218/2300 5000 RA TLVA0293 220600 GG MPZZMAMX 220600 SLLPYMYX SABO SLLP 220600 METAR SLLP 220600Z 24004KT 2000 SN VCFG SCT002 SCT008 BKN070 00/00 Q1039 TAPA 220500Z 2206/2206 09010KT 9999 SCT020 PROB30 TEMPO 2206/2212 SHRA TIST 220520Z 2206/2306 07007KT P6SM VCSH SCT025 SCT040 BKN250 FM221430 13013KT P6SM FEW025 SCT050 SCT250 FM222130 08008KT P6SM VCSH SCT030 SCT060 TISX 220520Z 2206/2306 06006KT P6SM VCSH SCT022 SCT040 BKN250 FM221430 11013KT P6SM FEW025 SCT050 SCT250 FM222130 08008KT P6SM VCSH SCT030 SCT060 TJBQ 220520Z 2206/2306 10012KT P6SM VCSH FEW022 BKN070 BKN120 FM221400 08013KT P6SM SCT030 SCT080 SCT120 FM221800 07015KT P6SM VCTS SCT025CB BKN050 FM222300 09009KT P6SM FEW030 SCT080 SCT120 NOT SKED TJMZ 220520Z 2206/2306 VRB05KT P6SM FEW060 SCT120 SCT250 FM221530 27010KT P6SM SCT025 SCT040 FM221730 26010KT P6SM VCTS SCT025CB BKN040 FM222300 16006KT P6SM SCT030 SCT060 BKN120 NOT SKED TJPS 220520Z 2206/2306 06002KT P6SM SCT050 BKN250 FM221500 10012KT P6SM FEW030 SCT060 SCT250 FM221800 15016KT P6SM VCSH SCT035 BKN060 FM222300 09010KT P6SM FEW030 SCT100 NOT SKED TJSJ 220520Z 2206/2306 09009KT P6SM VCSH SCT025 SCT035 BKN250 FM221430 07012G20KT P6SM FEW030 SCT050 SCT250 FM222200 09008KT P6SM SCT030 SCT060 TKPK 220520Z 2206/2306 06008KT P6SM VCSH FEW019 SCT040 BKN250 FM221430 07014KT P6SM FEW022 SCT035 FM222230 05009KT P6SM VCSH SCT018 SCT050 NOT SKED TIL 221100 TKPN 220200Z 2200/2224 CNL TNCA 220342Z 2206/2306 09013KT 9999 FEW018 TEMPO 2214/2218 BKN015 TEMPO 2216/2222 10016G27KT TNCB 220407Z 2206/2312 09015KT 9999 SCT018 TNCM 220520Z 2206/2306 08009KT P6SM VCSH FEW019 SCT040 BKN250 FM221430 11013KT P6SM FEW022 SCT035 FM222230 08009KT P6SM VCSH SCT018 SCT050 TQPF 220200Z 2200/2224 CNL TRPG 220200Z 2200/2224 CNL TUPJ 220200Z 2200/2224 CNL TXKF 220545Z 2206/2306 13010KT 9999 FEW020 SCT300 PROB30 TEMPO 2303/2306 3200 SHRA BKN015 UAAA 220500Z 2206/2306 06005MPS 9999 SCT050CB BKN100 TX35/2209Z TN17/2301Z PROB40 TEMPO 2206/2214 TS TEMPO 2214/2218 5000 FU BECMG 2218/2219 18005MPS UACC 220603Z 2206/2306 04009G14MPS 5000 -RA BKN009 BKN020CB TX17/2209Z TN10/2223Z TEMPO 2206/2209 05011G16MPS 0800 +SHRA SCT005 BKN020CB PROB40 TEMPO 2206/2209 -TSRA BKN010CB TEMPO 2209/2214 04011G16MPS 4000 SHRA SCT007 BKN020CB FM221400 01006MPS 9999 SCT010 BKN020CB TEMPO 2223/2306 36009MPS 3000 SHRA SCT006 BKN010CB UAII 220500Z 2206/2306 30005MPS CAVOK TX43/2210Z TN23/2301Z TEMPO 2206/2214 25005G10MPS TEMPO 2215/2302 12005MPS UAKK 220500Z 2206/2306 06007MPS 9999 SCT030CB BKN100 TX20/2210Z TN08/2223Z TEMPO 2206/2212 06012MPS 5000 -SHRA BKN020CB TEMPO 2212/2200 2000 SHRA BR SCT005 BKN010CB TEMPO 2300/2306 01009MPS 5000 -SHRA SCT007 BKN020CB UATE 220528Z 2206/2306 32006G12MPS 9999 NSC TX35/2210Z TN23/2302Z BECMG 2206/2208 36009G15MPS UATG 220501Z 2206/2306 27010MPS 9999 SCT033CB TX35/2212Z TN23/2301Z BECMG 2220/2222 VRB02MPS UATT 220500Z 2206/2306 07012MPS 9999 SCT033 TX26/2212Z TN15/2301Z TEMPO 2206/2216 09017MPS UBBN 220525Z 2206/2306 22006KT 9999 FEW050 SCT100 TX37/2212Z TN23/2302Z TEMPO 2213/2218 34012KT SCT040 BKN080 UCFM 220451Z 2206/2306 27004MPS CAVOK TEMPO 2206/2212 32004G09MPS FM221200 12005MPS 6000 SCT060 UCFO 220440Z 2206/2306 27003G08MPS 9999 FEW050CB BECMG 2212/2214 17005MPS UDSG 220501Z 2206/2306 06008KT 9999 FEW050 TEMPO 2206/2209 06018KT SCT040CB TEMPO 2209/2220 VRB22KT -TSRA BKN040CB UDYZ 220507Z 2206/2306 22006KT 9999 FEW040 TEMPO 2210/2219 VRB20G30KT -TSRA BKN030CB UEEE 220500Z 2206/2312 18005G10MPS 9999 SCT033CB TEMPO 2209/2218 VRB14MPS -TSRA FM221800 30008G13MPS 5000 -SHRA SCT011 BKN020CB UHBB 220455Z 2206/2306 21003MPS 9999 BKN030CB TEMPO 2206/2212 2100 -TSRA BECMG 2210/2212 25003MPS UHHH 220452Z 2206/2312 04005MPS 9999 SCT020CB TEMPO 2206/2209 3000 -SHRA SCT010 BKN020CB TEMPO 2209/2218 2000 TSRA SCT006 BKN020CB UHMA 220450Z 2206/2306 15003G08MPS 9999 SCT007 BKN025 TEMPO 2206/2209 10007G12MPS 2000 -SHRA BR BKN005 OVC020CB TEMPO 2209/2221 1000 -SHRA BR BKN005 BKN017CB TEMPO 2221/2306 10007G12MPS UHMM 220447Z 2206/2312 22003G09MPS 9999 SCT030CB SCT070 TEMPO 2210/2223 3100 BR FEW004 OVC011 UHPP 220446Z 2206/2312 17003G12MPS 9999 BKN011 OVC030CB TEMPO 2212/2221 1000 BR VV003 TEMPO 2308/2312 -SHRA BKN007 OVC020CB UHSS 220500Z 2206/2312 36003MPS 9999 BKN030CB BECMG 2300/2303 20003MPS UHWW 220550Z 2206/2306 24003MPS 9999 SCT020CB TEMPO 2206/2211 23007MPS 4000 -SHRA BKN015CB FM221100 22003MPS 3100 -SHRA BR BKN011 BKN020CB TEMPO 2211/2223 0300 +TSRA FG VV002 BECMG 2302/2303 20003MPS 9999 NSW TEMPO 2303/2306 3500 -SHRA BKN012CB UIAA 220500Z 2206/2306 27007G12MPS 9999 SCT033CB TEMPO 2206/2215 -TSRA UIBB 220500Z 2206/2306 03003MPS 4000 FU BKN016CB UIII 220500Z 2206/2306 16003MPS 2900 FU SCT020CB TEMPO 2206/2216 1400 FU UIUU 220500Z 2206/2306 30005G10MPS 5000 FU BKN030CB BECMG 2212/2214 36003G08MPS UKBB 220500Z 2206/2306 30005G10MPS 9999 SCT010 BKN030 TX26/2212Z TN17/2302Z TEMPO 2206/2221 VRB10G17MPS 1000 TSRA SQ BKN003 BKN020CB TEMPO 2221/2306 0500 -SHRA FG BKN003 SCT020CB UKDD 220505Z 2206/2306 28005G10MPS 9999 SCT025CB BKN030 TX28/2212Z TN18/2302Z TEMPO 2206/2208 2100 BR BKN007 TEMPO 2208/2218 VRB09G14MPS 2100 -TSRA SCT007 BKN020CB BECMG 2221/2223 24002MPS UKDR 220503Z 2206/2306 30005G10MPS 9999 BKN014 SCT020CB TX30/2212Z TN18/2302Z BECMG 2218/2220 VRB01MPS UKKK 220503Z 2206/2306 29005G11MPS 9999 BKN015 TX26/2212Z TN16/2302Z TEMPO 2206/2219 VRB11G18MPS 1000 TSRAGR SQ BKN004 BKN020CB TEMPO 2219/2306 0500 -SHRA FG BKN002 BKN015CB UKLL 220502Z 2206/2306 VRB01MPS CAVOK TX26/2213Z TN15/2303Z TEMPO 2221/2306 3000 -SHRA BR SCT007 BKN015CB UKOO 220510Z 2206/2306 31003MPS 6000 BKN010 SCT020CB TX31/2212Z TN19/2302Z BECMG 2207/2208 20003MPS PROB40 TEMPO 2208/2218 VRB10G20MPS 1000 TSRAGR SQ BECMG 2219/2220 2100 -SHRA BR ULAA 220500Z 2206/2306 12004MPS 9999 SCT023 TEMPO 2206/2209 16003G08MPS TEMPO 2209/2218 15004G10MPS SCT020CB ULLI 220500Z 2206/2306 27003MPS 1700 MIFG BR OVC003 TEMPO 2206/2207 0500 FG VV002 BECMG 2207/2208 9999 NSW SCT011 BKN030 TEMPO 2207/2208 BKN005 TEMPO 2208/2220 27003G08MPS 3100 -TSRA BKN011 BKN020CB TEMPO 2220/2306 VRB01MPS 0300 FG VV003 ULMM 220450Z 2206/2306 17005G10MPS 9999 BKN015 TEMPO 2206/2220 19006G14MPS 1500 -TSRA BR SCT011 BKN015CB BECMG 2220/2222 17003G08MPS TEMPO 2222/2306 19004G09MPS 3100 -SHRA BKN011CB UMGG 220500Z 2206/2306 35005MPS 4000 BR BKN020 SCT030CB TEMPO 2206/2207 VRB02MPS 2000 BR BKN004 TEMPO 2207/2218 VRB14MPS 2000 TSRA SQ BKN005 BKN030CB FM221800 02006MPS 2000 BR BKN010 SCT030CB TEMPO 2218/2306 1200 TSRA BKN003 BKN030CB UMKK 220455Z 2206/2306 28003MPS 9999 SCT030 TEMPO 2206/2208 VRB01MPS SCT006 BECMG 2209/2211 34005G10MPS TEMPO 2211/2218 03008MPS SCT011 SCT020CB BECMG 2218/2220 35003G08MPS UMMS 220511Z 2206/2306 34007MPS 9999 BKN030 TX26/2212Z TN18/2302Z TEMPO 2206/2220 VRB17MPS 0500 +TSRA SQ BKN007 BKN025CB TEMPO 2220/2306 36003MPS 1200 BR BKN003 UNAA 220450Z 2206/2306 05003MPS 9999 SCT030 TEMPO 2221/2301 3200 BR FEW005 SCT011 UNBB 220500Z 2206/2306 01003G08MPS 5000 -SHRA BR SCT005 BKN011CB TEMPO 2206/2218 3100 -TSRA BKN003 BKN011CB TEMPO 2218/2303 1200 BR FEW002 SCT005 BKN011CB UNEE 220500Z 2206/2306 02003G08MPS 9999 -SHRA SCT030CB TEMPO 2206/2209 3100 BR SCT011 BKN020CB UNKL 220456Z 2206/2306 08005G12MPS 7000 SCT030CB FM221500 08003MPS 3100 BR FEW007 SCT040 UNNT 220550Z 2205/2306 02003G08MPS 9999 -SHRA BKN011CB TEMPO 2205/2215 3100 -SHRA BR BKN005 BKN011CB FM221500 33003G08MPS 4000 -SHRA BR BKN010CB TEMPO 2215/2306 0600 FG BKN002 BKN010CB UNOO 220455Z 2206/2306 02009MPS 9999 BKN033 TEMPO 2206/2213 02014MPS BKN030CB URKA 220503Z 2206/2306 23003G08MPS 9999 SCT030CB TEMPO 2206/2215 VRB10G17MPS 1000 TSRA SCT007 BKN020CB TEMPO 2221/2306 19003G08MPS 3100 -TSRA SCT011 BKN020CB URKK 220454Z 2206/2306 24005G10MPS 9999 SCT030CB TEMPO 2206/2218 VRB10G18MPS 1000 TSRA SCT005 BKN020CB URMM 220458Z 2206/2306 28003G08MPS 9999 BKN030 TX31/2212Z TN18/2302Z TEMPO 2206/2306 VRB06G15MPS 3100 -TSRA BKN011 BKN030CB URRP 220458Z 2206/2306 25003G08MPS 9999 SCT030CB TX30/2212Z TN21/2301Z TEMPO 2206/2208 23005G10MPS 3100 BR SCT007 BKN020CB PROB40 TEMPO 2206/2208 -TSRAGR TEMPO 2208/2218 23007G14MPS 3100 -TSRAGR SCT011 BKN020CB TEMPO 2218/2306 3100 BR SCT011 SCT020CB URSS 220455Z 2206/2306 22005MPS 9999 FEW030 BECMG 2209/2211 28005G10MPS SCT030CB TEMPO 2209/2215 -TSRA BECMG 2217/2219 05005MPS SCT100 USCC 220500Z 2206/2306 05005MPS CAVOK TEMPO 2206/2218 06011MPS TEMPO 2218/2306 35002MPS 5000 BR SCT020 USHH 220453Z 2206/2306 04003G08MPS 9999 SCT030 TEMPO 2218/2224 3100 -SHRA BR SCT005 BKN015CB USNN 220500Z 2206/2306 03003MPS CAVOK TEMPO 2206/2212 02006MPS USPP 220458Z 2206/2306 09005MPS CAVOK TEMPO 2206/2213 11011MPS BECMG 2213/2215 05003MPS USRR 220455Z 2206/2306 03006MPS CAVOK USSS 220452Z 2206/2306 06006G13MPS 9999 SCT030 BECMG 2216/2218 04005MPS USTR 220448Z 2206/2306 06008MPS 9999 SCT020 BECMG 2215/2216 03003MPS BECMG 2300/2301 02007MPS UTDD 220600Z 2207/2219 VRB02MPS 6000 FEW066 SCT150 TEMPO 2210/2216 27005MPS UTNN 220500Z 2206/2306 34012G22KT CAVOK TEMPO 2206/2214 28014G24KT UTNU 220500Z 2206/2306 32012G22KT 8000 SCT050 SCT100 TX44/2210Z TEMPO 2206/2212 28014G24KT SCT040 BKN100 UTSA 220501Z 2206/2306 VRB03KT 7000 NSC TX43/2210Z TEMPO 2206/2217 01012KT 4000 HZ UTSB 220500Z 2206/2306 VRB03KT 7000 NSC TX43/2210Z TEMPO 2206/2217 33012KT 4000 HZ UTSS 220504Z 2206/2306 12010G20KT 9999 NSC TX40/2209Z TEMPO 2206/2212 07010G20KT UTST 220500Z 2206/2306 24008G18KT 6000 NSC TX45/2211Z TEMPO 2206/2217 27012G22KT 3000 HZ UTTT 220500Z 2206/2306 35010KT CAVOK TX42/2210Z UUBW 220452Z 2206/2306 06005MPS 9000 BKN012 TX25/2212Z TN18/2302Z TEMPO 2208/2218 08008G13MPS -SHRA SCT011 SCT025CB PROB40 TEMPO 2209/2217 -TSRA BKN025CB UUDD 220500Z 2206/2312 08006MPS 8000 BKN011 TX24/2212Z TN17/2302Z TEMPO 2206/2209 -SHRA BKN007 SCT020CB TEMPO 2209/2221 08011MPS 3100 -TSRA FEW008 BKN020CB TEMPO 2221/2312 -SHRA FEW006 SCT015CB UUDL 220455Z 2206/2306 09005MPS 9999 BKN040 UUEE 220456Z 2206/2306 08006MPS 9000 BKN011 TX25/2212Z TN18/2302Z TEMPO 2206/2208 -SHRA SCT006 SCT015CB TEMPO 2208/2218 06009G14MPS -SHRA SCT020CB PROB40 TEMPO 2208/2218 -TSRA SCT020CB UUWW 220456Z 2206/2306 08005MPS 9999 OVC011 TX25/2212Z TN19/2302Z TEMPO 2206/2208 -SHRA SCT007 SCT015CB BECMG 2208/2209 BKN015 TEMPO 2209/2220 07007G12MPS 3100 -TSRA SCT011 BKN020CB TEMPO 2220/2303 -SHRA FEW005 SCT015CB UUYY 220500Z 2206/2306 13003MPS CAVOK TEMPO 2206/2218 15005G10MPS SCT030CB BECMG 2218/2220 18003MPS UWGG 220450Z 2206/2306 08003MPS 9999 SCT030 TX25/2212Z TN21/2206Z TEMPO 2206/2215 07006G13MPS UWKD 220454Z 2206/2306 08007G12MPS 9999 BKN020 TX26/2211Z TN15/2301Z TEMPO 2206/2215 09010G15MPS BKN030CB UWKE 220445Z 2206/2306 07006G12MPS 9999 SCT020 TEMPO 2206/2218 09008G14MPS UWLW 220445Z 2206/2306 06005G12MPS 8000 BKN030 TEMPO 2206/2218 05007G14MPS 5000 -SHRA BKN015CB UWOO 220500Z 2206/2306 09010G16MPS 9999 SCT020CB BKN033 TX28/2212Z TN16/2301Z TEMPO 2206/2215 09012G18MPS BECMG 2215/2216 09007G14MPS UWUU 220500Z 2206/2306 08006G12MPS CAVOK TEMPO 2206/2306 04003G08MPS UWWW 220500Z 2206/2306 09006G12MPS 9999 BKN015 OVC100 TX24/2211Z TN15/2301Z TEMPO 2206/2216 10013MPS 3100 -SHRA BKN011CB OVC100 TEMPO 2303/2306 12008G14MPS -SHRA SCT015CB OVC100 VAAH 220500Z 2206/2312 23006KT 4000 HZ SCT015 BKN080 BECMG 2212/2214 24008KT 2000 -RA HZ SCT015 BKN080 TEMPO 2218/2220 23006KT 1500 TSRA SCT010 SCT050 FEW030CB BKN080 BECMG 2301/2303 23005KT 2000 -RA HZ SCT010 SCT015 BKN080 BECMG 2304/2306 23006KT 3000 HZDZ FEW010 SCT018 BKN080 VABB 220500Z 2206/2312 24008G18KT 2500 -DZ HZ SCT018 SCT025 FEW025TCU BKN090 TEMPO 2206/2218 1500 SHRA RA BKN010 FEW030CB OVC080 BECMG 2216/2218 24012KT 2000 -DZ HZ TEMPO 2218/2303 1500 SHRA RA BKN010 FEW030CB OVC080 BECMG 2300/2302 24008G18KT TEMPO 2303/2312 1500 SHRA RA BKN010 FEW030CB OVC080 BECMG 2303/2305 2500 -DZ HZ VANP 220500Z 2206/2312 21005KT 4000 HZ -RA FEW012 SCT018 FEW025TCU BKN090 TEMPO 2209/2213 32010G20KT 0800 TSRA SHRA SCT008 BKN015 FEW030CB OVC080 BECMG 2212/2214 20003KT 2500 RA BR BECMG 2218/2220 23010KT 2000 RA BR BECMG 2301/2303 20005KT TEMPO 2223/2303 32010G20KT 0800 TSRA SHRA SCT008 BKN015 FEW030CB OVC080 BECMG 2305/2307 19007KT 1500 RA BR BKN008 BKN015 OVC080 VDPP 220500Z 2206/2224 25008KT 9999 SCT017 SCT040 TEMPO 2208/2213 25016G26KT 5000 TSRA SCT015 FEW017CB VDSR 220500Z 2206/2224 24009KT 9999 SCT017 SCT040 TEMPO 2208/2213 5000 TSRA SCT015 FEW017CB VDSV 220500Z 2206/2224 27008KT 9999 SCT017 SCT040 TEMPO 2207/2212 5000 RA VECC 220500Z 2206/2312 17010KT 2400 -RA HZ FEW010 SCT018 BKN080 TEMPO 2206/2210 1500 TSRA SCT015 FEW025CB OVC080 BECMG 2210/2212 3000 -RA HZ BECMG 2216/2218 2200 -RA HZ SCT018 BKN090 BECMG 2302/2304 3200 -RA HZ VEPT 220500Z 2206/2312 10015KT 5500 HZ SCT018 SCT025 BECMG 2209/2211 4500 HZ SCT018 FEW030CB SCT100 BECMG 2214/2216 09009KT SCT018 BKN100 BECMG 2221/2223 3500 HZ SCT010 BKN018 BKN090 BECMG 2303/2305 4500 HZ SCT012 SCT025 BECMG 2310/2312 SCT018 FEW030CB SCT100 VGHS 220500Z 2206/2312 14010KT 4000 HZ SCT012 BKN100 TEMPO 2206/2212 16025KT 2000 RA/TSRA BKN008 FEW025CB OVC090 BECMG 2214/2216 15010KT 4000 HZ SCT015 BKN100 VHHH 220500Z 2206/2312 24010KT 9999 FEW015 TX32/2206Z TX32/2306Z TN27/2222Z TEMPO 2206/2209 VRB20G30KT 2000 TSRA SHRA FEW010CB SCT020 BECMG 2209/2211 14010KT TEMPO 2209/2215 VRB05KT TEMPO 2222/2306 2500 -TSRA SHRA FEW010CB SCT020 TEMPO 2306/2312 4000 SHRA VIJP 220500Z 2206/2215 30005KT 3000 HZ BR BKN030 OVC090 TEMPO 2206/2212 1500 TSRA FEW035CB OVC080 BECMG 2213/2214 VRB02KT 2000 HZ VILK 220500Z 2206/2312 09008KT 3000 HZ SCT020 BKN100 VLLB 220500Z 2206/2306 24004KT 9999 SCT017 SCT050 BKN080 TEMPO 2214/2220 3000 BR SCT013 SCT050 BKN070 VLLN 220500Z 2206/2306 22004KT 8000 SCT017 BKN100 TEMPO 2214/2220 3000 BR SCT017 BKN090 VLPS 220500Z 2206/2306 18006KT 8000 SCT017 SCT050 BKN100 VLSK 220500Z 2206/2306 22006KT 8000 SCT020 BKN100 TEMPO 2209/2212 5000 DZ SCT020 BKN090 VLVT 220500Z 2206/2306 27006KT 9999 SCT016 BKN040 TEMPO 2214/2220 4000 BR FEW016 BKN050 VMMC 220500Z 2206/2312 17008KT 9999 FEW015 SCT035 TEMPO 2206/2212 VRB15G25KT 2500 +TSRA FEW008 SCT015CB TEMPO 2220/2303 VRB15G25KT 2500 +TSRA FEW008 SCT015CB TEMPO 2303/2306 4000 SHRA VNKT 220500Z 2206/2306 17006KT 7000 FEW010 SCT030 BKN100 PROB40 2208/2214 24008KT 4000 RA/SHRA FEW025CB OVC090 BECMG 2214/2215 12004KT 6000 FEW015 SCT030 BKN100 PROB40 2216/2222 4000 -RA/SHRA FEW025CB OVC090 BECMG 2300/2302 VRB02KT 4000 -RA FEW008 SCT025 BKN100 BECMG 2304/2305 13003KT 7000 FEW010 SCT030 BKN100 VOCI 220500Z 2206/2312 27005KT 4000 BR SCT012 BKN090 TEMPO 2211/2215 3000 RA/DZ BECMG 2216/2217 00000KT 3000 BR TEMPO 2222/2302 2000 -RA/BR SCT008 SCT012 BKN080 BECMG 2306/2307 29005KT 5000 BR TEMPO 2310/2312 3000 RA/DZ SCT012 BKN080 VOTV 220500Z 2206/2312 35010G20KT 6000 SCT015 TEMPO 2212/2215 3000 RA/DZ SCT015 BKN080 BECMG 2216/2217 35005KT 3000 HZ TEMPO 2300/2302 2000 BR BECMG 2304/2305 34010KT 6000 VRMG 220500Z 2206/2312 10008KT 9999 FEW017 TEMPO 2206/2212 4000 TSRA SCT016 FEW017CB VRMM 220500Z 2206/2312 30016KT 9000 FEW017 TEMPO 2206/2212 32021G36KT 2000 TSRA SCT016 FEW017CB VTBD 220500Z 2206/2312 24008KT 9999 FEW020 SCT100 TEMPO 2208/2212 VRB15KT 5000 TSRA FEW018CB SCT030 BKN100 TEMPO 2306/2312 23015KT 5000 TSRA FEW018CB SCT030 BKN100 VTBO 220500Z 2206/2306 24010KT 7000 FEW020 TEMPO 2209/2213 VRB12KT 6000 -TSRA FEW018CB SCT020 BKN100 BECMG 2215/2217 00000KT 5000 BR BECMG 2300/2302 24008KT 6000 NSW VTBS 220500Z 2206/2312 23008KT 9999 FEW020 SCT040 TEMPO 2208/2212 24015KT 5000 TSRA FEW018CB SCT035 BKN100 TEMPO 2304/2310 22010G25KT 5000 TSRA FEW018CB SCT035 BKN100 VTBU 220500Z 2206/2306 23010KT 8000 FEW020 SCT100 TEMPO 2206/2210 FEW020CB BECMG 2210/2212 24006KT 5000 BR VTCC 220500Z 2206/2312 22005KT 9999 BKN030 TEMPO 2206/2212 VRB15G25KT 5000 TSRA FEW025CB BKN030 TEMPO 2305/2311 VRB15G25KT 5000 TSRA FEW025CB BKN030 VTCH 220500Z 2206/2306 24005KT 9999 BKN030 TEMPO 2206/2212 VRB15G25KT 5000 TSRA FEW025CB BKN030 VTCL 220500Z 2206/2306 23005KT 9999 BKN030 TEMPO 2206/2212 VRB15G25KT 5000 TSRA FEW025CB BKN030 VTCN 220500Z 2206/2306 23005KT 9999 BKN030 TEMPO 2206/2212 VRB15G25KT 5000 TSRA FEW025CB BKN030 VTCP 220500Z 2206/2306 24005KT 9999 BKN030 TEMPO 2206/2212 VRB15G25KT 5000 TSRA FEW025CB BKN030 VTCT 220500Z 2206/2312 22005KT 9999 BKN030 TEMPO 2206/2212 VRB15G25KT 5000 TSRA FEW025CB BKN030 TEMPO 2305/2311 VRB15G25KT 5000 TSRA FEW025CB BKN030 VTPB 220500Z 2206/2306 23005KT 9999 BKN030 TEMPO 2206/2212 VRB15G25KT 5000 TSRA FEW025CB BKN030 VTPH 220500Z 2206/2306 25008KT 9999 FEW030 TEMPO 2208/2212 VRB12KT 6000 -TSRA FEW018CB SCT020 BKN100 BECMG 2215/2217 00000KT 5000 BR BECMG 2301/2303 24008KT 7000 NSW VTPM 220500Z 2206/2306 25005KT 8000 BKN030 TEMPO 2206/2212 VRB15G25KT 5000 TSRA FEW025CB BKN030 VTPO 220500Z 2206/2306 25005KT 9999 BKN030 TEMPO 2206/2212 VRB15G25KT 5000 TSRA FEW025CB BKN030 VTPP 220500Z 2206/2306 25005KT 8000 BKN030 TEMPO 2206/2212 VRB15G25KT 5000 TSRA FEW025CB BKN030 VTPT 220500Z 2206/2306 26005KT 7000 BKN030 TEMPO 2206/2212 VRB15G25KT 5000 TSRA FEW025CB BKN030 VTSB 220500Z 2206/2306 25014KT 9999 SCT020 SCT100 TEMPO 2206/2212 25014G24KT 6000 -TSRA FEW016CB SCT018 BKN100 BECMG 2213/2215 19004KT BECMG 2220/2222 5000 BR BECMG 2303/2305 25014KT 9999 NSW VTSC 220500Z 2206/2306 26010KT 9999 FEW020 SCT100 BECMG 2213/2215 18004KT VTSE 220500Z 2206/2306 25012KT 9999 SCT020 BKN100 TEMPO 2206/2212 25012G22KT 6000 -TSRA FEW016CB SCT018 BKN100 BECMG 2220/2222 5000 BR BECMG 2301/2303 9999 NSW VTSF 220500Z 2206/2306 26008KT 9999 FEW020 SCT100 TEMPO 2206/2212 VRB10G20KT 6000 -TSRA FEW016CB SCT018 BKN100 VTSG 220500Z 2206/2306 26010KT 9999 SCT020 TEMPO 2206/2210 26015G35KT 5000 RA FEW018 SCT020 BKN100 BECMG 2210/2212 26006KT VTSH 220500Z 2206/2306 24010KT 9999 FEW020 VTSK 220500Z 2206/2306 24010KT 9999 FEW020 SCT100 BECMG 2216/2218 VRB02KT VTSM 220500Z 2206/2306 28014KT 9999 FEW020 VTSP 220500Z 2206/2312 26013KT 9999 SCT020 BECMG 2210/2212 26008KT TEMPO 2300/2304 26015G35KT 5000 RA FEW018 SCT020 BKN100 VTSR 220500Z 2206/2306 23012KT 9999 BKN020 TEMPO 2206/2212 22015G35KT 5000 RA FEW018 SCT020 BKN100 TEMPO 2300/2306 22015G35KT 5000 RA FEW018 SCT020 BKN100 VTSS 220500Z 2206/2306 25014KT 9999 SCT020 SCT100 BECMG 2216/2218 24003KT BECMG 2303/2305 25013KT VTST 220500Z 2206/2306 26012KT 9999 FEW020 BECMG 2210/2212 00000KT BECMG 2220/2222 5000 BR BECMG 2301/2303 26008KT 9999 NSW VTUD 220500Z 2206/2306 24008KT 9999 SCT020 BKN080 TEMPO 2218/2301 VRB10G20KT 5000 TSRA FEW018CB BKN020 BKN080 VTUI 220500Z 2206/2306 24008KT 9999 SCT025 BKN080 TEMPO 2206/2213 VRB10G20KT 5000 TSRA FEW018CB BKN020 BKN080 TEMPO 2218/2301 VRB10G20KT 5000 TSRA FEW018CB BKN020 BKN080 VTUJ 220500Z 2206/2306 24010KT 8000 SCT040 BKN100 TEMPO 2209/2212 VRB15KT 5000 TSRA FEW018CB BKN020 OVC070 VTUK 220500Z 2206/2306 22008KT 9999 SCT025 BKN080 TEMPO 2208/2215 VRB10G20KT 5000 TSRA FEW018CB BKN020 BKN080 VTUL 220500Z 2206/2306 32006KT 9999 SCT025 BKN080 TEMPO 2208/2215 VRB10G20KT 5000 TSRA FEW018CB BKN020 BKN080 VTUO 220500Z 2206/2306 25010KT 8000 SCT040 BKN100 TEMPO 2209/2212 VRB15KT 5000 TSRA FEW018CB BKN020 OVC070 VTUQ 220500Z 2206/2306 26010KT 8000 SCT030 TEMPO 2207/2210 VRB15KT 5000 TSRA FEW018CB BKN020 OVC070 VTUU 220500Z 2206/2306 24010KT 9000 FEW020 BKN100 TEMPO 2208/2211 VRB15KT 5000 TSRA FEW018CB BKN020 OVC070 VTUV 220500Z 2206/2306 26010KT 8000 SCT030 BKN100 TEMPO 2207/2210 VRB15KT 5000 TSRA FEW018CB BKN020 OVC070 VTUW 220500Z 2206/2306 26008KT 9999 SCT025 BKN080 TEMPO 2206/2213 VRB10G20KT 5000 TSRA FEW018CB BKN020 BKN080 TEMPO 2218/2301 VRB10G20KT 5000 TSRA FEW018CB BKN020 BKN080 VVCI 220500Z 2206/2306 04006KT 9999 FEW030 BKN045 PROB40 TEMPO 2206/2213 VRB17KT 3000 +TSRA SCT013 FEW030CB BKN045 VVCR 220500Z 2206/2306 22014KT 9999 SCT015 VVCT 220500Z 2206/2306 24012KT 9999 SCT015 TEMPO 2206/2211 24015G28KT 3000 SHRA SCT013 SCT015CB VVDN 220500Z 2206/2306 24005KT 8000 SCT013 BKN050 TEMPO 2206/2208 4500 RA TEMPO 2208/2213 4000 SHRA SCT013 FEW015CB BKN050 VVNB 220500Z 2206/2306 01009KT 9999 FEW035 BKN150 VVPB 220500Z 2206/2306 25006KT 9999 SCT015 BKN050 TEMPO 2206/2208 4500 RA TEMPO 2208/2213 3500 SHRA SCT013 FEW015CB BKN050 VVPQ 220500Z 2206/2306 25012KT 9999 SCT015 TEMPO 2218/2224 25015G28KT 5000 SHRA SCT015 FEW017CB BKN040 VVTS 220500Z 2206/2312 25014KT 9999 SCT015 TEMPO 2207/2211 25015G30KT 3000 SHRA SCT013 SCT015CB TEMPO 2306/2312 5000 SHRA SCT015 FEW017CB VYMD 220500Z 2206/2306 18007KT 7000 BKN020 FEW025CB BKN110 TEMPO 2206/2212 18008G18KT 7000 BKN018 FEW020CB BKN100 VYNT 220500Z 2206/2306 19008KT 6000 BKN015 FEW020CB BKN100 TEMPO 2206/2212 17010KT 5000 -TSRA BKN012 FEW016CB OVC100 VYYY 220500Z 2206/2306 24007KT 7000 BKN014 FEW020CB BKN100 TEMPO 2206/2212 23008G18KT 3000 TSRA BKN010 FEW016CB OVC080 WABB 220500Z 2206/2312 12005KT 9999 SCT018 BECMG 2210/2212 00000KT TEMPO 2216/2221 5000 RA FEW017CB WADL 220500Z 2206/2306 18015KT 9000 SCT016 WAFD 220500Z 2206/2218 11010KT 9000 SCT017 BKN100 BECMG 2212/2214 00000KT WAFJ 220500Z 2206/2218 31007KT 9999 SCT017 BECMG 2211/2213 09004KT 8000 WAFM 220500Z 2206/2218 14008KT 8000 SCT016 BKN090 BECMG 2211/2213 00000KT 7000 WAFT 220500Z 2206/2218 12008KT 8000 SCT015 BKN090 BECMG 2211/2213 00000KT 3000 BR WAPC 220500Z 2206/2218 12010KT 9000 SCT019 WAPS 220500Z 2206/2218 11010KT 9000 SCT018 WAWB 220500Z 2206/2218 12008KT 9000 SCT016 BECMG 2211/2213 00000KT WAWH 220500Z 2206/2218 09010KT 9999 SCT018 WAWP 220500Z 2206/2218 06007KT 9000 SCT018 BECMG 2211/2213 00000KT 7000 SCT018 WAWS 220500Z 2206/2218 17005KT 9000 SCT018 BECMG 2211/2212 00000KT 7000 WAWW 220500Z 2206/2218 09010KT 9000 BKN017 BECMG 2210/2212 00000KT 7000 SCT018 WBGB 220500Z 2206/2306 24005KT 9999 FEW015 SCT018 TEMPO 2208/2211 4000 SHRA FEW015CB SCT018 WBGG 220500Z 2206/2306 15005KT 9999 FEW015 SCT018 TEMPO 2208/2211 4000 SHRA FEW015CB SCT018 WBGR 220500Z 2206/2306 24005KT 9999 FEW015 SCT020 WBGS 220500Z 2206/2306 14005KT 9999 FEW015 SCT018 WBKK 220500Z 2206/2306 24008KT 9999 FEW015 BECMG 2209/2211 13005KT WBKL 220500Z 2206/2306 25010KT 9999 FEW015 PROB30 TEMPO 2214/2217 23003G15KT 4000 RA SCT012 FEW013CB SCT030 WBKS 220500Z 2206/2306 05007KT 9999 FEW017 PROB40 TEMPO 2212/2215 4000 TSRA SCT010 FEW015CB SCT035 WBKW 220500Z 2206/2306 17008KT 9999 FEW017 WBSB 220500Z 2206/2312 23012KT 9999 SCT016 FEW017CB TEMPO 2209/2211 7000 SHRA TSRA TEMPO 2215/2217 5000 SHRA WIDD 220500Z 2206/2306 18009KT 9000 SCT014= WIEE 220500Z 2206/2306 23007KT 9999 FEW020 BECMG 2208/2210 35004KT SCT020 BECMG 2215/2217 03003KT WIHH 220500Z 2206/2306 04010KT 6000 SCT022 BECMG 2215/2217 12005KT WIMM 220500Z 2206/2306 06010KT 9999 SCT018 BECMG 2210/2212 VRB03KT 5000 HZ WITT 220500Z 2206/2306 23010KT 9000 FEW018 PROB30 TEMPO 2214/2218 22010G21KT 4000 - RA FEW016CB BECMG 2223/2301 7000 WMKB 212041Z 2121/2218 VRB03KT 8000 FEW025 TEMPO 2121/2201 36010KT 4000 TSRA FEW010 FEW017CB SCT020 BECMG 2205/2207 30010KT FEW020 PROB30 TEMPO 2206/2208 6000 SHRA FEW017CB WMKJ 220500Z 2206/2306 20005KT 4000 TSRA FEW012 FEW017CB BECMG 2208/2210 9999 FEW025 BECMG 2212/2213 VRB02KT TEMPO 2303/2306 25005KT 4000 TSRA FEW016CB SCT018 WMKK 220500Z 2206/2312 20005KT 9999 FEW018 BECMG 2211/2213 VRB02KT FEW030 TEMPO 2300/2304 4000 TSRA FEW010 FEW016CB BECMG 2306/2307 23005KT FEW020 WMKL 220500Z 2206/2306 27005KT 9999 FEW022 BECMG 2209/2210 VRB02KT BECMG 2301/2302 28007KT WMKM 220500Z 2206/2306 22005KT 9999 FEW017CB BECMG 2208/2210 23005KT FEW025 PROB30 TEMPO 2301/2305 5000 TSRA FEW012 FEW016CB WMKP 220500Z 2206/2306 21010KT 9000 FEW020 SCT140 BKN280 BECMG 2213/2215 01005KT WMSA 220500Z 2206/2306 23007KT 9999 FEW022 BECMG 2220/2222 4000 HZ FEW010 BECMG 2300/2302 9999 NSW FEW025 WSAP 220500Z 2206/2312 18007KT 9999 FEW018CB SCT020 TEMPO 2302/2306 3000 TSRA FEW012CB BKN015 WSSL 220300Z 2203/2306 18007KT 9999 FEW018CB SCT020 TEMPO 2204/2207 3000 TSRA FEW012CB BKN015 TEMPO 2302/2306 3000 TSRA FEW012CB BKN015 WSSS 220500Z 2206/2312 18007KT 9999 FEW018CB SCT020 TEMPO 2302/2306 3000 TSRA FEW012CB BKN015 YAMB 220444Z 2206/2224 07007KT 9999 FEW050 FM221000 VRB04KT CAVOK FM221700 VRB03KT 9999 MIFG NSC FM222100 VRB03KT 9999 FEW050 YBAS 220527Z 2206/2306 33008KT CAVOK FM230000 31012KT CAVOK YBBN 220508Z 2206/2312 11009KT 9999 FEW045 FM220700 15008KT 9999 FEW045 FM221000 21006KT 9999 FEW045 FM230200 07010KT CAVOK FM230800 02007KT CAVOK YBCG 220509Z 2206/2306 13010KT 9999 FEW040 FM220900 20005KT 9999 SCT035 FM230100 05007KT CAVOK YBCS 220529Z 2206/2306 11013KT 9999 FEW030 FM220800 15008KT 9999 FEW025 FM230000 11013KT 9999 FEW030 YBHM 220608Z 2206/2218 13016KT 9999 FEW023 FM220900 12014KT 9999 BKN025 YBRK 220521Z 2206/2306 07008KT 9999 FU NSC FM220900 19004KT CAVOK FM230000 09008KT CAVOK YBRM 220444Z 2206/2306 26008KT CAVOK FM221000 21005KT 9999 BKN005 FM230100 18005KT 9999 SCT010 FM230300 25008KT CAVOK YBTL 220532Z 2206/2306 06015KT 9999 FEW035 FM220900 11008KT 9999 SCT018 FM230200 06015KT 9999 FEW035 YCFS 220503Z 2206/2306 10010KT CAVOK FM221100 32005KT CAVOK FM222300 33008KT CAVOK FM230200 03013KT CAVOK YCIN 220013Z 2202/2214 31008KT CAVOK YFRT 220006Z 2202/2214 31012KT CAVOK FM220300 29018G28KT CAVOK FM220500 30018G28KT 9999 -SHRA BKN050 YGEL 220436Z 2206/2224 28020G30KT 9999 -SHRA SCT015 BKN025 FM221000 25018G28KT 9999 -SHRA SCT030 INTER 2206/2210 28025G40KT 3000 SHRA BKN010 INTER 2210/2224 25020G35KT 5000 SHRA SCT015 YGLA 220521Z 2206/2218 08008KT CAVOK FM221100 18005KT 9999 SCT040 YHID 220531Z 2206/2306 13015KT 9999 SCT018 SCT030 FM222300 13018G28KT 9999 SCT025 SCT035 YLHI 220522Z 2206/2306 18008KT 9999 SCT040 FM220900 17003KT 9999 SCT030 YMAV 220513Z 2206/2306 01015G25KT CAVOK FM220800 02014KT CAVOK FM221600 01015G28KT 9999 -SHRA NSC YMHB 220518Z 2206/2306 01008KT 9999 FEW045 FM221200 34012KT 9999 FEW030 FM230100 36015G25KT 9999 -RA SCT025 YMLT 220200Z 2202/2224 VRB03KT 9999 -SHRA SCT010 BKN015 FM221000 35005KT 9999 SCT010 BKN020 FM221500 35010KT 9999 SCT025 TEMPO 2202/2209 4000 SHRA BKN005 YMML 220513Z 2206/2312 02012KT CAVOK FM221000 02016G28KT CAVOK FM221600 01022G40KT 9999 -SHRA NSC FM230600 36025G42KT 9999 -SHRA SCT045 YPAD 220514Z 2206/2312 36018G28KT CAVOK FM220800 02012KT CAVOK FM221800 01014KT 9999 -SHRA NSC FM230000 34018G28KT 9999 -SHRA BKN035 FM230700 29020G30KT 9999 -SHRA BKN030 INTER 2306/2308 32030G45KT 3000 SHRA SCT015 BKN025 INTER 2303/2309 33025G40KT 5000 SHRA SCT020 BKN030 YPCC 220448Z 2206/2306 11014KT 9999 -SHRA SCT025 YPDN 220527Z 2206/2312 05010KT CAVOK FM221200 14005KT CAVOK FM230000 11010KT CAVOK FM230500 32008KT CAVOK YPEA 220437Z 2206/2224 28023G35KT 9999 -SHRA BKN030 FM221800 26014KT 9999 -SHRA SCT040 INTER 2206/2216 27020G40KT 4000 SHRA SCT012 PROB30 INTER 2206/2212 VRB25G45KT 3000 TSRA BKN010 FEW030CB YPGV 220107Z 2202/2214 13014KT 9999 SCT040 FM220800 14006KT CAVOK YPJT 220437Z 2206/2224 28023G35KT 9999 -SHRA BKN030 FM221800 26014KT 9999 -SHRA SCT040 INTER 2206/2216 27020G40KT 4000 SHRA SCT012 PROB30 INTER 2206/2212 VRB25G45KT 3000 TSRA BKN010 FEW030CB YPKG 220440Z 2206/2306 29018G28KT 9999 -SHRA BKN080 FM221000 28016KT 9999 -SHRA SCT015 BKN030 FM221500 27016KT 9999 BKN020 FM230200 27014KT 9999 SCT040 INTER 2210/2215 30020G40KT 3000 SHRA BKN015 YPKU 220013Z 2202/2214 13005KT CAVOK YPLM 220442Z 2206/2306 26014KT 9999 -SHRA BKN030 FM220900 23012KT 9999 -SHRA SCT025 FM221400 18006KT 9999 -SHRA SCT010 SCT040 FM230000 14008KT 9999 SCT045 INTER 2206/2220 4000 SHRA BKN015 YPPD 220442Z 2206/2306 29014KT CAVOK FM221900 21005KT CAVOK FM230200 13010KT CAVOK YPPH 220537Z 2206/2312 28023G35KT 9999 -SHRA BKN030 FM221800 26014KT 9999 -SHRA SCT040 FM231000 27010KT 9999 -SHRA BKN025 INTER 2206/2216 27020G40KT 4000 SHRA SCT012 INTER 2306/2312 5000 SHRA SCT015 PROB30 INTER 2206/2212 VRB25G45KT 2000 TSRA BKN010 FEW030CB YPTN 220527Z 2206/2306 12009KT CAVOK YPWR 220509Z 2206/2224 36020G30KT CAVOK FM221000 01018KT CAVOK FM222100 36018KT 9999 -SHRA NSC YPXM 220448Z 2206/2306 13010KT 9999 -SHRA BKN006 YSCB 220534Z 2206/2306 34012KT CAVOK FM221000 VRB05KT CAVOK FM230100 30014KT CAVOK PROB30 2216/2218 2000 BR SCT002 PROB30 2218/2224 0500 FZFG BKN001 PROB30 2300/2301 0500 FG BKN001 YSDU 220454Z 2206/2224 30007KT CAVOK BECMG 2207/2208 17005KT CAVOK FM221500 10006KT CAVOK YSNF 220522Z 2206/2306 17010KT 9999 -SHRA SCT020 BKN030 YSRI 220506Z 2206/2306 03008KT CAVOK FM221000 32003KT CAVOK FM230300 34012KT CAVOK YSSY 220512Z 2206/2312 02010KT CAVOK FM221300 29008KT CAVOK FM230400 35015KT CAVOK FM230900 32010KT CAVOK YSTW 220454Z 2206/2224 33010KT CAVOK FM220900 08005KT CAVOK YTNK 220107Z 2202/2214 11010KT CAVOK YTRE 220050Z 2202/2214 06007KT CAVOK FM220800 VRB03KT CAVOK YWGT 220028Z 2202/2214 02010KT 9999 SCT050 FM220800 05005KT CAVOK YWLM 220505Z 2206/2306 03008KT CAVOK FM221200 35005KT CAVOK FM222200 31010KT CAVOK ZBAA 220110Z 2200/2224 14004MPS 4000 BR NSC TX35/2207Z TN27/2222Z TEMPO 2202/2206 -TSRA FEW030CB BKN040 ZBTJ 220609Z 2206/2306 15004MPS 3000 -SHRA BR FEW030CB SCT030 TX33/2305Z TN26/2221Z BECMG 2206/2207 5000 BR NSC

Map